SQLite format 3@ ,Z ,-)v?tablebuoy_nowbuoy_nowCREATE TABLE buoy_now ( STN, LAT, LON, YYYY, MM, DD, hh, minute, WDIR, WSPD, GST, WVHT, DPD, APD, MWD, PRES, PTDY, ATMP, WTMP, DEWP, VIS, TIDE, raw_text DEFAULT '', timestamp TIMESTAMP DEFAULT CURRENT_TIMESTAMP )j7tablebuoybuoyCREATE TABLE buoy ( STN, LAT, LON, YYYY, MM, DD, hh, minute, WDIR, WSPD, GST, WVHT, DPD, APD, MWD, PRES, PTDY, ATMP, WTMP, DEWP, VIS, TIDE, raw_text DEFAULT '', timestamp TIMESTAMP DEFAULT C   xph`XPH@80( xph`XPH@80( xph`XPH@80( #ɵ)#n #3"""]9"I!b!LP  s ;W൝o *ϵ$t31cR&gAZ浝]p0յGz ĵ%i=LYXhzTGS최]n6U۵@3%DʵMoo^,@QMizF$$o j7tablebuoybuoyCREATE TABLE buoy ( STN, LAT, LON, YYYY, MM, DD, hh, minute, WDIR, WSPD, GST, WVHT, DPD, APD, MWD, PRES, PTDY, ATMP, WTMP, DEWP, VIS, TIDE, raw_text DEFAULT '', timestamp TIMESTAMP DEFAULT CURRENT_TIMESTAMP )v?tablebuoy_nowbuoy_nowCREATE TABLE buoy_now ( STN, LAT, LON, YYYY, MM, DD, hh, minute, WDIR, WSPD, GST, WVHT, DPD, APD, MWD, PRES, PTDY, ATMP, WTMP, DEWP, VIS, TIDE, raw_text DEFAULT '', timestamp TIMESTAMP DEFAULT CURRENT_TIMESTAMP ) nnj}tablemetarmetarCREATE TABLE metar ( raw_text DEFAULT '', station_id, observation_time, latitude, longitude, temp_c, dewpoint_c, wind_dir_degrees, wind_speed_kt, wind_gust_kt, visibility_statute_mi, altim_in_hg, sea_level_pressure_mb, corrected, auto, auto_station, maintenance_indicator_on, no_signal, lightning_sensor_off, freezing_rain_sensor_off, present_weather_sensor_off, wx_string, sky_cover, cloud_base_ft_agl, flight_category, three_hr_pressure_tendency_mb, maxT_c, minT_c, maxT24hr_c, minT24hr_c, precip_in, pcp3hr_in, pcp6hr_in, pcp24hr_in, snow_in, vert_vis_ft, metar_type, elevation_m, timestamp TIMESTAMP DEFAULT CURRENT_TIMESTAMP ) ق~ytoje_YSMGA;5/)# {uoic]WQKE?93-'! ysmga[UOIC=71+% 21؄cׄ_քZՄUԄPӄL҄GфCЄ>τ9΄4̈́/̄*˄%ʄ ɄȄDŽƄ ńĄÃ}ƒxsnտiվdս_ռZջUպPչKոFշAն<յ7մ2ճ-ղ(ձ#հկծխլ իժթ}ըxէtզoեjդeգ`բ[աVՠQ՟L՞G՝B՜=՛8՚4ՙ/՘*՗%Ֆ ՕՔՓՒ ՑՐՏ}ՎxՍsՌnՋiՊdՉ_ՈZՇUՆPՅKՄFՃAՂ<Ձ7Հ2-~(}#|{zyx wvu~t{swrsqopkogncm_l[kWjSiOhKgGfCe?d;c7b2ؠ/1׾MX܏%\!܈ۄ )tablemetar_nowmetar_nowCREATE TABLE metar_now ( raw_text DEFAULT '', station_id, observation_time, latitude, longitude, temp_c, dewpoint_c, wind_dir_degrees, wind_speed_kt, wind_gust_kt, visibility_statute_mi, altim_in_hg, sea_level_pressure_mb, corrected, auto, auto_station, maintenance_indicator_on, no_signal, lightning_sensor_off, freezing_rain_sensor_off, present_weather_sensor_off, wx_string, sky_cover, cloud_base_ft_agl, flight_category, three_hr_pressure_tendency_mb, maxT_c, minT_c, maxT24hr_c, minT24hr_c, precip_in, pcp3hr_in, pcp6hr_in, pcp24hr_in, snow_in, vert_vis_ft, metar_type, elevation_m, timestamp TIMESTAMP DEFAULT CURRENT_TIMESTAMP )T tableshipship CREATE TABLE ship (day, dewpoint_c, gust, latitude, longitude, maxgst, sea_level_pressure_mb, station_id, temp_c, wind, raw_text DEFAULT '', timestamp TIMESTAMP DEFAULT CURRENT_TIMESTAMP )p]xph`XPH@80( xph`XPH@80( xph`XPH@80( :3635&43 2~1p0b/T.F-8,*+*)(q'd&W%I$:#,"! vi\OB5(tgYL?2% | l \ PD6( ~qcVI<.!ueUE8+tfX탻J샻=냻/ꃻ"郻胻烻z惻l僻_䃻QߧL:mޖ!;T݅H*vσ'tV۾/c^ڡ8:r9H   321/0015.2G1033.4-77.71024.34101325.108062019-09-21 00:25:55I   321/0017.9G2728.9-78.51021.14101026.5070212019-09-21 00:25:55I   321/0018.9G2728.5-80.21020.14100927.3070212019-09-21 00:25:55N  321/0019.9G1731.4-80.9110171022.14100827.1110142019-09-21 00:25:55A     321/00G1732.5-79.11023.741004070142019-09-21 00:25:55A     321/00G1731.9-74.91023.941002060122019-09-21 00:25:55@     321/00G1234.5-72.51025.14100103082019-09-21 00:25:55F    321/0025.325.9-79.71016.73FFL828.0030282019-09-21 00:25:55F    321/0023.227.0-93.91014.53ETA729.0110202019-09-21 00:25:55F    321/0011.346.3154.21014.02HDG313.0320222019-09-21 00:25:55<     321/0020.2124.41003.9/////1102019-09-21 00:25:555     321/0099.9517.520026002019-09-21 00:25:556     321/0⤁o⣁b⢁S⡁F⠁8⟁*➁❁ }oaSF7) =uWFuindexi3buoyCREATE UNIQUE INDEX i3 ON buoy(STN,YYYY,MM,DD,hh,mm)F kindexi2metar_nowCREATE UNIQUE INDEX i2 ON metar_now(station_id)`tableship_nowship_now CREATE TABLE ship_now (day, dewpoint_c, gust, latitude, longitude, maxgst, sea_level_pressure_mb, station_id, temp_c, wind, raw_text DEFAULT '', timestamp TIMESTAMP DEFAULT CURRENT_TIMESTAMP )t;tablestationss`tableship_nowship_now CREATE TABLE ship_now (day, dewpoint_c, gust, latitude, longitude, maxgst, sea_level_pressure_mb, station_id, temp_c, wind, raw_text DEFAULT '', timestamp TIMESTAMP DEFAULT CURRENT_TIMESTAMP )t;tablestationsstations CREATE TABLE stations ( metar TEXT, wmob INT, wmos INT, city TEXT, state TEXT, country TEXT, latitude DOUBLE, longitude DOUBLE, elevation DOUBLE, x DOUBLE, y DOUBLE, z DOUBLE, humor TEXT, source TEXT )B[indexi_metarstations CREATE INDEX i_metar ON stations(metar) ~xrlf`ZTNHB<60*$ |vpjd^XRLF@:4.(" ztnhb\VPJD>82,& DD(u'm&e%\$S#J"A!8 /& yoe[RI@7.$ | r h ^ TI?5+!~ulcZQH?6-$vmd[RJB90' {ri`߃WރO݃G܃>ۃ6ڃ.ك'؃׃փ ՃԂzӂq҂iт`ЂXςO΂F͂>̂6˂.ʂ%ɂȂǂ ƂŁ{ārÁi`YQ⿁I⾁@⽁7⼁.⻁%⺁⹁⸁ ⷁzrja#S}q䝤q,A㬖c,+ynugYK=/!yk]OA3% }oaSE7) {j KNBG i KMSS h KMJXg KMAI <f KLOT e KLAM d KJFX_c KIGC ^b KHRL ,a KHCD ` KGPT _ KFYV ^ KFGN S] KESF \ KECP [ KDNV Z KD19 zY KCOS CX KCEW W KBUR V KBIH U KAWI cT KALY1S K9W7R K87QQ K62WP K4A6cO K36YN K25RM K13AL HSTR!K HFFF7J GUMAI GCLAH FYWBG FQLCVF FLMPE FCOGD FAMMC ETUNwB ESSK4A EPSK@ ENHE? EHMA > EGSY[= EGDY< EDSB; EBLB: DISSf9 DABC8 CYYU7 CYSK6 CYLK^5 CYCQ4 CXOX3 CXBK2 CWVO1 CWRHZ0 CWMZ/ CWIU. CWET-CWAR4m KMJX!p^L:(ucQ?- zhVD2 ~ ţ|DA %*% A V ЫMP J KWX1 #쇡  ٦Z=  pq#a Ț 򆪲- +;>}i  Qz DNv* ̘\} ͽ\? = έщp#  ϔUZ _ "~~ :_A Ҵ2 h)L% > +v !%瀕W V/m# vfr &F:f T l9x# I Fw ؒ'4z QWG PWM> ;h# E Nh5 ڽ =^-0 ܤv# 1}{ \Y%B ]x>0L # ac> ⚏ M rp#   ?UWsUy ?by+ Jyp^L:(tbP>,xfTB0 | Wg f>  y#8 [J )YG b 笸@ O- Μ  ufb+   Ӱ%l i$  /bh E5xe _L] xni z20@ ʢy@ Q@d  1  .7 ; QpG" }GdK 雋`qx ^* ԭ߷A T عT I ,  KVb t ͗ ް !1 Ni~  [  -p ! 8HJ _wN ū\4 Jir/ GV >^# NOA %cg RC( _ ' T63p {2tfE ?ҿt/( ە|0ie 笸@p^L:(tbP>,xfTB0 |!e ?1mrOGd ?ZZc ?߭PU^b ?=@!a ?޷r!` ?O=8_ ?ᵇj^ ? cJ˥#= #< W-; ؜fy"L: ں \9 ܡ8 :owΆ!7 ,t ?}¿kii ?0noh ?O=8 }lG"iDfAcdC 5AGGM2019-09-20T06:00:00Z 5DTTX2019-09-20T10:00:00Z 5DIYO2019-09-20T05:00:00Z| 5DAOO2019-09-20T05:00:00Zj/ 5CZUM2019-09-20T20:00:00Zao 5CYZU2019-09-20T22:00:00ZW 5CYYC2019-09-20T15:00:00Zе? 5CYVT2019-09-20T12:00:00Z]' 5CYSP2019-09-20T12:00:00Z[; 5CYQL2019-09-20T22:00:00Z 5CYOY2019-09-20T10:05:00Z{ 5CYLH2019-09-20T03:00:00Z6 5CYGX2019-09-21T00:00:00ZߺT 5ULWC2019-09-20T19:00:00ZD+ 5PAYA2019-09-20T07:45:00Z$ 5LRTM2019-09-20T08:30:00Z 5LBGO2019-09-20T04:00:00ZLɰ 5KSJX2019-09-20T01:36:00ZKLJ 5KOWP2019-09-20T04:15:00ZS^^ 5KLVL2019-09-20T09:15:00Z+5 5KHJH2019-09-20T18:55:00Z> 5KEGI2019-09-20T15:56:00ZԺ 5KC092019-09-20T08:35:00Zr 5K6B92019-09-20T03:15:00Z4 5ESNO2019-09-20T02:50:00Z0 5DAOO2019-09-20T05:00:00Zj/9tfXJ<. yk]OA3% }oaSE7) xndZPF=3)  CYGRI CYGQO CYGP CYGL YMIA6 WIDDb VOCIz UTFF. UEEER SLAL SBNF RKJB PWAKG PAPH PABE OIFS NCMK8 MMCS LTCFU LOWL+ LGKOٿ LFLL>پ LDZDٽ KVVV iټ KTWF Tٻ KT20 ٺ KSLG/ٹ KS33 ٸ KRDRٷ KPOU ٶ KOZRdٵ KOFKٴ KMYF ٳ KMLFmٲKMAO)ٱ KLMT*ٰ KJST ٯ KIJD^ٮ KHQM٭ KGWB |٬ KGDJ٫ KFKL٪ KENL ٩ KDUC ٨ KD57 ٧ KCNM ٦ KCBF٥ KBLU٤ KAXV ٣ KALM ٢ K7W4 =١ K24J $٠ GMMWٟ EYSAٞ ESCFٝ EHQE ٜ EGGP ٛ EBAWٚ CYZHٙ CYQV٘ CYEV9   6n1yAkindexi6shipCREATE UNIQUE INDEX i6 ON ship(station_id, day)Diindexi5ship_nowCREATE UNIQUE INDEX i5 ON ship_now(station_id)6 Kindexi_xstationsCREATE INDEX i_x ON stations(x)6 Kindexi_ystationsCREATE INDEX i_y ON stations(y)6 Kindexi_zstationsCREATE INDEX i_z ON stations(z)Q indexi1metarCREATE UNIQUE INDEX i1 ON metar(station_id, observation_time)F kindexi2metar_nowCREATE UNIQUE INDEX i2 ON metar_now(station_id)Fuindexi3buoyCREATE UNIQUE INDEX i3 ON buoy(STN,YYYY,MM,DD,hh,mm)=[indexi4buoy_nowCREATE UNIQUE INDEX i4 ON buoy_now(STN)ukaWMC9/%{qg]SI?5+! wmcYOE;1' 45025T 45024S 45023R 45022Q 45012P 45008O 45007N 45006M 45005L 45004K 45003J 45002I 45001H 44098G 44097F 44095E 44091D 44089C 44087B 44086A 44072@ 44066? 44065> 44064= 44063< 44062; 44058: 440569 440428 440417 440276 440255 440204 440183 440142 440131 440110 44009/ 44008. 44005- 42099, 42098+ 42097* 42059) 42058( 42057' 42056& 42055% 42040$ 42039# 42036" 42035! 42020 42012 42003 42002 42001 41159 41119 41115 41113 41110 41049 41048 41047 41046 41044 41043 41040 41025 41013 41010 41009 41008 41004 41002 41001 3FFL8 3ETA7 2HDG3 20026 DBBA 45026U zdN8" t^H2lV@*zd4208520/02n4205820/06n14205620/09o4204020/12o4203620/15o^4202020/18o&q4200320/21o2C4200121/00o=W4115920/03n04111521/00o=4111420/02n\4111220/04n4110820/06n4105620/08oS4104920/12o4104720/15oU4104420/18o&g4104020/21o2:4103720/23o;4103320/02n4102520/06n4101320/09o4100920/12o4100420/15oL4100120/18o&^3FOB520/02nB3ETA820/05n3297520/05n3282220/01eWC593220/20o.=SMKF120/23o:PILA220/13oMGIP420/20o0FTPC120/18o'DELD120/02n{BFTN720/09oUAMOUK1120/17o%r.6215820/23o< 5178220/05n4618420/21o4g4514020/06nN4203620/15o^ 5`:<(y5    3KXVG 200032Z AUTO 00000KT 10SM CLR 19/18 A3000 RMK AO2KXVG2019-09-20T00:32:00Z46.98-94.219.018.00010.030.0TRUETRUEVFRMETAR407.02019-09-20 00:35:55;;({5   3YCNM 200032Z AUTO 02017G27KT //// // ////// 24/11 Q1022YCNM2019-09-20T00:32:00Z-30.98148.3824.011.020172730.177166TRUESPECI184.02019-09-20 00:35:55O:)5    3K0CO 200032Z AUTO 12013KT 10SM SCT042 BKN060 06/M02 A3041 RMK AO2K0CO2019-09-20T00:32:00Z39.8-105.776.0-2.01201310.030.410433TRUETRUEVFRMETAR3807.02019-09-20 00:35:55E9(5    3KOWA 200033Z AUTO 15006KT 10SM SCT048 23/19 A3001 RMK AO2KOWA2019-09-20T00:33:00Z44.12-93.2523.019.0150610.030.008858TRUETRUEVFRMETAR350.02019-09-20 00:35:55 [0[O@)5    3CYMO 200031Z AUTO 36007KT 9SM SCT006 OVC010 13/12 A2998 RMK SLP154CYMO2019-09-20T00:31:00Z51.28-80.6213.012.036079.029.979331015.4TRUEMVFRSPECI10.02019-09-20 00:35:55I?)5    3CYVL 200031Z AUTO 36003KT 9SM OVC026 08/05 A2957 RMK SLP031CYVL2019-09-20T00:31:00Z67.02-126.138.05.036039.029.5688971003.1TRUEMVFRSPECI259.02019-09-20 00:35:55>)_5     3KHST 200031Z AUTO 07008KT 5SM -RA BR FEW002 FEW029 SCT036 OVC050 23/22 A2993 RMK AO2 SLP139 FZRANO TSNO $KHST2019-09-20T00:31:00Z25.47-80.3723.022.07085.029.9291341013.9TRUETRUETRUETRUETRUE-RA BROVC5000MVFRSPECI2.02019-09-20 00:35:55c=)15     3CYWE 200032Z AUTO 11008KT 9SM -RA OVC024 10/07 A2946 RMK SLP997 DENSITY ALT 1400FTCYWE2019-09-20T00:32:00Z64.18-114.0810.07.011089.029.459646999.7TRUE-RAMVFRSPECI371.02019-09-20 00:35:55 C)5     3KPRX 200031Z AUTO 11012G17KT 6SM -RA BR BKN010 BKN016 OVC023 22/21 A2991 RMK AO2 PK WND 11027/0002 RAB15 CIG 008V013 P0000KPRX2019-09-20T00:31:00Z33.62-95.4522.021.011012176.029.911417TRUETRUE-RA BRMVFR0.005SPECI167.02019-09-20 00:35:55 B)5     3KBAZ 200031Z AUTO 10012KT 10SM BKN075 26/23 A2978 RMK AO2 PK WND 14042/2357 LTG DSNT E-S RAE16 TSB2354E25 P0000 T02610228KBAZ2019-09-20T00:31:00Z29.72-98.0526.122.81001210.029.778543TRUETRUEVFR0.005SPECI195.02019-09-20 00:35:55 A)5     3KIML 200031Z AUTO 16023G33KT 10SM TS FEW090 28/14 A2983 RMK AO2 PK WND 17033/0031 LTG DSNT N AND S AND NW RAE00 TSE13B25 P0000 T02780139KIML2019-09-20T00:31:00Z40.52-101.6227.813.9160233310.029.828741TRUETRUETSVFR0.005SPECI998.02019-09-20 00:35:55 *hMG)5    3ZMUB 200030Z VRB01MPS 9999 BKN100 05/01 Q1027 NOSIG RMK QFE661.6 75 MOPZMUB2019-09-20T00:30:00Z47.83106.785.01.0026.2130.324802TRUEVFRMETAR1330.02019-09-20 00:35:55I(w5     3OPMT 200030Z 13006KT 4000 FU FEW200 29/24 Q1007 NOSIGOPMT2019-09-20T00:30:00Z30.1871.4229.024.013062.4929.734253TRUEFUIFRMETAR123.02019-09-20 00:35:55fH)G5    3GLRB 200030Z 24004KT 7000 -TSRA SCT004 BKN011 FEW022CB 24/23 Q1013 TEMPO 6000 TSRA RMK CB/W-NGLRB2019-09-20T00:30:00Z6.25-10.3324.023.024044.3529.911417-TSRAMVFRMETAR18.02019-09-20 00:35:55 <><:P(q5    3WADL 200030Z 09010KT 8000 SCT016 27/22 Q1015 NOSIGWADL2019-09-20T00:30:00Z-8.75116.2827.022.090104.9729.970472TRUEMVFRMETAR97.02019-09-20 00:35:55FO)5     3LWSK 200030Z 30004KT 240V340 9999 DZ OVC050 10/08 Q1024 NOSIGLWSK2019-09-20T00:30:00Z41.9721.6310.08.030046.2130.236221TRUEDZVFRMETAR239.02019-09-20 00:35:558N(q5    3OBBI 200030Z 29008KT 6000 SCT010 31/28 Q1006 NOSIGOBBI2019-09-20T00:30:00Z26.2750.6331.028.029083.7329.704725TRUEMVFRMETAR2.02019-09-20 00:35:552M(i5    3LEJR 200030Z AUTO VRB01KT 9999 NCD 17/15 Q1015LEJR2019-09-20T00:30:00Z36.75-6.0717.015.0016.2129.970472TRUEVFRMETAR30.02019-09-20 00:35:55)O5   3KMLF 200029Z AUTO 23023G33KT 10SM CLR 24/M08 A2977 RMK AO2 PK WND 23033/0027 WSHFT 0015 T02391078KMLF2019-09-20T00:29:00Z38.42-113.0223.9-7.8230233310.029.769686TRUETRUEVFRSPECI1534.02019-09-20 00:35:55l=)C5    3KYKM 200029Z 31014G19KT 10SM OVC085 22/05 A2995 RMK AO2 WSHFT 0009 RAB12E24 P0000 T02220050KYKM2019-09-20T00:29:00Z46.57-120.5322.25.0310141910.029.949802TRUEVFR0.005SPECI324.02019-09-20 00:35:55 jC)=5   3CWLY 200027Z AUTO 20016G23KT 9SM BKN120 BKN140 19/10 A2990 RMK SLP128 DENSITY ALT 1400FTCWLY2019-09-20T00:27:00Z50.22-121.5819.010.020016239.029.8996071012.8TRUEVFRSPECI229.02019-09-20 00:35:55B)5      3KGLH 200028Z AUTO 00000KT 2 1/2SM +RA BR SCT039 BKN080 OVC100 24/22 A3000 RMK AO2 VIS 1V5 LTG DSNT NW-NE RAB2359 TSE18 P0016 T02390217 $KGLH2019-09-20T00:28:00Z33.5-90.9823.921.7002.530.0TRUETRUETRUE+RA BRIFR0.16SPECI45.02019-09-20 00:35:55-A)M5     3KABQ 200028Z 30014KT 10SM TS SCT110CB SCT140 BKN250 26/05 A2997 RMK AO2 WSHFT 2359 LTG DSNT SW TSB22 OCNL LTGICCG SW TS SW MOV NE VCSH SW SHRA DSNT NW T02560050KABQ2019-09-20T00:28:00Z35.05-106.6225.65.03001410.029.970472TRUETSVFRSPECI1618.02019-09-20 00:35:55 h$H0hBG(y5    3KAEL 200027Z AUTO 15004KT 10SM CLR 22/20 A3001 RMK AO2KAEL2019-09-20T00:27:00Z43.68-93.3722.020.0150410.030.008858TRUETRUEVFRMETAR383.02019-09-20 00:35:55F) 5     3KBGD 200027Z AUTO 05007G16KT 10SM -RA FEW026 SCT037 OVC100 19/16 A3003 RMK AO2 WSHFT 2341 LTG DSNT ALQDS TSE07 P0004 T01890161KBGD2019-09-20T00:27:00Z35.7-101.418.916.15071610.030.029528TRUETRUE-RAVFR0.04SPECI927.02019-09-20 00:35:55VE)!5    3KPSX 200027Z AUTO 14015KT 10SM FEW020 SCT026 31/25 A2984 RMK AO2 T03060250KPSX2019-09-20T00:27:00Z28.72-96.2530.625.01401510.029.840551TRUETRUEVFRSPECI5.02019-09-20 00:35:55VD)!5    3PHBK 200027Z AUTO 14007KT 10SM BKN048 OVC065 29/24 A2990 RMK AO2 T02890239PHBK2019-09-20T00:27:00Z22.03-159.7828.923.9140710.029.899607TRUETRUEVFRSPECI8.02019-09-20 00:35:55 -_pSK)5    3PAWN 200026Z AUTO 23007KT 10SM BKN027 BKN035 OVC044 08/00 A2963 RMK AO2PAWN2019-09-20T00:26:00Z67.57-162.988.00.0230710.029.630905TRUETRUEMVFRMETAR30.02019-09-20 00:35:55iJ)75    3CYXS 200026Z AUTO 18016G21KT 9SM -RA SCT041 13/10 A2983 RMK SLP118 DENSITY ALT 2600FTCYXS2019-09-20T00:26:00Z53.9-122.6813.010.018016219.029.8287411011.8TRUE-RAVFRSPECI691.02019-09-20 00:35:55HI)5    3YCFS 200026Z AUTO 08006KT 9999 // SCT014 20/16 Q1027 RF00.0/000.0YCFS2019-09-20T00:26:00Z-30.32153.1220.016.08066.2130.324802TRUEVFRSPECI5.02019-09-20 00:35:55MH)5   3YPWR 200026Z AUTO 19016G26KT 9999 // NCD 18/09 Q1013 RF00.0/000.0YPWR2019-09-20T00:26:00Z-31.12136.8218.09.019016266.2129.911417TRUEVFRSPECI167.02019-09-20 00:35:55 -HT@O)5    3EYPA 200025Z AUTO 02004KT 350V050 9999 SCT047/// 05/04 Q1021EYPA2019-09-20T00:25:00Z55.9721.085.04.02046.2130.147638TRUEVFRSPECI10.02019-09-20 00:35:55nN)=5    3CBBC 200025Z AUTO 20003KT 150V230 9SM FEW010 SCT016 BKN025 OVC042 15/14 A3006 RMK SLP180CBBC2019-09-20T00:25:00Z52.18-128.1515.014.020039.030.0590551018.0TRUEOVC4200MVFRSPECI43.02019-09-20 00:35:55_M))5    3PASV 200026Z AUTO 22001KT 10SM FEW015 BKN029 BKN041 09/07 A2954 RMK AO2 SLP011PASV2019-09-20T00:26:00Z61.1-155.579.07.0220110.029.539371001.1TRUETRUEMVFRSPECI484.02019-09-20 00:35:55ML) 5    3KVCT 200026Z 16014KT 10SM SCT024 30/25 A2983 RMK AO2 T03000250 $KVCT2019-09-20T00:26:00Z28.87-96.9330.025.01601410.029.828741TRUETRUEVFRSPECI31.02019-09-20 00:35:55 ;3t;6T(w5    3EHVK 200025Z AUTO 02001KT 9999 FEW380 06/05 Q1030 BLUEHVK2019-09-20T00:25:00Z51.635.76.05.02016.2130.413385TRUEVFRMETAR21.02019-09-20 00:35:55:S(w5    3EHVL 200025Z AUTO 20006KT 9999 OVC028 14/11 Q1030 BLUEHVL2019-09-20T00:25:00Z53.234.9214.011.020066.2130.413385TRUEMVFRMETAR5.02019-09-20 00:35:557R(w5    3EHWO 200025Z AUTO 08002KT 9999 FEW380 06/05 Q1030 BLUEHWO2019-09-20T00:25:00Z51.454.326.05.08026.2130.413385TRUEVFRMETAR17.02019-09-20 00:35:559Q(u5     3EHAM 200025Z 08002KT 9999 MIFG NSC 09/09 Q1030 NOSIGEHAM2019-09-20T00:25:00Z52.324.789.09.08026.2130.413385TRUEMIFGVFRMETAR9.02019-09-20 00:35:55GP)5   3PKMJ 200025Z 23010KT 15SM FEW015 SCT050 BKN300 31/25 A2980 RMK FIRSTPKMJ2019-09-20T00:25:00Z7.07171.2731.025.02301015.029.799213VFRSPECI3.02019-09-20 00:35:55 ;X)+5     3KLIT 200025Z 13009KT 10SM TS SCT060CB BKN120 BKN200 29/19 A2995 RMK AO2 LTG DSNT SW-NW TSB18E20B25 OCNL LTGICCG SE-SW TS SE-SW MOV NW T02890194KLIT2019-09-20T00:25:00Z34.73-92.2328.919.4130910.029.949802TRUETSVFRMETAR79.02019-09-20 00:35:55>W(}5     3EHDL 200025Z AUTO 15001KT 6000 BR OVC360 05/04 Q1030 WHTEHDL2019-09-20T00:25:00Z52.075.875.04.015013.7330.413385TRUEBRMVFRMETAR52.02019-09-20 00:35:554V(q5    3EHGR 200025Z AUTO 05001KT 9999 NCD 07/06 Q1030 BLUEHGR2019-09-20T00:25:00Z51.574.927.06.05016.2130.413385TRUEVFRMETAR13.02019-09-20 00:35:55?U)5    3EHLW 200025Z AUTO 20002KT 9999 SCT033 OVC330 09/07 Q1030 BLUEHLW2019-09-20T00:25:00Z53.225.759.07.020026.2130.413385TRUEVFRMETAR2.02019-09-20 00:35:55 &N~_\)15    3KTPL 200025Z AUTO 14014KT 10SM FEW033 BKN041 OVC060 29/23 A2984 RMK AO2 WSHFT 0005KTPL2019-09-20T00:25:00Z31.13-97.429.023.01401410.029.840551TRUETRUEVFRMETAR208.02019-09-20 00:35:55J[)5    3KY50 200025Z AUTO 00000KT 10SM BKN020 20/19 A3006 RMK AO2 $KY502019-09-20T00:25:00Z44.03-89.320.019.00010.030.059055TRUETRUETRUEMVFRMETAR262.02019-09-20 00:35:55RZ)5    3PAJC 200025Z AUTO 34004KT 10SM SCT018 BKN036 OVC050 12/09 A2954 RMK AO2PAJC2019-09-20T00:25:00Z56.32-158.3712.09.0340410.029.53937TRUETRUEVFRMETAR15.02019-09-20 00:35:55TY)5    3PAPH 200025Z AUTO 32007KT 10SM BKN014 BKN019 OVC036 11/08 A2955 RMK AO2PAPH2019-09-20T00:25:00Z56.95-158.6211.08.0320710.029.551182TRUETRUEMVFRMETAR29.02019-09-20 00:35:55 MHM;a(w5    3EHKD 200025Z AUTO 18004KT 9999 OVC026 12/10 Q1030 BLUEHKD2019-09-20T00:25:00Z52.924.7712.010.018046.2130.413385TRUEMVFRMETAR14.02019-09-20 00:35:557`(w5    3EHEH 200025Z AUTO 02002KT 9999 BKN350 06/05 Q1030 BLUEHEH2019-09-20T00:25:00Z51.455.386.05.02026.2130.413385TRUEVFRMETAR22.02019-09-20 00:35:550_(i5    3EHGG 200025Z AUTO 23001KT 9999 NSC 05/04 Q1030EHGG2019-09-20T00:25:00Z53.126.575.04.023016.2130.413385TRUEVFRMETAR4.02019-09-20 00:35:55A^) 5    3EHRD 200025Z AUTO 01001KT 9999 NSC 07/07 Q1030 TEMPO 6000 MIFGEHRD2019-09-20T00:25:00Z51.954.457.07.01016.2130.413385TRUEVFRMETAR-5.02019-09-20 00:35:552](i5    3EHBK 200025Z AUTO 12004KT 9999 NSC 08/04 Q1030EHBK2019-09-20T00:25:00Z50.925.778.04.012046.2130.413385TRUEVFRMETAR116.02019-09-20 00:35:55 5b`e)?5    3EHAK 200025Z AUTO 22006KT 200V260 9999 FEW015/// BKN019/// OVC022/// 15/12 Q1029 W///H///EHAK2019-09-20T00:25:00Z55.423.8215.012.022066.2130.383858TRUEMVFRMETAR50.02019-09-20 00:35:55Kd)5    3EHDV 200025Z AUTO 18009KT 150V240 9999 FEW008/// 15/13 Q1029 W///H///EHDV2019-09-20T00:25:00Z54.322.9315.013.018096.2130.383858TRUEVFRMETAR50.02019-09-20 00:35:55Mc)5    3EHFD 200025Z AUTO 27008KT 9999 BKN016/// OVC020/// 15/11 Q1029 W///H///EHFD2019-09-20T00:25:00Z54.854.715.011.027086.2130.383858TRUEMVFRMETAR50.02019-09-20 00:35:55Eb) 5    3EHFZ 200025Z AUTO 21005KT 170V250 9999 NSC 15/12 Q1030 W///H///EHFZ2019-09-20T00:25:00Z54.124.0215.012.021056.2130.413385TRUEVFRMETAR50.02019-09-20 00:35:55 7e@i)5    3EHPG 200025Z AUTO 07009KT 9999 OVC020 16/11 Q1030 W///H///EHPG2019-09-20T00:25:00Z52.373.3516.011.07096.2130.413385TRUEMVFRMETAR50.02019-09-20 00:35:55Bh)5   3EHJR 200025Z AUTO 15004KT //// // ///////// 15/11 Q1030 RE// W17/H9EHJR2019-09-20T00:25:00Z53.223.2215.011.0150430.413385TRUEMETAR50.02019-09-20 00:35:55Lg)5    3EHHW 200025Z AUTO 28004KT 9999 SCT022/// OVC027/// 15/09 Q1029 W///H///EHHW2019-09-20T00:25:00Z54.036.0315.09.028046.2130.383858TRUEMVFRMETAR0.02019-09-20 00:35:55Cf)5    3EHJA 200025Z AUTO 20006KT 9999 FEW009/// 15/13 Q1030 W///H///EHJA2019-09-20T00:25:00Z53.822.9515.013.020066.2130.413385TRUEVFRMETAR50.02019-09-20 00:35:55 +fz3Ir)5    3OPIS 200025Z 08009KT 2000 TS FEW030CB SCT040 SCT100 23/23 Q1012 RH100OPIS2019-09-20T00:25:00Z33.5572.8323.023.08091.2429.88189TSIFRMETAR537.02019-09-20 00:35:55:q({5    3EHFS 200025Z AUTO 06005KT 9999 NCD 13/10 Q1030 W///H///EHFS2019-09-20T00:25:00Z51.453.613.010.06056.2130.413385TRUEVFRMETAR32.02019-09-20 00:35:552p(q5    3EYVI 200025Z 30006KT 9999 OVC005 06/06 Q1016 NOSIGEYVI2019-09-20T00:25:00Z54.6325.286.06.030066.2130.0TRUEIFRSPECI197.02019-09-20 00:35:55>o)5   3EHSC 200025Z AUTO 13008KT 9999 ///////// 15/10 Q1030 W18/H6EHSC2019-09-20T00:25:00Z51.933.6715.010.013086.2130.413385TRUEMETAR50.02019-09-20 00:35:550(o5   3ETNT 200020Z 24003KT 9999 BKN310 07/05 Q1030 BLU+ETNT2019-09-20T00:20:00Z53.537.677.05.024036.2130.413385VFRMETAR12.02019-09-20 00:35:55?(y5    3KFME 200021Z AUTO 00000KT 10SM CLR 12/10 A3032 RMK AO1KFME2019-09-20T00:21:00Z39.08-76.7712.010.00010.030.318897TRUETRUEVFRSPECI46.02019-09-20 00:35:55I) 5    3KCGS 200022Z AUTO 00000KT 10SM CLR 14/07 A3030 RMK AO1 T01420065KCGS2019-09-20T00:22:00Z38.98-76.9214.26.50010.030.301182TRUETRUEVFRSPECI15.02019-09-20 00:35:55()+5     3KAMA 200022Z 08019G26KT 6SM -TSRA BR BKN023 OVC030 17/15 A2999 RMK AO2 PK WND 06026/0013 WSHFT 0006 LTG DSNT ALQDS TSB22 PRESFR P0036 T01670150KAMA2019-09-20T00:22:00Z35.22-101.7216.715.08019266.029.991142TRUE-TSRA BRMVFR0.36SPECI1093.02019-09-20 00:35:55 PB0 (i5    3EGAC 200020Z AUTO VRB02KT 9999 NCD 12/10 Q1028EGAC2019-09-20T00:20:00Z54.62-5.8712.010.0026.2130.35433TRUEVFRMETAR5.02019-09-20 00:35:55%(Y5   3EGTE 200020Z VRB02KT CAVOK 10/10 Q1028EGTE2019-09-20T00:20:00Z50.72-3.4210.010.0026.2130.35433VFRMETAR30.02019-09-20 00:35:55$(Y5   3EGAA 200020Z 08004KT CAVOK 08/06 Q1028EGAA2019-09-20T00:20:00Z54.63-6.228.06.08046.2130.35433VFRMETAR81.02019-09-20 00:35:553(i5    3EGJJ 200020Z AUTO 10019KT 9999 NCD 15/09 Q1025EGJJ2019-09-20T00:20:00Z49.22-2.215.09.0100196.2130.265747TRUEVFRMETAR84.02019-09-20 00:35:55*(o5  3CWZQ 200020Z AUTO 13005KT 06/02 RMK AO1 T00640018CWZQ2019-09-20T00:20:00Z46.53-61.056.41.81305TRUETRUEMETAR17.02019-09-20 00:35:55 oG$o/(i5    3EGLC 200020Z AUTO VRB03KT 9999 NCD 13/11 Q1030EGLC2019-09-20T00:20:00Z51.50.0513.011.0036.2130.413385TRUEVFRMETAR5.02019-09-20 00:35:557 (q5    3EGNM 200020Z 26005KT 9999 4500E BR NSC 11/10 Q1029EGNM2019-09-20T00:20:00Z53.87-1.6311.010.026056.2130.383858BRVFRSPECI208.02019-09-20 00:35:55' (Y5   3EGNX 200020Z 16006KT CAVOK 12/09 Q1029EGNX2019-09-20T00:20:00Z52.82-1.3212.09.016066.2130.383858VFRMETAR94.02019-09-20 00:35:553 (i5    3EGGW 200020Z AUTO 13002KT 9999 NCD 09/07 Q1030EGGW2019-09-20T00:20:00Z51.87-0.379.07.013026.2130.413385TRUEVFRMETAR160.02019-09-20 00:35:553 (i5    3EGFF 200020Z AUTO 11008KT 9999 NCD 13/12 Q1028EGFF2019-09-20T00:20:00Z51.38-3.3513.012.011086.2130.35433TRUEVFRMETAR67.02019-09-20 00:35:55 =Eq=3(i5    3EGPL 200020Z AUTO 16006KT 9999 NCD 11/10 Q1026EGPL2019-09-20T00:20:00Z57.47-7.3711.010.016066.2130.295275TRUEVFRMETAR6.02019-09-20 00:35:55;(u5    3EGPM 200020Z AUTO 25016KT 9999 BKN015/// 12/10 Q1024EGPM2019-09-20T00:20:00Z60.42-1.312.010.0250166.2130.236221TRUEMVFRMETAR22.02019-09-20 00:35:554(i5    3EGPO 200020Z AUTO 20007KT 9999 NCD 11/10 Q1026EGPO2019-09-20T00:20:00Z58.22-6.3211.010.020076.2130.295275TRUEVFRMETAR13.02019-09-20 00:35:55N)5     3EGPD 200020Z AUTO 35002KT 0400 R16/0375 FG VV/// 07/07 Q1027 TEMPO 0300EGPD2019-09-20T00:20:00Z57.2-2.227.07.035020.2530.324802TRUEFGLIFRSPECI65.02019-09-20 00:35:555(i5    3EGGD 200020Z AUTO 11007KT 9999 NCD 12/10 Q1029EGGD2019-09-20T00:20:00Z51.37-2.7212.010.011076.2130.383858TRUEVFRMETAR189.02019-09-20 00:35:55 _@_0(i5    3EGSH 200020Z AUTO 00000KT 9999 NCD 10/09 Q1031EGSH2019-09-20T00:20:00Z52.681.2810.09.0006.2130.442913TRUEVFRMETAR36.02019-09-20 00:35:555(i5    3EGNJ 200020Z AUTO 20010KT 9999 NCD 12/10 Q1029EGNJ2019-09-20T00:20:00Z53.57-0.3512.010.0200106.2130.383858TRUEVFRMETAR31.02019-09-20 00:35:551(i5    3EGPE 200020Z AUTO 22005KT 9999 NCD 09/08 Q1027EGPE2019-09-20T00:20:00Z57.52-4.039.08.022056.2130.324802TRUEVFRMETAR9.02019-09-20 00:35:553(i5    3EGPA 200020Z AUTO 21004KT 9999 NCD 10/09 Q1026EGPA2019-09-20T00:20:00Z58.95-2.8810.09.021046.2130.295275TRUEVFRMETAR21.02019-09-20 00:35:55:(o5     3EGPC 200020Z AUTO 17004KT 1600 DZ NCD 11/11 Q1026EGPC2019-09-20T00:20:00Z58.45-3.0711.011.017040.9930.295275TRUEDZLIFRMETAR39.02019-09-20 00:35:55 jTj'(Y5   3EGPH 200020Z 26005KT CAVOK 10/10 Q1028EGPH2019-09-20T00:20:00Z55.95-3.3510.010.026056.2130.35433VFRMETAR41.02019-09-20 00:35:552(i5    3EGSS 200020Z AUTO 09004KT 9999 NCD 10/09 Q1030EGSS2019-09-20T00:20:00Z51.880.2210.09.09046.2130.413385TRUEVFRMETAR106.02019-09-20 00:35:55=(u5     3EGCC 200020Z AUTO 10004KT 9999 NCD 10/09 Q1029 NOSIGEGCC2019-09-20T00:20:00Z53.35-2.2710.09.010046.2130.383858TRUETRUEVFRMETAR78.02019-09-20 00:35:55<(u5     3EGLL 200020Z AUTO 08004KT 9999 NCD 12/09 Q1030 NOSIGEGLL2019-09-20T00:20:00Z51.48-0.4512.09.08046.2130.413385TRUETRUEVFRMETAR24.02019-09-20 00:35:55&(Y5   3EGCN 200020Z 19003KT CAVOK 10/09 Q1030EGCN2019-09-20T00:20:00Z53.48-1.010.09.019036.2130.413385VFRMETAR17.02019-09-20 00:35:55 L<("(e5   3EGMC 200020Z 00000KT 9999 SCT022 08/07 Q1030EGMC2019-09-20T00:20:00Z51.570.78.07.0006.2130.413385VFRMETAR15.02019-09-20 00:35:553!(i5    3EGMD 200020Z AUTO 10012KT 9999 NCD 15/11 Q1030EGMD2019-09-20T00:20:00Z50.950.9215.011.0100126.2130.413385TRUEVFRMETAR3.02019-09-20 00:35:55& (Y5   3EGBB 200020Z 16003KT CAVOK 09/08 Q1029EGBB2019-09-20T00:20:00Z52.47-1.759.08.016036.2130.383858VFRMETAR99.02019-09-20 00:35:55%(Y5   3EGKK 200020Z VRB01KT CAVOK 10/09 Q1030EGKK2019-09-20T00:20:00Z51.13-0.1710.09.0016.2130.413385VFRMETAR62.02019-09-20 00:35:55.(i5    3EGPF 200020Z AUTO VRB03KT 9999 NCD 07/07 Q1028EGPF2019-09-20T00:20:00Z55.87-4.427.07.0036.2130.35433TRUEVFRMETAR8.02019-09-20 00:35:55 AHAG')5   3ENSL 200020Z AUTO 30013KT 9999NDV FEW021/// BKN031/// 12/11 Q1027 W10/S3ENSL2019-09-20T00:20:00Z58.371.912.011.03001330.324802TRUEMETAR50.02019-09-20 00:35:55H&)5    3ENFB 200020Z AUTO 26023KT 9000NDV -SHRA OVC006/// 11/11 Q1022 W///S4ENFB2019-09-20T00:20:00Z61.21.8311.011.02602330.177166TRUE-SHRASPECI10.02019-09-20 00:35:55&%(Y5   3EGNT 200020Z 23004KT CAVOK 10/10 Q1028EGNT2019-09-20T00:20:00Z55.02-1.710.010.023046.2130.35433VFRMETAR81.02019-09-20 00:35:55:$(u5    3EGPB 200020Z AUTO 28010KT 9999 OVC015/// 12/10 Q1025EGPB2019-09-20T00:20:00Z59.87-1.312.010.0280106.2130.265747TRUEMVFRMETAR5.02019-09-20 00:35:552#(i5    3EGLF 200020Z AUTO 22003KT 9999 NCD 07/06 Q1030EGLF2019-09-20T00:20:00Z51.28-0.777.06.022036.2130.413385TRUEVFRMETAR65.02019-09-20 00:35:55 6;68,(5   3LGSO 200020Z AUTO 27007KT //// // ////// 21/17 Q1014 RE//LGSO2019-09-20T00:20:00Z37.4224.9521.017.0270729.940945TRUESPECI72.02019-09-20 00:35:55C+)5   3LGKZ 200020Z AUTO 32013KT 290V020 //// // ////// 12/11 Q1018 RERALGKZ2019-09-20T00:20:00Z40.2821.8312.011.03201330.059055TRUESPECI628.02019-09-20 00:35:55>*)5    3LGKP 200020Z AUTO 28014KT //// -RA ////// 22/20 Q1013 RE//LGKP2019-09-20T00:20:00Z35.4227.1522.020.02801429.911417TRUE-RASPECI20.02019-09-20 00:35:554)(s5   3ENLE 200020Z 25014KT 9999 BKN012 13/11 Q1028 W14/S3ENLE2019-09-20T00:20:00Z56.533.2213.011.0250146.2130.35433MVFRMETAR3.02019-09-20 00:35:55?((5    3ENHE 200020Z 16031KT 4000 -RADZ BKN007 09/07 Q1011 W///S4ENHE2019-09-20T00:20:00Z65.332.339.07.0160312.4929.852362-RA -DZIFRSPECI1.02019-09-20 00:35:55 7F7'1(Y5   3LIRA 200020Z 02003KT CAVOK 18/16 Q1018LIRA2019-09-20T00:20:00Z41.812.5818.016.02036.2130.059055VFRMETAR101.02019-09-20 00:35:5570(5   3LGSY 200020Z AUTO 03008KT //// // ////// 23/18 Q1014 RE//LGSY2019-09-20T00:20:00Z38.9724.4823.018.030829.940945TRUEMETAR15.02019-09-20 00:35:55[/);5    3ENEV 200020Z AUTO 03002KT 9999 BKN036/// OVC047/// 00/M00 Q1015 RMK WIND 1400FT 25007KTENEV2019-09-20T00:20:00Z68.5216.670.00.03026.2129.970472TRUEVFRSPECI26.02019-09-20 00:35:55>.)5    3ENFL 200020Z AUTO 09012KT 1900NDV DZ BR OVC007/// 08/08 Q1022ENFL2019-09-20T00:20:00Z61.575.028.08.0901230.177166TRUEDZ BRSPECI9.02019-09-20 00:35:554-(q5    3LGTS 200020Z 35010KT 9999 BKN030 19/14 Q1016 NOSIGLGTS2019-09-20T00:20:00Z40.5222.9719.014.0350106.2130.0TRUEMVFRMETAR7.02019-09-20 00:35:55 sLs%6(Y5   3LIEE 200020Z 05004KT CAVOK 23/19 Q1017LIEE2019-09-20T00:20:00Z39.259.0723.019.05046.2130.029528VFRMETAR4.02019-09-20 00:35:55-5(e5   3LIEO 200020Z 24002KT 9999 FEW030 21/19 Q1018LIEO2019-09-20T00:20:00Z40.889.5221.019.024026.2130.059055VFRMETAR13.02019-09-20 00:35:5574(q5    3LIMC 200020Z 01003KT 9999 BKN060 17/15 Q1025 NOSIGLIMC2019-09-20T00:20:00Z45.628.7217.015.01036.2130.265747TRUEVFRMETAR211.02019-09-20 00:35:5583(q5    3LIME 200020Z 35003KT 9999 BKN060 17/13 Q1025 NOSIGLIME2019-09-20T00:20:00Z45.679.6817.013.035036.2130.265747TRUEVFRMETAR237.02019-09-20 00:35:55.2(e5   3LIMF 200020Z 30007KT 9999 OVC050 17/14 Q1025LIMF2019-09-20T00:20:00Z45.227.6517.014.030076.2130.265747VFRMETAR287.02019-09-20 00:35:55 Tra:)=5     3ENKR 200020Z AUTO 30017KT 9999 UP BKN014/// OVC038/// 03/01 Q1002 RMK WIND 731FT 29027KTENKR2019-09-20T00:20:00Z69.7229.883.01.0300176.2129.586615TRUEUPMVFRSPECI91.02019-09-20 00:35:5519({5   3ENML 200020Z AUTO 02003KT 9999NDV OVC025/// 07/06 Q1018ENML2019-09-20T00:20:00Z62.757.277.06.020330.059055TRUESPECI3.02019-09-20 00:35:55\8)95    3ENNA 200020Z AUTO 34015KT 9999 BKN026/// BKN036/// 04/00 Q1008 RMK WIND 1800FT 32024KTENNA2019-09-20T00:20:00Z70.0724.974.00.0340156.2129.763779TRUEMVFRSPECI8.02019-09-20 00:35:55&7(Y5   3LIEA 200020Z 05006KT CAVOK 21/20 Q1017LIEA2019-09-20T00:20:00Z40.628.2721.020.05066.2130.029528VFRMETAR23.02019-09-20 00:35:55 T->(e5   3LGSR 200020Z 28004KT 9999 FEW020 21/18 Q1014LGSR2019-09-20T00:20:00Z36.425.4821.018.028046.2129.940945VFRMETAR40.02019-09-20 00:35:55<=) 5   3ENNE 200020Z AUTO 14026KT 9999NDV BKN013/// 07/05 Q1014 W///S4ENNE2019-09-20T00:20:00Z66.038.087.05.01402629.940945TRUEMETAR10.02019-09-20 00:35:55=<) 5   3ENQR 200020Z AUTO 26019KT 9999NDV OVC006/// 11/11 Q1020 W///S4ENQR2019-09-20T00:20:00Z61.352.2211.011.02601930.11811TRUEMETAR10.02019-09-20 00:35:55c;)M5     3ENKB 200020Z AUTO 23009KT 190V250 8000 DZ FEW006/// OVC015/// 10/08 Q1016 RMK WIND 745FT 23022KTENKB2019-09-20T00:20:00Z63.127.8210.08.023094.9730.0TRUEDZMVFRSPECI62.02019-09-20 00:35:55 1m>B) 5   3ENHM 200020Z AUTO 26021KT 9999NDV OVC022/// 12/10 Q1024 W12/S3ENHM2019-09-20T00:20:00Z59.572.2312.010.02602130.236221TRUEMETAR10.02019-09-20 00:35:55YA)/5    3ENQA 200020Z AUTO 27018KT 3200NDV -SHRA BR BKN005/// OVC021/// 11/10 Q1023 W10/S4ENQA2019-09-20T00:20:00Z60.653.7211.010.02701830.206694TRUE-SHRA BRMETAR20.02019-09-20 00:35:55>@) 5   3ENQC 200020Z AUTO 25022KT 9999NDV OVC004/// 11/10 Q1022 W///S4ENQC2019-09-20T00:20:00Z60.883.6211.010.02502230.177166TRUEMETAR20.02019-09-20 00:35:55I?)5    3ENSE 200020Z AUTO 28019KT 6000NDV -SHRA OVC006/// 11/11 Q1021 W///S4ENSE2019-09-20T00:20:00Z61.452.1511.011.02801930.147638TRUE-SHRAMETAR10.02019-09-20 00:35:55 U>U7G(5   3LGPA 200020Z AUTO 36004KT //// // ////// 20/16 Q1014 RE//LGPA2019-09-20T00:20:00Z37.025.1320.016.0360429.940945TRUESPECI36.02019-09-20 00:35:55/F(e5   3LGSA 200020Z 30005KT 9999 FEW018 20/19 Q1015LGSA2019-09-20T00:20:00Z35.5324.1320.019.030056.2129.970472VFRMETAR135.02019-09-20 00:35:556E(y5   3LGAD 200020Z 00000KT 9999 FEW020TCU BKN080 20/19 Q1015LGAD2019-09-20T00:20:00Z37.9221.2720.019.0006.2129.970472VFRMETAR12.02019-09-20 00:35:555D(5   3LGKL 200020Z AUTO VRB02KT //// // ////// 18/16 Q1015 RE//LGKL2019-09-20T00:20:00Z37.0722.0218.016.00229.970472TRUESPECI8.02019-09-20 00:35:55(}5    3ESPE 200020Z AUTO 31004KT 290V360 9999 NCD M00/M03 Q1014ESPE2019-09-20T00:20:00Z65.8820.150.0-3.031046.2129.940945TRUEVFRMETAR182.02019-09-20 00:35:552(i5    3ESSL 200020Z AUTO 25002KT 9999 NCD 07/04 Q1023ESSL2019-09-20T00:20:00Z58.3815.677.04.025026.2130.206694TRUEVFRMETAR52.02019-09-20 00:35:55 VBV9%(}5   3LTCJ 200020Z 04006KT CAVOK 14/05 Q1014 RMK RWY20 04004KTLTCJ2019-09-20T00:20:00Z37.9341.1214.05.04066.2129.940945VFRSPECI540.02019-09-20 00:35:550$(e5    3LIRF 200020Z 05004KT CAVOK 19/14 Q1018 NOSIGLIRF2019-09-20T00:20:00Z41.7812.2219.014.05046.2130.059055TRUEVFRMETAR3.02019-09-20 00:35:558#(u5    3LIRN 200020Z 01004KT 350V050 CAVOK 21/16 Q1018 NOSIGLIRN2019-09-20T00:20:00Z40.8814.321.016.01046.2130.059055TRUEVFRMETAR72.02019-09-20 00:35:553"(i5    3ESCF 200020Z AUTO 21005KT 9999 NCD 04/03 Q1023ESCF2019-09-20T00:20:00Z58.3815.524.03.021056.2130.206694TRUEVFRMETAR117.02019-09-20 00:35:558!(u5    3ESDF 200020Z AUTO 36002KT 9999 BKN200/// 01/01 Q1025ESDF2019-09-20T00:20:00Z56.2715.271.01.036026.2130.265747TRUEVFRMETAR74.02019-09-20 00:35:55 ?W3)(}5   3LTFC 200020Z VRB01KT CAVOK 14/05 Q1016 RMK RWY23 05004KTLTFC2019-09-20T00:20:00Z37.8730.3814.05.0016.2130.0VFRSPECI864.02019-09-20 00:35:55b()G5    3LTAI 200020Z 34003KT CAVOK 20/17 Q1011 NOSIG RMK RWY18C 34003KT RWY36R 33004KT RWY18L 32003KTLTAI2019-09-20T00:20:00Z36.930.820.017.034036.2129.852362TRUEVFRSPECI54.02019-09-20 00:35:55J')5    3LTAF 200020Z 03004KT 9999 FEW040 22/20 Q1011 NOSIG RMK RWY23 04004KTLTAF2019-09-20T00:20:00Z36.9735.2822.020.03046.2129.852362TRUEVFRSPECI20.02019-09-20 00:35:55k&)W5    3LTAC 200020Z 03008KT CAVOK 15/06 Q1015 NOSIG RMK RWY21L 03006KT RWY03L 04005KT RWY21R 03005KT 020V080LTAC2019-09-20T00:20:00Z40.1232.9715.06.03086.2129.970472TRUEVFRSPECI949.02019-09-20 00:35:55 HtF.) 5    3LTBJ 200020Z 34001KT CAVOK 16/13 Q1014 NOSIG RMK RWY16 00000KTLTBJ2019-09-20T00:20:00Z38.2827.1516.013.034016.2129.940945TRUEVFRSPECI120.02019-09-20 00:35:55D-) 5    3LTBR 200020Z 00000KT CAVOK 12/12 Q1015 NOSIG RMK RWY07 00000KTLTBR2019-09-20T00:20:00Z40.2529.5712.012.0006.2129.970472TRUEVFRSPECI232.02019-09-20 00:35:55A,) 5    3LTBS 200020Z 05005KT CAVOK 17/16 Q1012 NOSIG RMK RWY19 33003KTLTBS2019-09-20T00:20:00Z36.728.7717.016.05056.2129.88189TRUEVFRSPECI2.02019-09-20 00:35:55N+)#5    3LTCG 200020Z 00000KT 9999 FEW015 BKN035 22/19 Q1015 NOSIG RMK RWY29 00000KTLTCG2019-09-20T00:20:00Z41.039.822.019.0006.2129.970472TRUEVFRSPECI30.02019-09-20 00:35:552*(}5   3LTCS 200020Z 00000KT CAVOK 24/05 Q1016 RMK RWY22 00000KTLTCS2019-09-20T00:20:00Z37.4538.924.05.0006.2130.0VFRMETAR825.02019-09-20 00:35:55 ]e2)S5    3LTFM 200020Z 06011KT 9999 SCT025 20/15 Q1016 NOSIG RMK RWY17L 06010KT RWY34L 04007KT RWY16R 06010KTLTFM2019-09-20T00:20:00Z41.2728.7520.015.060116.2130.0TRUEVFRMETAR99.02019-09-20 00:35:55E1) 5    3LCEN 200020Z 29011KT CAVOK 21/17 Q1011 NOSIG RMK RWY11 28007KTLCEN2019-09-20T00:20:00Z35.1333.521.017.0290116.2129.852362TRUEVFRSPECI91.02019-09-20 00:35:5550(}5   3LTAZ 200020Z 13006KT CAVOK 12/04 Q1016 RMK RWY29 19002KTLTAZ2019-09-20T00:20:00Z38.7734.5512.04.013066.2130.0VFRSPECI945.02019-09-20 00:35:55b/)O5    3LTBA 200020Z 04005KT 9999 FEW037 21/16 Q1016 NOSIG RMK RWY17L 02006KT RWY05 03007KT RWY23 05007KTLTBA2019-09-20T00:20:00Z40.9728.8221.016.04056.2130.0TRUEVFRSPECI37.02019-09-20 00:35:55 >2`>/7(o5   3ETHL 200020Z 04004KT 9999 SCT340 05/01 Q1028 BLU+ETHL2019-09-20T00:20:00Z48.229.925.01.04046.2130.35433VFRMETAR549.02019-09-20 00:35:5506(o5   3ETHN 200020Z 10005KT 9999 SCT380 06/00 Q1028 BLU+ETHN2019-09-20T00:20:00Z49.389.976.00.010056.2130.35433VFRMETAR473.02019-09-20 00:35:5515(o5   3ETNN 200020Z 25002KT 9999 BKN360 05/03 Q1030 BLU+ETNN2019-09-20T00:20:00Z50.826.675.03.025026.2130.413385VFRMETAR135.02019-09-20 00:35:55L4)5    3LTFE 200020Z 11004KT 080V140 CAVOK 14/12 Q1013 NOSIG RMK RWY10 08004KTLTFE2019-09-20T00:20:00Z37.2527.6714.012.011046.2129.911417TRUEVFRSPECI6.02019-09-20 00:35:55H3)5    3LTFJ 200020Z 04007KT 9999 SCT023 18/16 Q1015 NOSIG RMK RWY24 02006KTLTFJ2019-09-20T00:20:00Z40.929.318.016.04076.2129.970472TRUEVFRSPECI98.02019-09-20 00:35:55 2F2&<(c5    3LOWZ 200020Z AUTO 10003KT 9999 BKN041 05/04LOWZ2019-09-20T00:20:00Z47.312.785.04.010036.21TRUEVFRSPECI754.02019-09-20 00:35:55];)?5   3RJSU 200020Z 21004KT 9999 FEW030 BKN050 BKN220 20/12 Q1017 RMK 1CU030 5SC050 6CI220 A3003RJSU2019-09-20T00:20:00Z38.22140.9220.012.021046.2130.029528VFRMETAR10.02019-09-20 00:35:55<:(}5    3EGVN 200020Z 05003KT CAVOK 10/07 Q1029 NOSIG RMK BLU BLUEGVN2019-09-20T00:20:00Z51.77-1.5810.07.05036.2130.383858TRUEVFRMETAR88.02019-09-20 00:35:55=9(}5    3EGVO 200020Z 08003KT CAVOK 10/08 Q1029 NOSIG RMK BLU BLUEGVO2019-09-20T00:20:00Z51.23-0.9510.08.08036.2130.383858TRUEVFRMETAR123.02019-09-20 00:35:5548(}5   3ETHA 200020Z AUTO VRB01KT //// // ////// 04/01 Q1027 ///ETHA2019-09-20T00:20:00Z47.8210.874.01.00130.324802TRUEMETAR760.02019-09-20 00:35:55 >-t>BA) 5    3LTCC 200020Z 00000KT CAVOK 16/03 Q1015 NOSIG RMK RWY16 00000KTLTCC2019-09-20T00:20:00Z37.8740.216.03.0006.2129.970472TRUEVFRSPECI677.02019-09-20 00:35:55&@(Y5   3LIMJ 200020Z 05011KT CAVOK 19/14 Q1021LIMJ2019-09-20T00:20:00Z44.428.8319.014.050116.2130.147638VFRMETAR3.02019-09-20 00:35:55(i5    3EGPU 200020Z AUTO 13009KT 9999 NCD 13/12 Q1026EGPU2019-09-20T00:20:00Z56.5-6.8713.012.013096.2130.295275TRUEVFRMETAR12.02019-09-20 00:35:55M=)5    3ESIB 200020Z AUTO 16002KT 9999 SCT036/// BKN047/// BKN110/// 05/05 Q1023ESIB2019-09-20T00:20:00Z58.4212.685.05.016026.2130.206694TRUEVFRMETAR74.02019-09-20 00:35:55 ?C?,F(e5   3LGEL 200020Z 00000KT 9999 FEW070 21/18 Q1013LGEL2019-09-20T00:20:00Z38.0723.5521.018.0006.2129.911417VFRMETAR31.02019-09-20 00:35:559E)5    3LGIO 200020Z AUTO /////KT //// -RA ////// 16/16 Q1017 RE//LGIO2019-09-20T00:20:00Z39.720.8216.016.030.029528TRUE-RAMETAR476.02019-09-20 00:35:55ID) 5     3LTAT 200020Z 21006KT CAVOK 10/04 Q1015 NOSIG RMK RWY03 21006KTLTAT2019-09-20T00:20:00Z38.4238.0710.04.021066.2129.970472TRUEVFR-0.6SPECI849.02019-09-20 00:35:55>C) 5    3LTAU 200020Z 00000KT CAVOK 08/03 Q1016 NOSIG RMK RWY07 00000KTLTAU2019-09-20T00:20:00Z38.7735.478.03.0006.2130.0TRUEVFRSPECI1054.02019-09-20 00:35:557B(}5   3LTBU 200020Z 36010KT CAVOK 17/14 Q1016 RMK RWY22 02007KTLTBU2019-09-20T00:20:00Z41.1227.9217.014.0360106.2130.0VFRSPECI173.02019-09-20 00:35:55 hL&h8K(u5    3LIPH 200020Z AUTO 03006KT 9999 FEW083/// 16/06 Q1025LIPH2019-09-20T00:20:00Z45.6312.1716.06.03066.2130.265747TRUEVFRMETAR23.02019-09-20 00:35:553J(i5    3LIPQ 200020Z AUTO 07010KT 9999 NCD 15/05 Q1025LIPQ2019-09-20T00:20:00Z45.8213.4715.05.070106.2130.265747TRUEVFRMETAR12.02019-09-20 00:35:554I(i5    3LIPR 200020Z AUTO 03010KT 9999 NCD 19/10 Q1023LIPR2019-09-20T00:20:00Z44.0212.6219.010.030106.2130.206694TRUEVFRMETAR13.02019-09-20 00:35:55-H(e5   3LIPX 200020Z 05013KT 9999 SCT070 18/06 Q1025LIPX2019-09-20T00:20:00Z45.3810.8718.06.050136.2130.265747VFRMETAR68.02019-09-20 00:35:55.G(e5    3LIPZ 200020Z 05009KT CAVOK 15/07 Q1025 NOSIGLIPZ2019-09-20T00:20:00Z45.512.3515.07.05096.2130.265747TRUEVFRMETAR6.02019-09-20 00:35:55 HA.P(e5   3LIBD 200020Z 04011KT 9999 SCT025 21/16 Q1018LIBD2019-09-20T00:20:00Z41.1216.7721.016.040116.2130.059055VFRMETAR44.02019-09-20 00:35:55)O(e5   3LIBR 200020Z 04018KT 9999 SCT010 20/17 Q1016LIBR2019-09-20T00:20:00Z40.6517.9520.017.040186.2130.0VFRMETAR10.02019-09-20 00:35:55#N(Y5   3LICC 200020Z 27003KT CAVOK 20/20 Q1016LICC2019-09-20T00:20:00Z37.4715.0520.020.027036.2130.0VFRMETAR17.02019-09-20 00:35:55)M(e5   3LICJ 200020Z 18004KT 9999 FEW025 23/20 Q1016LICJ2019-09-20T00:20:00Z38.1713.0823.020.018046.2130.0VFRMETAR34.02019-09-20 00:35:552L(k5    3LIPE 200020Z 21006KT 4000 BR FEW045 15/15 Q1024LIPE2019-09-20T00:20:00Z44.5211.315.015.021062.4930.236221BRIFRMETAR42.02019-09-20 00:35:55 jH!j1U(i5    3LOWL 200020Z AUTO VRB01KT 9999 NSC 05/03 Q1029LOWL2019-09-20T00:20:00Z48.2214.185.03.0016.2130.383858TRUEVFRMETAR313.02019-09-20 00:35:553T(o5    3LOWS 200020Z AUTO VRB01KT 9999 FEW250 04/03 Q1028LOWS2019-09-20T00:20:00Z47.7813.024.03.0016.2130.35433TRUEVFRMETAR430.02019-09-20 00:35:550S(i5    3LOWI 200020Z AUTO VRB01KT 9999 NSC 06/04 Q1028LOWI2019-09-20T00:20:00Z47.2711.336.04.0016.2130.35433TRUEVFRMETAR581.02019-09-20 00:35:552R(o5    3LOWG 200020Z AUTO VRB02KT 9999 FEW046 07/05 Q1028LOWG2019-09-20T00:20:00Z47.015.427.05.0026.2130.35433TRUEVFRMETAR347.02019-09-20 00:35:552Q(i5    3LOWK 200020Z AUTO 31004KT 9999 NSC 07/05 Q1028LOWK2019-09-20T00:20:00Z46.6514.327.05.031046.2130.35433TRUEVFRMETAR441.02019-09-20 00:35:55 JEEY(5    3KACQ 200019Z AUTO 13005KT 10SM SCT044 22/19 A3001 RMK AO2KACQ2019-09-20T00:19:00Z44.07-93.5522.019.0130510.030.008858TRUETRUEVFRMETAR343.02019-09-20 00:35:552X(e5    3LCRA 200019Z 31001KT CAVOK 22/15 Q1011 NOSIGLCRA2019-09-20T00:19:00Z34.5732.9722.015.031016.2129.852362TRUEVFRMETAR23.02019-09-20 00:35:55W)_5    3KCVS 200019Z 10012KT 10SM FEW140 SCT170 22/15 A2995 RMK AO2A LTG DSNT NE RAE2358DZB2358E04 TSE19 SLP091 $KCVS2019-09-20T00:19:00Z34.37-103.3222.015.01001210.029.9498021009.1TRUETRUEVFRSPECI1309.02019-09-20 00:35:550V(e5    3LOWW 200020Z 33004KT CAVOK 08/03 Q1028 NOSIGLOWW2019-09-20T00:20:00Z48.1216.578.03.033046.2130.35433TRUEVFRMETAR190.02019-09-20 00:35:55 Bq0^(e5    3LIRP 200015Z 14008KT CAVOK 18/10 Q1020 NOSIGLIRP2019-09-20T00:15:00Z43.6710.3718.010.014086.2130.11811TRUEVFRMETAR2.02019-09-20 00:35:55M])5     3TNCC 200015Z AUTO 13003KT 9999 -SHRA FEW015TCU FEW018 28/25 Q1009 TNCC2019-09-20T00:15:00Z12.2-68.9728.025.013036.2129.793306TRUE-SHRAVFRSPECI9.02019-09-20 00:35:55C\(5    3KETB 200015Z AUTO 00000KT 10SM SCT120 20/18 A3006 RMK AO2KETB2019-09-20T00:15:00Z43.42-88.1320.018.00010.030.059055TRUETRUEVFRSPECI270.02019-09-20 00:35:55K[) 5    3KARV 200015Z AUTO 00000KT 10SM CLR 22/20 A3005 RMK AO2 T02160200KARV2019-09-20T00:15:00Z45.92-89.7221.620.00010.030.050198TRUETRUEVFRSPECI496.02019-09-20 00:35:558Z(u5    3LHSN 200015Z 33004KT CAVOK 07/03 Q1026 NOSIG RMK BLULHSN2019-09-20T00:15:00Z47.1220.237.03.033046.2130.295275TRUEVFRMETAR98.02019-09-20 00:35:55 :g2b(m5     3KRAW 200015Z AUTO 00000KT 10SM CLR A2999 RMK AO2KRAW2019-09-20T00:15:00Z38.35-93.350010.029.991142TRUETRUEVFRMETAR285.02019-09-20 00:35:55Ma)5    3KCTZ 200015Z AUTO 00000KT 10SM SCT055 19/14 A3026 RMK AO2 T01890141KCTZ2019-09-20T00:15:00Z34.98-78.3718.914.10010.030.259842TRUETRUEVFRMETAR45.02019-09-20 00:35:55\`)%5     3K28J 200015Z AUTO 11003KT 8SM FEW006 BKN023 OVC090 20/19 A3009 RMK AO2 P0002K28J2019-09-20T00:15:00Z29.65-81.5820.019.011038.030.088583TRUETRUEMVFR0.02SPECI15.02019-09-20 00:35:55^_)?5   3RJCA 200015Z 24008KT 9999 FEW020 BKN030 BKN050 14/08 Q1011 RMK 1CU020 5CU030 6CU050 A2987RJCA2019-09-20T00:15:00Z43.78142.3714.08.024086.2129.852362MVFRSPECI118.02019-09-20 00:35:55 @=y@7g(s5    3LHPR 200015Z AUTO 26005KT 230V300 CAVOK 06/03 Q1028LHPR2019-09-20T00:15:00Z47.6317.826.03.026056.2130.35433TRUEVFRMETAR129.02019-09-20 00:35:55/f(c5    3LHSM 200015Z AUTO 33007KT CAVOK 06/03 Q1028LHSM2019-09-20T00:15:00Z46.6817.176.03.033076.2130.35433TRUEVFRMETAR125.02019-09-20 00:35:55Ae(y5    3KEBS 200015Z AUTO 14005KT 10SM CLR 22/21 A2998 RMK AO2KEBS2019-09-20T00:15:00Z42.42-93.8722.021.0140510.029.97933TRUETRUEVFRMETAR342.02019-09-20 00:35:55>d(w5    3KGLY 200015Z AUTO 00000KT 9SM CLR 24/22 A2997 RMK AO2KGLY2019-09-20T00:15:00Z38.35-93.6824.022.0009.029.970472TRUETRUEVFRSPECI251.02019-09-20 00:35:55=c(w5    3KHYW 200015Z AUTO 00000KT 7SM CLR 16/15 A3022 RMK AO2KHYW2019-09-20T00:15:00Z33.83-79.1216.015.0007.030.221457TRUETRUEVFRSPECI11.02019-09-20 00:35:55 D4l(y5   3CWJO 200000Z AUTO 18/13 RMK AO1 SLP210 T01820131 54000CWJO2019-09-20T00:00:00Z48.43-71.1518.213.11021.0TRUETRUEMETAR133.02019-09-20 00:35:55Bk(y5    3KHII 200010Z AUTO 19009KT 10SM CLR 34/00 A2964 RMK AO2KHII2019-09-20T00:10:00Z34.57-114.3734.00.0190910.029.639763TRUETRUEVFRMETAR238.02019-09-20 00:35:55jj)U5  3RJCH 200010Z 28015G26KT 250V310 9999 FEW030 SCT045 BKN050 19/07 Q1014 RMK 1CU030 3CU045 5CU050 A2995RJCH2019-09-20T00:10:00Z41.77140.8219.07.028015266.2129.940945VFRSPECI36.02019-09-20 00:35:55/i(c5    3LHDC 200015Z AUTO 03004KT CAVOK 08/04 Q1025LHDC2019-09-20T00:15:00Z47.4721.628.04.03046.2130.265747TRUEVFRMETAR112.02019-09-20 00:35:556h(u5    3LHPA 200015Z 08002KT CAVOK 03/02 Q1028 NOSIG RMK BLULHPA2019-09-20T00:15:00Z47.3517.53.02.08026.2130.35433TRUEVFRMETAR148.02019-09-20 00:35:55 8lAq) 5    3CXTV 200000Z AUTO 31009KT 05/05 RMK AO1 SLP045 T00520047 51021CXTV2019-09-20T00:00:00Z68.75-133.55.24.731091004.5TRUETRUE2.1METAR85.02019-09-20 00:35:556p({5   3CWME 200000Z AUTO 19005KT 16/11 RMK AO1 T01630112 50002CWME2019-09-20T00:00:00Z52.18-127.4716.311.21905TRUETRUE0.2METAR32.02019-09-20 00:35:55Eo) 5    3CWQS 200000Z AUTO 30007KT 15/14 RMK AO1 SLP176 T01470135 58004CWQS2019-09-20T00:00:00Z53.32-132.7714.713.530071017.6TRUETRUE-0.4METAR14.02019-09-20 00:35:55Fn) 5    3CWRU 200000Z AUTO 28012KT 15/13 RMK AO1 SLP185 T01460127 55005CWRU2019-09-20T00:00:00Z50.12-127.9314.612.7280121018.5TRUETRUE-0.5METAR98.02019-09-20 00:35:55Bm) 5    3CWND 200000Z AUTO 32009KT 04/03 RMK AO1 SLP017 T00390034 51019CWND2019-09-20T00:00:00Z69.63-135.433.93.432091001.7TRUETRUE1.9METAR12.02019-09-20 00:35:55 "e@u)5  3CXDP 200000Z AUTO 19009KT 18/06 RMK AO1 PK WND 18020/2304 T01800061CXDP2019-09-20T00:00:00Z54.32-113.9518.06.11909TRUETRUEMETAR614.02019-09-20 00:35:56Bt) 5    3CXYH 200000Z AUTO 04003KT 14/09 RMK AO1 SLP982 T01430092 52022CXYH2019-09-20T00:00:00Z61.25-123.7514.39.2403998.2TRUETRUE2.2METAR204.02019-09-20 00:35:567s(}5     3CWZL 200000Z AUTO 08007KT 15/ RMK AO1 SLP180 T0146 51005CWZL2019-09-20T00:00:00Z53.03-131.614.68071018.0TRUETRUE0.5METAR17.02019-09-20 00:35:55Xr)-5    3CWZV 200000Z AUTO 29015KT 13/13 RMK AO1 PK WND 29017/2359 SLP179 T01330131 58001CWZV2019-09-20T00:00:00Z51.93-131.0213.313.1290151017.9TRUETRUE-0.1METAR92.02019-09-20 00:35:55 X9nX)z(Y5   3HETR 200000Z 31016KT CAVOK 27/24 Q1008HETR2019-09-20T00:00:00Z28.2233.6527.024.0310166.2129.763779VFRMETAR35.02019-09-20 00:35:56.y(o5  3CXDB 200000Z AUTO 27004KT 13/05 RMK AO1 T01290046CXDB2019-09-20T00:00:00Z49.05-112.8212.94.62704TRUETRUEMETAR1310.02019-09-20 00:35:56-x(e5   3GOGG 200000Z VRB02KT 9999 SCT016 25/24 Q1014GOGG2019-09-20T00:00:00Z12.55-16.2725.024.0026.2129.940945VFRMETAR23.02019-09-20 00:35:56Ew) 5    3CWWX 200000Z AUTO 18005KT 18/13 RMK AO1 SLP201 T01760133 58004CWWX2019-09-20T00:00:00Z45.32-81.7317.613.318051020.1TRUETRUE-0.4METAR181.02019-09-20 00:35:56Av) 5    3CWHP 200000Z AUTO 24013KT 09/09 RMK AO1 SLP198 T00930086 58004CWHP2019-09-20T00:00:00Z49.07-61.79.38.6240131019.8TRUETRUE-0.4METAR4.02019-09-20 00:35:56 {Q0{/(e5   3NVVV 200000Z 07017KT 9999 SCT020 27/21 Q1017NVVV2019-09-20T00:00:00Z-17.68168.327.021.070176.2130.029528VFRMETAR21.02019-09-20 00:35:56*~(e5   3NVVW 200000Z 08015KT 9999 SCT025 27/18 Q1016NVVW2019-09-20T00:00:00Z-19.45169.2227.018.080156.2130.0VFRMETAR6.02019-09-20 00:35:564}(o5   3NVVA 200000Z 13008KT 9999 SCT025 26/18 Q1018 RESHNVVA2019-09-20T00:00:00Z-20.25169.7726.018.013086.2130.059055VFRMETAR3.02019-09-20 00:35:561|(o5   3NVSC 200000Z AUTO 03006KT //// // NCD 29/24 Q1015NVSC2019-09-20T00:00:00Z-13.83167.5529.024.030629.970472TRUEMETAR18.02019-09-20 00:35:56){(Y5   3GANR 200000Z 22004KT CAVOK 30/24 Q1014GANR2019-09-20T00:00:00Z15.23-9.5830.024.022046.2129.940945VFRMETAR237.02019-09-20 00:35:56 bGb5(k5    3HELX 200000Z 19002KT 6000 NSC 28/19 Q1008 NOSIGHELX2019-09-20T00:00:00Z25.6732.728.019.019023.7329.763779TRUEMVFRMETAR88.02019-09-20 00:35:562(e5    3HESN 200000Z 01006KT CAVOK 30/11 Q1008 NOSIGHESN2019-09-20T00:00:00Z23.9732.8230.011.01066.2129.763779TRUEVFRMETAR194.02019-09-20 00:35:56/(m5    3NVSG 200000Z AUTO 16007KT //// // NCD 28/23 1016NVSG2019-09-20T00:00:00Z-15.3167.9728.023.016070.63TRUELIFRMETAR51.02019-09-20 00:35:567(s5   3NVSS 200000Z 14008KT 9999 SCT018 BKN130 28/22 Q1015NVSS2019-09-20T00:00:00Z-15.52167.2228.022.014086.2129.970472VFRMETAR44.02019-09-20 00:35:563(o5   3NVSL 200000Z AUTO 10014KT //// // NCD 27/23 Q1015NVSL2019-09-20T00:00:00Z-16.45167.8327.023.01001429.970472TRUEMETAR26.02019-09-20 00:35:56 ^C^7 (q5    3HEBA 200000Z 33005KT 9999 SCT020 21/18 Q1014 NOSIGHEBA2019-09-20T00:00:00Z30.9229.721.018.033056.2129.940945TRUEVFRMETAR54.02019-09-20 00:35:567(q5    3HEPS 200000Z 36008KT 9999 FEW025 26/22 Q1013 NOSIGHEPS2019-09-20T00:00:00Z31.2832.2526.022.036086.2129.911417TRUEVFRMETAR6.02019-09-20 00:35:562(e5    3HEGN 200000Z 33014KT CAVOK 29/20 Q1008 NOSIGHEGN2019-09-20T00:00:00Z27.1833.829.020.0330146.2129.763779TRUEVFRMETAR14.02019-09-20 00:35:56-(e5    3HEMM 200000Z 28004KT CAVOK 23/18 Q1016 NOSIGHEMM2019-09-20T00:00:00Z31.3227.2223.018.028046.2130.0TRUEVFRMETAR30.02019-09-20 00:35:567(q5    3HEAX 200000Z 33007KT 9999 SCT020 24/18 Q1014 NOSIGHEAX2019-09-20T00:00:00Z31.1829.9324.018.033076.2129.940945TRUEVFRMETAR7.02019-09-20 00:35:56 ]H];(y5    3KTWM 192355Z AUTO 00000KT 10SM CLR 22/14 A3000 RMK AO2KTWM2019-09-19T23:55:00Z47.03-91.7522.014.00010.030.0TRUETRUEVFRMETAR328.02019-09-20 00:35:563 (e5    3HEMA 200000Z 32017KT CAVOK 32/16 Q1007 NOSIGHEMA2019-09-20T00:00:00Z25.5534.5832.016.0320176.2129.734253TRUEVFRMETAR77.02019-09-20 00:35:562 (e5    3HESG 200000Z 32009KT CAVOK 28/17 Q1008 NOSIGHESG2019-09-20T00:00:00Z26.3331.7528.017.032096.2129.763779TRUEVFRMETAR70.02019-09-20 00:35:563 (e5    3HESH 200000Z 35011KT CAVOK 31/27 Q1008 NOSIGHESH2019-09-20T00:00:00Z27.9734.3831.027.0350116.2129.763779TRUEVFRMETAR50.02019-09-20 00:35:562 (e5    3HEAT 200000Z 33008KT CAVOK 25/16 Q1013 NOSIGHEAT2019-09-20T00:00:00Z27.0531.0225.016.033086.2129.911417TRUEVFRMETAR70.02019-09-20 00:35:56 9dT)5    3PAPH 200041Z AUTO 30006KT 10SM SCT016 BKN025 OVC034 11/08 A2955 RMK AO2PAPH2019-09-20T00:41:00Z56.95-158.6211.08.0300610.029.551182TRUETRUEMVFRSPECI29.02019-09-20 00:46:05A(5    3PAPO 200041Z AUTO 28012KT 10SM FEW020 06/02 A2958 RMK AO2PAPO2019-09-20T00:41:00Z68.35-166.86.02.02801210.029.58071TRUETRUEVFRSPECI6.02019-09-20 00:46:05O)5    3KNUC 200041Z 32012KT 10SM FEW011 20/14 A2986 RMK AO2 T02000144 $ KNUC2019-09-20T00:41:00Z33.02-118.5720.014.43201210.029.861221TRUETRUEVFRSPECI55.02019-09-20 00:46:05A(5    3KPTN 200041Z AUTO 00000KT 10SM FEW002 27/24 A2999 RMK AO2KPTN2019-09-20T00:41:00Z29.72-91.3227.024.00010.029.991142TRUETRUEVFRSPECI3.02019-09-20 00:46:05 :kE) 5    3KROS 200040Z AUTO 00000KT 10SM CLR 20/18 A3000 RMK AO2 T02030177KROS2019-09-20T00:40:00Z45.7-92.9520.317.70010.030.0TRUETRUEVFRMETAR281.02019-09-20 00:46:05;(y5    3KCBG 200040Z AUTO 00000KT 10SM CLR 22/14 A3000 RMK AO2KCBG2019-09-20T00:40:00Z45.57-93.2722.014.00010.030.0TRUETRUEVFRMETAR287.02019-09-20 00:46:05B(y5    3KCVH 200040Z AUTO 25016KT 10SM CLR 21/10 A2991 RMK A01KCVH2019-09-20T00:40:00Z36.9-121.4221.010.02501610.029.911417TRUETRUEVFRMETAR70.02019-09-20 00:46:05I(5   3KMVH 200040Z AUTO 31012G18KT 10SM CLR 15/06 A2990 RMK AO2KMVH2019-09-20T00:40:00Z46.83-108.9315.06.0310121810.029.899607TRUETRUEVFRSPECI1355.02019-09-20 00:46:05@(y5    3KMCC 200040Z AUTO 32009KT 10SM CLR 25/08 A2991 RMK AO2KMCC2019-09-20T00:40:00Z38.67-121.425.08.0320910.029.911417TRUETRUEVFRMETAR23.02019-09-20 00:46:05 ;Uti)=5      3PAPB 200040Z AUTO 04012KT 6SM BR SCT008 BKN012 OVC024 10/09 A2958 RMK AO2 T01000089 TSNOPAPB2019-09-20T00:40:00Z56.58-169.6710.08.940126.029.58071TRUETRUETRUEBRMVFRSPECI35.02019-09-20 00:46:05[)/5    3PKWA 200040Z AUTO 29008KT 10SM SCT020 SCT029 SCT043 31/25 A2980 RMK AO2 T03100252PKWA2019-09-20T00:40:00Z8.72167.7231.025.2290810.029.799213TRUETRUEVFRMETAR8.02019-09-20 00:46:05`)55     3PAGN 200040Z AUTO 00000KT 3/4SM HZ SCT070 BKN090 14/12 A2994 RMK AO2 VIS 1/2V5 RVRNOPAGN2019-09-20T00:40:00Z57.5-134.5814.012.0000.7529.940945TRUETRUEHZLIFRMETAR2.02019-09-20 00:46:05?(y5    3KUKT 200040Z AUTO 00000KT 10SM CLR 11/09 A3030 RMK A01KUKT2019-09-20T00:40:00Z40.43-75.3811.09.00010.030.301182TRUETRUEVFRMETAR160.02019-09-20 00:46:05Y8q8@HPX`hpx (08@HPX`hpx (08@HPX`hpx<@CGKPUY ^!c"h#m<@CGKPUY ^!c"h#m$r%w&|'() *+,-.#/(0-12273<4@5C6G7K8O9T:X;\i?m@rAwB{CDE FGHIJ"K'L,M1N6O:P>QBRGSLTQUVV[W`XeYjZo[s\x]}^_` abcd e%f)g.h2i7j<kAlFmKnPoUpYY88@HPX`hpx (08@HPX`hpx (08@HPX`hpxrbsgtluqvuwzxyz {|}rbsgtluqvuwzxyz {|}~#'+048<@DHLPTX\`einsx|  $(,048<@DHLPTX\`dhlpuy} "&µ*õ.ĵ2ŵ6Ƶ:ǵ>ȵCɵGʵK˵O̵S ;jO) 5    3PALU 200040Z AUTO 30007KT 10SM SCT022 05/01 A2955 RMK AO2 SLP006PALU2019-09-20T00:40:00Z68.88-166.15.01.0300710.029.5511821000.6TRUETRUEVFRSPECI3.02019-09-20 00:46:05K) 5    3KSLH 200040Z AUTO 00000KT 10SM CLR 17/16 A3007 RMK AO2 T01710161KSLH2019-09-20T00:40:00Z45.65-84.5217.116.10010.030.070866TRUETRUEVFRMETAR195.02019-09-20 00:46:05K) 5    3KPMH 200040Z AUTO 00000KT 10SM CLR 20/18 A3013 RMK AO2 T01970182KPMH2019-09-20T00:40:00Z38.83-82.8519.718.20010.030.129921TRUETRUEVFRMETAR202.02019-09-20 00:46:05?(y5    3KPQN 200040Z AUTO 00000KT 10SM CLR 23/18 A2998 RMK AO2KPQN2019-09-20T00:40:00Z43.97-96.3223.018.00010.029.97933TRUETRUEVFRMETAR529.02019-09-20 00:46:05 $$T#)5     3KSUE 200039Z AUTO 00000KT 8SM BKN024 OVC060 17/17 A3009 RMK AO2 P0004KSUE2019-09-20T00:39:00Z44.85-87.4217.017.0008.030.088583TRUETRUEMVFR0.04METAR221.02019-09-20 00:46:05")5    3CYAH 200039Z AUTO 21013G19KT 4SM -RA BR FEW027 BKN036 OVC044 16/15 A2970 RMK TS/LTNG TEMPO UNAVBL SLP066 DENSITY ALT 1600FTCYAH2019-09-20T00:39:00Z53.75-73.6716.015.021013194.029.6988181006.6TRUE-RA BRMVFRSPECI306.02019-09-20 00:46:05B!(y5    3KBDH 200039Z AUTO 11004KT 10SM CLR 22/18 A3001 RMK AO2KBDH2019-09-20T00:39:00Z45.12-95.1322.018.0110410.030.008858TRUETRUEVFRMETAR247.02019-09-20 00:46:05 )}5     3KHST 200040Z AUTO 04009KT 10SM FEW002 FEW035 SCT043 BKN050 OVC065 24/22 A2993 RMK AO2 RAE37DZB37E40 SLP139 FZRANO TSNO $KHST2019-09-20T00:40:00Z25.47-80.3724.022.040910.029.9291341013.9TRUETRUETRUETRUETRUEBKN5000VFRSPECI2.02019-09-20 00:46:05 /]j')?5     3CYQW 200039Z AUTO 05003KT 9SM -RA BKN070 OVC091 13/11 A2986 RMK SLP126 DENSITY ALT 2000FTCYQW2019-09-20T00:39:00Z52.77-108.2513.011.05039.029.8612211012.6TRUE-RAVFRSPECI548.02019-09-20 00:46:05K&) 5    3KBAX 200039Z AUTO 00000KT 10SM CLR 17/14 A3013 RMK AO2 T01710139KBAX2019-09-20T00:39:00Z43.78-82.9817.113.90010.030.129921TRUETRUEVFRMETAR234.02019-09-20 00:46:05L%) 5    3KD95 200039Z AUTO 13003KT 10SM CLR 19/15 A3015 RMK AO2 T01930150KD952019-09-20T00:39:00Z43.07-83.2719.315.0130310.030.15059TRUETRUEVFRMETAR255.02019-09-20 00:46:05K$) 5    3KIKW 200039Z AUTO 00000KT 10SM CLR 18/14 A3010 RMK AO2 T01790139KIKW2019-09-20T00:39:00Z43.67-84.2717.913.90010.030.100393TRUETRUEVFRMETAR194.02019-09-20 00:46:05 .VK+) 5    3KEVM 200039Z AUTO 04003KT 10SM CLR 18/15 A3006 RMK AO2 T01750149KEVM2019-09-20T00:39:00Z47.42-92.517.514.940310.030.059055TRUETRUEVFRMETAR421.02019-09-20 00:46:05B*(y5    3KMOX 200039Z AUTO 13006KT 10SM CLR 22/17 A2991 RMK AO2KMOX2019-09-20T00:39:00Z45.57-95.9722.017.0130610.029.911417TRUETRUEVFRMETAR344.02019-09-20 00:46:05 ))o5      3KDGW 200039Z AUTO 08007KT 10SM VCTS -RA FEW070 OVC100 24/07 A2983 RMK AO2 PK WND 15042/0023 RAB24 P0000 T02390067KDGW2019-09-20T00:39:00Z42.8-105.3823.96.780710.029.828741TRUETRUEVCTS -RAVFR0.005METAR1499.02019-09-20 00:46:05L() 5    3KIRS 200039Z AUTO 12005KT 10SM CLR 19/13 A3010 RMK AO2 T01910133KIRS2019-09-20T00:39:00Z41.8-85.4319.113.3120510.030.100393TRUETRUEVFRMETAR282.02019-09-20 00:46:05 ?j>0(y5    3KOYM 200039Z AUTO 00000KT 10SM CLR 15/10 A3031 RMK AO2KOYM2019-09-20T00:39:00Z41.42-78.515.010.00010.030.31004TRUETRUEVFRMETAR590.02019-09-20 00:46:05@/(y5    3KTAZ 200039Z AUTO 00000KT 10SM CLR 24/19 A3003 RMK AO2KTAZ2019-09-20T00:39:00Z39.53-89.3324.019.00010.030.029528TRUETRUEVFRMETAR190.02019-09-20 00:46:05@.(y5    3KOVL 200039Z AUTO 00000KT 10SM CLR 23/17 A2997 RMK AO2KOVL2019-09-20T00:39:00Z44.78-95.0323.017.00010.029.970472TRUETRUEVFRMETAR328.02019-09-20 00:46:05O-)5     3KTAN 200039Z AUTO 00000KT 1 3/4SM BR CLR 08/06 A3027 RMK AO2 T00780061KTAN2019-09-20T00:39:00Z41.88-71.027.86.1001.7530.268702TRUETRUEBRIFRMETAR7.02019-09-20 00:46:05;,(y5    3KAIT 200039Z AUTO 00000KT 10SM CLR 17/15 A3000 RMK AO2KAIT2019-09-20T00:39:00Z46.53-93.6717.015.00010.030.0TRUETRUEVFRMETAR367.02019-09-20 00:46:05 $T?4)5   3KMGG 200038Z AUTO 00000KT 10SM 21/19 A3000 RMK AO2 T02110192KMGG2019-09-20T00:38:00Z45.23-93.9821.119.20010.030.0TRUETRUEMETAR313.02019-09-20 00:46:06M3)5    3KLDM 200038Z AUTO 00000KT 10SM OVC110 19/18 A3006 RMK AO2 T01920182KLDM2019-09-20T00:38:00Z43.97-86.419.218.20010.030.059055TRUETRUEVFRMETAR197.02019-09-20 00:46:05J2) 5    3KFFX 200038Z AUTO 00000KT 10SM CLR 22/13 A3007 RMK AO2 T02180134KFFX2019-09-20T00:38:00Z43.43-86.021.813.40010.030.070866TRUETRUEVFRMETAR236.02019-09-20 00:46:05V1)5   3K2V6 200039Z AUTO 14010G17KT 10SM CLR 27/M06 A2984 RMK AO2 LTG DSNT EK2V62019-09-20T00:39:00Z40.1-102.7227.0-6.0140101710.029.840551TRUETRUEVFRMETAR1261.02019-09-20 00:46:05 /]R8(K5 3CWND M01/M02 RMK 1025 T10121015CWND2019-09-20T00:38:00Z69.63-135.43-1.2-1.5SPECI12.02019-09-20 00:46:067)a5   3CYKL 200038Z AUTO 25018G29KT 8SM -RA FEW034 SCT070 BKN084 OVC140 16/14 A2969 RMK SLP068 DENSITY ALT 2400FTCYKL2019-09-20T00:38:00Z54.78-66.8216.014.025018298.029.689961006.8TRUE-RAOVC14000VFRSPECI521.02019-09-20 00:46:06L6) 5    3KRQB 200038Z AUTO 16003KT 10SM CLR 20/17 A3009 RMK AO2 T01980172KRQB2019-09-20T00:38:00Z43.72-85.519.817.2160310.030.088583TRUETRUEVFRSPECI302.02019-09-20 00:46:06K5)5     3KPNM 200038Z AUTO 00000KT 10SM CLR 21/18 A3000 RMK AO2 P0001 P0001KPNM2019-09-20T00:38:00Z45.57-93.621.018.00010.030.0TRUETRUEVFR0.01SPECI298.02019-09-20 00:46:06 &Tr<<(y5    3KHZL 200038Z AUTO 00000KT 10SM CLR 09/06 A3033 RMK AO2KHZL2019-09-20T00:38:00Z40.98-76.09.06.00010.030.33071TRUETRUEVFRMETAR489.02019-09-20 00:46:06\;))5    3KTYR 200038Z 15009G17KT 10SM BKN008 OVC016 23/23 A2988 RMK AO2 P0002 T02330228KTYR2019-09-20T00:38:00Z32.37-95.423.322.815091710.029.878937TRUEIFR0.02METAR165.02019-09-20 00:46:06L:) 5    3KVLL 200038Z AUTO 11004KT 10SM CLR 23/16 A3015 RMK AO2 T02250162KVLL2019-09-20T00:38:00Z42.55-83.1822.516.2110410.030.15059TRUETRUEVFRMETAR222.02019-09-20 00:46:06T9)!5    3KERY 200038Z AUTO 00000KT 10SM SCT090 BKN110 19/17 A3008 RMK AO2 T01870173KERY2019-09-20T00:38:00Z46.3-85.4518.717.30010.030.079725TRUETRUEVFRMETAR265.02019-09-20 00:46:06 8fA@(y5    3KBBB 200038Z AUTO 17004KT 10SM CLR 23/18 A2998 RMK AO2KBBB2019-09-20T00:38:00Z45.32-95.6523.018.0170410.029.97933TRUETRUEVFRMETAR317.02019-09-20 00:46:06L?) 5    3KCVX 200038Z AUTO 10003KT 10SM CLR 21/17 A3011 RMK AO2 T02050174KCVX2019-09-20T00:38:00Z45.3-85.2720.517.4100310.030.109253TRUETRUEVFRMETAR204.02019-09-20 00:46:06L>) 5    3KDRM 200038Z AUTO 12004KT 10SM CLR 19/15 A3010 RMK AO2 T01870153KDRM2019-09-20T00:38:00Z46.0-83.7518.715.3120410.030.100393TRUETRUEVFRMETAR204.02019-09-20 00:46:06B=(y5    3KHYX 200038Z AUTO 13006KT 10SM CLR 20/15 A3011 RMK AO2KHYX2019-09-20T00:38:00Z43.43-83.8720.015.0130610.030.109253TRUETRUEVFRMETAR183.02019-09-20 00:46:06 &F8D(u5    3EKKA 200038Z AUTO 26006KT 9999 OVC014/// 11/08 Q1027EKKA2019-09-20T00:38:00Z56.39.1211.08.026066.2130.324802TRUEMVFRSPECI52.02019-09-20 00:46:06PC)5    3KFTK 200038Z AUTO 17004KT 10SM CLR 25/18 A3008 RMK AO2 SLP184KFTK2019-09-20T00:38:00Z37.88-85.9725.018.0170410.030.0797251018.4TRUETRUEVFRSPECI230.02019-09-20 00:46:06B)k5    3KPUC 200038Z AUTO 20012G26KT 10SM VCTS OVC100 24/00 A2979 RMK AO2 PK WND 17026/0010 LTG DSNT N AND NE T02390000KPUC2019-09-20T00:38:00Z39.62-110.7523.90.0200122610.029.790354TRUETRUEVCTSVFRMETAR2091.02019-09-20 00:46:06TA)5    3CYEV 200038Z 29008KT 10SM -DZ SCT003 OVC005 05/05 A2968 RMK ST4ST4 SLP057CYEV2019-09-20T00:38:00Z68.32-133.55.05.0290810.029.6811031005.7-DZIFRSPECI68.02019-09-20 00:46:06 #]LH) 5    3KPZQ 200037Z AUTO 14004KT 10SM CLR 20/15 A3010 RMK AO2 T01950154KPZQ2019-09-20T00:37:00Z45.4-83.8219.515.4140410.030.100393TRUETRUEVFRMETAR204.02019-09-20 00:46:06KG) 5    3KY31 200037Z AUTO 00000KT 10SM CLR 17/16 A3010 RMK AO2 T01690155KY312019-09-20T00:37:00Z44.25-84.1816.915.50010.030.100393TRUETRUEVFRMETAR269.02019-09-20 00:46:06@F(y5    3KAUM 200037Z AUTO 00000KT 10SM CLR 24/17 A3003 RMK AO2KAUM2019-09-20T00:37:00Z43.67-92.9224.017.00010.030.029528TRUETRUEVFRMETAR375.02019-09-20 00:46:06WE)5     3K04V 200038Z AUTO 00000KT 10SM CLR 20/00 A3010 RMK AO2 LTG DSNT SW PWINOK04V2019-09-20T00:38:00Z38.1-106.1720.00.00010.030.100393TRUETRUETRUEVFRSPECI2385.02019-09-20 00:46:06 ^'^CL(5    3KORB 200037Z AUTO 00000KT 10SM SCT027 17/14 A3005 RMK AO2KORB2019-09-20T00:37:00Z48.02-92.8717.014.00010.030.050198TRUETRUEVFRMETAR397.02019-09-20 00:46:06@K(y5    3KHZX 200037Z AUTO 00000KT 10SM CLR 20/16 A3001 RMK AO2KHZX2019-09-20T00:37:00Z46.62-93.3220.016.00010.030.008858TRUETRUEVFRMETAR374.02019-09-20 00:46:06)J)75     3KAMA 200037Z 08019G23KT 10SM VCTS SCT023 SCT029 BKN110 17/15 A3002 RMK AO2 PK WND 06026/0013 WSHFT 0006 LTG DSNT NE-SE RAE37 TSB22E37 P0036 T01720150KAMA2019-09-20T00:37:00Z35.22-101.7217.215.080192310.030.02067TRUEVCTSVFR0.36METAR1093.02019-09-20 00:46:06^I)+5     3PAHN 200037Z AUTO 09006KT 10SM BKN017 OVC080 14/10 A2985 RMK AO2 T01390100 TSNOPAHN2019-09-20T00:37:00Z59.25-135.5213.910.090610.029.84941TRUETRUETRUEMVFRMETAR5.02019-09-20 00:46:06 Z@P(y5    3KNY0 200037Z AUTO 05003KT 10SM CLR 13/07 A3028 RMK AO2KNY02019-09-20T00:37:00Z42.98-74.3313.07.050310.030.280512TRUETRUEVFRMETAR271.02019-09-20 00:46:06BO(y5    3KFFM 200037Z AUTO 11005KT 10SM CLR 24/15 A2995 RMK AO2KFFM2019-09-20T00:37:00Z46.28-96.1524.015.0110510.029.949802TRUETRUEVFRSPECI361.02019-09-20 00:46:06(y5    3KCRX 200035Z AUTO 00000KT 10SM CLR 24/22 A3004 RMK AO2KCRX2019-09-20T00:35:00Z34.92-88.624.022.00010.030.041338TRUETRUEVFRSPECI130.02019-09-20 00:46:06L=) 5    3KBKT 200035Z AUTO 07003KT 10SM CLR 14/11 A3030 RMK AO1 T01420105KBKT2019-09-20T00:35:00Z37.07-77.9514.210.570310.030.301182TRUETRUEVFRSPECI134.02019-09-20 00:46:06 ,fID) 5    3KCKF 200035Z AUTO 00000KT 10SM CLR 21/11 A3015 RMK AO2 T02080112KCKF2019-09-20T00:35:00Z31.98-83.7720.811.20010.030.15059TRUETRUEVFRSPECI91.02019-09-20 00:46:06MC) 5    3KCKP 200035Z AUTO 11003KT 10SM CLR 24/21 A2996 RMK AO2 T02350211KCKP2019-09-20T00:35:00Z42.73-95.5523.521.1110310.029.958662TRUETRUEVFRMETAR374.02019-09-20 00:46:06@B(5    3KCKZ 200035Z AUTO 00000KT 10SM FEW040 09/09 A3031 RMK AO2KCKZ2019-09-20T00:35:00Z40.38-75.289.09.00010.030.31004TRUETRUEVFRMETAR173.02019-09-20 00:46:06NA)5    3KCMY 200035Z AUTO 00000KT 10SM SCT027 20/19 A3005 RMK AO2 T02000190KCMY2019-09-20T00:35:00Z43.97-90.7320.019.00010.030.050198TRUETRUEVFRSPECI256.02019-09-20 00:46:06 ApEH)5    3KCVC 200035Z AUTO 00000KT 10SM CLR 21/13 A3019 RMK AO2 PNOKCVC2019-09-20T00:35:00Z33.63-83.8521.013.00010.030.188976TRUETRUEVFRSPECI247.02019-09-20 00:46:06HG) 5    3KCXE 200035Z AUTO 00000KT 10SM CLR 16/10 A3029 RMK AO1 T01590096KCXE2019-09-20T00:35:00Z36.78-78.515.99.60010.030.28937TRUETRUEVFRSPECI153.02019-09-20 00:46:06KF) 5    3KCTJ 200035Z AUTO 00000KT 10SM CLR 22/14 A3020 RMK AO2 T02230142KCTJ2019-09-20T00:35:00Z33.63-85.1522.314.20010.030.200787TRUETRUEVFRSPECI354.02019-09-20 00:46:069E(q5   3KCEY 200035Z AUTO 00000KT 10SM 27/19 A3003 RMK AO1KCEY2019-09-20T00:35:00Z36.67-88.3727.019.00010.030.029528TRUETRUESPECI176.02019-09-20 00:46:06 /IwGL)5   3KCXP 200035Z AUTO 01012G20KT 10SM SCT080 15/01 A3000 RMK AO2KCXP2019-09-20T00:35:00Z39.18-119.7315.01.010122010.030.0TRUETRUEVFRMETAR1435.02019-09-20 00:46:06LK) 5    3KCXW 200035Z AUTO 27009KT 10SM BKN060 OVC075 25/22 A2997 RMK A01KCXW2019-09-20T00:35:00Z35.02-92.5525.022.0270910.029.970472TRUETRUEVFRSPECI84.02019-09-20 00:46:06`J)55   3KCTY 200035Z AUTO 07009G15KT 10SM SCT060 SCT070 OVC080 25/18 A3009 RMK AO2 T02480184KCTY2019-09-20T00:35:00Z29.63-83.124.818.47091510.030.088583TRUETRUEVFRMETAR13.02019-09-20 00:46:06KI) 5    3KCUH 200035Z AUTO 00000KT 10SM CLR 28/21 A2990 RMK AO2 T02820208KCUH2019-09-20T00:35:00Z35.95-96.7728.220.80010.029.899607TRUETRUEVFRSPECI279.02019-09-20 00:46:06 <jYP))5    3KELA 200035Z AUTO 12007KT 10SM SCT007 25/24 A2986 RMK AO2 LTG DSNT W T02500240KELA2019-09-20T00:35:00Z29.6-96.3225.024.0120710.029.861221TRUETRUEVFRMETAR56.02019-09-20 00:46:06LO) 5    3KETN 200035Z AUTO 09006KT 10SM CLR 28/19 A2986 RMK AO2 T02780188KETN2019-09-20T00:35:00Z32.42-98.8227.818.890610.029.861221TRUETRUEVFRMETAR446.02019-09-20 00:46:06LN) 5    3KEZZ 200035Z AUTO 13005KT 10SM CLR 25/22 A2998 RMK AO2 T02530221KEZZ2019-09-20T00:35:00Z39.72-94.2825.322.1130510.029.97933TRUETRUEVFRSPECI317.02019-09-20 00:46:06>M(y5    3KDBN 200035Z AUTO 00000KT 10SM CLR 18/06 A3018 RMK AO2KDBN2019-09-20T00:35:00Z32.57-82.9818.06.00010.030.180119TRUETRUEVFRMETAR94.02019-09-20 00:46:06 8VRT)5     3KE16 200035Z AUTO 20009KT 10SM FEW070 24/09 A2990 RMK AO2 PWINO PNOKE162019-09-20T00:35:00Z37.08-121.624.09.0200910.029.899607TRUETRUETRUEVFRMETAR86.02019-09-20 00:46:06AS(y5    3KEDU 200035Z AUTO 01010KT 10SM CLR 25/06 A2990 RMK AO1KEDU2019-09-20T00:35:00Z38.53-121.7825.06.0101010.029.899607TRUETRUEVFRMETAR21.02019-09-20 00:46:06\R)/5    3KEGV 200035Z AUTO 00000KT 10SM SCT027 SCT033 SCT040 21/17 A3006 RMK AO2 T02050171KEGV2019-09-20T00:35:00Z45.93-89.2720.517.10010.030.059055TRUETRUEVFRMETAR500.02019-09-20 00:46:06BQ(w5    3KEKS 200035Z AUTO 33016KT 9SM CLR 14/04 A2992 RMK AO2KEKS2019-09-20T00:35:00Z45.27-111.6514.04.0330169.029.920275TRUETRUEVFRSPECI1641.02019-09-20 00:46:06 8gEX(5    3KF44 200035Z AUTO 14006KT 10SM OVC008 24/23 A2986 RMK AO2KF442019-09-20T00:35:00Z32.17-95.8324.023.0140610.029.861221TRUETRUEIFRMETAR135.02019-09-20 00:46:06JW) 5    3KDCY 200035Z AUTO 00000KT 10SM CLR 22/18 A3004 RMK AO2 T02160177KDCY2019-09-20T00:35:00Z38.7-87.1321.617.70010.030.041338TRUETRUEVFRMETAR144.02019-09-20 00:46:06KV) 5    3KDKX 200035Z AUTO 00000KT 10SM BKN048 BKN055 23/18 A3016 RMK A01KDKX2019-09-20T00:35:00Z35.97-83.8723.018.00010.030.159449TRUETRUEVFRSPECI254.02019-09-20 00:46:06BU(y5    3KDVO 200035Z AUTO 24012KT 10SM CLR 23/10 A2990 RMK AO2KDVO2019-09-20T00:35:00Z38.15-122.5523.010.02401210.029.899607TRUETRUEVFRSPECI1.02019-09-20 00:46:06 %]O\)5    3KIJX 200035Z AUTO 13005KT 10SM BKN100 25/21 A3002 RMK AO2 T02520211KIJX2019-09-20T00:35:00Z39.77-90.2525.221.1130510.030.02067TRUETRUEVFRMETAR190.02019-09-20 00:46:06P[)5    3KFGX 200035Z AUTO 14005KT 10SM SCT065 23/18 A3013 RMK AO2 T02320180KFGX2019-09-20T00:35:00Z38.55-83.7523.218.0140510.030.129921TRUETRUEVFRSPECI278.02019-09-20 00:46:06BZ(y5    3KFCH 200035Z AUTO 32010KT 10SM CLR 26/07 A2986 RMK A01KFCH2019-09-20T00:35:00Z36.72-119.8226.07.03201010.029.861221TRUETRUEVFRMETAR85.02019-09-20 00:46:06UY)5     3KFEP 200035Z AUTO 00000KT 10SM -RA OVC070 21/21 A3008 RMK AO2 T02050205KFEP2019-09-20T00:35:00Z42.25-89.5820.520.50010.030.079725TRUETRUE-RAVFRSPECI262.02019-09-20 00:46:06 0LzC`(y5    3K3K8 200035Z AUTO 14013KT 10SM CLR 27/18 A2994 RMK AO2K3K82019-09-20T00:35:00Z37.22-99.3327.018.01401310.029.940945TRUETRUEVFRSPECI636.02019-09-20 00:46:06L_) 5    3KSWW 200035Z AUTO 00000KT 10SM CLR 30/16 A2989 RMK AO2 T03010156KSWW2019-09-20T00:35:00Z32.47-100.4730.115.60010.029.890747TRUETRUEVFRMETAR727.02019-09-20 00:46:06^^)75    3KREG 200035Z AUTO 00000KT 10SM BKN050 28/25 A2999 RMK AO2 LTG DSNT W AND NW T02830247KREG2019-09-20T00:35:00Z30.17-90.9328.324.70010.029.991142TRUETRUEVFRMETAR4.02019-09-20 00:46:06J]) 5    3KVBW 200035Z AUTO 00000KT 10SM CLR 13/11 A3029 RMK AO1 T01340106KVBW2019-09-20T00:35:00Z38.37-78.9713.410.60010.030.28937TRUETRUEVFRMETAR355.02019-09-20 00:46:06 8yBd(5    3K2LS 200035Z AUTO 13004KT 10SM FEW030 28/23 A3002 RMK AO2K2LS2019-09-20T00:35:00Z29.42-90.328.023.0130410.030.02067TRUETRUEVFRMETAR-2.02019-09-20 00:46:06Mc) 5    3K2M2 200035Z AUTO 13003KT 10SM SCT050 SCT065 24/19 A3008 RMK A01K2M22019-09-20T00:35:00Z35.23-87.2524.019.0130310.030.079725TRUETRUEVFRSPECI286.02019-09-20 00:46:069b(q5   3K33N 200035Z AUTO 18003KT 10SM 15/11 A3030 RMK A01K33N2019-09-20T00:35:00Z39.22-75.615.011.0180310.030.301182TRUETRUEMETAR17.02019-09-20 00:46:06Ba(y5    3K3AU 200035Z AUTO 14006KT 10SM CLR 27/20 A2994 RMK AO2K3AU2019-09-20T00:35:00Z37.67-97.0827.020.0140610.029.940945TRUETRUEVFRSPECI405.02019-09-20 00:46:06 0iQh)5    3K1U7 200035Z AUTO 34011KT 10SM SCT090 BKN120 16/M02 A2982 RMK A01K1U72019-09-20T00:35:00Z42.25-111.3316.0-2.03401110.029.819881TRUETRUEVFRMETAR1807.02019-09-20 00:46:06Eg(5    3K2A0 200035Z AUTO 16004KT 10SM OVC065 26/15 A3013 RMK A01K2A02019-09-20T00:35:00Z35.48-84.9326.015.0160410.030.129921TRUETRUEVFRSPECI219.02019-09-20 00:46:06Af(y5    3K2G9 200035Z AUTO 13004KT 10SM CLR 13/07 A3028 RMK AO2K2G92019-09-20T00:35:00Z40.03-79.0213.07.0130410.030.280512TRUETRUEVFRSPECI693.02019-09-20 00:46:06Je) 5    3K2I0 200035Z AUTO 00000KT 10SM CLR 27/20 A3004 RMK AO2 T02680195K2I02019-09-20T00:35:00Z37.35-87.426.819.50010.030.041338TRUETRUEVFRMETAR134.02019-09-20 00:46:06 6e6l(i5    3K0VG 200035Z AUTO 10SM CLR 19/14 A3023 RMK AO2K0VG2019-09-20T00:35:00Z36.65-83.2219.014.010.030.230314TRUETRUEVFRSPECI430.02019-09-20 00:46:06Mk) 5    3K1A6 200035Z AUTO 25003KT 10SM CLR 21/17 A3019 RMK AO2 T02110167K1A62019-09-20T00:35:00Z36.62-83.7321.116.7250310.030.188976TRUETRUEVFRSPECI352.02019-09-20 00:46:06Kj) 5    3K1H2 200035Z AUTO 00000KT 10SM CLR 23/17 A3005 RMK AO2 T02250172K1H22019-09-20T00:35:00Z39.07-88.5322.517.20010.030.050198TRUETRUEVFRMETAR179.02019-09-20 00:46:06Di(5    3K1M5 200035Z AUTO 14005KT 10SM FEW060 25/19 A3007 RMK A01K1M52019-09-20T00:35:00Z36.6-86.4825.019.0140510.030.070866TRUETRUEVFRSPECI250.02019-09-20 00:46:06 /aAp)5   3K0A9 200035Z AUTO 11006KT SCT040 OVC050 19/13 A3024 RMK AO2K0A92019-09-20T00:35:00Z36.37-82.1719.013.0110630.239174TRUETRUESPECI486.02019-09-20 00:46:06Fo)5     3K0R0 200035Z AUTO 00000KT 10SM +RA CLR 26/21 A3007 RMK AO2K0R02019-09-20T00:35:00Z31.3-89.8226.021.00010.030.070866TRUETRUE+RAVFRSPECI81.02019-09-20 00:46:06Hn) 5    3K0R4 200035Z AUTO 00000KT 10SM CLR 25/21 A2998 RMK AO2 T02500209K0R42019-09-20T00:35:00Z31.57-91.525.020.90010.029.97933TRUETRUEVFRSPECI17.02019-09-20 00:46:06Km) 5    3K0V4 200035Z AUTO 00000KT 10SM CLR 15/10 A3028 RMK AO1 T01450102K0V42019-09-20T00:35:00Z37.15-79.0214.510.20010.030.280512TRUETRUEVFRSPECI182.02019-09-20 00:46:06 .i@u(y5    3KGOO 200035Z AUTO 30007KT 10SM CLR 18/07 A2998 RMK A01KGOO2019-09-20T00:35:00Z39.22-121.018.07.0300710.029.97933TRUETRUEVFRMETAR962.02019-09-20 00:46:06Dt(5   3KGOP 200035Z AUTO 06009G16KT 10SM CLR 29/21 A2985 RMK AO2KGOP2019-09-20T00:35:00Z31.42-97.829.021.06091610.029.84941TRUETRUEVFRMETAR276.02019-09-20 00:46:06@s(y5    3KGPC 200035Z AUTO 00000KT 10SM CLR 22/17 A3007 RMK AO2KGPC2019-09-20T00:35:00Z39.63-86.8222.017.00010.030.070866TRUETRUEVFRSPECI257.02019-09-20 00:46:06?r(y5    3K05U 200035Z AUTO 01006KT 10SM CLR 11/03 A2998 RMK A01K05U2019-09-20T00:35:00Z39.6-116.011.03.010610.029.97933TRUETRUEVFRSPECI1816.02019-09-20 00:46:06Lq) 5    3K06C 200035Z AUTO 12006KT 10SM CLR 25/18 A3005 RMK AO2 T02460176K06C2019-09-20T00:35:00Z41.98-88.124.617.6120610.030.050198TRUETRUEVFRSPECI244.02019-09-20 00:46:06 6]Qy)5    3KGCY 200035Z AUTO 00000KT 10SM BKN047 BKN055 OVC075 20/14 A3021 RMK A01KGCY2019-09-20T00:35:00Z36.2-82.8220.014.00010.030.209646TRUETRUEVFRSPECI490.02019-09-20 00:46:06) 5    3KMNV 200035Z AUTO 20004KT 10SM FEW055 OVC070 25/15 A3016 RMK A01KMNV2019-09-20T00:35:00Z35.55-84.3825.015.0200410.030.159449TRUETRUEVFRSPECI314.02019-09-20 00:46:06C=(y5    3KM75 200035Z AUTO 26009KT 10SM CLR 19/10 A2976 RMK A01KM752019-09-20T00:35:00Z48.37-107.9219.010.0260910.029.760826TRUETRUEVFRMETAR687.02019-09-20 00:46:06M<) 5    3KMBT 200035Z AUTO 16005KT 10SM FEW049 SCT055 27/17 A3006 RMK A01KMBT2019-09-20T00:35:00Z35.88-86.3827.017.0160510.030.059055TRUETRUEVFRSPECI188.02019-09-20 00:46:06L;)5   3KMEV 200035Z AUTO 01012G17KT 10SM FEW060 14/00 A3001 RMK AO2KMEV2019-09-20T00:35:00Z38.98-119.7514.00.010121710.030.008858TRUETRUEVFRSPECI1439.02019-09-20 00:46:06 !5m!;C(y5    3KO54 200035Z AUTO 00000KT 10SM CLR 20/04 A3000 RMK AO1KO542019-09-20T00:35:00Z40.75-122.9220.04.00010.030.0TRUETRUEVFRMETAR717.02019-09-20 00:46:06=B(y5    3KN03 200035Z AUTO 00000KT 10SM CLR 10/08 A3029 RMK AO2KN032019-09-20T00:35:00Z42.6-76.2210.08.00010.030.28937TRUETRUEVFRMETAR366.02019-09-20 00:46:06BA(y5    3KO32 200035Z AUTO 31007KT 10SM CLR 25/07 A2986 RMK AO2KO322019-09-20T00:35:00Z36.67-119.4525.07.0310710.029.861221TRUETRUEVFRMETAR117.02019-09-20 00:46:06B@(y5    3KMRC 200035Z AUTO 13004KT 10SM CLR 26/20 A3005 RMK A01KMRC2019-09-20T00:35:00Z35.55-87.1826.020.0130410.030.050198TRUETRUEVFRSPECI208.02019-09-20 00:46:06E?(5    3KMOR 200035Z AUTO 11006KT 10SM OVC060 21/14 A3018 RMK A01KMOR2019-09-20T00:35:00Z36.18-83.3721.014.0110610.030.180119TRUETRUEVFRSPECI400.02019-09-20 00:46:06 1^CG(y5    3KP08 200035Z AUTO 23013KT 10SM CLR 36/03 A2970 RMK AO2KP082019-09-20T00:35:00Z32.93-111.4336.03.02301310.029.698818TRUETRUEVFRSPECI481.02019-09-20 00:46:06;F(q5   3KPCW 200035Z AUTO 11004KT 10SM 20/18 A3010 RMK AO2KPCW2019-09-20T00:35:00Z41.52-82.8720.018.0110410.030.100393TRUETRUESPECI178.02019-09-20 00:46:06ME)5     3KOWI 200035Z AUTO 14004KT 10SM CLR 25/25 A2994 RMK AO2 PWINOKOWI2019-09-20T00:35:00Z38.53-95.2525.025.0140410.029.940945TRUETRUETRUEVFRSPECI292.02019-09-20 00:46:06ID) 5    3KOEO 200035Z AUTO 00000KT 10SM CLR 22/19 A3002 RMK AO2 T02160194KOEO2019-09-20T00:35:00Z45.32-92.721.619.40010.030.02067TRUETRUEVFRSPECI275.02019-09-20 00:46:06 8rKK) 5    3KRCZ 200035Z AUTO 09004KT 10SM CLR 19/07 A3024 RMK AO2 T01910065KRCZ2019-09-20T00:35:00Z34.88-79.7719.16.590410.030.239174TRUETRUEVFRSPECI109.02019-09-20 00:46:06AJ(y5    3KPVE 200035Z AUTO 19003KT 10SM CLR 25/21 A3004 RMK A01KPVE2019-09-20T00:35:00Z35.65-88.225.021.0190310.030.041338TRUETRUEVFRSPECI149.02019-09-20 00:46:06@I(y5    3KPTD 200035Z AUTO 00000KT 10SM CLR 12/11 A3024 RMK AO2KPTD2019-09-20T00:35:00Z44.68-74.9512.011.00010.030.239174TRUETRUEVFRMETAR144.02019-09-20 00:46:06BH(y5    3KPHT 200035Z AUTO 18006KT 10SM CLR 27/20 A3003 RMK A01KPHT2019-09-20T00:35:00Z36.33-88.3827.020.0180610.030.029528TRUETRUEVFRSPECI177.02019-09-20 00:46:06 &VNO) 5    3KRTS 200035Z AUTO 35009KT 10SM SCT049 BKN070 11/02 A3005 RMK AO2KRTS2019-09-20T00:35:00Z39.67-119.8811.02.0350910.030.050198TRUETRUEVFRMETAR1540.02019-09-20 00:46:06@N(y5    3KRZR 200035Z AUTO 18005KT 10SM CLR 24/16 A3015 RMK A01KRZR2019-09-20T00:35:00Z35.22-84.824.016.0180510.030.15059TRUETRUEVFRSPECI263.02019-09-20 00:46:06JM) 5    3KRNC 200035Z AUTO 00000KT 10SM FEW050 FEW060 24/17 A3011 RMK A01KRNC2019-09-20T00:35:00Z35.7-85.8524.017.00010.030.109253TRUETRUEVFRSPECI315.02019-09-20 00:46:06TL)5    3KRKW 200035Z AUTO 18004KT 10SM FEW048 BKN060 OVC065 23/16 A3017 RMK A01KRKW2019-09-20T00:35:00Z35.92-84.6823.016.0180410.030.171259TRUETRUEVFRSPECI508.02019-09-20 00:46:06 0hRS)5    3KSNH 200035Z AUTO 00000KT 10SM FEW043 SCT049 BKN060 24/23 A3004 RMK A01KSNH2019-09-20T00:35:00Z35.17-88.2224.023.00010.030.041338TRUETRUEVFRMETAR144.02019-09-20 00:46:06CR(5    3KSRB 200035Z AUTO VRB03KT 10SM FEW060 25/17 A3012 RMK A01KSRB2019-09-20T00:35:00Z36.05-85.5325.017.00310.030.121063TRUETRUEVFRMETAR313.02019-09-20 00:46:06BQ(5    3KSCX 200035Z AUTO 00000KT 10SM BKN055 23/16 A3015 RMK A01KSCX2019-09-20T00:35:00Z36.45-84.5823.016.00010.030.15059TRUETRUEVFRMETAR471.02019-09-20 00:46:06JP)5   3KS39 200035Z AUTO 33008G15KT 10SM SCT075 15/07 A3003 RMK AO2KS392019-09-20T00:35:00Z44.28-120.915.07.033081510.030.029528TRUETRUEVFRMETAR991.02019-09-20 00:46:06 5bWW)!5    3KVJI 200035Z AUTO 13005KT 10SM SCT032 SCT041 17/13 A3025 RMK AO2 T01700128KVJI2019-09-20T00:35:00Z36.67-82.0217.012.8130510.030.250984TRUETRUEVFRMETAR631.02019-09-20 00:46:06EV(5    3KSYI 200035Z AUTO 14004KT 10SM BKN050 25/18 A3008 RMK A01KSYI2019-09-20T00:35:00Z35.57-86.4525.018.0140410.030.079725TRUETRUEVFRMETAR245.02019-09-20 00:46:06MU) 5    3KSTE 200035Z AUTO 14003KT 10SM CLR 18/18 A3006 RMK AO2 T01830183KSTE2019-09-20T00:35:00Z44.55-89.5318.318.3140310.030.059055TRUETRUEVFRMETAR338.02019-09-20 00:46:06ET(5    3KSRE 200035Z AUTO 13004KT 10SM BKN085 29/17 A2990 RMK AO2KSRE2019-09-20T00:35:00Z35.27-96.6829.017.0130410.029.899607TRUETRUEVFRMETAR312.02019-09-20 00:46:06 /kV[)!5    3KXBP 200035Z AUTO 09009KT 10SM SCT024 BKN060 26/20 A2988 RMK AO2 T02580197KXBP2019-09-20T00:35:00Z33.18-97.8325.819.790910.029.878937TRUETRUEVFRMETAR260.02019-09-20 00:46:06OZ)5    3KWWR 200035Z AUTO 13009KT 10SM CLR 27/17 A2994 RMK AO2 LTG DSNT SWKWWR2019-09-20T00:35:00Z36.45-99.5227.017.0130910.029.940945TRUETRUEVFRMETAR667.02019-09-20 00:46:06>Y(y5    3KW22 200035Z AUTO 00000KT 10SM CLR 20/09 A3022 RMK AO2KW222019-09-20T00:35:00Z39.0-80.2720.09.00010.030.221457TRUETRUEVFRMETAR499.02019-09-20 00:46:06KX) 5    3KW99 200035Z AUTO 13004KT 10SM CLR 16/09 A3025 RMK AO2 T01600094KW992019-09-20T00:35:00Z39.0-79.1516.09.4130410.030.250984TRUETRUEVFRMETAR293.02019-09-20 00:46:06 ,KoL_) 5    3KLKU 200035Z AUTO 12003KT 10SM CLR 11/10 A3034 RMK AO2 T01120095KLKU2019-09-20T00:35:00Z38.02-77.9711.29.5120310.030.339567TRUETRUEVFRMETAR150.02019-09-20 00:46:06V^)#5    3KLHB 200035Z AUTO 13006KT 10SM CLR 27/23 A2985 RMK AO2 LTG DSNT S T02700231KLHB2019-09-20T00:35:00Z30.87-96.6227.023.1130610.029.84941TRUETRUEVFRMETAR87.02019-09-20 00:46:06[])/5    3PAAD 200035Z AUTO 10003KT 10SM SCT007 SCT013 OVC025 02/01 A2969 RMK AO2 T00200005PAAD2019-09-20T00:35:00Z70.13-146.282.00.5100310.029.68996TRUETRUEMVFRMETAR8.02019-09-20 00:46:06N\)5    3KZPH 200035Z AUTO 04005KT 10SM SCT085 24/18 A3004 RMK A02 T02400184KZPH2019-09-20T00:35:00Z28.23-82.1524.018.440510.030.041338TRUETRUEVFRMETAR26.02019-09-20 00:46:06 .HdLc) 5    3KMWO 200035Z AUTO 13004KT 10SM CLR 25/19 A3009 RMK AO2 T02550190KMWO2019-09-20T00:35:00Z39.53-84.425.519.0130410.030.088583TRUETRUEVFRMETAR198.02019-09-20 00:46:06^b)'5   3KOEL 200035Z AUTO 22017G23KT 10SM SCT055 SCT065 24/16 A2994 RMK AO1 T02430155KOEL2019-09-20T00:35:00Z39.12-100.8224.315.5220172310.029.940945TRUETRUEVFRMETAR929.02019-09-20 00:46:06`a)15    3KOGA 200035Z AUTO 10006KT 10SM CLR 29/16 A2982 RMK AO2 LTG DSNT SE AND S T02900163KOGA2019-09-20T00:35:00Z41.12-101.7729.016.3100610.029.819881TRUETRUEVFRMETAR999.02019-09-20 00:46:06L`) 5    3KLNN 200035Z AUTO 14007KT 10SM CLR 20/11 A3015 RMK AO1 T02040110KLNN2019-09-20T00:35:00Z41.67-81.3720.411.0140710.030.15059TRUETRUEVFRMETAR191.02019-09-20 00:46:06 /kAg(y5    3KMLJ 200035Z AUTO 08004KT 10SM CLR 24/12 A3018 RMK AO2KMLJ2019-09-20T00:35:00Z33.15-83.2324.012.080410.030.180119TRUETRUEVFRMETAR117.02019-09-20 00:46:06Mf) 5    3KMQB 200035Z AUTO 10003KT 10SM CLR 23/22 A3004 RMK AO2 T02340221KMQB2019-09-20T00:35:00Z40.52-90.6523.422.1100310.030.041338TRUETRUEVFRMETAR215.02019-09-20 00:46:06>e(y5    3KMQS 200035Z AUTO 00000KT 10SM CLR 13/08 A3031 RMK AO2KMQS2019-09-20T00:35:00Z39.98-75.8713.08.00010.030.31004TRUETRUEVFRMETAR201.02019-09-20 00:46:06Kd) 5    3KMWA 200035Z AUTO 00000KT 10SM CLR 23/18 A3003 RMK AO2 T02300182KMWA2019-09-20T00:35:00Z37.77-89.0223.018.20010.030.029528TRUETRUEVFRMETAR144.02019-09-20 00:46:06 .]Bk(5    3KMEZ 200035Z AUTO 08004KT 10SM SCT120 27/22 A2998 RMK AO2KMEZ2019-09-20T00:35:00Z34.55-94.227.022.080410.029.97933TRUETRUEVFRMETAR329.02019-09-20 00:46:06>j(y5    3KMGR 200035Z AUTO 00000KT 10SM CLR 22/10 A3012 RMK AO2KMGR2019-09-20T00:35:00Z31.08-83.822.010.00010.030.121063TRUETRUEVFRMETAR90.02019-09-20 00:46:06Ki) 5    3KMKJ 200035Z AUTO 00000KT 10SM CLR 14/13 A3032 RMK AO2 T01390128KMKJ2019-09-20T00:35:00Z36.88-81.3313.912.80010.030.318897TRUETRUEVFRMETAR780.02019-09-20 00:46:06Lh) 5    3KMLE 200035Z AUTO 13005KT 10SM CLR 28/23 A2992 RMK AO2 T02810225KMLE2019-09-20T00:35:00Z41.2-96.1228.122.5130510.029.920275TRUETRUEVFRMETAR320.02019-09-20 00:46:06 -N~?o(y5    3KLUA 200035Z AUTO 20003KT 10SM CLR 15/09 A3029 RMK AO2KLUA2019-09-20T00:35:00Z38.67-78.515.09.0200310.030.28937TRUETRUEVFRMETAR275.02019-09-20 00:46:06Jn) 5    3KLVL 200035Z AUTO 00000KT 10SM CLR 15/11 A3030 RMK AO1 T01470108KLVL2019-09-20T00:35:00Z36.78-77.814.710.80010.030.301182TRUETRUEVFRMETAR100.02019-09-20 00:46:06Ym)'5    3KLXN 200035Z AUTO 16008KT 7SM SCT120 27/20 A2989 RMK AO2 LTG DSNT W T02710199KLXN2019-09-20T00:35:00Z40.78-99.7727.119.916087.029.890747TRUETRUEVFRMETAR734.02019-09-20 00:46:06Ml) 5    3KMDQ 200035Z AUTO 14004KT 10SM CLR 27/17 A3010 RMK A02 T02690171KMDQ2019-09-20T00:35:00Z34.87-86.5526.917.1140410.030.100393TRUETRUEVFRMETAR230.02019-09-20 00:46:06 /aSs)5   3KOSA 200035Z AUTO 11013G16KT 5SM OVC009 22/21 A2993 RMK AO1 T02210207KOSA2019-09-20T00:35:00Z33.1-94.9722.120.711013165.029.929134TRUETRUEIFRMETAR111.02019-09-20 00:46:06=r(y5    3KOZS 200035Z AUTO 12003KT 10SM CLR 26/20 A3000 RMK AO2KOZS2019-09-20T00:35:00Z37.97-92.6826.020.0120310.030.0TRUETRUEVFRMETAR324.02019-09-20 00:46:06Hq) 5    3KLOM 200035Z AUTO 00000KT 10SM CLR 10/08 A3030 RMK AO2 T00960083KLOM2019-09-20T00:35:00Z40.13-75.279.68.30010.030.301182TRUETRUEVFRMETAR92.02019-09-20 00:46:06Kp) 5    3KLOT 200035Z AUTO 11007KT 10SM CLR 23/17 A3004 RMK AO2 T02270168KLOT2019-09-20T00:35:00Z41.6-88.122.716.8110710.030.041338TRUETRUEVFRMETAR205.02019-09-20 00:46:06 :^Mw) 5    3KONL 200035Z AUTO 11008KT 10SM CLR 26/21 A2990 RMK AO2 T02630210KONL2019-09-20T00:35:00Z42.47-98.6726.321.0110810.029.899607TRUETRUEVFRMETAR619.02019-09-20 00:46:06Rv)5   3KONM 200035Z AUTO 19014G19KT 10SM CLR 25/07 A2998 RMK AO2 T02460069KONM2019-09-20T00:35:00Z34.02-106.924.66.9190141910.029.97933TRUETRUEVFRMETAR1410.02019-09-20 00:46:06Vu)%5    3KOPL 200035Z AUTO 05003KT 10SM CLR 23/23 A2999 RMK AO2 LTG DSNT NE T02340227KOPL2019-09-20T00:35:00Z30.55-92.123.422.750310.029.991142TRUETRUEVFRMETAR23.02019-09-20 00:46:06@t(y5    3KOPN 200035Z AUTO 09005KT 10SM CLR 23/08 A3018 RMK AO2KOPN2019-09-20T00:35:00Z32.95-84.2723.08.090510.030.180119TRUETRUEVFRMETAR243.02019-09-20 00:46:06 /_[{)#5   3KOKM 200035Z AUTO 11010G15KT 100V160 10SM CLR 28/21 A2991 RMK AO2 T02800207KOKM2019-09-20T00:35:00Z35.67-95.9528.020.7110101510.029.911417TRUETRUEVFRMETAR220.02019-09-20 00:46:06?z(y5    3KOKV 200035Z AUTO 00000KT 10SM CLR 13/08 A3027 RMK AO2KOKV2019-09-20T00:35:00Z39.13-78.1513.08.00010.030.268702TRUETRUEVFRMETAR222.02019-09-20 00:46:06Jy) 5    3KOKZ 200035Z AUTO 00000KT 10SM CLR 21/09 A3017 RMK AO2 T02050087KOKZ2019-09-20T00:35:00Z32.97-82.8320.58.70010.030.171259TRUETRUEVFRMETAR134.02019-09-20 00:46:06Kx) 5    3KOLY 200035Z AUTO 00000KT 10SM CLR 24/18 A3003 RMK AO2 T02380177KOLY2019-09-20T00:35:00Z38.72-88.1823.817.70010.030.029528TRUETRUEVFRMETAR147.02019-09-20 00:46:06 ;rL) 5    3KPRG 200035Z AUTO 10004KT 10SM CLR 23/20 A3006 RMK AO2 T02330196KPRG2019-09-20T00:35:00Z39.7-87.6723.319.6100410.030.059055TRUETRUEVFRMETAR199.02019-09-20 00:46:06M~) 5    3KPBX 200035Z AUTO 16003KT 10SM CLR 21/14 A3018 RMK AO2 T02100142KPBX2019-09-20T00:35:00Z37.57-82.5721.014.2160310.030.180119TRUETRUEVFRMETAR449.02019-09-20 00:46:06C}(5    3KPLU 200035Z AUTO 00000KT 10SM SCT044 20/12 A3006 RMK AO2KPLU2019-09-20T00:35:00Z47.1-122.2820.012.00010.030.059055TRUETRUEVFRMETAR164.02019-09-20 00:46:06?|(y5    3KOGS 200035Z AUTO 00000KT 10SM CLR 12/11 A3021 RMK AO2KOGS2019-09-20T00:35:00Z44.67-75.4712.011.00010.030.209646TRUETRUEVFRMETAR91.02019-09-20 00:46:06 /lP)5    3KPSK 200035Z AUTO 13005KT 10SM OVC040 18/11 A3032 RMK AO2 T01770111KPSK2019-09-20T00:35:00Z37.12-80.6717.711.1130510.030.318897TRUETRUEVFRMETAR642.02019-09-20 00:46:06D(5    3K6S0 200035Z AUTO 05007KT 10SM FEW120 18/06 A2986 RMK A01K6S02019-09-20T00:35:00Z45.8-109.9718.06.050710.029.861221TRUETRUEVFRMETAR1363.02019-09-20 00:46:06=)5   3KPMU 200035Z AUTO 00000KT SCT031 OVC090 27/22 A3003 RMK AO2KPMU2019-09-20T00:35:00Z34.37-89.927.022.00030.029528TRUETRUEMETAR67.02019-09-20 00:46:06K) 5    3KPNT 200035Z AUTO 00000KT 10SM CLR 23/19 A3004 RMK AO2 T02270190KPNT2019-09-20T00:35:00Z40.92-88.6222.719.00010.030.041338TRUETRUEVFRMETAR201.02019-09-20 00:46:06 MyR)5    3KBPG 200035Z AUTO 32010KT 10SM SCT090 25/16 A2991 RMK AO2 T02510162KBPG2019-09-20T00:35:00Z32.22-101.5225.116.23201010.029.911417TRUETRUEVFRMETAR784.02019-09-20 00:46:06N)5     3K3K3 200035Z AUTO 02014KT 10SM -RA SCT120 18/14 A2994 RMK AO2K3K32019-09-20T00:35:00Z38.0-101.7518.014.0201410.029.940945TRUETRUE-RAVFRMETAR1013.02019-09-20 00:46:06L) 5    3K54J 200035Z AUTO 10006KT 10SM CLR 27/17 A3008 RMK AO2 T02670167K54J2019-09-20T00:35:00Z30.73-86.1526.716.7100610.030.079725TRUETRUEVFRMETAR88.02019-09-20 00:46:06[)+5    3K11R 200035Z AUTO 16006KT 10SM SCT110 24/24 A2986 RMK AO2 LTG DSNT SW T02410241K11R2019-09-20T00:35:00Z30.22-96.3724.124.1160610.029.861221TRUETRUEVFRMETAR94.02019-09-20 00:46:06 =uK ) 5    3KAJG 200035Z AUTO 00000KT 10SM CLR 23/19 A3003 RMK AO2 T02320186KAJG2019-09-20T00:35:00Z38.62-87.7323.218.60010.030.029528TRUETRUEVFRMETAR131.02019-09-20 00:46:06T )5   3KAJZ 200035Z AUTO 19011G18KT 10SM CLR 28/02 A2986 RMK AO2 T02820023KAJZ2019-09-20T00:35:00Z38.78-108.0728.22.3190111810.029.861221TRUETRUEVFRMETAR1583.02019-09-20 00:46:06B (y5    3KAQO 200035Z AUTO 12004KT 10SM CLR 32/19 A2984 RMK AO2KAQO2019-09-20T00:35:00Z30.78-98.6732.019.0120410.029.840551TRUETRUEVFRMETAR336.02019-09-20 00:46:06=(y5    3KBIJ 200035Z AUTO 00000KT 10SM CLR 22/15 A3011 RMK AO2KBIJ2019-09-20T00:35:00Z31.4-84.922.015.00010.030.109253TRUETRUEVFRMETAR65.02019-09-20 00:46:06 '`M) 5    3K9V9 200035Z AUTO 12011KT 10SM CLR 25/24 A2985 RMK AO2 T02470237K9V92019-09-20T00:35:00Z43.77-99.3224.723.71201110.029.84941TRUETRUEVFRMETAR519.02019-09-20 00:46:06N)5    3KAAA 200035Z AUTO 00000KT 10SM SCT080 25/21 A3003 RMK AO2 T02510205KAAA2019-09-20T00:35:00Z40.17-89.3325.120.50010.030.029528TRUETRUEVFRMETAR182.02019-09-20 00:46:06A (y5    3KACJ 200035Z AUTO 07003KT 10SM CLR 25/11 A3016 RMK AO2KACJ2019-09-20T00:35:00Z32.12-84.1825.011.070310.030.159449TRUETRUEVFRMETAR143.02019-09-20 00:46:06S )5    3KADH 200035Z AUTO 14004KT 10SM SCT055 SCT065 SCT080 27/18 A2990 RMK AO2KADH2019-09-20T00:35:00Z34.8-96.6727.018.0140410.029.899607TRUETRUEVFRMETAR308.02019-09-20 00:46:06 5aB(y5    3KDNN 200035Z AUTO 14006KT 10SM CLR 25/12 A3018 RMK AO2KDNN2019-09-20T00:35:00Z34.72-84.8725.012.0140610.030.180119TRUETRUEVFRMETAR216.02019-09-20 00:46:06J) 5    3KBQP 200035Z AUTO 00000KT 10SM CLR 26/21 A2999 RMK AO2 T02550205KBQP2019-09-20T00:35:00Z32.75-91.8825.520.50010.029.991142TRUETRUEVFRMETAR51.02019-09-20 00:46:06N)5    3KC29 200035Z AUTO 00000KT 10SM OVC080 21/19 A3007 RMK AO1 T02120185KC292019-09-20T00:35:00Z43.12-89.5321.218.50010.030.070866TRUETRUEVFRMETAR283.02019-09-20 00:46:06E)5   3K6A1 200035Z AUTO 08004KT 10SM 24/11 A3016 RMK AO2 T02380111K6A12019-09-20T00:35:00Z32.57-84.2523.811.180410.030.159449TRUETRUEMETAR203.02019-09-20 00:46:06 0PxQ)5    3KE11 200035Z AUTO 12004KT 10SM SCT120 27/15 A2992 RMK AO2 T02700145KE112019-09-20T00:35:00Z32.33-102.5327.014.5120410.029.920275TRUETRUEVFRMETAR967.02019-09-20 00:46:06R)5   3KEBG 200035Z AUTO 15011G18KT 10SM CLR 31/22 A2980 RMK AO2 T03050222KEBG2019-09-20T00:35:00Z26.45-98.1330.522.2150111810.029.799213TRUETRUEVFRMETAR24.02019-09-20 00:46:06Z)%5    3KEHA 200035Z AUTO 17015KT 10SM CLR 23/16 A2994 RMK AO2 LTG DSNT SE T02330157KEHA2019-09-20T00:35:00Z37.0-101.923.315.71701510.029.940945TRUETRUEVFRMETAR1099.02019-09-20 00:46:06J) 5    3KEXX 200035Z AUTO 00000KT 10SM CLR 17/12 A3026 RMK AO2 T01680115KEXX2019-09-20T00:35:00Z35.78-80.316.811.50010.030.259842TRUETRUEVFRMETAR223.02019-09-20 00:46:06 1bM)5    3KI63 200035Z AUTO 00000KT 10SM SCT085 24/21 A3001 RMK AO2 T02390210KI632019-09-20T00:35:00Z39.98-90.823.921.00010.030.008858TRUETRUEVFRMETAR223.02019-09-20 00:46:06J) 5    3KEZF 200035Z AUTO 00000KT 10SM CLR 15/12 A3030 RMK AO2 T01520120KEZF2019-09-20T00:35:00Z38.27-77.4515.212.00010.030.301182TRUETRUEVFRMETAR26.02019-09-20 00:46:06I(5   3KF70 200035Z AUTO 22010G16KT 10SM CLR 22/14 A2983 RMK AO1KF702019-09-20T00:35:00Z33.57-117.1322.014.0220101610.029.828741TRUETRUEVFRMETAR412.02019-09-20 00:46:06I)5    3KDUB 200035Z AUTO 18007KT 10SM BKN120 19/M06 A2986 RMK AO2KDUB2019-09-20T00:35:00Z43.55-109.6819.0-6.0180710.029.861221TRUETRUEVFRMETAR2224.02019-09-20 00:46:06 4YI) 5    3KEZM 200035Z AUTO 00000KT 10SM CLR 21/09 A3018 RMK AO2 T02080092KEZM2019-09-20T00:35:00Z32.22-83.1320.89.20010.030.180119TRUETRUEVFRMETAR93.02019-09-20 00:46:06O)5    3KGLE 200035Z AUTO 11006KT 10SM BKN050 25/20 A2989 RMK AO2 T02510195KGLE2019-09-20T00:35:00Z33.65-97.225.119.5110610.029.890747TRUETRUEVFRMETAR256.02019-09-20 00:46:06U)5   3KGNC 200035Z AUTO 16011G16KT 10SM CLR 28/12 A2996 RMK AO2 T02780119KGNC2019-09-20T00:35:00Z32.68-102.6527.811.9160111610.029.958662TRUETRUEVFRMETAR1010.02019-09-20 00:46:06F(5    3KGVT 200035Z AUTO 10008KT 10SM OVC025 26/21 A2988 RMK AO2KGVT2019-09-20T00:35:00Z33.07-96.0726.021.0100810.029.878937TRUETRUEMVFRMETAR163.02019-09-20 00:46:06 .Qp@#(y5    3KDVK 200035Z AUTO 00000KT 10SM CLR 24/16 A3012 RMK AO2KDVK2019-09-20T00:35:00Z37.58-84.7724.016.00010.030.121063TRUETRUEVFRMETAR312.02019-09-20 00:46:06[")%5    3KEAN 200035Z AUTO 14012KT 10SM CLR 27/05 A2982 RMK AO2 LTG DSNT NW T02670049KEAN2019-09-20T00:35:00Z42.05-104.9326.74.91401210.029.819881TRUETRUEVFRMETAR1456.02019-09-20 00:46:06W!)#5    3KELK 200035Z AUTO 12008KT 10SM CLR 26/19 A2991 RMK AO2 LTG DSNT W T02620190KELK2019-09-20T00:35:00Z35.43-99.426.219.0120810.029.911417TRUETRUEVFRMETAR610.02019-09-20 00:46:06L )5   3KEMM 200035Z AUTO 26015G20KT 10SM CLR 16/M05 A2990 RMK AO2KEMM2019-09-20T00:35:00Z41.82-110.5516.0-5.0260152010.029.899607TRUETRUEVFRMETAR2220.02019-09-20 00:46:06 .b?'(y5    3KCUL 200035Z AUTO 00000KT 10SM CLR 22/18 A3002 RMK AO2KCUL2019-09-20T00:35:00Z38.08-88.1222.018.00010.030.02067TRUETRUEVFRMETAR118.02019-09-20 00:46:06X&)#5    3KCVB 200035Z AUTO 14007KT 10SM CLR 35/16 A2978 RMK AO2 LTG DSNT E T03450156KCVB2019-09-20T00:35:00Z29.35-98.8534.515.6140710.029.778543TRUETRUEVFRMETAR235.02019-09-20 00:46:06F%(}5   3KDTA 200035Z AUTO 34026G32KT 7SM CLR 17/00 A2979 RMK AO1KDTA2019-09-20T00:35:00Z39.38-112.517.00.034026327.029.790354TRUETRUEVFRMETAR1402.02019-09-20 00:46:06L$) 5    3KDUA 200035Z AUTO 13008KT 10SM BKN060 OVC070 29/18 A2989 RMK AO2KDUA2019-09-20T00:35:00Z33.95-96.429.018.0130810.029.890747TRUETRUEVFRMETAR213.02019-09-20 00:46:06 0^@+(y5    3KBHC 200035Z AUTO 10003KT 10SM CLR 22/13 A3014 RMK AO2KBHC2019-09-20T00:35:00Z31.72-82.422.013.0100310.030.138779TRUETRUEVFRMETAR61.02019-09-20 00:46:06L*) 5    3KC09 200035Z AUTO 09003KT 10SM CLR 25/18 A3003 RMK AO2 T02450179KC092019-09-20T00:35:00Z41.43-88.4224.517.990310.030.029528TRUETRUEVFRMETAR178.02019-09-20 00:46:06L)) 5    3KCHK 200035Z AUTO 14006KT 10SM CLR 27/20 A2987 RMK AO2 T02720195KCHK2019-09-20T00:35:00Z35.1-97.9727.219.5140610.029.870079TRUETRUEVFRMETAR351.02019-09-20 00:46:06J() 5    3KCIR 200035Z AUTO 00000KT 10SM CLR 25/20 A3001 RMK AO2 T02500197KCIR2019-09-20T00:35:00Z37.07-89.2225.019.70010.030.008858TRUETRUEVFRMETAR98.02019-09-20 00:46:06 2jK/) 5    3KY49 200035Z AUTO 00000KT 10SM CLR 19/17 A3001 RMK AO2 T01920168KY492019-09-20T00:35:00Z47.13-94.6519.216.80010.030.008858TRUETRUEVFRMETAR416.02019-09-20 00:46:06N.)5    3K5A6 200035Z AUTO 00000KT 10SM SCT095 26/22 A3004 RMK AO2 T02600221K5A62019-09-20T00:35:00Z33.47-89.7326.022.10010.030.041338TRUETRUEVFRMETAR111.02019-09-20 00:46:06B-(y5    3K8A0 200035Z AUTO 12004KT 10SM CLR 25/15 A3013 RMK AO2K8A02019-09-20T00:35:00Z34.23-86.2525.015.0120410.030.129921TRUETRUEVFRMETAR315.02019-09-20 00:46:06H,)5    3KAFO 200035Z AUTO 02005KT 10SM BKN110 16/M01 A2987 RMK AO2KAFO2019-09-20T00:35:00Z42.72-110.9516.0-1.020510.029.870079TRUETRUEVFRMETAR1897.02019-09-20 00:46:06 3b>4(y5    3KVDI 200035Z AUTO 07004KT 10SM CLR 22/08 A3016 RMK AO2KVDI2019-09-20T00:35:00Z32.2-82.3722.08.070410.030.159449TRUETRUEVFRMETAR84.02019-09-20 00:46:06D3(5    3KVES 200035Z AUTO 15004KT 10SM SCT060 22/16 A3009 RMK AO2KVES2019-09-20T00:35:00Z40.2-84.5322.016.0150410.030.088583TRUETRUEVFRMETAR307.02019-09-20 00:46:0622(s5    3KCFE 200035Z 10SM CLR 23/18 A3000 RMK AO2 T02270183KCFE2019-09-20T00:35:00Z45.17-93.8522.718.310.030.0TRUEVFRMETAR295.02019-09-20 00:46:06K1) 5    3KGDB 200035Z AUTO 09003KT 10SM CLR 24/19 A2998 RMK AO2 T02400187KGDB2019-09-20T00:35:00Z44.75-95.5524.018.790310.029.97933TRUETRUEVFRMETAR319.02019-09-20 00:46:06G0(5   3KHAF 200035Z AUTO 34011G19KT 10SM CLR 18/13 A2994 RMK AO2KHAF2019-09-20T00:35:00Z37.52-122.518.013.0340111910.029.940945TRUETRUEVFRMETAR21.02019-09-20 00:46:06 ,gE8(5    3KTMK 200035Z AUTO 30007KT 10SM SCT029 17/12 A3012 RMK AO2KTMK2019-09-20T00:35:00Z45.42-123.8217.012.0300710.030.121063TRUETRUEVFRMETAR11.02019-09-20 00:46:06X7)!5    3KTMT 200035Z AUTO 28003KT 10SM SCT043 OVC055 11/00 A2999 RMK AO2 T01101005KTMT2019-09-20T00:35:00Z39.47-117.211.0-0.5280310.029.991142TRUETRUEVFRMETAR1748.02019-09-20 00:46:06?6(y5    3KTVI 200035Z AUTO 06003KT 10SM CLR 23/11 A3012 RMK AO2KTVI2019-09-20T00:35:00Z30.9-83.8823.011.060310.030.121063TRUETRUEVFRMETAR80.02019-09-20 00:46:06N5)5    3KTYQ 200035Z AUTO 00000KT 10SM SCT060 20/20 A3008 RMK AO2 T01980198KTYQ2019-09-20T00:35:00Z40.03-86.2519.819.80010.030.079725TRUETRUEVFRMETAR281.02019-09-20 00:46:06 /\|]<))5   3KTEX 200035Z AUTO 11007G16KT 10SM SCT070 BKN080 16/01 A3018 RMK AO2 LTG DSNT EKTEX2019-09-20T00:35:00Z37.95-107.916.01.011071610.030.180119TRUETRUEVFRMETAR2769.02019-09-20 00:46:06Z;)#5    3KTIF 200035Z AUTO 14011KT 10SM CLR 29/19 A2986 RMK AO2 LTG DSNT S T02850190KTIF2019-09-20T00:35:00Z41.97-100.5728.519.01401110.029.861221TRUETRUEVFRMETAR892.02019-09-20 00:46:06M:) 5    3KTIP 200035Z AUTO 12005KT 10SM CLR 25/17 A3005 RMK AO2 T02460173KTIP2019-09-20T00:35:00Z40.28-88.1524.617.3120510.030.050198TRUETRUEVFRMETAR225.02019-09-20 00:46:06K9) 5    3KTKV 200035Z AUTO 00000KT 10SM CLR 19/17 A3006 RMK AO2 T01850173KTKV2019-09-20T00:35:00Z45.47-89.8218.517.30010.030.059055TRUETRUEVFRMETAR453.02019-09-20 00:46:06Y8(8@HPX`hpx (08@HPX`hpx (08@HPX`hpxε[ϵ_еcѵgҵkӵoԵsյwֵ{׵صٵε[ϵ_еcѵgҵkӵoԵsյwֵ{׵صٵڵ ۵ܵݵ޵ߵ൛#ᵛ'ⵛ+㵛/䵛4嵛8浛<赛@鵛D굛H뵛L쵛PTXﵛ\`dhlptx|  $(,048<@ D H L P TX\`dimquy}   $!(",#1$5%:&>'C 0frB@(y5    3KSOA 200035Z AUTO 06004KT 10SM CLR 31/17 A2988 RMK AO2KSOA2019-09-20T00:35:00Z30.58-100.6531.017.060410.029.878937TRUETRUEVFRMETAR652.02019-09-20 00:46:06n?)?5    3KSYF 200035Z AUTO 18027G38KT 3SM SCT014 SCT021 SCT025 27/11 A2986 RMK AO2 T02650108 PWINOKSYF2019-09-20T00:35:00Z39.77-101.826.510.818027383.029.861221TRUETRUETRUEMVFRMETAR1025.02019-09-20 00:46:06D>(5    3KSZT 200035Z AUTO 21004KT 10SM BKN080 17/06 A2994 RMK AO2KSZT2019-09-20T00:35:00Z48.3-116.5717.06.0210410.029.940945TRUETRUEVFRMETAR648.02019-09-20 00:46:06J=) 5    3KTBR 200035Z AUTO 00000KT 10SM CLR 20/12 A3017 RMK AO2 T02040120KTBR2019-09-20T00:35:00Z32.48-81.7320.412.00010.030.171259TRUETRUEVFRMETAR57.02019-09-20 00:46:06 *WAD(}5    3KSFY 200035Z AUTO 00000KT 7SM SCT060 21/21 A3004 RMK AO2KSFY2019-09-20T00:35:00Z42.05-90.1221.021.0007.030.041338TRUETRUEVFRMETAR188.02019-09-20 00:46:06MC) 5    3KSJS 200035Z AUTO 17007KT 10SM CLR 23/15 A3017 RMK AO2 T02300150KSJS2019-09-20T00:35:00Z37.75-82.6323.015.0170710.030.171259TRUETRUEVFRMETAR372.02019-09-20 00:46:06MB) 5     3KSME 200035Z AUTO 00000KT 10SM BKN050 25/14 A3013 RMK AO2 TSNOKSME2019-09-20T00:35:00Z37.05-84.6225.014.00010.030.129921TRUETRUETRUEVFRMETAR283.02019-09-20 00:46:06PA)5    3KSNL 200035Z AUTO 16006KT 10SM SCT065 28/18 A2990 RMK AO2 T02800180KSNL2019-09-20T00:35:00Z35.35-96.9528.018.0160610.029.899607TRUETRUEVFRMETAR327.02019-09-20 00:46:06 1ViH)E5    3KRWV 200035Z AUTO 16010KT 10SM SCT015 SCT075 25/22 A2986 RMK AO2 LTG DSNT S AND SW T02540223KRWV2019-09-20T00:35:00Z30.52-96.725.422.31601010.029.861221TRUETRUEVFRMETAR119.02019-09-20 00:46:06NG) 5    3KSBS 200035Z AUTO 15004KT 10SM CLR 23/00 A2994 RMK AO1 T02300000KSBS2019-09-20T00:35:00Z40.52-106.8723.00.0150410.029.940945TRUETRUEVFRMETAR2096.02019-09-20 00:46:06UF)!5    3KSEF 200035Z AUTO 07010KT 10SM SCT048 OVC050 24/18 A3002 RMK AO2 T02450185KSEF2019-09-20T00:35:00Z27.45-81.3524.518.5701010.030.02067TRUETRUEVFRMETAR19.02019-09-20 00:46:06IE) 5    3KSFQ 200035Z AUTO 00000KT 10SM CLR 16/13 A3030 RMK AO2 T01550130KSFQ2019-09-20T00:35:00Z36.68-76.615.513.00010.030.301182TRUETRUEVFRMETAR22.02019-09-20 00:46:06 LWPL)5    3KRNH 200035Z AUTO 17003KT 10SM SCT045 22/18 A3001 RMK AO2 T02230181KRNH2019-09-20T00:35:00Z45.15-92.5322.318.1170310.030.008858TRUETRUEVFRMETAR304.02019-09-20 00:46:06oK)I5     3KRNV 200035Z AUTO 35009KT 10SM +TSRA BKN031 OVC037 23/22 A3005 RMK AO2 LTG DSNT ALQS T02340218KRNV2019-09-20T00:35:00Z33.77-90.7523.421.8350910.030.050198TRUETRUE+TSRAVFRMETAR41.02019-09-20 00:46:06KJ) 5    3KRPH 200035Z AUTO 08008KT 10SM CLR 26/21 A2985 RMK AO2 T02630208KRPH2019-09-20T00:35:00Z33.12-98.5526.320.880810.029.84941TRUETRUEVFRMETAR342.02019-09-20 00:46:06]I)-5     3KRQO 200035Z AUTO 15007KT 2 1/2SM HZ CLR 27/18 A2993 RMK AO2 VIS 1/2V5 T02740184KRQO2019-09-20T00:35:00Z35.47-98.027.418.415072.529.929134TRUETRUEHZIFRMETAR432.02019-09-20 00:46:06 1klBP(y5    3KPVF 200035Z AUTO 30005KT 10SM CLR 18/07 A2997 RMK AO1KPVF2019-09-20T00:35:00Z38.72-120.7518.07.0300510.029.970472TRUETRUEVFRMETAR789.02019-09-20 00:46:06yO)[5   3KPVW 200035Z AUTO 35015G21KT 10SM BKN065 BKN080 BKN110 21/17 A2996 RMK AO2 LTG DSNT W THRU NE T02060173KPVW2019-09-20T00:35:00Z34.17-101.7220.617.3350152110.029.958662TRUETRUEVFRMETAR1028.02019-09-20 00:46:06@N(y5    3KRCR 200035Z AUTO 00000KT 10SM CLR 21/16 A3009 RMK AO2KRCR2019-09-20T00:35:00Z41.07-86.1821.016.00010.030.088583TRUETRUEVFRMETAR241.02019-09-20 00:46:06IM) 5    3KRMN 200035Z AUTO 00000KT 10SM CLR 12/12 A3034 RMK AO2 T01210116KRMN2019-09-20T00:35:00Z38.4-77.4512.111.60010.030.339567TRUETRUEVFRMETAR65.02019-09-20 00:46:06 -]MT) 5    3KJZP 200035Z AUTO 17006KT 10SM CLR 20/13 A3025 RMK AO2 T02030129KJZP2019-09-20T00:35:00Z34.45-84.4720.312.9170610.030.250984TRUETRUEVFRMETAR468.02019-09-20 00:46:06KS) 5    3KLCQ 200035Z AUTO 05006KT 10SM SCT028 SCT065 22/17 A3012 RMK AO2KLCQ2019-09-20T00:35:00Z30.18-82.5822.017.050610.030.121063TRUETRUEVFRMETAR61.02019-09-20 00:46:06JR) 5    3KLGC 200035Z AUTO 00000KT 10SM CLR 24/13 A3014 RMK AO2 T02400134KLGC2019-09-20T00:35:00Z33.0-85.0724.013.40010.030.138779TRUETRUEVFRMETAR211.02019-09-20 00:46:06MQ) 5    3KPTT 200035Z AUTO 15013KT 10SM CLR 29/18 A2993 RMK AO2 T02880175KPTT2019-09-20T00:35:00Z37.7-98.7528.817.51501310.029.929134TRUETRUEVFRMETAR595.02019-09-20 00:46:06 -eKX) 5    3KLWB 200035Z AUTO 13004KT 10SM CLR 16/09 A3030 RMK AO2 T01600092KLWB2019-09-20T00:35:00Z37.87-80.416.09.2130410.030.301182TRUETRUEVFRMETAR702.02019-09-20 00:46:06HW) 5    3KM30 200035Z AUTO 00000KT 7SM CLR 25/21 A3002 RMK AO2 T02460207KM302019-09-20T00:35:00Z37.18-88.7524.620.7007.030.02067TRUETRUEVFRMETAR117.02019-09-20 00:46:06BV(y5    3KMYZ 200035Z AUTO 16007KT 10SM CLR 28/20 A2992 RMK AO2KMYZ2019-09-20T00:35:00Z39.85-96.6328.020.0160710.029.920275TRUETRUEVFRMETAR319.02019-09-20 00:46:06MU) 5    3KIDP 200035Z AUTO 13005KT 10SM CLR 27/21 A2994 RMK AO2 T02720211KIDP2019-09-20T00:35:00Z37.17-95.7827.221.1130510.029.940945TRUETRUEVFRMETAR251.02019-09-20 00:46:06 %TV\)!5     3KINF 200035Z AUTO 03006KT 7SM -RA SCT026 BKN033 OVC055 22/22 A3007 RMK AO2KINF2019-09-20T00:35:00Z28.8-82.3222.022.03067.030.070866TRUETRUE-RAVFRSPECI15.02019-09-20 00:46:06G[)5    3KPNA 200035Z AUTO 23007KT 10SM SCT110 17/M04 A2988 RMK AO2KPNA2019-09-20T00:35:00Z42.8-109.817.0-4.0230710.029.878937TRUETRUEVFRMETAR2160.02019-09-20 00:46:06KZ) 5    3KAID 200035Z AUTO 00000KT 10SM CLR 22/17 A3008 RMK AO2 T02240170KAID2019-09-20T00:35:00Z40.12-85.6222.417.00010.030.079725TRUETRUEVFRSPECI280.02019-09-20 00:46:06UY)%5    3KIYA 200035Z AUTO 00000KT 10SM CLR 26/26 A2997 RMK AO2 LTG DSNT NE T02550255KIYA2019-09-20T00:35:00Z29.98-92.0825.525.50010.029.970472TRUETRUEVFRMETAR5.02019-09-20 00:46:06 9fK`) 5    3KIKK 200035Z AUTO 00000KT 10SM CLR 23/17 A3005 RMK AO2 T02260170KIKK2019-09-20T00:35:00Z41.07-87.8522.617.00010.030.050198TRUETRUEVFRMETAR192.02019-09-20 00:46:06Q_)5   3KJAQ 200035Z AUTO 30008G16KT 10SM CLR 21/06 A2993 RMK AO1 T02140055KJAQ2019-09-20T00:35:00Z38.37-120.821.45.530081610.029.929134TRUETRUEVFRMETAR512.02019-09-20 00:46:06M^) 5    3KJOT 200035Z AUTO 12003KT 10SM CLR 24/19 A3004 RMK AO2 T02370186KJOT2019-09-20T00:35:00Z41.52-88.1823.718.6120310.030.041338TRUETRUEVFRMETAR177.02019-09-20 00:46:06A](y5    3KJYO 200035Z AUTO 12003KT 10SM CLR 18/07 A3030 RMK AO2KJYO2019-09-20T00:35:00Z39.07-77.5718.07.0120310.030.301182TRUETRUEVFRMETAR119.02019-09-20 00:46:06 -gJd) 5    3KFWC 200035Z AUTO 00000KT 10SM CLR 21/19 A3002 RMK AO1 T02080186KFWC2019-09-20T00:35:00Z38.38-88.4220.818.60010.030.02067TRUETRUEVFRMETAR133.02019-09-20 00:46:06Hc) 5    3KFYJ 200035Z AUTO 00000KT 10SM CLR 13/11 A3033 RMK AO1 T01270107KFYJ2019-09-20T00:35:00Z37.52-76.7712.710.70010.030.33071TRUETRUEVFRMETAR7.02019-09-20 00:46:06@b(y5    3KGGP 200035Z AUTO 00000KT 10SM CLR 22/15 A3008 RMK AO2KGGP2019-09-20T00:35:00Z40.72-86.3722.015.00010.030.079725TRUETRUEVFRMETAR225.02019-09-20 00:46:06Ma) 5    3KIKG 200035Z AUTO 12014KT 10SM CLR 32/26 A2979 RMK AO2 T03200264KIKG2019-09-20T00:35:00Z27.55-98.0332.026.41201410.029.790354TRUETRUEVFRMETAR40.02019-09-20 00:46:06 2dNh)5    3KT82 200035Z AUTO 08003KT 10SM SCT110 29/20 A2985 RMK AO2 T02860203KT822019-09-20T00:35:00Z30.25-98.9228.620.380310.029.84941TRUETRUEVFRMETAR517.02019-09-20 00:46:06Ig) 5    3KUXL 200035Z AUTO 00000KT 10SM CLR 25/24 A2996 RMK AO2 T02510241KUXL2019-09-20T00:35:00Z30.13-93.3825.124.10010.029.958662TRUETRUEVFRMETAR4.02019-09-20 00:46:06Hf) 5    3KSHD 200035Z AUTO 00000KT 10SM CLR 13/09 A3031 RMK AO2 T01290085KSHD2019-09-20T00:35:00Z38.27-78.912.98.50010.030.31004TRUETRUEVFRMETAR366.02019-09-20 00:46:06He) 5    3KFKN 200035Z AUTO 00000KT 10SM CLR 13/12 A3030 RMK AO2 T01300124KFKN2019-09-20T00:35:00Z36.7-76.913.012.40010.030.301182TRUETRUEVFRMETAR12.02019-09-20 00:46:06 :gHl)5     3K2C8 200035Z AUTO 00000KT 2 1/2SM HZ CLR 21/14 A2995 RMK AO2K2C82019-09-20T00:35:00Z48.78-97.6321.014.0002.529.949802TRUETRUEHZIFRMETAR272.02019-09-20 00:46:06Ek(5    3K27K 200035Z AUTO 10007KT 10SM OVC070 26/17 A3009 RMK AO1K27K2019-09-20T00:35:00Z38.23-84.4326.017.0100710.030.088583TRUETRUEVFRMETAR289.02019-09-20 00:46:06Mj) 5    3K1S5 200035Z AUTO 11004KT 10SM CLR 22/10 A2995 RMK AO2 T02180096K1S52019-09-20T00:35:00Z46.33-119.9721.89.6110410.029.949802TRUETRUEVFRMETAR234.02019-09-20 00:46:06@i(y5    3KSBO 200035Z AUTO 06004KT 10SM CLR 23/07 A3018 RMK AO2KSBO2019-09-20T00:35:00Z32.62-82.3723.07.060410.030.180119TRUETRUEVFRMETAR100.02019-09-20 00:46:06 0^}>p({5    3KSTF 200035Z AUTO 00000KT CLR 25/21 A3005 RMK AO2 PWINOKSTF2019-09-20T00:35:00Z33.43-88.8525.021.00030.050198TRUETRUETRUESPECI102.02019-09-20 00:46:06[o)+5    3KSUZ 200035Z AUTO 15008KT 120V190 10SM FEW060 BKN080 OVC090 29/22 A2998 RMK A01KSUZ2019-09-20T00:35:00Z34.58-92.4829.022.0150810.029.97933TRUETRUEVFRSPECI119.02019-09-20 00:46:06Ln) 5    3KY51 200035Z AUTO 16004KT 10SM CLR 21/21 A3005 RMK AO1 T02100210KY512019-09-20T00:35:00Z43.58-90.921.021.0160410.030.050198TRUETRUEVFRMETAR394.02019-09-20 00:46:06Jm) 5    3KDYA 200035Z AUTO 00000KT 10SM CLR 26/21 A3004 RMK AO2 T02600205KDYA2019-09-20T00:35:00Z32.47-87.9526.020.50010.030.041338TRUETRUEVFRMETAR34.02019-09-20 00:46:06 /jRt)5    3KIKT 200035Z AUTO 13022KT 9SM FEW015 FEW021 SCT055 27/23 A3004 RMK A01KIKT2019-09-20T00:35:00Z28.52-88.2827.023.0130229.030.041338TRUETRUEVFRMETAR25.02019-09-20 00:46:06@s(y5    3KBBP 200035Z AUTO 08005KT 10SM CLR 18/12 A3023 RMK AO2KBBP2019-09-20T00:35:00Z34.62-79.7318.012.080510.030.230314TRUETRUEVFRSPECI45.02019-09-20 00:46:06?r(y5    3KBRY 200035Z AUTO 00000KT 10SM CLR 25/17 A3007 RMK AO1KBRY2019-09-20T00:35:00Z37.82-85.525.017.00010.030.070866TRUETRUEVFRSPECI204.02019-09-20 00:46:06Kq) 5    3KMCX 200035Z AUTO 00000KT 10SM CLR 22/17 A3006 RMK AO2 T02160167KMCX2019-09-20T00:35:00Z40.72-86.7721.616.70010.030.059055TRUETRUEVFRMETAR206.02019-09-20 00:46:06 8`6x(q5   3KGBK 200035Z AUTO VRB05KT 10SM 29/24 A2995 RMK A01KGBK2019-09-20T00:35:00Z27.2-92.229.024.00510.029.949802TRUETRUEMETAR59.02019-09-20 00:46:06Cw(5    3KGUL 200035Z AUTO 13007KT 10SM SCT023 29/24 A2994 RMK A01KGUL2019-09-20T00:35:00Z27.3-93.5329.024.0130710.029.940945TRUETRUEVFRMETAR30.02019-09-20 00:46:06Rv)5   3KHHV 200035Z AUTO 13013G18KT 10SM SCT026 BKN032 29/24 A2991 RMK A01KHHV2019-09-20T00:35:00Z26.93-94.6829.024.0130131810.029.911417TRUETRUEVFRMETAR25.02019-09-20 00:46:06Bu(y5    3KHQI 200035Z AUTO 13012KT 10SM CLR 29/24 A2993 RMK A01KHQI2019-09-20T00:35:00Z27.93-93.6729.024.01301210.029.929134TRUETRUEVFRMETAR26.02019-09-20 00:46:06 -cM|) 5    3KCFS 200035Z AUTO 13004KT 10SM CLR 19/14 A3013 RMK AO2 T01890144KCFS2019-09-20T00:35:00Z43.47-83.4518.914.4130410.030.129921TRUETRUEVFRSPECI214.02019-09-20 00:46:06E{(5    3KDLP 200035Z AUTO 12014KT 10SM SCT025 29/24 A2999 RMK A01KDLP2019-09-20T00:35:00Z29.12-89.5529.024.01201410.029.991142TRUETRUEVFRMETAR36.02019-09-20 00:46:06Dz(5   3KEIR 200035Z AUTO 00000G11KT 10SM CLR 29/24 A2997 RMK A01KEIR2019-09-20T00:35:00Z28.63-91.4829.024.0001110.029.970472TRUETRUEVFRMETAR28.02019-09-20 00:46:06My) 5    3KEMK 200035Z AUTO 14014KT 10SM FEW023 SCT028 29/24 A2993 RMK A01KEMK2019-09-20T00:35:00Z27.82-94.3229.024.01401410.029.929134TRUETRUEVFRMETAR26.02019-09-20 00:46:06 4lB(5    3K18H 200035Z AUTO 00000KT 10SM FEW031 31/23 A2993 RMK A01K18H2019-09-20T00:35:00Z26.13-92.0331.023.00010.029.929134TRUETRUEVFRMETAR10.02019-09-20 00:46:06A(y5    3KATP 200035Z AUTO 10013KT 10SM CLR 29/24 A2999 RMK A01KATP2019-09-20T00:35:00Z27.2-90.0329.024.01001310.029.991142TRUETRUEVFRMETAR62.02019-09-20 00:46:06B~(y5    3KBBF 200035Z AUTO 16021KT 10SM CLR 29/25 A2984 RMK A01KBBF2019-09-20T00:35:00Z27.83-96.0229.025.01602110.029.840551TRUETRUEVFRMETAR36.02019-09-20 00:46:06F}(5   3KBQX 200035Z AUTO 14010G19KT 10SM CLR 29/26 A2987 RMK A01KBQX2019-09-20T00:35:00Z28.5-95.7229.026.0140101910.029.870079TRUETRUEVFRMETAR34.02019-09-20 00:46:06 0aI) 5    3KPBH 200035Z AUTO 00000KT 10SM CLR 19/19 A3004 RMK AO2 T01850185KPBH2019-09-20T00:35:00Z45.7-90.418.518.50010.030.041338TRUETRUEVFRMETAR449.02019-09-20 00:46:06@(y5    3KI43 200035Z AUTO 00000KT 10SM CLR 20/17 A3014 RMK AO2KI432019-09-20T00:35:00Z38.98-82.5820.017.00010.030.138779TRUETRUEVFRMETAR221.02019-09-20 00:46:06I) 5    3KMCJ 200035Z AUTO 00000KT 10SM FEW005 FEW120 24/23 A2988 RMK A01KMCJ2019-09-20T00:35:00Z29.72-95.424.023.00010.029.878937TRUETRUEVFRMETAR69.02019-09-20 00:46:06J) 5    3KHBI 200035Z AUTO 00000KT 10SM CLR 17/11 A3028 RMK AO2 T01710105KHBI2019-09-20T00:35:00Z35.65-79.917.110.50010.030.280512TRUETRUEVFRSPECI205.02019-09-20 00:46:06 7d^))5   3K0E0 200035Z AUTO 22018G23KT 10SM CLR 25/05 A3004 RMK AO2 LTG DSNT S T02500046K0E02019-09-20T00:35:00Z34.98-106.025.04.6220182310.030.041338TRUETRUEVFRMETAR1890.02019-09-20 00:46:06L) 5    3KC62 200035Z AUTO 07003KT 10SM CLR 17/15 A3011 RMK AO2 T01780150KC622019-09-20T00:35:00Z41.47-85.2517.815.070310.030.109253TRUETRUEVFRSPECI306.02019-09-20 00:46:06M) 5    3KVYS 200035Z AUTO 12005KT 10SM CLR 24/20 A3004 RMK AO2 T02400200KVYS2019-09-20T00:35:00Z41.35-89.1524.020.0120510.030.041338TRUETRUEVFRMETAR199.02019-09-20 00:46:06C(y5    3KW43 200035Z AUTO 14009KT 10SM CLR 25/06 A2979 RMK AO2KW432019-09-20T00:35:00Z44.67-104.5725.06.0140910.029.790354TRUETRUEVFRMETAR1300.02019-09-20 00:46:06  GkI ) 5    3K2J5 200035Z AUTO 04003KT 10SM CLR 22/08 A3017 RMK AO2 T02180077K2J52019-09-20T00:35:00Z32.9-81.9721.87.740310.030.171259TRUETRUEVFRMETAR72.02019-09-20 00:46:06V )5   3K41U 200035Z AUTO 26013G17KT 10SM CLR 24/M05 A2978 RMK AO1 T02351054K41U2019-09-20T00:35:00Z39.33-111.7223.5-5.4260131710.029.778543TRUETRUEVFRMETAR1676.02019-09-20 00:46:06? (y5    3KLBO 200035Z AUTO 00000KT 10SM CLR 27/18 A3002 RMK AO2KLBO2019-09-20T00:35:00Z37.65-92.6527.018.00010.030.02067TRUETRUEVFRSPECI403.02019-09-20 00:46:06n )E5      3KX26 200035Z AUTO 06016KT 10SM SCT034 SCT055 BKN070 25/20 A3001 RMK AO2 PWINO TSNO T02540200KX262019-09-20T00:35:00Z27.82-80.525.420.0601610.030.008858TRUETRUETRUETRUEVFRMETAR6.02019-09-20 00:46:06 :kC(y5    3K82V 200035Z AUTO 15004KT 10SM CLR 23/05 A2989 RMK AO2K82V2019-09-20T00:35:00Z41.15-104.1323.05.0150410.029.890747TRUETRUEVFRMETAR1570.02019-09-20 00:46:06I) 5    3K8W2 200035Z AUTO 00000KT 10SM CLR 15/09 A3028 RMK AO1 T01450091K8W22019-09-20T00:35:00Z38.65-78.714.59.10010.030.280512TRUETRUEVFRMETAR297.02019-09-20 00:46:06I) 5    3KCJR 200035Z AUTO 00000KT 10SM CLR 12/07 A3030 RMK AO2 T01220072KCJR2019-09-20T00:35:00Z38.53-77.8712.27.20010.030.301182TRUETRUEVFRMETAR97.02019-09-20 00:46:06@ (y5    3K1F0 200035Z AUTO 00000KT 10SM CLR 25/20 A2988 RMK AO2K1F02019-09-20T00:35:00Z34.15-97.1225.020.00010.029.878937TRUETRUEVFRMETAR257.02019-09-20 00:46:06 0hS)5   3KHSG 200035Z AUTO 35009G18KT 10SM CLR 19/05 A2976 RMK AO2 T01930049KHSG2019-09-20T00:35:00Z43.72-108.3819.34.935091810.029.760826TRUETRUEVFRMETAR1494.02019-09-20 00:46:06L) 5    3KHMZ 200035Z AUTO 16005KT 10SM CLR 16/07 A3027 RMK AO2 T01580070KHMZ2019-09-20T00:35:00Z40.08-78.5215.87.0160510.030.268702TRUETRUEVFRMETAR354.02019-09-20 00:46:06B(y5    3KEQA 200035Z AUTO 14006KT 10SM CLR 27/20 A2994 RMK AO2KEQA2019-09-20T00:35:00Z37.78-96.8227.020.0140610.029.940945TRUETRUEVFRMETAR420.02019-09-20 00:46:06J) 5    3KDKB 200035Z AUTO 00000KT 10SM CLR 22/21 A3006 RMK AO2 T02160205KDKB2019-09-20T00:35:00Z41.93-88.721.620.50010.030.059055TRUETRUEVFRMETAR279.02019-09-20 00:46:06 0]M) 5    3KEZS 200035Z AUTO 14003KT 10SM CLR 20/19 A3006 RMK AO2 T02010192KEZS2019-09-20T00:35:00Z44.78-88.5720.119.2140310.030.059055TRUETRUEVFRMETAR248.02019-09-20 00:46:06@(y5    3KAIK 200035Z AUTO 04004KT 10SM CLR 19/08 A3023 RMK AO2KAIK2019-09-20T00:35:00Z33.65-81.6819.08.040410.030.230314TRUETRUEVFRSPECI161.02019-09-20 00:46:06M)5    3K1A5 200035Z AUTO 00000KT 10SM OVC033 17/15 A3029 RMK AO2 T01700148K1A52019-09-20T00:35:00Z35.22-83.4217.014.80010.030.28937TRUETRUEVFRSPECI616.02019-09-20 00:46:06J) 5    3KLNQ 200035Z AUTO 11003KT 10SM CLR 28/25 A3002 RMK AO2 T02760250KLNQ2019-09-20T00:35:00Z29.35-89.4327.625.0110310.030.02067TRUETRUEVFRMETAR1.02019-09-20 00:46:06 9tS)5     3KRRL 200035Z AUTO 00000KT 10SM CLR 21/18 A3006 RMK AO2 T02070177 TSNOKRRL2019-09-20T00:35:00Z45.2-89.7220.717.70010.030.059055TRUETRUETRUEVFRMETAR401.02019-09-20 00:46:06K) 5    3KSIF 200035Z AUTO 00000KT 10SM CLR 14/12 A3028 RMK AO2 T01380120KSIF2019-09-20T00:35:00Z36.43-79.8513.812.00010.030.280512TRUETRUEVFRSPECI211.02019-09-20 00:46:06?(y5    3KGGE 200035Z AUTO 00000KT 10SM CLR 18/13 A3021 RMK AO2KGGE2019-09-20T00:35:00Z33.32-79.3218.013.00010.030.209646TRUETRUEVFRSPECI12.02019-09-20 00:46:06A(y5    3KFDW 200035Z AUTO 03003KT 10SM CLR 19/11 A3022 RMK AO1KFDW2019-09-20T00:35:00Z34.32-81.1219.011.030310.030.221457TRUETRUEVFRSPECI176.02019-09-20 00:46:06 ,lO )5    3KGEV 200035Z AUTO 00000KT 10SM OVC022 13/11 A3032 RMK AO2 T01260111KGEV2019-09-20T00:35:00Z36.43-81.4212.611.10010.030.318897TRUETRUEMVFRMETAR969.02019-09-20 00:46:06X)5   3KANK 200035Z AUTO 18009G15KT 10SM SCT110 24/M04 A3012 RMK AO1 T02391045KANK2019-09-20T00:35:00Z38.53-106.0523.9-4.518091510.030.121063TRUETRUEVFRMETAR2293.02019-09-20 00:46:06:(y5    3KSIK 200035Z AUTO 05003KT 10SM CLR 27/18 A3000 RMK AO2KSIK2019-09-20T00:35:00Z36.9-89.5727.018.050310.030.0TRUETRUEVFRSPECI96.02019-09-20 00:46:06N)5    3KLQK 200035Z AUTO 05005KT 10SM SCT045 19/14 A3023 RMK AO2 T01890135KLQK2019-09-20T00:35:00Z34.82-82.718.913.550510.030.230314TRUETRUEVFRSPECI309.02019-09-20 00:46:06 .]E$(y5    3KSPF 200035Z AUTO 15017KT 10SM CLR 26/14 A2980 RMK AO2KSPF2019-09-20T00:35:00Z44.47-103.7726.014.01501710.029.799213TRUETRUEVFRMETAR1188.02019-09-20 00:46:06:#(u5     3KANQ 200035Z AUTO 00000KT 10SM CLR 18/ A3010 RMK AO2KANQ2019-09-20T00:35:00Z41.63-85.0818.00010.030.100393TRUETRUEVFRMETAR303.02019-09-20 00:46:06K") 5    3KIPJ 200035Z AUTO 00000KT 10SM CLR 15/13 A3025 RMK AO2 T01530132KIPJ2019-09-20T00:35:00Z35.48-81.1715.313.20010.030.250984TRUETRUEVFRMETAR267.02019-09-20 00:46:06L!) 5    3KGGI 200035Z AUTO 09005KT 10SM CLR 22/20 A3003 RMK AO2 T02210200KGGI2019-09-20T00:35:00Z41.72-92.7322.120.090510.030.029528TRUETRUEVFRMETAR307.02019-09-20 00:46:06 8m@((y5    3KLRY 200035Z AUTO 00000KT 10SM CLR 26/20 A2999 RMK AO2KLRY2019-09-20T00:35:00Z38.62-94.3526.020.00010.029.991142TRUETRUEVFRMETAR279.02019-09-20 00:46:06L')5     3KM25 200035Z AUTO 06004KT 10SM CLR 27/20 A3003 RMK AO2 PWINOKM252019-09-20T00:35:00Z36.77-88.5827.020.060410.030.029528TRUETRUETRUEVFRSPECI160.02019-09-20 00:46:06E&(5   3KO22 200035Z AUTO VRB05G11KT 10SM CLR 22/06 A2993 RMK A01KO222019-09-20T00:35:00Z38.03-120.4222.06.0051110.029.929134TRUETRUEVFRMETAR646.02019-09-20 00:46:06B%(y5    3KRID 200035Z AUTO 13004KT 10SM CLR 22/20 A3011 RMK AO2KRID2019-09-20T00:35:00Z39.75-84.8522.020.0130410.030.109253TRUETRUEVFRMETAR348.02019-09-20 00:46:06 ;ie,)=5     3KMBO 200035Z AUTO 00000KT 10SM VCTS BKN001 BKN006 BKN010 21/21 A3002 RMK AO2 LTG DSNT NEKMBO2019-09-20T00:35:00Z32.43-90.121.021.00010.030.02067TRUETRUEVCTSLIFRMETAR99.02019-09-20 00:46:06E+)5   3KIFA 200035Z AUTO 13004KT 10SM 22/19 A3002 RMK AO2 T02230186KIFA2019-09-20T00:35:00Z42.47-93.2722.318.6130410.030.02067TRUETRUEMETAR347.02019-09-20 00:46:06L*) 5    3KLUM 200035Z AUTO 17006KT 10SM CLR 21/18 A3001 RMK AO2 T02080179KLUM2019-09-20T00:35:00Z44.9-91.8720.817.9170610.030.008858TRUETRUEVFRMETAR273.02019-09-20 00:46:06?)(y5    3KJNX 200035Z AUTO 00000KT 10SM CLR 15/15 A3026 RMK AO2KJNX2019-09-20T00:35:00Z35.53-78.3815.015.00010.030.259842TRUETRUEVFRSPECI50.02019-09-20 00:46:06 :rI0) 5    3KRLD 200035Z AUTO 00000KT 10SM CLR 24/07 A2994 RMK AO2 T02350068KRLD2019-09-20T00:35:00Z46.3-119.323.56.80010.029.940945TRUETRUEVFRMETAR120.02019-09-20 00:46:06L/) 5    3KI19 200035Z AUTO 14003KT 10SM CLR 24/18 A3012 RMK AO2 T02420175KI192019-09-20T00:35:00Z39.7-83.9824.217.5140310.030.121063TRUETRUEVFRMETAR289.02019-09-20 00:46:06B.(y5    3KMDS 200035Z AUTO 13007KT 10SM CLR 22/22 A2995 RMK AO2KMDS2019-09-20T00:35:00Z44.02-97.0822.022.0130710.029.949802TRUETRUEVFRMETAR524.02019-09-20 00:46:06@-(y5    3KMNI 200035Z AUTO 07003KT 10SM CLR 18/11 A3021 RMK AO2KMNI2019-09-20T00:35:00Z33.58-80.2218.011.070310.030.209646TRUETRUEVFRMETAR32.02019-09-20 00:46:06 (V\M4) 5    3KPDC 200035Z AUTO 11003KT 10SM CLR 23/19 A3003 RMK AO2 T02250193KPDC2019-09-20T00:35:00Z43.02-91.1222.519.3110310.030.029528TRUETRUEVFRMETAR201.02019-09-20 00:46:06t3)S5     3KPPA 200035Z AUTO 34012KT 7SM TSRA SCT021 BKN037 OVC055 19/17 A3006 RMK AO2 LTG DSNT ALQS T01870172KPPA2019-09-20T00:35:00Z35.62-101.018.717.2340127.030.059055TRUETRUETSRAVFRMETAR989.02019-09-20 00:46:06L2) 5    3KPPQ 200035Z AUTO 02003KT 10SM CLR 25/21 A3003 RMK AO2 T02510213KPPQ2019-09-20T00:35:00Z39.63-90.7825.121.320310.030.029528TRUETRUEVFRMETAR216.02019-09-20 00:46:06R1)5   3KRBO 200035Z AUTO 15016G23KT 10SM CLR 31/25 A2981 RMK AO2 T03050245KRBO2019-09-20T00:35:00Z27.78-97.6830.524.5150162310.029.811024TRUETRUEVFRMETAR24.02019-09-20 00:46:06 -Z<8(y5    3KMDJ 200035Z AUTO 11014KT 10SM CLR 29/24 A3000 RMK A01KMDJ2019-09-20T00:35:00Z28.65-89.829.024.01101410.030.0TRUETRUEVFRMETAR31.02019-09-20 00:46:06P7)5   3KMIS 200035Z AUTO 13011G18KT 10SM BKN080 BKN090 28/24 A3002 RMK A01KMIS2019-09-20T00:35:00Z29.3-88.8528.024.0130111810.030.02067TRUETRUEVFRMETAR32.02019-09-20 00:46:06M6)5     3KMJQ 200035Z AUTO 12004KT 10SM CLR 21/18 A2999 RMK AO2 PWINOKMJQ2019-09-20T00:35:00Z43.63-94.9721.018.0120410.029.991142TRUETRUETRUEVFRSPECI441.02019-09-20 00:46:06M5) 5    3KPTS 200035Z AUTO 14003KT 10SM CLR 27/21 A2995 RMK AO2 T02680210KPTS2019-09-20T00:35:00Z37.45-94.7326.821.0140310.029.949802TRUETRUEVFRSPECI290.02019-09-20 00:46:06 6d;<(q5   3KVOA 200035Z AUTO 12016KT 10SM 29/23 A3003 RMK A01KVOA2019-09-20T00:35:00Z29.23-87.7829.023.01201610.030.029528TRUETRUEMETAR53.02019-09-20 00:46:06F;(5   3KMZG 200035Z AUTO 23013G20KT 10SM CLR 30/26 A2985 RMK A01KMZG2019-09-20T00:35:00Z27.73-96.1830.026.0230132010.029.84941TRUETRUEVFRMETAR29.02019-09-20 00:46:06L:) 5    3KOXD 200035Z AUTO 11006KT 10SM CLR 25/20 A3009 RMK AO2 T02450202KOXD2019-09-20T00:35:00Z39.5-84.7824.520.2110610.030.088583TRUETRUEVFRSPECI317.02019-09-20 00:46:06D9(5    3KSCF 200035Z AUTO 14014KT 10SM FEW023 29/24 A2997 RMK A01KSCF2019-09-20T00:35:00Z29.12-91.8729.024.01401410.029.970472TRUETRUEVFRMETAR8.02019-09-20 00:46:06 &[K@) 5    3KIIB 200035Z AUTO 00000KT 10SM CLR 20/19 A3003 RMK AO2 T02030189KIIB2019-09-20T00:35:00Z42.45-91.9520.318.90010.030.029528TRUETRUEVFRMETAR298.02019-09-20 00:46:06M?)5     3KIOB 200035Z AUTO 14004KT 10SM CLR 25/18 A3013 RMK AO2 PWINOKIOB2019-09-20T00:35:00Z38.05-83.9825.018.0140410.030.129921TRUETRUETRUEVFRSPECI311.02019-09-20 00:46:06E>(5    3KVAF 200035Z AUTO 15013KT 10SM SCT026 29/24 A2991 RMK A01KVAF2019-09-20T00:35:00Z27.35-94.6329.024.01501310.029.911417TRUETRUEVFRMETAR46.02019-09-20 00:46:06T=)5    3KVKY 200035Z AUTO 13018KT 10SM FEW024 SCT060 OVC100 28/22 A3004 RMK A01KVKY2019-09-20T00:35:00Z29.25-88.4328.022.01301810.030.041338TRUETRUEVFRMETAR32.02019-09-20 00:46:06 ,WKD)5   3KHVE 200035Z AUTO 22014G19KT 10SM CLR 30/M02 A2973 RMK AO2KHVE2019-09-20T00:35:00Z38.42-110.730.0-2.0220141910.029.731298TRUETRUEVFRMETAR1350.02019-09-20 00:46:06@C(y5    3KI74 200035Z AUTO 00000KT 10SM CLR 23/17 A3012 RMK AO2KI742019-09-20T00:35:00Z40.35-83.7523.017.00010.030.121063TRUETRUEVFRMETAR325.02019-09-20 00:46:06OB) 5    3KIBM 200035Z AUTO 11007KT 10SM CLR 24/10 A2988 RMK AO2 T02350103KIBM2019-09-20T00:35:00Z41.18-103.6823.510.3110710.029.878937TRUETRUEVFRSPECI1501.02019-09-20 00:46:06NA)5    3KIGQ 200035Z AUTO 00000KT 10SM SCT120 24/17 A3005 RMK AO2 T02350165KIGQ2019-09-20T00:35:00Z41.53-87.5323.516.50010.030.050198TRUETRUEVFRSPECI188.02019-09-20 00:46:06 .gQH)5    3KGRN 200035Z AUTO 14006KT 10SM SCT060 26/16 A2984 RMK AO2 T02570163KGRN2019-09-20T00:35:00Z42.8-102.1725.716.3140610.029.840551TRUETRUEVFRSPECI1086.02019-09-20 00:46:06JG) 5     3KHDC 200035Z AUTO 14005KT 10SM SCT050 27/22 A3000 RMK AO2 PWINOKHDC2019-09-20T00:35:00Z30.52-90.4227.022.0140510.030.0TRUETRUETRUEVFRSPECI13.02019-09-20 00:46:06AF(y5    3KHOE 200035Z AUTO 11004KT 10SM CLR 23/16 A3014 RMK AO2KHOE2019-09-20T00:35:00Z31.05-82.7823.016.0110410.030.138779TRUETRUEVFRSPECI57.02019-09-20 00:46:06LE) 5    3KHQU 200035Z AUTO 13007KT 10SM CLR 21/09 A3019 RMK AO2 T02140091KHQU2019-09-20T00:35:00Z33.53-82.5221.49.1130710.030.188976TRUETRUEVFRSPECI152.02019-09-20 00:46:06 #\~gL);5    3KFHB 200035Z AUTO 05020G27KT 5SM -RA BKN029 BKN036 OVC048 23/20 A3012 RMK AO2 T02270201KFHB2019-09-20T00:35:00Z30.62-81.4722.720.15020275.030.121063TRUETRUE-RAMVFRSPECI5.02019-09-20 00:46:06XK)5      3KFWB 200035Z AUTO 12005KT 10SM CLR 26/20 A3002 RMK AO2 P0002 PWINO PNOKFWB2019-09-20T00:35:00Z36.7-93.426.020.0120510.030.02067TRUETRUETRUEVFR0.02SPECI406.02019-09-20 00:46:06AJ(y5    3KGCM 200035Z AUTO 11006KT 10SM CLR 27/20 A2995 RMK AO2KGCM2019-09-20T00:35:00Z36.3-95.4827.020.0110610.029.949802TRUETRUEVFRSPECI221.02019-09-20 00:46:06WI)!5     3KGMJ 200035Z AUTO 17005KT 7SM -RA SCT039 BKN065 OVC085 23/20 A2998 RMK AO2KGMJ2019-09-20T00:35:00Z36.6-94.7323.020.017057.029.97933TRUETRUE-RAVFRSPECI254.02019-09-20 00:46:06 -Y}IP) 5    3KENL 200035Z AUTO 00000KT 10SM CLR 22/20 A3002 RMK AO2 T02200199KENL2019-09-20T00:35:00Z38.52-89.122.019.90010.030.02067TRUETRUEVFRSPECI163.02019-09-20 00:46:06VO)5   3KF00 200035Z AUTO 10017G23KT 10SM OVC050 27/19 A2988 RMK AO2 T02680191KF002019-09-20T00:35:00Z33.62-96.1826.819.1100172310.029.878937TRUETRUEVFRMETAR188.02019-09-20 00:46:06NN) 5    3KF05 200035Z AUTO 10013KT 10SM CLR 28/19 A2988 RMK AO1 T02830186KF052019-09-20T00:35:00Z34.23-99.2828.318.61001310.029.878937TRUETRUEVFRMETAR386.02019-09-20 00:46:06MM) 5    3KFET 200035Z AUTO 14006KT 10SM CLR 28/21 A2993 RMK AO2 T02760212KFET2019-09-20T00:35:00Z41.45-96.5227.621.2140610.029.929134TRUETRUEVFRMETAR367.02019-09-20 00:46:06 -S{3T(m5     3KDZJ 200035Z AUTO 14004KT 10SM CLR A3025 RMK AO2KDZJ2019-09-20T00:35:00Z34.85-84.0140410.030.250984TRUETRUEVFRSPECI582.02019-09-20 00:46:06RS)5    3KE38 200035Z AUTO 23004KT 10SM BKN120 23/17 A3006 RMK AO2 T02270171KE382019-09-20T00:35:00Z30.38-103.6822.717.1230410.030.059055TRUETRUEVFRMETAR1376.02019-09-20 00:46:06TR)5    3KECU 200035Z AUTO 02005KT 10SM SCT055 BKN090 OVC110 25/20 A2991 RMK AO2KECU2019-09-20T00:35:00Z29.95-100.1725.020.020510.029.911417TRUETRUEVFRSPECI725.02019-09-20 00:46:06MQ)5    3KEFT 200035Z AUTO 00000KT 10SM SCT090 21/19 A3007 RMK AO2 T02110191KEFT2019-09-20T00:35:00Z42.62-89.621.119.10010.030.070866TRUETRUEVFRSPECI331.02019-09-20 00:46:06 JIX) 5    3KDNV 200035Z AUTO 00000KT 10SM CLR 22/19 A3003 RMK AO2 T02190188KDNV2019-09-20T00:35:00Z40.2-87.621.918.80010.030.029528TRUETRUEVFRSPECI212.02019-09-20 00:46:06>W(y5    3KDPL 200035Z AUTO 00000KT 10SM CLR 16/14 A3025 RMK AO2KDPL2019-09-20T00:35:00Z35.0-77.9716.014.00010.030.250984TRUETRUEVFRSPECI42.02019-09-20 00:46:06MV) 5    3KDUC 200035Z AUTO 13008KT 10SM CLR 26/20 A2990 RMK AO2 T02610202KDUC2019-09-20T00:35:00Z34.47-97.9726.120.2130810.029.899607TRUETRUEVFRSPECI339.02019-09-20 00:46:06]U)5    3KDUX 200035Z AUTO 09014G22KT 10SM CLR 18/16 A2998 RMK AO2 P0002 T01750160KDUX2019-09-20T00:35:00Z35.85-102.0217.516.090142210.029.97933TRUETRUEVFR0.02METAR1129.02019-09-20 00:46:06 7f?\(y5    3KCKI 200035Z AUTO 00000KT 10SM CLR 17/12 A3022 RMK AO2KCKI2019-09-20T00:35:00Z33.72-79.8517.012.00010.030.221457TRUETRUEVFRSPECI21.02019-09-20 00:46:06U[)5     3KCLI 200035Z AUTO 00000KT 10SM CLR 20/19 A3006 RMK AO2 P0001 T02000185KCLI2019-09-20T00:35:00Z44.62-88.7320.018.50010.030.059055TRUETRUEVFR0.01METAR250.02019-09-20 00:46:06KZ) 5    3KD73 200035Z AUTO 07003KT 10SM CLR 19/14 A3020 RMK AO2 T01940143KD732019-09-20T00:35:00Z33.78-83.719.414.370310.030.200787TRUETRUEVFRSPECI267.02019-09-20 00:46:06CY(5    3KDED 200035Z AUTO 02004KT 10SM SCT080 23/20 A3005 RMK AO2KDED2019-09-20T00:35:00Z29.07-81.2823.020.020410.030.050198TRUETRUEVFRSPECI24.02019-09-20 00:46:06 @pT`)5     3KJDD 200035Z AUTO 13005KT 3 1/2SM -RA BR OVC006 22/22 A2988 RMK AO2KJDD2019-09-20T00:35:00Z32.75-95.522.022.013053.529.878937TRUETRUE-RA BRIFRMETAR132.02019-09-20 00:46:06U_)5   3KJHN 200035Z AUTO 15020G26KT 10SM CLR 26/17 A2992 RMK AO2 T02640170KJHN2019-09-20T00:35:00Z37.58-101.7326.417.0150202610.029.920275TRUETRUEVFRSPECI1013.02019-09-20 00:46:06J^) 5    3KTOC 200035Z AUTO 05003KT 10SM CLR 20/14 A3024 RMK AO2 T01970136KTOC2019-09-20T00:35:00Z34.6-83.319.713.650310.030.239174TRUETRUEVFRSPECI304.02019-09-20 00:46:06:](q5   3KTQH 200035Z AUTO 10005KT 10SM 26/18 A2996 RMK AO2KTQH2019-09-20T00:35:00Z35.93-95.026.018.0100510.029.958662TRUETRUESPECI266.02019-09-20 00:46:06 WNd)5    3KSUT 200035Z AUTO 36003KT 10SM SCT060 20/14 A3021 RMK AO2 T02000135KSUT2019-09-20T00:35:00Z33.93-78.0820.013.5360310.030.209646TRUETRUEVFRMETAR8.02019-09-20 00:46:06@c(y5    3KVNC 200035Z AUTO 07012KT 10SM CLR 27/18 A2999 RMK AO2KVNC2019-09-20T00:35:00Z27.07-82.4327.018.0701210.029.991142TRUETRUEVFRMETAR6.02019-09-20 00:46:06Bb(5    3KX07 200035Z AUTO 07007KT 10SM FEW049 24/19 A3004 RMK A01KX072019-09-20T00:35:00Z27.9-81.6224.019.070710.030.041338TRUETRUEVFRMETAR39.02019-09-20 00:46:06[a)/5    3KJAS 200035Z AUTO 00000KT 10SM BKN065 BKN075 OVC110 24/24 A2996 RMK AO2 T02410235KJAS2019-09-20T00:35:00Z30.88-94.0324.123.50010.029.958662TRUETRUEVFRMETAR65.02019-09-20 00:46:06 :j=i(y5    3KPGV 200035Z AUTO 00000KT 10SM CLR 17/13 A3028 RMK AO2KPGV2019-09-20T00:35:00Z35.62-77.417.013.00010.030.280512TRUETRUEVFRMETAR8.02019-09-20 00:46:06@h(y5    3KPLD 200035Z AUTO 00000KT 10SM CLR 22/16 A3008 RMK AO2KPLD2019-09-20T00:35:00Z40.45-84.9822.016.00010.030.079725TRUETRUEVFRMETAR282.02019-09-20 00:46:06Ig) 5    3KRCX 200035Z AUTO 00000KT 10SM CLR 21/20 A3005 RMK AO2 T02070197KRCX2019-09-20T00:35:00Z45.5-91.020.719.70010.030.050198TRUETRUEVFRMETAR377.02019-09-20 00:46:06Jf) 5    3KRPD 200035Z AUTO 00000KT 10SM CLR 22/14 A3002 RMK AO2 T02190141KRPD2019-09-20T00:35:00Z45.42-91.7721.914.10010.030.02067TRUETRUEVFRMETAR338.02019-09-20 00:46:06@e(y5    3KSDC 200035Z AUTO 00000KT 10SM CLR 15/11 A3025 RMK AO2KSDC2019-09-20T00:35:00Z43.23-77.1215.011.00010.030.250984TRUETRUEVFRMETAR129.02019-09-20 00:46:06 .]Nm)5    3KLNL 200035Z AUTO 00000KT 10SM SCT046 20/18 A3008 RMK AO2 T01950184KLNL2019-09-20T00:35:00Z46.15-89.2219.518.40010.030.079725TRUETRUEVFRMETAR520.02019-09-20 00:46:06@l(y5    3KMAO 200035Z AUTO 03004KT 10SM CLR 17/11 A3023 RMK AO2KMAO2019-09-20T00:35:00Z34.18-79.3317.011.030410.030.230314TRUETRUEVFRMETAR28.02019-09-20 00:46:06Kk) 5    3KPCZ 200035Z AUTO 00000KT 10SM CLR 21/20 A3006 RMK AO2 T02120198KPCZ2019-09-20T00:35:00Z44.33-89.0221.219.80010.030.059055TRUETRUEVFRMETAR252.02019-09-20 00:46:06Lj) 5    3KPEA 200035Z AUTO 10004KT 10SM CLR 24/21 A3001 RMK AO2 T02400206KPEA2019-09-20T00:35:00Z41.4-92.9524.020.6100410.030.008858TRUETRUEVFRMETAR270.02019-09-20 00:46:06 RDq(5    3KFQD 200035Z AUTO 01004KT 10SM OVC040 18/13 A3027 RMK AO2KFQD2019-09-20T00:35:00Z35.42-81.9318.013.010410.030.268702TRUETRUEVFRMETAR329.02019-09-20 00:46:06Ip) 5    3KHNZ 200035Z AUTO 00000KT 10SM CLR 15/09 A3029 RMK AO2 T01490086KHNZ2019-09-20T00:35:00Z36.37-78.5314.98.60010.030.28937TRUETRUEVFRMETAR161.02019-09-20 00:46:06>o(y5    3KIXA 200035Z AUTO 00000KT 10SM CLR 12/12 A3029 RMK AO2KIXA2019-09-20T00:35:00Z36.33-77.6312.012.00010.030.28937TRUETRUEVFRMETAR44.02019-09-20 00:46:06dn)15      3KJSO 200035Z AUTO 16009KT 7SM RA BKN006 OVC010 22/21 A2992 RMK AO2 P0006 T02210219KJSO2019-09-20T00:35:00Z31.87-95.2222.121.916097.029.920275TRUETRUERAIFR0.06METAR206.02019-09-20 00:46:06 .Q=u(w5    3K96D 200035Z AUTO 00000KT 9SM CLR 20/14 A2996 RMK AO2K96D2019-09-20T00:35:00Z48.93-97.920.014.0009.029.958662TRUETRUEVFRMETAR290.02019-09-20 00:46:06It) 5    3KASJ 200035Z AUTO 00000KT 10SM CLR 14/13 A3029 RMK AO2 T01430133KASJ2019-09-20T00:35:00Z36.28-77.1714.313.30010.030.28937TRUETRUEVFRMETAR21.02019-09-20 00:46:06Ws)'5     3KCCA 200035Z AUTO 00000KT 1 1/2SM BR FEW003 FEW100 SCT120 23/22 A2998 RMK AO2KCCA2019-09-20T00:35:00Z35.6-92.4523.022.0001.529.97933TRUETRUEBRIFRMETAR157.02019-09-20 00:46:06Lr) 5    3KEHO 200035Z AUTO 36003KT 10SM CLR 18/13 A3025 RMK AO2 T01770128KEHO2019-09-20T00:35:00Z35.25-81.617.712.8360310.030.250984TRUETRUEVFRMETAR258.02019-09-20 00:46:06 $\My) 5    3KJWG 200035Z AUTO 14009KT 10SM CLR 28/18 A2994 RMK AO2 T02790178KJWG2019-09-20T00:35:00Z35.87-98.4227.917.8140910.029.940945TRUETRUEVFRSPECI472.02019-09-20 00:46:06Ix) 5    3K1P1 200035Z AUTO 00000KT 10SM CLR 09/08 A3027 RMK AO2 T00860077K1P12019-09-20T00:35:00Z43.78-71.758.67.70010.030.268702TRUETRUEVFRMETAR154.02019-09-20 00:46:06Bw(5    3K2J9 200035Z AUTO 05005KT 10SM SCT050 23/15 A3010 RMK AO2K2J92019-09-20T00:35:00Z30.6-84.5523.015.050510.030.100393TRUETRUEVFRMETAR69.02019-09-20 00:46:06Vv)5   3K2V5 200035Z AUTO 16017G26KT 10SM CLR 28/12 A2984 RMK AO2 LTG DSNT NEK2V52019-09-20T00:35:00Z40.1-102.2528.012.0160172610.029.840551TRUETRUEVFRMETAR1118.02019-09-20 00:46:06 %]B}(y5    3KVQT 200035Z AUTO 14014KT 10SM CLR 29/24 A2996 RMK A01KVQT2019-09-20T00:35:00Z28.27-92.2729.024.01401410.029.958662TRUETRUEVFRSPECI25.02019-09-20 00:46:06O|) 5    3KL35 200035Z AUTO 23008KT 204V264 10SM CLR 13/M13 A2999 RMK AO2KL352019-09-20T00:35:00Z34.27-116.8513.0-13.0230810.029.991142TRUETRUEVFRMETAR2059.02019-09-20 00:46:06B{(w5  3KTSP 200035Z AUTO 28018G23KT 10SM 15/04 A2995 RMK AO2KTSP2019-09-20T00:35:00Z35.13-118.4315.04.0280182310.029.949802TRUETRUEMETAR1220.02019-09-20 00:46:06Uz)5   3KTXW 200035Z AUTO 16012G15KT 10SM SCT120 30/24 A2980 RMK AO2 T03000235KTXW2019-09-20T00:35:00Z26.18-97.9730.023.5160121510.029.799213TRUETRUEVFRSPECI21.02019-09-20 00:46:06 ;c>(w5    3KTVK 200035Z AUTO 09004KT 9SM CLR 24/24 A3001 RMK AO2KTVK2019-09-20T00:35:00Z40.68-92.924.024.09049.030.008858TRUETRUEVFRMETAR314.02019-09-20 00:46:06H) 5    3KWBF 200035Z AUTO 00000KT 10SM SCT026 SCT035 30/24 A2998 RMK A01KWBF2019-09-20T00:35:00Z26.93-90.530.024.00010.029.97933TRUETRUEVFRMETAR10.02019-09-20 00:46:06R)5   3KXIH 200035Z AUTO 15011G17KT 10SM FEW018 BKN120 28/25 A2990 RMK A01KXIH2019-09-20T00:35:00Z29.18-94.5228.025.0150111710.029.899607TRUETRUEVFRMETAR75.02019-09-20 00:46:06?~(y5    3KXPY 200035Z AUTO 13007KT 10SM CLR 29/25 A3001 RMK A01KXPY2019-09-20T00:35:00Z29.12-90.229.025.0130710.030.008858TRUETRUEVFRMETAR2.02019-09-20 00:46:06 &8e&B(y5    3KRDK 200035Z AUTO 12005KT 10SM CLR 26/22 A2995 RMK AO2KRDK2019-09-20T00:35:00Z41.02-95.2726.022.0120510.029.949802TRUETRUEVFRMETAR318.02019-09-20 00:46:063(o5   3KBNL 200035Z AUTO 07004KT CLR 21/09 A3019 RMK AO2KBNL2019-09-20T00:35:00Z33.25-81.3821.09.070430.188976TRUETRUEMETAR75.02019-09-20 00:46:068(q5   3KCKM 200035Z AUTO 12003KT 10SM 24/24 A3002 RMK A01KCKM2019-09-20T00:35:00Z34.3-90.5224.024.0120310.030.02067TRUETRUEMETAR53.02019-09-20 00:46:06M)5    3KCPC 200035Z AUTO 00000KT 10SM BKN060 18/13 A3023 RMK AO2 T01760130KCPC2019-09-20T00:35:00Z34.28-78.7217.613.00010.030.230314TRUETRUEVFRMETAR29.02019-09-20 00:46:06B(y5    3KEDJ 200035Z AUTO 14006KT 10SM CLR 22/16 A3012 RMK AO1KEDJ2019-09-20T00:35:00Z40.37-83.8222.016.0140610.030.121063TRUETRUEVFRMETAR342.02019-09-20 00:46:06 %<jM ) 5    3KRMY 200035Z AUTO 11003KT 10SM CLR 20/14 A3011 RMK AO2 T01960135KRMY2019-09-20T00:35:00Z42.23-84.9519.613.5110310.030.109253TRUETRUEVFRMETAR287.02019-09-20 00:46:06L ) 5    3KPRO 200035Z AUTO 12003KT 10SM CLR 23/20 A2998 RMK AO2 T02320202KPRO2019-09-20T00:35:00Z41.83-94.1723.220.2120310.029.97933TRUETRUEVFRMETAR308.02019-09-20 00:46:06c)75    3KPSO 200035Z AUTO 17004KT 10SM SCT085 BKN100 20/03 A3012 RMK AO2 LTG DSNT N T02020030KPSO2019-09-20T00:35:00Z37.28-107.0520.23.0170410.030.121063TRUETRUEVFRMETAR2334.02019-09-20 00:46:06U)!5    3KPVB 200035Z AUTO 00000KT 10SM SCT065 BKN075 21/21 A3007 RMK AO1 T02130213KPVB2019-09-20T00:35:00Z42.68-90.4321.321.30010.030.070866TRUETRUEVFRMETAR313.02019-09-20 00:46:06 -e@(y5    3KRZT 200035Z AUTO 00000KT 10SM CLR 20/17 A3012 RMK AO2KRZT2019-09-20T00:35:00Z39.43-83.0220.017.00010.030.121063TRUETRUEVFRMETAR221.02019-09-20 00:46:06@(y5    3KS32 200035Z AUTO 08007KT 10SM CLR 20/19 A2995 RMK AO2KS322019-09-20T00:35:00Z47.42-98.120.019.080710.029.949802TRUETRUEVFRMETAR684.02019-09-20 00:46:069 (q5   3KSEM 200035Z AUTO 09008KT 10SM 28/17 A3007 RMK AO2KSEM2019-09-20T00:35:00Z32.35-86.9828.017.090810.030.070866TRUETRUEMETAR51.02019-09-20 00:46:06B (y5    3KSHL 200035Z AUTO 12003KT 10SM CLR 23/21 A2995 RMK AO2KSHL2019-09-20T00:35:00Z43.22-95.8223.021.0120310.029.949802TRUETRUEVFRMETAR432.02019-09-20 00:46:06M )5    3KSJX 200035Z AUTO 00000KT 10SM BKN070 19/18 A3007 RMK AO2 T01850180KSJX2019-09-20T00:35:00Z45.7-85.5718.518.00010.030.070866TRUETRUEVFRMETAR204.02019-09-20 00:46:06 :p>(y5    3KSNC 200035Z AUTO VRB03KT 10SM CLR 13/10 A3029 RMK AO2KSNC2019-09-20T00:35:00Z41.38-72.513.010.00310.030.28937TRUETRUEVFRSPECI127.02019-09-20 00:46:06A(y5    3KSLB 200035Z AUTO 13005KT 10SM CLR 22/21 A2995 RMK AO2KSLB2019-09-20T00:35:00Z42.6-95.2222.021.0130510.029.949802TRUETRUEVFRMETAR454.02019-09-20 00:46:06A(y5    3KRRT 200035Z AUTO 07006KT 10SM CLR 16/14 A3003 RMK AO2KRRT2019-09-20T00:35:00Z48.93-95.3316.014.070610.030.029528TRUETRUEVFRMETAR327.02019-09-20 00:46:06D(y5    3KRUG 200035Z AUTO 10012KT 10SM CLR 20/17 A2990 RMK AO2KRUG2019-09-20T00:35:00Z48.38-100.0220.017.01001210.029.899607TRUETRUEVFRMETAR472.02019-09-20 00:46:06@(y5    3KRVL 200035Z AUTO 00000KT 10SM CLR 16/11 A3027 RMK AO2KRVL2019-09-20T00:35:00Z40.68-77.6316.011.00010.030.268702TRUETRUEVFRMETAR250.02019-09-20 00:46:06 8jL) 5    3KTTF 200035Z AUTO 08003KT 10SM CLR 19/17 A3012 RMK AO2 T01880166KTTF2019-09-20T00:35:00Z41.93-83.4218.816.680310.030.121063TRUETRUEVFRMETAR188.02019-09-20 00:46:06H(5   3KTVY 200035Z AUTO 31020G27KT 10SM CLR 17/02 A2985 RMK AO2KTVY2019-09-20T00:35:00Z40.62-112.3517.02.0310202710.029.84941TRUETRUEVFRMETAR1317.02019-09-20 00:46:06H(5   3KSOW 200035Z AUTO 22013G23KT 10SM CLR 23/02 A3005 RMK AO2KSOW2019-09-20T00:35:00Z34.27-110.023.02.0220132310.030.050198TRUETRUEVFRSPECI1954.02019-09-20 00:46:06B(y5    3KSPA 200035Z AUTO 36004KT 10SM CLR 18/12 A3024 RMK AO2KSPA2019-09-20T00:35:00Z34.92-81.9318.012.0360410.030.239174TRUETRUEVFRMETAR303.02019-09-20 00:46:06 :iS)5    3KSVE 200035Z AUTO 25007KT 7SM FEW018 SCT029 BKN045 12/07 A3003 RMK AO2KSVE2019-09-20T00:35:00Z40.37-120.5712.07.025077.030.029528TRUETRUEVFRSPECI1263.02019-09-20 00:46:06;(q5   3KSXK 200035Z AUTO 13007KT 10SM 23/22 A2994 RMK AO2KSXK2019-09-20T00:35:00Z42.98-96.1723.022.0130710.029.940945TRUETRUEMETAR430.02019-09-20 00:46:06K) 5     3KTNU 200035Z AUTO 11006KT 10SM FEW017 23/22 A3000 RMK AO2 PWINOKTNU2019-09-20T00:35:00Z41.67-93.0223.022.0110610.030.0TRUETRUETRUEVFRMETAR290.02019-09-20 00:46:06@(y5    3KTOB 200035Z AUTO 00000KT 10SM CLR 21/19 A3003 RMK AO2KTOB2019-09-20T00:35:00Z44.02-92.8221.019.00010.030.029528TRUETRUEVFRMETAR398.02019-09-20 00:46:06 5oL ) 5    3KVTI 200035Z AUTO 10005KT 10SM CLR 23/21 A3002 RMK AO2 T02300205KVTI2019-09-20T00:35:00Z42.22-92.0223.020.5100510.030.02067TRUETRUEVFRSPECI255.02019-09-20 00:46:06B(5    3KVDF 200035Z AUTO 05005KT 10SM SCT085 25/18 A3003 RMK AO2KVDF2019-09-20T00:35:00Z28.02-82.3325.018.050510.030.029528TRUETRUEVFRMETAR7.02019-09-20 00:46:06@(y5    3KULM 200035Z AUTO 08003KT 10SM CLR 25/17 A2997 RMK AO2KULM2019-09-20T00:35:00Z44.32-94.525.017.080310.029.970472TRUETRUEVFRMETAR308.02019-09-20 00:46:06E(5    3KUOX 200035Z AUTO 14005KT 10SM BKN035 26/21 A3006 RMK AO2KUOX2019-09-20T00:35:00Z34.38-89.5326.021.0140510.030.059055TRUETRUEVFRMETAR137.02019-09-20 00:46:06 9gY$)5   3KFLY 200035Z AUTO 17012G21KT 10SM SCT120 25/M04 A3003 RMK AO2 T02461037KFLY2019-09-20T00:35:00Z38.95-104.5724.6-3.7170122110.030.029528TRUETRUEVFRMETAR2096.02019-09-20 00:46:06M#)5    3KFKS 200035Z AUTO 00000KT 10SM OVC120 21/17 A3007 RMK AO2 T02100174KFKS2019-09-20T00:35:00Z44.63-86.221.017.40010.030.070866TRUETRUEVFRMETAR193.02019-09-20 00:46:06L") 5    3KY63 200035Z AUTO 15003KT 10SM CLR 22/19 A2997 RMK AO2 T02220185KY632019-09-20T00:35:00Z45.98-96.022.218.5150310.029.970472TRUETRUEVFRMETAR367.02019-09-20 00:46:06A!(y5    3KVVV 200035Z AUTO 12006KT 10SM CLR 23/17 A2994 RMK AO2KVVV2019-09-20T00:35:00Z45.3-96.4223.017.0120610.029.940945TRUETRUEVFRMETAR335.02019-09-20 00:46:06 8sB((y5    3KGWR 200035Z AUTO 11005KT 10SM CLR 21/19 A2993 RMK A01KGWR2019-09-20T00:35:00Z46.22-97.6521.019.0110510.029.929134TRUETRUEVFRMETAR386.02019-09-20 00:46:06a')+5     3KGNT 200035Z AUTO 19003KT 10SM VCTS BKN090 BKN120 16/13 A3010 RMK AO2 T01590130KGNT2019-09-20T00:35:00Z35.17-107.915.913.0190310.030.100393TRUETRUEVCTSVFRSPECI1987.02019-09-20 00:46:06?&(w5    3KGAF 200035Z AUTO 12007KT 9SM CLR 22/15 A2997 RMK AO2KGAF2019-09-20T00:35:00Z48.4-97.3722.015.012079.029.970472TRUETRUEVFRMETAR252.02019-09-20 00:46:06B%(y5    3KFSW 200035Z AUTO 12003KT 10SM CLR 24/23 A3001 RMK AO2KFSW2019-09-20T00:35:00Z40.67-91.3224.023.0120310.030.008858TRUETRUEVFRMETAR221.02019-09-20 00:46:06 .^@,(y5    3KHPT 200035Z AUTO 00000KT 10SM CLR 22/20 A3001 RMK AO2KHPT2019-09-20T00:35:00Z42.58-93.2322.020.00010.030.008858TRUETRUEVFRMETAR358.02019-09-20 00:46:06J+(5   3KHOB 200035Z AUTO 14015G23KT 10SM CLR 28/13 A2992 RMK AO2KHOB2019-09-20T00:35:00Z32.67-103.2228.013.0140152310.029.920275TRUETRUEVFRMETAR1115.02019-09-20 00:46:06J*) 5    3KGWW 200035Z AUTO 00000KT 10SM CLR 15/14 A3026 RMK AO2 T01530135KGWW2019-09-20T00:35:00Z35.47-77.9715.313.50010.030.259842TRUETRUEVFRMETAR41.02019-09-20 00:46:06L)) 5    3KHAI 200035Z AUTO 14004KT 10SM CLR 22/13 A3010 RMK AO2 T02240131KHAI2019-09-20T00:35:00Z41.97-85.622.413.1140410.030.100393TRUETRUEVFRMETAR251.02019-09-20 00:46:06 8j51(i5    3KJFX 200035Z AUTO 10SM CLR 26/19 A3007 RMK AO2KJFX2019-09-20T00:35:00Z33.9-87.3226.019.010.030.070866TRUETRUEVFRMETAR148.02019-09-20 00:46:06@0(5    3KJZI 200035Z AUTO 04007KT 10SM FEW039 22/14 A3019 RMK AO2KJZI2019-09-20T00:35:00Z32.7-80.022.014.040710.030.188976TRUETRUEVFRMETAR6.02019-09-20 00:46:06G/(5   3KL08 200035Z AUTO 27014G21KT 10SM CLR 30/06 A2971 RMK AO2KL082019-09-20T00:35:00Z33.27-116.3230.06.0270142110.029.71063TRUETRUEVFRMETAR159.02019-09-20 00:46:06H.) 5    3KCDA 200035Z AUTO 00000KT 10SM CLR 09/07 A3029 RMK AO2 T00920066KCDA2019-09-20T00:35:00Z44.57-72.029.26.60010.030.28937TRUETRUEVFRMETAR363.02019-09-20 00:46:06B-(y5    3KI23 200035Z AUTO 14003KT 10SM CLR 20/17 A3012 RMK AO1KI232019-09-20T00:35:00Z39.57-83.4220.017.0140310.030.121063TRUETRUEVFRMETAR299.02019-09-20 00:46:06 8jO5)5    3KMRN 200035Z AUTO 34003KT 10SM BKN039 18/14 A3031 RMK AO2 T01780135KMRN2019-09-20T00:35:00Z35.82-81.6217.813.5340310.030.31004TRUETRUEVFRMETAR387.02019-09-20 00:46:06C4(5    3KLKR 200035Z AUTO 00000KT 10SM SCT049 18/11 A3023 RMK AO2KLKR2019-09-20T00:35:00Z34.72-80.8518.011.00010.030.230314TRUETRUEVFRMETAR149.02019-09-20 00:46:06H3) 5    3KLDJ 200035Z AUTO 00000KT 10SM CLR 18/06 A3028 RMK AO2 T01800060KLDJ2019-09-20T00:35:00Z40.62-74.2518.06.00010.030.280512TRUETRUEVFRMETAR7.02019-09-20 00:46:06B2(y5    3KIDI 200035Z AUTO 15007KT 10SM CLR 17/10 A3028 RMK A01KIDI2019-09-20T00:35:00Z40.62-79.0817.010.0150710.030.280512TRUETRUEVFRMETAR429.02019-09-20 00:46:06 :s@:(y5    3KLUX 200035Z AUTO 02003KT 10SM CLR 17/13 A3023 RMK AO2KLUX2019-09-20T00:35:00Z34.5-81.9517.013.020310.030.230314TRUETRUEVFRMETAR213.02019-09-20 00:46:06K9) 5    3KLWA 200035Z AUTO 00000KT 10SM CLR 19/19 A3007 RMK AO2 T01930187KLWA2019-09-20T00:35:00Z42.35-86.2519.318.70010.030.070866TRUETRUEVFRMETAR203.02019-09-20 00:46:06?8(y5    3KM40 200035Z AUTO 00000KT 10SM CLR 24/14 A3005 RMK AO2KM402019-09-20T00:35:00Z33.87-88.4824.014.00010.030.050198TRUETRUEVFRMETAR69.02019-09-20 00:46:06A7(y5    3KMQJ 200035Z AUTO 14004KT 10SM CLR 20/20 A3008 RMK AO1KMQJ2019-09-20T00:35:00Z39.85-85.920.020.0140410.030.079725TRUETRUEVFRMETAR263.02019-09-20 00:46:06@6(y5    3KMRJ 200035Z AUTO 00000KT 10SM CLR 22/22 A3007 RMK AO2KMRJ2019-09-20T00:35:00Z42.88-90.2322.022.00010.030.070866TRUETRUEVFRMETAR359.02019-09-20 00:46:06 ,cB>(y5    3K06D 200035Z AUTO 13006KT 10SM CLR 19/14 A2995 RMK AO2K06D2019-09-20T00:35:00Z48.88-99.6219.014.0130610.029.949802TRUETRUEVFRMETAR556.02019-09-20 00:46:06G=(5   3K08D 200035Z AUTO 13011G16KT 10SM CLR 22/14 A2984 RMK AO2K08D2019-09-20T00:35:00Z48.3-102.422.014.0130111610.029.840551TRUETRUEVFRMETAR684.02019-09-20 00:46:06C<(5    3K0S9 200035Z AUTO 00000KT 10SM FEW120 16/12 A3006 RMK AO2K0S92019-09-20T00:35:00Z48.05-122.8216.012.00010.030.059055TRUETRUEVFRMETAR33.02019-09-20 00:46:06N;) 5    3KLMO 200035Z AUTO 30005KT 10SM CLR 25/07 A2987 RMK AO2 T02510069KLMO2019-09-20T00:35:00Z40.17-105.1725.16.9300510.029.870079TRUETRUEVFRMETAR1541.02019-09-20 00:46:06 :rBC(y5    3KOLZ 200035Z AUTO 14005KT 10SM CLR 21/21 A3004 RMK A01KOLZ2019-09-20T00:35:00Z42.67-91.9721.021.0140510.030.041338TRUETRUEVFRMETAR328.02019-09-20 00:46:06>B(y5    3KONA 200035Z AUTO 00000KT 10SM CLR 22/20 A3002 RMK AO2KONA2019-09-20T00:35:00Z44.07-91.722.020.00010.030.02067TRUETRUEVFRMETAR200.02019-09-20 00:46:06NA)5     3KORS 200035Z AUTO 00000KT 8SM -RA FEW038 SCT090 14/13 A3006 RMK AO2KORS2019-09-20T00:35:00Z48.7-122.9214.013.0008.030.059055TRUETRUE-RAVFRMETAR9.02019-09-20 00:46:06B@(}5    3KOXV 200035Z AUTO 09005KT 9SM FEW100 24/23 A2999 RMK AO2KOXV2019-09-20T00:35:00Z41.28-93.1224.023.09059.029.991142TRUETRUEVFRMETAR283.02019-09-20 00:46:06@?(y5    3KPLR 200035Z AUTO 00000KT 10SM CLR 24/19 A3012 RMK A01KPLR2019-09-20T00:35:00Z33.57-86.2524.019.00010.030.121063TRUETRUEVFRMETAR148.02019-09-20 00:46:06 &UOG)5    3KMWK 200035Z AUTO 09003KT 10SM SCT049 18/13 A3030 RMK AO2 T01750125KMWK2019-09-20T00:35:00Z36.47-80.5517.512.590310.030.301182TRUETRUEVFRMETAR380.02019-09-20 00:46:06@F(y5    3KMXO 200035Z AUTO 00000KT 10SM CLR 21/21 A3004 RMK AO2KMXO2019-09-20T00:35:00Z42.22-91.1721.021.00010.030.041338TRUETRUEVFRMETAR259.02019-09-20 00:46:06KE) 5    3KOCW 200035Z AUTO 03003KT 10SM CLR 17/13 A3027 RMK AO2 T01700130KOCW2019-09-20T00:35:00Z35.57-77.0517.013.030310.030.268702TRUETRUEVFRMETAR12.02019-09-20 00:46:06TD)5   3KOIN 200035Z AUTO 15018G28KT 10SM CLR 29/17 A2990 RMK AO1 T02860170KOIN2019-09-20T00:35:00Z39.83-100.5328.617.0150182810.029.899607TRUETRUEVFRMETAR824.02019-09-20 00:46:06 #GYK)#5     3K42J 200035Z AUTO 02004KT 9SM FEW017 SCT026 BKN055 21/21 A3010 RMK A01 TSNOK42J2019-09-20T00:35:00Z29.85-82.0521.021.02049.030.100393TRUETRUETRUEVFRMETAR60.02019-09-20 00:46:06?J(y5    3K4A6 200035Z AUTO 00000KT 10SM CLR 27/17 A3012 RMK AO2K4A62019-09-20T00:35:00Z34.68-86.027.017.00010.030.121063TRUETRUEVFRMETAR198.02019-09-20 00:46:06VI))5    3K3T5 200035Z AUTO 16007KT VCTS 25/24 A2984 RMK AO2 LTG DSNT S AND SW T02470242K3T52019-09-20T00:35:00Z29.9-96.9524.724.2160729.840551TRUETRUEVCTSSPECI99.02019-09-20 00:46:06WH)!5    3K2P2 200035Z AUTO 19005KT 10SM SCT065 OVC110 18/17 A3006 RMK AO2 T01770170K2P22019-09-20T00:35:00Z45.38-86.9217.717.0190510.030.059055TRUETRUEVFRMETAR199.02019-09-20 00:46:06 7qOP)5   3K74V 200035Z AUTO 19010G18KT 10SM SCT120 27/M01 A2977 RMK AO2K74V2019-09-20T00:35:00Z40.28-110.0527.0-1.0190101810.029.769686TRUETRUEVFRMETAR1576.02019-09-20 00:46:067O(q5   3KADU 200035Z AUTO 00000KT 10SM 24/21 A2998 RMK AO2KADU2019-09-20T00:35:00Z41.7-94.9224.021.00010.029.97933TRUETRUEMETAR392.02019-09-20 00:46:06@N(y5    3K6L4 200035Z AUTO 00000KT 10SM CLR 22/15 A3019 RMK AO2K6L42019-09-20T00:35:00Z37.85-81.9222.015.00010.030.188976TRUETRUEVFRMETAR508.02019-09-20 00:46:06@M(y5    3K6B9 200035Z AUTO 00000KT 10SM CLR 11/10 A3026 RMK AO2K6B92019-09-20T00:35:00Z42.92-76.4311.010.00010.030.259842TRUETRUEVFRMETAR316.02019-09-20 00:46:06CL(y5    3K5H4 200035Z AUTO 11011KT 10SM CLR 22/17 A2991 RMK AO2K5H42019-09-20T00:35:00Z47.78-99.9322.017.01101110.029.911417TRUETRUEVFRMETAR490.02019-09-20 00:46:06 =pBU(y5    3KBNW 200035Z AUTO 12003KT 10SM CLR 23/23 A2999 RMK AO2KBNW2019-09-20T00:35:00Z42.03-93.8323.023.0120310.029.991142TRUETRUEVFRMETAR354.02019-09-20 00:46:06CT(y5    3KBXK 200035Z AUTO 25011KT 10SM CLR 35/03 A2968 RMK A01KBXK2019-09-20T00:35:00Z33.42-112.6835.03.02501110.029.681103TRUETRUEVFRMETAR315.02019-09-20 00:46:06BS(y5    3KCBF 200035Z AUTO 14005KT 10SM CLR 26/24 A2992 RMK AO2KCBF2019-09-20T00:35:00Z41.27-95.7726.024.0140510.029.920275TRUETRUEVFRMETAR382.02019-09-20 00:46:06GR(5    3KALM 200035Z AUTO 17010KT 10SM BKN095 30/09 A2990 RMK AO2KALM2019-09-20T00:35:00Z32.82-105.9730.09.01701010.029.899607TRUETRUEVFRMETAR1279.02019-09-20 00:46:06=Q(}5    3KAWG 200035Z AUTO 07004KT 7SM BKN110 23/22 A3000 RMK AO2KAWG2019-09-20T00:35:00Z41.27-91.6723.022.07047.030.0TRUETRUEVFRMETAR230.02019-09-20 00:46:06 5nBY(y5    3KICL 200035Z AUTO 10003KT 10SM CLR 26/24 A2997 RMK AO2KICL2019-09-20T00:35:00Z40.72-95.0226.024.0100310.029.970472TRUETRUEVFRMETAR303.02019-09-20 00:46:06BX(y5    3KCCY 200035Z AUTO 16005KT 10SM CLR 22/20 A3003 RMK AO2KCCY2019-09-20T00:35:00Z43.07-92.6222.020.0160510.030.029528TRUETRUEVFRMETAR343.02019-09-20 00:46:06AW(y5    3KAXA 200035Z AUTO 14005KT 10SM CLR 23/21 A2998 RMK A01KAXA2019-09-20T00:35:00Z43.07-94.2723.021.0140510.029.97933TRUETRUEVFRMETAR372.02019-09-20 00:46:06EV(5    3KBDN 200035Z AUTO 32011KT 10SM SCT065 16/06 A3004 RMK AO2KBDN2019-09-20T00:35:00Z44.1-121.216.06.03201110.030.041338TRUETRUEVFRMETAR1055.02019-09-20 00:46:06 -`K]) 5    3KDUH 200035Z AUTO 00000KT 10SM CLR 21/18 A3012 RMK AO2 T02100180KDUH2019-09-20T00:35:00Z41.73-83.6521.018.00010.030.121063TRUETRUEVFRMETAR204.02019-09-20 00:46:06?\(5    3KDYT 200035Z AUTO 06005KT 10SM OVC060 17/13 A3000 RMK AO2KDYT2019-09-20T00:35:00Z46.72-92.0317.013.060510.030.0TRUETRUEVFRMETAR186.02019-09-20 00:46:06G[(5   3KEDC 200035Z AUTO 14012G23KT 10SM CLR 26/22 A2984 RMK AO2KEDC2019-09-20T00:35:00Z30.4-97.5726.022.0140122310.029.840551TRUETRUEVFRMETAR189.02019-09-20 00:46:06MZ) 5    3KHJH 200035Z AUTO 16007KT 10SM CLR 29/20 A2991 RMK AO2 T02850197KHJH2019-09-20T00:35:00Z40.15-97.5828.519.7160710.029.911417TRUETRUEVFRMETAR447.02019-09-20 00:46:06 :sSa)5    3KDEH 200035Z AUTO 00000KT 10SM BKN027 BKN033 BKN040 23/21 A3003 RMK AO2KDEH2019-09-20T00:35:00Z43.27-91.7223.021.00010.030.029528TRUETRUEMVFRMETAR353.02019-09-20 00:46:06K`) 5    3KDLL 200035Z AUTO 00000KT 10SM CLR 19/19 A3006 RMK AO2 T01920185KDLL2019-09-20T00:35:00Z43.52-89.7719.218.50010.030.059055TRUETRUEVFRMETAR299.02019-09-20 00:46:06A_(y5    3KDNA 200035Z AUTO VRB04KT 10SM CLR 32/10 A2991 RMK AO2KDNA2019-09-20T00:35:00Z31.88-106.732.010.00410.029.911417TRUETRUEVFRMETAR1253.02019-09-20 00:46:06@^(y5    3KDNS 200035Z AUTO VRB04KT 10SM CLR 24/23 A2997 RMK AO2KDNS2019-09-20T00:35:00Z41.97-95.3724.023.00410.029.970472TRUETRUEVFRMETAR388.02019-09-20 00:46:06 <uBe(y5    3KCNC 200035Z AUTO 12004KT 10SM CLR 24/24 A2999 RMK AO2KCNC2019-09-20T00:35:00Z41.02-93.3724.024.0120410.029.991142TRUETRUEVFRMETAR320.02019-09-20 00:46:06Bd(y5    3KCSQ 200035Z AUTO 10004KT 10SM CLR 24/22 A2999 RMK AO2KCSQ2019-09-20T00:35:00Z41.02-94.3724.022.0100410.029.991142TRUETRUEVFRMETAR394.02019-09-20 00:46:06Ac(w5    3KD50 200035Z AUTO 11010KT 9SM CLR 22/15 A2980 RMK AO2KD502019-09-20T00:35:00Z48.93-103.322.015.0110109.029.799213TRUETRUEVFRMETAR595.02019-09-20 00:46:06>b(y5    3KDCM 200035Z AUTO 00000KT 10SM CLR 18/08 A3024 RMK AO2KDCM2019-09-20T00:35:00Z34.78-81.218.08.00010.030.239174TRUETRUEVFRMETAR200.02019-09-20 00:46:06 +YKi)5   3PPNU 200035Z AUTO 18015G24KT 10SM OVC018 03/00 A2968 RMK AO1PPNU2019-09-20T00:35:00Z70.42-150.033.00.0180152410.029.681103TRUETRUEMVFRMETAR27.02019-09-20 00:46:06Ih) 5    3KCDN 200035Z AUTO 00000KT 10SM SCT041 BKN050 20/09 A3023 RMK AO2KCDN2019-09-20T00:35:00Z34.28-80.5720.09.00010.030.230314TRUETRUEVFRMETAR92.02019-09-20 00:46:06Lg) 5    3KCFJ 200035Z AUTO 06003KT 10SM CLR 19/19 A3007 RMK AO2 T01930187KCFJ2019-09-20T00:35:00Z39.98-86.9219.318.760310.030.070866TRUETRUEVFRMETAR244.02019-09-20 00:46:06Of) 5    3KCMR 200035Z AUTO 20017G27KT 10SM CLR 21/M02 A3000 RMK AO2 PWINOKCMR2019-09-20T00:35:00Z35.3-112.221.0-2.0200172710.030.0TRUETRUETRUEVFRMETAR2036.02019-09-20 00:46:06 6VtDm)5   3KDLO 200035Z AUTO 34008KT 10SM 25/04 A2985 RMK AO2 T02460041KDLO2019-09-20T00:35:00Z35.75-119.2324.64.1340810.029.84941TRUETRUEMETAR96.02019-09-20 00:46:06\l)%5      3KDRI 200035Z AUTO 00000KT 10SM RA SCT110 23/22 A2997 RMK AO2 P0001 T02310223KDRI2019-09-20T00:35:00Z30.83-93.3323.122.30010.029.970472TRUETRUERAVFR0.01METAR63.02019-09-20 00:46:06Zk)/5    3PAUT 200035Z AUTO 08003KT 10SM SCT021 BKN036 OVC042 11/10 A2954 RMK AO2 T01140099PAUT2019-09-20T00:35:00Z54.15-165.611.49.980310.029.53937TRUETRUEVFRSPECI25.02019-09-20 00:46:06Dj) 5    3OPST 200035Z 09004KT 3000 BR SCT040 24/23 Q1011 BECMG 2500 RH91OPST2019-09-20T00:35:00Z32.5374.3724.023.09041.8629.852362BRIFRSPECI247.02019-09-20 00:46:06 7mEr(5    3KCZL 200035Z AUTO 12006KT 10SM SCT070 24/13 A3019 RMK AO2KCZL2019-09-20T00:35:00Z34.47-84.9324.013.0120610.030.188976TRUETRUEVFRMETAR195.02019-09-20 00:46:06Cq(y5    3KCZT 200035Z AUTO 13010KT 10SM CLR 36/18 A2972 RMK AO2KCZT2019-09-20T00:35:00Z28.52-99.8236.018.01301010.029.719488TRUETRUEVFRMETAR183.02019-09-20 00:46:06?p(w5    3KD55 200035Z AUTO 12008KT 8SM CLR 19/14 A2997 RMK AO2KD552019-09-20T00:35:00Z48.75-98.419.014.012088.029.970472TRUETRUEVFRMETAR491.02019-09-20 00:46:06Do(y5    3KD57 200035Z AUTO 12011KT 10SM CLR 22/14 A2981 RMK AO2KD572019-09-20T00:35:00Z46.82-101.8722.014.01201110.029.811024TRUETRUEVFRSPECI637.02019-09-20 00:46:06Cn(y5    3KD60 200035Z AUTO 13015KT 10SM CLR 22/13 A2983 RMK AO2KD602019-09-20T00:35:00Z48.38-102.922.013.01301510.029.828741TRUETRUEVFRSPECI693.02019-09-20 00:46:06 1`Kv) 5    3KERV 200035Z AUTO 00000KT 10SM CLR 28/21 A2983 RMK AO2 T02830212KERV2019-09-20T00:35:00Z29.98-99.0828.321.20010.029.828741TRUETRUEVFRSPECI510.02019-09-20 00:46:06Uu)5     3KETC 200035Z AUTO 04004KT 10SM CLR 15/13 A3027 RMK AO2 PWINO T01550130KETC2019-09-20T00:35:00Z35.93-77.5515.513.040410.030.268702TRUETRUETRUEVFRMETAR17.02019-09-20 00:46:06Kt) 5    3KEYF 200035Z AUTO 36003KT 10SM CLR 18/13 A3024 RMK AO2 T01810128KEYF2019-09-20T00:35:00Z34.6-78.5818.112.8360310.030.239174TRUETRUEVFRMETAR41.02019-09-20 00:46:06Is(5   3KECS 200035Z AUTO 13017G22KT 10SM CLR 25/07 A2981 RMK AO2KECS2019-09-20T00:35:00Z43.88-104.3225.07.0130172210.029.811024TRUETRUEVFRSPECI1273.02019-09-20 00:46:06 >n?{(y5    3K3J7 200035Z AUTO 00000KT 10SM CLR 22/13 A3019 RMK AO2K3J72019-09-20T00:35:00Z33.6-83.1322.013.00010.030.188976TRUETRUEVFRMETAR206.02019-09-20 00:46:06Bz(y5    3K46D 200035Z AUTO 11009KT 10SM CLR 22/17 A2994 RMK AO2K46D2019-09-20T00:35:00Z47.45-99.1522.017.0110910.029.940945TRUETRUEVFRSPECI490.02019-09-20 00:46:06Iy) 5    3KEDN 200035Z AUTO 00000KT 10SM CLR 26/17 A3009 RMK AO2 T02640170KEDN2019-09-20T00:35:00Z31.3-85.926.417.00010.030.088583TRUETRUEVFRMETAR110.02019-09-20 00:46:06Jx) 5    3KEMV 200035Z AUTO 00000KT 10SM CLR 15/11 A3030 RMK AO2 T01490113KEMV2019-09-20T00:35:00Z36.68-77.4814.911.30010.030.301182TRUETRUEVFRMETAR39.02019-09-20 00:46:06)5    3KOBE 200035Z AUTO 02007KT SCT050 SCT060 22/19 A3000 RMK AO2 PWINOKOBE2019-09-20T00:35:00Z27.27-80.8522.019.020730.0TRUETRUETRUEMETAR11.02019-09-20 00:46:06K=) 5    3KOEB 200035Z AUTO 00000KT 10SM CLR 18/14 A3011 RMK AO2 T01770136KOEB2019-09-20T00:35:00Z41.92-85.0317.713.60010.030.109253TRUETRUEVFRMETAR292.02019-09-20 00:46:06N<)5    3KOJA 200035Z AUTO 14008KT 10SM CLR 27/18 A2992 RMK AO2 LTG DSNT WKOJA2019-09-20T00:35:00Z35.55-98.6727.018.0140810.029.920275TRUETRUEVFRMETAR490.02019-09-20 00:46:06 (Zl?C(y5    3KBOW 200035Z AUTO 06005KT 10SM CLR 25/19 A3002 RMK AO2KBOW2019-09-20T00:35:00Z27.93-81.7725.019.060510.030.02067TRUETRUEVFRMETAR39.02019-09-20 00:46:06hB)15     3KBPC 200035Z AUTO 29017G20KT 7SM RA SCT022 BKN042 OVC050 18/17 A3007 RMK AO2 P0009KBPC2019-09-20T00:35:00Z35.88-101.0318.017.029017207.030.070866TRUETRUERAVFR0.09METAR845.02019-09-20 00:46:06HA) 5    3KMNE 200035Z AUTO 00000KT 10SM CLR 25/20 A2998 RMK AO2 T02450195KMNE2019-09-20T00:35:00Z32.65-93.324.519.50010.029.97933TRUETRUEVFRMETAR85.02019-09-20 00:46:06R@)5   3KMNZ 200035Z AUTO 08012G17KT 10SM CLR 29/21 A2987 RMK AO2 T02890206KMNZ2019-09-20T00:35:00Z31.67-98.1528.920.680121710.029.870079TRUETRUEVFRSPECI396.02019-09-20 00:46:06 8fBG(y5    3KBAC 200035Z AUTO 10008KT 10SM CLR 22/18 A2994 RMK AO2KBAC2019-09-20T00:35:00Z46.93-98.0222.018.0100810.029.940945TRUETRUEVFRSPECI427.02019-09-20 00:46:06MF) 5    3KBCB 200035Z AUTO 11004KT 10SM CLR 15/11 A3034 RMK AO2 T01510107KBCB2019-09-20T00:35:00Z37.22-80.4215.110.7110410.030.339567TRUETRUEVFRMETAR650.02019-09-20 00:46:06LE) 5    3KBEC 200035Z AUTO 14007KT 10SM CLR 27/20 A2993 RMK AO2 T02730197KBEC2019-09-20T00:35:00Z37.7-97.2227.319.7140710.029.929134TRUETRUEVFRMETAR429.02019-09-20 00:46:06BD(y5    3KBKN 200035Z AUTO 10006KT 10SM CLR 28/22 A2993 RMK AO2KBKN2019-09-20T00:35:00Z36.75-97.3528.022.0100610.029.929134TRUETRUEVFRMETAR314.02019-09-20 00:46:06 )dCK(y5    3KY19 200035Z AUTO 12010KT 10SM CLR 22/16 A2986 RMK AO2KY192019-09-20T00:35:00Z46.77-100.922.016.01201010.029.861221TRUETRUEVFRMETAR593.02019-09-20 00:46:06MJ) 5    3KY70 200035Z AUTO 14004KT 10SM CLR 21/15 A3009 RMK AO2 T02110145KY702019-09-20T00:35:00Z42.93-85.0721.114.5140410.030.088583TRUETRUEVFRSPECI250.02019-09-20 00:46:06?I)5   3KAVC 200035Z AUTO 00000KT CLR 15/12 A3034 RMK AO2 T01490115KAVC2019-09-20T00:35:00Z36.68-78.0314.911.50030.339567TRUETRUEMETAR135.02019-09-20 00:46:06QH)5     3KAXS 200035Z AUTO 12013KT 5SM HZ CLR 28/18 A2991 RMK AO2 T02760180KAXS2019-09-20T00:35:00Z34.7-99.3327.618.0120135.029.911417TRUETRUEHZMVFRMETAR437.02019-09-20 00:46:06 2WJO)5    3KW75 200035Z AUTO 00000KT 10SM SCT041 15/12 A3031 RMK AO1 T01470115KW752019-09-20T00:35:00Z37.6-76.4514.711.50010.030.31004TRUETRUEVFRMETAR9.02019-09-20 00:46:06HN) 5    3KW96 200035Z AUTO 00000KT 10SM CLR 15/12 A3031 RMK AO1 T01450116KW962019-09-20T00:35:00Z37.5-77.1214.511.60010.030.31004TRUETRUEVFRMETAR37.02019-09-20 00:46:06UM)!5    3KX60 200035Z AUTO 05009KT 10SM SCT070 OVC085 23/20 A3009 RMK AO2 T02320196KX602019-09-20T00:35:00Z29.35-82.4723.219.650910.030.088583TRUETRUEVFRMETAR23.02019-09-20 00:46:06HL) 5    3KXSA 200035Z AUTO 00000KT 10SM CLR 12/12 A3031 RMK AO2 T01210118KXSA2019-09-20T00:35:00Z37.87-76.912.111.80010.030.31004TRUETRUEVFRMETAR42.02019-09-20 00:46:06 9iXS)%5    3KVTP 200035Z AUTO 25004KT 10SM SCT075 SCT085 13/00 A3029 RMK AO2 LTG DSNT NWKVTP2019-09-20T00:35:00Z37.5-105.1713.00.0250410.030.28937TRUETRUEVFRSPECI3114.02019-09-20 00:46:06IR) 5    3KW13 200035Z AUTO 00000KT 10SM CLR 15/10 A3031 RMK AO1 T01460096KW132019-09-20T00:35:00Z38.08-78.9514.69.60010.030.31004TRUETRUEVFRMETAR443.02019-09-20 00:46:06JQ) 5    3KW31 200035Z AUTO 00000KT 10SM CLR 14/11 A3029 RMK AO1 T01400112KW312019-09-20T00:35:00Z36.95-78.1814.011.20010.030.28937TRUETRUEVFRMETAR162.02019-09-20 00:46:06AP(y5    3KW63 200035Z AUTO 11004KT 10SM CLR 18/10 A3028 RMK AO1KW632019-09-20T00:35:00Z36.6-78.5518.010.0110410.030.280512TRUETRUEVFRMETAR129.02019-09-20 00:46:06 :g?W(y5    3KUKF 200035Z AUTO 00000KT 10SM CLR 13/13 A3032 RMK AO2KUKF2019-09-20T00:35:00Z36.22-81.113.013.00010.030.318897TRUETRUEVFRMETAR396.02019-09-20 00:46:06BV({5    3KUTA 200035Z AUTO 14005KT 10SM 26/21 A3002 RMK AO2 TSNOKUTA2019-09-20T00:35:00Z34.68-90.3526.021.0140510.030.02067TRUETRUETRUEMETAR59.02019-09-20 00:46:06MU) 5    3KUVA 200035Z AUTO 13007KT 10SM CLR 35/17 A2977 RMK AO2 T03470172KUVA2019-09-20T00:35:00Z29.22-99.7534.717.2130710.029.769686TRUETRUEVFRSPECI287.02019-09-20 00:46:06@T(y5    3KUYF 200035Z AUTO 00000KT 10SM CLR 22/18 A3012 RMK AO2KUYF2019-09-20T00:35:00Z39.93-83.4722.018.00010.030.121063TRUETRUEVFRSPECI330.02019-09-20 00:46:06 7^A[(5    3KTPF 200035Z AUTO 06009KT 10SM OVC110 27/19 A3002 RMK AO2KTPF2019-09-20T00:35:00Z27.92-82.4527.019.060910.030.02067TRUETRUEVFRMETAR3.02019-09-20 00:46:06VZ)5   3KTQK 200035Z AUTO 29008G17KT 10SM SCT055 25/15 A2992 RMK AO1 T02480147KTQK2019-09-20T00:35:00Z38.47-100.8824.814.729081710.029.920275TRUETRUEVFRMETAR904.02019-09-20 00:46:06SY)5   3KU42 200035Z AUTO 30014G20KT 10SM CLR 17/04 A2985 RMK AO1 T01710042KU422019-09-20T00:35:00Z40.62-111.9817.14.2300142010.029.84941TRUETRUEVFRSPECI1402.02019-09-20 00:46:06CX({5    3KU68 200035Z AUTO 33009G20KT 10SM CLR 21/ A2977 RMK AO2KU682019-09-20T00:35:00Z44.92-108.4521.033092010.029.769686TRUETRUEVFRMETAR1247.02019-09-20 00:46:06 -\M`) 5    3KTEW 200035Z AUTO 10009KT 10SM CLR 19/14 A3012 RMK AO2 T01850140KTEW2019-09-20T00:35:00Z42.57-84.4218.514.0100910.030.121063TRUETRUEVFRMETAR280.02019-09-20 00:46:068_(q5   3KTKX 200035Z AUTO 06004KT 10SM 28/20 A2998 RMK AO2KTKX2019-09-20T00:35:00Z36.22-90.0228.020.060410.029.97933TRUETRUEMETAR80.02019-09-20 00:46:062^(m5     3KTMA 200035Z AUTO 00000KT 10SM CLR A3012 RMK AO2KTMA2019-09-20T00:35:00Z31.43-83.480010.030.121063TRUETRUEVFRSPECI109.02019-09-20 00:46:06K]) 5    3KTME 200035Z AUTO 16010KT 10SM FEW085 OVC110 24/23 A2988 RMK AO2KTME2019-09-20T00:35:00Z29.8-95.924.023.01601010.029.878937TRUETRUEVFRSPECI51.02019-09-20 00:46:06M\)5    3KTNB 200035Z AUTO 00000KT 10SM OVC018 13/12 A3033 RMK AO2 T01310122KTNB2019-09-20T00:35:00Z36.2-81.6513.112.20010.030.33071TRUETRUEMVFRMETAR911.02019-09-20 00:46:06Y88@HPX`hpx (08@HPX`hpx (08@HPX`hpx)K*P+U,Y-].a/e0i1m2r3v4{)K*P+U,Y-].a/e0i1m2r3v4{5678 9:;<=>#?'@+A/B3C7D;E?FCGGHKIOJSKWL[M`OdPhQlRpStTxU|VWXY Z[\]^!_%`)a-b1c5d9e=fAgEhIiMjQkUlYm]naoepiqmrqsutyu}vwx y z{|}~!%)-1 :xId(5   3KPAN 200035Z AUTO 22010G18KT 10SM CLR 26/02 A2996 RMK AO2KPAN2019-09-20T00:35:00Z34.25-111.3326.02.0220101810.029.958662TRUETRUEVFRSPECI1572.02019-09-20 00:46:06Mc) 5    3KPEX 200035Z AUTO 11003KT 10SM CLR 23/19 A2999 RMK AO2 T02260187KPEX2019-09-20T00:35:00Z45.37-94.7322.618.7110310.029.991142TRUETRUEVFRMETAR360.02019-09-20 00:46:06_Q9)5   3KBKS 200035Z AUTO 15011G15KT 10SM CLR 33/23 A2978 RMK AO1 T03310230KBKS2019-09-20T00:35:00Z27.2-98.1233.123.0150111510.029.778543TRUETRUEVFRMETAR34.02019-09-20 00:46:06Y8)'5   3KBQK 200035Z AUTO 05009G15KT 10SM BKN065 OVC080 24/17 A3014 RMK AO2 T02360169KBQK2019-09-20T00:35:00Z31.25-81.4723.616.95091510.030.138779TRUETRUEVFRSPECI8.02019-09-20 00:46:06i7)=5   3KBRG 200035Z AUTO 19015G24KT 10SM SCT110 27/02 A2997 RMK AO2 LTG DSNT E AND NW T02710018KBRG2019-09-20T00:35:00Z34.65-106.8327.11.8190152410.029.970472TRUETRUEVFRSPECI1585.02019-09-20 00:46:06M6) 5    3KBTA 200035Z AUTO 13006KT 10SM CLR 27/21 A2993 RMK AO2 T02660212KBTA2019-09-20T00:35:00Z41.42-96.1226.621.2130610.029.929134TRUETRUEVFRSPECI396.02019-09-20 00:46:06 -nU=)#5    3KAXH 200035Z AUTO 00000KT 10SM CLR 23/23 A2989 RMK AO2 LTG DSNT W T02310230KAXH2019-09-20T00:35:00Z29.52-95.4823.123.00010.029.890747TRUETRUEVFRMETAR21.02019-09-20 00:46:06K<)5   3KAZC 200035Z AUTO 23015G26KT 10SM CLR 27/M08 A2985 RMK AO2KAZC2019-09-20T00:35:00Z36.97-113.0227.0-8.0230152610.029.84941TRUETRUEVFRMETAR1486.02019-09-20 00:46:069;({5     3KBEA 200035Z AUTO 10SM CLR 32/26 RMK AO2 T03150258 TSNOKBEA2019-09-20T00:35:00Z28.37-97.7831.525.810.0TRUETRUETRUEVFRMETAR82.02019-09-20 00:46:06M:) 5    3KBIE 200035Z AUTO 14006KT 10SM CLR 29/22 A2991 RMK AO2 T02880220KBIE2019-09-20T00:35:00Z40.28-96.7528.822.0140610.029.911417TRUETRUEVFRSPECI403.02019-09-20 00:46:06 (bUA)+5    3KAPS 200035Z AUTO 19009KT 10SM SCT039 28/22 A3000 RMK AO2 LTG DSNT NW T02810220KAPS2019-09-20T00:35:00Z30.08-90.5828.122.0190910.030.0TRUETRUEVFRSPECI2.02019-09-20 00:46:06W@)!5    3KAPY 200035Z AUTO 16007KT 10SM BKN060 BKN080 35/20 A2976 RMK AO2 T03480195KAPY2019-09-20T00:35:00Z26.97-99.2534.819.5160710.029.760826TRUETRUEVFRMETAR129.02019-09-20 00:46:06@?(y5    3KASW 200035Z AUTO 00000KT 10SM CLR 18/15 A3009 RMK AO2KASW2019-09-20T00:35:00Z41.27-85.8318.015.00010.030.088583TRUETRUEVFRSPECI259.02019-09-20 00:46:06R>)5   3KAVQ 200035Z AUTO 23011G14KT 10SM CLR 35/02 A2974 RMK AO2 T03480024KAVQ2019-09-20T00:35:00Z32.4-111.2234.82.4230111410.029.740158TRUETRUEVFRMETAR619.02019-09-20 00:46:06 BpCE(y5    3KA39 200035Z AUTO 26010KT 10SM CLR 36/07 A2972 RMK AO2KA392019-09-20T00:35:00Z32.98-111.9236.07.02601010.029.719488TRUETRUEVFRMETAR396.02019-09-20 00:46:06[D)%5    3KAEJ 200035Z AUTO 22005KT 10SM CLR 21/M04 A3007 RMK AO2 LTG DSNT S T02111039KAEJ2019-09-20T00:35:00Z38.82-106.1221.1-3.9220510.030.070866TRUETRUEVFRMETAR2422.02019-09-20 00:46:06LC) 5    3KAFK 200035Z AUTO 14005KT 10SM CLR 27/24 A2994 RMK AO2 T02710235KAFK2019-09-20T00:35:00Z40.6-95.8527.123.5140510.029.940945TRUETRUEVFRSPECI354.02019-09-20 00:46:068B(u5   3KAFP 200035Z AUTO 10SM 18/10 A3024 RMK AO2 T01810104KAFP2019-09-20T00:35:00Z35.02-80.0818.110.410.030.239174TRUETRUESPECI92.02019-09-20 00:46:06 1b@I(y5    3K6A2 200035Z AUTO 00000KT 10SM CLR 22/11 A3018 RMK AO2K6A22019-09-20T00:35:00Z33.23-84.2722.011.00010.030.180119TRUETRUEVFRSPECI292.02019-09-20 00:46:06LH) 5    3K7W4 200035Z AUTO 15004KT 10SM CLR 15/09 A3030 RMK AO1 T01450089K7W42019-09-20T00:35:00Z37.97-77.7514.58.9150410.030.301182TRUETRUEVFRSPECI106.02019-09-20 00:46:06IG) 5    3K82C 200035Z AUTO 00000KT 7SM CLR 20/20 A3004 RMK AO2 T02030199K82C2019-09-20T00:35:00Z43.83-90.1320.319.9007.030.041338TRUETRUEVFRSPECI276.02019-09-20 00:46:06IF) 5    3K9A5 200035Z AUTO 00000KT 7SM CLR 23/14 A3016 RMK AO2 T02290142K9A52019-09-20T00:35:00Z34.68-85.2822.914.2007.030.159449TRUETRUEVFRSPECI237.02019-09-20 00:46:06 rBrJM) 5    3K57C 200035Z AUTO 00000KT 10SM CLR 20/20 A3006 RMK AO2 T01980198K57C2019-09-20T00:35:00Z42.8-88.3719.819.80010.030.059055TRUETRUEVFRSPECI262.02019-09-20 00:46:06KL) 5    3K5M9 200035Z AUTO 00000KT 10SM CLR 26/17 A3004 RMK AO2 T02560170K5M92019-09-20T00:35:00Z37.33-88.1225.617.00010.030.041338TRUETRUEVFRSPECI199.02019-09-20 00:46:06bK)75     3K5R8 200035Z AUTO 00000KT 10SM -DZ SCT055 SCT070 SCT120 24/23 A2995 RMK AO2 T02350226K5R82019-09-20T00:35:00Z30.43-93.4723.522.60010.029.949802TRUETRUE-DZVFRSPECI24.02019-09-20 00:46:06J)_5      3K66R 200035Z AUTO 10005KT 10SM VCTSRA SCT011 SCT019 OVC110 22/20 A2987 RMK AO2 LTG DSNT W P0002 T02230201K66R2019-09-20T00:35:00Z29.65-96.5222.320.1100510.029.870079TRUETRUEVCTSRAVFR0.02METAR74.02019-09-20 00:46:06 -]MQ) 5    3K1K1 200035Z AUTO 15004KT 10SM CLR 27/20 A2994 RMK AO2 T02660200K1K12019-09-20T00:35:00Z37.77-97.1226.620.0150410.029.940945TRUETRUEVFRSPECI416.02019-09-20 00:46:065P(s5     3K3F3 200035Z AUTO 10003KT 10SM BKN095 A2998 RMK AO2K3F32019-09-20T00:35:00Z32.07-93.77100310.029.97933TRUETRUEVFRSPECI96.02019-09-20 00:46:06JO) 5    3K4R5 200035Z AUTO 00000KT 10SM CLR 15/15 A3002 RMK AO2 T01490145K4R52019-09-20T00:35:00Z46.78-90.7714.914.50010.030.02067TRUETRUEVFRSPECI198.02019-09-20 00:46:06MN) 5    3K4V0 200035Z AUTO 19007KT 10SM CLR 26/00 A2978 RMK AO2 T02620000K4V02019-09-20T00:35:00Z40.1-108.7726.20.0190710.029.778543TRUETRUEVFRMETAR1608.02019-09-20 00:46:06 &TNU) 5    3KSVC 200035Z AUTO 11009KT 10SM CLR 24/10 A3002 RMK AO2 T02350100KSVC2019-09-20T00:35:00Z32.63-108.1523.510.0110910.030.02067TRUETRUEVFRSPECI1659.02019-09-20 00:46:06MT) 5    3KSVH 200035Z AUTO 32003KT 10SM CLR 18/13 A3025 RMK AO2 T01790126KSVH2019-09-20T00:35:00Z35.75-80.9517.912.6320310.030.250984TRUETRUEVFRSPECI294.02019-09-20 00:46:06LS) 5    3K13K 200035Z AUTO 12005KT 10SM CLR 26/21 A2995 RMK AO2 T02600208K13K2019-09-20T00:35:00Z37.85-96.326.020.8120510.029.949802TRUETRUEVFRSPECI369.02019-09-20 00:46:06TR)5   3K19S 200035Z AUTO 16016G20KT 10SM CLR 27/17 A2994 RMK AO2 T02660174K19S2019-09-20T00:35:00Z37.48-100.8326.617.4160162010.029.940945TRUETRUEVFRSPECI886.02019-09-20 00:46:06 -iPY)5    3KSEP 200035Z AUTO 09010KT 10SM SCT029 27/21 A2990 RMK AO2 T02680205KSEP2019-09-20T00:35:00Z32.22-98.1726.820.5901010.029.899607TRUETRUEVFRMETAR402.02019-09-20 00:46:06ZX)%5     3KSLR 200035Z AUTO 11009KT 3SM BR BKN008 OVC012 24/22 A2991 RMK AO2 T02350216KSLR2019-09-20T00:35:00Z33.17-95.6223.521.611093.029.911417TRUETRUEBRIFRSPECI149.02019-09-20 00:46:06>W(y5    3KSMS 200035Z AUTO 00000KT 10SM CLR 19/11 A3022 RMK AO2KSMS2019-09-20T00:35:00Z34.0-80.3719.011.00010.030.221457TRUETRUEVFRSPECI56.02019-09-20 00:46:06MV) 5    3KSNK 200035Z AUTO 10008KT 10SM CLR 31/15 A2987 RMK AO2 T03130149KSNK2019-09-20T00:35:00Z32.7-100.9531.314.9100810.029.870079TRUETRUEVFRSPECI741.02019-09-20 00:46:06 8cE]({5    3KSAA 200035Z AUTO 18009KT 10SM CLR 24/M05 A2995 RMK AO2KSAA2019-09-20T00:35:00Z41.45-106.8324.0-5.0180910.029.949802TRUETRUEVFRSPECI2138.02019-09-20 00:46:06K\) 5    3KSAR 200035Z AUTO 11003KT 10SM CLR 25/20 A3002 RMK AO2 T02500198KSAR2019-09-20T00:35:00Z38.15-89.725.019.8110310.030.02067TRUETRUEVFRMETAR164.02019-09-20 00:46:06O[)5    3KSCD 200035Z AUTO 12003KT 10SM OVC110 25/16 A3012 RMK AO2 T02520155KSCD2019-09-20T00:35:00Z33.17-86.325.215.5120310.030.121063TRUETRUEVFRSPECI173.02019-09-20 00:46:06BZ(y5    3KSDA 200035Z AUTO 10005KT 10SM CLR 26/23 A2993 RMK AO2KSDA2019-09-20T00:35:00Z40.75-95.4226.023.0100510.029.929134TRUETRUEVFRSPECI296.02019-09-20 00:46:06 4azKa) 5    3KRSV 200035Z AUTO 00000KT 10SM CLR 20/19 A3005 RMK AO2 T02020191KRSV2019-09-20T00:35:00Z39.02-87.6520.219.10010.030.050198TRUETRUEVFRSPECI141.02019-09-20 00:46:06a`)95    3KRYW 200035Z AUTO 10007KT 10SM BKN080 OVC100 27/23 A2985 RMK AO2 LTG DSNT SE T02700226KRYW2019-09-20T00:35:00Z30.5-97.9727.022.6100710.029.84941TRUETRUEVFRSPECI376.02019-09-20 00:46:06M_) 5   3KS25 200035Z AUTO 10/64000011G18KT 10SM CLR 24/14 A2977 RMK AO2KS252019-09-20T00:35:00Z47.8-103.2524.014.00111810.029.769686TRUETRUEVFRMETAR644.02019-09-20 00:46:06F^(5    3KS33 200035Z AUTO 30012KT 10SM SCT070 17/05 A3005 RMK AO2KS332019-09-20T00:35:00Z44.67-121.1517.05.03001210.030.050198TRUETRUEVFRSPECI743.02019-09-20 00:46:06 :rfe)/5      3PADK 200034Z AUTO 35014KT 5SM -RA BR OVC005 10/09 A2968 RMK AO2 CIG 004V007 P0001PADK2019-09-20T00:34:00Z51.88-176.6510.09.0350145.029.681103TRUETRUE-RA BRIFR0.01METAR4.02019-09-20 00:46:06Kd)5    3PATA 200034Z 22003KT 10SM FEW020 SCT026 07/03 A2968 RMK AO2 T00720028PATA2019-09-20T00:34:00Z65.17-152.17.22.8220310.029.681103TRUEVFRSPECI67.02019-09-20 00:46:06Bc(y5    3KONP 200035Z AUTO 29003KT 10SM CLR 17/15 A3014 RMK AO2KONP2019-09-20T00:35:00Z44.57-124.0317.015.0290310.030.138779TRUETRUEVFRMETAR48.02019-09-20 00:46:06@b(y5    3KOMH 200035Z AUTO 00000KT 10SM CLR 12/10 A3030 RMK AO2KOMH2019-09-20T00:35:00Z38.25-78.0512.010.00010.030.301182TRUETRUEVFRSPECI142.02019-09-20 00:46:06 5n[i)%5     3PAGM 200034Z AUTO 05008KT 10SM BKN019 OVC050 05/02 A2973 RMK AO2 RAE08 P0000PAGM2019-09-20T00:34:00Z63.77-171.735.02.050810.029.731298TRUETRUEMVFR0.005METAR8.02019-09-20 00:46:06ih)E5    3CYHE 200034Z AUTO 31006G16KT 240V350 9SM -RA OVC050 17/13 A3000 RMK SLP162 DENSITY ALT 300FTCYHE2019-09-20T00:34:00Z49.37-121.517.013.03106169.030.01016.2TRUE-RAVFRSPECI39.02019-09-20 00:46:06Ag(w5   3YMEK 200034Z AUTO 12016G26KT 9999 // NCD 12/M05 Q1025YMEK2019-09-20T00:34:00Z-26.62118.5512.0-5.012016266.2130.265747TRUEVFRSPECI522.02019-09-20 00:46:06Ef(5    3KOWA 200034Z AUTO 15006KT 10SM SCT048 23/19 A3001 RMK AO2KOWA2019-09-20T00:34:00Z44.12-93.2523.019.0150610.030.008858TRUETRUEVFRMETAR350.02019-09-20 00:46:06 6mpNm) 5    3KEIK 200033Z AUTO 32007KT 10SM CLR 25/03 A2990 RMK AO2 T02470030KEIK2019-09-20T00:33:00Z40.02-105.0524.73.0320710.029.899607TRUETRUEVFRSPECI1564.02019-09-20 00:46:06wl)S5     3KCVN 200033Z AUTO 09011KT 10SM FEW075 SCT110 19/16 A2997 RMK AO2 LTG DSNT NE AND E TSE27RAE28 P0000KCVN2019-09-20T00:33:00Z34.42-103.0719.016.0901110.029.970472TRUETRUEVFR0.005METAR1284.02019-09-20 00:46:06Ck)5    3MRLB 200033Z 12014KT 100V160 9999 BKN030 26/21 A2981 NOSIGMRLB2019-09-20T00:33:00Z10.6-85.5526.021.0120146.2129.811024TRUEMVFRSPECI82.02019-09-20 00:46:06Dj) 5    3KSDM 200033Z VRB04KT 10SM SCT017 20/14 A2985 RMK AO2 T02000144KSDM2019-09-20T00:33:00Z32.58-117.020.014.40410.029.84941TRUEVFRMETAR159.02019-09-20 00:46:06 +\pq)G5     3OTBH 200032Z 30003KT 4000 BR CLR 29/24 A2970 RMK AO2A SLP058 WND DATA ESTMD ALSTG/SLP ESTMD $OTBH2019-09-20T00:32:00Z25.1251.3229.024.030032.4929.6988181005.8TRUETRUEBRIFRMETAR40.02019-09-20 00:46:06Vp)5   3KCCU 200033Z AUTO 13012G17KT 10SM SCT070 SCT085 13/M01 A3037 RMK AO2KCCU2019-09-20T00:33:00Z39.48-106.1513.0-1.0130121710.030.369095TRUETRUEVFRSPECI3680.02019-09-20 00:46:06Io(5   3KMNH 200033Z AUTO 17013G21KT 10SM CLR 22/00 A3003 RMK AO2KMNH2019-09-20T00:33:00Z39.22-104.6522.00.0170132110.030.029528TRUETRUEVFRSPECI2152.02019-09-20 00:46:06On)5    3KMYP 200033Z AUTO 10SM SCT070 SCT085 11/M05 A3048 RMK AO2 LTG DSNT SKMYP2019-09-20T00:33:00Z38.48-106.3211.0-5.010.030.481298TRUETRUEVFRSPECI3667.02019-09-20 00:46:06 '^wUu) 5    3KHFF 200031Z AUTO 12003KT 10SM CLR 18/11 A3025 RMK AO2 SLP258 $KHFF2019-09-20T00:31:00Z35.02-79.518.011.0120310.030.2509841025.8TRUETRUETRUEVFRMETAR115.02019-09-20 00:46:06at)-5    3KCPW 200032Z AUTO 19009G16KT 10SM VCTS CLR 07/00 A3044 RMK AO2 LTG DSNT S AND SWKCPW2019-09-20T00:32:00Z37.45-106.87.00.019091610.030.43996TRUETRUEVCTSVFRSPECI3584.02019-09-20 00:46:06Cs(y5    3KBDU 200032Z AUTO 31005KT 10SM CLR 25/03 A2986 RMK AO2KBDU2019-09-20T00:32:00Z40.03-105.2325.03.0310510.029.861221TRUETRUEVFRMETAR1612.02019-09-20 00:46:06Sr)5   3K4BM 200032Z AUTO 21008G19KT 180V250 10SM CLR 12/M03 A3036 RMK AO2K4BM2019-09-20T00:32:00Z39.05-105.5212.0-3.021081910.030.360237TRUETRUEVFRMETAR3438.02019-09-20 00:46:06 Ex2y(g5    3ZYTL 200030Z VRB02MPS CAVOK 23/13 Q1018 NOSIGZYTL2019-09-20T00:30:00Z38.97121.5323.013.0046.2130.059055TRUEVFRMETAR97.02019-09-20 00:46:06Gx)5    3UKLL 200030Z 29003MPS 250V320 9999 BKN046 06/05 Q1023 R31/D NOSIGUKLL2019-09-20T00:30:00Z49.8223.936.05.029066.2130.206694TRUEVFRMETAR325.02019-09-20 00:46:06Rw)5    3K7BM 200031Z AUTO 18005KT 10SM CLR 17/M07 A3022 RMK AO2 LTG DSNT SWK7BM2019-09-20T00:31:00Z38.78-106.2217.0-7.0180510.030.221457TRUETRUEVFRMETAR2995.02019-09-20 00:46:06]v)-5     3KBKB 200031Z AUTO 00000KT 9SM FEW006 23/22 A2994 RMK AO2 RAE2357 P0000 T02330222KBKB2019-09-20T00:31:00Z31.0-92.9223.322.2009.029.940945TRUETRUEVFR0.005METAR94.02019-09-20 00:46:06 6g;}(u5     3WBGG 200030Z VRB02KT 0400 HZ VV/// 26/25 Q1011 NOSIGWBGG2019-09-20T00:30:00Z1.47110.3526.025.0020.2529.852362TRUEHZLIFRMETAR27.02019-09-20 00:46:06H|)5    3WBKK 200030Z 12005KT 070V160 6000 FEW015 BKN270 29/23 Q1011 NOSIGWBKK2019-09-20T00:30:00Z5.92116.0329.023.012053.7329.852362TRUEMVFRMETAR3.02019-09-20 00:46:06I{)5    3UUOO 200030Z 24003MPS CAVOK 06/04 Q1015 R30/090070 NOSIG RMK QFE747UUOO2019-09-20T00:30:00Z51.8239.236.04.024066.2129.970472TRUEVFRMETAR157.02019-09-20 00:46:06Dz)5     3NZAA 200030Z AUTO 19008KT 9999 OVC044/// 15/09 Q1033 NOSIGNZAA2019-09-20T00:30:00Z-37.02174.815.09.019086.2130.501968TRUETRUEVFRMETAR6.02019-09-20 00:46:06 3^C)5     3WBSB 200030Z 05002KT 3000 HZ FEW015 BKN300 29/26 Q1012 NOSIGWBSB2019-09-20T00:30:00Z4.92114.9229.026.05021.8629.88189TRUEHZIFRMETAR15.02019-09-20 00:46:06S)#5     3WMKK 200030Z 34003KT 290V030 3500 HZ FEW018 SCT140 BKN280 26/23 Q1012 NOSIGWMKK2019-09-20T00:30:00Z2.75101.7226.023.034032.1729.88189TRUEHZIFRMETAR22.02019-09-20 00:46:06O)5     3NZWN 200030Z AUTO 17016KT 9999 FEW016/// OVC055/// 12/09 Q1037 NOSIGNZWN2019-09-20T00:30:00Z-41.32174.812.09.0170166.2130.620079TRUETRUEVFRMETAR7.02019-09-20 00:46:06G~)5     3NZCH 200030Z AUTO 20010KT 9999 BKN060/// 13/06 Q1038 NOSIGNZCH2019-09-20T00:30:00Z-43.47172.5513.06.0200106.2130.649607TRUETRUEVFRMETAR34.02019-09-20 00:46:06 AzY)35    3USCM 200030Z 23003MPS 200V270 6000 OVC026CB 08/03 Q1010 R18/090065 NOSIG RMK QFE720USCM2019-09-20T00:30:00Z53.458.758.03.023063.7329.822834TRUEMVFRMETAR435.02019-09-20 00:46:06S)#5    3UIAA 200030Z 17003MPS 9999 NSC 10/04 Q1022 R29/CLRD70 NOSIG RMK QFE708/0944UIAA2019-09-20T00:30:00Z52.02113.3210.04.017066.2130.177166TRUEVFRMETAR685.02019-09-20 00:46:06A)5   3YPGV 200030Z 12007KT 070V150 9999 SCT025 27/20 Q1016 RF00.0/000.0YPGV2019-09-20T00:30:00Z-12.27136.8227.020.012076.2130.0VFRMETAR55.02019-09-20 00:46:069(o5     3LFRZ 200030Z AUTO 07013KT CAVOK 14/04 Q1022 NOSIGLFRZ2019-09-20T00:30:00Z47.32-2.1714.04.070136.2130.177166TRUETRUEVFRMETAR4.02019-09-20 00:46:06 t LtR )#5    3UIBB 200030Z 20002MPS 9999 NSC 11/08 Q1017 R30/290150 NOSIG RMK QFE719/0959UIBB2019-09-20T00:30:00Z56.37101.711.08.020046.2130.029528TRUEVFRMETAR490.02019-09-20 00:46:06M)5    3UIII 200030Z 09002MPS CAVOK 09/09 Q1022 R12/CLRD60 NOSIG RMK QFE724/0965UIII2019-09-20T00:30:00Z52.27104.49.09.09046.2130.177166TRUEVFRMETAR513.02019-09-20 00:46:06{)o5     3UIUU 200030Z VRB01MPS 0150 0100NW R08/M0200N FG VV001 04/03 Q1025 R08/CLRD60 NOSIG RMK QBB050 MT OBSC QFE723/0964UIUU2019-09-20T00:30:00Z51.8107.454.03.0020.0930.265747TRUEFGLIFR100METAR515.02019-09-20 00:46:06Z)55    3UUYY 200030Z 27002MPS 220V320 9999 FEW026 00/M00 Q1006 R36/61D NOSIG RMK QFE746/0994UUYY2019-09-20T00:30:00Z61.6550.820.00.027046.2129.704725TRUEVFRMETAR119.02019-09-20 00:46:06 {?S{R )5     3VTBU 200030Z 32004KT 6000 -SHRA FEW018 SCT035 BKN100 26/23 Q1009 NOSIGVTBU2019-09-20T00:30:00Z12.68101.026.023.032043.7329.793306TRUE-SHRAMVFRMETAR5.02019-09-20 00:46:06f )?5   3VOVZ 200030Z 02005KT 3000 -TSRA FEW010 SCT012 FEW025CB BKN080 25/25 Q1008 TEMPO 2500 TSRAVOVZ2019-09-20T00:30:00Z17.7583.2225.025.02051.8629.763779-TSRABKN8000IFRMETAR5.02019-09-20 00:46:06N )5    3UHMM 200030Z 26001MPS 9999 FEW046 13/03 Q1013 R10/70D NOSIG RMK QFE745UHMM2019-09-20T00:30:00Z59.92150.7213.03.026026.2129.911417TRUEVFRMETAR175.02019-09-20 00:46:06g )M5    3UHSS 200030Z 32002MPS 250V050 9999 SCT033CB 12/07 Q1008 R01/250065 NOSIG RMK MT OBSC QFE754/1006UHSS2019-09-20T00:30:00Z46.88142.7212.07.032046.2129.763779TRUEVFRMETAR31.02019-09-20 00:46:06 .f@)5    3VEBS 200030Z 00000KT 4000 HZ FEW018 26/26 Q1008 BECMG 5000 HZVEBS2019-09-20T00:30:00Z20.2585.8226.026.0002.4929.763779HZIFRMETAR46.02019-09-20 00:46:06V))5     3ULLI 200030Z 27003MPS 9999 -SHRA SCT023CB BKN043 05/03 Q1013 R28L/290050 NOSIGULLI2019-09-20T00:30:00Z59.830.275.03.027066.2129.911417TRUE-SHRAVFRMETAR4.02019-09-20 00:46:06B)5    3LEMD 200030Z 33004KT 300V360 9999 SCT075 19/15 Q1018 NOSIGLEMD2019-09-20T00:30:00Z40.48-3.5719.015.033046.2130.059055TRUEVFRMETAR582.02019-09-20 00:46:06L)5     3VANP 200030Z 07002KT 3000 HZ FEW020 SCT025 BKN100 25/24 Q1009 NOSIGVANP2019-09-20T00:30:00Z21.0879.0525.024.07021.8629.793306TRUEHZIFRMETAR310.02019-09-20 00:46:06 ?~G)5    3UUDL 200030Z 29001MPS CAVOK 03/02 Q1012 R23/010060 NOSIG RMK QFE751UUDL2019-09-20T00:30:00Z57.5740.173.02.029026.2129.88189TRUEVFRMETAR88.02019-09-20 00:46:06H)5    3UUEE 200030Z 00000MPS CAVOK 04/04 Q1012 R24L/CLRD62 R24R/290051 NOSIGUUEE2019-09-20T00:30:00Z55.9737.424.04.0006.2129.88189TRUEVFRMETAR190.02019-09-20 00:46:06;(}5    3UUWW 200030Z 26002MPS CAVOK 04/03 Q1012 R24/290050 NOSIGUUWW2019-09-20T00:30:00Z55.637.274.03.026046.2129.88189TRUEVFRMETAR203.02019-09-20 00:46:06;(5    3UUDD 200030Z 32003MPS CAVOK 05/04 Q1012 R32L/290042 NOSIGUUDD2019-09-20T00:30:00Z55.437.95.04.032066.2129.88189TRUEVFRMETAR168.02019-09-20 00:46:06 SW))5   3USRR 200030Z 20007G12MPS 9999 BKN017CB 09/08 Q0977 R25/250350 NOSIG RMK QFE727USRR2019-09-20T00:30:00Z61.3373.429.08.020014236.2128.848425TRUEMVFRMETAR44.02019-09-20 00:46:06J)5    3USNN 200030Z 20007MPS CAVOK 10/08 Q0981 R21/250252 NOSIG RMK QFE731USNN2019-09-20T00:30:00Z60.9576.4810.08.0200146.2128.966536TRUEVFRMETAR54.02019-09-20 00:46:06F) 5    3UWUU 200030Z 21005MPS 9999 BKN033 08/06 Q1009 R32L/0///60 NOSIGUWUU2019-09-20T00:30:00Z54.5755.878.06.0210106.2129.793306TRUEVFRMETAR137.02019-09-20 00:46:06[)/5     3USCC 200030Z 24006MPS 9999 -SHRA SCT030CB 08/06 Q1005 R27/290050 NOSIG RMK QFE734USCC2019-09-20T00:30:00Z55.361.58.06.0240126.2129.675198TRUE-SHRAVFRMETAR234.02019-09-20 00:46:06 0_W)+5    3USSS 200030Z 26007MPS 9999 OVC029 08/06 Q1002 R26R/250045 NOSIG RMK QFE731/0975USSS2019-09-20T00:30:00Z56.7560.828.06.0260146.2129.586615TRUEMVFRMETAR233.02019-09-20 00:46:06K)5     3UNAA 200030Z 16001MPS 4600 BR NSC 07/06 Q1016 R02/090065 NOSIG RMK QFE739UNAA2019-09-20T00:30:00Z53.7591.47.06.016022.8630.0TRUEBRIFRMETAR245.02019-09-20 00:46:06K)5    3UNBB 200030Z 19006MPS CAVOK 15/04 Q1009 R24/CLRD66 NOSIG RMK QFE735UNBB2019-09-20T00:30:00Z53.3783.5315.04.0190126.2129.793306TRUEVFRMETAR255.02019-09-20 00:46:06J)5    3UNEE 200030Z 13004MPS CAVOK 11/09 Q1008 R23/CLRD60 NOSIG RMK QFE733UNEE2019-09-20T00:30:00Z55.2786.0811.09.013086.2129.763779TRUEVFRMETAR260.02019-09-20 00:46:06 BxT!)-5    3UWWW 200030Z 27002MPS 230V310 CAVOK 06/05 Q1012 R33/190055 NOSIG RMK QFE748/0998UWWW2019-09-20T00:30:00Z53.550.176.05.027046.2129.88189TRUEVFRMETAR146.02019-09-20 00:46:06C ) 5    3UUBW 200030Z 31002MPS 9999 BKN042 06/04 Q1012 R30/010060 NOSIGUUBW2019-09-20T00:30:00Z55.5538.156.04.031046.2129.88189TRUEVFRMETAR115.02019-09-20 00:46:06D) 5    3UUOL 200030Z 23003MPS 9999 BKN028 06/05 Q1014 R15/090060 NOSIGUUOL2019-09-20T00:30:00Z52.739.536.05.023066.2129.940945TRUEMVFRMETAR176.02019-09-20 00:46:068(}5    3UUOB 200030Z 27004MPS CAVOK 07/04 Q1016 R29/010060 NOSIGUUOB2019-09-20T00:30:00Z50.6536.587.04.027086.2130.0TRUEVFRMETAR224.02019-09-20 00:46:06 -Xrb%)95     3UWKD 200030Z 30003MPS 9000 -SHRA BKN011CB 07/06 Q1010 R29/2/0050 NOSIG RMK QFE746/0995UWKD2019-09-20T00:30:00Z55.6249.287.06.030065.5929.822834TRUE-SHRAMVFRMETAR126.02019-09-20 00:46:06`$)A5    3UWKE 200030Z 26003MPS 9999 BKN007CB 06/06 Q1009 R21/210355 NOSIG RMK OBST OBSC QFE739/0986UWKE2019-09-20T00:30:00Z55.5752.086.06.026066.2129.793306TRUEIFRMETAR196.02019-09-20 00:46:06O#)5    3UWKS 200030Z 29002MPS 9999 FEW013 04/04 Q1010 R24/290255 NOSIG RMK QFE743UWKS2019-09-20T00:30:00Z56.0847.354.04.029046.2129.822834TRUEVFRMETAR170.02019-09-20 00:46:06M")5    3UWOO 200030Z 25003MPS CAVOK 05/04 Q1015 R26/CLRD65 NOSIG RMK QFE750/1001UWOO2019-09-20T00:30:00Z51.855.475.04.025066.2129.970472TRUEVFRMETAR109.02019-09-20 00:46:06 2^M))5    3UERP 200030Z 17002MPS CAVOK M03/M08 Q1009 R35/090060 NOSIG RMK QFE713UERP2019-09-20T00:30:00Z66.4112.03-3.0-8.017046.2129.793306TRUEVFRMETAR509.02019-09-20 00:46:06N()5    3UERR 200030Z 21003MPS CAVOK M01/M04 Q1015 R25/CLRD60 NOSIG RMK QFE730UERR2019-09-20T00:30:00Z62.53114.05-1.0-4.021066.2129.970472TRUEVFRMETAR347.02019-09-20 00:46:06Z')15     3UOOO 200030Z 06004MPS 9999 -RA SCT046 04/02 Q0992 R01/19//55 NOSIG RMK QFE730/0973UOOO2019-09-20T00:30:00Z69.3287.334.02.06086.2129.291338TRUE-RAVFRMETAR175.02019-09-20 00:46:06h&)Y5   3USPP 200030Z 28004MPS 9999 BKN007 05/05 Q1005 R21/290250 TEMPO 1400 SHRA BR BKN005 BKN011CB RMK QFE743USPP2019-09-20T00:30:00Z57.9256.025.05.028086.2129.675198IFRMETAR123.02019-09-20 00:46:06 ]7]T-)%5   3UNOO 200030Z 24011G16MPS 9999 SCT033 11/02 Q1000 R25/CLRD60 NOSIG RMK QFE742UNOO2019-09-20T00:30:00Z54.9773.3211.02.024021316.2129.52756TRUEVFRMETAR95.02019-09-20 00:46:06J,)5    3UNTT 200030Z 17005MPS CAVOK 15/08 Q1004 R21/090060 NOSIG RMK QFE738UNTT2019-09-20T00:30:00Z56.3885.2215.08.0170106.2129.64567TRUEVFRMETAR182.02019-09-20 00:46:06r+)i5   3USTR 200030Z 28007MPS 9999 BKN017CB OVC030 09/06 Q0998 R21/290060 R30/290060 TEMPO 27015G25MPS RMK QFE739/0985USTR2019-09-20T00:30:00Z57.1765.329.06.0280146.2129.468504MVFRMETAR115.02019-09-20 00:46:06{*)q5   3USHH 200030Z 35003G08MPS 290V050 9999 -SHRA BKN014CB 06/05 Q0981 WS R06 R06/290050 TEMPO 1000 SHRA BKN004 OVC010CBUSHH2019-09-20T00:30:00Z61.0369.086.05.03506166.2128.966536-SHRAMVFRMETAR23.02019-09-20 00:46:06 F}^1)+5      3KF45 200030Z AUTO 07009KT 8SM -RA SCT036 BKN060 OVC075 24/22 A2998 RMK AO2 TSNOKF452019-09-20T00:30:00Z26.85-80.2224.022.07098.029.97933TRUETRUETRUE-RAVFRSPECI7.02019-09-20 00:46:06C0) 5    3UWGG 200030Z 00000MPS 9999 BKN026 06/06 Q1011 R36R/090070 NOSIGUWGG2019-09-20T00:30:00Z56.2343.786.06.0006.2129.852362TRUEMVFRMETAR73.02019-09-20 00:46:06L/)5    3UNKL 200030Z 33001MPS 9000 NSC 08/08 Q1013 R11/CLRD65 NOSIG RMK QFE734UNKL2019-09-20T00:30:00Z56.1792.488.08.033025.5929.911417TRUEVFRMETAR276.02019-09-20 00:46:06b.)A5    3UNNT 200030Z 17006MPS CAVOK 17/07 Q1003 WS R25 R25/090070 R16/090070 NOSIG RMK QFE742/0990UNNT2019-09-20T00:30:00Z55.0282.6317.07.0170126.2129.616142TRUEVFRMETAR111.02019-09-20 00:46:06 f2)Yfm5)Y5    3UHPP 200030Z 32002MPS 280V340 9000 SCT004 BKN018 08/08 Q1009 R34L/190055 NOSIG RMK MT OBSC QFE753/1004UHPP2019-09-20T00:30:00Z53.17158.458.08.032045.5929.793306TRUEMVFRMETAR40.02019-09-20 00:46:06J4)5    3UHWW 200030Z VRB01MPS 9999 NSC 13/03 Q1020 R25L/0///70 NOSIG RMK QFE764UHWW2019-09-20T00:30:00Z43.4132.1513.03.0026.2130.11811TRUEVFRMETAR14.02019-09-20 00:46:063)5    3UHMA 200030Z 34004MPS 310V010 9999 FEW020 05/M01 Q1008 R01/60D NOSIG RMK TDZ R01/34004G05MPS END R01/33003G05MPS QFE752/1003UHMA2019-09-20T00:30:00Z64.73177.735.0-1.034086.2129.763779TRUEVFRMETAR62.02019-09-20 00:46:06H2)5   3UHMD 200030Z 20002MPS 9999 SCT026 06/M01 Q1007 RMK QBB800 QFE754/1005UHMD2019-09-20T00:30:00Z64.38-173.226.0-1.020046.2129.734253VFRMETAR3.02019-09-20 00:46:06 'I:9(q5   3KO86 200030Z AUTO 35005KT 10SM 20/04 A3001 RMK AO1KO862019-09-20T00:30:00Z40.98-122.720.04.0350510.030.008858TRUETRUEMETAR729.02019-09-20 00:46:0638(o5   3UTSK 200030Z 07006KT CAVOK 18/08 Q1013 R16/CLRD70UTSK2019-09-20T00:30:00Z38.8365.7718.08.07066.2129.911417VFRMETAR1365.02019-09-20 00:46:06X7)-5    3UHBB 200030Z 24001MPS 9999 SCT033CB 10/04 Q1013 R36/090060 NOSIG RMK QFE742/0990UHBB2019-09-20T00:30:00Z50.43127.4210.04.024026.2129.911417TRUEVFRMETAR195.02019-09-20 00:46:06S6)/5    3UHHH 200030Z 10002MPS 060V140 CAVOK 13/04 Q1016 R23L/190050 NOSIG RMK QFE756/1008UHHH2019-09-20T00:30:00Z48.52135.1813.04.010046.2130.0TRUEVFRMETAR72.02019-09-20 00:46:06 =\Q=)%5    3DIAP 200030Z 22011KT 5000 -RA FEW005 SCT010 OVC020 24/24 Q1012 TEMPO 3000 RADIAP2019-09-20T00:30:00Z5.25-3.9224.024.0220113.1129.88189-RAMVFRMETAR8.02019-09-20 00:46:067<(q5    3GABS 200030Z 00000KT 9999 FEW020 27/25 Q1015 NOSIGGABS2019-09-20T00:30:00Z12.52-7.9527.025.0006.2129.970472TRUEVFRMETAR381.02019-09-20 00:46:06[;)35    3UEEE 200030Z 21004MPS 9999 SCT011 BKN020CB 03/02 Q1011 R23L/190055 NOSIG RMK QFE749UEEE2019-09-20T00:30:00Z62.08129.773.02.021086.2129.852362TRUEMVFRMETAR103.02019-09-20 00:46:06=:(}5    3URFF 200030Z 09002MPS CAVOK 13/03 Q1019 R01/090095 NOSIGURFF2019-09-20T00:30:00Z45.0333.9813.03.09046.2130.088583TRUEVFRMETAR188.02019-09-20 00:46:06 UI U/B(e5   3WIDD 200030Z 13003KT 8000 SCT014 28/25 Q1014WIDD2019-09-20T00:30:00Z1.12104.1228.025.013034.9729.940945MVFRMETAR38.02019-09-20 00:46:06;A(q5    3WADD 200030Z 10013KT 9999 FEW016 26/24 Q1014 NOSIGWADD2019-09-20T00:30:00Z-8.73115.1726.024.0100136.2129.940945TRUEVFRMETAR216.02019-09-20 00:46:060@(c5    3LFLW 200030Z AUTO 11009KT CAVOK 14/04 Q1021LFLW2019-09-20T00:30:00Z44.882.4214.04.011096.2130.147638TRUEVFRMETAR639.02019-09-20 00:46:06B?)5     3VEPT 200030Z 00000KT 2000 BR SCT020 SCT100 26/26 Q1008 NOSIGVEPT2019-09-20T00:30:00Z25.685.0826.026.0001.2429.763779TRUEBRIFRMETAR60.02019-09-20 00:46:061>(e5    3GQNO 200030Z 30005KT CAVOK 26/24 Q1010 NOSIGGQNO2019-09-20T00:30:00Z18.3-15.9726.024.030056.2129.822834TRUEVFRMETAR4.02019-09-20 00:46:06 9yGG) 5    3YCIN 200030Z AUTO 23008KT 9999 // NCD 28/12 Q1014 RF00.0/000.0YCIN2019-09-20T00:30:00Z-17.58123.8328.012.023086.2129.940945TRUEVFRMETAR91.02019-09-20 00:46:06CF) 5    3YFRT 200030Z AUTO /////KT 9999 // NCD 11/03 Q1021 RF00.0/000.0YFRT2019-09-20T00:30:00Z-30.83128.1211.03.06.2130.147638TRUEVFRMETAR156.02019-09-20 00:46:06FE) 5    3YPKU 200030Z AUTO 02006KT 9999 // NCD 30/17 Q1014 RF00.0/000.0YPKU2019-09-20T00:30:00Z-15.77128.6830.017.02066.2129.940945TRUEVFRMETAR45.02019-09-20 00:46:06:D(q5     3WIHH 200030Z 12004KT 4000 HZ NSC 27/23 Q1012 NOSIGWIHH2019-09-20T00:30:00Z-6.25106.8827.023.012042.4929.88189TRUEHZIFRMETAR25.02019-09-20 00:46:06AC)5    3WAAA 200030Z 09006KT 050V120 9999 FEW020 30/20 Q1013 NOSIGWAAA2019-09-20T00:30:00Z-5.07119.5330.020.09066.2129.911417TRUEVFRMETAR14.02019-09-20 00:46:06 :tw2K(u5   3YPDN 200030Z 20004KT 160V230 9999 FEW027 28/19 Q1016YPDN2019-09-20T00:30:00Z-12.42130.928.019.020046.2130.0VFRMETAR30.02019-09-20 00:46:06wJ)o5   3YMML 200030Z 02015KT 9999 FEW026 BKN165 BKN270 20/11 Q1017 FM0030 01025G40KT CAVOK FM0030 MOD/SEV TURB BLW 5000FTYMML2019-09-20T00:30:00Z-37.67144.8220.011.020156.2130.029528VFRMETAR141.02019-09-20 00:46:06@I)5    3YPPH 200030Z 06004KT 020V090 9999 FEW020 11/05 Q1028 NOSIGYPPH2019-09-20T00:30:00Z-31.93115.9811.05.06046.2130.35433TRUEVFRMETAR13.02019-09-20 00:46:06@H(5    3YSSY 200030Z 03019KT 9999 FEW020 BKN048 21/15 Q1026 NOSIGYSSY2019-09-20T00:30:00Z-33.95151.1721.015.030196.2130.295275TRUEVFRMETAR3.02019-09-20 00:46:06 /PDO)5    3YBHM 200030Z AUTO 12020KT 9999 // SCT022 SCT028 24/18 Q1021YBHM2019-09-20T00:30:00Z-20.35148.9524.018.0120206.2130.147638TRUEVFRMETAR5.02019-09-20 00:46:06IN) 5    3YBMA 200030Z AUTO 03011KT 9999 // NCD 30/M05 Q1017 RF00.0/000.0YBMA2019-09-20T00:30:00Z-20.67139.4730.0-5.030116.2130.029528TRUEVFRMETAR344.02019-09-20 00:46:06YM)95   3YPAD 200030Z 17004KT 130V220 CAVOK 18/10 Q1012 FM0100 24010KT 9999 -SHRA FEW025 BKN120YPAD2019-09-20T00:30:00Z-34.95138.5218.010.017046.2129.88189VFRMETAR4.02019-09-20 00:46:06KL)5   3YBBN 200030Z 14009KT 9999 FEW030 22/15 Q1025 FM0200 07012KT 9999 SCT030YBBN2019-09-20T00:30:00Z-27.38153.1322.015.014096.2130.265747VFRMETAR5.02019-09-20 00:46:06 #?q#FT) 5    3YPPD 200030Z AUTO 13019KT 9999 // NCD 25/04 Q1017 RF00.0/000.0YPPD2019-09-20T00:30:00Z-20.37118.6225.04.0130196.2130.029528TRUEVFRMETAR6.02019-09-20 00:46:06GS) 5    3YBRK 200030Z AUTO 08011KT 9999 // NCD 26/11 Q1023 RF00.0/000.0YBRK2019-09-20T00:30:00Z-23.37150.4726.011.080116.2130.206694TRUEVFRMETAR14.02019-09-20 00:46:06/R(e5   3YWLM 200030Z 05013KT 9999 BKN030 22/14 Q1026YWLM2019-09-20T00:30:00Z-32.8151.8322.014.050136.2130.295275MVFRMETAR9.02019-09-20 00:46:06HQ)5    3YCFS 200030Z AUTO 09007KT 9999 // SCT014 20/16 Q1027 RF00.0/000.0YCFS2019-09-20T00:30:00Z-30.32153.1220.016.09076.2130.324802TRUEVFRMETAR5.02019-09-20 00:46:06;P(u5    3YLHI 200030Z AUTO 07017KT 9999 // BKN041 19/14 Q1030YLHI2019-09-20T00:30:00Z-31.53159.0719.014.070176.2130.413385TRUEVFRMETAR2.02019-09-20 00:46:06 ,^CX) 5   3YPCC 200030Z 09017KT 9999 FEW018 OVC350 25/21 Q1015 RF00.0////./YPCC2019-09-20T00:30:00Z-12.1796.8225.021.090176.2129.970472VFRMETAR3.02019-09-20 00:46:06?W) 5   3YMHB 200030Z 01008KT 9999 FEW042 BKN150 21/10 Q1016 RF00.0/000.0YMHB2019-09-20T00:30:00Z-42.82147.5221.010.01086.2130.0VFRMETAR27.02019-09-20 00:46:06HV) 5    3YMLT 200030Z AUTO 32009KT 9999 // NCD 20/12 Q1019 RF00.0/000.0YMLT2019-09-20T00:30:00Z-41.52147.1820.012.032096.2130.088583TRUEVFRMETAR178.02019-09-20 00:46:06NU)5    3YSNF 200030Z AUTO 11012KT 9999 // BKN017 BKN027 OVC062 19/14 Q1027YSNF2019-09-20T00:30:00Z-29.02167.9219.014.0110126.2130.324802TRUEMVFRMETAR109.02019-09-20 00:46:06 696E]) 5    3YPLM 200030Z AUTO 15018KT 9999 // NCD 20/04 Q1020 RF00.0/000.0YPLM2019-09-20T00:30:00Z-22.22114.0720.04.0150186.2130.11811TRUEVFRMETAR6.02019-09-20 00:46:065\(o5    3YPTN 200030Z AUTO 31007KT 9999 // NCD 29/14 Q1016YPTN2019-09-20T00:30:00Z-14.52132.3829.014.031076.2130.0TRUEVFRMETAR109.02019-09-20 00:46:06@[(5    3YBTL 200030Z 11014KT 9999 FEW030 SCT350 27/14 Q1020 NOSIGYBTL2019-09-20T00:30:00Z-19.25146.7527.014.0110146.2130.11811TRUEVFRMETAR6.02019-09-20 00:46:061Z(e5   3YBRM 200030Z 20010KT 9999 BKN018 26/21 Q1015YBRM2019-09-20T00:30:00Z-17.93122.2226.021.0200106.2129.970472MVFRMETAR9.02019-09-20 00:46:06AY)5   3YPXM 200030Z AUTO 12015KT //// // SCT017 SCT022 SCT025 24/19 Q1016YPXM2019-09-20T00:30:00Z-10.45105.6724.019.01201530.0TRUEMETAR259.02019-09-20 00:46:06 3hTa)5     3YBCS 200030Z AUTO 14013KT 9999 // SCT050 27/14 Q1019 RF00.0/000.0 NOSIGYBCS2019-09-20T00:30:00Z-16.87145.7527.014.0140136.2130.088583TRUETRUEVFRMETAR7.02019-09-20 00:46:06^`)95    3YSCB 200030Z AUTO 04009KT 9999 // SCT029 18/09 Q1025 RF00.0/000.0 FM0100 02010KT CAVOKYSCB2019-09-20T00:30:00Z-35.28149.1718.09.04096.2130.265747TRUEVFRMETAR577.02019-09-20 00:46:06E_) 5    3YBCG 200030Z AUTO 11008KT 9999 // NCD 23/13 Q1025 RF00.0/000.0YBCG2019-09-20T00:30:00Z-28.17153.523.013.011086.2130.265747TRUEVFRMETAR6.02019-09-20 00:46:06G^) 5    3YPKG 200030Z AUTO 21010KT 9999 // NCD 09/02 Q1026 RF00.0/000.2YPKG2019-09-20T00:30:00Z-30.77121.459.02.0210106.2130.295275TRUEVFRMETAR360.02019-09-20 00:46:06 E9E-f(e5   3YGEL 200030Z 09012KT 9999 FEW040 13/04 Q1027YGEL2019-09-20T00:30:00Z-28.8114.713.04.090126.2130.324802VFRMETAR37.02019-09-20 00:46:067e(u5   3YAMB 200030Z 09007KT 080V160 9999 SCT037 24/13 Q1025YAMB2019-09-20T00:30:00Z-27.63152.7224.013.09076.2130.265747VFRMETAR28.02019-09-20 00:46:06Hd) 5    3YGLA 200030Z AUTO 11011KT 9999 // NCD 24/14 Q1024 RF00.0/000.0YGLA2019-09-20T00:30:00Z-23.87151.2224.014.0110116.2130.236221TRUEVFRMETAR52.02019-09-20 00:46:060c(e5   3YBAS 200030Z 35019KT CAVOK 31/M04 Q1011 TO SYBAS2019-09-20T00:30:00Z-23.8133.931.0-4.0350196.2129.852362VFRMETAR541.02019-09-20 00:46:06Ab) 5    3YMAV 200030Z AUTO 04012KT 9999 // NCD 21/13 Q1016 RF00.0/000.0YMAV2019-09-20T00:30:00Z-38.03144.4821.013.040126.2130.0TRUEVFRMETAR8.02019-09-20 00:46:06 *`@j)5   3YSRI 200030Z AUTO 02006KT 350V050 9999 // ////// 20/13 Q1026YSRI2019-09-20T00:30:00Z-33.6150.7720.013.02066.2130.295275TRUEMETAR21.02019-09-20 00:46:06Di) 5    3YPJT 200030Z AUTO 11007KT 9999 // NCD 11/06 Q1028 RF00.0/000.2YPJT2019-09-20T00:30:00Z-32.1115.8811.06.011076.2130.35433TRUEVFRMETAR30.02019-09-20 00:46:06Dh)5    3YHID 200030Z AUTO 12020KT 9999 // SCT026 OVC051 27/21 Q1015YHID2019-09-20T00:30:00Z-10.58142.327.021.0120206.2129.970472TRUEVFRMETAR13.02019-09-20 00:46:06Pg)5    3YSTW 200030Z AUTO 34005KT 280V040 9999 // NCD 23/10 Q1025 RF00.0/000.0YSTW2019-09-20T00:30:00Z-31.07150.8523.010.034056.2130.265747TRUEVFRMETAR410.02019-09-20 00:46:06 5e8n(y5  3LYTV 200030Z 02014G26KT 9999 SCT050 OVC080 19/04 Q1017LYTV2019-09-20T00:30:00Z42.3818.7219.04.02014266.2130.029528VFRMETAR5.02019-09-20 00:46:06Hm) 5    3YSDU 200030Z AUTO 02014KT 9999 // NCD 24/10 Q1023 RF00.0/000.0YSDU2019-09-20T00:30:00Z-32.22148.5724.010.020146.2130.206694TRUEVFRMETAR275.02019-09-20 00:46:06Jl)5    3YPWR 200030Z AUTO 19015KT 9999 // SCT125 18/09 Q1012 RF00.0/000.0YPWR2019-09-20T00:30:00Z-31.12136.8218.09.0190156.2129.88189TRUEVFRMETAR167.02019-09-20 00:46:06Ek)5   3YPEA 200030Z 12006KT CAVOK 12/06 Q1029 FM0200 14008KT 9999 SCT045YPEA2019-09-20T00:30:00Z-31.67116.0212.06.012066.2130.383858VFRMETAR49.02019-09-20 00:46:06 BjBr(y5    3KGHB 200030Z AUTO 13011KT 10SM CLR 29/24 A2995 RMK A01KGHB2019-09-20T00:30:00Z27.83-91.9829.024.01301110.029.949802TRUETRUEVFRMETAR30.02019-09-20 00:46:06Rq)5    3KGRY 200030Z AUTO 00000KT 10SM SCT024 BKN029 BKN041 29/24 A2999 RMK A01KGRY2019-09-20T00:30:00Z27.63-90.4529.024.00010.029.991142TRUETRUEMVFRMETAR58.02019-09-20 00:46:06Pp)#5    3URMM 200030Z 27003MPS 9999 NSC 08/02 Q1019 R12/090070 NOSIG RMK QFE736/0982URMM2019-09-20T00:30:00Z44.2243.18.02.027066.2130.088583TRUEVFRMETAR314.02019-09-20 00:46:06bo)-5    3WMKP 200030Z 00000KT 5000 -RA HZ FEW008 FEW017CB SCT024 BKN260 25/24 Q1012 NOSIGWMKP2019-09-20T00:30:00Z5.28100.2725.024.0003.1129.88189TRUE-RA HZBKN26000MVFRMETAR4.02019-09-20 00:46:06 %4m%Jw)5    3UTSS 200030Z 14010KT 110V170 6000 NSC 20/06 Q1015 R09/CLRD70 NOSIGUTSS2019-09-20T00:30:00Z39.766.9820.06.0140103.7329.970472TRUEMVFRMETAR724.02019-09-20 00:46:065v({5    3UTNN 200030Z 00000KT CAVOK 16/07 Q1016 R33/CLRD60 NOSIGUTNN2019-09-20T00:30:00Z42.4859.6316.07.0006.2130.0TRUEVFRMETAR67.02019-09-20 00:46:067u({5    3UTNU 200030Z 06004KT CAVOK 17/10 Q1016 R31/CLRD70 NOSIGUTNU2019-09-20T00:30:00Z41.5860.6317.010.06046.2130.0TRUEVFRMETAR98.02019-09-20 00:46:06At)5    3UTSA 200030Z 10006KT 9999 NSC 16/03 Q1014 R07/CLRD70 NOSIGUTSA2019-09-20T00:30:00Z40.1265.1716.03.010066.2129.940945TRUEVFRMETAR346.02019-09-20 00:46:06Fs) 5    3KDSF 200030Z AUTO 07019KT 9SM FEW035 FEW044 28/23 A3000 RMK A01KDSF2019-09-20T00:30:00Z28.35-88.2728.023.070199.030.0TRUETRUEVFRSPECI130.02019-09-20 00:46:06 )C)C|) 5   3URWI 200030Z AUTO 11003MPS 080V160 9999 // ///072/// 11/07 Q1020URWI2019-09-20T00:30:00Z46.3744.3311.07.011066.2130.11811TRUEMETAR150.02019-09-20 00:46:06I{)5   3URWW 200030Z 23003MPS CAVOK 06/03 Q1018 R24/010070 TEMPO 0400 FG BKN002URWW2019-09-20T00:30:00Z48.7844.336.03.023066.2130.059055VFRMETAR147.02019-09-20 00:46:069z(5    3RJBB 200030Z 04009KT 9999 FEW035 BKN/// 22/14 Q1016 NOSIGRJBB2019-09-20T00:30:00Z34.42135.2522.014.04096.2130.0TRUEVFRMETAR8.02019-09-20 00:46:06=y({5    3UTST 200030Z 02004KT CAVOK 16/10 Q1013 R88/CLRD70 NOSIGUTST2019-09-20T00:30:00Z37.2867.3216.010.02046.2129.911417TRUEVFRMETAR302.02019-09-20 00:46:067x(}5    3UTTT 200030Z 00000KT CAVOK 17/06 Q1016 R08R/CLRD70 NOSIGUTTT2019-09-20T00:30:00Z41.2769.2717.06.0006.2130.0TRUEVFRMETAR489.02019-09-20 00:46:06 -6cO)5    3URMT 200030Z 06002MPS 9999 SCT041 12/04 Q1019 R25/010070 NOSIG RMK QFE726URMT2019-09-20T00:30:00Z45.1242.1212.04.06046.2130.088583TRUEVFRMETAR453.02019-09-20 00:46:06M)5    3URRP 200030Z 27002MPS CAVOK 10/08 Q1018 R23/CLRD70 NOSIG RMK QFE756/1008URRP2019-09-20T00:30:00Z47.539.9210.08.027046.2130.059055TRUEVFRMETAR65.02019-09-20 00:46:06q~)_5    3URSS 200030Z 04005MPS 9999 BKN030 17/13 Q1015 R02/010070 R06/010070 NOSIG RMK R06/05003MPS MT OBSC QFE760URSS2019-09-20T00:30:00Z43.4539.9517.013.040106.2129.970472TRUEMVFRMETAR16.02019-09-20 00:46:06M})5    3URWA 200030Z 00000MPS CAVOK 12/04 Q1019 R27/010070 NOSIG RMK QFE766/1022URWA2019-09-20T00:30:00Z46.2848.0212.04.0006.2130.088583TRUEVFRMETAR-20.02019-09-20 00:46:06 &aK) 5    3K17J 200030Z AUTO 08007KT 10SM CLR 24/15 A3010 RMK AO2 T02390153K17J2019-09-20T00:30:00Z31.07-84.9223.915.380710.030.100393TRUETRUEVFRMETAR45.02019-09-20 00:46:06K) 5    3K2J3 200030Z AUTO 06004KT 10SM CLR 21/07 A3018 RMK AO2 T02110070K2J32019-09-20T00:30:00Z32.98-82.3821.17.060410.030.180119TRUETRUEVFRMETAR100.02019-09-20 00:46:06?(5    3RJGG 200030Z 34012KT 9999 FEW030 BKN/// 22/14 Q1015 NOSIGRJGG2019-09-20T00:30:00Z34.87136.822.014.0340126.2129.970472TRUEVFRMETAR5.02019-09-20 00:46:06T)-5    3ULAA 200030Z 20002MPS 9999 SCT026CB 01/00 Q1006 R08/290060 NOSIG RMK QFE754/1005ULAA2019-09-20T00:30:00Z64.640.721.00.020046.2129.704725TRUEVFRMETAR19.02019-09-20 00:46:06 :[U)5   3KDWX 200030Z AUTO 17017G25KT 10SM CLR 24/M04 A2992 RMK AO2 T02371039KDWX2019-09-20T00:30:00Z41.03-107.523.7-3.9170172510.029.920275TRUETRUEVFRMETAR1996.02019-09-20 00:46:06J) 5    3KAZE 200030Z AUTO 00000KT 10SM CLR 25/12 A3014 RMK AO2 T02460116KAZE2019-09-20T00:30:00Z31.88-82.6524.611.60010.030.138779TRUETRUEVFRMETAR78.02019-09-20 00:46:06Y)5   3KBMC 200030Z AUTO 31015G20KT 10SM SCT120 22/M02 A2979 RMK AO1 T02241022KBMC2019-09-20T00:30:00Z41.55-112.0722.4-2.2310152010.029.790354TRUETRUEVFRMETAR1288.02019-09-20 00:46:06@(y5    3KCNI 200030Z AUTO 00000KT 10SM CLR 22/12 A3022 RMK AO2KCNI2019-09-20T00:30:00Z34.32-84.4222.012.00010.030.221457TRUETRUEVFRMETAR372.02019-09-20 00:46:06 7mL ) 5    3KJFZ 200030Z AUTO 13007KT 10SM CLR 16/11 A3027 RMK AO2 T01560109KJFZ2019-09-20T00:30:00Z37.07-81.815.610.9130710.030.268702TRUETRUEVFRMETAR809.02019-09-20 00:46:06M ) 5    3KHBV 200030Z AUTO 15006KT 10SM CLR 32/22 A2980 RMK AO2 T03160215KHBV2019-09-20T00:30:00Z27.35-98.7331.621.5150610.029.799213TRUETRUEVFRMETAR202.02019-09-20 00:46:06D (w5     3KEHY 200030Z AUTO 10SM CLR 22/M13 A2994 RMK AO2 PWINOKEHY2019-09-20T00:30:00Z41.73-106.4722.0-13.010.029.940945TRUETRUETRUEVFRMETAR2225.02019-09-20 00:46:06C (}5    3KDKR 200030Z AUTO 16008KT 10SM 23/22 A2991 RMK AO2 PWINOKDKR2019-09-20T00:30:00Z31.3-95.423.022.0160810.029.911417TRUETRUETRUEMETAR106.02019-09-20 00:46:06 ).)L) 5    3KTZR 200030Z AUTO 16004KT 10SM CLR 22/17 A3013 RMK AO2 T02220171KTZR2019-09-20T00:30:00Z39.9-83.1322.217.1160410.030.129921TRUETRUEVFRMETAR276.02019-09-20 00:46:06=(w5     3WAHS 200030Z 07004KT 5000 HZ FEW014 26/19 Q1013 NOSIGWAHS2019-09-20T00:30:00Z-6.98110.3826.019.07043.1129.911417TRUEHZMVFRMETAR5.02019-09-20 00:46:06>)5    3WAPP 200030Z 160/3KT 120V220 9000 BKN017 27/24 Q1013 NOSIGWAPP2019-09-20T00:30:00Z-3.7128.0727.024.05.5929.911417TRUEMVFRMETAR12.02019-09-20 00:46:06&(c5    3LOWZ 200030Z AUTO 12003KT 9999 BKN041 05/04LOWZ2019-09-20T00:30:00Z47.312.785.04.012036.21TRUEVFRMETAR754.02019-09-20 00:46:06L ) 5    3KJCA 200030Z AUTO 06005KT 10SM CLR 20/13 A3022 RMK AO2 T02040133KJCA2019-09-20T00:30:00Z34.18-83.5720.413.360510.030.221457TRUETRUEVFRMETAR290.02019-09-20 00:46:06 -<0(c5    3LFOH 200030Z AUTO 10007KT CAVOK 11/07 Q1027LFOH2019-09-20T00:30:00Z49.520.0711.07.010076.2130.324802TRUEVFRMETAR103.02019-09-20 00:46:06/(c5    3LFOP 200030Z AUTO 08006KT CAVOK 11/05 Q1027LFOP2019-09-20T00:30:00Z49.371.1711.05.08066.2130.324802TRUEVFRMETAR157.02019-09-20 00:46:060(c5    3LFOA 200030Z AUTO 05011KT CAVOK 12/02 Q1023LFOA2019-09-20T00:30:00Z47.032.6312.02.050116.2130.206694TRUEVFRMETAR179.02019-09-20 00:46:06k)A5      3KNOW 200030Z AUTO 24003KT 10SM RA SCT023 SCT055 OVC095 14/13 A3007 RMK AO2 P0001 T01430132KNOW2019-09-20T00:30:00Z48.13-123.414.313.2240310.030.070866TRUETRUERAVFR0.01METAR4.02019-09-20 00:46:06M) 5    3KPEQ 200030Z AUTO 15009KT 10SM CLR 32/12 A2985 RMK AO2 T03150123KPEQ2019-09-20T00:30:00Z31.38-103.5231.512.3150910.029.84941TRUETRUEVFRMETAR797.02019-09-20 00:46:06 SA S4(s5    3LFQA 200030Z AUTO 04004KT 340V100 CAVOK 09/03 Q1027LFQA2019-09-20T00:30:00Z49.24.159.03.04046.2130.324802TRUEVFRMETAR95.02019-09-20 00:46:069(o5     3LFPV 200030Z AUTO 07013KT CAVOK 13/03 Q1026 NOSIGLFPV2019-09-20T00:30:00Z48.772.213.03.070136.2130.295275TRUETRUEVFRMETAR179.02019-09-20 00:46:061(c5    3LFCK 200030Z AUTO 12013KT CAVOK 20/13 Q1020LFCK2019-09-20T00:30:00Z43.552.2820.013.0120136.2130.11811TRUEVFRMETAR240.02019-09-20 00:46:068(s5    3LFLP 200030Z AUTO 32003KT 300V360 CAVOK 11/06 Q1024LFLP2019-09-20T00:30:00Z45.926.0811.06.032036.2130.236221TRUEVFRMETAR463.02019-09-20 00:46:069(o5     3LFLX 200030Z AUTO 07009KT CAVOK 13/02 Q1022 NOSIGLFLX2019-09-20T00:30:00Z46.851.7213.02.07096.2130.177166TRUETRUEVFRMETAR157.02019-09-20 00:46:06 sK/s6 (s5    3LFYR 200030Z AUTO 05006KT 010V080 CAVOK 12/01 Q1023LFYR2019-09-20T00:30:00Z47.321.6712.01.05066.2130.206694TRUEVFRMETAR86.02019-09-20 00:46:06.(c5    3LFSN 200030Z AUTO 05008KT CAVOK 08/01 Q1027LFSN2019-09-20T00:30:00Z48.676.228.01.05086.2130.324802TRUEVFRMETAR217.02019-09-20 00:46:06.(e5    3LFSI 200030Z AUTO VRB02KT CAVOK 11/M00 Q1026LFSI2019-09-20T00:30:00Z48.624.911.00.0026.2130.295275TRUEVFRMETAR140.02019-09-20 00:46:06.(c5    3LFSO 200030Z AUTO 06007KT CAVOK 09/01 Q1027LFSO2019-09-20T00:30:00Z48.575.979.01.06076.2130.324802TRUEVFRMETAR350.02019-09-20 00:46:06/(c5    3LFQB 200030Z AUTO 05007KT CAVOK 10/02 Q1026LFQB2019-09-20T00:30:00Z48.324.0210.02.05076.2130.295275TRUEVFRMETAR118.02019-09-20 00:46:06 eM#e8%(u5    3LFMP 200030Z AUTO 07004KT 9999 FEW054/// 19/17 Q1019LFMP2019-09-20T00:30:00Z42.722.8719.017.07046.2130.088583TRUEVFRMETAR48.02019-09-20 00:46:060$(o5    3LFMV 200030Z AUTO 00000KT 9999 OVC052 17/09 Q1020LFMV2019-09-20T00:30:00Z43.94.917.09.0006.2130.11811TRUEVFRMETAR38.02019-09-20 00:46:060#(c5    3LFSL 200030Z AUTO 13004KT CAVOK 15/03 Q1019LFSL2019-09-20T00:30:00Z45.031.4815.03.013046.2130.088583TRUEVFRMETAR310.02019-09-20 00:46:068"(o5     3LFBD 200030Z AUTO 04005KT CAVOK 17/05 Q1017 NOSIGLFBD2019-09-20T00:30:00Z44.82-0.717.05.04056.2130.029528TRUETRUEVFRMETAR61.02019-09-20 00:46:06-!(c5    3LFSX 200030Z AUTO VRB03KT CAVOK 05/03 Q1025LFSX2019-09-20T00:30:00Z47.776.335.03.0036.2130.265747TRUEVFRMETAR273.02019-09-20 00:46:06 gMg/*(c5    3LFKC 200030Z AUTO 18003KT CAVOK 19/17 Q1018LFKC2019-09-20T00:30:00Z42.528.819.017.018036.2130.059055TRUEVFRMETAR58.02019-09-20 00:46:06.)(c5    3LFKF 200030Z AUTO 08006KT CAVOK 21/18 Q1018LFKF2019-09-20T00:30:00Z41.59.0821.018.08066.2130.059055TRUEVFRMETAR23.02019-09-20 00:46:067((o5     3LFKJ 200030Z AUTO 04006KT CAVOK 20/16 Q1018 NOSIGLFKJ2019-09-20T00:30:00Z41.928.820.016.04066.2130.059055TRUETRUEVFRMETAR9.02019-09-20 00:46:06:'(o5     3LFLC 200030Z AUTO 29003KT CAVOK 10/01 Q1022 NOSIGLFLC2019-09-20T00:30:00Z45.773.1710.01.029036.2130.177166TRUETRUEVFRMETAR330.02019-09-20 00:46:06-&(c5    3LFLS 200030Z AUTO VRB01KT CAVOK 09/06 Q1022LFLS2019-09-20T00:30:00Z45.375.329.06.0016.2130.177166TRUEVFRMETAR386.02019-09-20 00:46:06 ;A;-/(c5    3LFMC 200030Z AUTO 00000KT CAVOK 17/16 Q1020LFMC2019-09-20T00:30:00Z43.376.3717.016.0006.2130.11811TRUEVFRMETAR78.02019-09-20 00:46:06F.) 5     3LFMO 200030Z AUTO 34004KT 9999 FEW058 BKN068 18/05 Q1020 NOSIGLFMO2019-09-20T00:30:00Z44.124.8718.05.034046.2130.11811TRUETRUEVFRMETAR55.02019-09-20 00:46:06B-) 5    3LFMY 200030Z AUTO 00000KT 9999 BKN020 BKN170 OVC190 18/11 Q1020LFMY2019-09-20T00:30:00Z43.65.0818.011.0006.2130.11811TRUEMVFRMETAR60.02019-09-20 00:46:069,(o5     3LFCR 200030Z AUTO 09007KT CAVOK 15/06 Q1021 NOSIGLFCR2019-09-20T00:30:00Z44.382.4715.06.09076.2130.147638TRUETRUEVFRMETAR580.02019-09-20 00:46:069+(o5     3LFJL 200030Z AUTO 06010KT CAVOK 09/01 Q1027 NOSIGLFJL2019-09-20T00:30:00Z48.976.259.01.060106.2130.324802TRUETRUEVFRMETAR264.02019-09-20 00:46:06 8_874(s5    3LFRL 200030Z AUTO 09008KT 070V130 CAVOK 14/09 Q1023LFRL2019-09-20T00:30:00Z48.27-4.4214.09.09086.2130.206694TRUEVFRMETAR82.02019-09-20 00:46:06/3(c5    3LFBC 200030Z AUTO 02003KT CAVOK 16/03 Q1017LFBC2019-09-20T00:30:00Z44.52-1.1216.03.02036.2130.029528TRUEVFRMETAR33.02019-09-20 00:46:06/2(c5    3LFBG 200030Z AUTO 04008KT CAVOK 16/03 Q1019LFBG2019-09-20T00:30:00Z45.67-0.3216.03.04086.2130.088583TRUEVFRMETAR31.02019-09-20 00:46:0691(o5     3LFBM 200030Z AUTO 06001KT CAVOK 15/14 Q1017 NOSIGLFBM2019-09-20T00:30:00Z43.92-0.515.014.06016.2130.029528TRUETRUEVFRMETAR63.02019-09-20 00:46:06\0);5    3LFKS 200030Z AUTO 35005KT 290V040 9999 SCT025/// SCT039/// BKN045/// ///TCU 21/19 Q1019LFKS2019-09-20T00:30:00Z41.929.421.019.035056.2130.088583TRUEVFRMETAR22.02019-09-20 00:46:06 xI+x-9(c5    3LFMH 200030Z AUTO 00000KT CAVOK 07/04 Q1023LFMH2019-09-20T00:30:00Z45.524.287.04.0006.2130.206694TRUEVFRMETAR402.02019-09-20 00:46:06/8(c5    3LFOC 200030Z AUTO 03008KT CAVOK 10/03 Q1025LFOC2019-09-20T00:30:00Z48.031.3710.03.03086.2130.265747TRUEVFRMETAR127.02019-09-20 00:46:06/7(c5    3LFOE 200030Z AUTO 06008KT CAVOK 12/05 Q1027LFOE2019-09-20T00:30:00Z49.021.2212.05.06086.2130.324802TRUEVFRMETAR146.02019-09-20 00:46:06.6(c5    3LFOJ 200030Z AUTO 06009KT CAVOK 09/02 Q1024LFOJ2019-09-20T00:30:00Z47.971.759.02.06096.2130.236221TRUEVFRMETAR125.02019-09-20 00:46:0615(c5    3LFRJ 200030Z AUTO 09007KT CAVOK 13/10 Q1024LFRJ2019-09-20T00:30:00Z48.52-4.1513.010.09076.2130.236221TRUEVFRMETAR115.02019-09-20 00:46:06 pN%p/>(c5    3LFRQ 200030Z AUTO 08008KT CAVOK 12/07 Q1023LFRQ2019-09-20T00:30:00Z47.97-4.1712.07.08086.2130.206694TRUEVFRMETAR94.02019-09-20 00:46:060=(c5    3LFSD 200030Z AUTO 01012KT CAVOK 11/02 Q1024LFSD2019-09-20T00:30:00Z47.275.0711.02.010126.2130.236221TRUEVFRMETAR227.02019-09-20 00:46:067<(o5     3LFBE 200030Z AUTO VRB02KT CAVOK 12/04 Q1018 NOSIGLFBE2019-09-20T00:30:00Z44.820.5212.04.0026.2130.059055TRUETRUEVFRMETAR52.02019-09-20 00:46:060;(c5    3LFGJ 200030Z AUTO 05015KT CAVOK 12/03 Q1023LFGJ2019-09-20T00:30:00Z47.055.4312.03.050156.2130.206694TRUEVFRMETAR196.02019-09-20 00:46:06,:(c5    3LFMD 200030Z AUTO VRB02KT CAVOK 18/17 Q1020LFMD2019-09-20T00:30:00Z43.536.9518.017.0026.2130.11811TRUEVFRMETAR9.02019-09-20 00:46:06 h@h/C(c5    3LFLN 200030Z AUTO 14002KT CAVOK 07/02 Q1023LFLN2019-09-20T00:30:00Z46.424.027.02.014026.2130.206694TRUEVFRMETAR244.02019-09-20 00:46:06.B(c5    3LFOZ 200030Z AUTO 05009KT CAVOK 12/01 Q1025LFOZ2019-09-20T00:30:00Z47.92.1712.01.05096.2130.265747TRUEVFRMETAR121.02019-09-20 00:46:066A(s5    3LFPM 200030Z AUTO 04005KT 350V070 CAVOK 10/03 Q1026LFPM2019-09-20T00:30:00Z48.622.6710.03.04056.2130.295275TRUEVFRMETAR92.02019-09-20 00:46:06-@(c5    3LFPT 200030Z AUTO 08007KT CAVOK 10/04 Q1027LFPT2019-09-20T00:30:00Z49.12.0310.04.08076.2130.324802TRUEVFRMETAR99.02019-09-20 00:46:06:?(o5     3LFRH 200030Z AUTO 07011KT CAVOK 13/06 Q1023 NOSIGLFRH2019-09-20T00:30:00Z47.77-3.4513.06.070116.2130.206694TRUETRUEVFRMETAR44.02019-09-20 00:46:06 3x:G(o5     3LFLB 200030Z AUTO 01013KT CAVOK 15/06 Q1023 NOSIGLFLB2019-09-20T00:30:00Z45.635.8715.06.010136.2130.206694TRUETRUEVFRMETAR239.02019-09-20 00:46:06HF)5   3LFML 200030Z AUTO 12004KT 9999 ///TCU 20/16 Q1019 TEMPO SHRA SCT040CBLFML2019-09-20T00:30:00Z43.455.2220.016.012046.2130.088583TRUEMETAR36.02019-09-20 00:46:065E(k5    3OTBD 200030Z 01001KT 6000 NSC 31/29 Q1005 NOSIGOTBD2019-09-20T00:30:00Z25.2551.5731.029.01013.7329.675198TRUEMVFRMETAR10.02019-09-20 00:46:06GD)5     3VOCB 200030Z 20004KT 5000 BR FEW012 BKN080 23/22 Q1010 NOSIGVOCB2019-09-20T00:30:00Z11.0277.0323.022.020043.1129.822834TRUEBRMVFRMETAR399.02019-09-20 00:46:06 OBK)5    3LFBP 200030Z AUTO 05003KT CAVOK 16/16 Q1017 TEMPO SCT050TCULFBP2019-09-20T00:30:00Z43.37-0.4216.016.05036.2130.029528TRUEVFRMETAR185.02019-09-20 00:46:06:J(o5     3LFBT 200030Z AUTO 23001KT CAVOK 15/14 Q1018 NOSIGLFBT2019-09-20T00:30:00Z43.170.015.014.023016.2130.059055TRUETRUEVFRMETAR363.02019-09-20 00:46:06;I(o5     3LFBZ 200030Z AUTO 15002KT CAVOK 17/17 Q1017 NOSIGLFBZ2019-09-20T00:30:00Z43.47-1.5217.017.015026.2130.029528TRUETRUEVFRMETAR71.02019-09-20 00:46:06jH)Q5     3LFKB 200030Z AUTO VRB02KT 9999 -TSRA FEW016/// BKN031/// BKN040/// ///CB 22/19 Q1020 BECMG NSW NSCLFKB2019-09-20T00:30:00Z42.539.4722.019.0026.2130.11811TRUE-TSRAVFRMETAR12.02019-09-20 00:46:06 1?1;P(o5     3LFRB 200030Z AUTO 07006KT CAVOK 12/10 Q1024 NOSIGLFRB2019-09-20T00:30:00Z48.45-4.4212.010.07066.2130.236221TRUETRUEVFRMETAR103.02019-09-20 00:46:06AO(5     3LFRS 200030Z AUTO 06011KT 030V090 CAVOK 15/02 Q1021 NOSIGLFRS2019-09-20T00:30:00Z47.17-1.615.02.060116.2130.147638TRUETRUEVFRMETAR27.02019-09-20 00:46:06AN(5     3LFBI 200030Z AUTO 06009KT 030V090 CAVOK 14/02 Q1021 NOSIGLFBI2019-09-20T00:30:00Z46.570.3214.02.06096.2130.147638TRUETRUEVFRMETAR120.02019-09-20 00:46:069M(o5     3LFBL 200030Z AUTO 07013KT CAVOK 15/01 Q1020 NOSIGLFBL2019-09-20T00:30:00Z45.871.1715.01.070136.2130.11811TRUETRUEVFRMETAR402.02019-09-20 00:46:06;L(o5     3LFBO 200030Z AUTO 14009KT CAVOK 20/16 Q1018 NOSIGLFBO2019-09-20T00:30:00Z43.621.3720.016.014096.2130.059055TRUETRUEVFRMETAR153.02019-09-20 00:46:06 lC#l1U(e5    3LFLL 200030Z 30003KT CAVOK 12/05 Q1023 NOSIGLFLL2019-09-20T00:30:00Z45.725.0712.05.030036.2130.206694TRUEVFRMETAR240.02019-09-20 00:46:06/T(e5    3LFMN 200030Z 34006KT CAVOK 21/16 Q1020 NOSIGLFMN2019-09-20T00:30:00Z43.637.221.016.034066.2130.11811TRUEVFRMETAR10.02019-09-20 00:46:060S(e5    3LFPG 200030Z 03007KT CAVOK 10/04 Q1027 NOSIGLFPG2019-09-20T00:30:00Z49.022.5210.04.03076.2130.324802TRUEVFRMETAR109.02019-09-20 00:46:06/R(e5    3LFPO 200030Z 06009KT CAVOK 12/04 Q1027 NOSIGLFPO2019-09-20T00:30:00Z48.722.3812.04.06096.2130.324802TRUEVFRMETAR96.02019-09-20 00:46:067Q(o5     3LFQQ 200030Z AUTO 04006KT CAVOK 11/07 Q1029 NOSIGLFQQ2019-09-20T00:30:00Z50.573.111.07.04066.2130.383858TRUETRUEVFRMETAR52.02019-09-20 00:46:06 K9yK-Z(c5    3LFRM 200030Z AUTO 07009KT CAVOK 14/03 Q1024LFRM2019-09-20T00:30:00Z47.950.214.03.07096.2130.236221TRUEVFRMETAR52.02019-09-20 00:46:068Y(s5    3LFRO 200030Z AUTO 07007KT 040V100 CAVOK 15/10 Q1024LFRO2019-09-20T00:30:00Z48.75-3.4715.010.07076.2130.236221TRUEVFRMETAR89.02019-09-20 00:46:067X(s5    3LFRG 200030Z AUTO 08006KT 020V110 CAVOK 11/06 Q1027LFRG2019-09-20T00:30:00Z49.370.1511.06.08066.2130.324802TRUEVFRMETAR146.02019-09-20 00:46:06:W(o5     3LFOT 200030Z AUTO 06011KT CAVOK 12/02 Q1023 NOSIGLFOT2019-09-20T00:30:00Z47.430.7212.02.060116.2130.206694TRUETRUEVFRMETAR108.02019-09-20 00:46:06AV)5    3LFBH 200030Z AUTO 07015KT CAVOK 16/03 Q1019 BECMG 06015G25KTLFBH2019-09-20T00:30:00Z46.18-1.216.03.070156.2130.088583TRUEVFRMETAR10.02019-09-20 00:46:06 IKI1_(i5    3LJPZ 200030Z AUTO 15004KT 9999 NCD 09/06 Q1025LJPZ2019-09-20T00:30:00Z45.4713.629.06.015046.2130.265747TRUEVFRMETAR2.02019-09-20 00:46:06/^(c5    3LFBA 200030Z AUTO 12004KT CAVOK 14/11 Q1017LFBA2019-09-20T00:30:00Z44.170.614.011.012046.2130.029528TRUEVFRMETAR60.02019-09-20 00:46:06Y])35    3LFMI 200030Z AUTO 02006KT 9999 BKN019 BKN130 BKN200 20/10 Q1019 TEMPO SHRA SCT040CBLFMI2019-09-20T00:30:00Z43.524.9220.010.02066.2130.088583TRUEMVFRMETAR24.02019-09-20 00:46:061\(c5    3LFOV 200030Z AUTO 06010KT CAVOK 13/05 Q1024LFOV2019-09-20T00:30:00Z48.03-0.7513.05.060106.2130.236221TRUEVFRMETAR101.02019-09-20 00:46:06/[(c5    3LFRI 200030Z AUTO 07012KT CAVOK 15/03 Q1021LFRI2019-09-20T00:30:00Z46.7-1.3715.03.070126.2130.147638TRUEVFRMETAR91.02019-09-20 00:46:06Y88@HPX`hpx (08@HPX`hpx (08@HPX`hpx9=BGKOTX]afj9=BGKOTX]afjnrw|  %*/49>CGKPUZ_dinsx}  %*/49>CHMRWµ\õ`ĵeŵjƵnǵrȵvɵzʵ~˵̵͵ εϵеѵҵ ӵ$Ե)յ-ֵ1׵5ص9ٵ>ڵB۵GܵLݵP iJi-d(c5    3LFSG 200030Z AUTO VRB03KT CAVOK 06/01 Q1026LFSG2019-09-20T00:30:00Z48.336.076.01.0036.2130.295275TRUEVFRMETAR330.02019-09-20 00:46:061c(c5    3LFRV 200030Z AUTO 06011KT CAVOK 12/04 Q1022LFRV2019-09-20T00:30:00Z47.72-2.7212.04.060116.2130.177166TRUEVFRMETAR133.02019-09-20 00:46:06-b(c5    3LFTW 200030Z AUTO 03006KT CAVOK 18/05 Q1020LFTW2019-09-20T00:30:00Z43.754.4218.05.03066.2130.11811TRUEVFRMETAR96.02019-09-20 00:46:06>a(5    3LJLJ 200030Z 12009KT 9999 FEW040 SCT055 09/04 Q1027 NOSIGLJLJ2019-09-20T00:30:00Z46.2214.479.04.012096.2130.324802TRUEVFRMETAR385.02019-09-20 00:46:060`(i5    3LJMB 200030Z AUTO VRB01KT 9999 NSC 07/05 Q1028LJMB2019-09-20T00:30:00Z46.4715.677.05.0016.2130.35433TRUEVFRMETAR265.02019-09-20 00:46:06 \7\;i(u5     3LRSM 200030Z AUTO VRB01KT 9999 -SHSN NCD 04/02 Q1024LRSM2019-09-20T00:30:00Z47.722.884.02.0016.2130.236221TRUE-SHSNVFRMETAR124.02019-09-20 00:46:062h(i5    3LROD 200030Z AUTO 03004KT 9999 NCD 07/03 Q1025LROD2019-09-20T00:30:00Z47.0321.927.03.03046.2130.265747TRUEVFRMETAR140.02019-09-20 00:46:06/g(i5   3LRCL 200030Z 27004KT 240V310 CAVOK 07/00 Q1024LRCL2019-09-20T00:30:00Z46.7823.687.00.027046.2130.236221VFRMETAR413.02019-09-20 00:46:06'f(Y5   3LRAR 200030Z 27003KT CAVOK 05/03 Q1024LRAR2019-09-20T00:30:00Z46.1821.275.03.027036.2130.236221VFRMETAR118.02019-09-20 00:46:06Ce) 5    3LRBM 200030Z AUTO 07002KT 9999 FEW075/// SCT210/// 03/02 Q1024LRBM2019-09-20T00:30:00Z47.6723.473.02.07026.2130.236221TRUEVFRMETAR185.02019-09-20 00:46:06 r8r&n(Y5   3LRTR 200030Z 31006KT CAVOK 04/02 Q1024LRTR2019-09-20T00:30:00Z45.8221.334.02.031066.2130.236221VFRMETAR88.02019-09-20 00:46:06+m(e5   3LRSB 200030Z VRB02KT 9999 BKN069 06/02 Q1023LRSB2019-09-20T00:30:00Z45.7824.086.02.0026.2130.206694VFRMETAR444.02019-09-20 00:46:06/l(e5    3LROP 200030Z 05010KT CAVOK 14/07 Q1020 NOSIGLROP2019-09-20T00:30:00Z44.5726.114.07.050106.2130.11811TRUEVFRMETAR95.02019-09-20 00:46:06.k(e5    3LRBS 200030Z 03006KT CAVOK 14/08 Q1020 NOSIGLRBS2019-09-20T00:30:00Z44.526.0814.08.03066.2130.11811TRUEVFRMETAR91.02019-09-20 00:46:06Bj)5    3LRTM 200030Z AUTO 11002KT 090V150 9999 FEW097/// 04/00 Q1023LRTM2019-09-20T00:30:00Z46.4724.424.00.011026.2130.206694TRUEVFRMETAR309.02019-09-20 00:46:06 I'r I;s(5   3LRIA 200030Z 28005KT 240V310 CAVOK 10/06 Q1022 R14/29//95LRIA2019-09-20T00:30:00Z47.1727.6210.06.028056.2130.177166VFRMETAR104.02019-09-20 00:46:064r(i5    3LRCV 200030Z AUTO 29008KT 9999 NCD 11/02 Q1019LRCV2019-09-20T00:30:00Z44.3223.8811.02.029086.2130.088583TRUEVFRMETAR191.02019-09-20 00:46:06(q(Y5   3LRBC 200030Z 36003KT CAVOK 10/05 Q1022LRBC2019-09-20T00:30:00Z46.5226.9210.05.036036.2130.177166VFRMETAR185.02019-09-20 00:46:06/p(i5    3LJCE 200030Z AUTO 00000KT 9999 NCD 07/06 Q1028LJCE2019-09-20T00:30:00Z45.915.527.06.0006.2130.35433TRUEVFRMETAR155.02019-09-20 00:46:06So)5     3LRCK 200030Z 04008KT 9999 -RA SCT007 BKN024 14/13 Q1019 R36/290095 NOSIGLRCK2019-09-20T00:30:00Z44.3728.4814.013.04086.2130.088583TRUE-RAMVFRMETAR108.02019-09-20 00:46:06 MSzM(}5    3GCFV 200030Z AUTO 02007KT 9999 BKN018 BKN023 22/19 Q1017GCFV2019-09-20T00:30:00Z28.43-13.8722.019.02076.2130.029528TRUEMVFRMETAR23.02019-09-20 00:46:06@=(5    3GCLA 200030Z AUTO 35006KT 320V020 9999 SCT029 22/17 Q1018GCLA2019-09-20T00:30:00Z28.62-17.7522.017.035066.2130.059055TRUEVFRMETAR31.02019-09-20 00:46:06:<(q5    3GCLP 200030Z 36014KT 9999 FEW020 22/18 Q1017 NOSIGGCLP2019-09-20T00:30:00Z27.92-15.3722.018.0360146.2130.029528TRUEVFRMETAR25.02019-09-20 00:46:067;(o5    3GCRR 200030Z AUTO 03008KT 9999 SCT020 22/19 Q1017GCRR2019-09-20T00:30:00Z28.93-13.5822.019.03086.2130.029528TRUEVFRMETAR40.02019-09-20 00:46:068:(q5    3GCTS 200030Z 04005KT 9999 FEW025 22/16 Q1017 NOSIGGCTS2019-09-20T00:30:00Z28.05-16.5722.016.04056.2130.029528TRUEVFRMETAR72.02019-09-20 00:46:06 <G<6C(5    3LEMG 200030Z 00000KT 9999 FEW005 SCT015 22/21 Q1016 NOSIGLEMG2019-09-20T00:30:00Z36.67-4.522.021.0006.2130.0TRUEVFRMETAR7.02019-09-20 00:46:06>B)5    3LEPA 200030Z 08003KT 060V120 9999 FEW018 21/20 Q1018 NOSIGLEPA2019-09-20T00:30:00Z39.532.7221.020.08036.2130.059055TRUEVFRMETAR8.02019-09-20 00:46:06=A(5    3LEVC 200030Z 04002KT 9999 FEW020 SCT030 23/21 Q1018 NOSIGLEVC2019-09-20T00:30:00Z39.5-0.4723.021.04026.2130.059055TRUEVFRMETAR62.02019-09-20 00:46:06B@)5    3LEVX 200030Z VRB01KT 1700 BR BKN001 15/15 Q1015 TEMPO 0150 FGLEVX2019-09-20T00:30:00Z42.22-8.6215.015.0011.0629.970472BRLIFRMETAR256.02019-09-20 00:46:063?(i5    3LEZL 200030Z AUTO 18005KT 9999 NCD 20/16 Q1015LEZL2019-09-20T00:30:00Z37.42-5.920.016.018056.2129.970472TRUEVFRMETAR31.02019-09-20 00:46:06 C> CCH)5    3ZSHC 200030Z 01005MPS 330V050 9999 BKN033 23/16 Q1015 NOSIGZSHC2019-09-20T00:30:00Z30.22120.4323.016.010106.2129.970472TRUEVFRMETAR43.02019-09-20 00:46:06/G(c5    3LFMU 200030Z AUTO 04008KT CAVOK 19/10 Q1019LFMU2019-09-20T00:30:00Z43.323.3519.010.04086.2130.088583TRUEVFRMETAR17.02019-09-20 00:46:068F(o5     3LFOB 200030Z AUTO 05008KT CAVOK 10/05 Q1028 NOSIGLFOB2019-09-20T00:30:00Z49.472.1210.05.05086.2130.35433TRUETRUEVFRMETAR111.02019-09-20 00:46:069E(w5    3ZGGG 200030Z 35003MPS 300V020 CAVOK 27/17 Q1012 NOSIGZGGG2019-09-20T00:30:00Z23.4113.327.017.035066.2129.88189TRUEVFRMETAR15.02019-09-20 00:46:06c(}5    3UCFM 200030Z 22004MPS CAVOK 16/05 Q1018 R26/0///95 NOSIGUCFM2019-09-20T00:30:00Z43.0774.4816.05.022086.2130.059055TRUEVFRMETAR633.02019-09-20 00:46:06(q5    3HKMO 200000Z 21005KT 9999 SCT019 23/22 Q1015 NOSIGHKMO2019-09-20T00:00:00Z-4.0239.6223.022.021056.2129.970472TRUEVFRMETAR55.02019-09-20 00:46:06=(U5  3HKNW 200000Z 00000KT SKC 14/11 Q1021HKNW2019-09-20T00:00:00Z-1.3236.8214.011.00030.147638METAR1679.02019-09-20 00:46:06.<(o5  3CXAG 200000Z AUTO 19010KT 17/07 RMK AO1 T01730069CXAG2019-09-20T00:00:00Z53.92-112.2817.36.919010TRUETRUEMETAR625.02019-09-20 00:46:06,;(o5  3CZPS 200000Z AUTO 16007KT 15/08 RMK AO1 T01520078CZPS2019-09-20T00:00:00Z52.43-113.615.27.81607TRUETRUEMETAR965.02019-09-20 00:46:06-:(o5  3CWDZ 200000Z AUTO 14008KT 16/10 RMK AO1 T01580096CWDZ2019-09-20T00:00:00Z51.42-112.6715.89.61408TRUETRUEMETAR678.02019-09-20 00:46:06 CF=B)5   3TJBQ 200050Z 00000KT 10SM BKN120 26/24 A2987 RMK LTG DSNT SWTJBQ2019-09-20T00:50:00Z18.5-67.1326.024.00010.029.870079VFRMETAR72.02019-09-20 00:54:59?A(5    3LATI 200050Z 33002KT 9999 SCT043 OBV061 15/12 Q1017 NOSIGLATI2019-09-20T00:50:00Z41.4219.7215.012.033026.2130.029528TRUEVFRMETAR90.02019-09-20 00:54:59w@)S5    3CYET 200051Z AUTO 27011G17KT 9SM -RA SCT065 BKN080 OVC091 14/06 A2979 RMK SLP109 DENSITY ALT 3700FTCYET2019-09-20T00:51:00Z53.57-116.4714.06.027011179.029.7903541010.9TRUE-RAVFRSPECI925.02019-09-20 00:54:597?(q5    3TLPL 200000Z 09008KT 9999 FEW025 29/25 Q1010 NOSIGTLPL2019-09-20T00:00:00Z13.75-60.9529.025.09086.2129.822834TRUEVFRMETAR3.02019-09-20 00:46:06 A<AWG)/5    3ESUT 200050Z AUTO 13004KT 030V180 9999 FEW022/// SCT030/// OVC180/// 00/M01 Q1015ESUT2019-09-20T00:50:00Z65.815.080.0-1.013046.2129.970472TRUEVFRMETAR463.02019-09-20 00:54:598F(s5   3KHQZ 200050Z 08010KT 10SM BKN012 OVC023 23/22 A2987KHQZ2019-09-20T00:50:00Z32.75-96.5323.022.0801010.029.870079MVFRMETAR136.02019-09-20 00:54:59)E(_5   3KHXD 200050Z 05008KT 10SM CLR 24/15 A3018KHXD2019-09-20T00:50:00Z32.22-80.724.015.050810.030.180119VFRMETAR6.02019-09-20 00:54:59+D(_5   3KNQA 200050Z 13003KT 10SM CLR 25/21 A3002KNQA2019-09-20T00:50:00Z35.35-89.8725.021.0130310.030.02067VFRMETAR86.02019-09-20 00:54:59>C)5   3KVQQ 200050Z 04010KT 10SM SCT026 BKN044 OVC095 22/20 A3012KVQQ2019-09-20T00:50:00Z30.22-81.8822.020.0401010.030.121063VFRMETAR25.02019-09-20 00:54:59 *H*,L(_5   3KLBE 200050Z 15005KT 10SM SKC 18/10 A3023KLBE2019-09-20T00:50:00Z40.27-79.418.010.0150510.030.230314VFRMETAR361.02019-09-20 00:54:59XK)5    3KRYY 200050Z 10007KT 10SM FEW075 23/13 A3020 RMK AO2 SLP946 T02280133 $KRYY2019-09-20T00:50:00Z34.02-84.622.813.3100710.030.200787994.6TRUETRUEVFRMETAR317.02019-09-20 00:54:59LJ)5     3VNKT 200050Z 00000KT 3000 BR FEW010 SCT030 BKN100 18/18 Q1019 NOSIGVNKT2019-09-20T00:50:00Z27.6885.3718.018.0001.8630.088583TRUEBRIFRMETAR1337.02019-09-20 00:54:596I(k5    3ESNX 200050Z AUTO 28010KT 9999 NCD 02/M01 Q1014ESNX2019-09-20T00:50:00Z65.5819.282.0-1.0280106.2129.940945TRUEVFRMETAR379.02019-09-20 00:54:592H(m5    3ESNL 200050Z AUTO 13002KT 9999 NCD M02/M03 Q1016ESNL2019-09-20T00:50:00Z64.5518.72-2.0-3.013026.2130.0TRUEVFRMETAR214.02019-09-20 00:54:59 <l%P(Y5   3ENGM 200050Z 35002KT CAVOK 07/03 Q1021ENGM2019-09-20T00:50:00Z60.211.17.03.035026.2130.147638VFRMETAR204.02019-09-20 00:54:59:O)5    3ENOL 200050Z 14016KT 9000 RA FEW010 SCT025 BKN030 07/05 Q1016ENOL2019-09-20T00:50:00Z63.79.587.05.0140165.5930.0RAMVFRMETAR7.02019-09-20 00:54:59JN)5    3ENVA 200050Z 05004KT 9999 -RA BKN037 06/04 Q1018 RMK WIND 670FT 15007KTENVA2019-09-20T00:50:00Z63.4710.926.04.05046.2130.059055-RAVFRMETAR17.02019-09-20 00:54:59>M(5    3ENZV 200050Z 28005KT 4000 BR DZ SCT006 BKN012 12/11 Q1025ENZV2019-09-20T00:50:00Z58.875.6212.011.028052.4930.265747BR DZIFRMETAR9.02019-09-20 00:54:59  NjIT) 5     3ENAN 200050Z AUTO 35009KT 300V040 9999 -RA BKN026/// 05/02 Q1014ENAN2019-09-20T00:50:00Z69.2816.135.02.035096.2129.940945TRUE-RAMVFRMETAR14.02019-09-20 00:54:59^S)?5    3ENBR 200050Z 14005KT 2100 -RA BR SCT002 BKN007 OVC014 09/08 Q1024 RMK WIND 1200FT 17011KTENBR2019-09-20T00:50:00Z60.285.229.08.014051.330.236221-RA BRIFRMETAR50.02019-09-20 00:54:596R)5   3ENBO 200050Z 31004KT 9999 FEW015 SCT025 BKN050 05/02 Q1016ENBO2019-09-20T00:50:00Z67.2714.375.02.031046.2130.0VFRMETAR13.02019-09-20 00:54:59pQ)c5    3ENDU 200050Z AUTO 26007KT 9999 -RA ///022/// 03/02 Q1013 RESHRA RMK WIND 1100FT 28009KT WIND 2200FT 29017KTENDU2019-09-20T00:50:00Z69.0318.553.02.026076.2129.911417TRUE-RAMETAR79.02019-09-20 00:54:59 G+kG+Y(g5    3EFVA 200050Z AUTO VRB01KT CAVOK M01/M01 Q1016EFVA2019-09-20T00:50:00Z63.0321.77-1.0-1.0016.2130.0TRUEVFRMETAR4.02019-09-20 00:54:595X(s5    3EFOU 200050Z AUTO VRB01KT 9999 SCT040 M00/M01 Q1012EFOU2019-09-20T00:50:00Z64.9225.370.0-1.0016.2129.88189TRUEVFRMETAR15.02019-09-20 00:54:592W(e5    3EFRO 200050Z AUTO 33004KT CAVOK 00/M02 Q1009EFRO2019-09-20T00:50:00Z66.5725.820.0-2.033046.2129.793306TRUEVFRMETAR201.02019-09-20 00:54:59:V(}5    3EFMA 200050Z AUTO 35002KT 9999 SCT043 SCT073 03/02 Q1020EFMA2019-09-20T00:50:00Z60.1219.883.02.035026.2130.11811TRUEVFRMETAR6.02019-09-20 00:54:59OU)5    3EFIV 200050Z AUTO 30009KT 270V350 9999 SCT020 SCT040 BKN044 03/M01 Q1006EFIV2019-09-20T00:50:00Z68.6227.423.0-1.030096.2129.704725TRUEVFRMETAR148.02019-09-20 00:54:59 >8~>4^({5   3ENRY 200050Z AUTO 20003KT 9999NDV OVC070/// 09/05 Q1022ENRY2019-09-20T00:50:00Z59.3710.779.05.0200330.177166TRUEMETAR53.02019-09-20 00:54:59J])5    3ENTO 200050Z AUTO 27003KT 250V310 9999 BKN072/// OVC130/// 08/03 Q1022ENTO2019-09-20T00:50:00Z59.210.278.03.027036.2130.177166TRUEVFRMETAR88.02019-09-20 00:54:590\(e5    3EFHK 200050Z 31006KT CAVOK 01/01 Q1017 NOSIGEFHK2019-09-20T00:50:00Z60.3224.971.01.031066.2130.029528TRUEVFRMETAR56.02019-09-20 00:54:594[(g5    3EFTP 200050Z AUTO 15001KT CAVOK M02/M02 Q1017EFTP2019-09-20T00:50:00Z61.4223.62-2.0-2.015016.2130.029528TRUEVFRMETAR112.02019-09-20 00:54:59BZ(5     3EFTU 200050Z AUTO 28006KT 9999 SHUP NSC 00/M00 Q1018 REUPEFTU2019-09-20T00:50:00Z60.5222.270.00.028066.2130.059055TRUESH UPVFRMETAR59.02019-09-20 00:54:59 G=vGc(Y5   3LLER 200050Z /////KT CAVOK ///// Q1010LLER2019-09-20T00:50:00Z29.7235.026.2129.822834VFRMETAR69.02019-09-20 00:54:597b(o5    3LLHA 200050Z AUTO 33006KT 9999 BKN024 27/22 Q1011LLHA2019-09-20T00:50:00Z32.7835.0227.022.033066.2129.852362TRUEMVFRMETAR8.02019-09-20 00:54:59Ja)5   3ENAL 200050Z AUTO 22021G31KT 9999 BKN005/// OVC014/// 11/10 Q1018ENAL2019-09-20T00:50:00Z62.576.1211.010.022021316.2130.059055TRUEIFRMETAR22.02019-09-20 00:54:59A`) 5    3ENCN 200050Z AUTO 21007KT 9999 BKN110/// BKN160/// 09/07 Q1024ENCN2019-09-20T00:50:00Z58.28.079.07.021076.2130.236221TRUEVFRMETAR17.02019-09-20 00:54:59=_({5     3ENRO 200050Z AUTO 00000KT 7000NDV -SN VV009 01/01 Q1018ENRO2019-09-20T00:50:00Z62.5711.331.01.00030.059055TRUE-SNLIFR900METAR626.02019-09-20 00:54:59 C9C.h(i5   3EYKA 200050Z 29005KT 250V340 CAVOK 05/04 Q1018EYKA2019-09-20T00:50:00Z54.9724.085.04.029056.2130.059055VFRMETAR77.02019-09-20 00:54:59Sg)5     3EVRA 200050Z 22003KT 180V300 9999 -SHRA SCT024CB SCT046 05/05 Q1017 NOSIGEVRA2019-09-20T00:50:00Z56.9223.975.05.022036.2130.029528TRUE-SHRAVFRMETAR10.02019-09-20 00:54:59+f(e5   3EETN 200050Z 34005KT 9999 FEW026 06/02 Q1017EETN2019-09-20T00:50:00Z59.424.826.02.034056.2130.029528VFRMETAR40.02019-09-20 00:54:592e(q5    3EYVI 200050Z 30008KT 9999 OVC005 06/06 Q1016 NOSIGEYVI2019-09-20T00:50:00Z54.6325.286.06.030086.2130.0TRUEIFRMETAR197.02019-09-20 00:54:59Ad) 5    3EYPA 200050Z AUTO VRB01KT 1900 SCT047/// SCT069/// 04/04 Q1021EYPA2019-09-20T00:50:00Z55.9721.084.04.0011.1830.147638TRUEIFRMETAR10.02019-09-20 00:54:59 dF~"d8m(u5    3EKKA 200050Z AUTO 25006KT 9999 OVC013/// 11/08 Q1027EKKA2019-09-20T00:50:00Z56.39.1211.08.025066.2130.324802TRUEMVFRMETAR52.02019-09-20 00:54:59+l(_5   3KLAL 200050Z 06008KT 10SM SKC 25/18 A3004KLAL2019-09-20T00:50:00Z27.97-82.0225.018.060810.030.041338VFRMETAR43.02019-09-20 00:54:59%k(Y5   3KVCV 200050Z 25011G33KT 10SM SKC A2985KVCV2019-09-20T00:50:00Z34.58-117.38250113310.029.84941VFRMETAR876.02019-09-20 00:54:59Bj)5    3EKVG 200050Z AUTO 25005KT 220V280 9999 OVC018/// 11/09 Q1019EKVG2019-09-20T00:50:00Z62.07-7.311.09.025056.2130.088583TRUEMVFRMETAR85.02019-09-20 00:54:594i(q5    3LLBG 200050Z VRB03KT 9999 SCT024 25/23 Q1012 NOSIGLLBG2019-09-20T00:50:00Z32.034.8825.023.0036.2129.88189TRUEVFRMETAR49.02019-09-20 00:54:59 9E{9*r(_5   3KSCH 200049Z 00000KT 10SM CLR 12/08 A3027KSCH2019-09-20T00:49:00Z42.85-73.9212.08.00010.030.268702VFRMETAR115.02019-09-20 00:54:59>q)5   3PTRO 200050Z 19005KT 15SM SCT017 BKN120 BKN300 30/24 A2988 PTRO2019-09-20T00:50:00Z7.37134.5530.024.0190515.029.878937VFRMETAR54.02019-09-20 00:54:59Hp) 5    3OAKB 200050Z 31004KT CAVOK 13/M02 Q1021 NOSIG RMK A3017 BLU BLUOAKB2019-09-20T00:50:00Z34.5569.2213.0-2.031046.2130.147638TRUEVFRMETAR1791.02019-09-20 00:54:59Do(5     3ENHD 200050Z AUTO 12008KT 1700 -RA VV005 10/09 Q1025 REUPENHD2019-09-20T00:50:00Z59.355.2210.09.012081.0630.265747TRUE-RALIFR500METAR24.02019-09-20 00:54:595n(k5  3PHJH 200050Z 06016G22KT 15SM SCT040 31/20 A2990PHJH2019-09-20T00:50:00Z20.97-156.6731.020.060162215.029.899607VFRMETAR78.02019-09-20 00:54:59 yu)I5       3PAWD 200049Z AUTO 15004KT 3SM -RA BR FEW016 BKN025 OVC034 12/10 A2964 RMK AO2 RAB02 P0004 TSNOPAWD2019-09-20T00:49:00Z60.12-149.4212.010.015043.029.639763TRUETRUETRUE-RA BRMVFR0.04METAR23.02019-09-20 00:54:59t)5     3KBAZ 200049Z AUTO 09015G19KT 10SM VCTS BKN070 OVC100 26/24 A2980 RMK AO2 PK WND 14042/2357 LTG DSNT E-S RAE16 TSB2354E25 PRESRR P0000KBAZ2019-09-20T00:49:00Z29.72-98.0526.024.090151910.029.799213TRUETRUEVCTSVFR0.005METAR195.02019-09-20 00:54:59ss)U5    3KFMN 200049Z 14023G35KT 10SM TS BKN100 23/04 A2992 RMK AO2 PK WND 15035/0042 LTG DSNT E AND SW TSB43KFMN2019-09-20T00:49:00Z36.75-108.2323.04.0140233510.029.920275TRUETSVFRSPECI1685.02019-09-20 00:54:59 tKtQy)5    3CYPX 200048Z AUTO 27022G28KT 5SM BR OVC013 06/05 A2956 RMK SLP012CYPX2019-09-20T00:48:00Z60.03-77.276.05.027022285.029.560041001.2TRUEBRMVFRSPECI23.02019-09-20 00:54:59,x(_5   3KASG 200048Z 12003KT 10SM CLR 22/22 A3002KASG2019-09-20T00:48:00Z36.17-94.1222.022.0120310.030.02067VFRMETAR412.02019-09-20 00:54:59vw)W5    3ROTM 200049Z 10017G32KT 4SM BR FEW011 BKN017 OVC026 27/25 A2952 RMK AO2 PK WND 09032/0044 T02720250 $ROTM2019-09-20T00:49:00Z26.27127.7527.225.010017324.029.518702TRUETRUEBRMVFRSPECI75.02019-09-20 00:54:59v)m5      3PACV 200049Z 14007KT 1 3/4SM R27/5000VP6000FT RA BR BKN016 BKN022 OVC031 12/10 A2976 RMK AO2 VIS 1V4 RAB43 P0002PACV2019-09-20T00:49:00Z60.5-145.4712.010.014071.7529.760826TRUERA BRIFR0.02SPECI12.02019-09-20 00:54:59 9~[})-5     3PAGN 200048Z AUTO 00000KT 1 1/4SM HZ SCT070 BKN090 14/11 A2994 RMK AO2 VIS 1/2V5PAGN2019-09-20T00:48:00Z57.5-134.5814.011.0001.2529.940945TRUETRUEHZIFRMETAR2.02019-09-20 00:54:595|(g5  3KIFP 200048Z 18013G20KT 10SM SKC 35/M01 A2961KIFP2019-09-20T00:48:00Z35.15-114.5735.0-1.0180132010.029.610237VFRMETAR212.02019-09-20 00:54:59Y{)!5    3CBBC 200048Z AUTO 19006KT 150V220 9SM BKN019 OVC040 15/13 A3006 RMK SLP180CBBC2019-09-20T00:48:00Z52.18-128.1515.013.019069.030.0590551018.0TRUEMVFRSPECI43.02019-09-20 00:54:59bz)/5   3CYXS 200048Z AUTO 18012G18KT 9SM FEW046 13/11 A2983 RMK SLP116 DENSITY ALT 2600FTCYXS2019-09-20T00:48:00Z53.9-122.6813.011.018012189.029.8287411011.6TRUEVFRSPECI691.02019-09-20 00:54:59 &,=&)5      3KIML 200048Z AUTO 09011KT 10SM TS FEW110 24/14 A2984 RMK AO2 PK WND 17033/0031 WSHFT 0028 LTG DSNT NW-E RAE00 TSE13B25 P0000KIML2019-09-20T00:48:00Z40.52-101.6224.014.0901110.029.840551TRUETRUETSVFR0.005METAR998.02019-09-20 00:54:59i);5   3KMLF 200048Z AUTO 23019G29KT 10SM CLR 23/M08 A2977 RMK AO2 PK WND 23033/0027 WSHFT 0034KMLF2019-09-20T00:48:00Z38.42-113.0223.0-8.0230192910.029.769686TRUETRUEVFRSPECI1534.02019-09-20 00:54:59R)5    3KUTS 200048Z AUTO VRB03KT 10SM SCT009 BKN085 OVC110 24/22 A2987 RMK AO2KUTS2019-09-20T00:48:00Z30.75-95.5824.022.00310.029.870079TRUETRUEVFRMETAR104.02019-09-20 00:54:59v~)W5   3CYVR 200048Z CCA 24005KT 200V310 15SM FEW006 SCT007 BKN060 OVC073 14/13 A3005 RMK CU1SC3SC1AC3 SLP177CYVR2019-09-20T00:48:00Z49.17-123.1714.013.0240515.030.0501981017.7OVC7300VFRMETAR2.02019-09-20 00:54:59 85c8+(c5   3KTIX 200047Z 08015KT 7SM SCT039 28/19 A3004KTIX2019-09-20T00:47:00Z28.5-80.828.019.080157.030.041338VFRMETAR11.02019-09-20 00:54:59D)5  3KADS 200047Z 09010G15KT 10SM SCT021 BKN040 OVC045 25/20 A2987KADS2019-09-20T00:47:00Z32.97-96.8225.020.090101510.029.870079VFRMETAR196.02019-09-20 00:54:59*(_5   3KFDK 200047Z 14004KT 10SM SKC 17/06 A3029KFDK2019-09-20T00:47:00Z39.42-77.3717.06.0140410.030.28937VFRMETAR92.02019-09-20 00:54:59L) 5   3KJDN 200048Z AUTO 30010KT 19/11 A2977 RMK AO1 SLP081 T01890106KJDN2019-09-20T00:48:00Z47.33-106.9518.910.63001029.7696861008.1TRUETRUESPECI801.02019-09-20 00:54:59E)5    3KCLL 200048Z 14011KT 10SM SCT013 OVC020 26/23 A2986 RMK AO2KCLL2019-09-20T00:48:00Z30.58-96.3726.023.01401110.029.861221TRUEMVFRSPECI96.02019-09-20 00:54:59 ^I^0 (e5   3KPAO 200047Z 31013KT 10SM FEW040 23/11 A2991KPAO2019-09-20T00:47:00Z37.47-122.1223.011.03101310.029.911417VFRMETAR2.02019-09-20 00:54:59E )5     3KTAN 200047Z AUTO 00000KT 1 1/4SM BR CLR 08/06 A3027 RMK AO2KTAN2019-09-20T00:47:00Z41.88-71.028.06.0001.2530.268702TRUETRUEBRIFRMETAR7.02019-09-20 00:54:591 (i5  3KSUA 200047Z 08016G22KT 7SM SCT034 27/19 A2999KSUA2019-09-20T00:47:00Z27.18-80.2227.019.08016227.029.991142VFRMETAR6.02019-09-20 00:54:59-(_5   3KCHD 200047Z 23004KT 10SM CLR 36/07 A2966KCHD2019-09-20T00:47:00Z33.27-111.8236.07.0230410.029.660433VFRMETAR379.02019-09-20 00:54:591(e5   3KRHV 200047Z 31011KT 10SM FEW050 23/12 A2990KRHV2019-09-20T00:47:00Z37.32-121.8223.012.03101110.029.899607VFRMETAR41.02019-09-20 00:54:59 +M+3(s5   3KBVI 200047Z 00000KT 10SM CLR 19/08 A3021 RMK LAST.KBVI2019-09-20T00:47:00Z40.77-80.419.08.00010.030.209646VFRMETAR382.02019-09-20 00:54:59U)'5   3PADG 200047Z 21006G13KT 4SM -RA FEW005 SCT009 BKN020 02/00 A2959 RMK VIS 15 SPADG2019-09-20T00:47:00Z68.03-162.92.00.02106134.029.589567-RAMVFRMETAR297.02019-09-20 00:54:59P)5   3YBAS 200047Z 33021G31KT 9999 0500S BLDU NSC 32/M04 Q1011 RF00.0/000.0YBAS2019-09-20T00:47:00Z-23.8133.932.0-4.033021316.2129.852362BLDUVFRSPECI541.02019-09-20 00:54:592 (e5   3KSBD 200047Z 24012KT 10SM FEW030 26/12 A2981KSBD2019-09-20T00:47:00Z34.08-117.2526.012.02401210.029.811024VFRMETAR353.02019-09-20 00:54:59- (_5   3KGEU 200047Z 23011KT 10SM SKC 36/08 A2968KGEU2019-09-20T00:47:00Z33.53-112.336.08.02301110.029.681103VFRMETAR325.02019-09-20 00:54:59  I,(_5   3KMHR 200046Z 31009KT 10SM SKC 25/08 A2988KMHR2019-09-20T00:46:00Z38.53-121.2825.08.0310910.029.878937VFRMETAR29.02019-09-20 00:54:59B(}5     3TNCC 200046Z AUTO 14003KT 9999 -SHRA FEW030 28/25 Q1009 TNCC2019-09-20T00:46:00Z12.2-68.9728.025.014036.2129.793306TRUE-SHRAVFRSPECI9.02019-09-20 00:54:59<(y5  3KEMT 200046Z 23006G14KT 10SM FEW035 SCT042 24/15 A2981KEMT2019-09-20T00:46:00Z34.07-118.0224.015.023061410.029.811024VFRMETAR90.02019-09-20 00:54:59o)95       3PAII 200046Z AUTO 22006KT 10SM -RA SCT013 BKN029 OVC065 12/09 A2955 RMK AO2 P0000 TSNOPAII2019-09-20T00:46:00Z58.18-157.3812.09.0220610.029.551182TRUETRUETRUE-RAMVFR0.005METAR30.02019-09-20 00:54:59 's?)5   3KOUN 200045Z 11008KT 10SM SCT065 SCT070 SCT085 28/18 A2989KOUN2019-09-20T00:45:00Z35.25-97.4728.018.0110810.029.890747VFRMETAR357.02019-09-20 00:54:59.(e5   3KSAW 200045Z 00000KT 10SM OVC020 20/18 A3006KSAW2019-09-20T00:45:00Z46.35-87.420.018.00010.030.059055MVFRMETAR372.02019-09-20 00:54:59.(_5   3KRYN 200045Z 25013KT 10SM CLR 34/04 A2980KRYN2019-09-20T00:45:00Z32.15-111.1734.04.02501310.029.799213VFRMETAR737.02019-09-20 00:54:59S)-5   3PAEL 200046Z 27007KT 12SM SCT018 BKN050 14/11 A2988 RMK SEA 0 SWELL 3 SW NOSPECIPAEL2019-09-20T00:46:00Z58.2-136.3514.011.0270712.029.878937VFRMETAR3.02019-09-20 00:54:59 //(e5   3KANE 200045Z 09004KT 10SM FEW250 22/18 A2999KANE2019-09-20T00:45:00Z45.15-93.2222.018.090410.029.991142VFRMETAR278.02019-09-20 00:54:59((_5   3KFMH 200045Z 05003KT 10SM CLR 09/08 A3029KFMH2019-09-20T00:45:00Z41.63-70.529.08.050310.030.28937VFRMETAR40.02019-09-20 00:54:59G)5   3PAKU 200045Z 24004KT 7SM R24/P6000FT SCT016 BKN024 BKN130 03/01 A2968PAKU2019-09-20T00:45:00Z70.32-149.583.01.024047.029.681103MVFRMETAR2.02019-09-20 00:54:59~)Y5   3CYKL 200045Z AUTO 25019G28KT 9SM SCT032 BKN075 BKN110 OVC150 16/14 A2969 RMK SLP068 DENSITY ALT 2500FTCYKL2019-09-20T00:45:00Z54.78-66.8216.014.025019289.029.689961006.8TRUEOVC15000VFRSPECI521.02019-09-20 00:54:59 7f-!(_5   3KCGF 200045Z 15004KT 20SM SKC 21/13 A3016KCGF2019-09-20T00:45:00Z41.57-81.4721.013.0150420.030.159449VFRMETAR268.02019-09-20 00:54:59V )!5    3KGLS 200045Z AUTO 13016KT 10SM SCT005 OVC120 28/24 A2988 RMK AO2 T02830244KGLS2019-09-20T00:45:00Z29.27-94.8728.324.41301610.029.878937TRUETRUEVFRMETAR6.02019-09-20 00:54:595(s5   3KJVL 200045Z 00000KT 10SM SCT075 BKN100 21/21 A3005KJVL2019-09-20T00:45:00Z42.62-89.0521.021.00010.030.050198VFRMETAR246.02019-09-20 00:54:59K) 5    3KSYM 200045Z AUTO VRB04KT 10SM BKN060 BKN070 23/17 A3014 RMK AO2KSYM2019-09-20T00:45:00Z38.22-83.5823.017.00410.030.138779TRUETRUEVFRMETAR313.02019-09-20 00:54:59C) 5    3CWPF 200045Z AUTO 00000KT 12/11 RMK AO1 SLP176 T01150113 58003CWPF2019-09-20T00:45:00Z48.43-123.4311.511.3001017.6TRUETRUE-0.3METAR12.02019-09-20 00:54:59 vE*v.&(e5   3KGYY 200045Z 00000KT 10SM BKN150 20/18 A3006KGYY2019-09-20T00:45:00Z41.62-87.4220.018.00010.030.059055VFRMETAR180.02019-09-20 00:54:593%(q5    3LMML 200045Z 23005KT 9999 FEW011 25/25 Q1016 NOSIGLMML2019-09-20T00:45:00Z35.8514.4725.025.023056.2130.0TRUEVFRMETAR91.02019-09-20 00:54:59'$(_5   3KMMU 200045Z 00000KT 10SM SKC 09/09 A3029KMMU2019-09-20T00:45:00Z40.78-74.429.09.00010.030.28937VFRMETAR57.02019-09-20 00:54:59/#(e5   3KTRK 200045Z 01005KT 10SM BKN050 09/02 A3006KTRK2019-09-20T00:45:00Z39.32-120.129.02.010510.030.059055VFRMETAR1798.02019-09-20 00:54:595"(s5   3KATW 200045Z 00000KT 10SM SCT040 BKN120 21/17 A3005KATW2019-09-20T00:45:00Z44.27-88.5221.017.00010.030.050198VFRMETAR280.02019-09-20 00:54:59 A.+(e5   3KCWF 200045Z 11003KT 10SM BKN120 24/24 A2996KCWF2019-09-20T00:45:00Z30.22-93.1524.024.0110310.029.958662VFRMETAR4.02019-09-20 00:54:598*(s5   3KWDG 200045Z 11010KT 10SM FEW050 BKN200 28/19 A2989KWDG2019-09-20T00:45:00Z36.37-97.7728.019.01101010.029.890747VFRMETAR356.02019-09-20 00:54:59+)(_5   3KUES 200045Z 00000KT 10SM SKC 19/17 A3009KUES2019-09-20T00:45:00Z43.05-88.2519.017.00010.030.088583VFRMETAR278.02019-09-20 00:54:597((}5     3CMGB 200045Z AUTO 00000KT 11/ RMK AO1 SLP241 T0113 56005CMGB2019-09-20T00:45:00Z45.37-72.7711.3001024.1TRUETRUE-0.5METAR86.02019-09-20 00:54:59|')u5  3YMML 200045Z 02017G27KT 9999 FEW030 BKN165 BKN180 21/11 Q1017 FM0100 01017G35KT CAVOK FM0045 MOD/SEV TURB BLW 5000FTYMML2019-09-20T00:45:00Z-37.67144.8221.011.02017276.2130.029528VFRSPECI141.02019-09-20 00:54:59 c'c>/(y5    3KTGI 200044Z AUTO 08007KT 10SM CLR 18/12 A3031 RMK AO1KTGI2019-09-20T00:44:00Z37.82-75.9818.012.080710.030.31004TRUETRUEVFRSPECI2.02019-09-20 00:54:59L.) 5    3KACP 200044Z AUTO 10003KT 10SM SCT002 SCT100 24/23 A2995 RMK AO2KACP2019-09-20T00:44:00Z30.75-92.6824.023.0100310.029.949802TRUETRUEVFRMETAR33.02019-09-20 00:54:59n-)=5   3RODN 200044Z AUTO 08019G29KT 9SM SCT016 SCT023 BKN034 29/25 A2950 RMK AO2 RAE04 SLP995 $RODN2019-09-20T00:44:00Z26.35127.7729.025.08019299.029.500984999.5TRUETRUETRUEVFRSPECI45.02019-09-20 00:54:59 ,)5      3KGLH 200044Z AUTO 31007KT 10SM -RA SCT046 BKN065 OVC110 24/21 A3000 RMK AO2 LTG DSNT N AND NE RAB2359 TSE18 P0020 T02440211 $KGLH2019-09-20T00:44:00Z33.5-90.9824.421.1310710.030.0TRUETRUETRUE-RAVFR0.2METAR45.02019-09-20 00:54:59 = RI=3)a5   3CYQZ 200043Z AUTO 18010G15KT 9SM -RA SCT047 BKN065 BKN076 OVC091 14/11 A2988 RMK SLP134 DENSITY ALT 2100FTCYQZ2019-09-20T00:43:00Z53.02-122.5214.011.018010159.029.8789371013.4TRUE-RAOVC9100VFRSPECI545.02019-09-20 00:54:592)_5    3PHSF 200043Z AUTO 31009KT 10SM SCT017 BKN029 BKN036 22/15 A3024 RMK AO2 CIG 029V035 BKN029 V SCT SLP118 $PHSF2019-09-20T00:43:00Z19.77-155.5522.015.0310910.030.2391741011.8TRUETRUETRUEMVFRSPECI1887.02019-09-20 00:54:5931(o5   3K2W6 200043Z AUTO 00000KT CLR 13/10 A3032 RMK AO1K2W62019-09-20T00:43:00Z38.32-76.5513.010.00030.318897TRUETRUEMETAR44.02019-09-20 00:54:59o0)C5      3KLFK 200043Z AUTO 14008KT 10SM -RA FEW007 BKN012 OVC055 23/22 A2991 RMK AO2 P0008 T02330222KLFK2019-09-20T00:43:00Z31.23-94.7523.322.2140810.029.911417TRUETRUE-RAMVFR0.08SPECI88.02019-09-20 00:54:59 DDZD7)5   3CYCB 200042Z 01003KT 15SM VCSH FEW009 BKN017 BKN025 BKN200 00/M01 A2980 RMK CF1SC4SC1CI1 CU EMBD LWR SC VIS N-ENE 3 SLP096CYCB2019-09-20T00:42:00Z69.08-105.120.0-1.010315.029.7992131009.6VCSHBKN20000MVFRSPECI27.02019-09-20 00:54:59d6)35    3KDAL 200043Z 11009KT 10SM FEW018 SCT020 BKN032 BKN250 26/21 A2986 RMK AO2 T02560206KDAL2019-09-20T00:43:00Z32.85-96.8525.620.6110910.029.861221TRUEBKN25000VFRSPECI158.02019-09-20 00:54:59N5)5    3KFTW 200043Z 08012KT 10SM BKN025 OVC035 26/21 A2985 RMK AO2 T02560206KFTW2019-09-20T00:43:00Z32.83-97.3725.620.6801210.029.84941TRUEMVFRSPECI214.02019-09-20 00:54:59b4)=5   3CYFS 200043Z 33006KT 15SM BKN075 OVC100 13/09 A2950 RMK AC5AC3 SLP996 DENSITY ALT 1000FTCYFS2019-09-20T00:43:00Z61.75-121.2213.09.0330615.029.500984999.6VFRSPECI169.02019-09-20 00:54:59 =nF;)5    3KLOR 200042Z AUTO 00000KT 10SM CLR 25/16 A3010 RMK AO2 SLPNOKLOR2019-09-20T00:42:00Z31.35-85.7525.016.00010.030.100393TRUETRUEVFRMETAR74.02019-09-20 00:54:59S:) 5    3PATC 200042Z AUTO 27010KT 10SM BKN023 05/02 A2966 RMK AO2 SLP047PATC2019-09-20T00:42:00Z65.57-167.925.02.02701010.029.6604331004.7TRUETRUEMVFRMETAR83.02019-09-20 00:54:59I9) 5    3KCGS 200042Z AUTO 00000KT 10SM CLR 14/07 A3030 RMK AO1 T01360065KCGS2019-09-20T00:42:00Z38.98-76.9213.66.50010.030.301182TRUETRUEVFRMETAR15.02019-09-20 00:54:59=8(y5    3KFME 200042Z AUTO 00000KT 10SM CLR 11/09 A3033 RMK AO1KFME2019-09-20T00:42:00Z39.08-76.7711.09.00010.030.33071TRUETRUEVFRMETAR46.02019-09-20 00:54:59 |)Z| ?)5    3KABQ 200041Z 27012KT 10SM SCT110 SCT140 BKN250 25/06 A3000 RMK AO2 WSHFT 2359 LTG DSNT SW TSB22E37 PRESRR SHRA DSNT W T02500056 $KABQ2019-09-20T00:41:00Z35.05-106.6225.05.62701210.030.0TRUETRUEVFRMETAR1618.02019-09-20 00:54:59G>) 5    3KSDM 200042Z 26007KT 10SM BKN017 21/15 A2985 RMK AO2 T02060150KSDM2019-09-20T00:42:00Z32.58-117.020.615.0260710.029.84941TRUEMVFRSPECI159.02019-09-20 00:54:59I=) 5    3PASA 200042Z AUTO 01004KT 10SM SCT018 SCT110 05/02 A2973 RMK AO2PASA2019-09-20T00:42:00Z63.68-170.55.02.010410.029.731298TRUETRUEVFRSPECI16.02019-09-20 00:54:59Q<)%5   3CWZZ 200042Z AUTO 24016G23KT 200V270 ////SM FEW018 BKN024 OVC100 14/12 A2935CWZZ2019-09-20T00:42:00Z58.32-62.5714.012.0240162329.350393TRUESPECI483.02019-09-20 00:54:59 4dIC) 5    3KEDE 200040Z AUTO 04003KT 10SM CLR 18/15 A3029 RMK AO2 T01750145KEDE2019-09-20T00:40:00Z36.02-76.5717.514.540310.030.28937TRUETRUEVFRMETAR6.02019-09-20 00:54:59JB) 5    3KFFA 200040Z AUTO 03006KT 10SM CLR 19/12 A3025 RMK AO2 T01880118KFFA2019-09-20T00:40:00Z36.02-75.6718.811.830610.030.250984TRUETRUEVFRMETAR4.02019-09-20 00:54:59:A(y5   3MMIO 200040Z 00000KT 10SM SCT040 23/12 A3007 RMK 8/500MMIO2019-09-20T00:40:00Z25.55-100.9323.012.00010.030.070866VFRMETAR1790.02019-09-20 00:54:59@)s5     3KDRO 200041Z AUTO 36003KT 10SM BKN095 17/08 A3004 RMK AO2 PK WND 19028/0001 LTG DSNT ALQDS RAB01E31 P0000 T01720083KDRO2019-09-20T00:41:00Z37.15-107.7717.28.3360310.030.041338TRUETRUEVFR0.005SPECI2035.02019-09-20 00:54:59 ';u'@H(y5    3K2G4 200040Z AUTO 12008KT 10SM CLR 12/07 A3029 RMK AO1K2G42019-09-20T00:40:00Z39.58-79.3312.07.0120810.030.28937TRUETRUEVFRMETAR894.02019-09-20 00:54:592G(m5     3K7W6 200040Z AUTO 36005KT 10SM CLR A3026 RMK AO2K7W62019-09-20T00:40:00Z35.55-75.95360510.030.259842TRUETRUEVFRMETAR2.02019-09-20 00:54:59JF) 5    3KCBE 200040Z AUTO 00000KT 10SM CLR 18/08 A3030 RMK AO2 T01810082KCBE2019-09-20T00:40:00Z39.62-78.7718.18.20010.030.301182TRUETRUEVFRMETAR236.02019-09-20 00:54:59@E(5    3KCGE 200040Z AUTO 00000KT 10SM OVC037 15/10 A3031 RMK A01KCGE2019-09-20T00:40:00Z38.53-76.0315.010.00010.030.31004TRUETRUEVFRMETAR6.02019-09-20 00:54:59?D(y5    3KDMW 200040Z AUTO 13004KT 10SM CLR 17/08 A3030 RMK AO2KDMW2019-09-20T00:40:00Z39.6-77.017.08.0130410.030.301182TRUETRUEVFRMETAR241.02019-09-20 00:54:59 &+d&*M(o5  3CWZQ 200040Z AUTO 14005KT 06/02 RMK AO1 T00590023CWZQ2019-09-20T00:40:00Z46.53-61.055.92.31405TRUETRUEMETAR17.02019-09-20 00:54:59@L(y5    3KLHZ 200040Z AUTO 00000KT 10SM CLR 13/11 A3030 RMK AO2KLHZ2019-09-20T00:40:00Z36.02-78.3313.011.00010.030.301182TRUETRUEVFRMETAR113.02019-09-20 00:54:59BK(y5    3KMDS 200040Z AUTO 13007KT 10SM CLR 22/22 A2995 RMK AO2KMDS2019-09-20T00:40:00Z44.02-97.0822.022.0130710.029.949802TRUETRUEVFRMETAR524.02019-09-20 00:54:59AJ(y5    3KW29 200040Z AUTO 11004KT 10SM CLR 17/10 A3030 RMK AO2KW292019-09-20T00:40:00Z38.98-76.3317.010.0110410.030.301182TRUETRUEVFRMETAR15.02019-09-20 00:54:59OI)5    3K24A 200040Z AUTO 11004KT 10SM OVC024 15/13 A3029 RMK AO2 T01550131K24A2019-09-20T00:40:00Z35.32-83.215.513.1110410.030.28937TRUETRUEMVFRMETAR871.02019-09-20 00:54:59 "5r"JR) 5    3KCTZ 200035Z AUTO 00000KT 10SM CLR 18/14 A3026 RMK AO2 T01800142KCTZ2019-09-20T00:35:00Z34.98-78.3718.014.20010.030.259842TRUETRUEVFRMETAR45.02019-09-20 00:54:592Q(m5     3KRAW 200035Z AUTO 00000KT 10SM CLR A2999 RMK AO2KRAW2019-09-20T00:35:00Z38.35-93.350010.029.991142TRUETRUEVFRMETAR285.02019-09-20 00:54:59BP(y5    3KEBS 200035Z AUTO 13004KT 10SM CLR 22/21 A2999 RMK AO2KEBS2019-09-20T00:35:00Z42.42-93.8722.021.0130410.029.991142TRUETRUEVFRMETAR342.02019-09-20 00:54:59=O(w5    3KHYW 200035Z AUTO 00000KT 7SM CLR 16/14 A3022 RMK AO2KHYW2019-09-20T00:35:00Z33.83-79.1216.014.0007.030.221457TRUETRUEVFRMETAR11.02019-09-20 00:54:59EN(5    3KACQ 200039Z AUTO 13005KT 10SM SCT044 22/19 A3001 RMK AO2KACQ2019-09-20T00:39:00Z44.07-93.5522.019.0130510.030.008858TRUETRUEVFRMETAR343.02019-09-20 00:54:59 /fBV(y5    3KHII 200030Z AUTO 20007KT 10SM CLR 34/00 A2963 RMK AO2KHII2019-09-20T00:30:00Z34.57-114.3734.00.0200710.029.630905TRUETRUEVFRMETAR238.02019-09-20 00:54:59[U)'5     3K28J 200035Z AUTO 00000KT 10SM FEW022 BKN042 OVC100 20/19 A3010 RMK AO2 P0002K28J2019-09-20T00:35:00Z29.65-81.5820.019.00010.030.100393TRUETRUEVFR0.02SPECI15.02019-09-20 00:54:59CT(5    3KETB 200035Z AUTO 00000KT 10SM BKN120 20/18 A3007 RMK AO2KETB2019-09-20T00:35:00Z43.42-88.1320.018.00010.030.070866TRUETRUEVFRMETAR270.02019-09-20 00:54:59KS) 5    3KARV 200035Z AUTO 00000KT 10SM CLR 20/18 A3006 RMK AO2 T01980177KARV2019-09-20T00:35:00Z45.92-89.7219.817.70010.030.059055TRUETRUEVFRMETAR496.02019-09-20 00:54:59 >6t>7[(y5    3CWCI 200000Z AUTO 14/14 RMK AO1 SLP176 T01390137 53012CWCI2019-09-20T00:00:00Z47.32-85.8213.913.71017.6TRUETRUE1.2METAR187.02019-09-20 00:54:59=Z({5    3UTSB 190030Z 34008KT CAVOK 18/07 Q1013 R01/CLRD70 NOSIGUTSB2019-09-20T00:30:00Z39.7764.4818.07.034086.2129.911417TRUEVFRMETAR226.02019-09-20 00:54:590Y(k5    3VIDN 200030Z 00000KT 3000 BR SCT060 22/21 Q1012VIDN2019-09-20T00:30:00Z30.278.1822.021.0001.8629.88189BRIFRMETAR558.02019-09-20 00:54:59u({5    3KSTF 200055Z AUTO 00000KT CLR 25/21 A3006 RMK AO2 PWINOKSTF2019-09-20T00:55:00Z33.43-88.8525.021.00030.059055TRUETRUETRUEMETAR102.02019-09-20 00:57:53Y898@HPX`hpx (08@HPX`hpx (08@HPX`hpxߵY൛^ᵛcⵛh㵛m䵛r嵛u浛y絛}赛鵛굛 ߵY൛^ᵛcⵛh㵛m䵛r嵛u浛y絛}赛鵛굛 뵛쵛ﵛ!&+/37;?CHMRV[`dhlptx|     !%)-16:>CHLQUY]aei m!r"v#z$~%&' ()*+,-".&/*0.12263:4>5B6F7J8N 0dK|) 5    3K1S5 200055Z AUTO 00000KT 10SM CLR 22/09 A2995 RMK AO2 T02170086K1S52019-09-20T00:55:00Z46.33-119.9721.78.60010.029.949802TRUETRUEVFRMETAR234.02019-09-20 00:57:53E{(5    3K27K 200055Z AUTO 11004KT 10SM BKN070 25/17 A3010 RMK AO1K27K2019-09-20T00:55:00Z38.23-84.4325.017.0110410.030.100393TRUETRUEVFRMETAR289.02019-09-20 00:57:53Fz(}5     3K2C8 200055Z AUTO 12003KT 4SM HZ CLR 20/14 A2995 RMK AO2K2C82019-09-20T00:55:00Z48.78-97.6320.014.012034.029.949802TRUETRUEHZMVFRMETAR272.02019-09-20 00:57:53Jy) 5    3KDYA 200055Z AUTO 00000KT 10SM CLR 26/21 A3005 RMK AO2 T02550205KDYA2019-09-20T00:55:00Z32.47-87.9525.520.50010.030.050198TRUETRUEVFRMETAR34.02019-09-20 00:57:53 2AyA(5    3KMCJ 200055Z AUTO 00000KT 10SM SCT004 24/23 A2988 RMK A01KMCJ2019-09-20T00:55:00Z29.72-95.424.023.00010.029.878937TRUETRUEVFRMETAR69.02019-09-20 00:57:53B(5    3KI43 200055Z AUTO 00000KT 10SM SCT080 19/17 A3015 RMK AO2KI432019-09-20T00:55:00Z38.98-82.5819.017.00010.030.15059TRUETRUEVFRMETAR221.02019-09-20 00:57:53k~)C5     3FJDG 200055Z 07005KT 9000 -SHRA SCT016 SCT050 BKN080 26/24 A2984 RMK SLP102 P0001 T02640240FJDG2019-09-20T00:55:00Z-7.3272.4226.424.07055.5929.8405511010.2-SHRAVFR0.01METAR3.02019-09-20 00:57:53H}) 5    3KHBI 200055Z AUTO 00000KT 10SM CLR 18/10 A3029 RMK AO2 T01750099KHBI2019-09-20T00:55:00Z35.65-79.917.59.90010.030.28937TRUETRUEVFRMETAR205.02019-09-20 00:57:53 1aC(5    3KCDN 200055Z AUTO 07003KT 10SM FEW050 19/10 A3023 RMK AO2KCDN2019-09-20T00:55:00Z34.28-80.5719.010.070310.030.230314TRUETRUEVFRMETAR92.02019-09-20 00:57:53>(y5    3KSIK 200055Z AUTO 00000KT 10SM CLR 26/18 A3001 RMK AO2KSIK2019-09-20T00:55:00Z36.9-89.5726.018.00010.030.008858TRUETRUEVFRMETAR96.02019-09-20 00:57:53J) 5    3KSIF 200055Z AUTO 00000KT 10SM CLR 13/12 A3029 RMK AO2 T01250115KSIF2019-09-20T00:55:00Z36.43-79.8512.511.50010.030.28937TRUETRUEVFRMETAR211.02019-09-20 00:57:53I) 5    3KPBH 200055Z AUTO 00000KT 10SM CLR 18/18 A3005 RMK AO2 T01770177KPBH2019-09-20T00:55:00Z45.7-90.417.717.70010.030.050198TRUETRUEVFRMETAR449.02019-09-20 00:57:53 8pV)5     3KRRL 200055Z AUTO 00000KT 10SM SCT027 20/18 A3007 RMK AO2 T02030180 TSNOKRRL2019-09-20T00:55:00Z45.2-89.7220.318.00010.030.070866TRUETRUETRUEVFRMETAR401.02019-09-20 00:57:53A(y5    3KBXK 200055Z AUTO 25008KT 10SM CLR 34/06 A2967 RMK A01KBXK2019-09-20T00:55:00Z33.42-112.6834.06.0250810.029.66929TRUETRUEVFRMETAR315.02019-09-20 00:57:53B(y5    3KCAV 200055Z AUTO 13005KT 10SM CLR 22/20 A3001 RMK A01KCAV2019-09-20T00:55:00Z42.75-93.7722.020.0130510.030.008858TRUETRUEVFRMETAR354.02019-09-20 00:57:53B(y5    3KCBF 200055Z AUTO 13004KT 10SM CLR 26/24 A2993 RMK AO2KCBF2019-09-20T00:55:00Z41.27-95.7726.024.0130410.029.929134TRUETRUEVFRMETAR382.02019-09-20 00:57:53 ,fK ) 5    3KEZS 200055Z AUTO 00000KT 10SM CLR 20/19 A3006 RMK AO2 T01990190KEZS2019-09-20T00:55:00Z44.78-88.5719.919.00010.030.059055TRUETRUEVFRMETAR248.02019-09-20 00:57:53A (y5    3KFDW 200055Z AUTO 05004KT 10SM CLR 18/11 A3023 RMK AO1KFDW2019-09-20T00:55:00Z34.32-81.1218.011.050410.030.230314TRUETRUEVFRMETAR176.02019-09-20 00:57:53@ (y5    3KGGE 200055Z AUTO 03004KT 10SM CLR 18/13 A3021 RMK AO2KGGE2019-09-20T00:55:00Z33.32-79.3218.013.030410.030.209646TRUETRUEVFRMETAR12.02019-09-20 00:57:53N )5    3KLQK 200055Z AUTO 05004KT 10SM BKN043 19/14 A3024 RMK AO2 T01910138KLQK2019-09-20T00:55:00Z34.82-82.719.113.850410.030.239174TRUETRUEVFRMETAR309.02019-09-20 00:57:53 :g3(o5   3KBNL 200055Z AUTO 06003KT CLR 20/09 A3020 RMK AO2KBNL2019-09-20T00:55:00Z33.25-81.3820.09.060330.200787TRUETRUEMETAR75.02019-09-20 00:57:53@(}5    3KCKM 200055Z AUTO 00000KT 10SM 24/24 A3002 RMK A01 P0001KCKM2019-09-20T00:55:00Z34.3-90.5224.024.00010.030.02067TRUETRUE0.01METAR53.02019-09-20 00:57:53K) 5    3KCFJ 200055Z AUTO 00000KT 10SM CLR 19/19 A3008 RMK AO2 T01860186KCFJ2019-09-20T00:55:00Z39.98-86.9218.618.60010.030.079725TRUETRUEVFRMETAR244.02019-09-20 00:57:53M)5    3K1A5 200055Z AUTO 00000KT 10SM OVC033 17/15 A3029 RMK AO2 T01660145K1A52019-09-20T00:55:00Z35.22-83.4216.614.50010.030.28937TRUETRUEVFRMETAR616.02019-09-20 00:57:53@ (y5    3KAIK 200055Z AUTO 05006KT 10SM CLR 18/08 A3024 RMK AO2KAIK2019-09-20T00:55:00Z33.65-81.6818.08.050610.030.239174TRUETRUEVFRMETAR161.02019-09-20 00:57:53 ?iB(y5    3KRID 200055Z AUTO 12005KT 10SM CLR 21/20 A3011 RMK AO2KRID2019-09-20T00:55:00Z39.75-84.8521.020.0120510.030.109253TRUETRUEVFRMETAR348.02019-09-20 00:57:53N)5    3KGEV 200055Z AUTO 00000KT 10SM BKN022 13/11 A3033 RMK AO2 T01280111KGEV2019-09-20T00:55:00Z36.43-81.4212.811.10010.030.33071TRUETRUEMVFRMETAR969.02019-09-20 00:57:53P)5    3KANK 200055Z AUTO 18006KT 10SM CLR 24/M05 A3012 RMK AO1 T02361048KANK2019-09-20T00:55:00Z38.53-106.0523.6-4.8180610.030.121063TRUETRUEVFRMETAR2293.02019-09-20 00:57:53;(y5     3KANQ 200055Z AUTO 00000KT 7SM FEW034 17/ A3011 RMK AO2KANQ2019-09-20T00:55:00Z41.63-85.0817.0007.030.109253TRUETRUEVFRMETAR303.02019-09-20 00:57:53 :h?(y5    3KMNI 200055Z AUTO 00000KT 10SM CLR 17/11 A3021 RMK AO2KMNI2019-09-20T00:55:00Z33.58-80.2217.011.00010.030.209646TRUETRUEVFRMETAR32.02019-09-20 00:57:53@(y5    3KLRY 200055Z AUTO 00000KT 10SM CLR 25/20 A2999 RMK AO2KLRY2019-09-20T00:55:00Z38.62-94.3525.020.00010.029.991142TRUETRUEVFRMETAR279.02019-09-20 00:57:53L)5     3KM25 200055Z AUTO 06003KT 10SM CLR 26/19 A3004 RMK AO2 PWINOKM252019-09-20T00:55:00Z36.77-88.5826.019.060310.030.041338TRUETRUETRUEVFRMETAR160.02019-09-20 00:57:53@(y5    3KO22 200055Z AUTO VRB05KT 10SM CLR 21/05 A2993 RMK A01KO222019-09-20T00:55:00Z38.03-120.4221.05.00510.029.929134TRUETRUEVFRMETAR646.02019-09-20 00:57:53 Ds?(y5    3KJNX 200055Z AUTO 00000KT 10SM CLR 15/15 A3027 RMK AO2KJNX2019-09-20T00:55:00Z35.53-78.3815.015.00010.030.268702TRUETRUEVFRMETAR50.02019-09-20 00:57:53K) 5    3KPTS 200055Z AUTO 00000KT 10SM CLR 26/21 A2996 RMK AO2 T02580210KPTS2019-09-20T00:55:00Z37.45-94.7325.821.00010.029.958662TRUETRUEVFRMETAR290.02019-09-20 00:57:53K) 5    3KLUM 200055Z AUTO 17004KT 10SM CLR 20/18 A3002 RMK AO2 T02010178KLUM2019-09-20T00:55:00Z44.9-91.8720.117.8170410.030.02067TRUETRUEVFRMETAR273.02019-09-20 00:57:53e)=5     3KMBO 200055Z AUTO 00000KT 5SM SCT001 SCT006 SCT080 21/21 A3003 RMK AO2 LTG DSNT NE PWINOKMBO2019-09-20T00:55:00Z32.43-90.121.021.0005.030.029528TRUETRUETRUEMVFRMETAR99.02019-09-20 00:57:53 /]D!(5    3KFFL 200055Z AUTO 09003KT 10SM FEW110 22/22 A3001 RMK A01KFFL2019-09-20T00:55:00Z41.03-91.9722.022.090310.030.008858TRUETRUEVFRMETAR244.02019-09-20 00:57:53< (y5    3KEOK 200055Z AUTO 08003KT 10SM CLR 25/24 A3000 RMK AO2KEOK2019-09-20T00:55:00Z40.47-91.4225.024.080310.030.0TRUETRUEVFRMETAR205.02019-09-20 00:57:53L) 5    3KGGI 200055Z AUTO 09005KT 10SM CLR 22/20 A3003 RMK AO2 T02180200KGGI2019-09-20T00:55:00Z41.72-92.7321.820.090510.030.029528TRUETRUEVFRMETAR307.02019-09-20 00:57:53K) 5    3KIPJ 200055Z AUTO 00000KT 10SM CLR 15/13 A3026 RMK AO2 T01520131KIPJ2019-09-20T00:55:00Z35.48-81.1715.213.10010.030.259842TRUETRUEVFRMETAR267.02019-09-20 00:57:53 "]B%(y5    3KDNS 200055Z AUTO 12005KT 10SM CLR 24/23 A2997 RMK AO2KDNS2019-09-20T00:55:00Z41.97-95.3724.023.0120510.029.970472TRUETRUEVFRMETAR388.02019-09-20 00:57:53K$) 5    3KDLL 200055Z AUTO 00000KT 10SM CLR 19/18 A3006 RMK AO2 T01870181KDLL2019-09-20T00:55:00Z43.52-89.7718.718.10010.030.059055TRUETRUEVFRMETAR299.02019-09-20 00:57:53?#(y5    3KARW 200055Z AUTO 06009KT 10SM CLR 22/15 A3018 RMK AO2KARW2019-09-20T00:55:00Z32.42-80.6322.015.060910.030.180119TRUETRUEVFRMETAR4.02019-09-20 00:57:53X")5   3KFLY 200055Z AUTO 17011G17KT 10SM SCT120 24/M03 A3002 RMK AO2 T02361029KFLY2019-09-20T00:55:00Z38.95-104.5723.6-2.9170111710.030.02067TRUETRUEVFRMETAR2096.02019-09-20 00:57:53 7fJ)) 5    3KGWW 200055Z AUTO 00000KT 10SM CLR 15/14 A3027 RMK AO2 T01500136KGWW2019-09-20T00:55:00Z35.47-77.9715.013.60010.030.268702TRUETRUEVFRMETAR41.02019-09-20 00:57:53F()5   3KIFA 200055Z AUTO 12005KT 10SM 22/19 A3003 RMK AO2 T02170185KIFA2019-09-20T00:55:00Z42.47-93.2721.718.5120510.030.029528TRUETRUEMETAR347.02019-09-20 00:57:53K')5   3KEDC 200055Z AUTO 15014G19KT 10SM SCT075 26/22 A2984 RMK AO2KEDC2019-09-20T00:55:00Z30.4-97.5726.022.0150141910.029.840551TRUETRUEVFRMETAR189.02019-09-20 00:57:53C&(y5    3KDNA 200055Z AUTO 23006KT 10SM CLR 31/10 A2991 RMK AO2KDNA2019-09-20T00:55:00Z31.88-106.731.010.0230610.029.911417TRUETRUEVFRMETAR1253.02019-09-20 00:57:53 8f@-(y5    3KPLR 200055Z AUTO 00000KT 10SM CLR 24/19 A3012 RMK A01KPLR2019-09-20T00:55:00Z33.57-86.2524.019.00010.030.121063TRUETRUEVFRMETAR148.02019-09-20 00:57:53C,(5    3KLKR 200055Z AUTO 00000KT 10SM FEW050 17/11 A3023 RMK AO2KLKR2019-09-20T00:55:00Z34.72-80.8517.011.00010.030.230314TRUETRUEVFRMETAR149.02019-09-20 00:57:53L+) 5    3KLMO 200055Z AUTO 00000KT 10SM CLR 23/08 A2987 RMK AO2 T02270077KLMO2019-09-20T00:55:00Z40.17-105.1722.77.70010.029.870079TRUETRUEVFRMETAR1541.02019-09-20 00:57:53B*(y5    3KGWR 200055Z AUTO 12007KT 10SM CLR 20/18 A2993 RMK A01KGWR2019-09-20T00:55:00Z46.22-97.6520.018.0120710.029.929134TRUETRUEVFRMETAR386.02019-09-20 00:57:53 "P|M1)5    3KMRN 200055Z AUTO 00000KT 10SM SCT039 17/13 A3031 RMK AO2 T01710132KMRN2019-09-20T00:55:00Z35.82-81.6217.113.20010.030.31004TRUETRUEVFRMETAR387.02019-09-20 00:57:53N0)5    3KPVB 200055Z AUTO 00000KT 10SM BKN065 21/21 A3007 RMK AO1 T02120212KPVB2019-09-20T00:55:00Z42.68-90.4321.221.20010.030.070866TRUETRUEVFRMETAR313.02019-09-20 00:57:53L/) 5    3KPRO 200055Z AUTO 12003KT 10SM CLR 23/20 A2998 RMK AO2 T02250202KPRO2019-09-20T00:55:00Z41.83-94.1722.520.2120310.029.97933TRUETRUEVFRMETAR308.02019-09-20 00:57:53X.)!5    3KPSO 200055Z AUTO 21004KT 10SM SCT085 SCT100 20/03 A3012 RMK AO2 T01970033KPSO2019-09-20T00:55:00Z37.28-107.0519.73.3210410.030.121063TRUETRUEVFRMETAR2334.02019-09-20 00:57:53 ":";6(q5   3KSHL 200055Z AUTO 11004KT 10SM 21/21 A2995 RMK AO2KSHL2019-09-20T00:55:00Z43.22-95.8221.021.0110410.029.949802TRUETRUEMETAR432.02019-09-20 00:57:53A5(y5    3KMXO 200055Z AUTO 08004KT 10SM CLR 20/20 A3004 RMK AO2KMXO2019-09-20T00:55:00Z42.22-91.1720.020.080410.030.041338TRUETRUEVFRMETAR259.02019-09-20 00:57:53O4)5    3KMWK 200055Z AUTO 08004KT 10SM SCT049 18/12 A3030 RMK AO2 T01790118KMWK2019-09-20T00:55:00Z36.47-80.5517.911.880410.030.301182TRUETRUEVFRMETAR380.02019-09-20 00:57:5353(i5    3KJFX 200055Z AUTO 10SM CLR 25/19 A3008 RMK AO2KJFX2019-09-20T00:55:00Z33.9-87.3225.019.010.030.079725TRUETRUEVFRMETAR148.02019-09-20 00:57:53@2(5    3KJZI 200055Z AUTO 03007KT 10SM FEW041 22/15 A3019 RMK AO2KJZI2019-09-20T00:55:00Z32.7-80.022.015.030710.030.188976TRUETRUEVFRMETAR6.02019-09-20 00:57:53 .jU:)5   3KTVY 200055Z AUTO 31016G27KT 10SM CLR 16/03 A2986 RMK AO2 LTG DSNT WKTVY2019-09-20T00:55:00Z40.62-112.3516.03.0310162710.029.861221TRUETRUEVFRMETAR1317.02019-09-20 00:57:53C9(5    3KUOX 200055Z AUTO 00000KT 10SM OVC035 26/21 A3007 RMK AO2KUOX2019-09-20T00:55:00Z34.38-89.5326.021.00010.030.070866TRUETRUEVFRMETAR137.02019-09-20 00:57:53>8(y5    3KVDF 200055Z AUTO 00000KT 10SM CLR 25/19 A3004 RMK AO2KVDF2019-09-20T00:55:00Z28.02-82.3325.019.00010.030.041338TRUETRUEVFRMETAR7.02019-09-20 00:57:53L7) 5    3KVTI 200055Z AUTO 11003KT 10SM CLR 22/20 A3002 RMK AO2 T02240202KVTI2019-09-20T00:55:00Z42.22-92.0222.420.2110310.030.02067TRUETRUEVFRMETAR255.02019-09-20 00:57:53 /hU>)5   3K2V5 200055Z AUTO 16019G28KT 10SM CLR 28/12 A2984 RMK AO2 LTG DSNT EK2V52019-09-20T00:55:00Z40.1-102.2528.012.0160192810.029.840551TRUETRUEVFRMETAR1118.02019-09-20 00:57:53B=(5    3K2J9 200055Z AUTO 05005KT 10SM SCT050 22/16 A3011 RMK AO2K2J92019-09-20T00:55:00Z30.6-84.5522.016.050510.030.109253TRUETRUEVFRMETAR69.02019-09-20 00:57:53A<(y5    3KSLB 200055Z AUTO 13005KT 10SM CLR 22/21 A2995 RMK AO2KSLB2019-09-20T00:55:00Z42.6-95.2222.021.0130510.029.949802TRUETRUEVFRMETAR454.02019-09-20 00:57:53K;) 5    3KOCW 200055Z AUTO 04003KT 10SM CLR 16/13 A3028 RMK AO2 T01640130KOCW2019-09-20T00:55:00Z35.57-77.0516.413.040310.030.280512TRUETRUEVFRMETAR12.02019-09-20 00:57:53 0lBC(y5    3KFSW 200055Z AUTO 10003KT 10SM CLR 23/23 A3001 RMK AO2KFSW2019-09-20T00:55:00Z40.67-91.3223.023.0100310.030.008858TRUETRUEVFRMETAR221.02019-09-20 00:57:53@B(y5    3KSPA 200055Z AUTO 00000KT 10SM CLR 18/12 A3025 RMK AO2KSPA2019-09-20T00:55:00Z34.92-81.9318.012.00010.030.250984TRUETRUEVFRMETAR303.02019-09-20 00:57:53CA(y5    3KSOW 200055Z AUTO 21016KT 10SM CLR 23/02 A3005 RMK AO2KSOW2019-09-20T00:55:00Z34.27-110.023.02.02101610.030.050198TRUETRUEVFRMETAR1954.02019-09-20 00:57:53>@(y5    3KSNC 200055Z AUTO 00000KT 10SM CLR 13/09 A3028 RMK AO2KSNC2019-09-20T00:55:00Z41.38-72.513.09.00010.030.280512TRUETRUEVFRMETAR127.02019-09-20 00:57:53J?) 5    3KASJ 200055Z AUTO 00000KT 10SM CLR 14/13 A3030 RMK AO2 T01390133KASJ2019-09-20T00:55:00Z36.28-77.1713.913.30010.030.301182TRUETRUEVFRMETAR21.02019-09-20 00:57:53 ?kCH(y5    3KD60 200055Z AUTO 11012KT 10SM CLR 21/13 A2983 RMK AO2KD602019-09-20T00:55:00Z48.38-102.921.013.01101210.029.828741TRUETRUEVFRMETAR693.02019-09-20 00:57:53>G(y5    3KDCM 200055Z AUTO 00000KT 10SM CLR 18/08 A3024 RMK AO2KDCM2019-09-20T00:55:00Z34.78-81.218.08.00010.030.239174TRUETRUEVFRMETAR200.02019-09-20 00:57:53BF(y5    3KCSQ 200055Z AUTO 13004KT 10SM CLR 24/22 A2999 RMK AO2KCSQ2019-09-20T00:55:00Z41.02-94.3724.022.0130410.029.991142TRUETRUEVFRMETAR394.02019-09-20 00:57:53NE) 5    3KSVE 200055Z AUTO 25004KT 10SM FEW060 SCT085 11/07 A3003 RMK AO2KSVE2019-09-20T00:55:00Z40.37-120.5711.07.0250410.030.029528TRUETRUEVFRMETAR1263.02019-09-20 00:57:53;D(q5   3KSXK 200055Z AUTO 12007KT 10SM 23/22 A2994 RMK AO2KSXK2019-09-20T00:55:00Z42.98-96.1723.022.0120710.029.940945TRUETRUEMETAR430.02019-09-20 00:57:53 6n?L(y5    3KLUX 200055Z AUTO 00000KT 10SM CLR 17/13 A3024 RMK AO2KLUX2019-09-20T00:55:00Z34.5-81.9517.013.00010.030.239174TRUETRUEVFRMETAR213.02019-09-20 00:57:53TK)5   3KOIN 200055Z AUTO 16018G25KT 10SM CLR 28/17 A2990 RMK AO1 T02820170KOIN2019-09-20T00:55:00Z39.83-100.5328.217.0160182510.029.899607TRUETRUEVFRMETAR824.02019-09-20 00:57:53BJ(y5    3KD50 200055Z AUTO 10008KT 10SM CLR 20/16 A2981 RMK AO2KD502019-09-20T00:55:00Z48.93-103.320.016.0100810.029.811024TRUETRUEVFRMETAR595.02019-09-20 00:57:53DI(y5    3KD57 200055Z AUTO 12010KT 10SM CLR 21/13 A2981 RMK AO2KD572019-09-20T00:55:00Z46.82-101.8721.013.01201010.029.811024TRUETRUEVFRMETAR637.02019-09-20 00:57:53 9sBQ(y5    3KOLZ 200055Z AUTO 13006KT 10SM CLR 20/20 A3004 RMK A01KOLZ2019-09-20T00:55:00Z42.67-91.9720.020.0130610.030.041338TRUETRUEVFRMETAR328.02019-09-20 00:57:53@P(y5    3KHPT 200055Z AUTO 00000KT 10SM CLR 21/20 A3001 RMK AO2KHPT2019-09-20T00:55:00Z42.58-93.2321.020.00010.030.008858TRUETRUEVFRMETAR358.02019-09-20 00:57:53GO) 5    3KHXD 200055Z AUTO 03008KT 360V060 10SM CLR 24/15 A3018 RMK AO2KHXD2019-09-20T00:55:00Z32.22-80.724.015.030810.030.180119TRUETRUEVFRMETAR6.02019-09-20 00:57:53@N(w5    3KHZE 200055Z AUTO 09005KT 9SM CLR 21/16 A2984 RMK AO2KHZE2019-09-20T00:55:00Z47.28-101.5821.016.09059.029.840551TRUETRUEVFRMETAR553.02019-09-20 00:57:53AM(y5    3KIDI 200055Z AUTO 14007KT 10SM CLR 17/09 A3028 RMK A01KIDI2019-09-20T00:55:00Z40.62-79.0817.09.0140710.030.280512TRUETRUEVFRMETAR429.02019-09-20 00:57:53 2W9U(q5   3KSEM 200055Z AUTO 09006KT 10SM 27/17 A3007 RMK AO2KSEM2019-09-20T00:55:00Z32.35-86.9827.017.090610.030.070866TRUETRUEMETAR51.02019-09-20 00:57:53@T(y5    3KRVL 200055Z AUTO 00000KT 10SM CLR 14/11 A3028 RMK AO2KRVL2019-09-20T00:55:00Z40.68-77.6314.011.00010.030.280512TRUETRUEVFRMETAR250.02019-09-20 00:57:53US)!5     3KORS 200055Z AUTO 00000KT 6SM -RA FEW040 BKN080 BKN100 14/13 A3006 RMK AO2KORS2019-09-20T00:55:00Z48.7-122.9214.013.0006.030.059055TRUETRUE-RAVFRMETAR9.02019-09-20 00:57:53HR(5   3KPAN 200055Z AUTO 22009G16KT 10SM CLR 25/00 A2996 RMK AO2KPAN2019-09-20T00:55:00Z34.25-111.3325.00.022091610.029.958662TRUETRUEVFRMETAR1572.02019-09-20 00:57:53 :rEY(5    3KFQD 200055Z AUTO 35004KT 10SM OVC040 18/14 A3028 RMK AO2KFQD2019-09-20T00:55:00Z35.42-81.9318.014.0350410.030.280512TRUETRUEVFRMETAR329.02019-09-20 00:57:53IX) 5    3K1P1 200055Z AUTO 00000KT 10SM CLR 08/07 A3027 RMK AO2 T00810073K1P12019-09-20T00:55:00Z43.78-71.758.17.30010.030.268702TRUETRUEVFRMETAR154.02019-09-20 00:57:53BW(y5    3KS25 200055Z AUTO 11007KT 10SM CLR 23/15 A2977 RMK AO2KS252019-09-20T00:55:00Z47.8-103.2523.015.0110710.029.769686TRUETRUEVFRMETAR644.02019-09-20 00:57:53@V(y5    3KS32 200055Z AUTO 08007KT 10SM CLR 19/19 A2995 RMK AO2KS322019-09-20T00:55:00Z47.42-98.119.019.080710.029.949802TRUETRUEVFRMETAR684.02019-09-20 00:57:53 1`>](y5    3KIXA 200055Z AUTO 00000KT 10SM CLR 12/12 A3029 RMK AO2KIXA2019-09-20T00:55:00Z36.33-77.6312.012.00010.030.28937TRUETRUEVFRMETAR44.02019-09-20 00:57:53U\)!5    3KD25 200055Z AUTO 00000KT 10SM BKN036 OVC044 20/20 A3006 RMK AO2 T01960196KD252019-09-20T00:55:00Z46.12-89.8819.619.60010.030.059055TRUETRUEVFRMETAR491.02019-09-20 00:57:53K[) 5    3KEHO 200055Z AUTO 01004KT 10SM CLR 18/13 A3026 RMK AO2 T01760129KEHO2019-09-20T00:55:00Z35.25-81.617.612.910410.030.259842TRUETRUEVFRMETAR258.02019-09-20 00:57:53IZ) 5    3KHNZ 200055Z AUTO 00000KT 10SM CLR 14/09 A3029 RMK AO2 T01430088KHNZ2019-09-20T00:55:00Z36.37-78.5314.38.80010.030.28937TRUETRUEVFRMETAR161.02019-09-20 00:57:53 "GvSa)!5    3KRCX 200055Z AUTO 00000KT 10SM SCT041 BKN049 20/19 A3005 RMK AO2 T02040193KRCX2019-09-20T00:55:00Z45.5-91.020.419.30010.030.050198TRUETRUEVFRMETAR377.02019-09-20 00:57:53K`) 5    3KRPD 200055Z AUTO 00000KT 10SM CLR 22/14 A3003 RMK AO2 T02150140KRPD2019-09-20T00:55:00Z45.42-91.7721.514.00010.030.029528TRUETRUEVFRMETAR338.02019-09-20 00:57:53U_)!5    3KLNL 200055Z AUTO 00000KT 10SM SCT028 BKN041 19/18 A3009 RMK AO2 T01890180KLNL2019-09-20T00:55:00Z46.15-89.2218.918.00010.030.088583TRUETRUEVFRMETAR520.02019-09-20 00:57:53X^)!5      3KJSO 200055Z AUTO 5SM RA BKN006 OVC012 22/22 A2992 RMK AO2 P0009 T02210220KJSO2019-09-20T00:55:00Z31.87-95.2222.122.05.029.920275TRUETRUERAIFR0.09METAR206.02019-09-20 00:57:53 9uKe) 5    3KPCZ 200055Z AUTO 00000KT 10SM CLR 21/20 A3006 RMK AO2 T02070198KPCZ2019-09-20T00:55:00Z44.33-89.0220.719.80010.030.059055TRUETRUEVFRMETAR252.02019-09-20 00:57:53Ld) 5    3KPEA 200055Z AUTO 11003KT 10SM CLR 24/20 A3001 RMK AO2 T02360204KPEA2019-09-20T00:55:00Z41.4-92.9523.620.4110310.030.008858TRUETRUEVFRMETAR270.02019-09-20 00:57:53>c(y5    3KPGV 200055Z AUTO 05003KT 10SM CLR 16/13 A3028 RMK AO2KPGV2019-09-20T00:55:00Z35.62-77.416.013.050310.030.280512TRUETRUEVFRMETAR8.02019-09-20 00:57:53Ab(y5    3KPLD 200055Z AUTO 01003KT 10SM CLR 21/17 A3009 RMK AO2KPLD2019-09-20T00:55:00Z40.45-84.9821.017.010310.030.088583TRUETRUEVFRMETAR282.02019-09-20 00:57:53 :f@i(y5    3KSDC 200055Z AUTO 00000KT 10SM CLR 15/10 A3024 RMK AO2KSDC2019-09-20T00:55:00Z43.23-77.1215.010.00010.030.239174TRUETRUEVFRMETAR129.02019-09-20 00:57:53;h(y5    3KVNC 200055Z AUTO 06012KT 10SM CLR 26/18 A3000 RMK AO2KVNC2019-09-20T00:55:00Z27.07-82.4326.018.0601210.030.0TRUETRUEVFRMETAR6.02019-09-20 00:57:53Ng)5    3KSUT 200055Z AUTO 35004KT 10SM SCT060 20/13 A3022 RMK AO2 T02000133KSUT2019-09-20T00:55:00Z33.93-78.0820.013.3350410.030.221457TRUETRUEVFRMETAR8.02019-09-20 00:57:53@f(y5    3KMAO 200055Z AUTO 05003KT 10SM CLR 17/12 A3024 RMK AO2KMAO2019-09-20T00:55:00Z34.18-79.3317.012.050310.030.239174TRUETRUEVFRMETAR28.02019-09-20 00:57:53 0_Bm(y5    3K06D 200055Z AUTO 13007KT 10SM CLR 18/14 A2995 RMK AO2K06D2019-09-20T00:55:00Z48.88-99.6218.014.0130710.029.949802TRUETRUEVFRMETAR556.02019-09-20 00:57:53Al(y5    3K08D 200055Z AUTO 13009KT 10SM CLR 20/15 A2984 RMK AO2K08D2019-09-20T00:55:00Z48.3-102.420.015.0130910.029.840551TRUETRUEVFRMETAR684.02019-09-20 00:57:53Kk) 5    3K0S9 200055Z AUTO 00000KT 10SM SCT095 SCT120 16/12 A3006 RMK AO2K0S92019-09-20T00:55:00Z48.05-122.8216.012.00010.030.059055TRUETRUEVFRMETAR33.02019-09-20 00:57:53Jj) 5    3KX07 200055Z AUTO 07005KT 10SM SCT037 SCT085 24/19 A3004 RMK A01KX072019-09-20T00:55:00Z27.9-81.6224.019.070510.030.041338TRUETRUEVFRMETAR39.02019-09-20 00:57:53 #8r#Br(y5    3KCLK 200055Z AUTO 13009KT 10SM CLR 26/16 A2993 RMK AO2KCLK2019-09-20T00:55:00Z35.53-98.9326.016.0130910.029.929134TRUETRUEVFRSPECI492.02019-09-20 00:57:53+q(_5   3KCNW 200055Z 00000KT 10SM SKC 28/21 A2984KCNW2019-09-20T00:55:00Z31.63-97.0728.021.00010.029.840551VFRMETAR156.02019-09-20 00:57:53Pp)5    3CYGW 200055Z AUTO 31014G19KT 5SM BR OVC007 07/07 A2985 RMK SLP110CYGW2019-09-20T00:55:00Z55.27-77.777.07.031014195.029.849411011.0TRUEBRIFRSPECI12.02019-09-20 00:57:53@o(y5    3KMRJ 200055Z AUTO 00000KT 10SM CLR 22/21 A3007 RMK AO2KMRJ2019-09-20T00:55:00Z42.88-90.2322.021.00010.030.070866TRUETRUEVFRMETAR359.02019-09-20 00:57:53Bn(y5    3KRDK 200055Z AUTO 12006KT 10SM CLR 26/22 A2995 RMK AO2KRDK2019-09-20T00:55:00Z41.02-95.2726.022.0120610.029.949802TRUETRUEVFRMETAR318.02019-09-20 00:57:53 'OBv(y5    3KL08 200055Z AUTO 27015KT 10SM CLR 29/07 A2971 RMK AO2KL082019-09-20T00:55:00Z33.27-116.3229.07.02701510.029.71063TRUETRUEVFRMETAR159.02019-09-20 00:57:53?u(w5    3KGAF 200055Z AUTO 12007KT 7SM CLR 21/15 A2997 RMK AO2KGAF2019-09-20T00:55:00Z48.4-97.3721.015.012077.029.970472TRUETRUEVFRMETAR252.02019-09-20 00:57:53Rt)5      3KMHL 200055Z AUTO 00000KT 10SM CLR 26/21 A2999 RMK AO2 TSNO PWINOKMHL2019-09-20T00:55:00Z39.1-93.226.021.00010.029.991142TRUETRUETRUETRUEVFRSPECI237.02019-09-20 00:57:53Ss)5     3KUNU 200055Z AUTO 00000KT 10SM CLR 20/19 A3008 RMK AO2 T02010193 TSNOKUNU2019-09-20T00:55:00Z43.42-88.720.119.30010.030.079725TRUETRUETRUEVFRMETAR285.02019-09-20 00:57:53 2aOz) 5    3KCMR 200055Z AUTO 21014G26KT 10SM CLR 20/M01 A3000 RMK AO2 PWINOKCMR2019-09-20T00:55:00Z35.3-112.220.0-1.0210142610.030.0TRUETRUETRUEVFRMETAR2036.02019-09-20 00:57:53Jy)5   3KCPT 200055Z AUTO 08007G14KT 10SM SCT025 26/22 A2988 RMK AO2KCPT2019-09-20T00:55:00Z32.35-97.4326.022.08071410.029.878937TRUETRUEVFRMETAR260.02019-09-20 00:57:53Kx) 5    3KAID 200055Z AUTO 00000KT 10SM CLR 22/17 A3009 RMK AO2 T02170169KAID2019-09-20T00:55:00Z40.12-85.6221.716.90010.030.088583TRUETRUEVFRMETAR280.02019-09-20 00:57:53Hw) 5    3KLDJ 200055Z AUTO 00000KT 10SM CLR 17/07 A3028 RMK AO2 T01740067KLDJ2019-09-20T00:55:00Z40.62-74.2517.46.70010.030.280512TRUETRUEVFRMETAR7.02019-09-20 00:57:53 0@kV~)5     3KMAN 200055Z AUTO 00000KT 10SM SCT070 BKN080 16/10 A2991 RMK A01 P0002KMAN2019-09-20T00:55:00Z43.58-116.5216.010.00010.029.911417TRUETRUEVFR0.02METAR774.02019-09-20 00:57:53O})5    3KINF 200055Z AUTO 02004KT 7SM SCT040 BKN070 OVC095 22/22 A3007 RMK AO2KINF2019-09-20T00:55:00Z28.8-82.3222.022.02047.030.070866TRUETRUEVFRSPECI15.02019-09-20 00:57:53j|)?5     3KGNT 200055Z AUTO 21004KT 10SM -RA BKN080 OVC120 16/13 A3010 RMK AO2 LTG DSNT S T01560132KGNT2019-09-20T00:55:00Z35.17-107.915.613.2210410.030.100393TRUETRUE-RAVFRMETAR1987.02019-09-20 00:57:53J{)5     3KCIN 200055Z AUTO 12005KT 10SM -RA CLR 22/20 A2997 RMK AO2KCIN2019-09-20T00:55:00Z42.03-94.7722.020.0120510.029.970472TRUETRUE-RAVFRMETAR375.02019-09-20 00:57:53 ;z2(s5   3EKSP 200054Z 26005KT 9999 SCT043 BKN050 10/08 Q1028EKSP2019-09-20T00:54:00Z55.229.2710.08.026056.2130.35433VFRMETAR40.02019-09-20 00:57:53t)G5   3KRKS 200054Z AUTO 20018G27KT 10SM CLR 22/M04 A2986 RMK AO2 PK WND 20035/0011 SLP030 T02171044KRKS2019-09-20T00:54:00Z41.6-109.0721.7-4.4200182710.029.8612211003.0TRUETRUEVFRMETAR2060.02019-09-20 00:57:53;({5   3KDMH 200054Z AUTO 19/08 A3030 RMK AO1 SLP260 T01890078 KDMH2019-09-20T00:54:00Z39.28-76.6218.97.830.3011821026.0TRUETRUEMETAR5.02019-09-20 00:57:53?(y5    3KRCM 200055Z AUTO 00000KT 10SM CLR 25/19 A2997 RMK AO2KRCM2019-09-20T00:55:00Z38.78-93.825.019.00010.029.970472TRUETRUEVFRSPECI244.02019-09-20 00:57:53 =]W)5    3KAAF 200053Z AUTO 06005KT 10SM CLR 26/18 A3005 RMK AO2 SLP177 T02560178KAAF2019-09-20T00:53:00Z29.73-85.0325.617.860510.030.0501981017.7TRUETRUEVFRMETAR5.02019-09-20 00:57:53X)#5    3KNUI 200053Z AUTO 00000KT 10SM SCT045 15/09 A3029 RMK AO2 SLP257 T01500094 KNUI2019-09-20T00:53:00Z38.15-76.4315.09.40010.030.289371025.7TRUETRUEVFRMETAR7.02019-09-20 00:57:53Z)5    3KCMX 200053Z AUTO 09005KT 9SM FEW048 17/16 A3005 RMK AO2 SLP176 T01720156KCMX2019-09-20T00:53:00Z47.17-88.4817.215.69059.030.0501981017.6TRUETRUEVFRMETAR326.02019-09-20 00:57:53=)5   3PKMJ 200054Z 24007KT 15SM FEW015 SCT050 BKN300 31/26 A2978 PKMJ2019-09-20T00:54:00Z7.07171.2731.026.0240715.029.778543VFRMETAR3.02019-09-20 00:57:53  CoY )5    3KACV 200053Z AUTO 35011KT 10SM CLR 19/12 A3002 RMK AO2 SLP170 T01940117KACV2019-09-20T00:53:00Z40.98-124.119.411.73501110.030.020671017.0TRUETRUEVFRMETAR67.02019-09-20 00:57:53N )5    3KACK 200053Z 03004KT 10SM CLR 10/07 A3027 RMK AO2 SLP251 T01000072KACK2019-09-20T00:53:00Z41.25-70.0710.07.230410.030.2687021025.1TRUEVFRMETAR16.02019-09-20 00:57:53W)5    3KABY 200053Z AUTO 06005KT 10SM CLR 23/11 A3014 RMK AO2 SLP204 T02330106KABY2019-09-20T00:53:00Z31.53-84.223.310.660510.030.1387791020.4TRUETRUEVFRMETAR58.02019-09-20 00:57:53Z)5    3KABR 200053Z AUTO 10007KT 10SM CLR 23/17 A2989 RMK AO2 SLP119 T02280172KABR2019-09-20T00:53:00Z45.45-98.4222.817.2100710.029.8907471011.9TRUETRUEVFRMETAR397.02019-09-20 00:57:53  It[)5    3KAIA 200053Z AUTO 12008KT 10SM CLR 22/14 A2983 RMK AO2 SLP073 T02170144KAIA2019-09-20T00:53:00Z42.05-102.821.714.4120810.029.8287411007.3TRUETRUEVFRMETAR1196.02019-09-20 00:57:53O )5    3KAGS 200053Z 05003KT 10SM CLR 19/11 A3019 RMK AO2 SLP222 T01940106KAGS2019-09-20T00:53:00Z33.37-81.9719.410.650310.030.1889761022.2TRUEVFRMETAR44.02019-09-20 00:57:53Q )5    3KAGC 200053Z 13005KT 10SM CLR 19/11 A3021 RMK AO2 SLP230 T01890106KAGC2019-09-20T00:53:00Z40.35-79.9218.910.6130510.030.2096461023.0TRUEVFRMETAR389.02019-09-20 00:57:53Z )5    3KADG 200053Z AUTO 10005KT 10SM CLR 19/16 A3013 RMK AO2 SLP205 T01940156KADG2019-09-20T00:53:00Z41.87-84.0819.415.6100510.030.1299211020.5TRUETRUEVFRMETAR241.02019-09-20 00:57:53 Jo_)!5   3KALI 200053Z AUTO 14016G22KT 10SM CLR 31/24 A2979 RMK AO2 SLP084 T03060244KALI2019-09-20T00:53:00Z27.73-98.0230.624.4140162210.029.7903541008.4TRUETRUEVFRMETAR53.02019-09-20 00:57:53U)5    3KAFW 200053Z 10010KT 10SM OVC033 26/21 A2986 RMK AO2 SLP097 T02610206KAFW2019-09-20T00:53:00Z32.97-97.3226.120.61001010.029.8612211009.7TRUEVFRMETAR233.02019-09-20 00:57:53N)5    3KAEX 200053Z 10005KT 9SM CLR 23/22 A2995 RMK AO2 SLP146 T02330222KAEX2019-09-20T00:53:00Z31.33-92.5723.322.210059.029.9498021014.6TRUEVFRMETAR27.02019-09-20 00:57:53\)5    3KAKO 200053Z AUTO 16010KT 10SM CLR 28/01 A2986 RMK AO2 SLP055 T02780011KAKO2019-09-20T00:53:00Z40.17-103.2227.81.11601010.029.8612211005.5TRUETRUEVFRMETAR1421.02019-09-20 00:57:53 '''U)5    3KAMW 200053Z AUTO 11004KT 10SM CLR 23/21 A3000 RMK AO2 SLP150 T02280211KAMW2019-09-20T00:53:00Z41.98-93.6222.821.1110410.030.01015.0TRUETRUEVFRMETAR279.02019-09-20 00:57:53U)5    3KAMG 200053Z AUTO VRB05KT 10SM CLR 23/15 A3015 RMK AO2 SLP208 T02280150KAMG2019-09-20T00:53:00Z31.53-82.522.815.00510.030.150591020.8TRUETRUEVFRMETAR59.02019-09-20 00:57:53D)U5  !   3KAMA 200053Z 07021G27KT 6SM VCTS RA BR FEW080 BKN100 BKN120 18/16 A3001 RMK AO2 PK WND 07030/0038 WSHFT 0006 LTG DSNT NE-SE RAE37B41 TSB22E37 SLP122 P0037 T01780156KAMA2019-09-20T00:53:00Z35.22-101.7217.815.67021276.030.0088581012.2TRUEVCTS RA BRVFR0.37METAR1093.02019-09-20 00:57:53S)5    3KALW 200053Z 16007KT 10SM SCT050 20/08 A2997 RMK AO2 SLP146 T02000083KALW2019-09-20T00:53:00Z46.1-118.2820.08.3160710.029.9704721014.6TRUEVFRMETAR363.02019-09-20 00:57:53 !?hP)5    3KBRO 200053Z 14010KT 10SM CLR 29/24 A2982 RMK AO2 SLP098 T02940239KBRO2019-09-20T00:53:00Z25.92-97.4229.423.91401010.029.8198811009.8TRUEVFRMETAR7.02019-09-20 00:57:53Q)5    3KBTL 200053Z 14005KT 10SM CLR 22/14 A3011 RMK AO2 SLP192 T02170139KBTL2019-09-20T00:53:00Z42.32-85.2321.713.9140510.030.1092531019.2TRUEVFRMETAR290.02019-09-20 00:57:53\)!5    3KAOH 200053Z AUTO 12005KT 10SM BKN055 24/17 A3010 RMK AO2 SLP189 T02440172KAOH2019-09-20T00:53:00Z40.7-84.0224.417.2120510.030.1003931018.9TRUETRUEVFRMETAR296.02019-09-20 00:57:53Y)5    3KANB 200053Z AUTO 07004KT 10SM CLR 25/15 A3014 RMK AO2 SLP197 T02500150KANB2019-09-20T00:53:00Z33.58-85.8525.015.070410.030.1387791019.7TRUETRUEVFRMETAR183.02019-09-20 00:57:53 h @FhX)5    3KBPK 200053Z AUTO 00000KT 10SM CLR 25/21 A2999 RMK AO2 SLP148 T02500211KBPK2019-09-20T00:53:00Z36.37-92.4725.021.10010.029.9911421014.8TRUETRUEVFRMETAR280.02019-09-20 00:57:53t)M5     3KBPT 200053Z AUTO 00000KT 10SM SCT075 OVC090 26/24 A2992 RMK AO2 RAB02E30 SLP132 P0000 T02560239KBPT2019-09-20T00:53:00Z29.95-94.0325.623.90010.029.9202751013.2TRUETRUEVFR0.005METAR5.02019-09-20 00:57:53Z)5     3KBRD 200053Z AUTO 00000KT 6SM HZ CLR 21/18 A3001 RMK AO2 SLP161 T02110178KBRD2019-09-20T00:53:00Z46.4-94.1321.117.8006.030.0088581016.1TRUETRUEHZVFRMETAR372.02019-09-20 00:57:53Z)5    3KBRL 200053Z AUTO 10003KT 10SM CLR 25/22 A3001 RMK AO2 SLP157 T02500217KBRL2019-09-20T00:53:00Z40.77-91.1325.021.7100310.030.0088581015.7TRUETRUEVFRMETAR211.02019-09-20 00:57:53 B BT")5    3KBNA 200053Z 17007KT 10SM FEW250 27/17 A3007 RMK AO2 SLP177 T02720172KBNA2019-09-20T00:53:00Z36.12-86.6827.217.2170710.030.0708661017.7TRUEVFRMETAR210.02019-09-20 00:57:53[!)!5   3KBNO 200053Z AUTO 31014G19KT 10SM CLR 14/05 A3000 RMK AO2 SLP148 T01440050KBNO2019-09-20T00:53:00Z43.6-118.9514.45.0310141910.030.01014.8TRUETRUEVFRMETAR1264.02019-09-20 00:57:53 )q5     3KBOI 200053Z 27003KT 10SM BKN065 BKN085 14/08 A2991 RMK AO2 WSHFT 2345 LTG DSNT SW RAB19E29 SLP122 P0000 T01390078KBOI2019-09-20T00:53:00Z43.57-116.2313.97.8270310.029.9114171012.2TRUEVFR0.005METAR875.02019-09-20 00:57:53q)G5    3KBPI 200053Z AUTO 28005KT 10SM SCT110 17/M03 A2987 RMK AO2 PK WND 20041/0011 SLP059 T01721028KBPI2019-09-20T00:53:00Z42.58-110.117.2-2.8280510.029.8700791005.9TRUETRUEVFRMETAR2117.02019-09-20 00:57:53 AXL&)5    3KCDW 200053Z 00000KT 10SM CLR 14/07 A3029 RMK AO2 SLP262 T01440067KCDW2019-09-20T00:53:00Z40.88-74.2814.46.70010.030.289371026.2TRUEVFRMETAR64.02019-09-20 00:57:53c%)/5    3KBTM 200053Z AUTO 29009KT 10SM BKN038 OVC049 09/06 A2996 RMK AO2 SLP127 T00940056KBTM2019-09-20T00:53:00Z45.97-112.59.45.6290910.029.9586621012.7TRUETRUEVFRMETAR1688.02019-09-20 00:57:53W$)5    3KAOO 200053Z AUTO 15004KT 10SM CLR 14/07 A3029 RMK AO2 SLP255 T01440072KAOO2019-09-20T00:53:00Z40.3-78.3214.47.2150410.030.289371025.5TRUETRUEVFRMETAR455.02019-09-20 00:57:53\#)%5    3KAPA 200053Z 24009KT 10SM FEW120 FEW200 26/01 A2989 RMK AO2 SLP056 T02560011KAPA2019-09-20T00:53:00Z39.57-104.8525.61.1240910.029.8907471005.6TRUEVFRMETAR1775.02019-09-20 00:57:53 o=DoO*)5    3KCCR 200053Z 32007KT 10SM CLR 26/07 A2989 RMK AO2 SLP107 T02610072KCCR2019-09-20T00:53:00Z38.0-122.0526.17.2320710.029.8907471010.7TRUEVFRMETAR11.02019-09-20 00:57:53s))G5   3KCDC 200053Z AUTO 21021G28KT 10SM CLR 21/M07 A2982 RMK AO2 PK WND 22033/0016 SLP036 T02111067KCDC2019-09-20T00:53:00Z37.7-113.121.1-6.7210212810.029.8198811003.6TRUETRUEVFRMETAR1714.02019-09-20 00:57:53\()5    3KCDR 200053Z AUTO 16011KT 10SM CLR 26/15 A2977 RMK AO2 SLP064 T02610150KCDR2019-09-20T00:53:00Z42.83-103.126.115.01601110.029.7696861006.4TRUETRUEVFRMETAR1010.02019-09-20 00:57:53[')5    3KCDS 200053Z AUTO 11009KT 10SM CLR 28/18 A2992 RMK AO2 SLP105 T02780183KCDS2019-09-20T00:53:00Z34.43-100.2827.818.3110910.029.9202751010.5TRUETRUEVFRMETAR594.02019-09-20 00:57:53 } ?]}Z.)5    3KBWG 200053Z AUTO 12005KT 10SM CLR 25/18 A3007 RMK AO2 SLP178 T02500183KBWG2019-09-20T00:53:00Z36.97-86.4225.018.3120510.030.0708661017.8TRUETRUEVFRMETAR168.02019-09-20 00:57:53\-)5    3KBYG 200053Z AUTO 32014KT 10SM CLR 16/07 A2982 RMK AO2 SLP065 T01610067KBYG2019-09-20T00:53:00Z44.38-106.7216.16.73201410.029.8198811006.5TRUETRUEVFRMETAR1497.02019-09-20 00:57:53[,)5    3KBYI 200053Z AUTO 27006KT 10SM CLR 11/07 A2990 RMK AO2 SLP110 T01060067KBYI2019-09-20T00:53:00Z42.55-113.7710.66.7270610.029.8996071011.0TRUETRUEVFRMETAR1264.02019-09-20 00:57:53Z+)5    3KCAG 200053Z AUTO 18007KT 10SM CLR 23/01 A2988 RMK AO2 SLP068 T02280011KCAG2019-09-20T00:53:00Z40.5-107.5222.81.1180710.029.8789371006.8TRUETRUEVFRMETAR1887.02019-09-20 00:57:53 -VS-2(e5   3KUNV 200053Z 00000KT 10SM SCT095 16/09 A3028KUNV2019-09-20T00:53:00Z40.85-77.8316.09.00010.030.280512VFRMETAR378.02019-09-20 00:57:53}1)k5    3KBTR 200053Z 24015G23KT 10SM TS FEW020 BKN031 OVC042 25/21 A3000 RMK AO2 LTG DSNT W-N TSE16B18 SLP159 T02500211KBTR2019-09-20T00:53:00Z30.53-91.1525.021.1240152310.030.01015.9TRUETSVFRMETAR21.02019-09-20 00:57:53Q0)5    3KBUR 200053Z 18006KT 10SM CLR 23/14 A2981 RMK AO2 SLP083 T02280144KBUR2019-09-20T00:53:00Z34.2-118.3722.814.4180610.029.8110241008.3TRUEVFRMETAR217.02019-09-20 00:57:53M/)5    3KBVY 200053Z 00000KT 10SM CLR 11/07 A3026 RMK AO2 SLP241 T01110067KBVY2019-09-20T00:53:00Z42.58-70.9211.16.70010.030.2598421024.1TRUEVFRMETAR28.02019-09-20 00:57:53  5]S6)5    3KCGI 200053Z AUTO 00000KT 10SM CLR 23/20 A3000 RMK AO2 SLP157 T02330200KCGI2019-09-20T00:53:00Z37.23-89.5823.320.00010.030.01015.7TRUETRUEVFRMETAR102.02019-09-20 00:57:53R5)5    3KCHA 200053Z 14007KT 10SM FEW250 25/15 A3015 RMK AO2 SLP203 T02500150KCHA2019-09-20T00:53:00Z35.03-85.225.015.0140710.030.150591020.3TRUEVFRMETAR210.02019-09-20 00:57:53e4)15    3KCEZ 200053Z AUTO 15005KT 10SM CLR 22/06 A2992 RMK AO2 LTG DSNT E SLP070 T02220061KCEZ2019-09-20T00:53:00Z37.3-108.6322.26.1150510.029.9202751007.0TRUETRUEVFRMETAR1797.02019-09-20 00:57:53Z3)!5    3KCEW 200053Z AUTO 00000KT 10SM OVC060 28/20 A3008 RMK AO2 SLP182 T02780200KCEW2019-09-20T00:53:00Z30.78-86.5227.820.00010.030.0797251018.2TRUETRUEVFRMETAR55.02019-09-20 00:57:53 +MiV:)5    3KASE 200053Z 00000KT 10SM CLR 18/01 A3003 RMK AO2 SLP060 T01780011 $KASE2019-09-20T00:53:00Z39.23-106.8717.81.10010.030.0295281006.0TRUETRUEVFRMETAR2354.02019-09-20 00:57:53^9)5    3KARB 200053Z AUTO 00000KT 10SM CLR 17/16 A3014 RMK AO2 SLP204 T01670156 $KARB2019-09-20T00:53:00Z42.22-83.7316.715.60010.030.1387791020.4TRUETRUETRUEVFRMETAR251.02019-09-20 00:57:53X8)5    3KARA 200053Z 09009KT 10SM FEW023 26/22 A2999 RMK AO2 SLP155 T02560222 $KARA2019-09-20T00:53:00Z30.03-91.8825.622.290910.029.9911421015.5TRUETRUEVFRMETAR18.02019-09-20 00:57:53O7)5    3KAPF 200053Z 04011KT 10SM CLR 26/20 A2996 RMK AO2 SLP145 T02610200KAPF2019-09-20T00:53:00Z26.15-81.7726.120.0401110.029.9586621014.5TRUEVFRMETAR3.02019-09-20 00:57:53 "CdX>)5    3KAUG 200053Z AUTO 18004KT 10SM CLR 12/07 A3025 RMK AO2 SLP245 T01170072KAUG2019-09-20T00:53:00Z44.32-69.811.77.2180410.030.2509841024.5TRUETRUEVFRMETAR109.02019-09-20 00:57:53Y=)5    3KATY 200053Z AUTO 13005KT 10SM CLR 23/18 A2994 RMK AO2 SLP135 T02330183KATY2019-09-20T00:53:00Z44.9-97.1523.318.3130510.029.9409451013.5TRUETRUEVFRMETAR532.02019-09-20 00:57:53Y<)5    3KASX 200053Z AUTO 01004KT 10SM CLR 17/16 A3003 RMK AO2 SLP171 T01670156KASX2019-09-20T00:53:00Z46.55-90.9216.715.610410.030.0295281017.1TRUETRUEVFRMETAR251.02019-09-20 00:57:53X;)5    3KASD 200053Z AUTO 12007KT 10SM CLR 28/22 A3001 RMK AO2 SLP161 T02780217KASD2019-09-20T00:53:00Z30.35-89.8227.821.7120710.030.0088581016.1TRUETRUEVFRMETAR9.02019-09-20 00:57:53 z+TzTB)5    3KAXN 200053Z AUTO 11004KT 10SM CLR 23/16 A3000 RMK AO2 SLP157 T02280156KAXN2019-09-20T00:53:00Z45.87-95.422.815.6110410.030.01015.7TRUETRUEVFRMETAR433.02019-09-20 00:57:53QA)5    3KAZO 200053Z 13003KT 10SM CLR 22/13 A3011 RMK AO2 SLP193 T02170128KAZO2019-09-20T00:53:00Z42.23-85.5521.712.8130310.030.1092531019.3TRUEVFRMETAR272.02019-09-20 00:57:53L@)5    3KBAF 200053Z 00000KT 10SM CLR 09/07 A3027 RMK AO2 SLP252 T00940072KBAF2019-09-20T00:53:00Z42.17-72.729.47.20010.030.2687021025.2TRUEVFRMETAR83.02019-09-20 00:57:53}?)K5   3KAUS 200053Z 14014G22KT 10SM FEW012 SCT050 BKN090 BKN200 26/23 A2983 RMK AO2 SLP090 T02610233 $KAUS2019-09-20T00:53:00Z30.18-97.6826.123.3140142210.029.8287411009.0TRUETRUEBKN20000VFRMETAR166.02019-09-20 00:57:53 X%/XQF)5    3KBHM 200053Z 13005KT 10SM CLR 27/17 A3013 RMK AO2 SLP193 T02720167KBHM2019-09-20T00:53:00Z33.57-86.7527.216.7130510.030.1299211019.3TRUEVFRMETAR197.02019-09-20 00:57:53pE)I5    3KBIL 200053Z 05008KT 10SM FEW085 SCT120 18/08 A2981 RMK AO2 SLP080 SHRA DSNT SW-NW T01830078 $KBIL2019-09-20T00:53:00Z45.8-108.5518.37.850810.029.8110241008.0TRUETRUEVFRMETAR1091.02019-09-20 00:57:53[D)5    3KGGW 200053Z AUTO 30008KT 10SM CLR 19/11 A2974 RMK AO2 SLP070 T01940106KGGW2019-09-20T00:53:00Z48.22-106.6219.410.6300810.029.7401581007.0TRUETRUEVFRMETAR694.02019-09-20 00:57:53tC)I5    3KAWM 200053Z AUTO 16009KT 10SM FEW095 28/23 A3001 RMK AO2 LTG DSNT W AND NW SLP157 T02830228 $KAWM2019-09-20T00:53:00Z35.13-90.2328.322.8160910.030.0088581015.7TRUETRUETRUEVFRMETAR65.02019-09-20 00:57:53 c,V[crJ)E5   3KELN 200053Z AUTO 30015G23KT 10SM CLR 18/06 A2997 RMK AO2 PK WND 31026/0017 SLP147 T01830061KELN2019-09-20T00:53:00Z47.03-120.5318.36.1300152310.029.9704721014.7TRUETRUEVFRMETAR519.02019-09-20 00:57:53uI)K5     3KELY 200053Z AUTO 34007KT 10SM BKN070 OVC090 07/03 A2998 RMK AO2 RAE2358 SLP114 P0000 T00720028KELY2019-09-20T00:53:00Z39.3-114.857.22.8340710.029.979331011.4TRUETRUEVFR0.005METAR1906.02019-09-20 00:57:53PH)5    3KBGM 200053Z 19005KT 10SM CLR 14/04 A3028 RMK AO2 SLP257 T01440044KBGM2019-09-20T00:53:00Z42.22-75.9814.44.4190510.030.2805121025.7TRUEVFRMETAR490.02019-09-20 00:57:53NG)5    3KBGR 200053Z 19004KT 10SM CLR 12/08 A3024 RMK AO2 SLP240 T01170078KBGR2019-09-20T00:53:00Z44.8-68.8211.77.8190410.030.2391741024.0TRUEVFRMETAR57.02019-09-20 00:57:53 *:XON)5    3KBMG 200053Z 00000KT 10SM CLR 21/18 A3007 RMK AO2 SLP177 T02060183KBMG2019-09-20T00:53:00Z39.15-86.6220.618.30010.030.0708661017.7TRUEVFRMETAR257.02019-09-20 00:57:53\M)!5    3KBMQ 200053Z AUTO 10005KT 10SM BKN090 28/21 A2985 RMK AO2 SLP091 T02830211KBMQ2019-09-20T00:53:00Z30.73-98.2328.321.1100510.029.849411009.1TRUETRUEVFRMETAR389.02019-09-20 00:57:53jL)95     3KELD 200053Z AUTO 00000KT 10SM CLR 23/22 A2998 RMK AO2 RAB08E17 SLP149 P0000 T02330222KELD2019-09-20T00:53:00Z33.22-92.8223.322.20010.029.979331014.9TRUETRUEVFR0.005METAR81.02019-09-20 00:57:53PK)5    3KELM 200053Z 11003KT 10SM CLR 12/10 A3027 RMK AO2 SLP252 T01220100KELM2019-09-20T00:53:00Z42.15-76.912.210.0110310.030.2687021025.2TRUEVFRMETAR302.02019-09-20 00:57:53 p,Tp^R)!5    3KBKE 200053Z AUTO 33013KT 10SM BKN075 15/06 A2998 RMK AO2 SLP153 T01500061KBKE2019-09-20T00:53:00Z44.85-117.8215.06.13301310.029.979331015.3TRUETRUEVFRMETAR1024.02019-09-20 00:57:53RQ)5    3KBKL 200053Z 13010KT 10SM CLR 24/12 A3014 RMK AO2 SLP203 T02390117KBKL2019-09-20T00:53:00Z41.53-81.6723.911.71301010.030.1387791020.3TRUEVFRMETAR184.02019-09-20 00:57:53OP)5    3KBKV 200053Z 03009KT 10SM CLR 23/19 A3006 RMK AO2 SLP178 T02280194KBKV2019-09-20T00:53:00Z28.47-82.4522.819.430910.030.0590551017.8TRUEVFRMETAR20.02019-09-20 00:57:53yO)S5      3KBLI 200053Z 27003KT 10SM -RA BKN046 BKN060 OVC075 16/12 A3006 RMK AO2 RAB31 SLP186 P0000 T01560117KBLI2019-09-20T00:53:00Z48.8-122.5315.611.7270310.030.0590551018.6TRUE-RAVFR0.005METAR50.02019-09-20 00:57:53 }!Kl}iV)A5    3KFAT 200053Z 31013KT 10SM FEW080 26/06 A2985 RMK AO2 SLP105 CU OMTNS DSNT N-E-SE T02610056KFAT2019-09-20T00:53:00Z36.78-119.7226.15.63101310.029.849411010.5TRUEVFRMETAR104.02019-09-20 00:57:53YU)5    3KEMP 200053Z AUTO 13007KT 10SM CLR 26/22 A2994 RMK AO2 SLP128 T02610217KEMP2019-09-20T00:53:00Z38.33-96.226.121.7130710.029.9409451012.8TRUETRUEVFRMETAR367.02019-09-20 00:57:53PT)5    3KENW 200053Z 12003KT 10SM CLR 21/18 A3006 RMK AO2 SLP179 T02110178KENW2019-09-20T00:53:00Z42.6-87.9321.117.8120310.030.0590551017.9TRUEVFRMETAR219.02019-09-20 00:57:53YS)5    3KBIV 200053Z AUTO 11003KT 10SM CLR 22/18 A3007 RMK AO2 SLP181 T02170183KBIV2019-09-20T00:53:00Z42.75-86.121.718.3110310.030.0708661018.1TRUETRUEVFRMETAR208.02019-09-20 00:57:53 *DgLZ)5    3KEWB 200053Z 00000KT 10SM CLR 09/07 A3027 RMK AO2 SLP248 T00890072KEWB2019-09-20T00:53:00Z41.68-70.958.97.20010.030.2687021024.8TRUEVFRMETAR23.02019-09-20 00:57:53WY)5    3KEYE 200053Z AUTO 00000KT 10SM CLR 24/18 A3007 RMK AO2 SLP176 T02440183KEYE2019-09-20T00:53:00Z39.83-86.324.418.30010.030.0708661017.6TRUETRUEVFRMETAR248.02019-09-20 00:57:53`X)'5   3KEYW 200053Z AUTO 06013G21KT 10SM BKN085 28/21 A2993 RMK AO2 SLP134 T02830206KEYW2019-09-20T00:53:00Z24.55-81.7528.320.660132110.029.9291341013.4TRUETRUEVFRMETAR5.02019-09-20 00:57:53PW)5    3KFAR 200053Z 08006KT 10SM CLR 21/17 A2993 RMK AO2 SLP135 T02060172KFAR2019-09-20T00:53:00Z46.93-96.8220.617.280610.029.9291341013.5TRUEVFRMETAR277.02019-09-20 00:57:53 r/QrY^)5    3KEPH 200053Z AUTO 25007KT 10SM CLR 22/03 A2993 RMK AO2 SLP131 T02220033KEPH2019-09-20T00:53:00Z47.3-119.5222.23.3250710.029.9291341013.1TRUETRUEVFRMETAR383.02019-09-20 00:57:53X])5    3KEQY 200053Z AUTO 07004KT 10SM CLR 19/09 A3024 RMK AO2 SLP244 T01890089KEQY2019-09-20T00:53:00Z35.02-80.6218.98.970410.030.2391741024.4TRUETRUEVFRMETAR212.02019-09-20 00:57:53Y\)5     3KESF 200053Z AUTO 00000KT 4SM BR CLR 23/22 A2998 RMK AO2 SLP150 T02280222KESF2019-09-20T00:53:00Z31.4-92.2822.822.2004.029.979331015.0TRUETRUEBRMVFRMETAR28.02019-09-20 00:57:53l[)-5   3KEVW 200053Z AUTO 27016G21KT 10SM BKN110 16/M05 A2990 RMK AO2 SLP050 T01561050 $KEVW2019-09-20T00:53:00Z41.27-111.0315.6-5.0270162110.029.8996071005.0TRUETRUETRUEVFRMETAR2177.02019-09-20 00:57:53  =\Pb)5    3KFCM 200053Z 13006KT 10SM CLR 24/17 A2998 RMK AO2 SLP149 T02390172KFCM2019-09-20T00:53:00Z44.83-93.4723.917.2130610.029.979331014.9TRUEVFRMETAR280.02019-09-20 00:57:53[a)5    3KFDR 200053Z AUTO 10012KT 10SM CLR 27/20 A2986 RMK AO2 SLP094 T02720200KFDR2019-09-20T00:53:00Z34.35-98.9827.220.01001210.029.8612211009.4TRUETRUEVFRMETAR386.02019-09-20 00:57:53]`)!5    3KFDY 200053Z AUTO 10005KT 10SM FEW060 24/16 A3010 RMK AO2 SLP185 T02440161KFDY2019-09-20T00:53:00Z41.02-83.6724.416.1100510.030.1003931018.5TRUETRUEVFRMETAR247.02019-09-20 00:57:53Z_)5    3KFFC 200053Z AUTO 10005KT 10SM CLR 24/13 A3018 RMK AO2 SLP213 T02390128KFFC2019-09-20T00:53:00Z33.35-84.5723.912.8100510.030.1801191021.3TRUETRUEVFRMETAR262.02019-09-20 00:57:53 m*KBmOf)5    3KFLO 200053Z 08007KT 10SM CLR 19/12 A3023 RMK AO2 SLP236 T01890117KFLO2019-09-20T00:53:00Z34.18-79.7318.911.780710.030.2303141023.6TRUEVFRMETAR44.02019-09-20 00:57:53e)i5    3KFMN 200053Z 15025G33KT 10SM TS BKN110 23/06 A2992 RMK AO2 PK WND 15035/0042 LTG DSNT E TSB43 SLP082 T02280056KFMN2019-09-20T00:53:00Z36.75-108.2322.85.6150253310.029.9202751008.2TRUETSVFRMETAR1685.02019-09-20 00:57:53Yd)5    3KFFT 200053Z AUTO 22003KT 10SM CLR 23/17 A3008 RMK AO2 SLP179 T02330172KFFT2019-09-20T00:53:00Z38.18-84.923.317.2220310.030.0797251017.9TRUETRUEVFRMETAR236.02019-09-20 00:57:53Pc)5    3KFAY 200053Z 36004KT 10SM CLR 17/11 A3025 RMK AO2 SLP236 T01670111KFAY2019-09-20T00:53:00Z34.98-78.8816.711.1360410.030.2509841023.6TRUEVFRMETAR55.02019-09-20 00:57:53 L#$LRj)5    3KFMY 200053Z 06010KT 10SM BKN090 25/19 A2997 RMK AO2 SLP151 T02500189KFMY2019-09-20T00:53:00Z26.58-81.8725.018.9601010.029.9704721015.1TRUEVFRMETAR4.02019-09-20 00:57:53yi)G5      3KFHR 200053Z AUTO 00000KT 4SM -RA BR SCT060 OVC090 14/12 A3007 RMK AO2 SLP184 P0000 T01390122KFHR2019-09-20T00:53:00Z48.52-123.0313.912.2004.030.0708661018.4TRUETRUE-RA BRMVFR0.005METAR32.02019-09-20 00:57:53Xh)5    3KFLD 200053Z AUTO 00000KT 10SM CLR 21/19 A3007 RMK AO2 SLP179 T02060189KFLD2019-09-20T00:53:00Z43.77-88.4820.618.90010.030.0708661017.9TRUETRUEVFRMETAR240.02019-09-20 00:57:53yg)W5    3KFLL 200053Z 07017G22KT 10SM SCT030 BKN075 BKN090 27/21 A2994 RMK AO2 RAB18E27 SLP138 P0000 T02670211KFLL2019-09-20T00:53:00Z26.07-80.1526.721.170172210.029.9409451013.8TRUEVFR0.005METAR3.02019-09-20 00:57:53 )RpZn)5    3KDEQ 200053Z AUTO 16010KT 10SM CLR 27/19 A2993 RMK AO1 SLP130 T02670189KDEQ2019-09-20T00:53:00Z34.05-94.426.718.91601010.029.9291341013.0TRUETRUEVFRMETAR106.02019-09-20 00:57:53\m)%5    3KDEN 200053Z 15011KT 10SM FEW110 FEW220 27/00 A2985 RMK AO2 SLP037 T02720000KDEN2019-09-20T00:53:00Z39.85-104.6527.20.01501110.029.849411003.7TRUEVFRMETAR1640.02019-09-20 00:57:53Ql)5    3KFOE 200053Z 12004KT 10SM CLR 26/20 A2995 RMK AO2 SLP132 T02560200KFOE2019-09-20T00:53:00Z38.93-95.6525.620.0120410.029.9498021013.2TRUEVFRMETAR320.02019-09-20 00:57:53Qk)5    3KFNT 200053Z 13006KT 10SM CLR 18/14 A3013 RMK AO2 SLP201 T01780144KFNT2019-09-20T00:53:00Z42.97-83.7517.814.4130610.030.1299211020.1TRUEVFRMETAR233.02019-09-20 00:57:53 Y1<Y]r)5    3KDKK 200053Z AUTO 00000KT 10SM CLR 14/11 A3021 RMK AO2 SLP231 T01440111 $KDKK2019-09-20T00:53:00Z42.5-79.2814.411.10010.030.2096461023.1TRUETRUETRUEVFRMETAR202.02019-09-20 00:57:53oq)E5    3KDLN 200053Z AUTO 33008KT 10SM OVC039 09/06 A2991 RMK AO2 LTG DSNT SW AND W SLP111 T00940061KDLN2019-09-20T00:53:00Z45.25-112.559.46.1330810.029.9114171011.1TRUETRUEVFRMETAR1591.02019-09-20 00:57:53^p)!5   3KDLS 200053Z AUTO 28008G16KT 10SM CLR 21/10 A2998 RMK AO2 SLP152 T02110100KDLS2019-09-20T00:53:00Z45.62-121.1721.110.028081610.029.979331015.2TRUETRUEVFRMETAR71.02019-09-20 00:57:53eo)%5     3KDMN 200053Z AUTO 34003KT 10SM CLR 24/17 A2994 RMK AO2 SLP077 T02440172 TSNOKDMN2019-09-20T00:53:00Z32.27-107.7224.417.2340310.029.9409451007.7TRUETRUETRUEVFRMETAR1311.02019-09-20 00:57:53 / pv)A5    3KDFW 200053Z 10008KT 10SM SCT018 BKN034 BKN050 BKN250 25/21 A2984 RMK AO2 SLP096 T02500206KDFW2019-09-20T00:53:00Z32.9-97.0225.020.6100810.029.8405511009.6TRUEBKN25000VFRMETAR174.02019-09-20 00:57:53u)5      3KDGW 200053Z AUTO 14005KT 10SM VCTS FEW065 OVC100 24/08 A2984 RMK AO2 PK WND 15042/0023 LTG DSNT N RAB24E41 SLP057 P0000 T02440083KDGW2019-09-20T00:53:00Z42.8-105.3824.48.3140510.029.8405511005.7TRUETRUEVCTSVFR0.005METAR1499.02019-09-20 00:57:53Qt)5    3KDHN 200053Z 10004KT 10SM CLR 26/15 A3014 RMK AO2 SLP202 T02560150KDHN2019-09-20T00:53:00Z31.32-85.4525.615.0100410.030.1387791020.2TRUEVFRMETAR113.02019-09-20 00:57:53ts)E5   3KDHT 200053Z AUTO 12020G26KT 10SM CLR 19/14 A2997 RMK AO2 PK WND 12028/0025 SLP107 T01940144KDHT2019-09-20T00:53:00Z36.02-102.5519.414.4120202610.029.9704721010.7TRUETRUEVFRMETAR1217.02019-09-20 00:57:53 "AkZz)5    3KDMO 200053Z AUTO 17003KT 10SM CLR 26/21 A2999 RMK AO2 SLP147 T02560211KDMO2019-09-20T00:53:00Z38.72-93.1725.621.1170310.029.9911421014.7TRUETRUEVFRMETAR274.02019-09-20 00:57:53Py)5    3KDET 200053Z 11004KT 10SM CLR 20/16 A3014 RMK AO2 SLP204 T02000156KDET2019-09-20T00:53:00Z42.4-83.0220.015.6110410.030.1387791020.4TRUEVFRMETAR190.02019-09-20 00:57:53[x)5    3KDEW 200053Z AUTO 15004KT 10SM CLR 15/10 A2996 RMK AO2 SLP147 T01500100KDEW2019-09-20T00:53:00Z47.97-117.4315.010.0150410.029.9586621014.7TRUETRUEVFRMETAR674.02019-09-20 00:57:53Xw)5    3KDFI 200053Z AUTO 00000KT 10SM CLR 21/18 A3010 RMK AO2 SLP190 T02110183KDFI2019-09-20T00:53:00Z41.33-84.4321.118.30010.030.1003931019.0TRUETRUEVFRMETAR219.02019-09-20 00:57:53 "MoZ~)5    3KGRR 200053Z 12004KT 10SM BKN180 21/16 A3009 RMK AO2 SLP188 T02110161 $KGRR2019-09-20T00:53:00Z42.88-85.5221.116.1120410.030.0885831018.8TRUETRUEVFRMETAR237.02019-09-20 00:57:53X})5    3KGSH 200053Z AUTO 00000KT 10SM CLR 19/15 A3009 RMK AO2 SLP189 T01890150KGSH2019-09-20T00:53:00Z41.53-85.7818.915.00010.030.0885831018.9TRUETRUEVFRMETAR252.02019-09-20 00:57:53O|)5    3KGSP 200053Z 02005KT 10SM CLR 19/12 A3025 RMK AO2 SLP237 T01890122KGSP2019-09-20T00:53:00Z34.9-82.2218.912.220510.030.2509841023.7TRUEVFRMETAR287.02019-09-20 00:57:53X{)5    3KDNL 200053Z AUTO 03007KT 10SM CLR 23/08 A3020 RMK AO2 SLP223 T02280078KDNL2019-09-20T00:53:00Z33.47-82.0322.87.830710.030.2007871022.3TRUETRUEVFRMETAR130.02019-09-20 00:57:53 {)7Y{X)5    3KGOK 200053Z AUTO 09005KT 10SM CLR 27/19 A2989 RMK AO2 SLP114 T02670194KGOK2019-09-20T00:53:00Z35.85-97.426.719.490510.029.8907471011.4TRUETRUEVFRMETAR324.02019-09-20 00:57:53X)5    3KGPT 200053Z AUTO 09010KT 10SM CLR 26/22 A3002 RMK AO2 SLP165 T02560222KGPT2019-09-20T00:53:00Z30.42-89.0825.622.2901010.030.020671016.5TRUETRUEVFRMETAR14.02019-09-20 00:57:53l)=5     3KGRB 200053Z 06007KT 10SM BKN029 OVC037 21/19 A3007 RMK AO2 RAE07 SLP180 P0000 T02060189KGRB2019-09-20T00:53:00Z44.48-88.1320.618.960710.030.0708661018.0TRUEMVFR0.005METAR208.02019-09-20 00:57:53Q)5    3KGRI 200053Z 15008KT 10SM CLR 27/19 A2990 RMK AO2 SLP114 T02720189KGRI2019-09-20T00:53:00Z40.97-98.3227.218.9150810.029.8996071011.4TRUEVFRMETAR561.02019-09-20 00:57:53  :fL)5    3KDXR 200053Z VRB04KT 10SM CLR 09/07 A3029 RMK AO2 SLP257 T00890067KDXR2019-09-20T00:53:00Z41.37-73.488.96.70410.030.289371025.7TRUEVFRMETAR139.02019-09-20 00:57:53N)5    3KECP 200053Z 04006KT 10SM CLR 27/17 A3006 RMK AO2 SLP189 T02670167KECP2019-09-20T00:53:00Z30.35-85.826.716.740610.030.0590551018.9TRUEVFRMETAR21.02019-09-20 00:57:53`)!5   3KEEO 200053Z AUTO 20008G21KT 10SM CLR 22/01 A2989 RMK AO2 SLP050 T02220011KEEO2019-09-20T00:53:00Z40.05-107.8822.21.120082110.029.8907471005.0TRUETRUEVFRMETAR1930.02019-09-20 00:57:53Z)5    3KEET 200053Z AUTO 13005KT 10SM CLR 27/17 A3011 RMK AO2 SLP188 T02670167KEET2019-09-20T00:53:00Z33.18-86.7826.716.7130510.030.1092531018.8TRUETRUEVFRMETAR173.02019-09-20 00:57:53 9]Q )5    3KDTW 200053Z 07004KT 9SM SCT220 21/16 A3014 RMK AO2 SLP203 T02110156KDTW2019-09-20T00:53:00Z42.23-83.3321.115.67049.030.1387791020.3TRUEVFRMETAR195.02019-09-20 00:57:53V )5    3KDUJ 200053Z AUTO 00000KT 10SM CLR 14/08 A3026 RMK AO2 SLP249 T01440083KDUJ2019-09-20T00:53:00Z41.17-78.914.48.30010.030.2598421024.9TRUETRUEVFRMETAR554.02019-09-20 00:57:53Q)5    3KDVT 200053Z 26011KT 10SM CLR 34/09 A2969 RMK AO2 SLP026 T03390094KDVT2019-09-20T00:53:00Z33.68-112.0733.99.42601110.029.689961002.6TRUEVFRMETAR443.02019-09-20 00:57:53j)=5     3KDWH 200053Z 12006KT 10SM FEW075 OVC100 23/22 A2989 RMK AO2 RAE30 SLP119 P0001 T02330217KDWH2019-09-20T00:53:00Z30.07-95.5523.321.7120610.029.8907471011.9TRUEVFR0.01METAR46.02019-09-20 00:57:53 &Fm[)5    3KDRT 200053Z AUTO 12006KT 10SM CLR 36/17 A2973 RMK AO2 SLP049 T03560167KDRT2019-09-20T00:53:00Z29.37-100.9235.616.7120610.029.7312981004.9TRUETRUEVFRMETAR313.02019-09-20 00:57:53S )5    3KDTN 200053Z 12007KT 10SM OVC110 23/21 A2995 RMK AO2 SLP140 T02330211KDTN2019-09-20T00:53:00Z32.55-93.7523.321.1120710.029.9498021014.0TRUEVFRMETAR53.02019-09-20 00:57:53Z )%5    3KDTO 200053Z 11010KT 10SM SCT041 OVC050 26/20 A2986 RMK AO2 SLP103 T02560200KDTO2019-09-20T00:53:00Z33.2-97.225.620.01101010.029.8612211010.3TRUEVFRMETAR196.02019-09-20 00:57:53T )5    3KDTS 200053Z 13005KT 10SM CLR 28/21 A3005 RMK AO2 SLP176 T02780206 $KDTS2019-09-20T00:53:00Z30.4-86.4727.820.6130510.030.0501981017.6TRUETRUEVFRMETAR5.02019-09-20 00:57:53 V)5    3KGTF 200053Z 00000KT 10SM CLR 15/05 A2990 RMK AO2 SLP120 T01500050 $KGTF2019-09-20T00:53:00Z47.47-111.3815.05.00010.029.8996071012.0TRUETRUEVFRMETAR1119.02019-09-20 00:57:53k)35     3KGUP 200053Z AUTO 19006KT 10SM CLR 22/03 A3001 RMK AO2 RAE40 SLP046 P0000 T02220033KGUP2019-09-20T00:53:00Z35.52-108.822.23.3190610.030.0088581004.6TRUETRUEVFR0.005METAR1971.02019-09-20 00:57:53~)]5   3KGUY 200053Z AUTO 16020G30KT 10SM CLR 22/14 A2990 RMK AO2 PK WND 16034/0010 LTG DSNT SE SLP086 T02220139KGUY2019-09-20T00:53:00Z36.68-101.522.213.9160203010.029.8996071008.6TRUETRUEVFRMETAR948.02019-09-20 00:57:53)5     3KDRO 200053Z AUTO 02004KT 10SM SCT100 17/09 A3004 RMK AO2 PK WND 19028/0001 LTG DSNT ALQDS RAB01E31 SLP114 P0000 T01670089KDRO2019-09-20T00:53:00Z37.15-107.7716.78.920410.030.0413381011.4TRUETRUEVFR0.005METAR2035.02019-09-20 00:57:53 u"ATuY)5    3KGVL 200053Z AUTO 06005KT 10SM CLR 20/14 A3024 RMK AO2 SLP229 T02000139KGVL2019-09-20T00:53:00Z34.27-83.8320.013.960510.030.2391741022.9TRUETRUEVFRMETAR386.02019-09-20 00:57:53g)95    3KGWO 200053Z AUTO 13009KT 10SM FEW038 29/22 A3001 RMK AO2 LTG DSNT NW SLP160 T02890217KGWO2019-09-20T00:53:00Z33.5-90.0828.921.7130910.030.0088581016.0TRUETRUEVFRMETAR44.02019-09-20 00:57:53[)!5    3KGZH 200053Z AUTO 09004KT 10SM SCT065 26/20 A3007 RMK AO2 SLP177 T02610200KGZH2019-09-20T00:53:00Z31.42-87.0526.120.090410.030.0708661017.7TRUETRUEVFRMETAR78.02019-09-20 00:57:53X)5    3KHAO 200053Z AUTO VRB03KT 10SM CLR 26/19 A3009 RMK AO2 SLP187 T02560194KHAO2019-09-20T00:53:00Z39.37-84.5225.619.40310.030.0885831018.7TRUETRUEVFRMETAR188.02019-09-20 00:57:53 !FqL)5    3KHFD 200053Z 00000KT 10SM CLR 13/08 A3027 RMK AO2 SLP250 T01280083KHFD2019-09-20T00:53:00Z41.73-72.6512.88.30010.030.2687021025.0TRUEVFRMETAR4.02019-09-20 00:57:53O)5    3KHGR 200053Z 14005KT 10SM CLR 18/08 A3028 RMK AO2 SLP262 T01780078KHGR2019-09-20T00:53:00Z39.7-77.7317.87.8140510.030.2805121026.2TRUEVFRMETAR224.02019-09-20 00:57:53U)5    3KHHR 200053Z 24010KT 10SM FEW019 22/16 A2982 RMK AO2 SLP097 T02170156KHHR2019-09-20T00:53:00Z33.92-118.3321.715.62401010.029.8198811009.7TRUEVFRMETAR18.02019-09-20 00:57:53Y)5    3KHIB 200053Z AUTO 01003KT 10SM CLR 17/14 A3004 RMK AO2 SLP178 T01670144KHIB2019-09-20T00:53:00Z47.38-92.8316.714.410310.030.0413381017.8TRUETRUEVFRMETAR412.02019-09-20 00:57:53 {=_{^)!5   3KHJO 200053Z AUTO 32013G17KT 10SM CLR 26/07 A2985 RMK AO2 SLP109 T02610067KHJO2019-09-20T00:53:00Z36.32-119.6226.16.7320131710.029.849411010.9TRUETRUEVFRMETAR74.02019-09-20 00:57:53X)5    3KHBG 200053Z AUTO 09004KT 10SM CLR 24/22 A3005 RMK AO2 SLP172 T02390222KHBG2019-09-20T00:53:00Z31.27-89.2523.922.290410.030.0501981017.2TRUETRUEVFRMETAR44.02019-09-20 00:57:53[)5    3KHBR 200053Z AUTO 13011KT 10SM CLR 27/19 A2991 RMK AO2 SLP111 T02720189KHBR2019-09-20T00:53:00Z34.98-99.0527.218.91301110.029.9114171011.1TRUETRUEVFRMETAR473.02019-09-20 00:57:53\)5    3KHEI 200053Z AUTO 11013KT 10SM CLR 23/16 A2980 RMK AO2 SLP081 T02280161KHEI2019-09-20T00:53:00Z46.02-102.6522.816.11101310.029.7992131008.1TRUETRUEVFRMETAR828.02019-09-20 00:57:53 &PaZ")5    3KHKY 200053Z AUTO 32003KT 10SM CLR 17/13 A3027 RMK AO2 SLP235 T01670133KHKY2019-09-20T00:53:00Z35.75-81.3816.713.3320310.030.2687021023.5TRUETRUEVFRMETAR354.02019-09-20 00:57:53i!)+5    3KHLC 200053Z AUTO 16012G20KT 10SM CLR 28/18 A2990 RMK AO2 SLP099 T02830178 TSNOKHLC2019-09-20T00:53:00Z39.37-99.8328.317.8160122010.029.8996071009.9TRUETRUETRUEVFRMETAR669.02019-09-20 00:57:53P )5    3KHLG 200053Z 09008KT 10SM CLR 20/10 A3020 RMK AO2 SLP223 T02000100KHLG2019-09-20T00:53:00Z40.17-80.6520.010.090810.030.2007871022.3TRUEVFRMETAR372.02019-09-20 00:57:53T)5    3KHLN 200053Z 25005KT 10SM SCT110 14/06 A2990 RMK AO2 SLP130 T01440056KHLN2019-09-20T00:53:00Z46.6-111.9814.45.6250510.029.8996071013.0TRUEVFRMETAR1182.02019-09-20 00:57:53 )GoZ&)5    3KLAW 200053Z AUTO 13006KT 10SM CLR 27/20 A2989 RMK AO2 SLP111 T02720200KLAW2019-09-20T00:53:00Z34.55-98.4227.220.0130610.029.8907471011.1TRUETRUEVFRMETAR337.02019-09-20 00:57:53R%)5    3KHIO 200053Z 00000KT 10SM BKN048 20/12 A3006 RMK AO2 SLP179 T02000122KHIO2019-09-20T00:53:00Z45.55-122.9520.012.20010.030.0590551017.9TRUEVFRMETAR68.02019-09-20 00:57:53\$)5    3KHKA 200053Z AUTO 15005KT 8SM CLR 28/21 A3002 RMK AO2 SLP161 T02830211 $KHKA2019-09-20T00:53:00Z35.93-89.8328.321.115058.030.020671016.1TRUETRUETRUEVFRMETAR78.02019-09-20 00:57:53Q#)5    3KHKS 200053Z 11007KT 10SM CLR 25/20 A3003 RMK AO2 SLP160 T02500200KHKS2019-09-20T00:53:00Z32.33-90.2225.020.0110710.030.0295281016.0TRUEVFRMETAR108.02019-09-20 00:57:53 )(,)}*)]5    3KLBF 200053Z AUTO 20011KT 10SM CLR 25/17 A2986 RMK AO2 PK WND 15030/2357 LTG DSNT SE-SW SLP089 T02500172KLBF2019-09-20T00:53:00Z41.12-100.6725.017.22001110.029.8612211008.9TRUETRUEVFRMETAR847.02019-09-20 00:57:53v))M5     3KLBX 200053Z AUTO 10004KT 10SM FEW008 FEW013 24/23 A2988 RMK AO2 RAB35E46 SLP118 P0000 T02440233KLBX2019-09-20T00:53:00Z29.12-95.4724.423.3100410.029.8789371011.8TRUETRUEVFR0.005METAR6.02019-09-20 00:57:53R()5    3KLCH 200053Z 11003KT 10SM OVC120 26/24 A2996 RMK AO2 SLP152 T02560244KLCH2019-09-20T00:53:00Z30.13-93.2225.624.4110310.029.9586621015.2TRUEVFRMETAR4.02019-09-20 00:57:53z')e5    3PABI 200053Z 32004KT 10SM FEW008 BKN022 BKN060 09/06 A2965 RMK AO2 SLP054 BINOVC OCNL WATERFOWL VC T00940056PABI2019-09-20T00:53:00Z64.0-145.729.45.6320410.029.6486231005.4TRUEMVFRMETAR386.02019-09-20 00:57:53 ^F^b.)/5    3KLEE 200053Z AUTO 04006KT 10SM SCT043 OVC060 25/18 A3006 RMK AO2 SLP179 T02500183KLEE2019-09-20T00:53:00Z28.82-81.8225.018.340610.030.0590551017.9TRUETRUEVFRMETAR23.02019-09-20 00:57:53L-)5    3KLEB 200053Z 00000KT 10SM CLR 08/04 A3026 RMK AO2 SLP250 T00830044KLEB2019-09-20T00:53:00Z43.63-72.38.34.40010.030.2598421025.0TRUEVFRMETAR171.02019-09-20 00:57:53b,))5    3KLAX 200053Z 26012KT 10SM FEW015 FEW032 22/16 A2982 RMK AO2 SLP097 T02170161 $KLAX2019-09-20T00:53:00Z33.93-118.3821.716.12601210.029.8198811009.7TRUETRUEVFRMETAR46.02019-09-20 00:57:53z+)a5    3KLBB 200053Z 13008KT 10SM FEW065 FEW250 28/14 A2991 RMK AO2 SLP080 CB DSNT NW-N MOV NE MDT CU SE T02830144KLBB2019-09-20T00:53:00Z33.67-101.8228.314.4130810.029.9114171008.0TRUEVFRMETAR993.02019-09-20 00:57:53 g&Nga2);5    3KLFT 200053Z 07003KT 10SM FEW021 25/23 A2998 RMK AO2 LTG DSNT N AND NE SLP153 T02500233KLFT2019-09-20T00:53:00Z30.2-92.025.023.370310.029.979331015.3TRUEVFRMETAR11.02019-09-20 00:57:53R1)5    3KLGB 200053Z 30010KT 10SM CLR 24/16 A2981 RMK AO2 SLP094 T02390156KLGB2019-09-20T00:53:00Z33.82-118.1523.915.63001010.029.8110241009.4TRUEVFRMETAR10.02019-09-20 00:57:53Z0)5    3KLHQ 200053Z AUTO 10003KT 10SM CLR 21/14 A3014 RMK AO2 SLP201 T02060144KLHQ2019-09-20T00:53:00Z39.75-82.6720.614.4100310.030.1387791020.1TRUETRUEVFRMETAR260.02019-09-20 00:57:53t/)E5   3KLHX 200053Z AUTO 15029G42KT 10SM CLR 29/12 A2983 RMK AO2 PK WND 15042/0046 SLP046 T02890122KLHX2019-09-20T00:53:00Z38.05-103.5228.912.2150294210.029.8287411004.6TRUETRUEVFRMETAR1277.02019-09-20 00:57:53 k*GkV6)5    3KLMT 200053Z 33012KT 10SM SCT075 16/05 A3004 RMK AO2 SLP151 T01560050KLMT2019-09-20T00:53:00Z42.15-121.7215.65.03301210.030.0413381015.1TRUEVFRMETAR1246.02019-09-20 00:57:53]5)5    3KLND 200053Z AUTO 21008KT 10SM CLR 22/M02 A2976 RMK AO2 SLP025 T02171017KLND2019-09-20T00:53:00Z42.82-108.7321.7-1.7210810.029.7608261002.5TRUETRUEVFRMETAR1694.02019-09-20 00:57:53N4)5    3KLNS 200053Z 10003KT 10SM CLR 16/06 A3029 RMK AO2 SLP258 T01560061KLNS2019-09-20T00:53:00Z40.12-76.315.66.1100310.030.289371025.8TRUEVFRMETAR125.02019-09-20 00:57:53|3)Q5      3KLFK 200053Z AUTO 14009KT 10SM -RA BKN011 BKN055 OVC100 23/22 A2991 RMK AO2 SLP125 P0008 T02330222KLFK2019-09-20T00:53:00Z31.23-94.7523.322.2140910.029.9114171012.5TRUETRUE-RAMVFR0.08METAR88.02019-09-20 00:57:53   Q:)5    3KPIE 200053Z 02010KT 10SM BKN050 27/20 A3002 RMK AO2 SLP165 T02670200KPIE2019-09-20T00:53:00Z27.92-82.6826.720.0201010.030.020671016.5TRUEVFRMETAR4.02019-09-20 00:57:53]9)%5    3KPIH 200053Z 25014KT 10SM FEW040 BKN110 12/04 A2992 RMK AO2 SLP116 T01220044KPIH2019-09-20T00:53:00Z42.92-112.5712.24.42501410.029.9202751011.6TRUEVFRMETAR1359.02019-09-20 00:57:53'8)55    3KLIT 200053Z 24011G19KT 10SM TS SCT060CB BKN120 OVC200 27/22 A2997 RMK AO2 LTG DSNT SW-NW TSB18E20B25 SLP148 FRQ LTGICCG S-W TS S-W MOV NW T02720217KLIT2019-09-20T00:53:00Z34.73-92.2327.221.7240111910.029.9704721014.8TRUETSVFRMETAR79.02019-09-20 00:57:53s7)S5    3KLLQ 200053Z AUTO 00000KT 10SM FEW065 OVC080 27/21 A3001 RMK AO2 LTG DSNT N AND NE SLP157 T02720206KLLQ2019-09-20T00:53:00Z33.63-91.7527.220.60010.030.0088581015.7TRUETRUEVFRMETAR83.02019-09-20 00:57:53 !JZQ>)5    3KPKB 200053Z 10004KT 10SM CLR 21/11 A3019 RMK AO2 SLP221 T02060106KPKB2019-09-20T00:53:00Z39.35-81.4220.610.6100410.030.1889761022.1TRUEVFRMETAR262.02019-09-20 00:57:53j=)=5    3KLOL 200053Z AUTO 00000KT 10SM FEW055 SCT070 SCT090 14/05 A2997 RMK AO2 SLP144 T01390050KLOL2019-09-20T00:53:00Z40.07-118.5713.95.00010.029.9704721014.4TRUETRUEVFRMETAR1189.02019-09-20 00:57:53Q<)5    3KLOU 200053Z 17006KT 10SM CLR 28/17 A3006 RMK AO2 SLP174 T02780172KLOU2019-09-20T00:53:00Z38.22-85.6727.817.2170610.030.0590551017.4TRUEVFRMETAR164.02019-09-20 00:57:53Y;)5    3KLOZ 200053Z AUTO 14004KT 10SM CLR 23/17 A3015 RMK AO2 SLP199 T02280167KLOZ2019-09-20T00:53:00Z37.08-84.0722.816.7140410.030.150591019.9TRUETRUEVFRMETAR362.02019-09-20 00:57:53 ?fZB)5    3KBVO 200053Z AUTO 15004KT 10SM CLR 28/21 A2993 RMK AO2 SLP125 T02780206KBVO2019-09-20T00:53:00Z36.77-96.0227.820.6150410.029.9291341012.5TRUETRUEVFRMETAR210.02019-09-20 00:57:53SA)5    3KPKD 200053Z AUTO 09004KT 10SM CLR 22/17 A3000 RMK AO2 SLP159 T02170167KPKD2019-09-20T00:53:00Z46.9-95.0721.716.790410.030.01015.9TRUETRUEVFRMETAR442.02019-09-20 00:57:53Y@)5    3KPIL 200053Z AUTO 15013KT 10SM CLR 29/24 A2982 RMK AO2 SLP098 T02940244KPIL2019-09-20T00:53:00Z26.17-97.3329.424.41501310.029.8198811009.8TRUETRUEVFRMETAR5.02019-09-20 00:57:53\?)5    3KPIR 200053Z AUTO 13010KT 10SM CLR 23/19 A2982 RMK AO2 SLP090 T02330194KPIR2019-09-20T00:53:00Z44.38-100.2823.319.41301010.029.8198811009.0TRUETRUEVFRMETAR526.02019-09-20 00:57:53 l$#ClQF)5    3KMFE 200053Z 15014KT 10SM CLR 31/24 A2981 RMK AO2 SLP091 T03110239KMFE2019-09-20T00:53:00Z26.18-98.2531.123.91501410.029.8110241009.1TRUEVFRMETAR38.02019-09-20 00:57:53ZE)5    3KMIW 200053Z AUTO 11005KT 10SM CLR 21/21 A3001 RMK AO2 SLP157 T02060206KMIW2019-09-20T00:53:00Z42.12-92.9220.620.6110510.030.0088581015.7TRUETRUEVFRMETAR296.02019-09-20 00:57:53{D)O5    3PAGK 200053Z AUTO 15012G26KT 10SM CLR 14/03 A2965 RMK AO2 PK WND 15027/0017 SLP044 T01440033 TSNOPAGK2019-09-20T00:53:00Z62.15-145.4514.43.3150122610.029.6486231004.4TRUETRUETRUEVFRMETAR481.02019-09-20 00:57:53VC)5    3KGFL 200053Z AUTO 00000KT 10SM CLR 09/07 A3026 RMK AO2 SLP252 T00890072KGFL2019-09-20T00:53:00Z43.33-73.628.97.20010.030.2598421025.2TRUETRUEVFRMETAR103.02019-09-20 00:57:53  )JEJ(5    3KOWA 200053Z AUTO 15005KT 10SM SCT048 23/20 A3001 RMK AO2KOWA2019-09-20T00:53:00Z44.12-93.2523.020.0150510.030.008858TRUETRUEVFRMETAR350.02019-09-20 00:57:53YI)5    3KPNC 200053Z AUTO 13008KT 10SM CLR 28/21 A2991 RMK AO2 SLP114 T02780206KPNC2019-09-20T00:53:00Z36.73-97.127.820.6130810.029.9114171011.4TRUETRUEVFRMETAR308.02019-09-20 00:57:53qH)?5     3KLKV 200053Z AUTO 30004KT 10SM FEW080 10/05 A3005 RMK AO2 RAB13E28 SLP173 P0000 T01000050KLKV2019-09-20T00:53:00Z42.17-120.410.05.0300410.030.0501981017.3TRUETRUEVFR0.005METAR1441.02019-09-20 00:57:53ZG)5    3KLXT 200053Z AUTO 18008KT 10SM CLR 28/18 A2997 RMK AO2 SLP140 T02780183KLXT2019-09-20T00:53:00Z38.97-94.3727.818.3180810.029.9704721014.0TRUETRUEVFRMETAR306.02019-09-20 00:57:53 D *D`N)'5   3KPSX 200053Z AUTO 13013G22KT 10SM FEW020 30/25 A2985 RMK AO2 SLP108 T03000250KPSX2019-09-20T00:53:00Z28.72-96.2530.025.0130132210.029.849411010.8TRUETRUEVFRMETAR5.02019-09-20 00:57:53[M)%5    3KPTK 200053Z 12005KT 10SM SCT130 SCT230 20/15 A3013 RMK AO2 SLP201 T02000150KPTK2019-09-20T00:53:00Z42.67-83.4220.015.0120510.030.1299211020.1TRUEVFRMETAR299.02019-09-20 00:57:53QL)5    3KPUB 200053Z 14004KT 10SM CLR 29/04 A2983 RMK AO2 SLP048 T02890039KPUB2019-09-20T00:53:00Z38.28-104.528.93.9140410.029.8287411004.8TRUEVFRMETAR1420.02019-09-20 00:57:53K)5    3KPUC 200053Z AUTO 17013G19KT 10SM VCTS BKN100 24/00 A2978 RMK AO2 PK WND 17026/0010 LTG DSNT N AND NE AND SW SLP021 T02390000KPUC2019-09-20T00:53:00Z39.62-110.7523.90.0170131910.029.7785431002.1TRUETRUEVCTSVFRMETAR2091.02019-09-20 00:57:53 *Su_R)5    3KPRB 200053Z AUTO 32007KT 10SM CLR 27/06 A2985 RMK AO2 SLP101 T02670061 $KPRB2019-09-20T00:53:00Z35.67-120.6326.76.1320710.029.849411010.1TRUETRUETRUEVFRMETAR245.02019-09-20 00:57:53XQ)5   3KPRC 200053Z 18014G20KT 10SM CLR 24/01 A2992 RMK AO2 SLP063 T02390006KPRC2019-09-20T00:53:00Z34.65-112.4223.90.6180142010.029.9202751006.3TRUEVFRMETAR1524.02019-09-20 00:57:53QP)5    3KPSC 200053Z 25005KT 10SM CLR 23/06 A2995 RMK AO2 SLP138 T02330061KPSC2019-09-20T00:53:00Z46.27-119.1223.36.1250510.029.9498021013.8TRUEVFRMETAR121.02019-09-20 00:57:53PO)5    3KPSP 200053Z 30009KT 10SM CLR 33/01 A2966 RMK AO2 SLP042 T03280006KPSP2019-09-20T00:53:00Z33.82-116.532.80.6300910.029.6604331004.2TRUEVFRMETAR135.02019-09-20 00:57:53 x)NxPV)5    3KPNS 200053Z 15005KT 10SM CLR 27/23 A3004 RMK AO2 SLP174 T02670228KPNS2019-09-20T00:53:00Z30.48-87.1826.722.8150510.030.0413381017.4TRUEVFRMETAR38.02019-09-20 00:57:53UU)5    3KPOF 200053Z AUTO 00000KT 9SM CLR 26/20 A2999 RMK AO2 SLP150 T02560200KPOF2019-09-20T00:53:00Z36.77-90.3225.620.0009.029.9911421015.0TRUETRUEVFRMETAR99.02019-09-20 00:57:53MT)5    3KPOU 200053Z 00000KT 10SM CLR 11/08 A3026 RMK AO2 SLP243 T01060078KPOU2019-09-20T00:53:00Z41.63-73.8810.67.80010.030.2598421024.3TRUEVFRMETAR46.02019-09-20 00:57:53~S)_5      3KPQL 200053Z 16006KT 6SM RA BR BKN090 BKN120 24/22 A3004 RMK AO2 LTG DSNT SE RAB15 SLP174 P0007 T02390217KPQL2019-09-20T00:53:00Z30.47-88.5323.921.716066.030.0413381017.4TRUERA BRVFR0.07METAR6.02019-09-20 00:57:53 22\Z)+5   3KMIA 200053Z 04009G15KT 10SM SCT045 SCT100 28/19 A2994 RMK AO2 SLP138 T02780189KMIA2019-09-20T00:53:00Z25.8-80.2827.818.94091510.029.9409451013.8TRUEVFRMETAR3.02019-09-20 00:57:53dY)/5    3KPUW 200053Z AUTO 25004KT 10SM FEW049 BKN060 15/07 A2999 RMK AO2 SLP155 T01500072KPUW2019-09-20T00:53:00Z46.75-117.1215.07.2250410.029.9911421015.5TRUETRUEVFRMETAR773.02019-09-20 00:57:53mX)?5    3KPMD 200053Z AUTO 28025KT 10SM CLR 22/03 A2986 RMK AO2 PK WND 30032/0014 SLP093 T02170028KPMD2019-09-20T00:53:00Z34.63-118.0821.72.82802510.029.8612211009.3TRUETRUEVFRMETAR780.02019-09-20 00:57:53 W)i5    3KPMP 200053Z AUTO 06015G24KT 10SM FEW027 BKN035 BKN044 27/21 A2996 RMK AO2 RAB2358E13 SLP144 P0001 T02670211 $KPMP2019-09-20T00:53:00Z26.25-80.1226.721.160152410.029.9586621014.4TRUETRUETRUEVFR0.01METAR6.02019-09-20 00:57:53 )MmY^)%5    3KMSN 200053Z 00000KT 10SM FEW090 BKN200 20/19 A3006 RMK AO2 SLP176 T02000189KMSN2019-09-20T00:53:00Z43.13-89.3520.018.90010.030.0590551017.6TRUEVFRMETAR261.02019-09-20 00:57:53Z])!5    3KMSL 200053Z AUTO 00000KT 10SM BKN050 27/19 A3007 RMK AO2 SLP176 T02670194KMSL2019-09-20T00:53:00Z34.75-87.626.719.40010.030.0708661017.6TRUETRUEVFRMETAR164.02019-09-20 00:57:53V\)5    3KMPO 200053Z AUTO 00000KT 10SM CLR 07/06 A3030 RMK AO2 SLP268 T00720056KMPO2019-09-20T00:53:00Z41.13-75.387.25.60010.030.3011821026.8TRUETRUEVFRMETAR577.02019-09-20 00:57:53Q[)5    3KPWA 200053Z 14009KT 10SM CLR 29/17 A2990 RMK AO2 SLP109 T02890172KPWA2019-09-20T00:53:00Z35.53-97.6528.917.2140910.029.8996071010.9TRUEVFRMETAR397.02019-09-20 00:57:53 &Pzhb)=5    3KJKL 200053Z AUTO VRB04KT 10SM FEW049 SCT060 SCT075 23/17 A3016 RMK AO2 SLP201 T02330167KJKL2019-09-20T00:53:00Z37.6-83.3223.316.70410.030.1594491020.1TRUETRUEVFRMETAR416.02019-09-20 00:57:53Pa)5    3KJLN 200053Z 14006KT 10SM CLR 28/20 A2997 RMK AO2 SLP137 T02780200KJLN2019-09-20T00:53:00Z37.15-94.527.820.0140610.029.9704721013.7TRUEVFRMETAR299.02019-09-20 00:57:53P`)5    3KMSO 200053Z 34009KT 10SM CLR 14/06 A2993 RMK AO2 SLP134 T01440061KMSO2019-09-20T00:53:00Z46.92-114.114.46.1340910.029.9291341013.4TRUEVFRMETAR975.02019-09-20 00:57:53T_)5    3KMSP 200053Z 13006KT 10SM FEW250 25/18 A2999 RMK AO2 SLP152 T02500183KMSP2019-09-20T00:53:00Z44.88-93.2325.018.3130610.029.9911421015.2TRUEVFRMETAR265.02019-09-20 00:57:53 Q !BQkf)?5    3KMTJ 200053Z AUTO 17006KT 10SM CLR 24/02 A2991 RMK AO2 PK WND 18026/0017 SLP057 T02440022KMTJ2019-09-20T00:53:00Z38.5-107.924.42.2170610.029.9114171005.7TRUETRUEVFRMETAR1750.02019-09-20 00:57:53Ye)5    3KSPW 200053Z AUTO 13006KT 10SM CLR 23/19 A2998 RMK AO2 SLP146 T02280189KSPW2019-09-20T00:53:00Z43.17-95.2222.818.9130610.029.979331014.6TRUETRUEVFRMETAR403.02019-09-20 00:57:53cd)15    3KHOT 200053Z AUTO 15005KT 10SM CLR 27/23 A2998 RMK AO2 LTG DSNT E SLP143 T02720228KHOT2019-09-20T00:53:00Z34.48-93.127.222.8150510.029.979331014.3TRUETRUEVFRMETAR162.02019-09-20 00:57:53pc)A5    3KHOU 200053Z 10006KT 10SM FEW025 SCT130 BKN170 BKN200 24/23 A2988 RMK AO2 SLP123 T02440228KHOU2019-09-20T00:53:00Z29.63-95.2824.422.8100610.029.8789371012.3TRUEBKN20000VFRMETAR36.02019-09-20 00:57:53Y88@HPX`hpx (08@HPX`hpx (08@HPX`hpx:V;Z<^=b>f?j@nArBvCzD~E:V;Z<^=b>f?j@nArBvCzD~EFG HIJKLM"N&O*P.Q2R6S:T>UBVFWJXNYRZV[Z\^]b^f`janbrcvdze~fgh ijklmn"o&p*q.r2s6t:u>vBwFxJyNzR{V|Z}^~bfjnrvz~ "&*.26 :iYj)5    3KMWL 200053Z AUTO 11006KT 10SM CLR 26/21 A2985 RMK AO2 SLP094 T02560206KMWL2019-09-20T00:53:00Z32.78-98.0725.620.6110610.029.849411009.4TRUETRUEVFRMETAR284.02019-09-20 00:57:53Ki)5    3KMVY 200053Z 00000KT 10SM CLR 07/04 A3027 RMK AO2 SLP251 T00670044KMVY2019-09-20T00:53:00Z41.4-70.626.74.40010.030.2687021025.1TRUEVFRMETAR16.02019-09-20 00:57:53Zh)5    3KMTO 200053Z AUTO 13003KT 10SM CLR 22/19 A3003 RMK AO2 SLP167 T02170189KMTO2019-09-20T00:53:00Z39.47-88.2721.718.9130310.030.0295281016.7TRUETRUEVFRMETAR214.02019-09-20 00:57:53`g)'5   3KMTH 200053Z AUTO 06017G23KT 10SM FEW035 28/21 A2992 RMK AO2 SLP129 T02830206KMTH2019-09-20T00:53:00Z24.73-81.0528.320.660172310.029.9202751012.9TRUETRUEVFRMETAR2.02019-09-20 00:57:53 %FuZn)5   3KOAK 200053Z 29014G21KT 10SM FEW025 23/11 A2991 RMK AO2 SLP128 T02280111KOAK2019-09-20T00:53:00Z37.72-122.2322.811.1290142110.029.9114171012.8TRUEVFRMETAR26.02019-09-20 00:57:53Km)5    3KNEW 200053Z 13010KT 10SM CLR 29/23 A3000 RMK AO2 SLP153 T02890228KNEW2019-09-20T00:53:00Z30.05-90.0328.922.81301010.030.01015.3TRUEVFRMETAR3.02019-09-20 00:57:53Yl)5    3KMYV 200053Z AUTO 33010KT 10SM CLR 25/09 A2990 RMK AO2 SLP130 T02500094KMYV2019-09-20T00:53:00Z39.1-121.5725.09.43301010.029.8996071013.0TRUETRUEVFRMETAR21.02019-09-20 00:57:53Uk)5    3KMYF 200053Z 26007KT 10SM SCT021 21/15 A2984 RMK AO2 SLP100 T02060150KMYF2019-09-20T00:53:00Z32.82-117.1320.615.0260710.029.8405511010.0TRUEVFRMETAR136.02019-09-20 00:57:53 k0Ok^r)!5    3KSHN 200053Z AUTO 25012KT 10SM OVC110 18/12 A3003 RMK AO2 SLP172 T01780122KSHN2019-09-20T00:53:00Z47.23-123.1317.812.22501210.030.0295281017.2TRUETRUEVFRMETAR82.02019-09-20 00:57:53[q)5    3KSHR 200053Z AUTO 29008KT 10SM CLR 17/09 A2979 RMK AO2 SLP078 T01670089KSHR2019-09-20T00:53:00Z44.77-106.9716.78.9290810.029.7903541007.8TRUETRUEVFRMETAR1202.02019-09-20 00:57:53Zp)5    3KSIY 200053Z AUTO 35008KT 10SM CLR 18/06 A3005 RMK AO2 SLP177 T01830061KSIY2019-09-20T00:53:00Z41.77-122.4718.36.1350810.030.0501981017.7TRUETRUEVFRMETAR807.02019-09-20 00:57:53jo)A5    3KSJC 200053Z 33014KT 10SM FEW032 FEW050 23/11 A2990 RMK AO2 SLP123 TCU DSNT E-SE T02280111KSJC2019-09-20T00:53:00Z37.37-121.9222.811.13301410.029.8996071012.3TRUEVFRMETAR24.02019-09-20 00:57:53 H+-6Hhv)/5      3PADQ 200053Z 19007KT 10SM -RA OVC060 12/09 A2956 RMK AO2 SLP009 P0002 T01220089 $PADQ2019-09-20T00:53:00Z57.75-152.512.28.9190710.029.560041000.9TRUETRUE-RAVFR0.02METAR34.02019-09-20 00:57:53qu)E5     3PAPB 200053Z AUTO 04013KT 8SM BKN010 BKN021 OVC060 10/09 A2958 RMK AO2 SLP004 T01000089 TSNOPAPB2019-09-20T00:53:00Z56.58-169.6710.08.940138.029.580711000.4TRUETRUETRUEMVFRMETAR35.02019-09-20 00:57:53xt)Q5    3PHNL 200053Z 07015KT 10SM FEW027 FEW038 FEW055 BKN250 29/20 A2989 RMK AO2 SLP122 VCSH NE T02940200PHNL2019-09-20T00:53:00Z21.33-157.9229.420.0701510.029.8907471012.2TRUEBKN25000VFRMETAR4.02019-09-20 00:57:53Os)5    3KSGR 200053Z 15007KT 10SM CLR 24/23 A2987 RMK AO2 SLP116 T02440228KSGR2019-09-20T00:53:00Z29.62-95.6524.422.8150710.029.8700791011.6TRUEVFRMETAR2.02019-09-20 00:57:53 ^)7X^tz)K5     3KYKM 200053Z 31015KT 10SM OVC085 22/04 A2995 RMK AO2 WSHFT 0009 RAB12E24 SLP142 P0000 T02220044KYKM2019-09-20T00:53:00Z46.57-120.5322.24.43101510.029.9498021014.2TRUEVFR0.005METAR324.02019-09-20 00:57:53Yy)5    3KZZV 200053Z AUTO 11004KT 10SM CLR 21/12 A3016 RMK AO2 SLP209 T02060122KZZV2019-09-20T00:53:00Z39.95-81.920.612.2110410.030.1594491020.9TRUETRUEVFRMETAR268.02019-09-20 00:57:53lx)95     3PAAQ 200053Z AUTO 15011KT 10SM FEW065 OVC100 14/07 A2960 RMK AO2 SLP024 T01440067 TSNOPAAQ2019-09-20T00:53:00Z61.6-149.0814.46.71501110.029.6013771002.4TRUETRUETRUEVFRMETAR73.02019-09-20 00:57:53Qw)5    3PABE 200053Z 01006KT 10SM SCT023 10/04 A2954 RMK AO2 SLP006 T01000039PABE2019-09-20T00:53:00Z60.78-161.8310.03.910610.029.539371000.6TRUEVFRMETAR41.02019-09-20 00:57:53 m *Nm[~)5    3KWRL 200053Z AUTO 34007KT 10SM CLR 20/06 A2972 RMK AO2 SLP047 T02000061KWRL2019-09-20T00:53:00Z43.97-107.9520.06.1340710.029.7194881004.7TRUETRUEVFRMETAR1271.02019-09-20 00:57:53V})5    3KWST 200053Z AUTO 00000KT 10SM CLR 12/11 A3028 RMK AO2 SLP253 T01220106KWST2019-09-20T00:53:00Z41.35-71.812.210.60010.030.2805121025.3TRUETRUEVFRMETAR21.02019-09-20 00:57:53[|))5     3KXNA 200053Z 15005KT 10SM CLR 23/19 A3000 RMK AO2 RAE27 SLP146 P0001 T02330189KXNA2019-09-20T00:53:00Z36.28-94.323.318.9150510.030.01014.6TRUEVFR0.01METAR392.02019-09-20 00:57:53o{)?5     3KYIP 200053Z 00000KT 10SM CLR 19/16 A3014 RMK AO2 RAB02E12B32E52 SLP202 P0000 T01940156 $KYIP2019-09-20T00:53:00Z42.23-83.5319.415.60010.030.1387791020.2TRUETRUEVFR0.005METAR215.02019-09-20 00:57:53 s%GsN)5    3KVLD 200053Z VRB06KT 10SM CLR 24/17 A3013 RMK AO2 SLP208 T02440167KVLD2019-09-20T00:53:00Z30.78-83.2724.416.70610.030.1299211020.8TRUEVFRMETAR62.02019-09-20 00:57:53X)5    3KVPC 200053Z AUTO VRB05KT 10SM CLR 24/14 A3018 RMK AO2 SLP208 T02390139KVPC2019-09-20T00:53:00Z34.13-84.8523.913.90510.030.1801191020.8TRUETRUEVFRMETAR222.02019-09-20 00:57:53s)I5    3KVRB 200053Z 06017G21KT 10SM SCT032 BKN044 26/20 A3001 RMK AO2 RAB11E21 SLP160 P0000 T02610200KVRB2019-09-20T00:53:00Z27.65-80.4226.120.060172110.030.0088581016.0TRUEVFR0.005METAR10.02019-09-20 00:57:53\)!5    3KVUO 200053Z AUTO 31005KT 10SM FEW075 21/11 A3006 RMK AO2 SLP178 T02110106KVUO2019-09-20T00:53:00Z45.62-122.6521.110.6310510.030.0590551017.8TRUETRUEVFRMETAR8.02019-09-20 00:57:53 m!1MmZ)5    3KVCB 200053Z AUTO 36011KT 10SM CLR 26/07 A2990 RMK AO2 SLP124 T02610072KVCB2019-09-20T00:53:00Z38.38-121.9526.17.23601110.029.8996071012.4TRUETRUEVFRMETAR33.02019-09-20 00:57:53^)5    3KVEL 200053Z AUTO 21010KT 10SM CLR 26/M04 A2976 RMK AO2 SLP023 T02561039KVEL2019-09-20T00:53:00Z40.45-109.5225.6-3.92101010.029.7608261002.3TRUETRUEVFRMETAR1604.02019-09-20 00:57:53j)=5   3KVGT 200053Z 22015G24KT 10SM CLR 29/M04 A2966 RMK AO2 PK WND 22026/0038 SLP038 T02891039KVGT2019-09-20T00:53:00Z36.22-115.228.9-3.9220152410.029.6604331003.8TRUEVFRMETAR671.02019-09-20 00:57:53Y)5    3KVIH 200053Z AUTO 12006KT 10SM CLR 26/19 A3002 RMK AO2 SLP153 T02560194KVIH2019-09-20T00:53:00Z38.13-91.7725.619.4120610.030.020671015.3TRUETRUEVFRMETAR333.02019-09-20 00:57:53 [$5V[u )C5      3KUIL 200053Z AUTO 19003KT 10SM -RA FEW065 OVC100 15/14 A3007 RMK AO2 SLP184 P0001 T01500139KUIL2019-09-20T00:53:00Z47.93-124.5515.013.9190310.030.0708661018.4TRUETRUE-RAVFR0.01METAR54.02019-09-20 00:57:53Y )5    3KUNO 200053Z AUTO 12004KT 10SM CLR 27/18 A3003 RMK AO2 SLP156 T02670178KUNO2019-09-20T00:53:00Z36.88-91.926.717.8120410.030.0295281015.6TRUETRUEVFRMETAR372.02019-09-20 00:57:53i)=5    3KUTS 200053Z AUTO 00000KT 10SM SCT009 BKN090 OVC110 24/22 A2988 RMK AO2 SLP113 T02390217KUTS2019-09-20T00:53:00Z30.75-95.5823.921.70010.029.8789371011.3TRUETRUEVFRMETAR104.02019-09-20 00:57:53V)5    3KUUU 200053Z AUTO 00000KT 10SM CLR 12/09 A3027 RMK AO2 SLP250 T01220094KUUU2019-09-20T00:53:00Z41.53-71.2812.29.40010.030.2687021025.0TRUETRUEVFRMETAR51.02019-09-20 00:57:53 m)P[mh)95   3KTXK 200053Z 15011G18KT 10SM FEW045 BKN049 OVC090 24/19 A2997 RMK AO2 SLP144 T02390189KTXK2019-09-20T00:53:00Z33.45-93.9823.918.9150111810.029.9704721014.4TRUEVFRMETAR111.02019-09-20 00:57:53o )A5    3KTYR 200053Z 15013G18KT 10SM OVC008 23/22 A2988 RMK AO2 CIG 005V012 SLP112 P0002 T02330222KTYR2019-09-20T00:53:00Z32.37-95.423.322.2150131810.029.8789371011.2TRUEIFR0.02METAR165.02019-09-20 00:57:53S )5    3KTYS 200053Z 14003KT 10SM BKN055 24/15 A3015 RMK AO2 SLP200 T02390150KTYS2019-09-20T00:53:00Z35.82-83.9823.915.0140310.030.150591020.0TRUEVFRMETAR302.02019-09-20 00:57:53Q )5    3KUAO 200053Z 14005KT 10SM CLR 19/11 A3008 RMK AO2 SLP185 T01940106KUAO2019-09-20T00:53:00Z45.25-122.7719.410.6140510.030.0797251018.5TRUEVFRMETAR59.02019-09-20 00:57:53 }4T}Q)5    3KTUS 200053Z 24009KT 10SM CLR 33/06 A2981 RMK AO2 SLP046 T03330061KTUS2019-09-20T00:53:00Z32.13-110.9533.36.1240910.029.8110241004.6TRUEVFRMETAR776.02019-09-20 00:57:53Z)%5    3KTVC 200053Z 05003KT 10SM BKN140 OVC250 21/17 A3007 RMK AO2 SLP182 T02110172KTVC2019-09-20T00:53:00Z44.73-85.5721.117.250310.030.0708661018.2TRUEVFRMETAR190.02019-09-20 00:57:53V)5    3KTVL 200053Z AUTO 00000KT 10SM CLR 09/03 A3004 RMK AO2 SLP148 T00890033KTVL2019-09-20T00:53:00Z38.9-120.08.93.30010.030.0413381014.8TRUETRUEVFRMETAR1924.02019-09-20 00:57:53j)=5    3KTVR 200053Z AUTO 15004KT 10SM FEW041 SCT048 OVC060 29/21 A3001 RMK AO2 SLP167 T02890206KTVR2019-09-20T00:53:00Z32.35-91.0328.920.6150410.030.0088581016.7TRUETRUEVFRMETAR26.02019-09-20 00:57:53 %EsT)5    3KTTD 200053Z 16005KT 10SM SCT070 20/11 A3006 RMK AO2 SLP179 T02000111KTTD2019-09-20T00:53:00Z45.55-122.4220.011.1160510.030.0590551017.9TRUEVFRMETAR14.02019-09-20 00:57:53L)5    3KTTN 200053Z 00000KT 10SM CLR 14/07 A3029 RMK AO2 SLP250 T01390072KTTN2019-09-20T00:53:00Z40.28-74.8213.97.20010.030.289371025.0TRUEVFRMETAR59.02019-09-20 00:57:53Z)%5    3KTUL 200053Z 10006KT 10SM FEW120 FEW250 28/22 A2990 RMK AO2 SLP117 T02780217KTUL2019-09-20T00:53:00Z36.2-95.8827.821.7100610.029.8996071011.7TRUEVFRMETAR207.02019-09-20 00:57:53U)5    3KTUP 200053Z 00000KT 10SM CLR 27/21 A3005 RMK AO2 SLP170 T02720211 $KTUP2019-09-20T00:53:00Z34.27-88.7727.221.10010.030.0501981017.0TRUETRUEVFRMETAR105.02019-09-20 00:57:53 |=_|])5    3KTOR 200053Z AUTO 12010KT 10SM CLR 24/13 A2980 RMK AO2 SLP054 T02440128KTOR2019-09-20T00:53:00Z42.07-104.1524.412.81201010.029.7992131005.4TRUETRUEVFRMETAR1277.02019-09-20 00:57:53X)5    3KTPA 200053Z 04008KT 10SM FEW050 27/17 A3003 RMK AO2 SLP169 T02670172 $KTPA2019-09-20T00:53:00Z27.97-82.5326.717.240810.030.0295281016.9TRUETRUEVFRMETAR11.02019-09-20 00:57:53S)5    3KTRI 200053Z 13005KT 10SM FEW070 19/12 A3023 RMK AO2 SLP217 T01890122KTRI2019-09-20T00:53:00Z36.48-82.418.912.2130510.030.2303141021.7TRUEVFRMETAR474.02019-09-20 00:57:53d)/5    3KTRL 200053Z AUTO 09008KT 10SM BKN011 OVC019 24/21 A2987 RMK AO2 SLP107 T02390211KTRL2019-09-20T00:53:00Z32.72-96.2723.921.190810.029.8700791010.7TRUETRUEMVFRMETAR145.02019-09-20 00:57:53  B]N)5    3KTLH 200053Z 05004KT 10SM CLR 27/14 A3009 RMK AO2 SLP187 T02670144KTLH2019-09-20T00:53:00Z30.4-84.3526.714.450410.030.0885831018.7TRUEVFRMETAR19.02019-09-20 00:57:53_))5    3KTMB 200053Z 05010KT 10SM FEW039 BKN090 27/20 A2993 RMK AO2 SLP135 T02720200 $KTMB2019-09-20T00:53:00Z25.65-80.4327.220.0501010.029.9291341013.5TRUETRUEVFRMETAR2.02019-09-20 00:57:53X)5    3KTOI 200053Z AUTO 00000KT 10SM CLR 23/19 A3011 RMK AO2 SLP192 T02280189KTOI2019-09-20T00:53:00Z31.85-86.0222.818.90010.030.1092531019.2TRUETRUEVFRMETAR118.02019-09-20 00:57:53Z)5    3KTOP 200053Z AUTO 14004KT 10SM CLR 26/19 A2994 RMK AO2 SLP129 T02610194KTOP2019-09-20T00:53:00Z39.07-95.6326.119.4140410.029.9409451012.9TRUETRUEVFRMETAR268.02019-09-20 00:57:53 ?`Q")5    3KSLN 200053Z 14006KT 10SM CLR 28/19 A2991 RMK AO2 SLP118 T02780194KSLN2019-09-20T00:53:00Z38.78-97.6527.819.4140610.029.9114171011.8TRUEVFRMETAR385.02019-09-20 00:57:53Y!)5    3KODO 200053Z AUTO 08005KT 10SM CLR 24/19 A2991 RMK AO2 SLP084 T02440194KODO2019-09-20T00:53:00Z31.92-102.424.419.480510.029.9114171008.4TRUETRUEVFRMETAR902.02019-09-20 00:57:53Z )5    3KODX 200053Z AUTO 13007KT 10SM CLR 27/21 A2987 RMK AO2 SLP104 T02670206KODX2019-09-20T00:53:00Z41.62-98.9526.720.6130710.029.8700791010.4TRUETRUEVFRMETAR631.02019-09-20 00:57:53[)%5    3KTKI 200053Z 12003KT 10SM FEW032 OVC050 25/20 A2986 RMK AO2 SLP108 T02500200KTKI2019-09-20T00:53:00Z33.18-96.5825.020.0120310.029.8612211010.8TRUEVFRMETAR179.02019-09-20 00:57:53 -V~V&)5    3KSMQ 200053Z AUTO 00000KT 10SM CLR 10/09 A3028 RMK AO2 SLP254 T01000089KSMQ2019-09-20T00:53:00Z40.62-74.6710.08.90010.030.2805121025.4TRUETRUEVFRMETAR30.02019-09-20 00:57:53R%)5    3KSNA 200053Z 22007KT 9SM SCT021 23/15 A2982 RMK AO2 SLP096 T02280150KSNA2019-09-20T00:53:00Z33.67-117.8722.815.022079.029.8198811009.6TRUEVFRMETAR16.02019-09-20 00:57:53Q$)5    3KSMF 200053Z 34012KT 10SM FEW045 25/09 A2988 RMK AO2 SLP119 T02500089KSMF2019-09-20T00:53:00Z38.7-121.625.08.93401210.029.8789371011.9TRUEVFRMETAR6.02019-09-20 00:57:53M#)5     3PAGN 200053Z AUTO 00000KT 4SM BR BKN070 BKN090 13/11 A2994 RMK AO2PAGN2019-09-20T00:53:00Z57.5-134.5813.011.0004.029.940945TRUETRUEBRMVFRSPECI2.02019-09-20 00:57:53 t*Jbth*)E5    3KSPG 200053Z AUTO 07016KT 10SM SCT042 28/21 A3000 RMK AO2 PK WND 08026/0015 SLP160 T02780206KSPG2019-09-20T00:53:00Z27.77-82.6327.820.6701610.030.01016.0TRUETRUEVFRMETAR2.02019-09-20 00:57:53b))/5    3KSPB 200053Z AUTO 00000KT 10SM SCT039 BKN060 21/12 A3005 RMK AO2 SLP177 T02060122KSPB2019-09-20T00:53:00Z45.77-122.8720.612.20010.030.0501981017.7TRUETRUEVFRMETAR14.02019-09-20 00:57:53Z()5    3KSNY 200053Z AUTO 11007KT 10SM CLR 23/09 A2986 RMK AO2 SLP076 T02280094KSNY2019-09-20T00:53:00Z41.1-102.9822.89.4110710.029.8612211007.6TRUETRUEVFRMETAR1307.02019-09-20 00:57:53P')5    3KSNS 200053Z 29009KT 10SM CLR 19/11 A2992 RMK AO2 SLP141 T01890106KSNS2019-09-20T00:53:00Z36.67-121.618.910.6290910.029.9202751014.1TRUEVFRMETAR30.02019-09-20 00:57:53 b9bQ.)5    3KFUL 200053Z 18006KT 10SM CLR 23/14 A2980 RMK AO2 SLP089 T02330139KFUL2019-09-20T00:53:00Z33.87-117.9823.313.9180610.029.7992131008.9TRUEVFRMETAR35.02019-09-20 00:57:53X-)5    3KFVE 200053Z AUTO 23005KT 10SM CLR 14/07 A3016 RMK AO2 SLP216 T01440072KFVE2019-09-20T00:53:00Z47.28-68.314.47.2230510.030.1594491021.6TRUETRUEVFRMETAR301.02019-09-20 00:57:53T,)5    3KFWN 200053Z AUTO 00000KT 10SM CLR 09/07 A3029 RMK AO2 SLP258 T00890067KFWN2019-09-20T00:53:00Z41.2-74.638.96.70010.030.289371025.8TRUETRUEVFRMETAR133.02019-09-20 00:57:53 +){5    3KFXE 200053Z 05012G19KT 10SM FEW031 SCT041 SCT048 25/21 A2995 RMK AO2 PK WND 04027/0007 RAB08E24 SLP144 P0009 T02500211KFXE2019-09-20T00:53:00Z26.2-80.1825.021.150121910.029.9498021014.4TRUEVFR0.09METAR6.02019-09-20 00:57:53 p$=GpQ2)5    3KFSM 200053Z 10004KT 10SM CLR 25/24 A2994 RMK AO2 SLP135 T02500239KFSM2019-09-20T00:53:00Z35.33-94.3725.023.9100410.029.9409451013.5TRUEVFRMETAR140.02019-09-20 00:57:53p1)?5     3KFST 200053Z AUTO 00000KT 10SM BKN120 27/18 A2988 RMK AO2 RAB06E16 SLP070 P0000 T02670183KFST2019-09-20T00:53:00Z30.92-102.9226.718.30010.029.8789371007.0TRUETRUEVFR0.005METAR918.02019-09-20 00:57:53a0)35    3KFTW 200053Z 09010KT 10SM SCT023 SCT028 OVC035 26/21 A2985 RMK AO2 SLP099 T02560211KFTW2019-09-20T00:53:00Z32.83-97.3725.621.1901010.029.849411009.9TRUEVFRMETAR214.02019-09-20 00:57:53V/)5    3KFTY 200053Z 08007KT 10SM CLR 24/12 A3018 RMK AO2 SLP212 T02390122 $KFTY2019-09-20T00:53:00Z33.78-84.5223.912.280710.030.1801191021.2TRUETRUEVFRMETAR263.02019-09-20 00:57:53 .7e[6)%5    3KTIW 200053Z 27006KT 10SM FEW033 BKN080 18/12 A3007 RMK AO2 SLP180 T01830122KTIW2019-09-20T00:53:00Z47.27-122.5818.312.2270610.030.0708661018.0TRUEVFRMETAR89.02019-09-20 00:57:53L5)5    3KFOK 200053Z 00000KT 10SM CLR 08/06 A3030 RMK AO2 SLP261 T00780056KFOK2019-09-20T00:53:00Z40.85-72.627.85.60010.030.3011821026.1TRUEVFRMETAR33.02019-09-20 00:57:53q4)K5     3KFPR 200053Z 06010G18KT 10SM -RA BKN035 BKN070 26/20 A3000 RMK AO2 RAB49 SLP156 P0000 T02560200KFPR2019-09-20T00:53:00Z27.5-80.3825.620.060101810.030.01015.6TRUE-RAVFR0.005METAR13.02019-09-20 00:57:53L3)5    3KFRG 200053Z 00000KT 10SM CLR 15/09 A3029 RMK AO2 SLP256 T01500094KFRG2019-09-20T00:53:00Z40.73-73.4215.09.40010.030.289371025.6TRUEVFRMETAR21.02019-09-20 00:57:53 O$E%OP:)5    3KTCL 200053Z 12005KT 10SM CLR 29/18 A3006 RMK AO2 SLP175 T02940183KTCL2019-09-20T00:53:00Z33.22-87.6229.418.3120510.030.0590551017.5TRUEVFRMETAR49.02019-09-20 00:57:539)w5      3KTCS 200053Z AUTO 28010G19KT 2 1/2SM -RA FEW035 BKN075 BKN085 21/16 A2998 RMK AO2 RAB40 SLP084 P0002 T02060161 TSNO $KTCS2019-09-20T00:53:00Z33.23-107.2720.616.128010192.529.979331008.4TRUETRUETRUETRUE-RAIFR0.02METAR1469.02019-09-20 00:57:53Y8)5    3KTDZ 200053Z AUTO 05005KT 10SM CLR 21/17 A3012 RMK AO2 SLP198 T02110172KTDZ2019-09-20T00:53:00Z41.57-83.4821.117.250510.030.1210631019.8TRUETRUEVFRMETAR189.02019-09-20 00:57:53V7)5    3KTHV 200053Z AUTO 00000KT 10SM CLR 10/07 A3029 RMK AO2 SLP259 T01000067KTHV2019-09-20T00:53:00Z39.92-76.8810.06.70010.030.289371025.9TRUETRUEVFRMETAR144.02019-09-20 00:57:53 1[O>)5    3KSTP 200053Z 00000KT 10SM CLR 22/18 A2999 RMK AO2 SLP152 T02170183KSTP2019-09-20T00:53:00Z44.93-93.0521.718.30010.029.9911421015.2TRUEVFRMETAR219.02019-09-20 00:57:53P=)5    3KSTS 200053Z 26008KT 10SM CLR 24/10 A2990 RMK AO2 SLP119 T02440100KSTS2019-09-20T00:53:00Z38.5-122.8224.410.0260810.029.8996071011.9TRUEVFRMETAR39.02019-09-20 00:57:53P<)5    3KSWO 200053Z 09006KT 10SM CLR 27/20 A2990 RMK AO2 SLP112 T02720200KSWO2019-09-20T00:53:00Z36.17-97.0827.220.090610.029.8996071011.2TRUEVFRMETAR290.02019-09-20 00:57:53s;)E5   3KTCC 200053Z AUTO 17020G26KT 10SM CLR 26/13 A2988 RMK AO2 PK WND 18029/0024 SLP062 T02560128KTCC2019-09-20T00:53:00Z35.18-103.625.612.8170202610.029.8789371006.2TRUETRUEVFRMETAR1235.02019-09-20 00:57:53 -XrlB)A5   3KSSF 200053Z 16017G20KT 10SM FEW070 34/22 A2975 RMK AO2 LTG DSNT NE AND E SLP061 T03440217KSSF2019-09-20T00:53:00Z29.33-98.4734.421.7160172010.029.7490161006.1TRUEVFRMETAR176.02019-09-20 00:57:53`A)'5   3KSSI 200053Z AUTO 05013G22KT 10SM FEW038 25/15 A3014 RMK AO2 SLP208 T02500150KSSI2019-09-20T00:53:00Z31.15-81.3825.015.050132210.030.1387791020.8TRUETRUEVFRMETAR6.02019-09-20 00:57:53O@)5    3KSTC 200053Z 00000KT 10SM CLR 21/18 A2999 RMK AO2 SLP162 T02060183KSTC2019-09-20T00:53:00Z45.55-94.0520.618.30010.029.9911421016.2TRUEVFRMETAR314.02019-09-20 00:57:53M?)5   3KSTJ 200053Z AUTO 10SM 27/21 A2995 RMK AO2 SLP132 T02720211 $KSTJ2019-09-20T00:53:00Z39.77-94.9227.221.110.029.9498021013.2TRUETRUETRUEMETAR247.02019-09-20 00:57:53 ,YF)%5    3KGKY 200053Z 08008KT 10SM BKN026 OVC032 26/21 A2985 RMK AO2 SLP100 T02560211KGKY2019-09-20T00:53:00Z32.67-97.125.621.180810.029.849411010.0TRUEMVFRMETAR192.02019-09-20 00:57:53~E)[5   3KGLD 200053Z AUTO 16032G47KT 10SM CLR 23/11 A2986 RMK AO2 PK WND 16048/2354 LTG DSNT E SLP083 T02280106KGLD2019-09-20T00:53:00Z39.37-101.722.810.6160324710.029.8612211008.3TRUETRUEVFRMETAR1113.02019-09-20 00:57:53%D)5      3KGLH 200053Z AUTO 34003KT 10SM VCTS -RA FEW048 SCT070 OVC100 24/21 A3000 RMK AO2 LTG DSNT N AND NE RAB2359 TSE18 SLP164 P0021 T02390211 $KGLH2019-09-20T00:53:00Z33.5-90.9823.921.1340310.030.01016.4TRUETRUETRUEVCTS -RAVFR0.21METAR45.02019-09-20 00:57:53NC)5    3KSRQ 200053Z 07009KT 10SM CLR 27/18 A2999 RMK AO2 SLP153 T02720183KSRQ2019-09-20T00:53:00Z27.4-82.5727.218.370910.029.9911421015.3TRUEVFRMETAR18.02019-09-20 00:57:53 Y*IYjJ)55     3KGGG 200053Z 14010KT 10SM OVC013 23/23 A2991 RMK AO2 RAB03E15 SLP122 P0000 T02330228KGGG2019-09-20T00:53:00Z32.38-94.7223.322.81401010.029.9114171012.2TRUEMVFR0.005METAR107.02019-09-20 00:57:53[I)!5    3KGIF 200053Z AUTO 06008KT 10SM FEW042 26/18 A3004 RMK AO2 SLP171 T02560178KGIF2019-09-20T00:53:00Z28.07-81.7525.617.860810.030.0413381017.1TRUETRUEVFRMETAR43.02019-09-20 00:57:53jH);5   3KGJT 200053Z 18013G26KT 10SM CLR 28/03 A2978 RMK AO2 PK WND 20027/0003 SLP014 T02830028KGJT2019-09-20T00:53:00Z39.12-108.5228.32.8180132610.029.7785431001.4TRUEVFRMETAR1475.02019-09-20 00:57:53`G)%5     3KGKJ 200053Z AUTO 00000KT 10SM CLR 18/09 A3022 RMK AO2 SLP232 T01780094 TSNOKGKJ2019-09-20T00:53:00Z41.63-80.2217.89.40010.030.2214571023.2TRUETRUETRUEVFRMETAR428.02019-09-20 00:57:53 )Ld_N)!5    3KGCC 200053Z AUTO 13010KT 10SM FEW120 24/05 A2974 RMK AO2 SLP033 T02440050KGCC2019-09-20T00:53:00Z44.33-105.5524.45.01301010.029.7401581003.3TRUETRUEVFRMETAR1320.02019-09-20 00:57:53bM)35    3KGEG 200053Z 34003KT 10SM FEW025 FEW070 FEW200 18/07 A2996 RMK AO2 SLP141 T01780072KGEG2019-09-20T00:53:00Z47.62-117.5317.87.2340310.029.9586621014.1TRUEVFRMETAR735.02019-09-20 00:57:53WL)5    3KGEZ 200053Z AUTO 00000KT 10SM CLR 22/18 A3007 RMK AO2 SLP177 T02220183KGEZ2019-09-20T00:53:00Z39.58-85.822.218.30010.030.0708661017.7TRUETRUEVFRMETAR245.02019-09-20 00:57:53QK)5    3KGFK 200053Z 11004KT 10SM CLR 21/15 A2995 RMK AO2 SLP141 T02110150KGFK2019-09-20T00:53:00Z47.95-97.1821.115.0110410.029.9498021014.1TRUEVFRMETAR258.02019-09-20 00:57:53  MtZR)5    3KGLR 200053Z AUTO 17004KT 10SM CLR 19/15 A3011 RMK AO2 SLP194 T01940150KGLR2019-09-20T00:53:00Z45.02-84.6819.415.0170410.030.1092531019.4TRUETRUEVFRMETAR407.02019-09-20 00:57:53SQ)5    3KGMU 200053Z 01007KT 10SM FEW055 20/13 A3026 RMK AO2 SLP239 T02000133KGMU2019-09-20T00:53:00Z34.85-82.3520.013.310710.030.2598421023.9TRUEVFRMETAR315.02019-09-20 00:57:53MP)5    3KFYV 200053Z 00000KT 10SM FEW110 23/21 A3000 RMK AO2 SLP148 T02330206KFYV2019-09-20T00:53:00Z36.02-94.1723.320.60010.030.01014.8TRUEVFRMETAR379.02019-09-20 00:57:53ZO)5    3KGAG 200053Z AUTO 15011KT 10SM CLR 27/18 A2992 RMK AO2 SLP107 T02670183KGAG2019-09-20T00:53:00Z36.3-99.7726.718.31501110.029.9202751010.7TRUETRUEVFRMETAR668.02019-09-20 00:57:53 X@XbV)/5    3KCRS 200053Z AUTO 08005KT 10SM SCT032 OVC060 26/23 A2986 RMK AO2 SLP105 T02610228KCRS2019-09-20T00:53:00Z32.03-96.426.122.880510.029.8612211010.5TRUETRUEVFRMETAR133.02019-09-20 00:57:53UU)5    3KCRQ 200053Z 23006KT 10SM OVC019 21/15 A2982 RMK AO2 SLP096 T02110150KCRQ2019-09-20T00:53:00Z33.13-117.2821.115.0230610.029.8198811009.6TRUEMVFRMETAR99.02019-09-20 00:57:53[T)!5    3KCRE 200053Z AUTO 03006KT 10SM BKN060 20/14 A3021 RMK AO1 SLP232 T02000139KCRE2019-09-20T00:53:00Z33.82-78.7220.013.930610.030.2096461023.2TRUETRUEVFRMETAR10.02019-09-20 00:57:53~S)Y5     3KCRG 200053Z 04010G17KT 10SM -RA FEW021 SCT046 BKN055 23/21 A3012 RMK AO2 RAB48 SLP198 P0000 T02330206KCRG2019-09-20T00:53:00Z30.33-81.5223.320.640101710.030.1210631019.8TRUE-RAVFR0.005METAR13.02019-09-20 00:57:53 )HmaZ)!5   3KCUT 200053Z AUTO 12006G14KT 10SM CLR 21/11 A2995 RMK AO2 SLP088 T02060111KCUT2019-09-20T00:53:00Z43.73-103.6220.611.112061410.029.9498021008.8TRUETRUEVFRMETAR1725.02019-09-20 00:57:53UY)5    3KCUB 200053Z AUTO VRB03KT 10SM CLR 22/08 A3022 RMK AO2 SLP230 T02220083KCUB2019-09-20T00:53:00Z33.97-81.022.28.30310.030.2214571023.0TRUETRUEVFRMETAR56.02019-09-20 00:57:53[X)!5    3KCSV 200053Z AUTO 00000KT 10SM BKN047 22/14 A3019 RMK AO2 SLP205 T02170139KCSV2019-09-20T00:53:00Z35.95-85.0821.713.90010.030.1889761020.5TRUETRUEVFRMETAR570.02019-09-20 00:57:53QW)5    3KCSM 200053Z 12010KT 10SM CLR 26/17 A2994 RMK AO2 SLP116 T02560172KCSM2019-09-20T00:53:00Z35.35-99.225.617.21201010.029.9409451011.6TRUEVFRMETAR588.02019-09-20 00:57:53 ;eW^)5    3KDAN 200053Z AUTO 00000KT 10SM CLR 14/09 A3028 RMK AO2 SLP248 T01390089KDAN2019-09-20T00:53:00Z36.57-79.3313.98.90010.030.2805121024.8TRUETRUEVFRMETAR175.02019-09-20 00:57:53P])5    3KDBQ 200053Z 00000KT 10SM SCT060 19/19 A3006 RMK AO2 SLP176 T01940194KDBQ2019-09-20T00:53:00Z42.4-90.719.419.40010.030.0590551017.6TRUEVFRMETAR326.02019-09-20 00:57:53Q\)5    3KCYS 200053Z 17006KT 10SM CLR 22/03 A2994 RMK AO2 SLP070 T02170028KCYS2019-09-20T00:53:00Z41.15-104.821.72.8170610.029.9409451007.0TRUEVFRMETAR1868.02019-09-20 00:57:53h[)55     3KCXO 200053Z 13007KT 10SM OVC010 23/22 A2990 RMK AO2 RAB24E39 SLP121 P0000 T02330222KCXO2019-09-20T00:53:00Z30.35-95.4223.322.2130710.029.8996071012.1TRUEMVFR0.005METAR75.02019-09-20 00:57:53 o%FoQb)5    3KOJC 200053Z 15006KT 10SM CLR 26/20 A2997 RMK AO2 SLP139 T02610200KOJC2019-09-20T00:53:00Z38.85-94.7326.120.0150610.029.9704721013.9TRUEVFRMETAR326.02019-09-20 00:57:53Ya)5    3KOLF 200053Z AUTO 27007KT 10SM CLR 23/13 A2971 RMK AO2 SLP059 T02280133KOLF2019-09-20T00:53:00Z48.1-105.5822.813.3270710.029.710631005.9TRUETRUEVFRMETAR604.02019-09-20 00:57:53Y`)%5    3KDAB 200053Z 07016KT 10SM FEW055 OVC075 26/17 A3006 RMK AO2 SLP177 T02610172KDAB2019-09-20T00:53:00Z29.18-81.0726.117.2701610.030.0590551017.7TRUEVFRMETAR9.02019-09-20 00:57:53v_)G5   3KDAL 200053Z 11010G15KT 10SM FEW018 SCT032 BKN044 BKN250 25/21 A2985 RMK AO2 SLP102 T02500206KDAL2019-09-20T00:53:00Z32.85-96.8525.020.6110101510.029.849411010.2TRUEBKN25000VFRMETAR158.02019-09-20 00:57:53  CcWf)5    3KMKL 200053Z AUTO 00000KT 10SM CLR 26/22 A3005 RMK AO2 SLP171 T02560217KMKL2019-09-20T00:53:00Z35.6-88.9225.621.70010.030.0501981017.1TRUETRUEVFRMETAR128.02019-09-20 00:57:53Ze)5    3KMKO 200053Z AUTO 11006KT 10SM CLR 26/19 A2992 RMK AO2 SLP125 T02610194KMKO2019-09-20T00:53:00Z35.65-95.3726.119.4110610.029.9202751012.5TRUETRUEVFRMETAR185.02019-09-20 00:57:53Wd)5    3KOGB 200053Z AUTO 06003KT 10SM CLR 20/09 A3021 RMK AO2 SLP227 T02000089KOGB2019-09-20T00:53:00Z33.47-80.8520.08.960310.030.2096461022.7TRUETRUEVFRMETAR59.02019-09-20 00:57:53Zc)5   3KOGD 200053Z 29016G22KT 10SM FEW120 18/02 A2982 RMK AO2 SLP065 T01830017KOGD2019-09-20T00:53:00Z41.2-112.0218.31.7290162210.029.8198811006.5TRUEVFRMETAR1353.02019-09-20 00:57:53 ,VYj)5    3KMGY 200053Z AUTO 15006KT 10SM CLR 25/18 A3010 RMK AO2 SLP185 T02500183KMGY2019-09-20T00:53:00Z39.6-84.2325.018.3150610.030.1003931018.5TRUETRUEVFRMETAR289.02019-09-20 00:57:53Mi)5    3KMHT 200053Z 00000KT 10SM CLR 14/06 A3024 RMK AO2 SLP254 T01390061KMHT2019-09-20T00:53:00Z42.93-71.4313.96.10010.030.2391741025.4TRUEVFRMETAR81.02019-09-20 00:57:53Ph)5    3KMIC 200053Z 11004KT 10SM CLR 23/17 A2998 RMK AO2 SLP149 T02280167KMIC2019-09-20T00:53:00Z45.07-93.3522.816.7110410.029.979331014.9TRUEVFRMETAR265.02019-09-20 00:57:53Ng)5    3KMIE 200053Z 00000KT 10SM CLR 22/18 A3009 RMK AO2 SLP180 T02220178KMIE2019-09-20T00:53:00Z40.23-85.422.217.80010.030.0885831018.0TRUEVFRMETAR285.02019-09-20 00:57:53 )Vu[n)%5    3KMDW 200053Z 11005KT 10SM FEW150 BKN250 24/14 A3005 RMK AO2 SLP167 T02390144KMDW2019-09-20T00:53:00Z41.78-87.7523.914.4110510.030.0501981016.7TRUEVFRMETAR188.02019-09-20 00:57:53[m)%5    3KMFR 200053Z 32009KT 10SM FEW050 BKN065 19/07 A3005 RMK AO2 SLP171 T01940072KMFR2019-09-20T00:53:00Z42.38-122.8719.47.2320910.030.0501981017.1TRUEVFRMETAR396.02019-09-20 00:57:53Ml)5    3KMGM 200053Z 09006KT 10SM CLR 25/18 A3009 RMK AO2 SLP187 T02500178KMGM2019-09-20T00:53:00Z32.3-86.425.017.890610.030.0885831018.7TRUEVFRMETAR63.02019-09-20 00:57:53Qk)5    3KMGW 200053Z 13010KT 10SM CLR 20/08 A3021 RMK AO2 SLP225 T02000078KMGW2019-09-20T00:53:00Z39.65-79.9220.07.81301010.030.2096461022.5TRUEVFRMETAR378.02019-09-20 00:57:53 !CjZr)5    3KMAE 200053Z AUTO 31010KT 10SM CLR 26/06 A2986 RMK AO2 SLP109 T02560061KMAE2019-09-20T00:53:00Z36.98-120.1225.66.13101010.029.8612211010.9TRUETRUEVFRMETAR77.02019-09-20 00:57:53Sq)5    3KMAF 200053Z 07006KT 10SM SCT110 26/18 A2990 RMK AO2 SLP080 T02610178KMAF2019-09-20T00:53:00Z31.95-102.226.117.870610.029.8996071008.0TRUEVFRMETAR874.02019-09-20 00:57:53Xp)5    3KMAI 200053Z AUTO 06005KT 10SM CLR 25/14 A3009 RMK AO2 SLP187 T02500144KMAI2019-09-20T00:53:00Z30.83-85.1825.014.460510.030.0885831018.7TRUETRUEVFRMETAR32.02019-09-20 00:57:53Yo)%5    3KMCO 200053Z 03006KT 10SM FEW050 FEW090 24/19 A3004 RMK AO2 SLP172 T02440189KMCO2019-09-20T00:53:00Z28.42-81.3324.418.930610.030.0413381017.2TRUEVFRMETAR29.02019-09-20 00:57:53 v3Zv^v)!5    3KLVS 200053Z AUTO 20007KT 10SM BKN100 22/02 A3006 RMK AO2 SLP082 T02220017KLVS2019-09-20T00:53:00Z35.65-105.1322.21.7200710.030.0590551008.2TRUETRUEVFRMETAR2091.02019-09-20 00:57:53Su)5    3KLWD 200053Z AUTO 10SM CLR 26/21 A2999 RMK AO2 SLP146 T02610211 $KLWD2019-09-20T00:53:00Z40.63-93.926.121.110.029.9911421014.6TRUETRUETRUEVFRMETAR346.02019-09-20 00:57:53Xt)5    3KLWV 200053Z AUTO 04004KT 10SM CLR 24/19 A3004 RMK AO2 SLP169 T02390189KLWV2019-09-20T00:53:00Z38.77-87.623.918.940410.030.0413381016.9TRUETRUEVFRMETAR131.02019-09-20 00:57:53is);5   3KLXV 200053Z AUTO 18007KT CLR 15/M03 A3020 RMK AO2 PK WND 19029/0013 SLP097 T01501028 $KLXV2019-09-20T00:53:00Z39.23-106.3215.0-2.8180730.2007871009.7TRUETRUETRUEMETAR3028.02019-09-20 00:57:53 HiPz)5    3KLUK 200053Z 11005KT 10SM CLR 26/19 A3009 RMK AO2 SLP186 T02560189KLUK2019-09-20T00:53:00Z39.1-84.4225.618.9110510.030.0885831018.6TRUEVFRMETAR155.02019-09-20 00:57:53Yy)5    3KLVJ 200053Z AUTO 13006KT 10SM CLR 24/23 A2990 RMK AO2 SLP122 T02440228KLVJ2019-09-20T00:53:00Z29.52-95.2524.422.8130610.029.8996071012.2TRUETRUEVFRMETAR12.02019-09-20 00:57:53Px)5    3KLVK 200053Z 27009KT 10SM CLR 24/09 A2989 RMK AO2 SLP119 T02390094KLVK2019-09-20T00:53:00Z37.7-121.8223.99.4270910.029.8907471011.9TRUEVFRMETAR117.02019-09-20 00:57:53\w)!5    3KLVM 200053Z AUTO 21004KT 10SM BKN120 17/05 A2985 RMK AO2 SLP085 T01720050KLVM2019-09-20T00:53:00Z45.7-110.4317.25.0210410.029.849411008.5TRUETRUEVFRMETAR1418.02019-09-20 00:57:53 "=YO~)5    3KJEF 200053Z 12004KT 10SM CLR 27/21 A2998 RMK AO2 SLP138 T02720211KJEF2019-09-20T00:53:00Z38.6-92.1527.221.1120410.029.979331013.8TRUEVFRMETAR168.02019-09-20 00:57:53^})!5    3KJER 200053Z AUTO 23006KT 10SM FEW022 12/08 A2993 RMK AO2 SLP124 T01220078KJER2019-09-20T00:53:00Z42.72-114.4512.27.8230610.029.9291341012.4TRUETRUEVFRMETAR1222.02019-09-20 00:57:53_|)5    3KLPR 200053Z AUTO 15006KT 10SM CLR 20/12 A3015 RMK AO2 SLP208 T02000122 $KLPR2019-09-20T00:53:00Z41.35-82.1820.012.2150610.030.150591020.8TRUETRUETRUEVFRMETAR241.02019-09-20 00:57:53X{)%5    3KLSE 200053Z 00000KT 10SM FEW030 FEW035 23/20 A3002 RMK AO2 SLP156 T02280200KLSE2019-09-20T00:53:00Z43.88-91.2522.820.00010.030.020671015.6TRUEVFRMETAR199.02019-09-20 00:57:53 qFkqt)E5   3KITR 200053Z AUTO 16019G30KT 10SM CLR 22/11 A2993 RMK AO2 PK WND 16036/0020 SLP097 T02170106KITR2019-09-20T00:53:00Z39.23-102.2821.710.6160193010.029.9291341009.7TRUETRUEVFRMETAR1279.02019-09-20 00:57:53U)5    3KIWI 200053Z AUTO 00000KT 10SM CLR 08/06 A3027 RMK AO2 SLP249 T00780056KIWI2019-09-20T00:53:00Z43.97-69.727.85.60010.030.2687021024.9TRUETRUEVFRMETAR20.02019-09-20 00:57:53P)5    3KIXD 200053Z 13006KT 10SM CLR 27/21 A2998 RMK AO2 SLP139 T02670211KIXD2019-09-20T00:53:00Z38.82-94.8826.721.1130610.029.979331013.9TRUEVFRMETAR342.02019-09-20 00:57:53^)%5     3KJBR 200053Z AUTO 15010KT 10SM CLR 29/21 A3000 RMK AO2 SLP156 T02890206 TSNOKJBR2019-09-20T00:53:00Z35.83-90.6528.920.61501010.030.01015.6TRUETRUETRUEVFRMETAR79.02019-09-20 00:57:53 ';'Y)!5    3KILM 200053Z AUTO 01006KT 10SM OVC060 21/13 A3022 RMK AO2 SLP233 T02110133KILM2019-09-20T00:53:00Z34.27-77.921.113.310610.030.2214571023.3TRUETRUEVFRMETAR9.02019-09-20 00:57:53/)15      3KIML 200053Z AUTO 12008KT 10SM VCTS FEW110 24/14 A2984 RMK AO2 PK WND 17033/0031 WSHFT 0028 LTG DSNT NW-E RAE00 TSE13B25E52 SLP082 P0000 T02390139KIML2019-09-20T00:53:00Z40.52-101.6223.913.9120810.029.8405511008.2TRUETRUEVCTSVFR0.005METAR998.02019-09-20 00:57:53Y)5    3KINK 200053Z AUTO 10008KT 10SM CLR 31/12 A2985 RMK AO2 SLP061 T03060122KINK2019-09-20T00:53:00Z31.78-103.230.612.2100810.029.849411006.1TRUETRUEVFRMETAR855.02019-09-20 00:57:53`)!5   3KIPL 200053Z AUTO 25019G25KT 10SM CLR 32/07 A2964 RMK AO2 SLP036 T03170072KIPL2019-09-20T00:53:00Z32.83-115.5831.77.2250192510.029.6397631003.6TRUETRUEVFRMETAR-17.02019-09-20 00:57:53 S1PSw )Q5    3KIAH 200053Z 12005KT 10SM FEW009 SCT080 BKN110 OVC200 24/22 A2989 RMK AO2 SLP121 VCSH SW T02390222KIAH2019-09-20T00:53:00Z30.0-95.3723.922.2120510.029.8907471012.1TRUEOVC20000VFRMETAR36.02019-09-20 00:57:53[ )5    3KICR 200053Z AUTO 12013KT 10SM CLR 24/20 A2984 RMK AO2 SLP093 T02440200KICR2019-09-20T00:53:00Z43.38-99.8524.420.01201310.029.8405511009.3TRUETRUEVFRMETAR621.02019-09-20 00:57:53[)%5    3KICT 200053Z 16007KT 10SM SCT140 BKN200 27/19 A2991 RMK AO2 SLP116 T02720194KICT2019-09-20T00:53:00Z37.65-97.4327.219.4160710.029.9114171011.6TRUEVFRMETAR407.02019-09-20 00:57:53h);5    3KIDA 200053Z 26012KT 10SM SCT120 16/03 A2986 RMK AO2 PK WND 25026/0021 SLP091 T01560028KIDA2019-09-20T00:53:00Z43.52-112.0715.62.82601210.029.8612211009.1TRUEVFRMETAR1453.02019-09-20 00:57:53 h+Lnh)_5     3KHWO 200053Z AUTO 05017G24KT 7SM RA FEW031 BKN060 OVC080 25/22 A2996 RMK AO2 RAB33 SLP146 P0002 T02500222KHWO2019-09-20T00:53:00Z26.0-80.2325.022.25017247.029.9586621014.6TRUETRUERAVFR0.02METAR2.02019-09-20 00:57:53X )5    3KHYR 200053Z AUTO 00000KT 10SM CLR 19/17 A3003 RMK AO2 SLP171 T01940172KHYR2019-09-20T00:53:00Z46.02-91.4519.417.20010.030.0295281017.1TRUETRUEVFRMETAR370.02019-09-20 00:57:53Y )5    3KHZY 200053Z AUTO 13006KT 10SM CLR 18/13 A3020 RMK AO2 SLP225 T01780128KHZY2019-09-20T00:53:00Z41.78-80.717.812.8130610.030.2007871022.5TRUETRUEVFRMETAR276.02019-09-20 00:57:53O )5    3KIAG 200053Z 00000KT 10SM CLR 16/12 A3021 RMK AO2 SLP232 T01560117KIAG2019-09-20T00:53:00Z43.12-78.9315.611.70010.030.2096461023.2TRUEVFRMETAR182.02019-09-20 00:57:53 !QtO)5    3KHUF 200053Z 08003KT 10SM CLR 20/18 A3005 RMK AO2 SLP173 T02000183KHUF2019-09-20T00:53:00Z39.45-87.320.018.380310.030.0501981017.3TRUEVFRMETAR179.02019-09-20 00:57:53W)5    3KHUL 200053Z AUTO 18003KT 10SM CLR 07/06 A3018 RMK AO2 SLP225 T00720061KHUL2019-09-20T00:53:00Z46.12-67.87.26.1180310.030.1801191022.5TRUETRUEVFRMETAR150.02019-09-20 00:57:53J)5    3KHVN 200053Z 00000KT 8SM CLR 12/09 A3028 RMK AO2 SLP254 T01220089KHVN2019-09-20T00:53:00Z41.27-72.8712.28.9008.030.2805121025.4TRUEVFRMETAR4.02019-09-20 00:57:53Y)5    3KHVR 200053Z AUTO 31005KT 10SM CLR 16/08 A2985 RMK AO2 SLP110 T01610078KHVR2019-09-20T00:53:00Z48.55-109.7716.17.8310510.029.849411011.0TRUETRUEVFRMETAR787.02019-09-20 00:57:53  FgZ)5    3KHRO 200053Z AUTO 15003KT 10SM CLR 24/18 A3001 RMK AO2 SLP149 T02440178KHRO2019-09-20T00:53:00Z36.27-93.1524.417.8150310.030.0088581014.9TRUETRUEVFRMETAR417.02019-09-20 00:57:53Y)5    3KHSI 200053Z AUTO 16008KT 10SM CLR 28/18 A2992 RMK AO2 SLP114 T02830178KHSI2019-09-20T00:53:00Z40.6-98.4328.317.8160810.029.9202751011.4TRUETRUEVFRMETAR591.02019-09-20 00:57:53T)5    3KHSV 200053Z 13006KT 10SM FEW250 26/18 A3009 RMK AO2 SLP184 T02560178KHSV2019-09-20T00:53:00Z34.65-86.7825.617.8130610.030.0885831018.4TRUEVFRMETAR191.02019-09-20 00:57:53Z)5    3KHTL 200053Z AUTO 14005KT 10SM CLR 18/14 A3012 RMK AO2 SLP199 T01780144KHTL2019-09-20T00:53:00Z44.35-84.6717.814.4140510.030.1210631019.9TRUETRUEVFRMETAR351.02019-09-20 00:57:53 b 1Nbf)95   3KOPF 200053Z 04015G21KT 10SM FEW030 SCT041 SCT050 27/21 A2995 RMK AO2 SLP143 T02720206KOPF2019-09-20T00:53:00Z25.92-80.2827.220.640152110.029.9498021014.3TRUEVFRMETAR16.02019-09-20 00:57:53])!5    3KDCU 200053Z AUTO 14006KT 10SM BKN060 27/18 A3009 RMK AO2 SLP183 T02670178KDCU2019-09-20T00:53:00Z34.65-86.9526.717.8140610.030.0885831018.3TRUETRUEVFRMETAR176.02019-09-20 00:57:53i);5    3KHQM 200053Z AUTO 26008KT 8SM SCT016 BKN023 OVC090 17/14 A3009 RMK AO2 SLP193 T01670144KHQM2019-09-20T00:53:00Z46.97-123.9316.714.426088.030.0885831019.3TRUETRUEMVFRMETAR7.02019-09-20 00:57:53Z)5    3KHRI 200053Z AUTO 28005KT 10SM CLR 22/07 A2995 RMK AO2 SLP138 T02220067KHRI2019-09-20T00:53:00Z45.83-119.2722.26.7280510.029.9498021013.8TRUETRUEVFRMETAR195.02019-09-20 00:57:53  ?\O)5    3KORL 200053Z 04005KT 10SM CLR 24/20 A3005 RMK AO2 SLP177 T02440200KORL2019-09-20T00:53:00Z28.55-81.3324.420.040510.030.0501981017.7TRUEVFRMETAR37.02019-09-20 00:57:53])!5    3KOMK 200053Z AUTO 23005KT 10SM OVC095 22/08 A2992 RMK AO2 SLP128 T02170083KOMK2019-09-20T00:53:00Z48.47-119.5221.78.3230510.029.9202751012.8TRUETRUEVFRMETAR395.02019-09-20 00:57:53[)5    3KONO 200053Z AUTO 34013KT 10SM CLR 19/06 A2991 RMK AO2 SLP126 T01890061KONO2019-09-20T00:53:00Z44.02-117.0218.96.13401310.029.9114171012.6TRUETRUEVFRMETAR667.02019-09-20 00:57:53Z)5   3KONT 200053Z 25009G17KT 10SM FEW050 24/14 A2981 RMK AO2 SLP083 T02390139KONT2019-09-20T00:53:00Z34.05-117.5823.913.925091710.029.8110241008.3TRUEVFRMETAR274.02019-09-20 00:57:53 !.\R")5    3KRNT 200053Z 26003KT 10SM BKN075 20/09 A3005 RMK AO2 SLP179 T02000089KRNT2019-09-20T00:53:00Z47.5-122.2220.08.9260310.030.0501981017.9TRUEVFRMETAR21.02019-09-20 00:57:53L!)5    3KRQE 200053Z AUTO 23011G20KT 10SM BKN095 BKN110 A3002 RMK AO2 SLPNOKRQE2019-09-20T00:53:00Z35.65-109.07230112010.030.02067TRUETRUEVFRMETAR2055.02019-09-20 00:57:53m )?5    3KRSL 200053Z AUTO 15012KT 10SM CLR 27/18 A2990 RMK AO2 PK WND 16027/2355 SLP108 T02720178KRSL2019-09-20T00:53:00Z38.87-98.8227.217.81501210.029.8996071010.8TRUETRUEVFRMETAR567.02019-09-20 00:57:53Y)%5    3KRSW 200053Z 06011KT 10SM FEW070 OVC085 25/19 A2998 RMK AO2 SLP150 T02500189KRSW2019-09-20T00:53:00Z26.53-81.7525.018.9601110.029.979331015.0TRUEVFRMETAR10.02019-09-20 00:57:53 (Hs_&)%5   3KRKP 200053Z AUTO 15016G22KT 8SM FEW016 31/26 A2981 RMK AO2 SLP095 T03060256KRKP2019-09-20T00:53:00Z28.08-97.0530.625.615016228.029.8110241009.5TRUETRUEVFRMETAR6.02019-09-20 00:57:53O%)5    3KRME 200053Z 14003KT 10SM CLR 14/11 A3029 RMK AO2 SLP256 T01390106KRME2019-09-20T00:53:00Z43.22-75.413.910.6140310.030.289371025.6TRUEVFRMETAR154.02019-09-20 00:57:53Z$)5    3KRMG 200053Z AUTO 11006KT 10SM CLR 24/14 A3016 RMK AO2 SLP203 T02440139KRMG2019-09-20T00:53:00Z34.35-85.1724.413.9110610.030.1594491020.3TRUETRUEVFRMETAR193.02019-09-20 00:57:53R#)5    3KRNM 200053Z 28007KT 10SM CLR 21/14 A2984 RMK AO2 SLP096 T02110144KRNM2019-09-20T00:53:00Z33.03-116.9221.114.4280710.029.8405511009.6TRUEVFRMETAR427.02019-09-20 00:57:53 n0NnZ*)5    3KPHD 200053Z AUTO 13003KT 10SM CLR 18/12 A3018 RMK AO2 SLP218 T01830122KPHD2019-09-20T00:53:00Z40.47-81.4218.312.2130310.030.1801191021.8TRUETRUEVFRMETAR272.02019-09-20 00:57:53\))!5    3KRHI 200053Z AUTO 00000KT 10SM BKN026 21/18 A3008 RMK AO2 SLP180 T02110178KRHI2019-09-20T00:53:00Z45.63-89.4821.117.80010.030.0797251018.0TRUETRUEMVFRMETAR485.02019-09-20 00:57:53^()!5    3KRIL 200053Z AUTO 19005KT 10SM FEW120 27/00 A2984 RMK AO2 SLP039 T02720000KRIL2019-09-20T00:53:00Z39.53-107.7327.20.0190510.029.8405511003.9TRUETRUEVFRMETAR1678.02019-09-20 00:57:53f')'5     3KRIW 200053Z AUTO 22007KT 10SM CLR 24/M02 A2976 RMK AO2 SLP026 T02391017 TSNOKRIW2019-09-20T00:53:00Z43.07-108.4723.9-1.7220710.029.7608261002.6TRUETRUETRUEVFRMETAR1697.02019-09-20 00:57:53 n#2Tn`.)35    3KPDX 200053Z 30005KT 10SM FEW045 BKN075 BKN250 21/11 A3006 RMK AO2 SLP179 T02110111KPDX2019-09-20T00:53:00Z45.6-122.6221.111.1300510.030.0590551017.9TRUEVFRMETAR7.02019-09-20 00:57:53X-)5    3KPEO 200053Z AUTO 00000KT 10SM CLR 14/11 A3026 RMK AO2 SLP248 T01440106KPEO2019-09-20T00:53:00Z42.65-77.0514.410.60010.030.2598421024.8TRUETRUEVFRMETAR256.02019-09-20 00:57:53k,)-5    3KPGA 200053Z AUTO 21008G16KT 10SM CLR 29/M03 A2974 RMK AO2 SLP000 T02941028 TSNOKPGA2019-09-20T00:53:00Z36.92-111.4529.4-2.821081610.029.7401581000.0TRUETRUETRUEVFRMETAR1307.02019-09-20 00:57:53W+)5    3KPGD 200053Z AUTO 07011KT 10SM CLR 24/19 A3001 RMK AO2 SLP162 T02390194KPGD2019-09-20T00:53:00Z26.92-82.023.919.4701110.030.0088581016.2TRUETRUEVFRMETAR7.02019-09-20 00:57:53 W*V3WV2)5    3KPBG 200053Z AUTO 00000KT 10SM CLR 11/08 A3024 RMK AO2 SLP240 T01060083KPBG2019-09-20T00:53:00Z44.65-73.4710.68.30010.030.2391741024.0TRUETRUEVFRMETAR72.02019-09-20 00:57:531)5      3KPBI 200053Z 06014KT 10SM -RA SCT028CB BKN042 BKN090 25/21 A2998 RMK AO2 PK WND 05031/0034 RAB34 SLP151 CB SW MOV SW P0000 T02500211 $KPBI2019-09-20T00:53:00Z26.68-80.125.021.1601410.029.979331015.1TRUETRUE-RAVFR0.005METAR6.02019-09-20 00:57:53N0)5    3KPDK 200053Z VRB03KT 10SM CLR 22/12 A3020 RMK AO2 SLP214 T02170122KPDK2019-09-20T00:53:00Z33.88-84.321.712.20310.030.2007871021.4TRUEVFRMETAR302.02019-09-20 00:57:53P/)5    3KPDT 200053Z 31005KT 10SM CLR 19/06 A2997 RMK AO2 SLP140 T01940061KPDT2019-09-20T00:53:00Z45.7-118.8319.46.1310510.029.9704721014.0TRUEVFRMETAR462.02019-09-20 00:57:53 +BfM6)5    3KOWD 200053Z 00000KT 10SM CLR 10/07 A3027 RMK AO2 SLP250 T01000067KOWD2019-09-20T00:53:00Z42.18-71.1710.06.70010.030.2687021025.0TRUEVFRMETAR19.02019-09-20 00:57:53V5)5    3KOXB 200053Z AUTO 00000KT 10SM CLR 12/11 A3032 RMK AO2 SLP267 T01220106KOXB2019-09-20T00:53:00Z38.32-75.1212.210.60010.030.3188971026.7TRUETRUEVFRMETAR3.02019-09-20 00:57:53c4)35    3KPAE 200053Z 31004KT 10SM FEW045 SCT100 SCT110 18/10 A3007 RMK AO2 SLP183 T01780100KPAE2019-09-20T00:53:00Z47.92-122.2817.810.0310410.030.0708661018.3TRUEVFRMETAR180.02019-09-20 00:57:53O3)5    3KPAH 200053Z 00000KT 10SM CLR 24/19 A3001 RMK AO2 SLP159 T02390189KPAH2019-09-20T00:53:00Z37.07-88.7723.918.90010.030.0088581015.9TRUEVFRMETAR119.02019-09-20 00:57:53 "DkQ:)5    3KOSU 200053Z 11006KT 10SM CLR 24/15 A3012 RMK AO2 SLP194 T02440150KOSU2019-09-20T00:53:00Z40.08-83.0824.415.0110610.030.1210631019.4TRUEVFRMETAR280.02019-09-20 00:57:53S9)5    3KOTM 200053Z AUTO 09006KT 10SM CLR 24/22 A3000 RMK AO2 SLP153 T02440217KOTM2019-09-20T00:53:00Z41.1-92.4524.421.790610.030.01015.3TRUETRUEVFRMETAR256.02019-09-20 00:57:53X8)5    3KOVE 200053Z AUTO 28007KT 10SM CLR 24/09 A2992 RMK AO2 SLP131 T02390094KOVE2019-09-20T00:53:00Z39.5-121.6223.99.4280710.029.9202751013.1TRUETRUEVFRMETAR58.02019-09-20 00:57:53X7)5    3KOVS 200053Z AUTO 00000KT 10SM CLR 21/19 A3004 RMK AO2 SLP172 T02110194KOVS2019-09-20T00:53:00Z43.15-90.6821.119.40010.030.0413381017.2TRUETRUEVFRMETAR202.02019-09-20 00:57:53 e+1Qef>)'5    3KRWL 200053Z AUTO 18012KT 10SM FEW120 23/M02 A2991 RMK AO2 SLP034 T02281022 $KRWL2019-09-20T00:53:00Z41.78-107.222.8-2.21801210.029.9114171003.4TRUETRUETRUEVFRMETAR2077.02019-09-20 00:57:53Z=)5    3KRTN 200053Z AUTO 22007KT 10SM CLR 23/02 A2999 RMK AO2 SLP083 T02280022KRTN2019-09-20T00:53:00Z36.73-104.522.82.2220710.029.9911421008.3TRUETRUEVFRMETAR1936.02019-09-20 00:57:53t<)U5    3KRUE 200053Z AUTO VRB03KT 10SM BKN055 BKN070 BKN100 27/19 A2997 RMK AO2 LTG DSNT SE SLP141 T02720189KRUE2019-09-20T00:53:00Z35.25-93.127.218.90310.029.9704721014.1TRUETRUEVFRMETAR115.02019-09-20 00:57:53O;)5    3KOSH 200053Z 00000KT 10SM CLR 20/19 A3005 RMK AO2 SLP169 T02000189KOSH2019-09-20T00:53:00Z43.97-88.5520.018.90010.030.0501981016.9TRUEVFRMETAR248.02019-09-20 00:57:53 $En[B)5    3KRXE 200053Z AUTO 24012KT 10SM CLR 18/02 A2984 RMK AO2 SLP077 T01830022KRXE2019-09-20T00:53:00Z43.83-111.818.32.22401210.029.8405511007.7TRUETRUEVFRMETAR1480.02019-09-20 00:57:53QA)5    3KRVS 200053Z 11008KT 10SM CLR 29/21 A2990 RMK AO2 SLP128 T02940206KRVS2019-09-20T00:53:00Z36.05-95.9829.420.6110810.029.8996071012.8TRUEVFRMETAR200.02019-09-20 00:57:53Y@)5    3KRWF 200053Z AUTO 08004KT 10SM CLR 23/18 A2997 RMK AO2 SLP145 T02280178KRWF2019-09-20T00:53:00Z44.55-95.0822.817.880410.029.9704721014.5TRUETRUEVFRMETAR311.02019-09-20 00:57:53V?)5    3KRWI 200053Z AUTO 00000KT 10SM CLR 16/12 A3028 RMK AO2 SLP252 T01560122KRWI2019-09-20T00:53:00Z35.85-77.915.612.20010.030.2805121025.2TRUETRUEVFRMETAR47.02019-09-20 00:57:53 +VycF)35    3KSEA 200053Z 26004KT 10SM FEW035 SCT075 BKN160 19/10 A3006 RMK AO2 SLP185 T01940100KSEA2019-09-20T00:53:00Z47.45-122.3219.410.0260410.030.0590551018.5TRUEVFRMETAR136.02019-09-20 00:57:53WE)5    3KSEG 200053Z AUTO 00000KT 10SM CLR 11/09 A3028 RMK AO2 SLP256 T01060094KSEG2019-09-20T00:53:00Z40.82-76.8710.69.40010.030.2805121025.6TRUETRUEVFRMETAR134.02019-09-20 00:57:53OD)5    3KSFB 200053Z 02006KT 10SM CLR 23/20 A3005 RMK AO2 SLP173 T02330200KSFB2019-09-20T00:53:00Z28.77-81.2223.320.020610.030.0501981017.3TRUEVFRMETAR17.02019-09-20 00:57:53OC)5    3KSFF 200053Z 00000KT 10SM CLR 18/08 A2995 RMK AO2 SLP139 T01830083KSFF2019-09-20T00:53:00Z47.68-117.3218.38.30010.029.9498021013.9TRUEVFRMETAR609.02019-09-20 00:57:53 &PYQJ)5    3KSBA 200053Z 15010KT 10SM CLR 23/14 A2978 RMK AO2 SLP084 T02280144KSBA2019-09-20T00:53:00Z34.43-119.8522.814.41501010.029.7785431008.4TRUEVFRMETAR3.02019-09-20 00:57:53qI)?5     3KSBM 200053Z AUTO 20003KT 10SM SCT100 20/17 A3006 RMK AO2 RAB29E37 SLP179 P0000 T02000172KSBM2019-09-20T00:53:00Z43.78-87.8520.017.2200310.030.0590551017.9TRUETRUEVFR0.005METAR232.02019-09-20 00:57:53PH)5    3KSDL 200053Z 26009KT 10SM CLR 35/08 A2969 RMK AO2 SLP028 T03500083KSDL2019-09-20T00:53:00Z33.62-111.9235.08.3260910.029.689961002.8TRUEVFRMETAR447.02019-09-20 00:57:53TG)5    3KSDM 200053Z 26008KT 10SM SCT017 19/14 A2984 RMK AO2 SLP102 T01940144KSDM2019-09-20T00:53:00Z32.58-117.019.414.4260810.029.8405511010.2TRUEVFRMETAR159.02019-09-20 00:57:53 ,UTN)5    3PHLI 200053Z 06011KT 10SM FEW018 31/23 A2993 RMK AO2 SLP131 T03110233PHLI2019-09-20T00:53:00Z21.97-159.3331.123.3601110.029.9291341013.1TRUEVFRMETAR45.02019-09-20 00:57:53NM)5    3KSAC 200053Z 35009KT 10SM CLR 26/08 A2989 RMK AO2 SLP120 T02560083KSAC2019-09-20T00:53:00Z38.5-121.525.68.3350910.029.8907471012.0TRUEVFRMETAR11.02019-09-20 00:57:53QL)5    3KSAF 200053Z 25006KT 10SM CLR 23/02 A3003 RMK AO2 SLP080 T02280017KSAF2019-09-20T00:53:00Z35.62-106.122.81.7250610.030.0295281008.0TRUEVFRMETAR1930.02019-09-20 00:57:53NK)5    3KSAV 200053Z 06005KT 10SM CLR 22/16 A3017 RMK AO2 SLP216 T02220161KSAV2019-09-20T00:53:00Z32.12-81.222.216.160510.030.1712591021.6TRUEVFRMETAR14.02019-09-20 00:57:53 Q)k5       3PAWD 200053Z AUTO 14005KT 5SM -RA BR FEW016 BKN025 OVC034 11/10 A2964 RMK AO2 RAB02 SLP038 P0005 T01110100 TSNOPAWD2019-09-20T00:53:00Z60.12-149.4211.110.014055.029.6397631003.8TRUETRUETRUE-RA BRMVFR0.05METAR23.02019-09-20 00:57:53dP)+5     3PAYA 200053Z AUTO 00000KT 10SM BKN060 14/11 A2984 RMK AO2 SLP105 T01440111 TSNOPAYA2019-09-20T00:53:00Z59.52-139.6714.411.10010.029.8405511010.5TRUETRUETRUEVFRMETAR11.02019-09-20 00:57:53O)5      3KPBF 200053Z AUTO 19004KT 10SM -RA FEW049 BKN075 BKN090 24/22 A3000 RMK AO2 LTG DSNT SE RAB2356E19B29 TSE2357 SLP154 P0010 T02440217KPBF2019-09-20T00:53:00Z34.18-91.9324.421.7190410.030.01015.4TRUETRUE-RAVFR0.1METAR62.02019-09-20 00:57:53 ^9Y^uU)?5       3PAIL 200053Z AUTO 07003KT 10SM -RA OVC065 12/11 A2956 RMK AO2 SLP012 P0002 T01170106 TSNOPAIL2019-09-20T00:53:00Z59.75-154.9211.710.670310.029.560041001.2TRUETRUETRUE-RAVFR0.02METAR49.02019-09-20 00:57:53ZT)%5    3PALH 200053Z 16004KT 10SM SCT070 OVC090 14/09 A2961 RMK AO2 SLP027 T01440089PALH2019-09-20T00:53:00Z61.18-149.9714.48.9160410.029.6102371002.7TRUEVFRMETAR22.02019-09-20 00:57:53SS)5    3PAMC 200053Z 10004KT 10SM SCT080 09/03 A2961 RMK AO2 SLP030 T00890028PAMC2019-09-20T00:53:00Z62.97-155.628.92.8100410.029.6102371003.0TRUEVFRMETAR103.02019-09-20 00:57:53hR)35     3PAMR 200053Z AUTO 05003KT 10SM OVC090 15/07 A2960 RMK AO2 SLP023 T01500072 TSNO PNOPAMR2019-09-20T00:53:00Z61.22-149.8515.07.250310.029.6013771002.3TRUETRUETRUEVFRMETAR41.02019-09-20 00:57:53 X6DXfY)+5     3PAEG 200053Z AUTO 14005KT 10SM FEW095 15/06 A2960 RMK AO2 SLP026 T01500061 TSNOPAEG2019-09-20T00:53:00Z64.78-141.1515.06.1140510.029.6013771002.6TRUETRUETRUEVFRMETAR268.02019-09-20 00:57:53lX)75      3PAEN 200053Z 21007KT 10SM -RA OVC060 13/11 A2960 RMK AO2 RAB32 SLP025 P0000 T01280111PAEN2019-09-20T00:53:00Z60.57-151.2512.811.1210710.029.6013771002.5TRUE-RAVFR0.005METAR27.02019-09-20 00:57:53_W)35    3PAFA 200053Z VRB03KT 10SM BKN019 BKN034 OVC050 08/03 A2966 RMK AO2 SLP049 T00830033PAFA2019-09-20T00:53:00Z64.8-147.858.33.30310.029.6604331004.9TRUEMVFRMETAR132.02019-09-20 00:57:53_V)35    3PAHO 200053Z 00000KT 10SM BKN060 BKN070 OVC090 13/07 A2959 RMK AO2 SLP021 T01330072PAHO2019-09-20T00:53:00Z59.63-151.4713.37.20010.029.5895671002.1TRUEVFRMETAR28.02019-09-20 00:57:53 FFR])5    3PABR 200053Z 22008KT 10SM OVC018 04/01 A2961 RMK AO2 SLP028 T00440006PABR2019-09-20T00:53:00Z71.28-156.774.40.6220810.029.6102371002.8TRUEMVFRMETAR7.02019-09-20 00:57:53Y\)%5    3PABT 200053Z 00000KT 10SM FEW015 OVC025 05/01 A2966 RMK AO2 SLP056 T00500011PABT2019-09-20T00:53:00Z66.92-151.525.01.10010.029.6604331005.6TRUEMVFRMETAR195.02019-09-20 00:57:53e[)75    3PACD 200053Z 34008KT 10SM FEW018 SCT025 OVC090 12/08 A2952 RMK AO2 SLP996 T01220083 $PACD2019-09-20T00:53:00Z55.2-162.7212.28.3340810.029.518702999.6TRUETRUEVFRMETAR30.02019-09-20 00:57:53Z)5      3PACV 200053Z 14007KT 1 3/4SM R27/5000VP6000FT -RA BR FEW010 BKN016 OVC025 12/11 A2976 RMK AO2 RAB43 SLP077 P0002 T01220106PACV2019-09-20T00:53:00Z60.5-145.4712.210.614071.7529.7608261007.7TRUE-RA BRIFR0.02METAR12.02019-09-20 00:57:53 [%V[ua)E5    3KSDB 200053Z AUTO 33018KT 10SM CLR 15/04 A2996 RMK AO2 PK WND 33030/0009 SLP111 T01500044 $ KSDB2019-09-20T00:53:00Z34.75-118.7215.04.43301810.029.9586621011.1TRUETRUETRUEVFRMETAR1377.02019-09-20 00:57:53I`)5   3PTTP 200053Z 27004KT 15SM FEW020 33/25 A2984 RMK SLP105 T03280245PTTP2019-09-20T00:53:00Z6.97158.2232.824.5270415.029.8405511010.5VFRMETAR2.02019-09-20 00:57:53d_)+5     3PANN 200053Z AUTO 00000KT 10SM OVC025 09/03 A2964 RMK AO2 SLP045 T00890033 TSNOPANN2019-09-20T00:53:00Z64.55-149.088.93.30010.029.6397631004.5TRUETRUETRUEMVFRMETAR110.02019-09-20 00:57:53k^)=5     3PANC 200053Z 14010KT 10SM SCT070 OVC100 14/08 A2960 RMK AO2 RAE15 SLP023 P0000 T01440083PANC2019-09-20T00:53:00Z61.17-150.014.48.31401010.029.6013771002.3TRUEVFR0.005METAR38.02019-09-20 00:57:53 >:[Oe)5    3PAOR 200053Z VRB03KT 10SM CLR 17/02 A2962 RMK AO2 SLP036 T01670022PAOR2019-09-20T00:53:00Z62.97-141.9316.72.20310.029.6190951003.6TRUEVFRMETAR523.02019-09-20 00:57:53Yd)5    3KMWT 200053Z AUTO 00000KT 10SM CLR 24/22 A2996 RMK AO2 SLP136 T02440217 KMWT2019-09-20T00:53:00Z34.55-93.5824.421.70010.029.9586621013.6TRUETRUEVFRMETAR214.02019-09-20 00:57:53~c)_5     3KNIP 200053Z 05014KT 7SM BKN040 BKN055 BKN250 23/19 A3012 RMK AO2 RAE2357B31E47 SLP194 P0000 T02330194 $ KNIP2019-09-20T00:53:00Z30.22-81.6723.319.450147.030.1210631019.4TRUETRUEVFR0.005METAR7.02019-09-20 00:57:53UyV)5    3KCNO 200053Z 24014KT 10SM SCT050 23/14 A2981 RMK AO2 SLP092 T02330144KCNO2019-09-20T00:53:00Z33.98-117.6223.314.42401410.029.8110241009.2TRUEVFRMETAR207.02019-09-20 00:57:53c)#5   3KCNY 200053Z AUTO 22013G18KT 10SM CLR 29/M03 A2970 RMK AO2 SLP000 T02891033KCNY2019-09-20T00:53:00Z38.77-109.7528.9-3.3220131810.029.6988181000.0TRUETRUEVFRMETAR1390.02019-09-20 00:57:53c)%5    3KCOT 200053Z AUTO 16009KT 10SM FEW075 35/18 A2975 RMK AO2 SLP063 T03500183 $KCOT2019-09-20T00:53:00Z28.45-99.2235.018.3160910.029.7490161006.3TRUETRUETRUEVFRMETAR140.02019-09-20 00:57:53S)5    3KCPR 200053Z 22006KT 10SM CLR 24/M02 A2980 RMK AO2 SLP040 T02391022KCPR2019-09-20T00:53:00Z42.9-106.4723.9-2.2220610.029.7992131004.0TRUEVFRMETAR1621.02019-09-20 00:57:53 W19W\)%5    3KCLL 200053Z 14010KT 10SM FEW013 OVC020 25/23 A2987 RMK AO2 SLP110 T02500228KCLL2019-09-20T00:53:00Z30.58-96.3725.022.81401010.029.8700791011.0TRUEMVFRMETAR96.02019-09-20 00:57:53r)A5      3KCLM 200053Z AUTO 27003KT 9SM -RA BKN080 OVC095 14/13 A3007 RMK AO2 SLP184 P0002 T01440133KCLM2019-09-20T00:53:00Z48.12-123.514.413.327039.030.0708661018.4TRUETRUE-RAVFR0.02METAR85.02019-09-20 00:57:53P)5    3KCMI 200053Z 09005KT 10SM CLR 23/18 A3005 RMK AO2 SLP173 T02330178KCMI2019-09-20T00:53:00Z40.03-88.2723.317.890510.030.0501981017.3TRUEVFRMETAR228.02019-09-20 00:57:53s)?5   3KCNM 200053Z AUTO 17016G24KT 7SM SCT110 31/12 A2986 RMK AO2 LTG DSNT S SLP051 T03110122 $KCNM2019-09-20T00:53:00Z32.33-104.2531.112.217016247.029.8612211005.1TRUETRUETRUEVFRMETAR985.02019-09-20 00:57:53 +VqS)%5    3KMSY 200053Z 15007KT 10SM SCT030 BKN250 29/23 A3000 RMK AO2 SLP162 T02940228KMSY2019-09-20T00:53:00Z30.0-90.2529.422.8150710.030.01016.2TRUEVFRMETAR5.02019-09-20 00:57:53_)35    3KGNV 200053Z 03006KT 10SM BKN060 BKN070 BKN090 22/20 A3013 RMK AO2 SLP200 T02220200KGNV2019-09-20T00:53:00Z29.7-82.2822.220.030610.030.1299211020.0TRUEVFRMETAR45.02019-09-20 00:57:53O)5    3KCHO 200053Z 18003KT 10SM CLR 17/09 A3029 RMK AO2 SLP255 T01720089KCHO2019-09-20T00:53:00Z38.13-78.4517.28.9180310.030.289371025.5TRUEVFRMETAR192.02019-09-20 00:57:53O)5    3KCKB 200053Z 14006KT 10SM CLR 22/09 A3020 RMK AO2 SLP214 T02170089KCKB2019-09-20T00:53:00Z39.3-80.2221.78.9140610.030.2007871021.4TRUEVFRMETAR360.02019-09-20 00:57:53 \#D;\Y!)5    3KMCI 200053Z 15007KT 10SM FEW200 26/21 A2996 RMK AO2 SLP136 T02610211 $KMCI2019-09-20T00:53:00Z39.3-94.7326.121.1150710.029.9586621013.6TRUETRUEVFRMETAR320.02019-09-20 00:57:53 )i5   3KMCK 200053Z AUTO 15018G28KT 10SM CLR 29/17 A2985 RMK AO2 PK WND 16032/0027 LTG DSNT N AND NW SLP087 T02890172KMCK2019-09-20T00:53:00Z40.2-100.5828.917.2150182810.029.849411008.7TRUETRUEVFRMETAR782.02019-09-20 00:57:53Y)5    3KMCN 200053Z AUTO 07006KT 10SM CLR 21/12 A3016 RMK AO2 SLP209 T02060117KMCN2019-09-20T00:53:00Z32.68-83.6520.611.770610.030.1594491020.9TRUETRUEVFRMETAR109.02019-09-20 00:57:53W)5    3KMSS 200053Z AUTO 00000KT 10SM CLR 12/11 A3024 RMK AO2 SLP242 T01220111KMSS2019-09-20T00:53:00Z44.93-74.8512.211.10010.030.2391741024.2TRUETRUEVFRMETAR66.02019-09-20 00:57:53 ~!-V~R%)5    3KCLT 200052Z 06006KT 10SM FEW250 21/09 A3025 RMK AO2 SLP237 T02110094KCLT2019-09-20T00:52:00Z35.22-80.9521.19.460610.030.2509841023.7TRUEVFRMETAR220.02019-09-20 00:57:53Q$)5    3KMBS 200053Z 14003KT 10SM CLR 21/13 A3012 RMK AO2 SLP196 T02060133KMBS2019-09-20T00:53:00Z43.53-84.0820.613.3140310.030.1210631019.6TRUEVFRMETAR202.02019-09-20 00:57:53n#)E5    3KMCB 200053Z AUTO 09005KT 10SM BKN038 BKN047 28/22 A3001 RMK AO2 LTG DSNT W SLP158 T02780217KMCB2019-09-20T00:53:00Z31.18-90.4727.821.790510.030.0088581015.8TRUETRUEVFRMETAR124.02019-09-20 00:57:53Y")5    3KMCE 200053Z AUTO 35012KT 10SM CLR 25/07 A2986 RMK AO2 SLP111 T02500072KMCE2019-09-20T00:53:00Z37.28-120.525.07.23501210.029.8612211011.1TRUETRUEVFRMETAR47.02019-09-20 00:57:53 i?)(y5    3KXVG 200052Z AUTO 00000KT 10SM CLR 18/17 A3001 RMK AO2KXVG2019-09-20T00:52:00Z46.98-94.218.017.00010.030.008858TRUETRUEVFRMETAR407.02019-09-20 00:57:53N()5   3PTKK 200052Z VRB02KT 15SM FEW014 SCT280 30/27 A2980 RMK SLP094 T03020266PTKK2019-09-20T00:52:00Z7.47151.8530.226.60215.029.7992131009.4VFRMETAR2.02019-09-20 00:57:53.'(e5   3KBBG 200052Z 15005KT 10SM BKN250 25/19 A3002KBBG2019-09-20T00:52:00Z36.53-93.225.019.0150510.030.02067VFRMETAR397.02019-09-20 00:57:53]&)!5    3KCKV 200052Z AUTO 14004KT 10SM BKN060 26/20 A3005 RMK AO2 SLP169 T02560200KCKV2019-09-20T00:52:00Z36.62-87.4225.620.0140410.030.0501981016.9TRUETRUEVFRMETAR165.02019-09-20 00:57:53 9eX-)5    3PABA 200052Z 05005KT 10SM 02/M01 A2971 RMK AO2 SLP047 T00171011 FZRANO $PABA2019-09-20T00:52:00Z70.13-143.581.7-1.150510.029.710631004.7TRUETRUETRUEMETAR2.02019-09-20 00:57:53N,)5    3PASD 200052Z 01005KT 10SM FEW015 BKN024 BKN036 11/09 A2952 RMK AO2 $PASD2019-09-20T00:52:00Z55.33-160.511.09.010510.029.518702TRUETRUEMVFRMETAR7.02019-09-20 00:57:53X+)!5   3PAWN 200052Z AUTO 26010G15KT 10SM SCT027 BKN041 OVC048 08/01 A2963 RMK AO2PAWN2019-09-20T00:52:00Z67.57-162.988.01.0260101510.029.630905TRUETRUEVFRMETAR30.02019-09-20 00:57:53c*)15     3CYWE 200052Z AUTO 10008KT 9SM -RA OVC026 10/07 A2946 RMK SLP996 DENSITY ALT 1400FTCYWE2019-09-20T00:52:00Z64.18-114.0810.07.010089.029.459646999.6TRUE-RAMVFRSPECI371.02019-09-20 00:57:53 y>myn1)75    3KBAN 200052Z AUTO 30007KT 220V340 10SM BKN080 12/M02 A2999 RMK AO2 SLP117 T01171022 $KBAN2019-09-20T00:52:00Z38.35-119.5211.7-2.2300710.029.9911421011.7TRUETRUETRUEVFRMETAR2057.02019-09-20 00:57:53K0) 5   3KREO 200052Z AUTO 19003KT 10/06 A2999 RMK AO1 SLP150 T01000061KREO2019-09-20T00:52:00Z42.58-117.8710.06.1190329.9911421015.0TRUETRUEMETAR1235.02019-09-20 00:57:53Z/)5    3KCFV 200052Z AUTO 13006KT 10SM CLR 27/21 A2993 RMK AO2 SLP128 T02720206KCFV2019-09-20T00:52:00Z37.08-95.5727.220.6130610.029.9291341012.8TRUETRUEVFRMETAR225.02019-09-20 00:57:53\.)5    3KVTN 200052Z AUTO 13011KT 10SM CLR 27/20 A2984 RMK AO2 SLP088 T02720200KVTN2019-09-20T00:52:00Z42.87-100.5527.220.01301110.029.8405511008.8TRUETRUEVFRMETAR788.02019-09-20 00:57:53 SCSj5);5    3KNFW 200052Z 11008KT 10SM FEW025 OVC034 27/21 A2986 RMK AO2 SLP094 T02670206 VISNO N $ KNFW2019-09-20T00:52:00Z32.78-97.4326.720.6110810.029.8612211009.4TRUETRUEVFRMETAR198.02019-09-20 00:57:53V4)5    3KBML 200052Z AUTO 00000KT 10SM CLR 06/04 A3027 RMK AO2 SLP261 T00610044KBML2019-09-20T00:52:00Z44.58-71.186.14.40010.030.2687021026.1TRUETRUEVFRMETAR345.02019-09-20 00:57:53M3) 5   3KCZZ 200052Z AUTO 22013KT 21/12 A2984 RMK AO1 SLP083 T02110122 KCZZ2019-09-20T00:52:00Z32.63-116.4721.112.22201329.8405511008.3TRUETRUEMETAR807.02019-09-20 00:57:532)u5      3KNRB 200052Z 04016KT 6SM -RA SCT020 BKN040 OVC250 23/21 A3011 RMK AO2 PK WND 05032/0008 RAB42 SLP196 P0000 T02330206KNRB2019-09-20T00:52:00Z30.38-81.4223.320.640166.030.1092531019.6TRUE-RAVFR0.005METAR5.02019-09-20 00:57:53 J"AgJ9)5     3KABQ 200052Z 25013G25KT 10SM -RA BKN110 BKN160 BKN250 23/11 A3000 RMK AO2 WSHFT 2359 RAB46 TSB22E37 SLP086 P0000 T02330106 $KABQ2019-09-20T00:52:00Z35.05-106.6223.310.6250132510.030.01008.6TRUETRUE-RAVFR0.005METAR1618.02019-09-20 00:57:53T8)5    3KAFN 200052Z AUTO 00000KT 10SM CLR 08/06 A3028 RMK AO2 SLP265 T00830061KAFN2019-09-20T00:52:00Z42.8-72.08.36.10010.030.2805121026.5TRUETRUEVFRMETAR313.02019-09-20 00:57:53[7)5    3KALS 200052Z AUTO 21005KT 10SM CLR 19/02 A3007 RMK AO2 SLP120 T01890017KALS2019-09-20T00:52:00Z37.43-105.8718.91.7210510.030.0708661012.0TRUETRUEVFRMETAR2299.02019-09-20 00:57:53X6)'5    3KNHK 200052Z 00000KT 10SM FEW045 FEW080 14/11 A3030 RMK AO2 SLP259 T01440106 KNHK2019-09-20T00:52:00Z38.27-76.414.410.60010.030.3011821025.9TRUEVFRMETAR12.02019-09-20 00:57:53 +TsQ=)5    3KARR 200052Z 12003KT 10SM CLR 23/18 A3004 RMK AO2 SLP169 T02280178KARR2019-09-20T00:52:00Z41.77-88.4822.817.8120310.030.0413381016.9TRUEVFRMETAR215.02019-09-20 00:57:53[<)%5    3KATL 200052Z 08013KT 10SM FEW060 FEW250 23/12 A3019 RMK AO2 SLP214 T02330122KATL2019-09-20T00:52:00Z33.63-84.4523.312.2801310.030.1889761021.4TRUEVFRMETAR296.02019-09-20 00:57:53Q;)5     3KAQW 200052Z AUTO 00000KT 10SM CLR 08/ A3029 RMK AO2 SLP260 T0078 $KAQW2019-09-20T00:52:00Z42.7-73.177.80010.030.289371026.0TRUETRUETRUEVFRMETAR199.02019-09-20 00:57:53O:)5    3KABI 200052Z 08009KT 10SM CLR 31/18 A2985 RMK AO2 SLP081 T03060178KABI2019-09-20T00:52:00Z32.42-99.6830.617.880910.029.849411008.1TRUEVFRMETAR548.02019-09-20 00:57:53 .V{mA)?5    3KBLH 200052Z AUTO 21016KT 10SM CLR 35/03 A2963 RMK AO2 PK WND 23027/0031 SLP028 T03500028KBLH2019-09-20T00:52:00Z33.62-114.7235.02.82101610.029.6309051002.8TRUETRUEVFRMETAR119.02019-09-20 00:57:53U@)5    3KBLF 200052Z AUTO VRB04KT 10SM CLR 14/10 A3029 RMK AO2 SLP243 T01440100KBLF2019-09-20T00:52:00Z37.3-81.214.410.00410.030.289371024.3TRUETRUEVFRMETAR873.02019-09-20 00:57:53R?)5    3KBIS 200052Z 12011KT 10SM CLR 22/15 A2985 RMK AO2 SLP106 T02220150KBIS2019-09-20T00:52:00Z46.77-100.7522.215.01201110.029.849411010.6TRUEVFRMETAR505.02019-09-20 00:57:53L>)5    3KBDR 200052Z 00000KT 10SM CLR 14/07 A3028 RMK AO2 SLP253 T01390067KBDR2019-09-20T00:52:00Z41.17-73.1313.96.70010.030.2805121025.3TRUEVFRMETAR7.02019-09-20 00:57:53 ?jZE)5    3KCNU 200052Z AUTO 13005KT 10SM CLR 28/21 A2995 RMK AO2 SLP130 T02780211KCNU2019-09-20T00:52:00Z37.67-95.4827.821.1130510.029.9498021013.0TRUETRUEVFRMETAR297.02019-09-20 00:57:53OD)5    3KCID 200052Z 09005KT 10SM CLR 20/19 A3002 RMK AO2 SLP163 T02000194KCID2019-09-20T00:52:00Z41.88-91.7220.019.490510.030.020671016.3TRUEVFRMETAR264.02019-09-20 00:57:53XC)5    3KEST 200052Z AUTO 10004KT 10SM CLR 20/18 A2998 RMK AO2 SLP149 T02000183KEST2019-09-20T00:52:00Z43.4-94.7520.018.3100410.029.979331014.9TRUETRUEVFRMETAR401.02019-09-20 00:57:53]B)!5    3KBLU 200052Z AUTO 29006KT 10SM FEW029 12/05 A3005 RMK AO2 SLP139 T01220050KBLU2019-09-20T00:52:00Z39.28-120.712.25.0290610.030.0501981013.9TRUETRUEVFRMETAR1609.02019-09-20 00:57:53 {&Dl{kI)=5    3KDDC 200052Z AUTO 16013KT 7SM CLR 28/17 A2994 RMK AO2 PK WND 15027/2358 SLP108 T02780172KDDC2019-09-20T00:52:00Z37.77-99.9727.817.2160137.029.9409451010.8TRUETRUEVFRMETAR789.02019-09-20 00:57:53RH)5    3KDCA 200052Z 12007KT 10SM FEW250 19/09 A3030 RMK AO2 SLP261 T01890089KDCA2019-09-20T00:52:00Z38.85-77.0318.98.9120710.030.3011821026.1TRUEVFRMETAR18.02019-09-20 00:57:53\G)%5    3KCVG 200052Z 12010KT 10SM FEW065 FEW085 26/18 A3009 RMK AO2 SLP180 T02610183KCVG2019-09-20T00:52:00Z39.05-84.6726.118.31201010.030.0885831018.0TRUEVFRMETAR269.02019-09-20 00:57:53TF)5    3KCQX 200052Z AUTO 00000KT 10SM CLR 09/08 A3028 RMK AO2 SLP255 T00890078KCQX2019-09-20T00:52:00Z41.68-70.08.97.80010.030.2805121025.5TRUETRUEVFRMETAR19.02019-09-20 00:57:53 +KbXM)5    3KFIT 200052Z AUTO 35003KT 10SM CLR 09/06 A3027 RMK AO2 SLP253 T00890061KFIT2019-09-20T00:52:00Z42.55-71.758.96.1350310.030.2687021025.3TRUETRUEVFRMETAR103.02019-09-20 00:57:53cL)/5    3KGLS 200052Z AUTO 13019KT 10SM FEW006 BKN120 28/25 A2988 RMK AO2 SLP118 T02830250KGLS2019-09-20T00:52:00Z29.27-94.8728.325.01301910.029.8789371011.8TRUETRUEVFRMETAR6.02019-09-20 00:57:53ZK)5    3KDVN 200052Z AUTO 04003KT 8SM FEW110 22/20 A3005 RMK AO2 SLP166 T02170200KDVN2019-09-20T00:52:00Z41.62-90.5821.720.04038.030.0501981016.6TRUETRUEVFRMETAR230.02019-09-20 00:57:53OJ)5    3KDPA 200052Z 00000KT 10SM CLR 24/16 A3004 RMK AO2 SLP169 T02440156KDPA2019-09-20T00:52:00Z41.92-88.2524.415.60010.030.0413381016.9TRUEVFRMETAR231.02019-09-20 00:57:53Y88@HPX`hpx (08@HPX`hpx (08@HPX`hpx>BFJNQUY]aei>BFJNQUY]aeimquy}  !%)-159=AEIMQUY]aeiµmõqĵuŵyƵ}ǵȵɵ ʵ ˵̵͵εϵ!е%ѵ)ҵ,ӵ0Ե4յ8ֵ=׵BصGٵLڵQ۵Vܵ[ݵ`޵dߵh൛lᵛqⵛv㵛{䵛嵛浛 絛赛鵛굛뵛"쵛',1 $MvOQ)5    3KIAD 200052Z 15004KT 10SM CLR 17/04 A3030 RMK AO2 SLP259 T01670044KIAD2019-09-20T00:52:00Z38.93-77.4516.74.4150410.030.3011821025.9TRUEVFRMETAR93.02019-09-20 00:57:53QP)5    3KHUT 200052Z 13009KT 10SM CLR 27/19 A2991 RMK AO2 SLP107 T02720194KHUT2019-09-20T00:52:00Z38.07-97.8727.219.4130910.029.9114171010.7TRUEVFRMETAR467.02019-09-20 00:57:53QO)5    3KHRL 200052Z 15011KT 10SM CLR 29/23 A2981 RMK AO2 SLP095 T02940233KHRL2019-09-20T00:52:00Z26.23-97.6529.423.31501110.029.8110241009.5TRUEVFRMETAR10.02019-09-20 00:57:53VN)5    3KHIE 200052Z AUTO 00000KT 10SM CLR 06/04 A3027 RMK AO2 SLP261 T00560039KHIE2019-09-20T00:52:00Z44.37-71.555.63.90010.030.2687021026.1TRUETRUEVFRMETAR318.02019-09-20 00:57:53 BkQU)5    3KMFD 200052Z 15006KT 10SM CLR 22/14 A3016 RMK AO2 SLP207 T02170144KMFD2019-09-20T00:52:00Z40.82-82.5221.714.4150610.030.1594491020.7TRUEVFRMETAR395.02019-09-20 00:57:53QT)5    3KMHK 200052Z 16005KT 10SM CLR 27/21 A2992 RMK AO2 SLP121 T02720211KMHK2019-09-20T00:52:00Z39.13-96.6827.221.1160510.029.9202751012.1TRUEVFRMETAR317.02019-09-20 00:57:53VS)5    3KIJD 200052Z AUTO 03003KT 10SM CLR 11/09 A3029 RMK AO2 SLP257 T01060089KIJD2019-09-20T00:52:00Z41.75-72.1810.68.930310.030.289371025.7TRUETRUEVFRMETAR75.02019-09-20 00:57:53\R)5    3KIEN 200052Z AUTO 14013KT 10SM CLR 26/16 A2980 RMK AO2 SLP060 T02610156KIEN2019-09-20T00:52:00Z43.03-102.5226.115.61401310.029.7992131006.0TRUETRUEVFRMETAR998.02019-09-20 00:57:53 "KiXY)5    3KLWC 200052Z AUTO 12005KT 9SM CLR 26/22 A2994 RMK AO2 SLP132 T02610217KLWC2019-09-20T00:52:00Z39.02-95.2226.121.712059.029.9409451013.2TRUETRUEVFRMETAR253.02019-09-20 00:57:53\X)5    3KMBG 200052Z AUTO 13013KT 10SM CLR 23/18 A2982 RMK AO2 SLP092 T02330183KMBG2019-09-20T00:52:00Z45.55-100.4223.318.31301310.029.8198811009.2TRUETRUEVFRMETAR510.02019-09-20 00:57:53QW)5    3KMDH 200052Z 10004KT 10SM CLR 23/18 A3001 RMK AO2 SLP160 T02330178KMDH2019-09-20T00:52:00Z37.78-89.2523.317.8100410.030.0088581016.0TRUEVFRMETAR130.02019-09-20 00:57:53XV)5    3KMEB 200052Z AUTO 09005KT 10SM CLR 17/11 A3026 RMK AO2 SLP244 T01720111KMEB2019-09-20T00:52:00Z34.78-79.3717.211.190510.030.2598421024.4TRUETRUEVFRMETAR67.02019-09-20 00:57:53 Q<WQ])]5   3KMLF 200052Z AUTO 23020G28KT 10SM CLR 23/M08 A2977 RMK AO2 PK WND 23033/0027 WSHFT 0036 SLP029 T02331078KMLF2019-09-20T00:52:00Z38.42-113.0223.3-7.8230202810.029.7696861002.9TRUETRUEVFRMETAR1534.02019-09-20 00:57:53_\)35    3KMKE 200052Z 00000KT 10SM FEW160 SCT210 BKN250 22/17 A3007 RMK AO2 SLP178 T02170167KMKE2019-09-20T00:52:00Z42.95-87.921.716.70010.030.0708661017.8TRUEVFRMETAR206.02019-09-20 00:57:53\[)!5    3KIOW 200052Z AUTO 06003KT 10SM BKN100 24/20 A3003 RMK AO2 SLP165 T02390200KIOW2019-09-20T00:52:00Z41.63-91.5523.920.060310.030.0295281016.5TRUETRUEVFRMETAR198.02019-09-20 00:57:53\Z)5    3KISN 200052Z AUTO 12010KT 10SM CLR 24/14 A2976 RMK AO2 SLP075 T02390139KISN2019-09-20T00:52:00Z48.17-103.6323.913.91201010.029.7608261007.5TRUETRUEVFRMETAR579.02019-09-20 00:57:53 $BYSa)5    3KOMA 200052Z 12007KT 10SM SCT250 27/22 A2993 RMK AO2 SLP126 T02720217KOMA2019-09-20T00:52:00Z41.32-95.927.221.7120710.029.9291341012.6TRUEVFRMETAR312.02019-09-20 00:57:53c`)%5    3KOKB 200052Z AUTO 25007KT 10SM OVC020 21/15 A2982 RMK AO2 SLP098 T02110150 $KOKB2019-09-20T00:52:00Z33.22-117.3521.115.0250710.029.8198811009.8TRUETRUETRUEMVFRMETAR8.02019-09-20 00:57:53\_)!5    3KMWH 200052Z AUTO 24008KT 10SM FEW070 24/05 A2994 RMK AO2 SLP135 T02390050KMWH2019-09-20T00:52:00Z47.2-119.3223.95.0240810.029.9409451013.5TRUETRUEVFRMETAR362.02019-09-20 00:57:53V^)#5    3KMLI 200052Z 00000KT 9SM BKN080 BKN110 24/21 A3002 RMK AO2 SLP161 T02390211KMLI2019-09-20T00:52:00Z41.45-90.5223.921.1009.030.020671016.1TRUEVFRMETAR184.02019-09-20 00:57:53 BkRe)5    3KRAP 200052Z 13007KT 10SM CLR 22/14 A2980 RMK AO2 SLP078 T02170139KRAP2019-09-20T00:52:00Z44.05-103.0521.713.9130710.029.7992131007.8TRUEVFRMETAR965.02019-09-20 00:57:53Qd)5    3KSGF 200052Z 15004KT 10SM CLR 27/19 A2999 RMK AO2 SLP142 T02670189KSGF2019-09-20T00:52:00Z37.23-93.3826.718.9150410.029.9911421014.2TRUEVFRMETAR390.02019-09-20 00:57:53Qc)5    3KSPI 200052Z 11005KT 10SM CLR 26/20 A3004 RMK AO2 SLP166 T02560200KSPI2019-09-20T00:52:00Z39.85-89.6825.620.0110510.030.0413381016.6TRUEVFRMETAR181.02019-09-20 00:57:53ab)35    3KOKC 200052Z 14008KT 10SM FEW050 FEW200 SCT250 26/19 A2991 RMK AO2 SLP112 T02610189KOKC2019-09-20T00:52:00Z35.38-97.626.118.9140810.029.9114171011.2TRUEVFRMETAR390.02019-09-20 00:57:53 %OpVi)5    3KORE 200052Z AUTO 00000KT 10SM CLR 09/06 A3028 RMK AO2 SLP259 T00940061KORE2019-09-20T00:52:00Z42.57-72.289.46.10010.030.2805121025.9TRUETRUEVFRMETAR164.02019-09-20 00:57:53Yh)5    3KPPF 200052Z AUTO 15004KT 10SM CLR 27/21 A2996 RMK AO2 SLP134 T02720211KPPF2019-09-20T00:52:00Z37.33-95.527.221.1150410.029.9586621013.4TRUETRUEVFRMETAR274.02019-09-20 00:57:53Pg)5    3KPWK 200052Z 12003KT 10SM CLR 24/16 A3006 RMK AO2 SLP175 T02390161KPWK2019-09-20T00:52:00Z42.12-87.923.916.1120310.030.0590551017.5TRUEVFRMETAR203.02019-09-20 00:57:53Uf)5    3KPYM 200052Z AUTO 00000KT 10SM CLR 08/07 A3027 RMK AO2 SLP252 T00830072KPYM2019-09-20T00:52:00Z41.92-70.738.37.20010.030.2687021025.2TRUETRUEVFRMETAR43.02019-09-20 00:57:53 'P^m)35    3PATA 200052Z 00000KT 10SM FEW020 BKN026 BKN045 07/02 A2966 RMK AO2 SLP049 T00720022PATA2019-09-20T00:52:00Z65.17-152.17.22.20010.029.6604331004.9TRUEMVFRMETAR67.02019-09-20 00:57:53Hl) 5   3KCDJ 200052Z AUTO 00000KT 24/23 A2998 RMK AO1 SLP142 T02440233 KCDJ2019-09-20T00:52:00Z39.82-93.5824.423.30029.979331014.2TRUETRUEMETAR234.02019-09-20 00:57:53Qk)5    3KSUX 200052Z 10008KT 10SM CLR 24/21 A2992 RMK AO2 SLP125 T02440211KSUX2019-09-20T00:52:00Z42.38-96.3824.421.1100810.029.9202751012.5TRUEVFRMETAR338.02019-09-20 00:57:53Sj)5    3KSPS 200052Z 11007KT 10SM SCT035 26/21 A2987 RMK AO2 SLP104 T02560206KSPS2019-09-20T00:52:00Z33.98-98.525.620.6110710.029.8700791010.4TRUEVFRMETAR308.02019-09-20 00:57:53 8iaq)5    3KTRM 200052Z AUTO 29010KT 10SM CLR 34/03 A2960 RMK AO2 SLP026 T03440028 $KTRM2019-09-20T00:52:00Z33.63-116.1734.42.82901010.029.6013771002.6TRUETRUETRUEVFRMETAR-35.02019-09-20 00:57:53Mp) 5   3KN60 200052Z AUTO 13010KT 21/15 A2983 RMK AO1 SLP101 T02110150 KN602019-09-20T00:52:00Z47.65-101.4321.115.01301029.8287411010.1TRUETRUEMETAR582.02019-09-20 00:57:53Io) 5   3KP69 200052Z AUTO 00000KT 15/10 A2997 RMK AO1 SLP143 T01500100 KP692019-09-20T00:52:00Z46.15-115.615.010.00029.9704721014.3TRUETRUEMETAR480.02019-09-20 00:57:53Bn) 5   3PAPT 200052Z 14006KT 7SM BKN018 OVC030 09/08 A2954 RMK NO SPECI.PAPT2019-09-20T00:52:00Z62.1-152.729.08.014067.029.53937MVFRMETAR558.02019-09-20 00:57:53 %Hg5u(u5   3PTPN 200052Z 23005KT 15SM SCT018 BKN300 31/26 A2981 PTPN2019-09-20T00:52:00Z6.97158.2231.026.0230515.029.811024VFRMETAR2.02019-09-20 00:57:53[t)5    3KCQT 200052Z AUTO 26006KT 10SM CLR 23/15 A2981 RMK AO2 SLP092 T02330150 KCQT2019-09-20T00:52:00Z34.02-118.2823.315.0260610.029.8110241009.2TRUETRUEVFRMETAR56.02019-09-20 00:57:53Ws)5     3KTAN 200052Z AUTO 00000KT 2SM BR CLR 08/06 A3027 RMK AO2 SLP249 T00780061KTAN2019-09-20T00:52:00Z41.88-71.027.86.1002.030.2687021024.9TRUETRUEBRIFRMETAR7.02019-09-20 00:57:53Ur)5    3KTOL 200052Z 07004KT 10SM CLR 21/17 A3011 RMK AO2 SLP194 T02110167 $KTOL2019-09-20T00:52:00Z41.58-83.821.116.770410.030.1092531019.4TRUETRUEVFRMETAR210.02019-09-20 00:57:53 w 9Xw[y)5    3KLGU 200051Z AUTO 26006KT 10SM CLR 20/02 A2978 RMK AO2 SLP058 T02000017KLGU2019-09-20T00:51:00Z41.78-111.8520.01.7260610.029.7785431005.8TRUETRUEVFRMETAR1355.02019-09-20 00:57:53[x)!5    3KOCF 200051Z AUTO 02006KT 10SM SCT080 23/19 A3008 RMK AO2 SLP189 T02330194KOCF2019-09-20T00:51:00Z29.17-82.2223.319.420610.030.0797251018.9TRUETRUEVFRMETAR27.02019-09-20 00:57:53Mw)5    3KOXC 200051Z 00000KT 10SM CLR 11/07 A3029 RMK AO2 SLP272 T01110072KOXC2019-09-20T00:51:00Z41.47-73.1311.17.20010.030.289371027.2TRUEVFRMETAR222.02019-09-20 00:57:53nv)E5    3KTPL 200051Z AUTO 13009KT 10SM SCT040 SCT049 28/23 A2984 RMK AO2 WSHFT 0005 SLP093 T02830233KTPL2019-09-20T00:51:00Z31.13-97.428.323.3130910.029.8405511009.3TRUETRUEVFRMETAR208.02019-09-20 00:57:53 b/Rbj})75    3KGDP 200051Z AUTO 04017KT 10SM SCT110 23/11 A3005 RMK AO2 WSHFT 2359 SLP097 T02330106KGDP2019-09-20T00:51:00Z31.83-104.8223.310.6401710.030.0501981009.7TRUETRUEVFRMETAR1692.02019-09-20 00:57:53W|)5    3KBVE 200051Z AUTO 10005KT 10SM CLR 28/25 A3001 RMK AO2 SLP162 T02780250KBVE2019-09-20T00:51:00Z29.32-89.427.825.0100510.030.0088581016.2TRUETRUEVFRMETAR1.02019-09-20 00:57:53i{)35      3PAMB 200051Z AUTO 04008KT 10SM -RA SCT006 BKN014 OVC026 09/08 A2952 RMK AO2 P0002 $PAMB2019-09-20T00:51:00Z58.98-159.059.08.040810.029.518702TRUETRUETRUE-RAMVFR0.02METAR16.02019-09-20 00:57:53\z)!5    3PAMD 200051Z AUTO 14009KT 10SM FEW090 13/11 A2972 RMK AO2 SLP054 T01280111PAMD2019-09-20T00:51:00Z59.43-146.312.811.1140910.029.7194881005.4TRUETRUEVFRMETAR14.02019-09-20 00:57:53 1JzJ) 5   3KSNT 200051Z AUTO 35005KT 09/02 A2997 RMK AO1 SLP101 T00890017KSNT2019-09-20T00:51:00Z44.17-114.938.91.7350529.9704721010.1TRUETRUEMETAR1980.02019-09-20 00:57:53J)5     3KAQP 200051Z AUTO 00000KT 10SM CLR 22/17 A2995 RMK AO2 P0001KAQP2019-09-20T00:51:00Z45.22-96.022.017.00010.029.949802TRUETRUEVFR0.01METAR311.02019-09-20 00:57:53a)'5   3KATT 200051Z AUTO 12009G17KT 10SM FEW016 26/22 A2985 RMK AO2 SLP095 T02610222KATT2019-09-20T00:51:00Z30.32-97.7726.122.212091710.029.849411009.5TRUETRUEVFRMETAR201.02019-09-20 00:57:53I~) 5   3KP58 200051Z AUTO 16005KT 19/13 A3013 RMK AO1 SLP198 T01940133KP582019-09-20T00:51:00Z44.02-82.819.413.3160530.1299211019.8TRUETRUEMETAR179.02019-09-20 00:57:53 FqP)5    3KORF 200051Z 05009KT 10SM OVC041 19/12 A3030 RMK AO2 SLP258 T01940117KORF2019-09-20T00:51:00Z36.9-76.219.411.750910.030.3011821025.8TRUEVFRMETAR14.02019-09-20 00:57:53O)5    3KOXR 200051Z 26007KT 10SM CLR 21/15 A2981 RMK AO2 SLP095 T02110150KOXR2019-09-20T00:51:00Z34.2-119.221.115.0260710.029.8110241009.5TRUEVFRMETAR20.02019-09-20 00:57:53N)5    3KJFK 200051Z 19006KT 10SM CLR 15/11 A3029 RMK AO2 SLP257 T01500111KJFK2019-09-20T00:51:00Z40.63-73.7715.011.1190610.030.289371025.7TRUEVFRMETAR9.02019-09-20 00:57:53`)?5   3PTYA 200051Z VRB05KT 12SM SCT016CB SCT130 BKN300 30/25 A2989 RMK CB E-SE SLP123 T03010253PTYA2019-09-20T00:51:00Z9.48138.0830.125.30512.029.8907471012.3VFRMETAR17.02019-09-20 00:57:53 {0S{R )5    3KLGA 200051Z 18009KT 10SM FEW250 18/08 A3027 RMK AO2 SLP250 T01830078KLGA2019-09-20T00:51:00Z40.78-73.8818.37.8180910.030.2687021025.0TRUEVFRMETAR11.02019-09-20 00:57:53W)5    3KMPV 200051Z AUTO 17003KT 10SM CLR 08/07 A3030 RMK AO2 SLP271 T00830067KMPV2019-09-20T00:51:00Z44.2-72.578.36.7170310.030.3011821027.1TRUETRUEVFRMETAR343.02019-09-20 00:57:53b)'5   3KMYL 200051Z AUTO 35012G19KT 10SM FEW048 12/03 A2994 RMK AO2 SLP131 T01170028KMYL2019-09-20T00:51:00Z44.9-116.111.72.8350121910.029.9409451013.1TRUETRUEVFRMETAR1533.02019-09-20 00:57:53b)35    3KORD 200051Z 13007KT 10SM FEW120 SCT170 BKN250 23/16 A3004 RMK AO2 SLP170 T02330156KORD2019-09-20T00:51:00Z41.98-87.9323.315.6130710.030.0413381017.0TRUEVFRMETAR200.02019-09-20 00:57:53 BpO )5    3KPVD 200051Z 24003KT 10SM CLR 13/07 A3027 RMK AO2 SLP251 T01280072KPVD2019-09-20T00:51:00Z41.72-71.4312.87.2240310.030.2687021025.1TRUEVFRMETAR16.02019-09-20 00:57:53L )5    3KPWM 200051Z 00000KT 10SM CLR 12/07 A3026 RMK AO2 SLP246 T01220067KPWM2019-09-20T00:51:00Z43.65-70.312.26.70010.030.2598421024.6TRUEVFRMETAR15.02019-09-20 00:57:53Q )5    3KPIT 200051Z 09005KT 10SM SCT250 18/09 A3021 RMK AO2 SLP234 T01830094KPIT2019-09-20T00:51:00Z40.5-80.2718.39.490510.030.2096461023.4TRUEVFRMETAR357.02019-09-20 00:57:53a )+5   3KPHX 200051Z 26011G20KT 10SM FEW120 FEW250 36/07 A2964 RMK AO2 SLP016 T03610072KPHX2019-09-20T00:51:00Z33.43-112.0236.17.2260112010.029.6397631001.6TRUEVFRMETAR336.02019-09-20 00:57:53 X JrX)5    3KSAT 200051Z 08013KT 10SM BKN080 BKN250 34/19 A2979 RMK AO2 LTG DSNT E SLP067 TCU SHRA DSNT N-NE CB FRQ LTGIC DSNT E MOVG W T03440189KSAT2019-09-20T00:51:00Z29.53-98.4734.418.9801310.029.7903541006.7TRUEVFRMETAR243.02019-09-20 00:57:53R)5    3KRDU 200051Z 09006KT 10SM FEW250 17/10 A3028 RMK AO2 SLP251 T01720100KRDU2019-09-20T00:51:00Z35.9-78.7817.210.090610.030.2805121025.1TRUEVFRMETAR130.02019-09-20 00:57:53P)5    3KROW 200051Z 13007KT 10SM CLR 33/08 A2986 RMK AO2 SLP039 T03280083KROW2019-09-20T00:51:00Z33.3-104.532.88.3130710.029.8612211003.9TRUEVFRMETAR1112.02019-09-20 00:57:53Z)5    3KSAD 200051Z AUTO 27008KT 10SM CLR 33/03 A2979 RMK AO2 SLP034 T03330028KSAD2019-09-20T00:51:00Z32.85-109.6333.32.8270810.029.7903541003.4TRUETRUEVFRMETAR962.02019-09-20 00:57:53 'QwQ)5    3KSMO 200051Z 24008KT 10SM CLR 22/16 A2982 RMK AO2 SLP096 T02170156KSMO2019-09-20T00:51:00Z34.02-118.4521.715.6240810.029.8198811009.6TRUEVFRMETAR57.02019-09-20 00:57:53T)5    3KSLK 200051Z AUTO 00000KT 10SM CLR 08/06 A3026 RMK AO2 SLP257 T00780061KSLK2019-09-20T00:51:00Z44.4-74.27.86.10010.030.2598421025.7TRUETRUEVFRMETAR498.02019-09-20 00:57:53P)5    3KSJT 200051Z 08006KT 10SM CLR 34/14 A2981 RMK AO2 SLP068 T03390144KSJT2019-09-20T00:51:00Z31.37-100.533.914.480610.029.8110241006.8TRUEVFRMETAR576.02019-09-20 00:57:53S)5    3KSAN 200051Z 27007KT 10SM SCT020 21/15 A2985 RMK AO2 SLP107 T02110150KSAN2019-09-20T00:51:00Z32.73-117.1821.115.0270710.029.849411010.7TRUEVFRMETAR12.02019-09-20 00:57:53 o.Pgor);5      3KVCT 200051Z 15013KT 10SM -RA SCT023 29/25 A2983 RMK AO2 RAB33 SLP100 P0000 T02940250 $KVCT2019-09-20T00:51:00Z28.87-96.9329.425.01501310.029.8287411010.0TRUETRUE-RAVFR0.005METAR31.02019-09-20 00:57:53c)55    3KSMX 200051Z 29022KT 10SM CLR 18/12 A2987 RMK AO2 PK WND 32030/0043 SLP116 T01830122KSMX2019-09-20T00:51:00Z34.9-120.4518.312.22902210.029.8700791011.6TRUEVFRMETAR74.02019-09-20 00:57:53X)5    3KSTL 200051Z 09005KT 10SM FEW250 28/19 A3002 RMK AO2 SLP154 T02780189 $KSTL2019-09-20T00:51:00Z38.75-90.3727.818.990510.030.020671015.4TRUETRUEVFRMETAR171.02019-09-20 00:57:53L)5    3KTEB 200051Z 00000KT 10SM CLR 16/04 A3027 RMK AO2 SLP249 T01610044KTEB2019-09-20T00:51:00Z40.87-74.0516.14.40010.030.2687021024.9TRUEVFRMETAR7.02019-09-20 00:57:53 JpP)5    3KACT 200051Z 05007KT 10SM CLR 28/21 A2983 RMK AO2 SLP094 T02780211KACT2019-09-20T00:51:00Z31.62-97.2327.821.150710.029.8287411009.4TRUEVFRMETAR151.02019-09-20 00:57:53T)5    3KYNG 200051Z 11007KT 10SM SCT250 17/11 A3020 RMK AO2 SLP225 T01670106KYNG2019-09-20T00:51:00Z41.25-80.6716.710.6110710.030.2007871022.5TRUEVFRMETAR360.02019-09-20 00:57:53O)5    3KABE 200051Z 26003KT 10SM CLR 13/06 A3029 RMK AO2 SLP257 T01330061KABE2019-09-20T00:51:00Z40.65-75.4513.36.1260310.030.289371025.7TRUEVFRMETAR114.02019-09-20 00:57:53[)5    3KVNY 200051Z 14008KT 10SM FEW040 24/14 A2980 RMK AO2 SLP083 T02440144 $KVNY2019-09-20T00:51:00Z34.22-118.4824.414.4140810.029.7992131008.3TRUETRUEVFRMETAR245.02019-09-20 00:57:53 M!LgM!)5      3KBGD 200051Z AUTO 07012KT 10SM -RA FEW034 OVC090 19/17 A3003 RMK AO2 WSHFT 2341 LTG DSNT ALQDS TSE07 SLP136 P0007 T01940167KBGD2019-09-20T00:51:00Z35.7-101.419.416.7701210.030.0295281013.6TRUETRUE-RAVFR0.07METAR927.02019-09-20 00:57:53_ )!5    3KAVX 200051Z AUTO 25011KT 10SM BKN003 17/14 A2987 RMK AO2 SLP099 T01720144KAVX2019-09-20T00:51:00Z33.4-118.4217.214.42501110.029.8700791009.9TRUETRUELIFRMETAR482.02019-09-20 00:57:53O)5    3KALB 200051Z 00000KT 10SM FEW260 12/07 A3027 RMK AO2 SLP251 T01220072KALB2019-09-20T00:51:00Z42.75-73.812.27.20010.030.2687021025.1TRUEVFRMETAR92.02019-09-20 00:57:53Y)5    3KAHN 200051Z AUTO 06005KT 10SM CLR 20/13 A3021 RMK AO2 SLP225 T02000133KAHN2019-09-20T00:51:00Z33.95-83.3320.013.360510.030.2096461022.5TRUETRUEVFRMETAR244.02019-09-20 00:57:53 @.Y@Y%)5    3KBKW 200051Z AUTO 15008KT 10SM CLR 17/10 A3027 RMK AO2 SLP232 T01720100KBKW2019-09-20T00:51:00Z37.8-81.1217.210.0150810.030.2687021023.2TRUETRUEVFRMETAR764.02019-09-20 00:57:534$)95     3KBAZ 200051Z AUTO 09016G19KT 10SM VCTS BKN070 OVC100 26/24 A2980 RMK AO2 PK WND 14042/2357 LTG DSNT E-S RAE16 TSB2354E25 PRESRR SLP083 P0000 T02610239KBAZ2019-09-20T00:51:00Z29.72-98.0526.123.990161910.029.7992131008.3TRUETRUEVCTSVFR0.005METAR195.02019-09-20 00:57:53O#)5    3KBDL 200051Z 24003KT 10SM CLR 11/08 A3027 RMK AO2 SLP249 T01060078KBDL2019-09-20T00:51:00Z41.93-72.6810.67.8240310.030.2687021024.9TRUEVFRMETAR60.02019-09-20 00:57:53L")5    3KBED 200051Z 00000KT 10SM CLR 11/07 A3025 RMK AO2 SLP257 T01110072KBED2019-09-20T00:51:00Z42.47-71.311.17.20010.030.2509841025.7TRUEVFRMETAR50.02019-09-20 00:57:53  5\0)(e5   3KCLE 200051Z 14005KT 10SM SCT250 21/13 A3016KCLE2019-09-20T00:51:00Z41.42-81.8521.013.0140510.030.159449VFRMETAR233.02019-09-20 00:57:53S()5    3KCMH 200051Z 11007KT 10SM SCT060 24/14 A3012 RMK AO2 SLP193 T02440139KCMH2019-09-20T00:51:00Z40.0-82.8824.413.9110710.030.1210631019.3TRUEVFRMETAR247.02019-09-20 00:57:53Q')5    3KCAK 200051Z 14007KT 10SM CLR 22/12 A3018 RMK AO2 SLP214 T02170117KCAK2019-09-20T00:51:00Z40.92-81.4521.711.7140710.030.1801191021.4TRUEVFRMETAR377.02019-09-20 00:57:53n&)?5    3KBHK 200051Z AUTO 13016KT 10SM CLR 24/13 A2973 RMK AO2 PK WND 13026/2356 SLP053 T02440133KBHK2019-09-20T00:51:00Z46.35-104.2524.413.31301610.029.7312981005.3TRUETRUEVFRMETAR902.02019-09-20 00:57:53 9 9T,)5    3KCON 200051Z AUTO 00000KT 10SM CLR 09/07 A3025 RMK AO2 SLP248 T00940072KCON2019-09-20T00:51:00Z43.2-71.59.47.20010.030.2509841024.8TRUETRUEVFRMETAR103.02019-09-20 00:57:53+)k5   3KCRP 200051Z 15015G24KT 10SM FEW020 FEW150 FEW190 OVC250 30/25 A2981 RMK AO2 PK WND 15028/0010 SLP092 T03000250KCRP2019-09-20T00:51:00Z27.77-97.530.025.0150152410.029.8110241009.2TRUEOVC25000VFRMETAR14.02019-09-20 00:57:53Z*)5    3KCSG 200051Z AUTO 10006KT 10SM CLR 26/13 A3013 RMK AO2 SLP198 T02560133KCSG2019-09-20T00:51:00Z32.52-84.9525.613.3100610.030.1299211019.8TRUETRUEVFRMETAR135.02019-09-20 00:57:53 77^0)!5   3KJCT 200051Z AUTO 15008G17KT 10SM CLR 32/19 A2984 RMK AO2 SLP066 T03220189KJCT2019-09-20T00:51:00Z30.5-99.7732.218.915081710.029.8405511006.6TRUETRUEVFRMETAR522.02019-09-20 00:57:53W/)5    3KDAW 200051Z AUTO 00000KT 10SM CLR 11/07 A3025 RMK AO2 SLP241 T01110067KDAW2019-09-20T00:51:00Z43.28-70.9211.16.70010.030.2509841024.1TRUETRUEVFRMETAR100.02019-09-20 00:57:53W.)5    3KEKN 200051Z AUTO 00000KT 10SM CLR 14/09 A3026 RMK AO2 SLP248 T01390089KEKN2019-09-20T00:51:00Z38.88-79.8513.98.90010.030.2598421024.8TRUETRUEVFRMETAR603.02019-09-20 00:57:53%-)55    3KELP 200051Z 17006KT 10SM FEW090 FEW150 SCT250 32/11 A2987 RMK AO2 LTG DSNT NE AND E SLP037 CB DSNT NE-SE SW AND NW SHRA DSNT NE-SE AND NW T03220111KELP2019-09-20T00:51:00Z31.82-106.3832.211.1170610.029.8700791003.7TRUEVFRMETAR1197.02019-09-20 00:57:53 (2[D4)5    3KHSE 200051Z AUTO 04008G16KT 10SM CLR A3024 RMK AO2 SLP241KHSE2019-09-20T00:51:00Z35.23-75.624081610.030.2391741024.1TRUETRUEVFRMETAR3.02019-09-20 00:57:53Q3)5    3KHTS 200051Z 17004KT 10SM CLR 23/16 A3014 RMK AO2 SLP199 T02330156KHTS2019-09-20T00:51:00Z38.37-82.5523.315.6170410.030.1387791019.9TRUEVFRMETAR254.02019-09-20 00:57:53p2)A5    3KIGM 200051Z AUTO 22018KT 10SM CLR 27/M04 A2980 RMK AO2 PK WND 23027/2353 SLP024 T02721039KIGM2019-09-20T00:51:00Z35.25-113.9327.2-3.92201810.029.7992131002.4TRUETRUEVFRMETAR1032.02019-09-20 00:57:53R1)5    3KILG 200051Z 00000KT 10SM CLR 17/08 A3030 RMK AO2 SLP259 T01720083 $KILG2019-09-20T00:51:00Z39.67-75.617.28.30010.030.3011821025.9TRUETRUEVFRMETAR28.02019-09-20 00:57:53 ?h]8)!5    3KNYC 200051Z AUTO 00000KT 10SM CLR 17/07 A3030 RMK AO2 SLP251 T01670072 $ KNYC2019-09-20T00:51:00Z40.78-73.9716.77.20010.030.3011821025.1TRUETRUETRUEVFRMETAR11.02019-09-20 00:57:53Q7)5    3KERI 200051Z 15009KT 10SM CLR 19/10 A3019 RMK AO2 SLP221 T01940100KERI2019-09-20T00:51:00Z42.08-80.1819.410.0150910.030.1889761022.1TRUEVFRMETAR222.02019-09-20 00:57:53W6)5    3KEWR 200051Z 17005KT 10SM FEW250 18/08 A3027 RMK AO2 SLP251 T01780078 $KEWR2019-09-20T00:51:00Z40.68-74.1717.87.8170510.030.2687021025.1TRUETRUEVFRMETAR7.02019-09-20 00:57:53^5)!5    3KHDO 200051Z AUTO 14010KT 10SM FEW100 34/18 A2977 RMK AO2 SLP063 T03440178KHDO2019-09-20T00:51:00Z29.37-99.1734.417.81401010.029.7696861006.3TRUETRUEVFRMETAR282.02019-09-20 00:57:53 h1$h6=(q5    3LIME 200050Z VRB01KT 9999 BKN060 16/13 Q1025 NOSIGLIME2019-09-20T00:50:00Z45.679.6816.013.0016.2130.265747TRUEVFRMETAR237.02019-09-20 00:57:53.<(e5   3LIMF 200050Z 31007KT 9999 OVC055 17/14 Q1025LIMF2019-09-20T00:50:00Z45.227.6517.014.031076.2130.265747VFRMETAR287.02019-09-20 00:57:53&;(Y5   3LIMJ 200050Z 04010KT CAVOK 19/14 Q1021LIMJ2019-09-20T00:50:00Z44.428.8319.014.040106.2130.147638VFRMETAR3.02019-09-20 00:57:53':(Y5   3LIRA 200050Z 02003KT CAVOK 18/16 Q1018LIRA2019-09-20T00:50:00Z41.812.5818.016.02036.2130.059055VFRMETAR101.02019-09-20 00:57:53I9) 5   3KP59 200051Z AUTO 00000KT 17/16 A3005 RMK AO1 SLP169 T01720156 KP592019-09-20T00:51:00Z47.47-87.8817.215.60030.0501981016.9TRUETRUEMETAR190.02019-09-20 00:57:53 xC+x-B(e5    3EBOS 200050Z 08006KT CAVOK 10/08 Q1030 NOSIGEBOS2019-09-20T00:50:00Z51.22.8710.08.08066.2130.413385TRUEVFRMETAR5.02019-09-20 00:57:539A(u5     3ELLX 200050Z AUTO 04009KT 9999 NCD 09/02 Q1028 NOSIGELLX2019-09-20T00:50:00Z49.636.29.02.04096.2130.35433TRUETRUEVFRMETAR379.02019-09-20 00:57:53&@(Y5   3LIEA 200050Z 06007KT CAVOK 21/20 Q1017LIEA2019-09-20T00:50:00Z40.628.2721.020.06076.2130.029528VFRMETAR23.02019-09-20 00:57:53'?(Y5   3LIEO 200050Z 25002KT CAVOK 21/19 Q1018LIEO2019-09-20T00:50:00Z40.889.5221.019.025026.2130.059055VFRMETAR13.02019-09-20 00:57:537>(q5    3LIMC 200050Z 03003KT 9999 BKN060 17/15 Q1025 NOSIGLIMC2019-09-20T00:50:00Z45.628.7217.015.03036.2130.265747TRUEVFRMETAR211.02019-09-20 00:57:53 oJ2o=G)5   3LIPX 200050Z 05012KT 020V080 9999 SCT060 SCT090 18/05 Q1024LIPX2019-09-20T00:50:00Z45.3810.8718.05.050126.2130.236221VFRMETAR68.02019-09-20 00:57:53/F(e5    3LIPZ 200050Z 03010KT CAVOK 15/06 Q1025 NOSIGLIPZ2019-09-20T00:50:00Z45.512.3515.06.030106.2130.265747TRUEVFRMETAR6.02019-09-20 00:57:53+E(c5    3EBAW 200050Z AUTO VRB02KT CAVOK 09/07 Q1030EBAW2019-09-20T00:50:00Z51.24.479.07.0026.2130.413385TRUEVFRMETAR14.02019-09-20 00:57:53,D(e5    3EBBR 200050Z 09002KT CAVOK 08/06 Q1030 NOSIGEBBR2019-09-20T00:50:00Z50.94.58.06.09026.2130.413385TRUEVFRMETAR58.02019-09-20 00:57:530C(e5    3EBLG 200050Z 10004KT CAVOK 09/04 Q1029 NOSIGEBLG2019-09-20T00:50:00Z50.635.459.04.010046.2130.383858TRUEVFRMETAR178.02019-09-20 00:57:53 U?U,L(k5   3LICJ 200050Z 15004KT 9999 SCT025TCU 23/20 Q1016LICJ2019-09-20T00:50:00Z38.1713.0823.020.015046.2130.0VFRMETAR34.02019-09-20 00:57:532K(k5    3LIPE 200050Z 22004KT 4000 BR FEW045 15/14 Q1024LIPE2019-09-20T00:50:00Z44.5211.315.014.022042.4930.236221BRIFRMETAR42.02019-09-20 00:57:53AJ)5    3LIPH 200050Z AUTO 03006KT 360V060 9999 SCT067/// 16/06 Q1025LIPH2019-09-20T00:50:00Z45.6312.1716.06.03066.2130.265747TRUEVFRMETAR23.02019-09-20 00:57:533I(i5    3LIPQ 200050Z AUTO 08011KT 9999 NCD 15/04 Q1025LIPQ2019-09-20T00:50:00Z45.8213.4715.04.080116.2130.265747TRUEVFRMETAR12.02019-09-20 00:57:53;H(y5    3LIPR 200050Z AUTO 03008KT 360V070 9999 NCD 19/10 Q1023LIPR2019-09-20T00:50:00Z44.0212.6219.010.03086.2130.206694TRUEVFRMETAR13.02019-09-20 00:57:53 \W\=Q) 5   3ENSL 200050Z AUTO 27013KT 9999NDV BKN031/// 12/11 Q1027 W10/S3ENSL2019-09-20T00:50:00Z58.371.912.011.02701330.324802TRUEMETAR50.02019-09-20 00:57:53HP)5    3ENFB 200050Z AUTO 26026KT 9000NDV -SHRA OVC005/// 11/11 Q1022 W///S4ENFB2019-09-20T00:50:00Z61.21.8311.011.02602630.177166TRUE-SHRAMETAR10.02019-09-20 00:57:535O(u5   3LIBD 200050Z 02008KT 350V050 9999 SCT030 21/16 Q1018LIBD2019-09-20T00:50:00Z41.1216.7721.016.02086.2130.059055VFRMETAR44.02019-09-20 00:57:53)N(e5   3LIBR 200050Z 03018KT 9999 SCT020 20/17 Q1016LIBR2019-09-20T00:50:00Z40.6517.9520.017.030186.2130.0VFRMETAR10.02019-09-20 00:57:53#M(Y5   3LICC 200050Z 26003KT CAVOK 20/20 Q1016LICC2019-09-20T00:50:00Z37.4715.0520.020.026036.2130.0VFRMETAR17.02019-09-20 00:57:53 HGH7V(u5    3ESND 200050Z AUTO VRB02KT 9999 BKN078/// 02/00 Q1019ESND2019-09-20T00:50:00Z62.0514.422.00.0026.2130.088583TRUEVFRMETAR359.02019-09-20 00:57:53p>d) 5   3ENQC 200050Z AUTO 25021KT 9999NDV OVC006/// 11/10 Q1022 W///S4ENQC2019-09-20T00:50:00Z60.883.6211.010.02502130.177166TRUEMETAR20.02019-09-20 00:57:53Ic)5    3ENQA 200050Z AUTO 27018KT 0800NDV -SHRA OVC004/// 11/10 Q1023 W10/S4ENQA2019-09-20T00:50:00Z60.653.7211.010.02701830.206694TRUE-SHRAMETAR20.02019-09-20 00:57:53Hb)5   3ENHM 200050Z AUTO 27020KT 9999NDV SCT020/// OVC023/// 11/10 Q1024 W12/S3ENHM2019-09-20T00:50:00Z59.572.2311.010.02702030.236221TRUEMETAR10.02019-09-20 00:57:53)5   3PTSA 200050Z 30010KT 10SM SCT021 BKN130 BKN300 32/25 A2982 PTSA2019-09-20T00:50:00Z5.35162.9532.025.03001010.029.819881VFRMETAR3.02019-09-20 00:57:535(u5   3PALP 200050Z 17008KT 10SM BKN018 BKN150 04/M00 A2967PALP2019-09-20T00:50:00Z70.33-150.934.00.0170810.029.66929MVFRMETAR5.02019-09-20 00:57:53.(e5    3EDDM 200050Z VRB01KT CAVOK 02/01 Q1028 NOSIGEDDM2019-09-20T00:50:00Z48.3511.822.01.0016.2130.35433TRUEVFRMETAR447.02019-09-20 00:57:53 I>/(e5    3EDDB 200050Z 25003KT CAVOK 06/03 Q1028 NOSIGEDDB2019-09-20T00:50:00Z52.3813.536.03.025036.2130.35433TRUEVFRMETAR48.02019-09-20 00:57:53&(Y5   3EDDC 200050Z 22004KT CAVOK 05/03 Q1028EDDC2019-09-20T00:50:00Z51.1313.755.03.022046.2130.35433VFRMETAR226.02019-09-20 00:57:53'(Y5   3EDDE 200050Z 21007KT CAVOK 03/01 Q1029EDDE2019-09-20T00:50:00Z50.9810.973.01.021076.2130.383858VFRMETAR323.02019-09-20 00:57:53,(e5    3EDDG 200050Z VRB01KT CAVOK 05/04 Q1030 NOSIGEDDG2019-09-20T00:50:00Z52.137.75.04.0016.2130.413385TRUEVFRMETAR52.02019-09-20 00:57:531(e5    3EDDP 200050Z 28005KT CAVOK 07/04 Q1029 NOSIGEDDP2019-09-20T00:50:00Z51.4312.237.04.028056.2130.383858TRUEVFRMETAR149.02019-09-20 00:57:53 WY*"(_5   3KBAK 200050Z 00000KT 10SM SKC 21/17 A3007KBAK2019-09-20T00:50:00Z39.27-85.921.017.00010.030.070866VFRMETAR200.02019-09-20 00:57:53&!(Y5   3EDDN 200050Z 12002KT CAVOK 03/01 Q1029EDDN2019-09-20T00:50:00Z49.511.083.01.012026.2130.383858VFRMETAR312.02019-09-20 00:57:53# (Y5   3EDDS 200050Z VRB01KT CAVOK 05/01 Q1028EDDS2019-09-20T00:50:00Z48.679.225.01.0016.2130.35433VFRMETAR419.02019-09-20 00:57:53#(Y5   3EDDT 200050Z VRB01KT CAVOK 06/03 Q1028EDDT2019-09-20T00:50:00Z52.5713.326.03.0016.2130.35433VFRMETAR37.02019-09-20 00:57:53#(Y5   3EDDV 200050Z VRB01KT CAVOK 05/04 Q1030EDDV2019-09-20T00:50:00Z52.479.685.04.0016.2130.413385VFRMETAR54.02019-09-20 00:57:53 YJY?'(5    3EFLP 200050Z AUTO 31006KT 270V360 9999 BKN010 04/02 Q1014EFLP2019-09-20T00:50:00Z61.0728.134.02.031066.2129.940945TRUEMVFRMETAR106.02019-09-20 00:57:53/&(c5    3EFMI 200050Z AUTO 29003KT CAVOK 01/01 Q1015EFMI2019-09-20T00:50:00Z61.6827.21.01.029036.2129.970472TRUEVFRMETAR138.02019-09-20 00:57:53<%({5    3EFJY 200050Z AUTO VRB01KT 8000 NCD M03/M03 Q1014 REFZUPEFJY2019-09-20T00:50:00Z62.425.68-3.0-3.0014.9729.940945TRUEMVFRMETAR145.02019-09-20 00:57:53/$(c5    3EFKU 200050Z AUTO 25005KT CAVOK 02/00 Q1013EFKU2019-09-20T00:50:00Z63.0227.82.00.025056.2129.911417TRUEVFRMETAR102.02019-09-20 00:57:530#(e5    3EFKK 200050Z AUTO 25005KT CAVOK 02/M00 Q1014EFKK2019-09-20T00:50:00Z63.7223.132.00.025056.2129.940945TRUEVFRMETAR25.02019-09-20 00:57:53 RK{R8,(s5    3EFUT 200050Z AUTO 31005KT 280V340 CAVOK 02/01 Q1015EFUT2019-09-20T00:50:00Z60.8826.922.01.031056.2129.970472TRUEVFRMETAR100.02019-09-20 00:57:530+(g5    3EFSI 200050Z AUTO 00000KT CAVOK M03/M03 Q1015EFSI2019-09-20T00:50:00Z62.722.83-3.0-3.0006.2129.970472TRUEVFRMETAR91.02019-09-20 00:57:53/*(c5    3EFSA 200050Z AUTO 29004KT CAVOK 01/01 Q1013EFSA2019-09-20T00:50:00Z61.9528.931.01.029046.2129.911417TRUEVFRMETAR95.02019-09-20 00:57:53J))5    3EFPO 200050Z AUTO 18003KT 130V230 9999 SCT053/// SCT067/// 04/02 Q1017EFPO2019-09-20T00:50:00Z61.4721.84.02.018036.2130.029528TRUEVFRMETAR17.02019-09-20 00:57:53/((c5    3EFJO 200050Z AUTO 29006KT CAVOK 01/01 Q1012EFJO2019-09-20T00:50:00Z62.6729.621.01.029066.2129.88189TRUEVFRMETAR117.02019-09-20 00:57:53 %2|%Z1)+5   3NSTU 200050Z 15008KT 12SM FEW025 SCT040 BKN140 29/20 A2988 RMK SLP119 T02860201NSTU2019-09-20T00:50:00Z-14.33-170.7228.620.1150812.029.8789371011.9VFRMETAR3.02019-09-20 00:57:5390(u5    3EFKT 200050Z AUTO 29005KT 240V330 CAVOK 02/M02 Q1009EFKT2019-09-20T00:50:00Z67.724.852.0-2.029056.2129.793306TRUEVFRMETAR643.02019-09-20 00:57:532/(g5    3EFKS 200050Z AUTO 27006KT CAVOK M00/M01 Q1008EFKS2019-09-20T00:50:00Z66.029.230.0-1.027066.2129.763779TRUEVFRMETAR263.02019-09-20 00:57:530.(c5    3EFKI 200050Z AUTO 30009KT CAVOK 04/01 Q1011EFKI2019-09-20T00:50:00Z64.2727.674.01.030096.2129.852362TRUEVFRMETAR136.02019-09-20 00:57:53H-)5    3EFKE 200050Z AUTO 02003KT 320V070 9999 VCSH //////CB M02/M03 Q1012EFKE2019-09-20T00:50:00Z65.7724.57-2.0-3.02036.2129.88189TRUEVCSHMETAR15.02019-09-20 00:57:53 OM O46(5   3LGIO 200050Z AUTO /////KT //// // ////// 16/16 Q1017 RERALGIO2019-09-20T00:50:00Z39.720.8216.016.030.029528TRUEMETAR476.02019-09-20 00:57:53G5) 5    3LGPZ 200050Z 06004KT 8000 -TSRA FEW025CB BKN070 18/17 Q1015 RERALGPZ2019-09-20T00:50:00Z38.9220.7718.017.06044.9729.970472-TSRAMVFRMETAR4.02019-09-20 00:57:53>4)5    3LGRX 200050Z 00000KT 9999 -RA FEW018TCU BKN080 21/19 Q1015LGRX2019-09-20T00:50:00Z38.1721.4221.019.0006.2129.970472-RAVFRMETAR15.02019-09-20 00:57:53-3(e5   3LGSR 200050Z 28007KT 9999 FEW020 22/19 Q1014LGSR2019-09-20T00:50:00Z36.425.4822.019.028076.2129.940945VFRMETAR40.02019-09-20 00:57:53-2(o5   3EEKE 200050Z AUTO 34006KT 9999NDV NCD 04/02 Q1019EEKE2019-09-20T00:50:00Z58.2322.524.02.0340630.088583TRUEMETAR4.02019-09-20 00:57:53 uN&u+;(_5   3KESN 200050Z 14003KT 10SM SKC 17/11 A3035KESN2019-09-20T00:50:00Z38.8-76.0717.011.0140310.030.351377VFRMETAR22.02019-09-20 00:57:539:(5   3ESUP 200050Z AUTO 23007KT //// R11///// NCD M02/M04 Q1011ESUP2019-09-20T00:50:00Z67.2523.07-2.0-4.0230729.852362TRUEMETAR165.02019-09-20 00:57:53-9(e5   3KHSA 200050Z 10006KT 10SM SCT030 27/22 A3002KHSA2019-09-20T00:50:00Z30.37-89.4527.022.0100610.030.02067VFRMETAR7.02019-09-20 00:57:5308(e5    3LIRN 200050Z 06005KT CAVOK 20/15 Q1018 NOSIGLIRN2019-09-20T00:50:00Z40.8814.320.015.06056.2130.059055TRUEVFRMETAR72.02019-09-20 00:57:53,7(e5   3LGEL 200050Z 00000KT 9999 FEW070 21/18 Q1013LGEL2019-09-20T00:50:00Z38.0723.5521.018.0006.2129.911417VFRMETAR31.02019-09-20 00:57:53 <71@(i5    3EGPF 200050Z AUTO 22003KT 7000 NCD 06/06 Q1028EGPF2019-09-20T00:50:00Z55.87-4.426.06.022034.3530.35433TRUEMVFRMETAR8.02019-09-20 00:57:53%?(Y5   3EGPH 200050Z 25004KT CAVOK 08/08 Q1028EGPH2019-09-20T00:50:00Z55.95-3.358.08.025046.2130.35433VFRMETAR41.02019-09-20 00:57:53(>(e5   3EGPK 200050Z 00000KT 9999 FEW030 09/08 Q1028EGPK2019-09-20T00:50:00Z55.5-4.579.08.0006.2130.35433VFRMETAR20.02019-09-20 00:57:53&=(Y5   3EGBB 200050Z 15002KT CAVOK 09/08 Q1029EGBB2019-09-20T00:50:00Z52.47-1.759.08.015026.2130.383858VFRMETAR99.02019-09-20 00:57:53><)5   3KGPM 200050Z 07006KT 10SM BKN020 BKN026 OVC031 25/21 A2987KGPM2019-09-20T00:50:00Z32.7-97.0525.021.070610.029.870079MVFRMETAR180.02019-09-20 00:57:53 UC/E(i5    3EGSH 200050Z AUTO 00000KT 9999 NCD 09/09 Q1031EGSH2019-09-20T00:50:00Z52.681.289.09.0006.2130.442913TRUEVFRMETAR36.02019-09-20 00:57:53%D(Y5   3EGNS 200050Z 02007KT CAVOK 10/08 Q1028EGNS2019-09-20T00:50:00Z54.08-4.6310.08.02076.2130.35433VFRMETAR17.02019-09-20 00:57:53(C(e5   3EGMC 200050Z 00000KT 9999 SCT022 08/07 Q1030EGMC2019-09-20T00:50:00Z51.570.78.07.0006.2130.413385VFRMETAR15.02019-09-20 00:57:533B(i5    3EGCC 200050Z AUTO 11003KT 9999 NCD 10/09 Q1029EGCC2019-09-20T00:50:00Z53.35-2.2710.09.011036.2130.383858TRUEVFRMETAR78.02019-09-20 00:57:53%A(Y5   3EGKK 200050Z 06002KT CAVOK 09/09 Q1029EGKK2019-09-20T00:50:00Z51.13-0.179.09.06026.2130.383858VFRMETAR62.02019-09-20 00:57:53 T.'J(Y5   3EGNX 200050Z 16004KT CAVOK 12/09 Q1029EGNX2019-09-20T00:50:00Z52.82-1.3212.09.016046.2130.383858VFRMETAR94.02019-09-20 00:57:534I(i5    3EGGD 200050Z AUTO 10006KT 9999 NCD 12/10 Q1028EGGD2019-09-20T00:50:00Z51.37-2.7212.010.010066.2130.35433TRUEVFRMETAR189.02019-09-20 00:57:53&H(Y5   3EGNT 200050Z 24004KT CAVOK 10/10 Q1028EGNT2019-09-20T00:50:00Z55.02-1.710.010.024046.2130.35433VFRMETAR81.02019-09-20 00:57:53:G(u5    3EGPB 200050Z AUTO 28013KT 9999 OVC014/// 12/10 Q1025EGPB2019-09-20T00:50:00Z59.87-1.312.010.0280136.2130.265747TRUEMVFRMETAR5.02019-09-20 00:57:53&F(Y5   3EGCN 200050Z 20003KT CAVOK 10/09 Q1030EGCN2019-09-20T00:50:00Z53.48-1.010.09.020036.2130.413385VFRMETAR17.02019-09-20 00:57:53 fDf2O(i5    3EGAC 200050Z AUTO 19003KT 9999 NCD 12/11 Q1028EGAC2019-09-20T00:50:00Z54.62-5.8712.011.019036.2130.35433TRUEVFRMETAR5.02019-09-20 00:57:532N(i5    3EGFF 200050Z AUTO 09006KT 9999 NCD 13/12 Q1028EGFF2019-09-20T00:50:00Z51.38-3.3513.012.09066.2130.35433TRUEVFRMETAR67.02019-09-20 00:57:533M(i5    3EGGW 200050Z AUTO 13003KT 9999 NCD 09/08 Q1030EGGW2019-09-20T00:50:00Z51.87-0.379.08.013036.2130.413385TRUEVFRMETAR160.02019-09-20 00:57:53/L(i5    3EGLC 200050Z AUTO VRB02KT 9999 NCD 13/11 Q1030EGLC2019-09-20T00:50:00Z51.50.0513.011.0026.2130.413385TRUEVFRMETAR5.02019-09-20 00:57:536K(q5    3EGNM 200050Z 25005KT 9999 4500E BR NSC 11/09 Q1029EGNM2019-09-20T00:50:00Z53.87-1.6311.09.025056.2130.383858BRVFRMETAR208.02019-09-20 00:57:53 |U5|3T(i5    3EGMD 200050Z AUTO 11013KT 9999 NCD 14/11 Q1030EGMD2019-09-20T00:50:00Z50.950.9214.011.0110136.2130.413385TRUEVFRMETAR3.02019-09-20 00:57:53.S(e5   3EGJB 200050Z 09018KT 9999 FEW015 15/10 Q1025EGJB2019-09-20T00:50:00Z49.42-2.615.010.090186.2130.265747VFRMETAR102.02019-09-20 00:57:533R(i5    3EGJJ 200050Z AUTO 10020KT 9999 NCD 15/09 Q1025EGJJ2019-09-20T00:50:00Z49.22-2.215.09.0100206.2130.265747TRUEVFRMETAR84.02019-09-20 00:57:53-Q(i5   3EGTE 200050Z 07004KT 020V110 CAVOK 09/09 Q1027EGTE2019-09-20T00:50:00Z50.72-3.429.09.07046.2130.324802VFRMETAR30.02019-09-20 00:57:53%P(Y5   3EGAA 200050Z 10004KT CAVOK 09/07 Q1028EGAA2019-09-20T00:50:00Z54.63-6.229.07.010046.2130.35433VFRMETAR81.02019-09-20 00:57:53 9H93Y(i5    3EGPL 200050Z AUTO 16006KT 9999 NCD 11/10 Q1026EGPL2019-09-20T00:50:00Z57.47-7.3711.010.016066.2130.295275TRUEVFRMETAR6.02019-09-20 00:57:539X(u5    3EGPA 200050Z AUTO 19004KT 9999 FEW011/// 10/09 Q1026EGPA2019-09-20T00:50:00Z58.95-2.8810.09.019046.2130.295275TRUEVFRMETAR21.02019-09-20 00:57:53WW)+5    3MSLP 200050Z 23004KT 9999 FEW017 FEW037CB 27/26 Q1008 A2977 NOSIG RMK CB N NE EMSLP2019-09-20T00:50:00Z13.43-89.0527.026.023046.2129.763779TRUEVFRMETAR25.02019-09-20 00:57:534V(q5   3MSSS 200050Z 18007KT 9999 FEW013 25/23 Q1012 A2989MSSS2019-09-20T00:50:00Z13.7-89.1225.023.018076.2129.88189VFRMETAR616.02019-09-20 00:57:532U(i5    3EGLF 200050Z AUTO 21002KT 9999 NCD 07/06 Q1029EGLF2019-09-20T00:50:00Z51.28-0.777.06.021026.2130.383858TRUEVFRMETAR65.02019-09-20 00:57:53 Y?Y4^(s5   3LGBL 200050Z 30005KT 9999 FEW030 SCT080 19/18 Q1015LGBL2019-09-20T00:50:00Z39.2222.819.018.030056.2129.970472VFRMETAR26.02019-09-20 00:57:531](i5    3EGPE 200050Z AUTO 22006KT 9999 NCD 08/08 Q1027EGPE2019-09-20T00:50:00Z57.52-4.038.08.022066.2130.324802TRUEVFRMETAR9.02019-09-20 00:57:535\(i5    3EGNJ 200050Z AUTO 20010KT 9999 NCD 12/10 Q1029EGNJ2019-09-20T00:50:00Z53.57-0.3512.010.0200106.2130.383858TRUEVFRMETAR31.02019-09-20 00:57:534[(i5    3EGPO 200050Z AUTO 20007KT 9999 NCD 11/10 Q1025EGPO2019-09-20T00:50:00Z58.22-6.3211.010.020076.2130.265747TRUEVFRMETAR13.02019-09-20 00:57:53;Z(u5    3EGPM 200050Z AUTO 25015KT 9999 BKN013/// 12/10 Q1024EGPM2019-09-20T00:50:00Z60.42-1.312.010.0250156.2130.236221TRUEMVFRMETAR22.02019-09-20 00:57:53 DC|DGc)5    3LGKZ 200050Z AUTO 33013KT 310V010 //// -RA ////// 12/10 Q1019 RE//LGKZ2019-09-20T00:50:00Z40.2821.8312.010.03301330.088583TRUE-RAMETAR628.02019-09-20 00:57:53)b(Y5   3LGMK 200050Z 31004KT CAVOK 20/13 Q1014LGMK2019-09-20T00:50:00Z37.4325.3520.013.031046.2129.940945VFRMETAR123.02019-09-20 00:57:536a(5   3LGPA 200050Z AUTO 03004KT //// // ////// 20/16 Q1014 RE//LGPA2019-09-20T00:50:00Z37.025.1320.016.030429.940945TRUEMETAR36.02019-09-20 00:57:53A`)5   3LGSO 200050Z AUTO 26004KT 210V270 //// // ////// 21/16 Q1014 RE//LGSO2019-09-20T00:50:00Z37.4224.9521.016.0260429.940945TRUEMETAR72.02019-09-20 00:57:537_(5   3LGSY 200050Z AUTO 04006KT //// // ////// 22/18 Q1014 RE//LGSY2019-09-20T00:50:00Z38.9724.4822.018.040629.940945TRUEMETAR15.02019-09-20 00:57:53 ]<r ](h(Y5   3LGKO 200050Z 31005KT CAVOK 20/19 Q1013LGKO2019-09-20T00:50:00Z36.827.0820.019.031056.2129.911417VFRMETAR125.02019-09-20 00:57:53,g(e5   3LGLM 200050Z 05009KT 9999 FEW020 21/17 Q1014LGLM2019-09-20T00:50:00Z39.9225.2321.017.05096.2129.940945VFRMETAR5.02019-09-20 00:57:53/f(e5   3LGSA 200050Z 29004KT 9999 FEW018 20/19 Q1014LGSA2019-09-20T00:50:00Z35.5324.1320.019.029046.2129.940945VFRMETAR135.02019-09-20 00:57:53De)5    3LGTS 200050Z 35011KT 9999 FEW020TCU BKN030 18/12 Q1017 NOSIGLGTS2019-09-20T00:50:00Z40.5222.9718.012.0350116.2130.029528TRUEMVFRMETAR7.02019-09-20 00:57:53>d)5    3LGKP 200050Z AUTO 27012KT //// -RA ////// 22/20 Q1013 RE//LGKP2019-09-20T00:50:00Z35.4227.1522.020.02701229.911417TRUE-RAMETAR20.02019-09-20 00:57:53 IE I;m({5    3EDAC 200050Z AUTO 16003KT 9999 // FEW240/// 05/03 Q1029EDAC2019-09-20T00:50:00Z50.9812.55.03.016036.2130.383858TRUEVFRMETAR195.02019-09-20 00:57:53?l(y5     3EGPC 200050Z AUTO 18002KT 1100 BR NCD 11/11 Q1026 REDZEGPC2019-09-20T00:50:00Z58.45-3.0711.011.018020.6830.295275TRUEBRLIFRMETAR39.02019-09-20 00:57:53,k(e5   3EETU 200050Z 28006KT 9999 SCT040 05/04 Q1015EETU2019-09-20T00:50:00Z58.3226.685.04.028066.2129.970472VFRMETAR67.02019-09-20 00:57:53>j)5    3LGAD 200050Z 00000KT 9999 -DZ FEW020TCU BKN080 21/19 Q1015LGAD2019-09-20T00:50:00Z37.9221.2721.019.0006.2129.970472-DZVFRMETAR12.02019-09-20 00:57:535i(5   3LGKL 200050Z AUTO VRB01KT //// // ////// 18/16 Q1015 RE//LGKL2019-09-20T00:50:00Z37.0722.0218.016.00129.970472TRUEMETAR8.02019-09-20 00:57:53 fIf0r(e5    3LGAV 200050Z VRB01KT CAVOK 19/16 Q1015 NOSIGLGAV2019-09-20T00:50:00Z37.9323.9519.016.0016.2129.970472TRUEVFRMETAR94.02019-09-20 00:57:53-q(i5   3EDFH 200050Z 08006KT 040V130 CAVOK 06/01 Q1029EDFH2019-09-20T00:50:00Z49.957.276.01.08066.2130.383858VFRMETAR498.02019-09-20 00:57:53:p({5    3EDHI 200050Z AUTO 24005KT 9999 // FEW080/// 07/06 Q1029EDHI2019-09-20T00:50:00Z53.539.837.06.024056.2130.383858TRUEVFRMETAR13.02019-09-20 00:57:534o(o5    3EDMO 200050Z AUTO 05001KT 9999 // NCD 01/00 Q1028EDMO2019-09-20T00:50:00Z48.0711.271.00.05016.2130.35433TRUEVFRMETAR600.02019-09-20 00:57:531n(o5    3EDLN 200050Z AUTO 00000KT 9999 // NCD 04/04 Q1030EDLN2019-09-20T00:50:00Z51.236.54.04.0006.2130.413385TRUEVFRMETAR38.02019-09-20 00:57:53 ^T^0w(e5    3EGVN 200050Z 06003KT CAVOK 10/08 Q1029 NOSIGEGVN2019-09-20T00:50:00Z51.77-1.5810.08.06036.2130.383858TRUEVFRMETAR88.02019-09-20 00:57:53/v(e5    3LGRP 200050Z 21009KT CAVOK 22/16 Q1012 NOSIGLGRP2019-09-20T00:50:00Z36.428.0822.016.021096.2129.88189TRUEVFRMETAR5.02019-09-20 00:57:53Gu)5    3LGKR 200050Z 00000KT 9999 SCT018TCU SCT025 BKN070 20/17 Q1014 NOSIGLGKR2019-09-20T00:50:00Z39.6219.9220.017.0006.2129.940945TRUEVFRMETAR2.02019-09-20 00:57:538t(q5    3LGIR 200050Z 16005KT 9999 FEW020 20/18 Q1014 NOSIGLGIR2019-09-20T00:50:00Z35.3225.1720.018.016056.2129.940945TRUEVFRMETAR39.02019-09-20 00:57:53&s(Y5   3EGGP 200050Z VRB01KT CAVOK 12/12 Q1029EGGP2019-09-20T00:50:00Z53.32-2.8512.012.0016.2130.383858VFRMETAR26.02019-09-20 00:57:53 X>X5|(o5    3EDMA 200050Z AUTO 36002KT 9999 // NCD 03/01 Q1028EDMA2019-09-20T00:50:00Z48.4210.923.01.036026.2130.35433TRUEVFRMETAR463.02019-09-20 00:57:534{(o5    3EDNY 200050Z AUTO 01009KT 9999 // NCD 08/02 Q1026EDNY2019-09-20T00:50:00Z47.679.528.02.01096.2130.295275TRUEVFRMETAR424.02019-09-20 00:57:534z(o5    3EDSB 200050Z AUTO 02008KT 9999 // NCD 06/02 Q1027EDSB2019-09-20T00:50:00Z48.788.086.02.02086.2130.324802TRUEVFRMETAR124.02019-09-20 00:57:531y(i5    3EGSS 200050Z AUTO 05001KT 9999 NCD 09/09 Q1030EGSS2019-09-20T00:50:00Z51.880.229.09.05016.2130.413385TRUEVFRMETAR106.02019-09-20 00:57:53(5    3VIJU 200030Z VRB02KT 6000 FEW025 SCT090 24/23 Q1012 NOSIGVIJU2019-09-20T00:30:00Z32.6874.8324.023.0023.7329.88189TRUEMVFRMETAR314.02019-09-20 00:57:530(q5     3VILH 200030Z VRB01KT 6000 FEW150 06/-8 Q1028 NOSIGVILH2019-09-20T00:30:00Z34.1377.55013.7330.35433TRUEMVFRMETAR3256.02019-09-20 00:57:53 D)c5       3PAWD 200043Z AUTO 17005KT 2 1/2SM RA BR FEW016 BKN027 OVC036 12/10 A2965 RMK AO2 RAB02 P0004 T01170100 TSNOPAWD2019-09-20T00:43:00Z60.12-149.4211.710.017052.529.648623TRUETRUETRUERA BRIFR0.04SPECI23.02019-09-20 01:00:42/(e5   3SBJP 200000Z 14007KT 9999 SCT020 25/21 Q1015SBJP2019-09-20T00:00:00Z-7.15-34.9525.021.014076.2129.970472VFRMETAR66.02019-09-20 00:57:53-(e5   3FQBR 200000Z 14006KT 9999 FEW020 24/17 Q1020FQBR2019-09-20T00:00:00Z-19.834.8824.017.014066.2130.11811VFRMETAR16.02019-09-20 00:57:536(q5    3DIYO 200000Z 00000KT 9999 BKN010 24/23 Q1013 NOSIGDIYO2019-09-20T00:00:00Z6.9-5.3324.023.0006.2129.911417TRUEMVFRMETAR213.02019-09-20 00:57:53 s9\sc)15      3PAPG 200104Z 05003KT 10SM -RA FEW019 BKN026 OVC046 13/12 A2996 RMK AO2 RAB04 P0000PAPG2019-09-20T01:04:00Z56.82-132.9713.012.050310.029.958662TRUE-RAMVFR0.005SPECI15.02019-09-20 01:08:45W)#5    3PHBK 200104Z AUTO 18009KT 10SM SCT049 BKN070 31/22 A2990 RMK AO2 T03060222 PHBK2019-09-20T01:04:00Z22.03-159.7830.622.2180910.029.899607TRUETRUEVFRSPECI8.02019-09-20 01:08:45>(y5    3KTGI 200104Z AUTO 08009KT 10SM CLR 18/12 A3031 RMK AO1KTGI2019-09-20T01:04:00Z37.82-75.9818.012.080910.030.31004TRUETRUEVFRMETAR2.02019-09-20 01:08:45})Y5    3CYAH 200104Z AUTO 23009G15KT 3SM -RA BR FEW017 BKN027 OVC033 16/16 A2970 RMK SLP066 DENSITY ALT 1600FTCYAH2019-09-20T01:04:00Z53.75-73.6716.016.02309153.029.6988181006.6TRUE-RA BRMVFRSPECI306.02019-09-20 01:08:45 8x{s!)O5   3KMLF 200103Z AUTO 23019G27KT 10SM CLR 23/M08 A2977 RMK AO2 PK WND 23027/0059 WSHFT 0049 T02281078KMLF2019-09-20T01:03:00Z38.42-113.0222.8-7.8230192710.029.769686TRUETRUEVFRMETAR1534.02019-09-20 01:08:45w )u5  3YMML 200103Z 03019G33KT 9999 FEW030 BKN165 BKN180 21/11 Q1016 FM0103 01017G35KT CAVOK FM0103 MOD/SEV TURB BLW 5000FTYMML2019-09-20T01:03:00Z-37.67144.8221.011.03019336.2130.0VFRSPECI141.02019-09-20 01:08:45:(q5   3KFGN 200103Z AUTO 17003KT 10SM 17/14 A3003 RMK AO2KFGN2019-09-20T01:03:00Z49.32-94.917.014.0170310.030.029528TRUETRUEMETAR328.02019-09-20 01:08:45B(5    3KACP 200103Z AUTO 00000KT 10SM BKN110 24/23 A2996 RMK AO2KACP2019-09-20T01:03:00Z30.75-92.6824.023.00010.029.958662TRUETRUEVFRMETAR33.02019-09-20 01:08:45 q'Vq_%)'5    3PAAK 200103Z AUTO 29013KT 10SM BKN022 BKN027 OVC035 12/10 A2961 RMK AO2 PNO $PAAK2019-09-20T01:03:00Z52.22-174.212.010.02901310.029.610237TRUETRUETRUEMVFRSPECI17.02019-09-20 01:08:45K$) 5    3KESC 200103Z AUTO 22006KT 7SM SCT004 OVC090 18/18 A3006 RMK AO2KESC2019-09-20T01:03:00Z45.75-87.0818.018.022067.030.059055TRUETRUEVFRSPECI187.02019-09-20 01:08:45A#)5   3CYUA 200103Z AUTO 32003KT 270V360 ////SM BKN018 OVC085 04/02 A2969CYUA2019-09-20T01:03:00Z68.95-137.284.02.0320329.68996TRUESPECI38.02019-09-20 01:08:45 ")5     3KAMA 200103Z 07023G30KT 7SM -RA FEW080 OVC110 18/17 A2999 RMK AO2 PK WND 07030/0100 LTG DSNT NE-SE PRESFR P0003 T01830167KAMA2019-09-20T01:03:00Z35.22-101.7218.316.77023307.029.991142TRUE-RAVFR0.03SPECI1093.02019-09-20 01:08:45 |5V|T))5    3PAMO 200102Z AUTO 04007KT 10SM FEW043 10/00 A2960 RMK AO2 SLPNO T01000000PAMO2019-09-20T01:02:00Z62.1-163.6810.00.040710.029.601377TRUETRUEVFRMETAR103.02019-09-20 01:08:45Y()5    3PADM 200102Z AUTO 01012KT 10SM CLR 11/02 A2961 RMK AO2 SLP032 T01060022PADM2019-09-20T01:02:00Z61.87-162.0310.62.2101210.029.6102371003.2TRUETRUEVFRMETAR31.02019-09-20 01:08:45@'(y5    3KJES 200102Z AUTO 08003KT 10SM CLR 22/16 A3016 RMK AO2KJES2019-09-20T01:02:00Z31.55-81.8822.016.080310.030.159449TRUETRUEVFRMETAR33.02019-09-20 01:08:45&)W5       3PAWD 200102Z AUTO 19007KT 1 3/4SM RA BR FEW016 BKN025 OVC032 12/10 A2964 RMK AO2 P0002 T01170100 TSNOPAWD2019-09-20T01:02:00Z60.12-149.4211.710.019071.7529.639763TRUETRUETRUERA BRIFR0.02SPECI23.02019-09-20 01:08:45 }%CZ}W-)5   3KDZB 200101Z AUTO 14006G14KT 10SM BKN090 29/21 A2984 RMK AO2 LTG DSNT SEKDZB2019-09-20T01:01:00Z30.53-98.3729.021.014061410.029.840551TRUETRUEVFRMETAR334.02019-09-20 01:08:45c,)=5   3CYHY 200102Z 18008KT 15SM SCT075 BKN100 14/10 A2947 RMK AC4AC2 SLP988 DENSITY ALT 1100FTCYHY2019-09-20T01:02:00Z60.82-115.7714.010.0180815.029.471457998.8VFRSPECI166.02019-09-20 01:08:45\+)/5    3KUTS 200102Z AUTO VRB05KT 10SM BKN009 BKN085 OVC110 24/22 A2988 RMK AO2 T02390217KUTS2019-09-20T01:02:00Z30.75-95.5823.921.70510.029.878937TRUETRUEIFRSPECI104.02019-09-20 01:08:45U*)5    3PASM 200102Z AUTO 02007KT 9SM CLR 10/01 A2960 RMK AO2 SLP031 T01000011PASM2019-09-20T01:02:00Z62.07-163.310.01.12079.029.6013771003.1TRUETRUEVFRMETAR92.02019-09-20 01:08:45 5T~T1)5    3CYTE 200101Z AUTO 25020G30KT 2 1/2SM BR OVC005 03/03 A2906 RMK SLP847CYTE2019-09-20T01:01:00Z64.22-76.523.03.025020302.529.061024984.7TRUEBRIFRMETAR47.02019-09-20 01:08:45P0)5    3CYGW 200101Z AUTO 31012G19KT 3SM BR OVC009 07/07 A2985 RMK SLP110CYGW2019-09-20T01:01:00Z55.27-77.777.07.031012193.029.849411011.0TRUEBRIFRSPECI12.02019-09-20 01:08:45[/)75    3KJAN 200101Z 16003KT 9SM SCT033 BKN090 23/21 A3002 RMK AO2 TSE0055 TS MOV N T02280211KJAN2019-09-20T01:01:00Z32.32-90.0822.821.116039.030.02067TRUEVFRMETAR91.02019-09-20 01:08:45E.) 5    3PABE 200101Z 35006KT 10SM BKN025 09/04 A2954 RMK AO2 T00940039PABE2019-09-20T01:01:00Z60.78-161.839.43.9350610.029.53937TRUEMVFRMETAR41.02019-09-20 01:08:45 cGc)6(Y5   3SBBE 200100Z 06010KT CAVOK 26/23 Q1011SBBE2019-09-20T01:00:00Z-1.37-48.4726.023.060106.2129.852362VFRMETAR16.02019-09-20 01:08:45:5(q5    3GVAC 200100Z 04010KT 9999 BKN014 27/22 Q1013 NOSIGGVAC2019-09-20T01:00:00Z16.72-22.9327.022.040106.2129.911417TRUEMVFRMETAR55.02019-09-20 01:08:45>4)5   3SBRJ 200100Z 17008KT 8000 FEW010 BKN012 BKN030 24/23 Q1012SBRJ2019-09-20T01:00:00Z-22.88-43.1724.023.017084.9729.88189MVFRMETAR3.02019-09-20 01:08:45+3(Y5   3SBCY 200100Z 31004KT CAVOK 33/15 Q1007SBCY2019-09-20T01:00:00Z-15.65-56.1233.015.031046.2129.734253VFRMETAR182.02019-09-20 01:08:4532(i5   3SBBR 200100Z 24003KT 190V280 CAVOK 27/05 Q1017SBBR2019-09-20T01:00:00Z-15.87-47.9227.05.024036.2130.029528VFRMETAR1061.02019-09-20 01:08:45 iE i1;(e5    3OEDF 200100Z 30007KT CAVOK 27/19 Q1006 NOSIGOEDF2019-09-20T01:00:00Z26.4749.827.019.030076.2129.704725TRUEVFRMETAR22.02019-09-20 01:08:456:(k5    3OEDR 200100Z 29006KT 7000 SKC 28/24 Q1005 NOSIGOEDR2019-09-20T01:00:00Z26.2750.1728.024.029064.3529.675198TRUEMVFRMETAR17.02019-09-20 01:08:4529(e5    3OEJN 200100Z 35003KT CAVOK 29/22 Q1003 NOSIGOEJN2019-09-20T01:00:00Z21.6839.1529.022.035036.2129.616142TRUEVFRMETAR15.02019-09-20 01:08:45+8(Y5   3SBPL 200100Z 12013KT CAVOK 28/15 Q1014SBPL2019-09-20T01:00:00Z-9.37-40.5728.015.0120136.2129.940945VFRMETAR375.02019-09-20 01:08:4557(s5   3SBBV 200100Z 23003KT 9999 FEW035 SCT080 29/24 Q1009SBBV2019-09-20T01:00:00Z2.85-60.729.024.023036.2129.793306VFRMETAR140.02019-09-20 01:08:45 MGM0@(e5   3SEMT 200100Z 21010KT 9999 BKN023 23/20 Q1012SEMT2019-09-20T01:00:00Z-0.95-80.6723.020.0210106.2129.88189MVFRMETAR14.02019-09-20 01:08:45U?)!5    3SEQM 200100Z 35008KT 9999 FEW010 BKN030 BKN080 14/12 Q1025 NOSIG RMK A3029SEQM2019-09-20T01:00:00Z-0.12-78.3514.012.035086.2130.265747TRUEMVFRMETAR2400.02019-09-20 01:08:45+>(Y5   3SASA 200100Z 36006KT CAVOK 18/04 Q1015SASA2019-09-20T01:00:00Z-24.85-65.4718.04.036066.2129.970472VFRMETAR1216.02019-09-20 01:08:452=(e5    3OERK 200100Z 30005KT CAVOK 27/04 Q1013 NOSIGOERK2019-09-20T01:00:00Z24.9546.7227.04.030056.2129.911417TRUEVFRMETAR612.02019-09-20 01:08:453<(g5    3OEMA 200100Z 30003KT CAVOK 32/M02 Q1014 NOSIGOEMA2019-09-20T01:00:00Z24.5539.732.0-2.030036.2129.940945TRUEVFRMETAR631.02019-09-20 01:08:45 `<`.E(_5   3SBKP 200100Z 12016KT 9000 NSC 21/17 Q1011SBKP2019-09-20T01:00:00Z-23.0-47.1221.017.0120165.5929.852362VFRMETAR661.02019-09-20 01:08:451D(e5   3SECU 200100Z 24007KT 9999 SCT033 13/12 Q1024SECU2019-09-20T01:00:00Z-2.87-78.9713.012.024076.2130.236221VFRMETAR2531.02019-09-20 01:08:454C(y5   3SESA 200100Z /////KT 9999 OVC012 21/19 Q1013 RMK A2992SESA2019-09-20T01:00:00Z-2.2-80.9721.019.06.2129.911417MVFRMETAR8.02019-09-20 01:08:451B(i5   3SBSG 200100Z 17008KT 140V200 CAVOK 25/21 Q1014SBSG2019-09-20T01:00:00Z-5.77-35.3725.021.017086.2129.940945VFRMETAR83.02019-09-20 01:08:45>A(}5    3SELT 200100Z 36005KT 9999 VCSH SCT030 BKN100 09/08 Q1028SELT2019-09-20T01:00:00Z-0.92-78.629.08.036056.2130.35433VCSHVFRMETAR2785.02019-09-20 01:08:45 {O9{8J(s5   3SBSJ 200100Z 14008KT 9999 FEW020 SCT100 21/17 Q1013SBSJ2019-09-20T01:00:00Z-23.22-45.8721.017.014086.2129.911417VFRMETAR646.02019-09-20 01:08:455I(s5   3SKAR 200100Z 00000KT 9999 SCT017 BKN080 20/18 A3001SKAR2019-09-20T01:00:00Z4.45-75.7720.018.0006.2130.008858VFRMETAR1219.02019-09-20 01:08:45'H(Y5   3SBSL 200100Z 04011KT CAVOK 26/23 Q1012SBSL2019-09-20T01:00:00Z-2.6-44.2226.023.040116.2129.88189VFRMETAR53.02019-09-20 01:08:45(G(Y5   3SBMN 200100Z 08004KT CAVOK 31/24 Q1009SBMN2019-09-20T01:00:00Z-3.13-59.9731.024.08046.2129.793306VFRMETAR84.02019-09-20 01:08:45+F(Y5   3SBCG 200100Z 34005KT CAVOK 28/19 Q1009SBCG2019-09-20T01:00:00Z-20.47-54.6728.019.034056.2129.793306VFRMETAR567.02019-09-20 01:08:45 dDd)O(e5   3SBSV 200100Z 06013KT 9999 FEW020 26/20 Q1016SBSV2019-09-20T01:00:00Z-12.9-38.3226.020.060136.2130.0VFRMETAR6.02019-09-20 01:08:45=N(w5    3MGGT 200100Z 24004KT 7000 SCT014 21/18 Q1023 A3021 BRMGGT2019-09-20T01:00:00Z14.57-90.5321.018.024044.3530.206694BRMVFRMETAR1509.02019-09-20 01:08:455M(q5    3SVMG 200100Z /////KT 9999 SCT010 27/25 Q1010 NOSIGSVMG2019-09-20T01:00:00Z10.92-63.9727.025.06.2129.822834TRUEVFRMETAR23.02019-09-20 01:08:45-L(e5   3MWCR 200100Z 07014KT 9999 FEW022 29/24 Q1009MWCR2019-09-20T01:00:00Z19.3-81.3729.024.070146.2129.793306VFRMETAR3.02019-09-20 01:08:456K(y5   3SBPV 200100Z 00000KT 9999 FEW040 FEW045TCU 27/24 Q1007SBPV2019-09-20T01:00:00Z-8.72-63.927.024.0006.2129.734253VFRMETAR88.02019-09-20 01:08:45 "S$T(Y5   3SBMO 200100Z 05003KT CAVOK 21/20 Q1016SBMO2019-09-20T01:00:00Z-9.52-35.7721.020.05036.2130.0VFRMETAR115.02019-09-20 01:08:45>S(}5    3MHRO 200100Z 34003KT 9999 FEW022 27/25 Q1010 A2989 NOSIGMHRO2019-09-20T01:00:00Z16.32-86.5327.025.034036.2129.822834TRUEVFRMETAR5.02019-09-20 01:08:45IR)5    3MHLC 200100Z 17003KT 9999 SCT022CB SCT200 26/24 Q1010 A2983 NOSIGMHLC2019-09-20T01:00:00Z15.75-86.8526.024.017036.2129.822834TRUEVFRMETAR15.02019-09-20 01:08:45IQ)5    3MHLM 200100Z 05010KT 9999 FEW026CB SCT250 28/24 Q1009 A2980 NOSIGMHLM2019-09-20T01:00:00Z15.45-87.9328.024.050106.2129.793306TRUEVFRMETAR26.02019-09-20 01:08:45XP)#5     3MHTG 200100Z 10002KT 9999 TS BKN028CB FEW030 SCT080 22/18 Q1017 A3003 NOSIGMHTG2019-09-20T01:00:00Z14.07-87.2222.018.010026.2130.029528TRUETSMVFRMETAR1004.02019-09-20 01:08:45 aB#a^(w5     3OPMT 200100Z 13006KT 4000 FU FEW200 29/24 Q1007 NOSIGOPMT2019-09-20T01:00:00Z30.1871.4229.024.013062.4929.734253TRUEFUIFRMETAR123.02019-09-20 01:08:45<](q5    3SCIP 200100Z 10010KT 9999 FEW025 19/13 Q1027 NOSIGSCIP2019-09-20T01:00:00Z-27.17-109.4319.013.0100106.2130.324802TRUEVFRMETAR69.02019-09-20 01:08:455\(o5    3SCPQ 200100Z AUTO VRB02KT 9999 BKN027 05/03 Q1024SCPQ2019-09-20T01:00:00Z-42.33-73.725.03.0026.2130.236221TRUEMVFRMETAR5.02019-09-20 01:08:45$[(Y5   3SBPS 200100Z 02004KT CAVOK 24/19 Q1016SBPS2019-09-20T01:00:00Z-16.43-39.0724.019.02046.2130.0VFRMETAR51.02019-09-20 01:08:455Z(k5   3NFTF 200100Z 15011KT 9999 FEW018TCU 24/16 Q1017NFTF2019-09-20T01:00:00Z-21.23-175.1524.016.0150116.2130.029528VFRMETAR38.02019-09-20 01:08:45 nQ2n>c)5   3SCCH 200100Z AUTO 19006KT //// R/////// ///////// 08/03 Q1026SCCH2019-09-20T01:00:00Z-36.57-72.028.03.0190630.295275TRUEMETAR148.02019-09-20 01:08:45=b(u5    3SCRM 200100Z 02018KT 9999 OVC010 M03/M04 Q0976 NOSIGSCRM2019-09-20T01:00:00Z-62.18-58.98-3.0-4.020186.2128.818897TRUEMVFRMETAR45.02019-09-20 01:08:45'a(Y5   3SBEG 200100Z 05001KT CAVOK 27/23 Q1009SBEG2019-09-20T01:00:00Z-3.02-60.0327.023.05016.2129.793306VFRMETAR2.02019-09-20 01:08:45)`(e5   3SBAR 200100Z 08009KT 9999 SCT019 26/21 Q1016SBAR2019-09-20T01:00:00Z-10.97-37.0726.021.08096.2130.0VFRMETAR9.02019-09-20 01:08:45)_(Y5   3OITR 200100Z 26006KT CAVOK 11/03 Q1018OITR2019-09-20T01:00:00Z37.6745.0711.03.026066.2130.059055VFRMETAR1312.02019-09-20 01:08:45 b<b(h(Y5   3SCSE 200100Z 19003KT CAVOK 12/09 Q1020SCSE2019-09-20T01:00:00Z-29.92-71.212.09.019036.2130.11811VFRMETAR146.02019-09-20 01:08:454g(e5    3SCFA 200100Z 20008KT CAVOK 13/08 Q1019 NOSIGSCFA2019-09-20T01:00:00Z-23.42-70.4213.08.020086.2130.088583TRUEVFRMETAR120.02019-09-20 01:08:451f(e5   3SCAR 200100Z 16005KT 9999 OVC030 15/11 Q1018SCAR2019-09-20T01:00:00Z-18.35-70.3215.011.016056.2130.059055MVFRMETAR59.02019-09-20 01:08:455e(i5    3SCIC 200100Z AUTO 19006KT 9999 NCD 09/02 Q1024SCIC2019-09-20T01:00:00Z-34.97-71.229.02.019066.2130.236221TRUEVFRMETAR242.02019-09-20 01:08:45>d)5   3SCTN 200100Z AUTO 05004KT //// R/////// BKN023 BKN029 06/06 Q1023SCTN2019-09-20T01:00:00Z-42.92-72.76.06.050430.206694TRUEMETAR4.02019-09-20 01:08:45Y8J8@HPX`hpx (08@HPX`hpx (08@HPX`hpx;@EJOTY^chmr;@EJOTY^chmrw| !%)- 1 6 ; @ EJOTY^chmrw|  !""'#+$/%3&8'=(B)G*L+Q,V-[.`/e0j1n2r3w4|567 89:;<$=)>.?2@7A<BACFDKEPFUGYH^Ic gQ<gOm)5    3UBBY 200100Z 10004KT 9999 FEW040 18/11 Q1021 R33/////// NOSIG RMK MT OPUBBY2019-09-20T01:00:00Z41.5746.6718.011.010046.2130.147638TRUEVFRMETAR390.02019-09-20 01:08:45.l(c5   3SBLO 200100Z 00000KT CAVOK 22/19 Q1009 RETSSBLO2019-09-20T01:00:00Z-23.32-51.1222.019.0006.2129.793306VFRMETAR570.02019-09-20 01:08:45,k([5   3SCCF 200100Z 23011KT CAVOK 13/M05 Q1027SCCF2019-09-20T01:00:00Z-22.5-68.913.0-5.0230116.2130.324802VFRMETAR2312.02019-09-20 01:08:45)j(Y5   3SCIE 200100Z 20011KT CAVOK 09/05 Q1027SCIE2019-09-20T01:00:00Z-36.77-73.079.05.0200116.2130.324802VFRMETAR16.02019-09-20 01:08:45)i(Y5   3SCDA 200100Z 20007KT CAVOK 14/08 Q1018SCDA2019-09-20T01:00:00Z-20.52-70.1714.08.020076.2130.059055VFRMETAR52.02019-09-20 01:08:45 Q/x Q5r(k5  3SBVT 200100Z 01014G26KT 9999 BKN025 25/20 Q1015SBVT2019-09-20T01:00:00Z-20.27-40.2725.020.01014266.2129.970472MVFRMETAR4.02019-09-20 01:08:45(q(Y5   3SCQP 200100Z 31005KT CAVOK 06/04 Q1026SCQP2019-09-20T01:00:00Z-38.92-72.656.04.031056.2130.295275VFRMETAR97.02019-09-20 01:08:458p(q5    3SCTE 200100Z 32004KT 9999 SCT040 05/04 Q1025 NOSIGSCTE2019-09-20T01:00:00Z-41.42-73.075.04.032046.2130.265747TRUEVFRMETAR86.02019-09-20 01:08:451o(c5    3SCVD 200100Z AUTO 29004KT CAVOK 07/04 Q1026SCVD2019-09-20T01:00:00Z-39.65-73.077.04.029046.2130.295275TRUEVFRMETAR14.02019-09-20 01:08:45Kn) 5     3SCCI 200100Z 26016KT 9999 -SHRA SCT030 BKN040 04/02 Q0990 NOSIGSCCI2019-09-20T01:00:00Z-53.0-70.834.02.0260166.2129.232283TRUE-SHRAVFRMETAR37.02019-09-20 01:08:45 ,7x,Lw)5    3SCON 200100Z AUTO 28006KT 240V300 9999 FEW020/// SCT040/// 07/04 Q1023SCON2019-09-20T01:00:00Z-43.12-73.627.04.028066.2130.206694TRUEVFRMETAR3.02019-09-20 01:08:45;v(u5    3SCFT 200100Z AUTO 26007KT 220V280 CAVOK 06/M01 Q1020SCFT2019-09-20T01:00:00Z-43.17-71.856.0-1.026076.2130.11811TRUEVFRMETAR318.02019-09-20 01:08:453u(o5   3SCAP 200100Z AUTO VRB08KT 9999 ////// 06/00 Q1021SCAP2019-09-20T01:00:00Z-43.62-71.786.00.0086.2130.147638TRUEMETAR277.02019-09-20 01:08:459t(q5    3FQMA 200100Z 35004KT 9999 SCT020 22/18 Q1023 NOSIGFQMA2019-09-20T01:00:00Z-25.9232.5722.018.035046.2130.206694TRUEVFRMETAR44.02019-09-20 01:08:45Cs)5    3NGFU 200100Z 13006KT 9000 -SHRA SCT017CB BKN100 28/25 Q1010NGFU2019-09-20T01:00:00Z-8.52179.2228.025.013065.5929.822834-SHRAVFRMETAR1.02019-09-20 01:08:45 LK"LP|)+5    3UBBN 200100Z 02006KT 9999 FEW100 15/05 Q1016 R14R/CLRD// NOSIG RMK MT OP QFE687UBBN2019-09-20T01:00:00Z39.1845.4515.05.02066.2130.0TRUEVFRMETAR873.02019-09-20 01:08:454{(g5    3SACO 200100Z 31003KT CAVOK 09/M09 Q1020 NOSIGSACO2019-09-20T01:00:00Z-31.32-64.229.0-9.031036.2130.11811TRUEVFRMETAR474.02019-09-20 01:08:45+z(Y5   3SARL 200100Z 20010KT CAVOK 17/12 Q1011SARL2019-09-20T01:00:00Z-29.67-57.1317.012.0200106.2129.852362VFRMETAR70.02019-09-20 01:08:458y(q5    3WAMM 200100Z 17002KT 9999 FEW024 33/18 Q1011 NOSIGWAMM2019-09-20T01:00:00Z1.55124.9233.018.017026.2129.852362TRUEVFRMETAR80.02019-09-20 01:08:45/x(c5    3SCSN 200100Z AUTO VRB02KT CAVOK 07/05 Q1023SCSN2019-09-20T01:00:00Z-33.63-71.627.05.0026.2130.206694TRUEVFRMETAR75.02019-09-20 01:08:45 $/\$5(m5   3SPSO 200100Z 21010KT CAVOK 16/13 Q1015 RMK PP000SPSO2019-09-20T01:00:00Z-13.73-76.2216.013.0210106.2129.970472VFRMETAR10.02019-09-20 01:08:45=(5   3SPRU 200100Z 15007KT 6000 FEW010 16/14 Q1014 RMK BR PP000SPRU2019-09-20T01:00:00Z-8.08-79.1216.014.015073.7329.940945MVFRMETAR30.02019-09-20 01:08:454(o5   3SPQU 200100Z 00000KT CAVOK 11/M00 Q1027 RMK PP000SPQU2019-09-20T01:00:00Z-16.33-71.5711.00.0006.2130.324802VFRMETAR2554.02019-09-20 01:08:45M~)5    3SPQT 200100Z 27003KT 210V300 9999 FEW030 27/24 Q1007 NOSIG RMK PP000SPQT2019-09-20T01:00:00Z-3.78-73.3227.024.027036.2129.734253TRUEVFRMETAR126.02019-09-20 01:08:45K})5   3SPHI 200100Z 18015KT CAVOK 17/13 Q1014 RMK BIRD HAZARD RWY 19/01 PP000SPHI2019-09-20T01:00:00Z-6.77-79.8217.013.0180156.2129.940945VFRMETAR34.02019-09-20 01:08:45 $U$<({5   3SPJL 200100Z 23006KT 9999 FEW020 13/M09 Q1032 RMK PP000SPJL2019-09-20T01:00:00Z-15.47-70.1513.0-9.023066.2130.47244VFRMETAR3827.02019-09-20 01:08:45V)55   3SPME 200100Z 27004KT 240V320 9999 SCT012 20/17 Q1012 RMK BIRD HAZARD RWY 32/14 PP000SPME2019-09-20T01:00:00Z-3.53-80.420.017.027046.2129.88189VFRMETAR27.02019-09-20 01:08:45Q)%5   3SPST 200100Z 26003KT 9999 FEW025 28/23 Q1007 RMK BIRD HAZARD RWY 17/35 PP000SPST2019-09-20T01:00:00Z-6.52-76.3728.023.026036.2129.734253VFRMETAR282.02019-09-20 01:08:456(s5   3SERO 200100Z 28002KT 9999 BKN016 OVC026 22/19 Q1012SERO2019-09-20T01:00:00Z-3.43-79.9822.019.028026.2129.88189MVFRMETAR51.02019-09-20 01:08:45%(W5  3SAWG 200100Z 27020KT 9999 05/00 Q0993SAWG2019-09-20T01:00:00Z-51.62-69.325.00.0270206.2129.320866METAR19.02019-09-20 01:08:45 !8O!. (c5    3LFGA 200100Z AUTO 36006KT CAVOK 09/02 Q1027LFGA2019-09-20T01:00:00Z48.17.359.02.036066.2130.324802TRUEVFRMETAR191.02019-09-20 01:08:452 (g5   3SCAT 200100Z AUTO 21008KT 9999 // 12/09 Q1021SCAT2019-09-20T01:00:00Z-27.27-70.7712.09.021086.2130.147638TRUEMETAR204.02019-09-20 01:08:45< (y5   3SPTN 200100Z 24006KT 9999 OVC025 13/10 Q1018 RMK PP000SPTN2019-09-20T01:00:00Z-18.07-70.2813.010.024066.2130.059055MVFRMETAR458.02019-09-20 01:08:45c)A5    3SPZO 200100Z 08005KT 9999 FEW050 14/05 Q1029 NOSIG RMK FU QUAD NE BIRD HAZARD RWY 28 PP000SPZO2019-09-20T01:00:00Z-13.55-71.9714.05.08056.2130.383858TRUEVFRMETAR3249.02019-09-20 01:08:45B)5   3SPCL 200100Z 13004KT 9999 SCT020 BKN080 27/22 Q1008 RMK PP000SPCL2019-09-20T01:00:00Z-8.38-74.5827.022.013046.2129.763779VFRMETAR149.02019-09-20 01:08:45 AJA:(q5     3OPKC 200100Z 30007KT 4000 FU NSC 26/23 Q1007 NOSIGOPKC2019-09-20T01:00:00Z24.8867.1726.023.030072.4929.734253TRUEFUIFRMETAR22.02019-09-20 01:08:45K)5    3SEGU 200100Z 21014KT 9999 FEW010 SCT200 23/18 Q1011 NOSIG RMK A2987SEGU2019-09-20T01:00:00Z-2.13-79.8723.018.0210146.2129.852362TRUEVFRMETAR9.02019-09-20 01:08:45*(Y5   3SARF 200100Z 20004KT CAVOK 18/16 Q1008SARF2019-09-20T01:00:00Z-26.22-58.2218.016.020046.2129.763779VFRMETAR60.02019-09-20 01:08:45B (y5    3KCVH 200100Z AUTO 25014KT 10SM CLR 21/10 A2991 RMK A01KCVH2019-09-20T01:00:00Z36.9-121.4221.010.02501410.029.911417TRUETRUEVFRMETAR70.02019-09-20 01:08:450 (c5    3LFBU 200100Z AUTO 04010KT CAVOK 15/02 Q1019LFBU2019-09-20T01:00:00Z45.720.2215.02.040106.2130.088583TRUEVFRMETAR133.02019-09-20 01:08:45 4h0(e5    3LKCV 200100Z 16001KT CAVOK 05/02 Q1028 NOSIGLKCV2019-09-20T01:00:00Z49.9315.385.02.016016.2130.35433TRUEVFRMETAR242.02019-09-20 01:08:457(q5     3OPSK 200100Z 00000KT 3000 BR NSC 27/24 Q1003 NOSIGOPSK2019-09-20T01:00:00Z27.7268.827.024.0001.8629.616142TRUEBRIFRMETAR58.02019-09-20 01:08:45])95  '  3MHCA 200100Z 09002KT 9999 TS SCT028TCU FEW030CB BKN080 27/24 CB TS E TCU ALL VCSH E HZMHCA2019-09-20T01:00:00Z14.9-85.7827.024.09026.21TS VCSH TS HZVFRMETAR442.02019-09-20 01:08:45F)5    3VGEG 200100Z 00000KT 4000 SCT016 FEW030CB OVC100 26/25 Q1009 NOSIGVGEG2019-09-20T01:00:00Z22.2791.8226.025.0002.4929.793306TRUEIFRMETAR6.02019-09-20 01:08:45F)5    3UBBG 200100Z 31010KT 9999 SCT100 18/17 Q1017 R12/CLRD// NOSIGUBBG2019-09-20T01:00:00Z40.7346.3218.017.0310106.2130.029528TRUEVFRMETAR330.02019-09-20 01:08:45 [B[8(q5    3LERT 200100Z 10003KT 9999 FEW015 18/16 Q1015 NOSIGLERT2019-09-20T01:00:00Z36.63-6.3318.016.010036.2129.970472TRUEVFRMETAR26.02019-09-20 01:08:45*(Y5   3SBRB 200100Z 36004KT CAVOK 29/21 Q1008SBRB2019-09-20T01:00:00Z-10.0-67.7829.021.036046.2129.763779VFRMETAR143.02019-09-20 01:08:455(s5   3SBPA 200100Z 31003KT 9999 SCT035 BKN100 20/17 Q1009SBPA2019-09-20T01:00:00Z-30.0-51.1720.017.031036.2129.793306VFRMETAR3.02019-09-20 01:08:458(q5    3DTTX 200100Z 34004KT 9999 FEW020 26/20 Q1015 NOSIGDTTX2019-09-20T01:00:00Z34.7210.6726.020.034046.2129.970472TRUEVFRMETAR23.02019-09-20 01:08:458(q5    3DTTZ 200100Z 11006KT 8000 SCT030 30/12 Q1014 NOSIGDTTZ2019-09-20T01:00:00Z33.928.0830.012.011064.9729.940945TRUEMVFRMETAR93.02019-09-20 01:08:45 MN)%5   3MDPC 200100Z 00000KT 9999 FEW012CB SCT016 BKN070 25/24 Q1011 RERA CB/NE/S/SWMDPC2019-09-20T01:00:00Z18.57-68.3725.024.0006.2129.852362VFRMETAR12.02019-09-20 01:08:45W)-5    3MDST 200100Z 11008KT 8000 -RA FEW014CB BKN016 OVC070 24/23 Q1011 CB/NE/E/SE/SW/WMDST2019-09-20T01:00:00Z19.4-70.624.023.011084.9729.852362-RAMVFRMETAR184.02019-09-20 01:08:456(s5   3MDPP 200100Z 12005KT 9999 BKN018 BKN070 27/23 Q1010MDPP2019-09-20T01:00:00Z19.75-70.5727.023.012056.2129.822834MVFRMETAR5.02019-09-20 01:08:45-(e5   3SBMQ 200100Z 04008KT 9999 FEW015 28/25 Q1011SBMQ2019-09-20T01:00:00Z0.05-51.0728.025.04086.2129.852362VFRMETAR15.02019-09-20 01:08:45 )NC")5    3YBUD 200100Z AUTO 05008KT 050V130 9999 // SCT038 25/13 Q1024YBUD2019-09-20T01:00:00Z-24.9152.3225.013.05086.2130.236221TRUEVFRMETAR82.02019-09-20 01:08:45>!(u5    3YAYE 200100Z AUTO 18022KT 7000 // BKN031 15/06 Q1017YAYE2019-09-20T01:00:00Z-25.18130.9815.06.0180224.3530.029528TRUEMVFRMETAR496.02019-09-20 01:08:45U )-5    3MDLR 200100Z 00000KT 8000 -RA FEW014CB BKN016 BKN070 23/22 Q1010 CB/NE/E/SE/S/SWMDLR2019-09-20T01:00:00Z18.45-68.9223.022.0004.9729.822834-RAMVFRMETAR8.02019-09-20 01:08:45Q)!5    3MDSD 200100Z 07004KT 8000 -RA FEW014CB BKN016 OVC070 24/24 Q1011 CB/E/SE/SMDSD2019-09-20T01:00:00Z18.42-69.6724.024.07044.9729.852362-RAMVFRMETAR18.02019-09-20 01:08:45 fBf+'(Y5   3SARE 200100Z 18011KT CAVOK 20/12 Q1010SARE2019-09-20T01:00:00Z-27.43-59.0320.012.0180116.2129.822834VFRMETAR52.02019-09-20 01:08:452&(a5  3SAZN 200100Z 25014G25KT CAVOK 11/M04 Q1018SAZN2019-09-20T01:00:00Z-38.95-68.1511.0-4.025014256.2130.059055VFRMETAR271.02019-09-20 01:08:451%(e5   3SARP 200100Z 14004KT 9999 SCT030 20/18 Q1009SARP2019-09-20T01:00:00Z-27.38-55.9720.018.014046.2129.793306VFRMETAR125.02019-09-20 01:08:456$(q5    3TGPY 200100Z 09007KT 9999 SCT018 29/25 Q1010 NOSIGTGPY2019-09-20T01:00:00Z12.0-61.7829.025.09076.2129.822834TRUEVFRMETAR7.02019-09-20 01:08:458#(q5    3YBTL 200100Z 09013KT 9999 FEW030 28/14 Q1020 NOSIGYBTL2019-09-20T01:00:00Z-19.25146.7528.014.090136.2130.11811TRUEVFRMETAR6.02019-09-20 01:08:45 >jE+)5   3RJFR 200100Z 12009KT 080V160 9999 FEW020 SCT160 BKN/// 24/18 Q1014RJFR2019-09-20T01:00:00Z33.82131.0324.018.012096.2129.940945VFRMETAR6.02019-09-20 01:08:45L*)5    3RJFS 200100Z 12005KT 070V140 8000 -RA FEW020 SCT040 BKN080 20/18 Q1014RJFS2019-09-20T01:00:00Z33.15130.320.018.012054.9729.940945-RAMVFRMETAR5.02019-09-20 01:08:45N))5    3RJFT 200100Z 35008KT 310V030 9999 -RA FEW008 BKN060 BKN100 21/19 Q1014RJFT2019-09-20T01:00:00Z32.82130.8321.019.035086.2129.940945-RAVFRMETAR196.02019-09-20 01:08:45<()5   3RJFU 200100Z 04005KT 9999 FEW020 BKN060 BKN080 22/18 Q1013RJFU2019-09-20T01:00:00Z32.92129.9222.018.04056.2129.911417VFRMETAR5.02019-09-20 01:08:45 2nF/)5   3RJFG 200100Z 04005KT 350V100 9999 FEW002 SCT050 BKN120 24/23 Q1011RJFG2019-09-20T01:00:00Z30.62130.9824.023.04056.2129.852362VFRMETAR237.02019-09-20 01:08:45P.)5    3RJFK 200100Z 09011KT 060V130 9999 -SHRA FEW015 BKN040 BKN060 23/18 Q1012RJFK2019-09-20T01:00:00Z31.8130.7223.018.090116.2129.88189-SHRAVFRMETAR275.02019-09-20 01:08:45>-)5   3RJFM 200100Z 02016KT 9999 SCT010 BKN018 BKN035 23/20 Q1013RJFM2019-09-20T01:00:00Z31.87131.4323.020.020166.2129.911417MVFRMETAR9.02019-09-20 01:08:45H,) 5    3RJFO 200100Z 06011KT 9999 -SHRA FEW020 BKN040 BKN070 22/18 Q1015RJFO2019-09-20T01:00:00Z33.47131.7222.018.060116.2129.970472-SHRAVFRMETAR8.02019-09-20 01:08:45 *XJ3)5    3ZUGY 200100Z 01003MPS 8000 FEW010 BKN016 OVC033 17/16 Q1022 NOSIGZUGY2019-09-20T01:00:00Z26.53106.817.016.01064.9730.177166TRUEMVFRMETAR1074.02019-09-20 01:08:45E2)5    3ZUUU 200100Z 29002MPS 260V320 8000 FEW050 20/18 Q1024 NOSIGZUUU2019-09-20T01:00:00Z30.58103.9520.018.029044.9730.236221TRUEMVFRMETAR508.02019-09-20 01:08:45L1)5    3RJFE 200100Z 08006KT 030V120 9999 -RA FEW020 SCT050 BKN070 22/19 Q1013RJFE2019-09-20T01:00:00Z32.67128.8222.019.08066.2129.911417-RAVFRMETAR80.02019-09-20 01:08:45P0)5    3RJFF 200100Z 15003KT 100V230 9999 FEW020 SCT110 BKN140 24/17 Q1013 NOSIGRJFF2019-09-20T01:00:00Z33.57130.4324.017.015036.2129.911417TRUEVFRMETAR12.02019-09-20 01:08:45 HY8)+5     3ZPPP 200100Z 05002MPS 020V080 3500 BR FEW020TCU BKN020 BKN040 17/16 Q1026 NOSIGZPPP2019-09-20T01:00:00Z25.0102.7517.016.05042.1730.295275TRUEBRIFRMETAR1892.02019-09-20 01:08:45;7(w5    3ZSAM 200100Z 03003MPS 360V060 CAVOK 27/16 Q1010 NOSIGZSAM2019-09-20T01:00:00Z24.53118.1327.016.03066.2129.822834TRUEVFRMETAR18.02019-09-20 01:08:45G6)5   3ZSFZ 200100Z 01004MPS 320V040 CAVOK 26/09 Q1011 BECMG TL0230 07005MPSZSFZ2019-09-20T01:00:00Z25.93119.6726.09.01086.2129.852362VFRMETAR85.02019-09-20 01:08:45:5(s5    3ZSNB 200100Z 33005MPS 9999 SCT030 25/18 Q1014 NOSIGZSNB2019-09-20T01:00:00Z29.83121.4725.018.0330106.2129.940945TRUEVFRMETAR4.02019-09-20 01:08:4524(g5    3ZSQD 200100Z VRB01MPS CAVOK 21/12 Q1018 NOSIGZSQD2019-09-20T01:00:00Z36.27120.3821.012.0026.2130.059055TRUEVFRMETAR77.02019-09-20 01:08:45 E= E@=)5   3ZGKL 200100Z VRB02MPS CAVOK 25/18 Q1015 BECMG FM0300 05005MPSZGKL2019-09-20T01:00:00Z25.22110.0325.018.0046.2129.970472VFRMETAR166.02019-09-20 01:08:45<<(w5    3ZGNN 200100Z 35004MPS 330V030 CAVOK 27/21 Q1014 NOSIGZGNN2019-09-20T01:00:00Z22.62108.1727.021.035086.2129.940945TRUEVFRMETAR73.02019-09-20 01:08:451;(g5    3ZGOW 200100Z 02003MPS CAVOK 27/17 Q1010 NOSIGZGOW2019-09-20T01:00:00Z23.55116.527.017.02066.2129.822834TRUEVFRMETAR3.02019-09-20 01:08:453:(g5    3ZGSZ 200100Z 01005MPS CAVOK 29/16 Q1011 NOSIGZGSZ2019-09-20T01:00:00Z22.63113.829.016.010106.2129.852362TRUEVFRMETAR18.02019-09-20 01:08:45=9(w5    3ZLXY 200100Z 28003MPS 240V320 CAVOK 19/17 Q1023 NOSIGZLXY2019-09-20T01:00:00Z34.43108.7519.017.028066.2130.206694TRUEVFRMETAR479.02019-09-20 01:08:45 36t36B(k5    3LEAB 200100Z 10006KT 8000 NSC 17/17 Q1020 NOSIGLEAB2019-09-20T01:00:00Z38.95-1.8517.017.010064.9730.11811TRUEMVFRMETAR704.02019-09-20 01:08:45:A(u5    3LETO 200100Z 01003KT 330V060 CAVOK 20/15 Q1018 NOSIGLETO2019-09-20T01:00:00Z40.47-3.4720.015.01036.2130.059055TRUEVFRMETAR608.02019-09-20 01:08:45?@)5   3SAOC 200100Z 18005KT CAVOK 08/M08 Q1019 RMK ESTIMATED WINDSAOC2019-09-20T01:00:00Z-33.12-64.278.0-8.018056.2130.088583VFRMETAR421.02019-09-20 01:08:45)5     3VILK 200100Z VRB02KT 2500 BR SCT020 BKN100 25/24 Q1009 NOSIGVILK2019-09-20T01:00:00Z26.7580.8725.024.0021.5529.793306TRUEBRIFRMETAR128.02019-09-20 01:08:45 NF N8G(s5    3ZSSS 200100Z 02006MPS 9999 BKN033 25/15 Q1015 NOSIGZSSS2019-09-20T01:00:00Z31.2121.3325.015.020126.2129.970472TRUEVFRMETAR7.02019-09-20 01:08:455F(g5    3ZWSH 200100Z 32005MPS CAVOK 16/04 Q1024 NOSIGZWSH2019-09-20T01:00:00Z39.5576.0216.04.0320106.2130.236221TRUEVFRMETAR1380.02019-09-20 01:08:45AE)5   3ZWWW 200100Z 17005MPS CAVOK 20/03 Q1021 BECMG TL0230 36004MPSZWWW2019-09-20T01:00:00Z43.8887.4720.03.0170106.2130.147638VFRMETAR654.02019-09-20 01:08:452D(g5    3ZYTL 200100Z VRB01MPS CAVOK 23/11 Q1018 NOSIGZYTL2019-09-20T01:00:00Z38.97121.5323.011.0026.2130.059055TRUEVFRMETAR97.02019-09-20 01:08:454C(g5    3ZYTX 200100Z 19004MPS CAVOK 21/15 Q1017 NOSIGZYTX2019-09-20T01:00:00Z41.63123.4821.015.019086.2130.029528TRUEVFRMETAR35.02019-09-20 01:08:45 !9q!?L(}5    3ZBTJ 200100Z 23002MPS 190V260 7000 NSC 19/12 Q1017 NOSIGZBTJ2019-09-20T01:00:00Z39.12117.3519.012.023044.3530.029528TRUEMVFRMETAR3.02019-09-20 01:08:45GK)5     3ZBYN 200100Z 21002MPS 160V250 5000 BR NSC 15/12 Q1021 NOSIGZBYN2019-09-20T01:00:00Z37.77112.6315.012.021043.1130.147638TRUEBRMVFRMETAR779.02019-09-20 01:08:458J(w5    3ZGGG 200100Z 01003MPS 290V060 CAVOK 28/15 Q1012 NOSIGZGGG2019-09-20T01:00:00Z23.4113.328.015.01066.2129.88189TRUEVFRMETAR15.02019-09-20 01:08:45BI)5    3ZSHC 200100Z 02004MPS 330V060 9999 BKN033 23/16 Q1015 NOSIGZSHC2019-09-20T01:00:00Z30.22120.4323.016.02086.2129.970472TRUEVFRMETAR43.02019-09-20 01:08:45AH)5    3ZSPD 200100Z 03007MPS 360V060 9999 SCT030 25/16 Q1015 NOSIGZSPD2019-09-20T01:00:00Z31.15121.825.016.030146.2129.970472TRUEVFRMETAR4.02019-09-20 01:08:45 OEO3Q(i5    3LELL 200100Z AUTO 29002KT 9999 NCD 17/15 Q1019LELL2019-09-20T01:00:00Z41.522.117.015.029026.2130.088583TRUEVFRMETAR250.02019-09-20 01:08:45-P(c5    3LESB 200100Z AUTO 03003KT CAVOK 22/19 Q1018LESB2019-09-20T01:00:00Z39.62.722.019.03036.2130.059055TRUEVFRMETAR48.02019-09-20 01:08:45JO)5    3GMFO 200100Z VRB02KT 9999 FEW036/// BKN160/// BKN190/// 20/18 Q1016 NOSIGGMFO2019-09-20T01:00:00Z34.77-1.9220.018.0026.2130.0TRUEVFRMETAR470.02019-09-20 01:08:454N(g5    3ZBAA 200100Z 34004MPS CAVOK 21/14 Q1017 NOSIGZBAA2019-09-20T01:00:00Z40.07116.5821.014.034086.2130.029528TRUEVFRMETAR30.02019-09-20 01:08:455M(m5    3ZBSJ 200100Z VRB01MPS 6000 NSC 18/16 Q1017 NOSIGZBSJ2019-09-20T01:00:00Z38.28114.718.016.0023.7330.029528TRUEMVFRMETAR71.02019-09-20 01:08:45 ]E]+V(e5   3MKJS 200100Z VRB02KT 9999 FEW022 27/22 Q1008MKJS2019-09-20T01:00:00Z18.5-77.9227.022.0026.2129.763779VFRMETAR1.02019-09-20 01:08:459U(s5    3LEBA 200100Z AUTO 25004KT 220V280 CAVOK 21/12 Q1015LEBA2019-09-20T01:00:00Z37.85-4.8221.012.025046.2129.970472TRUEVFRMETAR92.02019-09-20 01:08:459T(u5    3LEBT 200100Z AUTO 02003KT 9000 OVC032/// 20/19 Q1018LEBT2019-09-20T01:00:00Z39.58-0.4520.019.02035.5930.059055TRUEVFRMETAR50.02019-09-20 01:08:453S(i5    3LELO 200100Z AUTO VRB02KT 9999 NCD 17/16 Q1018LELO2019-09-20T01:00:00Z42.45-2.3217.016.0026.2130.059055TRUEVFRMETAR363.02019-09-20 01:08:455R(i5    3LEBR 200100Z AUTO 11014KT 9999 NCD 20/15 Q1018LEBR2019-09-20T01:00:00Z42.2-1.4320.015.0110146.2130.059055TRUEVFRMETAR295.02019-09-20 01:08:45 UH'[(Y5   3DTTJ 200100Z 15007KT CAVOK 26/21 Q1014DTTJ2019-09-20T01:00:00Z33.8710.7726.021.015076.2129.940945VFRMETAR4.02019-09-20 01:08:45&Z(Y5   3LKKB 200100Z 20004KT CAVOK 04/02 Q1028LKKB2019-09-20T01:00:00Z50.1214.534.02.020046.2130.35433VFRMETAR286.02019-09-20 01:08:45.Y(c5    3LKLN 200100Z AUTO 00000KT CAVOK 03/02 Q1029LKLN2019-09-20T01:00:00Z49.6813.273.02.0006.2130.383858TRUEVFRMETAR362.02019-09-20 01:08:45'X(Y5   3LKNA 200100Z 30006KT CAVOK 03/01 Q1027LKNA2019-09-20T01:00:00Z49.1716.123.01.030066.2130.324802VFRMETAR472.02019-09-20 01:08:45%W(Y5   3LKPD 200100Z 06002KT CAVOK 05/03 Q1028LKPD2019-09-20T01:00:00Z50.0215.735.03.06026.2130.35433VFRMETAR226.02019-09-20 01:08:45 v:%v)`(o5   3DTKA 200100Z AUTO 01005KT 310V080 NCD 22/22 Q1016DTKA2019-09-20T01:00:00Z36.988.8822.022.010530.0TRUEMETAR21.02019-09-20 01:08:45/_(s5   3DTMB 200100Z 02009KT 6000 SCT009 BKN013 26/26 Q1016DTMB2019-09-20T01:00:00Z35.7710.7526.026.02093.7330.0MVFRMETAR2.02019-09-20 01:08:452^(s5    3DTNH 200100Z AUTO 02007KT 350V090 CAVOK 25/22 Q1016DTNH2019-09-20T01:00:00Z36.0710.4325.022.02076.2130.0TRUEVFRMETAR2.02019-09-20 01:08:45"](Y5   3DTTA 200100Z 33003KT CAVOK 23/21 Q1016DTTA2019-09-20T01:00:00Z36.8510.2223.021.033036.2130.0VFRMETAR4.02019-09-20 01:08:45@\)5    3DTTG 200100Z 23004KT 190V300 8000 SCT030 27/11 Q1015 NOSIGDTTG2019-09-20T01:00:00Z33.739.9227.011.023044.9729.970472TRUEMVFRMETAR5.02019-09-20 01:08:45 hHh&e(Y5   3RKTU 200100Z 08003KT CAVOK 21/16 Q1017RKTU2019-09-20T01:00:00Z36.7127.521.016.08036.2130.029528VFRMETAR66.02019-09-20 01:08:456d(s5   3RKTN 200100Z 19001KT 9999 FEW040 BKN200 20/14 Q1018RKTN2019-09-20T01:00:00Z35.88128.6520.014.019016.2130.059055VFRMETAR35.02019-09-20 01:08:459c(5    3RKJB 200100Z 03005KT 9999 FEW030 BKN120 21/15 Q1016 NOSIGRKJB2019-09-20T01:00:00Z34.98126.3821.015.03056.2130.0TRUEVFRMETAR2.02019-09-20 01:08:453b(e5    3RKNY 200100Z 22002KT CAVOK 21/13 Q1019 NOSIGRKNY2019-09-20T01:00:00Z38.07128.6721.013.022026.2130.088583TRUEVFRMETAR74.02019-09-20 01:08:452a(u5   3OIMT 200100Z AUTO 07004KT //// // ////// 28/01 Q1011OIMT2019-09-20T01:00:00Z33.6756.9228.01.070429.852362TRUEMETAR711.02019-09-20 01:08:45 HEH-j(e5   3TKPK 200100Z 06007KT 9999 FEW022 28/25 Q1011TKPK2019-09-20T01:00:00Z17.3-62.7228.025.06076.2129.852362VFRMETAR48.02019-09-20 01:08:45Fi) 5    3RKSI 200100Z 05009KT 9999 FEW008 SCT120 BKN180 18/10 Q1018 NOSIGRKSI2019-09-20T01:00:00Z37.47126.4518.010.05096.2130.059055TRUEVFRMETAR7.02019-09-20 01:08:453h(e5    3RKSS 200100Z 36004KT CAVOK 19/13 Q1018 NOSIGRKSS2019-09-20T01:00:00Z37.53126.7819.013.036046.2130.059055TRUEVFRMETAR19.02019-09-20 01:08:45?g(5    3RKPC 200100Z 07018KT 9999 FEW020 BKN200 23/17 Q1014 NOSIGRKPC2019-09-20T01:00:00Z33.5126.4823.017.070186.2129.940945TRUEVFRMETAR27.02019-09-20 01:08:455f(s5   3RKPK 200100Z 04008KT 9999 FEW040 BKN240 24/13 Q1017RKPK2019-09-20T01:00:00Z35.17128.9224.013.04086.2130.029528VFRMETAR15.02019-09-20 01:08:45 >q1(w5     3LBPD 200100Z AUTO 30012KT 9999 -RA OVC031 13/11 Q1020LBPD2019-09-20T01:00:00Z42.1324.813.011.0300126.2130.11811TRUE-RAVFRMETAR185.02019-09-20 01:08:45S0)5     3LBGO 200100Z AUTO 18003KT 140V210 9999 -RA BKN069 OVC078 12/11 Q1021 RERALBGO2019-09-20T01:00:00Z43.1525.7212.011.018036.2130.147638TRUE-RAVFRMETAR86.02019-09-20 01:08:455/(o5  3LDDU 200100Z 03026G38KT 320V080 CAVOK 17/02 Q1018LDDU2019-09-20T01:00:00Z42.5718.2717.02.03026386.2130.059055VFRMETAR165.02019-09-20 01:08:45 J.cJ27(e5    3OMSJ 200100Z 16005KT CAVOK 30/22 Q1006 NOSIGOMSJ2019-09-20T01:00:00Z25.3255.5230.022.016056.2129.704725TRUEVFRMETAR33.02019-09-20 01:08:45-6(e5   3LBPL 200100Z 24006KT 9999 BKN100 13/10 Q1020LBPL2019-09-20T01:00:00Z43.4524.513.010.024066.2130.11811VFRMETAR101.02019-09-20 01:08:45(5(Y5   3SBTE 200100Z 01006KT CAVOK 31/19 Q1010SBTE2019-09-20T01:00:00Z-5.03-42.8231.019.01066.2129.822834VFRMETAR69.02019-09-20 01:08:45E4)5     3LBSF 200100Z 28007KT 9999 -RA BKN047 OVC057 09/08 Q1022 NOSIGLBSF2019-09-20T01:00:00Z42.723.429.08.028076.2130.177166TRUE-RAVFRMETAR530.02019-09-20 01:08:45L3)5    3LBWN 200100Z 32007KT 300V360 9999 -RA OVC047 14/10 Q1019 TEMPO 5000 RALBWN2019-09-20T01:00:00Z43.2227.8214.010.032076.2130.088583-RAVFRMETAR43.02019-09-20 01:08:45 cLc3<(e5    3OMAL 200100Z 16011KT CAVOK 31/13 Q1008 NOSIGOMAL2019-09-20T01:00:00Z24.2555.631.013.0160116.2129.763779TRUEVFRMETAR262.02019-09-20 01:08:459;(u5    3OMDB 200100Z 13008KT 100V160 CAVOK 32/22 Q1006 NOSIGOMDB2019-09-20T01:00:00Z25.2555.3732.022.013086.2129.704725TRUEVFRMETAR5.02019-09-20 01:08:450:(e5    3OMDW 200100Z 09008KT CAVOK 26/21 Q1007 NOSIGOMDW2019-09-20T01:00:00Z24.955.1726.021.09086.2129.734253TRUEVFRMETAR25.02019-09-20 01:08:4559(q5    3OMFJ 200100Z 29001KT 4000 HZ NSC 29/22 Q1006 A2972OMFJ2019-09-20T01:00:00Z25.156.3229.022.029012.4929.704725HZIFRMETAR28.02019-09-20 01:08:45.8(e5   3OMRK 200100Z 19005KT CAVOK 27/20 Q1006 A2972OMRK2019-09-20T01:00:00Z25.6255.9227.020.019056.2129.704725VFRMETAR31.02019-09-20 01:08:45 6E6KA)5    3YESP 200100Z AUTO 28010KT 9999 // SCT009 SCT029 BKN035 09/08 Q1025YESP2019-09-20T01:00:00Z-33.68121.829.08.0280106.2130.265747TRUEVFRSPECI143.02019-09-20 01:08:459@(q5    3TBPB 200100Z 13006KT 9999 SCT018 28/24 Q1010 NOSIGTBPB2019-09-20T01:00:00Z13.07-59.4828.024.013066.2129.822834TRUEVFRMETAR52.02019-09-20 01:08:45??(y5     3GOBD 200100Z 05007KT 8000 -RA SCT010 25/23 Q1012 NOSIGGOBD2019-09-20T01:00:00Z14.67-17.0725.023.05074.9729.88189TRUE-RAMVFRMETAR88.02019-09-20 01:08:454>(u5   3OMAA 200100Z VRB02KT CAVOK 30/26 Q1006 BECMG 15011KTOMAA2019-09-20T01:00:00Z24.4254.6330.026.0026.2129.704725VFRMETAR27.02019-09-20 01:08:455=(u5   3OMAD 200100Z 21002KT CAVOK 31/26 Q1006 BECMG 15010KTOMAD2019-09-20T01:00:00Z24.4254.4731.026.021026.2129.704725VFRMETAR3.02019-09-20 01:08:45 0H0=F(u5    3YBWP 200100Z AUTO 11013KT 9999 // OVC039 29/18 Q1014YBWP2019-09-20T01:00:00Z-12.68141.9229.018.0110136.2129.940945TRUEVFRMETAR12.02019-09-20 01:08:45AE) 5   3TUPJ 200100Z 12007KT 10SM SCT020 29/24 A2986 RMK Q1011 VIS35KMTUPJ2019-09-20T01:00:00Z18.43-64.5229.024.0120710.029.861221VFRMETAR4.02019-09-20 01:08:45MD)5    3ZMUB 200100Z VRB01MPS 9999 BKN100 06/01 Q1027 NOSIG RMK QFE661.9 74 MOPZMUB2019-09-20T01:00:00Z47.83106.786.01.0026.2130.324802TRUEVFRMETAR1330.02019-09-20 01:08:455C(o5    3TFFF 200100Z AUTO 11003KT 9999 FEW026 27/24 Q1010TFFF2019-09-20T01:00:00Z14.6-61.027.024.011036.2129.822834TRUEVFRMETAR5.02019-09-20 01:08:452B(g5   3SAZS 200100Z 32015KT 9999 FEW050 03/M03 Q1017SAZS2019-09-20T01:00:00Z-41.13-71.173.0-3.0320156.2130.029528VFRMETAR840.02019-09-20 01:08:45 C2xC8K(o5    3YCBA 200100Z AUTO 04015KT 9999 // NCD 26/06 Q1018YCBA2019-09-20T01:00:00Z-31.53145.826.06.040156.2130.059055TRUEVFRMETAR221.02019-09-20 01:08:458J(o5    3YCAR 200100Z AUTO 13018KT 9999 // NCD 17/04 Q1024YCAR2019-09-20T01:00:00Z-24.88113.6717.04.0130186.2130.236221TRUEVFRMETAR8.02019-09-20 01:08:453I(u5   3YBWX 200100Z AUTO 15018KT //// // ////// 23/08 Q1018YBWX2019-09-20T01:00:00Z-20.88115.423.08.01501830.059055TRUEMETAR6.02019-09-20 01:08:454H(q5    3UBBB 200100Z 32010KT CAVOK 20/16 Q1016 R88/D NOSIGUBBB2019-09-20T01:00:00Z40.4550.0720.016.0320106.2130.0TRUEVFRMETAR-6.02019-09-20 01:08:45HG)5    3WSSS 200100Z 14011KT 120V180 9999 FEW018 BKN300 29/24 Q1012 NOSIGWSSS2019-09-20T01:00:00Z1.37103.9729.024.0140116.2129.88189TRUEVFRMETAR16.02019-09-20 01:08:45  = UP)!5   3RJKI 200100Z AUTO 10013G24KT 070V140 9999 FEW011 SCT019 BKN021 30/27 Q1005RJKI2019-09-20T01:00:00Z28.32129.9230.027.010013246.2129.675198TRUEMVFRMETAR6.02019-09-20 01:08:45=O)5   3RJNK 200100Z 04014KT 9999 FEW050 SCT180 BKN220 24/11 Q1017RJNK2019-09-20T01:00:00Z36.37136.4224.011.040146.2130.029528VFRMETAR9.02019-09-20 01:08:45?N)5   3RJNS 200100Z 08010KT 040V110 9999 FEW030 SCT/// 25/17 Q1015RJNS2019-09-20T01:00:00Z34.8138.1825.017.080106.2129.970472VFRMETAR135.02019-09-20 01:08:454M(s5   3RJNT 200100Z VRB02KT 9999 FEW040 BKN/// 21/11 Q1018RJNT2019-09-20T01:00:00Z36.63137.1721.011.0026.2130.059055VFRMETAR27.02019-09-20 01:08:45=L)5   3YCAS 200100Z AUTO 03006KT 360V060 //// // ////// 23/12 Q1025YCAS2019-09-20T01:00:00Z-28.88153.0723.012.030630.265747TRUEMETAR26.02019-09-20 01:08:45 ;w[U)5    3KNEL 200100Z AUTO 00000KT 10SM CLR 11/09 A3029 RMK AO2 SLP256 T01060089 $KNEL2019-09-20T01:00:00Z40.02-74.3310.68.90010.030.289371025.6TRUETRUETRUEVFRMETAR31.02019-09-20 01:08:459T(o5    3YCBB 200100Z AUTO 02014KT 9999 // NCD 22/09 Q1023YCBB2019-09-20T01:00:00Z-31.33149.2722.09.020146.2130.206694TRUEVFRMETAR645.02019-09-20 01:08:45>S(u5    3YCBP 200100Z AUTO 21025KT 9999 // BKN021 14/07 Q1014YCBP2019-09-20T01:00:00Z-29.03134.7214.07.0210256.2129.940945TRUEMVFRMETAR226.02019-09-20 01:08:45>R(5    3RJGG 200100Z 33009KT 9999 FEW030 BKN/// 23/14 Q1015 NOSIGRJGG2019-09-20T01:00:00Z34.87136.823.014.033096.2129.970472TRUEVFRMETAR5.02019-09-20 01:08:45?Q)5   3RJKA 200100Z 10016KT 9999 FEW013 BKN020 BKN/// 29/27 Q1005RJKA2019-09-20T01:00:00Z28.42129.7229.027.0100166.2129.675198MVFRMETAR7.02019-09-20 01:08:45 C+Y(Y5   3SASJ 200100Z 18019KT CAVOK 20/03 Q1014SASJ2019-09-20T01:00:00Z-24.37-65.120.03.0180196.2129.940945VFRMETAR1167.02019-09-20 01:08:45QX)%5    3VOML 200100Z 00000KT 1000 R24/2000 BR FEW002 BKN090 25/23 Q1009 TEMPO 800 FGVOML2019-09-20T01:00:00Z12.9774.8825.023.0000.6229.793306BRLIFRMETAR103.02019-09-20 01:08:45;W(}5    3UKHH 200100Z VRB01MPS CAVOK 05/04 Q1017 R25/0///81 NOSIGUKHH2019-09-20T01:00:00Z49.9236.285.04.0026.2130.029528TRUEVFRMETAR155.02019-09-20 01:08:457V(s5    3UKBB 200100Z 22003MPS CAVOK 06/05 Q1018 R88/D NOSIGUKBB2019-09-20T01:00:00Z50.3330.96.05.022066.2130.059055TRUEVFRMETAR119.02019-09-20 01:08:45 Y<^(}5    3UKDD 200100Z 28002MPS CAVOK 06/01 Q1018 R08/090070 NOSIGUKDD2019-09-20T01:00:00Z48.3735.16.01.028046.2130.059055TRUEVFRMETAR149.02019-09-20 01:08:45;](}5    3UKOO 200100Z 02002MPS CAVOK 12/03 Q1020 R16/090060 NOSIGUKOO2019-09-20T01:00:00Z46.4230.6812.03.02046.2130.11811TRUEVFRMETAR35.02019-09-20 01:08:45<\(5    3UKDE 200100Z 00000MPS CAVOK 07/03 Q1019 R02R/////// NOSIGUKDE2019-09-20T01:00:00Z47.8735.327.03.0006.2130.088583TRUEVFRMETAR113.02019-09-20 01:08:454[(o5    3YCCY 200100Z AUTO 36015KT 9999 // NCD 31/06 Q1016YCCY2019-09-20T01:00:00Z-20.67140.531.06.0360156.2130.0TRUEVFRMETAR570.02019-09-20 01:08:45gZ)=5    3PKWA 200100Z AUTO 26009G12KT 10SM -RA SCT016 SCT022 BKN050 30/25 A2979 RMK AO2 T03040248PKWA2019-09-20T01:00:00Z8.72167.7230.424.826091210.029.790354TRUETRUE-RAVFRMETAR8.02019-09-20 01:08:45 /<y/Rc)!5    3KCXO 200100Z 13008KT 10SM OVC008 23/22 A2989 RMK AO2 CIG 006V011 T02330222KCXO2019-09-20T01:00:00Z30.35-95.4223.322.2130810.029.890747TRUEIFRMETAR75.02019-09-20 01:08:45=b)5   3WSSL 200100Z 12006KT 080V170 9999 SCT018 BKN280 29/24 Q1012WSSL2019-09-20T01:00:00Z1.42103.8729.024.012066.2129.88189VFRMETAR14.02019-09-20 01:08:45)a(Y5   3SAWE 200100Z 32011KT CAVOK 02/00 Q0986SAWE2019-09-20T01:00:00Z-53.78-67.752.00.0320116.2129.114174VFRMETAR22.02019-09-20 01:08:45=`(}5    3UKDR 200100Z 26001MPS CAVOK 05/01 Q1019 R18/09//70 NOSIGUKDR2019-09-20T01:00:00Z48.0533.225.01.026026.2130.088583TRUEVFRMETAR124.02019-09-20 01:08:45>_(5    3UKLL 200100Z 30004MPS 9999 BKN046 06/05 Q1023 R31/D NOSIGUKLL2019-09-20T01:00:00Z49.8223.936.05.030086.2130.206694TRUEVFRMETAR325.02019-09-20 01:08:45 +Y6h(k5    3GMAD 200100Z 21005KT 8000 NSC 17/14 Q1014 NOSIGGMAD2019-09-20T01:00:00Z30.32-9.4217.014.021054.9729.940945TRUEMVFRMETAR74.02019-09-20 01:08:45Cg)5    3NCRG 200100Z AUTO 15004KT 060V220 9999 OVC060/// 24/14 Q1012NCRG2019-09-20T01:00:00Z-21.2-159.8224.014.015046.2129.88189TRUEVFRMETAR7.02019-09-20 01:08:450f(e5    3SYCJ 200100Z 03004KT CAVOK 26/25 Q1010 NOSIGSYCJ2019-09-20T01:00:00Z6.5-58.2526.025.03046.2129.822834TRUEVFRMETAR30.02019-09-20 01:08:45Le) 5    3KRNP 200100Z AUTO 14003KT 10SM CLR 20/16 A3012 RMK AO2 T01980161KRNP2019-09-20T01:00:00Z43.0-84.1319.816.1140310.030.121063TRUETRUEVFRMETAR224.02019-09-20 01:08:45Od)5     3KTAN 200100Z AUTO 00000KT 1 1/4SM BR CLR 07/06 A3027 RMK AO2 T00720061KTAN2019-09-20T01:00:00Z41.88-71.027.26.1001.2530.268702TRUETRUEBRIFRMETAR7.02019-09-20 01:08:45 XG'XIm)5    3EPKT 200100Z VRB02KT 1000 0250E R27/0800D BCFG BR NSC 02/02 Q1026EPKT2019-09-20T01:00:00Z50.4719.082.02.0020.6230.295275BCFG BRLIFRMETAR284.02019-09-20 01:08:45$l(Y5   3EPBY 200100Z 25005KT CAVOK 05/04 Q1025EPBY2019-09-20T01:00:00Z53.118.05.04.025056.2130.265747VFRMETAR71.02019-09-20 01:08:45/k(e5    3GMTT 200100Z VRB01KT CAVOK 19/16 Q1015 NOSIGGMTT2019-09-20T01:00:00Z35.72-5.919.016.0016.2129.970472TRUEVFRMETAR21.02019-09-20 01:08:45;j(q5    3NTAA 200100Z 23015KT 9999 SCT026 27/21 Q1010 NOSIGNTAA2019-09-20T01:00:00Z-17.55-149.6227.021.0230156.2129.822834TRUEVFRMETAR2.02019-09-20 01:08:453i(e5    3GMFF 200100Z 21003KT CAVOK 19/14 Q1018 NOSIGGMFF2019-09-20T01:00:00Z33.92-4.9719.014.021036.2130.059055TRUEVFRMETAR579.02019-09-20 01:08:45 ISSI.r(e5   3TQPF 200100Z 10008KT 9999 FEW020 28/22 Q1012TQPF2019-09-20T01:00:00Z18.18-63.0328.022.010086.2129.88189VFRMETAR31.02019-09-20 01:08:45'q(Y5   3EPMO 200100Z 26007KT CAVOK 04/03 Q1024EPMO2019-09-20T01:00:00Z52.4520.654.03.026076.2130.236221VFRMETAR104.02019-09-20 01:08:45#p(Y5   3EPSC 200100Z VRB01KT CAVOK 07/06 Q1026EPSC2019-09-20T01:00:00Z53.5814.97.06.0016.2130.295275VFRMETAR47.02019-09-20 01:08:45zo)M5      3KTCS 200100Z AUTO 33007KT 10SM -RA FEW035 BKN075 BKN090 22/15 A2997 RMK AO2 T02170150 TSNO PNO $KTCS2019-09-20T01:00:00Z33.23-107.2721.715.0330710.029.970472TRUETRUETRUETRUE-RAVFRMETAR1469.02019-09-20 01:08:45'n(Y5   3EPLB 200100Z 28006KT CAVOK 05/04 Q1023EPLB2019-09-20T01:00:00Z51.2322.725.04.028066.2130.206694VFRMETAR206.02019-09-20 01:08:45 STv)5     3YTRE 200100Z AUTO 04010KT 9999 -SHRA SCT022 BKN029 BKN036 19/15 Q1026YTRE2019-09-20T01:00:00Z-31.88152.5219.015.040106.2130.295275TRUE-SHRAMVFRMETAR12.02019-09-20 01:08:458u(o5    3YWGT 200100Z AUTO 02011KT 9999 // NCD 22/11 Q1020YWGT2019-09-20T01:00:00Z-36.42146.322.011.020116.2130.11811TRUEVFRMETAR153.02019-09-20 01:08:459t(u5   3YWHA 200100Z AUTO 18008KT 9999 // ////// 17/12 Q1013YWHA2019-09-20T01:00:00Z-33.07137.5217.012.018086.2129.911417TRUEMETAR13.02019-09-20 01:08:45hs)W5   3YWLM 200100Z 05011KT 9999 SCT031 22/14 Q1025 FM0330 05018G28KT 9999 SCT030 FM0330 MOD TURB BLW 5000FTYWLM2019-09-20T01:00:00Z-32.8151.8322.014.050116.2130.265747VFRMETAR9.02019-09-20 01:08:45 M>| M8{(o5    3YMOR 200100Z AUTO 05016KT 9999 // NCD 25/09 Q1023YMOR2019-09-20T01:00:00Z-29.5149.8525.09.050166.2130.206694TRUEVFRMETAR214.02019-09-20 01:08:45:z(o5    3YSTW 200100Z AUTO 32005KT 9999 // NCD 25/10 Q1024YSTW2019-09-20T01:00:00Z-31.07150.8525.010.032056.2130.236221TRUEVFRMETAR410.02019-09-20 01:08:45+y(Y5   3YSWG 200100Z 06011KT CAVOK 23/11 Q1021YSWG2019-09-20T01:00:00Z-35.13147.4723.011.060116.2130.147638VFRMETAR213.02019-09-20 01:08:45(Y5   3LKKV 200100Z 10001KT CAVOK 01/01 Q1028LKKV2019-09-20T01:00:00Z50.212.921.01.010016.2130.35433VFRMETAR604.02019-09-20 01:08:451=(e5    3LKMT 200100Z 19003KT CAVOK 06/04 Q1027 NOSIGLKMT2019-09-20T01:00:00Z49.6718.126.04.019036.2130.324802TRUEVFRMETAR256.02019-09-20 01:08:45B<)5   3RPVM 200100Z 23011KT 9999 FEW020 OVC250 30/24 Q1011 RMK A2985RPVM2019-09-20T01:00:00Z10.32123.9830.024.0230116.2129.852362VFRMETAR10.02019-09-20 01:08:45 5Cs58E)5   3RJOC 200100Z 09007KT 060V160 9999 FEW030 BKN/// 20/14 Q1016RJOC2019-09-20T01:00:00Z35.42132.8720.014.09076.2130.0VFRMETAR5.02019-09-20 01:08:457D(s5    3TNCM 200100Z 07006KT 9999 FEW020 29/24 Q1012 NOSIG TNCM2019-09-20T01:00:00Z18.05-63.1229.024.07066.2129.88189TRUEVFRMETAR4.02019-09-20 01:08:45=C)5   3RJOH 200100Z 08016KT 9999 FEW035 BKN180 BKN220 24/13 Q1017RJOH2019-09-20T01:00:00Z35.47133.2524.013.080166.2130.029528VFRMETAR9.02019-09-20 01:08:45JB)5    3BIKF 200100Z 18017KT 0500 R19/1100N -DZ FG VV002 11/11 Q1001BIKF2019-09-20T01:00:00Z63.98-22.611.011.0180170.3129.557087-DZ FGLIFR200METAR54.02019-09-20 01:08:457A(m5    3BIRK 200100Z 17012KT 9999 -DZ OVC006 11/10 Q1002BIRK2019-09-20T01:00:00Z64.13-21.9311.010.0170126.2129.586615-DZIFRMETAR61.02019-09-20 01:08:45 A@~ AEJ) 5    3RJSD 200100Z AUTO VRB02KT 9999 FEW036 BKN038 OVC040 20/16 Q1018RJSD2019-09-20T01:00:00Z38.03138.4220.016.0026.2130.059055TRUEVFRMETAR26.02019-09-20 01:08:45(I(Y5   3SULS 200100Z 17008KT CAVOK 11/03 Q1015SULS2019-09-20T01:00:00Z-34.87-55.111.03.017086.2129.970472VFRMETAR30.02019-09-20 01:08:45>H)5   3RJNW 200100Z 07004KT 020V100 9999 FEW030 BKN/// 20/12 Q1018RJNW2019-09-20T01:00:00Z37.3136.9720.012.07046.2130.059055VFRMETAR219.02019-09-20 01:08:45T)5   3RJOK 200100Z 34009KT 9999 FEW020 BKN100 BKN130 24/12 Q1014RJOK2019-09-20T01:00:00Z33.52133.6724.012.034096.2129.940945VFRMETAR10.02019-09-20 01:08:45FS) 5    3RJOM 200100Z 27004KT 9999 VCSH FEW025 SCT060 BKN120 23/15 Q1015RJOM2019-09-20T01:00:00Z33.82132.6823.015.027046.2129.970472VCSHVFRMETAR7.02019-09-20 01:08:459R)5   3RJOO 200100Z 03004KT 290V080 9999 FEW030 BKN/// 24/14 Q1016RJOO2019-09-20T01:00:00Z34.77135.4324.014.03046.2130.0VFRMETAR15.02019-09-20 01:08:45?Q)5   3RJOR 200100Z 10006KT 060V130 9999 FEW040 BKN/// 21/14 Q1017RJOR2019-09-20T01:00:00Z35.52134.1721.014.010066.2130.029528VFRMETAR18.02019-09-20 01:08:45@P)5   3RJOS 200100Z 04006KT 010V080 9999 FEW030 BKN150 BKN/// 23/13 Q1016RJOS2019-09-20T01:00:00Z34.12134.6223.013.04066.2130.0VFRMETAR11.02019-09-20 01:08:45 P7|P%Y(Y5   3LQMO 200100Z VRB02KT CAVOK 14/03 Q1019LQMO2019-09-20T01:00:00Z43.2817.8314.03.0026.2130.088583VFRMETAR48.02019-09-20 01:08:45,X(e5   3LQSA 200100Z VRB01KT 8000 BKN070 08/07 Q1025LQSA2019-09-20T01:00:00Z43.8218.328.07.0014.9730.265747MVFRMETAR511.02019-09-20 01:08:45IW)5    3YABA 200100Z 26006KT 230V290 4000 -SHRA SCT025 BKN040 11/07 Q1027YABA2019-09-20T01:00:00Z-34.93117.811.07.026062.4930.324802-SHRAIFRMETAR69.02019-09-20 01:08:455V(s5   3RJSF 200100Z VRB02KT 9999 FEW030 BKN/// 19/10 Q1018RJSF2019-09-20T01:00:00Z37.22140.4219.010.0026.2130.059055VFRMETAR375.02019-09-20 01:08:45CU(5   3YBAS 200100Z 33023G34KT 9999 1000SE BLDU NSC 32/M04 Q1011YBAS2019-09-20T01:00:00Z-23.8133.932.0-4.033023346.2129.852362BLDUVFRMETAR541.02019-09-20 01:08:45 OJ O8^(o5    3YBCG 200100Z AUTO 10010KT 9999 // NCD 24/13 Q1025YBCG2019-09-20T01:00:00Z-28.17153.524.013.0100106.2130.265747TRUEVFRMETAR6.02019-09-20 01:08:45:])5   3RJSI 200100Z 29005KT 260V340 9999 FEW025 BKN/// 19/10 Q1016RJSI2019-09-20T01:00:00Z39.42141.1219.010.029056.2130.0VFRMETAR93.02019-09-20 01:08:45B\)5   3RJSK 200100Z 29012KT 260V320 9999 FEW035 SCT045 BKN/// 21/11 Q1016RJSK2019-09-20T01:00:00Z39.62140.2221.011.0290126.2130.0VFRMETAR96.02019-09-20 01:08:45/[(e5    3LKPR 200100Z 22006KT CAVOK 04/02 Q1028 NOSIGLKPR2019-09-20T01:00:00Z50.114.274.02.022066.2130.35433TRUEVFRMETAR365.02019-09-20 01:08:450Z(e5    3LKTB 200100Z 34003KT CAVOK 06/02 Q1028 NOSIGLKTB2019-09-20T01:00:00Z49.1316.686.02.034036.2130.35433TRUEVFRMETAR246.02019-09-20 01:08:45 @/{@:c(o5     3LFLY 200100Z AUTO 35005KT CAVOK 13/05 Q1023 NOSIGLFLY2019-09-20T01:00:00Z45.724.9513.05.035056.2130.206694TRUETRUEVFRMETAR201.02019-09-20 01:08:458b(s5    3LFMK 200100Z AUTO 09004KT 060V130 CAVOK 18/17 Q1019LFMK2019-09-20T01:00:00Z43.222.3218.017.09046.2130.088583TRUEVFRMETAR130.02019-09-20 01:08:457a(o5     3LFMT 200100Z AUTO 03007KT CAVOK 17/09 Q1019 NOSIGLFMT2019-09-20T01:00:00Z43.573.9717.09.03076.2130.088583TRUETRUEVFRMETAR6.02019-09-20 01:08:45.`(e5   3PLCH 200100Z 11005KT 9999 FEW020 30/23 Q1007PLCH2019-09-20T01:00:00Z1.98-157.3530.023.011056.2129.734253VFRMETAR3.02019-09-20 01:08:45K_)5   3YBBN 200100Z 14009KT 9999 FEW030 23/16 Q1025 FM0200 07012KT 9999 SCT030YBBN2019-09-20T01:00:00Z-27.38153.1323.016.014096.2130.265747VFRMETAR5.02019-09-20 01:08:45 eJ"e7h(o5     3LFLC 200100Z AUTO VRB02KT CAVOK 09/01 Q1022 NOSIGLFLC2019-09-20T01:00:00Z45.773.179.01.0026.2130.177166TRUETRUEVFRMETAR330.02019-09-20 01:08:45/g(c5    3LFLS 200100Z AUTO 13003KT CAVOK 09/06 Q1022LFLS2019-09-20T01:00:00Z45.375.329.06.013036.2130.177166TRUEVFRMETAR386.02019-09-20 01:08:455f(o5    3LFMP 200100Z AUTO 07004KT 9999 BKN056 19/16 Q1019LFMP2019-09-20T01:00:00Z42.722.8719.016.07046.2130.088583TRUEVFRMETAR48.02019-09-20 01:08:452e(o5    3LFMV 200100Z AUTO 35003KT 9999 BKN054 18/06 Q1020LFMV2019-09-20T01:00:00Z43.94.918.06.035036.2130.11811TRUEVFRMETAR38.02019-09-20 01:08:450d(c5    3LFSL 200100Z AUTO 13003KT CAVOK 16/03 Q1019LFSL2019-09-20T01:00:00Z45.031.4816.03.013036.2130.088583TRUEVFRMETAR310.02019-09-20 01:08:45 VCV9m(o5     3LFCR 200100Z AUTO 08005KT CAVOK 15/06 Q1021 NOSIGLFCR2019-09-20T01:00:00Z44.382.4715.06.08056.2130.147638TRUETRUEVFRMETAR580.02019-09-20 01:08:459l(o5     3LFJL 200100Z AUTO 06010KT CAVOK 07/01 Q1027 NOSIGLFJL2019-09-20T01:00:00Z48.976.257.01.060106.2130.324802TRUETRUEVFRMETAR264.02019-09-20 01:08:45-k(c5    3LFKC 200100Z AUTO VRB02KT CAVOK 19/17 Q1018LFKC2019-09-20T01:00:00Z42.528.819.017.0026.2130.059055TRUEVFRMETAR58.02019-09-20 01:08:456j(s5    3LFKF 200100Z AUTO 07007KT 040V100 CAVOK 21/18 Q1018LFKF2019-09-20T01:00:00Z41.59.0821.018.07076.2130.059055TRUEVFRMETAR23.02019-09-20 01:08:457i(o5     3LFKJ 200100Z AUTO 05004KT CAVOK 20/17 Q1018 NOSIGLFKJ2019-09-20T01:00:00Z41.928.820.017.05046.2130.059055TRUETRUEVFRMETAR9.02019-09-20 01:08:45 2?2?r)5   3RJAH 200100Z 35003KT 260V020 9999 FEW030 BKN250 23/13 Q1017RJAH2019-09-20T01:00:00Z36.17140.4223.013.035036.2130.029528VFRMETAR35.02019-09-20 01:08:45Aq) 5    3RJBB 200100Z 04009KT 9999 FEW035 SCT180 BKN/// 23/14 Q1016 NOSIGRJBB2019-09-20T01:00:00Z34.42135.2523.014.04096.2130.0TRUEVFRMETAR8.02019-09-20 01:08:45Fp) 5    3RJBD 200100Z VRB02KT 9999 VCSH FEW025 SCT040 BKN110 24/17 Q1015RJBD2019-09-20T01:00:00Z33.67135.3724.017.0026.2129.970472VCSHVFRMETAR108.02019-09-20 01:08:45/o(s5   3RJBE 200100Z 07009KT 9999 FEW035 BKN/// 23/13 Q1016RJBE2019-09-20T01:00:00Z34.63135.2323.013.07096.2130.0VFRMETAR5.02019-09-20 01:08:45;n)5   3RJBT 200100Z VRB02KT 9999 FEW030 SCT160 BKN/// 20/15 Q1017RJBT2019-09-20T01:00:00Z35.5134.820.015.0026.2130.029528VFRMETAR210.02019-09-20 01:08:45 5g^v)-5    3RORY 200100Z AUTO 12024G35KT 9999 -RA SCT016 BKN020 BKN034 //////TCU 27/25 Q1001RORY2019-09-20T01:00:00Z27.05128.427.025.012024356.2129.557087TRUE-RAMVFRMETAR16.02019-09-20 01:08:45Tu)5    3ROYN 200100Z AUTO 34036G46KT 5000 -RA BR BKN016 OVC023 26/23 Q1003ROYN2019-09-20T01:00:00Z24.47122.9726.023.034036463.1129.616142TRUE-RA BRMVFRMETAR17.02019-09-20 01:08:45Ht)5    3RJAA 200100Z 03005KT 340V080 9999 FEW025 BKN/// 24/16 Q1017 NOSIGRJAA2019-09-20T01:00:00Z35.77140.3724.016.03056.2130.029528TRUEVFRMETAR44.02019-09-20 01:08:45Es)5   3RJAF 200100Z 03004KT 330V080 9999 FEW030 SCT200 BKN/// 18/09 Q1019RJAF2019-09-20T01:00:00Z36.17137.9218.09.03046.2130.088583VFRMETAR660.02019-09-20 01:08:45 BuFz)5   3ROMD 200100Z AUTO 14019G30KT 9999 BKN029 BKN160 30/25 Q1004ROMD2019-09-20T01:00:00Z25.82131.2230.025.014019306.2129.64567TRUEMVFRMETAR15.02019-09-20 01:08:45Fy)5   3ROMY 200100Z 01016G27KT 9999 VCSH SCT010 BKN015 27/26 Q0996ROMY2019-09-20T01:00:00Z24.77125.2727.026.01016276.2129.409449VCSHMVFRMETAR41.02019-09-20 01:08:45Gx) 5    3RORK 200100Z AUTO 13030KT 9000 FEW032 BKN034 OVC170 30/25 Q1004RORK2019-09-20T01:00:00Z25.92131.3230.025.0130305.5929.64567TRUEVFRMETAR22.02019-09-20 01:08:458w(s5   3RORS 200100Z 36024KT 9999 SCT010 BKN020 28/26 Q0996RORS2019-09-20T01:00:00Z24.82125.1528.026.0360246.2129.409449MVFRMETAR16.02019-09-20 01:08:45 #P=)5   3RJTI 200100Z 04006KT 010V070 9999 FEW035 SCT/// 23/16 Q1017RJTI2019-09-20T01:00:00Z35.63139.8323.016.04066.2130.029528VFRMETAR8.02019-09-20 01:08:45*~(e5   3RJTO 200100Z 03015KT 9999 FEW020 24/18 Q1016RJTO2019-09-20T01:00:00Z34.77139.3724.018.030156.2130.0VFRMETAR41.02019-09-20 01:08:45>}(5    3RJTT 200100Z 04009KT 9999 FEW025 BKN/// 23/16 Q1017 NOSIGRJTT2019-09-20T01:00:00Z35.53139.7723.016.04096.2130.029528TRUEVFRMETAR8.02019-09-20 01:08:45M|)5   3ROAH 200100Z 11017G28KT 9999 VCSH FEW007 BKN020 BKN080 29/26 Q0998ROAH2019-09-20T01:00:00Z26.17127.6529.026.011017286.2129.468504VCSHMVFRMETAR8.02019-09-20 01:08:45W{)#5   3ROIG 200100Z 35018G33KT 320V020 7000 -SHRA FEW007 BKN011 BKN020 26/26 Q0997ROIG2019-09-20T01:00:00Z24.32124.1726.026.035018334.3529.438976-SHRAMVFRMETAR7.02019-09-20 01:08:45 4Y[)95    3VTSG 200100Z 12003KT 080V150 5000 BCFG SCT020 SCT100 25/25 Q1012 BECMG TL0230 9999 NSWVTSG2019-09-20T01:00:00Z8.198.9825.025.012033.1129.88189BCFGMVFRMETAR25.02019-09-20 01:08:455(q5    3VTSP 200100Z VRB02KT 9999 FEW020 27/24 Q1013 NOSIGVTSP2019-09-20T01:00:00Z8.1298.3227.024.0026.2129.911417TRUEVFRMETAR10.02019-09-20 01:08:45U)#5     3VTSS 200100Z 12003KT 090V260 1500 BR SCT005 SCT020 BKN100 25/25 Q1011 NOSIGVTSS2019-09-20T01:00:00Z6.92100.3825.025.012030.9329.852362TRUEBRLIFRMETAR35.02019-09-20 01:08:45F)5   3RJTF 200100Z 36007KT 330V050 9999 FEW020 SCT030 BKN/// 23/14 Q1017RJTF2019-09-20T01:00:00Z35.67139.5223.014.036076.2130.029528VFRMETAR44.02019-09-20 01:08:45 C}H)5    3VTBS 200100Z 05004KT 020V090 7000 FEW008 SCT015 26/24 Q1010 NOSIGVTBS2019-09-20T01:00:00Z13.68100.7526.024.05044.3529.822834TRUEMVFRMETAR2.02019-09-20 01:08:45_);5    3VTBU 200100Z 25003KT 6000 -SHRA FEW018 SCT035 BKN100 26/23 Q1010 TEMPO TL0115 4000 SHRAVTBU2019-09-20T01:00:00Z12.68101.026.023.025033.7329.822834-SHRAMVFRMETAR5.02019-09-20 01:08:45@(5    3VTCC 200100Z 06003KT 8000 FEW015 BKN035 25/23 Q1014 NOSIGVTCC2019-09-20T01:00:00Z18.7798.9725.023.06034.9729.940945TRUEMVFRMETAR314.02019-09-20 01:08:457(q5    3VTCT 200100Z VRB02KT 7000 BKN005 24/24 Q1013 NOSIGVTCT2019-09-20T01:00:00Z19.9599.8824.024.0024.3529.911417TRUEIFRMETAR390.02019-09-20 01:08:45 .4x.2 (s5   3RJSR 200100Z 28012KT 9999 FEW040 BKN050 19/11 Q1016RJSR2019-09-20T01:00:00Z40.18140.3719.011.0280126.2130.0VFRMETAR87.02019-09-20 01:08:45@ )5   3RJSS 200100Z 25004KT 210V290 9999 FEW030 BKN050 BKN/// 21/12 Q1016RJSS2019-09-20T01:00:00Z38.12140.9221.012.025046.2130.0VFRMETAR5.02019-09-20 01:08:45F )5   3RJSY 200100Z 28009KT 250V330 9999 FEW030 SCT050 BKN/// 22/11 Q1017RJSY2019-09-20T01:00:00Z38.82139.7722.011.028096.2130.029528VFRMETAR22.02019-09-20 01:08:456 (s5   3VQPR 200100Z 16003KT 9999 SCT020 BKN080 15/12 Q1024VQPR2019-09-20T01:00:00Z27.489.4315.012.016036.2130.236221VFRMETAR2235.02019-09-20 01:08:45F)5    3VTBD 200100Z VRB02KT 4000 BR FEW010 26/25 Q1010 BECMG TL0140 5000 BRVTBD2019-09-20T01:00:00Z13.92100.626.025.0022.4929.822834BRIFRMETAR3.02019-09-20 01:08:45 O= O8(q5     3OPNH 200100Z 00000KT 4000 HZ NSC 25/20 Q1005 NOSIGOPNH2019-09-20T01:00:00Z26.2268.3725.020.0002.4929.675198TRUEHZIFRMETAR38.02019-09-20 01:08:457(u5   3SBRF 200100Z 10007KT 070V140 9999 SCT023 26/20 Q1015SBRF2019-09-20T01:00:00Z-8.13-34.9226.020.010076.2129.970472VFRMETAR19.02019-09-20 01:08:452(e5    3LEMO 200100Z 15005KT CAVOK 19/15 Q1015 NOSIGLEMO2019-09-20T01:00:00Z37.17-5.6219.015.015056.2129.970472TRUEVFRMETAR88.02019-09-20 01:08:455(s5   3RJSM 200100Z 29014KT 9999 FEW020 SCT040 20/07 Q1014RJSM2019-09-20T01:00:00Z40.7141.3720.07.0290146.2129.940945VFRMETAR36.02019-09-20 01:08:45= )5   3RJSN 200100Z 19009KT 9999 FEW020 SCT040 BKN050 20/12 Q1018RJSN2019-09-20T01:00:00Z37.95139.1220.012.019096.2130.059055VFRMETAR4.02019-09-20 01:08:45 b@b0(e5    3LYKV 200100Z 04002KT CAVOK 07/06 Q1025 NOSIGLYKV2019-09-20T01:00:00Z43.8220.587.06.04026.2130.265747TRUEVFRMETAR209.02019-09-20 01:08:450(e5    3LYBT 200100Z 30006KT CAVOK 07/03 Q1025 NOSIGLYBT2019-09-20T01:00:00Z44.9320.257.03.030066.2130.265747TRUEVFRMETAR80.02019-09-20 01:08:450(e5    3LYBE 200100Z 27003KT CAVOK 08/02 Q1025 NOSIGLYBE2019-09-20T01:00:00Z44.8220.288.02.027036.2130.265747TRUEVFRMETAR99.02019-09-20 01:08:456(w5   3YBDV 200100Z AUTO 02022KT //// // ////// 33/M10 Q1011YBDV2019-09-20T01:00:00Z-25.9139.3533.0-10.0202229.852362TRUEMETAR47.02019-09-20 01:08:45:(o5    3YBCV 200100Z AUTO 36016KT 9999 // NCD 28/08 Q1019YBCV2019-09-20T01:00:00Z-26.38146.2728.08.0360166.2130.088583TRUEVFRMETAR304.02019-09-20 01:08:45 F3|F.(e5    3LYVR 200100Z VRB01KT CAVOK 03/00 Q1024 NOSIGLYVR2019-09-20T01:00:00Z45.1321.323.00.0016.2130.236221TRUEVFRMETAR85.02019-09-20 01:08:45J)5   3EIDW 200100Z 13007KT 090V170 7000 FEW002 BKN003 11/11 Q1027 TEMPO 4000EIDW2019-09-20T01:00:00Z53.42-6.2511.011.013074.3530.324802LIFRMETAR85.02019-09-20 01:08:45,(c5    3LYUZ 200100Z AUTO VRB01KT CAVOK 03/00 Q1025LYUZ2019-09-20T01:00:00Z43.919.73.00.0016.2130.265747TRUEVFRMETAR904.02019-09-20 01:08:451(e5    3LYNI 200100Z 04001KT CAVOK 11/09 Q1024 NOSIGLYNI2019-09-20T01:00:00Z43.3221.8811.09.04016.2130.236221TRUEVFRMETAR202.02019-09-20 01:08:45G)5    3LYPG 200100Z 03011KT 350V060 9999 SCT040 BKN080 17/01 Q1019 NOSIGLYPG2019-09-20T01:00:00Z42.3719.2517.01.030116.2130.088583TRUEVFRMETAR43.02019-09-20 01:08:45Y88@HPX`hpx (08@HPX`hpx (08@HPX`hpxKmLrMvN{OPQ RSTUV#KmLrMvN{OPQ RSTUV#W(X-Y2Z7[;\@]E^J_O`TaYb^ccdhemfrgvhzijkl mnoq r%s*t/u4v9w>xCyGzK{O|S}X~]afkpuz "',16;@EJOTY^chmrw|  <I<< (u5    3YBRK 200100Z AUTO 08011KT 9999 // SCT048 26/12 Q1022YBRK2019-09-20T01:00:00Z-23.37150.4726.012.080116.2130.177166TRUEVFRMETAR14.02019-09-20 01:08:45;(q5    3YBMA 200100Z AUTO 01012KT 9999 // NCD 31/M02 Q1017YBMA2019-09-20T01:00:00Z-20.67139.4731.0-2.010126.2130.029528TRUEVFRMETAR344.02019-09-20 01:08:45D)5    3YBHM 200100Z AUTO 12019KT 9999 // SCT025 BKN033 24/18 Q1021YBHM2019-09-20T01:00:00Z-20.35148.9524.018.0120196.2130.147638TRUEVFRMETAR5.02019-09-20 01:08:45:({5   3EICK 200100Z 10008KT 9999 FEW003 13/12 Q1026 TEMPO 3000EICK2019-09-20T01:00:00Z51.85-8.4713.012.010086.2130.295275VFRMETAR162.02019-09-20 01:08:451(e5    3EINN 200100Z 10007KT CAVOK 12/10 Q1026 NOSIGEINN2019-09-20T01:00:00Z52.7-8.9212.010.010076.2130.295275TRUEVFRMETAR20.02019-09-20 01:08:45 QKQ7%(s5   3YMHB 200100Z 04013KT 9999 FEW050 BKN160 23/10 Q1015YMHB2019-09-20T01:00:00Z-42.82147.5223.010.040136.2129.970472VFRMETAR27.02019-09-20 01:08:45;$(o5    3YMLT 200100Z AUTO 34011KT 9999 // NCD 20/11 Q1019YMLT2019-09-20T01:00:00Z-41.52147.1820.011.0340116.2130.088583TRUEVFRMETAR178.02019-09-20 01:08:45E#)5   3YPEA 200100Z 12010KT CAVOK 13/06 Q1028 FM0200 14008KT 9999 SCT045YPEA2019-09-20T01:00:00Z-31.67116.0213.06.0120106.2130.35433VFRMETAR49.02019-09-20 01:08:45+"(e5   3YPGV 200100Z 09010KT 9999 SCT028 29/19 Q1016YPGV2019-09-20T01:00:00Z-12.27136.8229.019.090106.2130.0VFRMETAR55.02019-09-20 01:08:45/!(e5   3YBRM 200100Z 20009KT 9999 FEW020 26/19 Q1015YBRM2019-09-20T01:00:00Z-17.93122.2226.019.020096.2129.970472VFRMETAR9.02019-09-20 01:08:45 cE~c%*(Y5   3DAUG 200100Z 00000KT CAVOK 28/02 Q1017DAUG2019-09-20T01:00:00Z32.373.8228.02.0006.2130.029528VFRMETAR450.02019-09-20 01:08:45.)(e5   3DAOI 200100Z 29002KT 9999 FEW026 23/19 Q1015DAOI2019-09-20T01:00:00Z36.221.3223.019.029026.2129.970472VFRMETAR143.02019-09-20 01:08:456((s5   3SBGL 200100Z 14008KT 8000 FEW015 BKN023 24/20 Q1012SBGL2019-09-20T01:00:00Z-22.82-43.2524.020.014084.9729.88189MVFRMETAR6.02019-09-20 01:08:45A'(5    3YCIN 200100Z AUTO 23007KT 190V250 9999 // NCD 28/12 Q1014YCIN2019-09-20T01:00:00Z-17.58123.8328.012.023076.2129.940945TRUEVFRMETAR91.02019-09-20 01:08:455&(o5    3YFRT 200100Z AUTO /////KT 9999 // NCD 12/03 Q1021YFRT2019-09-20T01:00:00Z-30.83128.1212.03.06.2130.147638TRUEVFRMETAR156.02019-09-20 01:08:45 O3-/(e5   3DAAS 200100Z 04003KT 9999 SCT030 19/12 Q1020DAAS2019-09-20T01:00:00Z36.185.3319.012.04036.2130.11811VFRMETAR1038.02019-09-20 01:08:45-.(e5   3DABS 200100Z 12004KT 9999 FEW040 18/11 Q1020DABS2019-09-20T01:00:00Z35.438.1218.011.012046.2130.11811VFRMETAR813.02019-09-20 01:08:455-(s5   3DAOB 200100Z 22007KT 9999 SCT026 SCT093 21/19 Q1021DAOB2019-09-20T01:00:00Z35.331.4721.019.022076.2130.147638VFRMETAR989.02019-09-20 01:08:45(,([5   3DAUA 200100Z 06006KT CAVOK 29/M06 Q1012DAUA2019-09-20T01:00:00Z27.83-0.1829.0-6.06066.2129.88189VFRMETAR263.02019-09-20 01:08:45++(e5   3DAUB 200100Z 00000KT 9999 FEW040 26/12 Q1015DAUB2019-09-20T01:00:00Z34.785.7226.012.0006.2129.970472VFRMETAR87.02019-09-20 01:08:45 RR!RI4)5    3DABB 200100Z 12003KT 8000 -TSRA FEW023 FEW026CB SCT030 23/23 Q1015DABB2019-09-20T01:00:00Z36.827.8223.023.012034.9729.970472-TSRAMVFRMETAR4.02019-09-20 01:08:4533(s5   3DABC 200100Z VRB02KT 9999 FEW026 SCT100 20/19 Q1019DABC2019-09-20T01:00:00Z36.276.6220.019.0026.2130.088583VFRMETAR694.02019-09-20 01:08:4532(w5   3DAON 200100Z 25002KT 9999 SCT026 FEW030CB 21/18 Q1016DAON2019-09-20T01:00:00Z35.02-1.4721.018.025026.2130.0VFRMETAR247.02019-09-20 01:08:4591)5   3DAOO 200100Z 08003KT 6000 SCT010 FEW030CB SCT233 21/19 Q1016DAOO2019-09-20T01:00:00Z35.62-0.621.019.08033.7330.0MVFRMETAR90.02019-09-20 01:08:45(0(Y5   3DAUH 200100Z 12002KT CAVOK 28/10 Q1015DAUH2019-09-20T01:00:00Z31.676.1528.010.012026.2129.970472VFRMETAR142.02019-09-20 01:08:45 ]Q]89(q5    3VTSM 200100Z 29004KT 9999 FEW020 28/24 Q1011 NOSIGVTSM2019-09-20T01:00:00Z9.55100.0728.024.029046.2129.852362TRUEVFRMETAR17.02019-09-20 01:08:45;8(5    3VTSR 200100Z VRB02KT 9999 SCT025 SCT100 26/26 Q1011 NOSIGVTSR2019-09-20T01:00:00Z9.7898.5826.026.0026.2129.852362TRUEVFRMETAR8.02019-09-20 01:08:45;7(w5     3VTST 200100Z 00000KT 5000 FU FEW020 27/26 Q1010 NOSIGVTST2019-09-20T01:00:00Z7.5299.6227.026.0003.1129.822834TRUEFUMVFRMETAR16.02019-09-20 01:08:45.6(s5   3DAAG 200100Z 00000KT 5000 SCT010 SCT033 22/21 Q1016DAAG2019-09-20T01:00:00Z36.723.2222.021.0003.1130.0MVFRMETAR25.02019-09-20 01:08:45)5([5   3DAAT 200100Z 08006KT CAVOK 21/M07 Q1024DAAT2019-09-20T01:00:00Z22.825.4721.0-7.08066.2130.236221VFRMETAR1377.02019-09-20 01:08:45 &Au&5>(u5   3VTSB 200100Z 18004KT 140V220 9000 FEW020 26/25 Q1011VTSB2019-09-20T01:00:00Z9.1299.1326.025.018045.5929.852362VFRMETAR11.02019-09-20 01:08:45A=)5    3VTSC 200100Z 18007KT 150V210 6000 FEW018 26/24 Q1011 NOSIGVTSC2019-09-20T01:00:00Z6.52101.7526.024.018073.7329.852362TRUEMVFRMETAR6.02019-09-20 01:08:45G<)5    3VTSE 200100Z 25003KT 190V300 9999 FEW020 SCT100 27/24 Q1010 NOSIGVTSE2019-09-20T01:00:00Z10.7299.3727.024.025036.2129.822834TRUEVFRMETAR5.02019-09-20 01:08:45F;)5    3VTSF 200100Z 20005KT 170V240 9999 FEW020 SCT100 26/26 Q1011 NOSIGVTSF2019-09-20T01:00:00Z8.5399.9526.026.020056.2129.852362TRUEVFRMETAR4.02019-09-20 01:08:459:(w5     3VTSH 200100Z 00000KT 2000 BR FEW020 27/25 Q1010 NOSIGVTSH2019-09-20T01:00:00Z7.2100.5827.025.0001.2429.822834TRUEBRIFRMETAR5.02019-09-20 01:08:45 D9+C(e5   3DTTB 200100Z 31003KT 9999 FEW020 22/21 Q1017DTTB2019-09-20T01:00:00Z37.259.822.021.031036.2130.029528VFRMETAR3.02019-09-20 01:08:45'B(_5   3DTTD 200100Z AUTO 25003KT NCD 28/09 Q1017DTTD2019-09-20T01:00:00Z32.3210.428.09.0250330.029528TRUEMETAR301.02019-09-20 01:08:451A(u5   3DTTK 200100Z 01004KT 300V110 8000 FEW026 25/22 Q1016DTTK2019-09-20T01:00:00Z35.6710.0825.022.01044.9730.0MVFRMETAR68.02019-09-20 01:08:45!@(_5   3DTTL 200100Z AUTO VRB02KT NCD 24/22 Q1016DTTL2019-09-20T01:00:00Z36.8511.0724.022.00230.0TRUEMETAR30.02019-09-20 01:08:456?(q5    3TLPL 200100Z 00000KT 9999 FEW025 28/25 Q1011 NOSIGTLPL2019-09-20T01:00:00Z13.75-60.9528.025.0006.2129.852362TRUEVFRMETAR3.02019-09-20 01:08:45 .eMG)5    3UATG 200100Z 00000MPS CAVOK 08/M00 Q1019 R14/CLRD70 NOSIG RMK QFE766/1022UATG2019-09-20T01:00:00Z47.1251.838.00.0006.2130.088583TRUEVFRMETAR-22.02019-09-20 01:08:45HF)5    3UATT 200100Z 23002MPS CAVOK 03/01 Q1016 R13/CLRD70 NOSIG RMK QFE743/0990UATT2019-09-20T01:00:00Z50.2557.23.01.023046.2130.0TRUEVFRMETAR227.02019-09-20 01:08:45CE)5    3UAUU 200100Z 24006MPS CAVOK 06/04 Q1010 NOSIG RMK QFE742/0990UAUU2019-09-20T01:00:00Z53.263.556.04.0240126.2129.822834TRUEVFRMETAR182.02019-09-20 01:08:45LD)#5    3UAKD 200100Z 30003MPS 9999 NSC 12/06 Q1016 R22/0///65 NOSIG RMK QFE729/0972UAKD2019-09-20T01:00:00Z47.767.7312.06.030066.2130.0TRUEVFRMETAR381.02019-09-20 01:08:45 *SwOK)5    3UASP 200100Z 24007MPS CAVOK 17/05 Q1008 R21/0///70 NOSIG RMK QFE745/0993UASP2019-09-20T01:00:00Z52.277.0717.05.0240146.2129.763779TRUEVFRMETAR125.02019-09-20 01:08:45VJ)-5    3UASS 200100Z 09002MPS 070V210 CAVOK 14/05 Q1013 R26/0///60 NOSIG RMK QFE741/0988UASS2019-09-20T01:00:00Z50.3580.2314.05.09046.2129.911417TRUEVFRMETAR232.02019-09-20 01:08:45QI)#5    3UARR 200100Z 21004MPS 8000 NSC 03/02 Q1015 R22/CLRD70 NOSIG RMK QFE758/1011UARR2019-09-20T01:00:00Z51.1551.533.02.021084.9729.970472TRUEMVFRMETAR38.02019-09-20 01:08:45PH)#5    3UATE 200100Z 05004MPS 6000 NSC 13/07 Q1019 R30/0///70 NOSIG RMK QFE762/1017UATE2019-09-20T01:00:00Z43.8751.113.07.05083.7330.088583TRUEMVFRMETAR22.02019-09-20 01:08:45 .]RO))5     3UAII 200100Z 09001MPS 5000 FU NSC 15/06 Q1016 R28/0///70 NOSIG RMK QFE725/0966UAII2019-09-20T01:00:00Z42.3769.4815.06.09023.1130.0TRUEFUMVFRMETAR422.02019-09-20 01:08:45ON)5    3UAKK 200100Z 24004MPS CAVOK 13/06 Q1015 R23/0///70 NOSIG RMK QFE714/0953UAKK2019-09-20T01:00:00Z49.6773.3313.06.024086.2129.970472TRUEVFRMETAR538.02019-09-20 01:08:45KM)5    3UAOO 200100Z 00000MPS CAVOK 11/06 Q1017 R05/CLRD70 NOSIG RMK QFE751/1002UAOO2019-09-20T01:00:00Z44.765.611.06.0006.2130.029528TRUEVFRMETAR129.02019-09-20 01:08:45LL)#5    3UASK 200100Z 12003MPS 9999 NSC 12/08 Q1016 R30/090060 NOSIG RMK QFE736/0982UASK2019-09-20T01:00:00Z50.0382.512.08.012066.2130.0TRUEVFRMETAR286.02019-09-20 01:08:45 .PyAS)5    3UAAH 200100Z 04004MPS CAVOK 12/08 Q1014 NOSIG RMK QFE723/0965UAAH2019-09-20T01:00:00Z46.975.012.08.04086.2129.940945TRUEVFRMETAR441.02019-09-20 01:08:45QR)#5    3UADD 200100Z 19003MPS 9999 NSC 14/05 Q1019 R13/0///65 NOSIG RMK QFE707/0943UADD2019-09-20T01:00:00Z42.8571.314.05.019066.2130.088583TRUEVFRMETAR665.02019-09-20 01:08:45XQ)55   3UACC 200100Z 25006MPS CAVOK 10/01 Q1013 R22/0///70 TEMPO 26007G12MPS RMK QFE728/0971UACC2019-09-20T01:00:00Z51.0271.4710.01.0250126.2129.911417VFRMETAR355.02019-09-20 01:08:45LP)5    3UACP 200100Z 24008MPS 9999 BKN035CB 09/05 Q1002 NOSIG RMK QFE739/0986UACP2019-09-20T01:00:00Z54.7869.189.05.0240166.2129.586615TRUEVFRMETAR142.02019-09-20 01:08:45 ,5x,@X)5    3UDSG 200100Z 23002KT 9999 NSC 09/03 Q1020 R02/CLRD70 NOSIGUDSG2019-09-20T01:00:00Z40.7543.879.03.023026.2130.11811TRUEVFRMETAR1524.02019-09-20 01:08:45>W(}5    3UCFM 200100Z 23002MPS CAVOK 15/06 Q1018 R26/0///95 NOSIGUCFM2019-09-20T01:00:00Z43.0774.4815.06.023046.2130.059055TRUEVFRMETAR633.02019-09-20 01:08:45f)5   3RJCN 200100Z 28007KT 240V310 9999 FEW020 BKN060 14/08 Q1009RJCN2019-09-20T01:00:00Z43.57144.9714.08.028076.2129.793306VFRMETAR70.02019-09-20 01:08:456e(s5   3RJCO 200100Z 30015KT 9999 FEW015 BKN060 18/06 Q1013RJCO2019-09-20T01:00:00Z43.12141.3718.06.0300156.2129.911417VFRMETAR11.02019-09-20 01:08:45Nd)5   3RJCW 200100Z 30018G28KT 9999 -SHRA FEW015 SCT025 BKN040 14/10 Q1009RJCW2019-09-20T01:00:00Z45.38141.814.010.030018286.2129.793306-SHRAVFRMETAR11.02019-09-20 01:08:45>c)5   3RJDC 200100Z 10013KT 9999 FEW025 SCT160 BKN/// 23/15 Q1015RJDC2019-09-20T01:00:00Z33.92131.2723.015.0100136.2129.970472VFRMETAR8.02019-09-20 01:08:455b(i5    3RJDK 200100Z AUTO 08013KT 9999 NSC 23/18 Q1013RJDK2019-09-20T01:00:00Z33.02129.1723.018.080136.2129.911417TRUEVFRMETAR20.02019-09-20 01:08:45 ,4o,8k(u5   3RJCB 200100Z 31010KT 280V340 9999 FEW040 18/07 Q1010RJCB2019-09-20T01:00:00Z42.72143.2218.07.0310106.2129.822834VFRMETAR152.02019-09-20 01:08:45Cj) 5  3RJCC 200100Z 30010G21KT 260V330 9999 FEW040 SCT050 19/08 Q1012RJCC2019-09-20T01:00:00Z42.77141.6719.08.030010216.2129.88189VFRMETAR30.02019-09-20 01:08:456i(s5   3RJCH 200100Z 27013KT 9999 FEW030 SCT050 19/07 Q1014RJCH2019-09-20T01:00:00Z41.77140.8219.07.0270136.2129.940945VFRMETAR36.02019-09-20 01:08:45?h)5   3RJCK 200100Z 25011KT 220V290 9999 FEW030 SCT050 17/06 Q1009RJCK2019-09-20T01:00:00Z43.02144.1817.06.0250116.2129.793306VFRMETAR98.02019-09-20 01:08:45Fg) 5    3RJCM 200100Z VRB01KT 9999 -SHRA FEW015 SCT040 BKN060 14/08 Q1009RJCM2019-09-20T01:00:00Z43.88144.1714.08.0016.2129.793306-SHRAVFRMETAR36.02019-09-20 01:08:45 "E"@p)5   3YSRI 200100Z AUTO 05008KT 360V070 9999 // ////// 21/14 Q1025YSRI2019-09-20T01:00:00Z-33.6150.7721.014.05086.2130.265747TRUEMETAR21.02019-09-20 01:08:45:o({5    3SAWH 200100Z 23008KT 9999 DZ BKN015 OVC025 02/M00 Q0983SAWH2019-09-20T01:00:00Z-54.85-68.32.00.023086.2129.02559DZMVFRMETAR14.02019-09-20 01:08:45Qn)5     3RPLC 200100Z 36002KT 4000 HZ SCT018 BKN090 26/24 Q1009 NOSIG RMK A2980RPLC2019-09-20T01:00:00Z15.17120.5826.024.036022.4929.793306TRUEHZIFRMETAR196.02019-09-20 01:08:45@m)5   3RPVP 200100Z 18004KT 9999 FEW019 SCT250 29/22 Q1011 RMK A2985RPVP2019-09-20T01:00:00Z9.75118.7229.022.018046.2129.852362VFRMETAR16.02019-09-20 01:08:455l(q5    3FOOL 200100Z 22004KT 9999 SCT013 26/24 Q1012 NOSIGFOOL2019-09-20T01:00:00Z0.459.4226.024.022046.2129.88189TRUEVFRMETAR15.02019-09-20 01:08:45 5A5)5   3RPVD 200100Z 32004KT 9999 FEW015 BKN220 30/25 Q1011 RMK A2985RPVD2019-09-20T01:00:00Z9.33123.330.025.032046.2129.852362VFRMETAR8.02019-09-20 01:08:45A)5    3RPMR 200100Z 00000KT 9999 FEW018 29/23 Q1013 NOSIG RMK A2991RPMR2019-09-20T01:00:00Z6.05125.129.023.0006.2129.911417TRUEVFRMETAR154.02019-09-20 01:08:45&(Y5   3OIAA 200100Z 26006KT CAVOK 26/07 Q1004OIAA2019-09-20T01:00:00Z30.3748.2526.07.026066.2129.64567VFRMETAR11.02019-09-20 01:08:450(e5    3OIBK 200100Z 28004KT 3000 BR NSC 30/27 Q1005OIBK2019-09-20T01:00:00Z26.5353.9830.027.028041.8629.675198BRIFRMETAR30.02019-09-20 01:08:451(g5   3OICC 200100Z 09004KT CAVOK 12/M12 Q1019 A3010OICC2019-09-20T01:00:00Z34.3547.1712.0-12.09046.2130.088583VFRMETAR1322.02019-09-20 01:08:45 GPGP)5     3UTAK 200100Z 13004KT 0500 R16R/M00 FG VV002 19/17 Q1016 R16R/CLRD70 NOSIGUTAK2019-09-20T01:00:00Z40.0553.019.017.013040.3130.0TRUEFGLIFR200METAR85.02019-09-20 01:08:452(e5    3UTAV 200100Z 32004KT CAVOK 17/07 Q1013 NOSIGUTAV2019-09-20T01:00:00Z39.0863.6217.07.032046.2129.911417TRUEVFRMETAR192.02019-09-20 01:08:45,(e5    3UTAT 200100Z 07004KT CAVOK 17/10 Q1016 NOSIGUTAT2019-09-20T01:00:00Z41.7759.8317.010.07046.2130.0TRUEVFRMETAR83.02019-09-20 01:08:45C({5     3YBCS 200100Z AUTO 13014KT 9999 // NCD 28/15 Q1018 NOSIGYBCS2019-09-20T01:00:00Z-16.87145.7528.015.0130146.2130.059055TRUETRUEVFRMETAR7.02019-09-20 01:08:45*([5   3SAME 200100Z 00000KT CAVOK 10/M06 Q1019SAME2019-09-20T01:00:00Z-32.82-68.7710.0-6.0006.2130.088583VFRMETAR704.02019-09-20 01:08:45 @-v@/(e5   3YPDN 200100Z 19003KT 9999 FEW035 29/19 Q1015YPDN2019-09-20T01:00:00Z-12.42130.929.019.019036.2129.970472VFRMETAR30.02019-09-20 01:08:45@(5    3YPKU 200100Z AUTO 03006KT 330V070 9999 // NCD 30/15 Q1014YPKU2019-09-20T01:00:00Z-15.77128.6830.015.03066.2129.940945TRUEVFRMETAR45.02019-09-20 01:08:455(s5   3YPCC 200100Z 09017KT 9999 FEW018 OVC350 26/21 Q1015YPCC2019-09-20T01:00:00Z-12.1796.8226.021.090176.2129.970472VFRMETAR3.02019-09-20 01:08:451(i5   3YPAD 200100Z 24005KT 170V280 CAVOK 20/11 Q1013YPAD2019-09-20T01:00:00Z-34.95138.5220.011.024056.2129.911417VFRMETAR4.02019-09-20 01:08:45M)5    3UTAA 200100Z 30004KT 240V320 9999 BKN100 23/14 Q1015 R88/CLRD70 NOSIGUTAA2019-09-20T01:00:00Z37.9858.3723.014.030046.2129.970472TRUEVFRMETAR210.02019-09-20 01:08:45 H@H2"(u5   3YPXM 200100Z AUTO 11015KT //// // SCT019 24/19 Q1016YPXM2019-09-20T01:00:00Z-10.45105.6724.019.01101530.0TRUEMETAR259.02019-09-20 01:08:45@!(5    3YSSY 200100Z 04019KT 9999 FEW020 BKN050 21/15 Q1025 NOSIGYSSY2019-09-20T01:00:00Z-33.95151.1721.015.040196.2130.265747TRUEVFRMETAR3.02019-09-20 01:08:457 (o5    3YPLM 200100Z AUTO 15020KT 9999 // NCD 20/03 Q1020YPLM2019-09-20T01:00:00Z-22.22114.0720.03.0150206.2130.11811TRUEVFRMETAR6.02019-09-20 01:08:457(u5   3YPPH 200100Z 15013KT 120V180 9999 FEW020 13/05 Q1028YPPH2019-09-20T01:00:00Z-31.93115.9813.05.0150136.2130.35433VFRMETAR13.02019-09-20 01:08:45:(o5    3YPTN 200100Z AUTO 34007KT 9999 // NCD 30/14 Q1015YPTN2019-09-20T01:00:00Z-14.52132.3830.014.034076.2129.970472TRUEVFRMETAR109.02019-09-20 01:08:45 ?;?:'(q5    3SCEL 200100Z 20009KT 9999 FEW060 12/02 Q1022 NOSIGSCEL2019-09-20T01:00:00Z-33.37-70.7712.02.020096.2130.177166TRUEVFRMETAR476.02019-09-20 01:08:457&(q5    3SMJP 200100Z 05006KT 9999 FEW030 28/25 Q1010 NOSIGSMJP2019-09-20T01:00:00Z5.45-55.1728.025.05066.2129.822834TRUEVFRMETAR16.02019-09-20 01:08:45B%) 5   3FNLU 200100Z 16007KT 9000 BKN020 23/21 Q1013.2 QFE1004.4 HR 92FNLU2019-09-20T01:00:00Z-8.8313.2223.021.016075.5929.917322MVFRMETAR70.02019-09-20 01:08:451$(e5    3OKBK 200100Z 30006KT CAVOK 31/06 Q1007 NOSIGOKBK2019-09-20T01:00:00Z29.2247.9731.06.030066.2129.734253TRUEVFRMETAR55.02019-09-20 01:08:45?#(5    3LJLJ 200100Z 11008KT 9999 FEW040 BKN055 10/04 Q1027 NOSIGLJLJ2019-09-20T01:00:00Z46.2214.4710.04.011086.2130.324802TRUEVFRMETAR385.02019-09-20 01:08:45 `N'`A,(5    3NFFN 200100Z 28008KT 9999 SCT030 SCT050 27/21 Q1013 NOSIGNFFN2019-09-20T01:00:00Z-17.75177.4527.021.028086.2129.911417TRUEVFRMETAR18.02019-09-20 01:08:454+(g5    3SUMU 200100Z 21009KT CAVOK 12/M03 Q1014 NOSIGSUMU2019-09-20T01:00:00Z-34.82-56.012.0-3.021096.2129.940945TRUEVFRMETAR32.02019-09-20 01:08:45**(Y5   3SCVM 200100Z 16006KT CAVOK 11/06 Q1023SCVM2019-09-20T01:00:00Z-32.95-71.4811.06.016066.2130.206694VFRMETAR141.02019-09-20 01:08:457)(s5   3SBNT 200100Z 12012KT 9999 FEW021 SCT027 26/22 Q1015SBNT2019-09-20T01:00:00Z-5.92-35.2526.022.0120126.2129.970472VFRMETAR49.02019-09-20 01:08:45,((_5   3SBRP 200100Z 00000KT 9000 NSC 28/12 Q1010SBRP2019-09-20T01:00:00Z-21.12-47.7728.012.0005.5929.822834VFRMETAR549.02019-09-20 01:08:45 NHNG1)5     3LWSK 200100Z 34005KT 9999 -RA BKN050 OVC080 10/09 Q1024 NOSIGLWSK2019-09-20T01:00:00Z41.9721.6310.09.034056.2130.236221TRUE-RAVFRMETAR239.02019-09-20 01:08:4560(k5    3HECA 200100Z 36009KT 6000 NSC 24/21 Q1013 NOSIGHECA2019-09-20T01:00:00Z30.1231.3824.021.036093.7329.911417TRUEMVFRMETAR74.02019-09-20 01:08:455/(s5   3AGGH 200100Z 07014KT 9999 FEW020 SCT300 32/25 Q1010AGGH2019-09-20T01:00:00Z-9.42160.0532.025.070146.2129.822834VFRMETAR9.02019-09-20 01:08:450.(i5    3LJMB 200100Z AUTO VRB01KT 9999 NSC 07/05 Q1028LJMB2019-09-20T01:00:00Z46.4715.677.05.0016.2130.35433TRUEVFRMETAR265.02019-09-20 01:08:452-(e5    3ORBI 200100Z 32007KT CAVOK 25/10 Q1009 NOSIGORBI2019-09-20T01:00:00Z33.2744.2325.010.032076.2129.793306TRUEVFRMETAR35.02019-09-20 01:08:45 'C '^6)?5    3OPST 200100Z 05004KT 2000 BR SCT040 24/23 Q1011 TEMPO 13015G30KT 1500 -TSRA FEW030CB RH91OPST2019-09-20T01:00:00Z32.5374.3724.023.05041.2429.852362BRIFRMETAR247.02019-09-20 01:08:45@5)5    3OLBA 200100Z 05003KT 360V110 9999 BKN025 27/23 Q1012 NOSIGOLBA2019-09-20T01:00:00Z33.8235.4727.023.05036.2129.88189TRUEMVFRMETAR19.02019-09-20 01:08:45-4(e5   3AGGM 200100Z 09008KT 9999 SCT018 29/25 Q1011AGGM2019-09-20T01:00:00Z-8.32157.2729.025.09086.2129.852362VFRMETAR6.02019-09-20 01:08:4593(q5    3GVSV 200100Z 06025KT 9000 SCT017 26/22 Q1013 NOSIGGVSV2019-09-20T01:00:00Z16.83-25.0726.022.060255.5929.911417TRUEVFRMETAR20.02019-09-20 01:08:4572(q5    3OBBI 200100Z 29006KT 9000 SCT013 31/28 Q1006 NOSIGOBBI2019-09-20T01:00:00Z26.2750.6331.028.029065.5929.704725TRUEVFRMETAR2.02019-09-20 01:08:45 gDg1;(o5   3NCMH 200100Z AUTO 14003KT //// ////// 25/24 Q1010NCMH2019-09-20T01:00:00Z-10.38-161.025.024.0140329.822834TRUEMETAR0.02019-09-20 01:08:452:(o5   3NCMK 200100Z AUTO 19006KT //// ////// 25/16 Q1010NCMK2019-09-20T01:00:00Z-20.15-157.3825.016.0190629.822834TRUEMETAR9.02019-09-20 01:08:4519(o5   3NCMR 200100Z AUTO 20006KT //// ////// 25/19 Q1011NCMR2019-09-20T01:00:00Z-19.85-157.725.019.0200629.852362TRUEMETAR8.02019-09-20 01:08:4518(o5   3NCPY 200100Z AUTO 35003KT //// ////// 29/25 Q1009NCPY2019-09-20T01:00:00Z-9.02-158.0729.025.0350329.793306TRUEMETAR2.02019-09-20 01:08:4567(s5   3FIMP 200100Z 19006KT 9999 SCT016 BKN050 21/15 Q1019FIMP2019-09-20T01:00:00Z-20.4257.6721.015.019066.2130.088583VFRMETAR57.02019-09-20 01:08:45 GP*@(Y5   3SBGO 200100Z 30006KT CAVOK 25/09 Q1014SBGO2019-09-20T01:00:00Z-16.62-49.2225.09.030066.2129.940945VFRMETAR747.02019-09-20 01:08:459?(q5    3GVNP 200100Z 03008KT 9000 BKN015 27/23 Q1013 NOSIGGVNP2019-09-20T01:00:00Z14.95-23.4827.023.03085.5929.911417TRUEMVFRMETAR70.02019-09-20 01:08:45>(75  3NCAI 200100Z AUTO NILNCAI2019-09-20T01:00:00Z-18.82-159.77TRUEMETAR6.02019-09-20 01:08:45+=(o5    3NCAT 200100Z AUTO 19003KT //// ////// ///// Q1006NCAT2019-09-20T01:00:00Z-19.97-158.12190329.704725TRUEMETAR11.02019-09-20 01:08:453<(o5   3NCMG 200100Z AUTO 16004KT //// ////// 24/15 Q1007NCMG2019-09-20T01:00:00Z-21.92-157.9524.015.0160429.734253TRUEMETAR41.02019-09-20 01:08:45 H U0E(g5    3GMMZ 200100Z VRB02KT CAVOK 25/M00 Q1020 NOSIGGMMZ2019-09-20T01:00:00Z30.92-6.925.00.0026.2130.11811TRUEVFRMETAR1140.02019-09-20 01:08:45/D(i5    3LJPZ 200100Z AUTO VRB02KT 9999 NCD 09/05 Q1025LJPZ2019-09-20T01:00:00Z45.4713.629.05.0026.2130.265747TRUEVFRMETAR2.02019-09-20 01:08:451C(c5    3LFCK 200100Z AUTO 11013KT CAVOK 19/12 Q1020LFCK2019-09-20T01:00:00Z43.552.2819.012.0110136.2130.11811TRUEVFRMETAR240.02019-09-20 01:08:45B(75  3NCPK 200100Z AUTO NILNCPK2019-09-20T01:00:00Z-10.88-165.82TRUEMETAR3.02019-09-20 01:08:452A(o5   3NCRK 200100Z AUTO 16003KT //// ////// 26/24 Q1009NCRK2019-09-20T01:00:00Z-10.05-161.0826.024.0160329.793306TRUEMETAR5.02019-09-20 01:08:45 fO$f8J(s5    3LFLP 200100Z AUTO 33003KT 300V020 CAVOK 11/06 Q1024LFLP2019-09-20T01:00:00Z45.926.0811.06.033036.2130.236221TRUEVFRMETAR463.02019-09-20 01:08:45:I(o5     3LFLX 200100Z AUTO 07010KT CAVOK 12/01 Q1022 NOSIGLFLX2019-09-20T01:00:00Z46.851.7212.01.070106.2130.177166TRUETRUEVFRMETAR157.02019-09-20 01:08:450H(c5    3LFOH 200100Z AUTO 10007KT CAVOK 11/07 Q1027LFOH2019-09-20T01:00:00Z49.520.0711.07.010076.2130.324802TRUEVFRMETAR103.02019-09-20 01:08:45/G(c5    3LFOP 200100Z AUTO 06008KT CAVOK 10/05 Q1027LFOP2019-09-20T01:00:00Z49.371.1710.05.06086.2130.324802TRUEVFRMETAR157.02019-09-20 01:08:45+F(c5    3LFQA 200100Z AUTO VRB03KT CAVOK 09/02 Q1027LFQA2019-09-20T01:00:00Z49.24.159.02.0036.2130.324802TRUEVFRMETAR95.02019-09-20 01:08:45 R:sR.O(c5    3LFSN 200100Z AUTO 05004KT CAVOK 08/01 Q1027LFSN2019-09-20T01:00:00Z48.676.228.01.05046.2130.324802TRUEVFRMETAR217.02019-09-20 01:08:45)N(c5  3SVMI 200100Z 050009 9999 BNK016 25/24 Q1011SVMI2019-09-20T01:00:00Z10.58-67.025.024.05096.2129.852362METAR48.02019-09-20 01:08:458M(o5     3LFBD 200100Z AUTO 04005KT CAVOK 17/04 Q1017 NOSIGLFBD2019-09-20T01:00:00Z44.82-0.717.04.04056.2130.029528TRUETRUEVFRMETAR61.02019-09-20 01:08:45AL)5    3LFBH 200100Z AUTO 08015KT CAVOK 16/04 Q1019 BECMG 06015G25KTLFBH2019-09-20T01:00:00Z46.18-1.216.04.080156.2130.088583TRUEVFRMETAR10.02019-09-20 01:08:45@K(5    3GMME 200100Z 15001KT 5000 FEW011 BKN016 15/13 Q1015 NOSIGGMME2019-09-20T01:00:00Z34.03-6.7715.013.015013.1129.970472TRUEMVFRMETAR75.02019-09-20 01:08:45 tL,t2T(k5    3GMMX 200100Z 22005KT 5000 NSC 22/14 Q1016 NOSIGGMMX2019-09-20T01:00:00Z31.62-8.0222.014.022053.1130.0TRUEMVFRMETAR466.02019-09-20 01:08:45/S(e5    3LFLL 200100Z VRB01KT CAVOK 12/05 Q1023 NOSIGLFLL2019-09-20T01:00:00Z45.725.0712.05.0016.2130.206694TRUEVFRMETAR240.02019-09-20 01:08:45/R(e5    3LFMN 200100Z 33008KT CAVOK 21/16 Q1020 NOSIGLFMN2019-09-20T01:00:00Z43.637.221.016.033086.2130.11811TRUEVFRMETAR10.02019-09-20 01:08:450Q(e5    3LFPG 200100Z 03008KT CAVOK 10/03 Q1027 NOSIGLFPG2019-09-20T01:00:00Z49.022.5210.03.03086.2130.324802TRUEVFRMETAR109.02019-09-20 01:08:45.P(c5    3LFQB 200100Z AUTO 06006KT CAVOK 09/02 Q1026LFQB2019-09-20T01:00:00Z48.324.029.02.06066.2130.295275TRUEVFRMETAR118.02019-09-20 01:08:45 GxDY)5     3VOBL 200100Z 26008KT 4000 BR SCT010 BKN080 21/21 Q1013 NOSIGVOBL2019-09-20T01:00:00Z13.277.721.021.026082.4929.911417TRUEBRIFRMETAR915.02019-09-20 01:08:45GX)5     3VOCB 200100Z 24003KT 5000 BR FEW012 BKN080 24/22 Q1010 NOSIGVOCB2019-09-20T01:00:00Z11.0277.0324.022.024033.1129.822834TRUEBRMVFRMETAR399.02019-09-20 01:08:45?W)5   3VOBM 200100Z 25005KT 6000 SCT008 SCT012 BKN080 21/20 Q1013VOBM2019-09-20T01:00:00Z15.8574.6221.020.025053.7329.911417MVFRMETAR758.02019-09-20 01:08:45IV)5    3UMGG 200100Z 25006MPS 9999 SCT053CB BKN074 06/06 Q1016 R28/290050 NOSIGUMGG2019-09-20T01:00:00Z52.5331.026.06.0250126.2130.0TRUEVFRMETAR144.02019-09-20 01:08:453U(q5    3GMMN 200100Z 06005KT 9999 SCT016 20/19 Q1016 NOSIGGMMN2019-09-20T01:00:00Z33.37-7.5720.019.06056.2130.0TRUEVFRMETAR206.02019-09-20 01:08:45 {>0{/^(e5    3LFPO 200100Z 06008KT CAVOK 12/04 Q1026 NOSIGLFPO2019-09-20T01:00:00Z48.722.3812.04.06086.2130.295275TRUEVFRMETAR96.02019-09-20 01:08:45)](Y5   3OSDI 200100Z 26004KT CAVOK 22/11 Q1014OSDI2019-09-20T01:00:00Z33.4236.5222.011.026046.2129.940945VFRMETAR605.02019-09-20 01:08:45&\(Y5   3OSLK 200100Z 04004KT CAVOK 21/18 Q1011OSLK2019-09-20T01:00:00Z35.435.9521.018.04046.2129.852362VFRMETAR48.02019-09-20 01:08:45-[(e5   3LRSB 200100Z 26009KT 9999 BKN074 09/01 Q1023LRSB2019-09-20T01:00:00Z45.7824.089.01.026096.2130.206694VFRMETAR444.02019-09-20 01:08:45a(5    3LFRB 200100Z AUTO 07004KT CAVOK 12/09 Q1023 BECMG 06015KTLFRB2019-09-20T01:00:00Z48.45-4.4212.09.07046.2130.206694TRUEVFRMETAR103.02019-09-20 01:08:459`(o5     3LFRS 200100Z AUTO 07011KT CAVOK 15/02 Q1021 NOSIGLFRS2019-09-20T01:00:00Z47.17-1.615.02.070116.2130.147638TRUETRUEVFRMETAR27.02019-09-20 01:08:453_(e5    3OJAQ 200100Z 36010KT CAVOK 29/20 Q1010 NOSIGOJAQ2019-09-20T01:00:00Z29.6235.0229.020.0360106.2129.822834TRUEVFRMETAR51.02019-09-20 01:08:45 mJ!m.h(c5    3LFYR 200100Z AUTO 05007KT CAVOK 12/01 Q1023LFYR2019-09-20T01:00:00Z47.321.6712.01.05076.2130.206694TRUEVFRMETAR86.02019-09-20 01:08:451g(i5    3LJCE 200100Z AUTO 26001KT 9999 NCD 06/06 Q1028LJCE2019-09-20T01:00:00Z45.915.526.06.026016.2130.35433TRUEVFRMETAR155.02019-09-20 01:08:457f(o5     3LFBE 200100Z AUTO VRB03KT CAVOK 13/03 Q1018 NOSIGLFBE2019-09-20T01:00:00Z44.820.5213.03.0036.2130.059055TRUETRUEVFRMETAR52.02019-09-20 01:08:45/e(e5   3SBJP 200100Z 12007KT 9999 SCT020 24/21 Q1015SBJP2019-09-20T01:00:00Z-7.15-34.9524.021.012076.2129.970472VFRMETAR66.02019-09-20 01:08:450d(e5   3SBFZ 200100Z 09014KT 9999 BKN020 27/22 Q1013SBFZ2019-09-20T01:00:00Z-3.77-38.5227.022.090146.2129.911417MVFRMETAR25.02019-09-20 01:08:45 WMW>m({5    3SBFL 200100Z 34008KT 5000 -RA BKN010 SCT020 21/20 Q1007SBFL2019-09-20T01:00:00Z-27.67-48.5321.020.034083.1129.734253-RAMVFRMETAR5.02019-09-20 01:08:45:l(s5   3NIUE 200100Z 12010KT 9999 BKN018 BKN030 24/16 Q1014NIUE2019-09-20T01:00:00Z-19.07-169.9224.016.0120106.2129.940945MVFRMETAR20.02019-09-20 01:08:453k(i5    3LEJR 200100Z AUTO 09002KT 9999 NCD 17/15 Q1015LEJR2019-09-20T01:00:00Z36.75-6.0717.015.09026.2129.970472TRUEVFRMETAR30.02019-09-20 01:08:453j(e5    3HSSS 200100Z 24003KT CAVOK 32/18 Q1007 NOSIGHSSS2019-09-20T01:00:00Z15.5832.5332.018.024036.2129.734253TRUEVFRMETAR380.02019-09-20 01:08:45-i(c5    3LFSX 200100Z AUTO VRB02KT CAVOK 04/02 Q1025LFSX2019-09-20T01:00:00Z47.776.334.02.0026.2130.265747TRUEVFRMETAR273.02019-09-20 01:08:45 O4 O7r(s5    3LFMD 200100Z AUTO 35003KT 310V030 CAVOK 18/17 Q1019LFMD2019-09-20T01:00:00Z43.536.9518.017.035036.2130.088583TRUEVFRMETAR9.02019-09-20 01:08:45Cq)5    3WADL 200100Z 09011KT 050V110 8000 SCT016 28/22 Q1015 NOSIGWADL2019-09-20T01:00:00Z-8.75116.2828.022.090114.9729.970472TRUEMVFRMETAR97.02019-09-20 01:08:450p(c5    3LFGJ 200100Z AUTO 05010KT CAVOK 12/03 Q1023LFGJ2019-09-20T01:00:00Z47.055.4312.03.050106.2130.206694TRUEVFRMETAR196.02019-09-20 01:08:45#o(Y5   3ORSU 200100Z 30005KT CAVOK 12/00 Q1016ORSU2019-09-20T01:00:00Z35.5745.3212.00.030056.2130.0VFRMETAR761.02019-09-20 01:08:45Fn)5    3SPJC 200100Z 16010KT 9999 OVC009 16/14 Q1015 NOSIG RMK PP000SPJC2019-09-20T01:00:00Z-12.02-77.1216.014.0160106.2129.970472TRUEIFRMETAR13.02019-09-20 01:08:45 TMT8w(o5     3LFTH 200100Z AUTO 34002KT CAVOK 19/18 Q1019 NOSIGLFTH2019-09-20T01:00:00Z43.16.1519.018.034026.2130.088583TRUETRUEVFRMETAR4.02019-09-20 01:08:458v(o5     3LFST 200100Z AUTO 01005KT CAVOK 08/02 Q1027 NOSIGLFST2019-09-20T01:00:00Z48.537.628.02.01056.2130.324802TRUETRUEVFRMETAR154.02019-09-20 01:08:45:u(o5     3LFOT 200100Z AUTO 06010KT CAVOK 12/02 Q1023 NOSIGLFOT2019-09-20T01:00:00Z47.430.7212.02.060106.2130.206694TRUETRUEVFRMETAR108.02019-09-20 01:08:457t(s5    3LFRG 200100Z AUTO 07006KT 050V110 CAVOK 11/06 Q1027LFRG2019-09-20T01:00:00Z49.370.1511.06.07066.2130.324802TRUEVFRMETAR146.02019-09-20 01:08:45-s(c5    3LFMH 200100Z AUTO 00000KT CAVOK 06/04 Q1023LFMH2019-09-20T01:00:00Z45.524.286.04.0006.2130.206694TRUEVFRMETAR402.02019-09-20 01:08:45 F@wFD|(y5    3KMVH 200100Z AUTO 31013KT 10SM CLR 14/06 A2991 RMK AO2KMVH2019-09-20T01:00:00Z46.83-108.9314.06.03101310.029.911417TRUETRUEVFRSPECI1355.02019-09-20 01:08:45.{(c5    3LFOC 200100Z AUTO 03007KT CAVOK 09/03 Q1025LFOC2019-09-20T01:00:00Z48.031.379.03.03076.2130.265747TRUEVFRMETAR127.02019-09-20 01:08:45-z(c5    3LFTW 200100Z AUTO 04006KT CAVOK 18/05 Q1020LFTW2019-09-20T01:00:00Z43.754.4218.05.04066.2130.11811TRUEVFRMETAR96.02019-09-20 01:08:45Cy)5    3YAMB 200100Z 06011KT 010V070 9999 SCT045 25/12 Q1024 NOSIGYAMB2019-09-20T01:00:00Z-27.63152.7225.012.060116.2130.236221TRUEVFRMETAR28.02019-09-20 01:08:45:x(o5    3YARG 200100Z AUTO 25013KT 9999 // NCD 33/07 Q1014YARG2019-09-20T01:00:00Z-16.63128.4533.07.0250136.2129.940945TRUEVFRMETAR165.02019-09-20 01:08:45 X:} X/(c5    3LFOE 200100Z AUTO 06007KT CAVOK 11/05 Q1027LFOE2019-09-20T01:00:00Z49.021.2211.05.06076.2130.324802TRUEVFRMETAR146.02019-09-20 01:08:45.(c5    3LFOJ 200100Z AUTO 06009KT CAVOK 08/02 Q1024LFOJ2019-09-20T01:00:00Z47.971.758.02.06096.2130.236221TRUEVFRMETAR125.02019-09-20 01:08:456(s5    3LFSI 200100Z AUTO 05005KT 030V090 CAVOK 10/00 Q1026LFSI2019-09-20T01:00:00Z48.624.910.00.05056.2130.295275TRUEVFRMETAR140.02019-09-20 01:08:457~(s5    3LFSO 200100Z AUTO 09005KT 060V130 CAVOK 10/01 Q1026LFSO2019-09-20T01:00:00Z48.575.9710.01.09056.2130.295275TRUEVFRMETAR350.02019-09-20 01:08:45@}(y5    3KMCC 200100Z AUTO 33008KT 10SM CLR 24/08 A2990 RMK AO2KMCC2019-09-20T01:00:00Z38.67-121.424.08.0330810.029.899607TRUETRUEVFRMETAR23.02019-09-20 01:08:45 DID;(o5     3LFBO 200100Z AUTO 12007KT CAVOK 20/16 Q1018 NOSIGLFBO2019-09-20T01:00:00Z43.621.3720.016.012076.2130.059055TRUETRUEVFRMETAR153.02019-09-20 01:08:459(o5     3LFBL 200100Z AUTO 07012KT CAVOK 14/01 Q1020 NOSIGLFBL2019-09-20T01:00:00Z45.871.1714.01.070126.2130.11811TRUETRUEVFRMETAR402.02019-09-20 01:08:45B(5     3LFBI 200100Z AUTO 06010KT 030V090 CAVOK 14/02 Q1021 NOSIGLFBI2019-09-20T01:00:00Z46.570.3214.02.060106.2130.147638TRUETRUEVFRMETAR120.02019-09-20 01:08:457(s5    3LFRL 200100Z AUTO 09008KT 040V120 CAVOK 14/09 Q1023LFRL2019-09-20T01:00:00Z48.27-4.4214.09.09086.2130.206694TRUEVFRMETAR82.02019-09-20 01:08:451(c5    3LFRJ 200100Z AUTO 09005KT CAVOK 12/10 Q1024LFRJ2019-09-20T01:00:00Z48.52-4.1512.010.09056.2130.236221TRUEVFRMETAR115.02019-09-20 01:08:45 /og )O5    3LFKB 200100Z AUTO 26004KT 220V290 9999 BKN032/// BKN038/// OVC140/// ///CB 21/19 Q1019 TEMPO TSRALFKB2019-09-20T01:00:00Z42.539.4721.019.026046.2130.088583TRUEVFRMETAR12.02019-09-20 01:08:459 (o5     3LFBZ 200100Z AUTO VRB01KT CAVOK 16/16 Q1017 NOSIGLFBZ2019-09-20T01:00:00Z43.47-1.5216.016.0016.2130.029528TRUETRUEVFRMETAR71.02019-09-20 01:08:45:(o5     3LFBT 200100Z AUTO 20002KT CAVOK 14/13 Q1018 NOSIGLFBT2019-09-20T01:00:00Z43.170.014.013.020026.2130.059055TRUETRUEVFRMETAR363.02019-09-20 01:08:45K)5    3LFBP 200100Z AUTO 12003KT 070V140 CAVOK 16/16 Q1017 TEMPO SCT050TCULFBP2019-09-20T01:00:00Z43.37-0.4216.016.012036.2130.029528TRUEVFRMETAR185.02019-09-20 01:08:45 7?v7G) 5    3SKBQ 200100Z 21003KT 170V240 9999 FEW010 SCT15 25/24 A2983 NOSIGSKBQ2019-09-20T01:00:00Z10.9-74.7725.024.021036.2129.828741TRUEVFRMETAR10.02019-09-20 01:08:45/(c5    3LFMU 200100Z AUTO 02004KT CAVOK 17/10 Q1019LFMU2019-09-20T01:00:00Z43.323.3517.010.02046.2130.088583TRUEVFRMETAR17.02019-09-20 01:08:457 (o5     3LFOB 200100Z AUTO 04007KT CAVOK 09/04 Q1028 NOSIGLFOB2019-09-20T01:00:00Z49.472.129.04.04076.2130.35433TRUETRUEVFRMETAR111.02019-09-20 01:08:45C ) 5    3LFML 200100Z AUTO VRB01KT CAVOK 20/16 Q1019 TEMPO SHRA SCT040CBLFML2019-09-20T01:00:00Z43.455.2220.016.0016.2130.088583TRUEVFRMETAR36.02019-09-20 01:08:45; (o5     3LFLB 200100Z AUTO 36012KT CAVOK 14/06 Q1023 NOSIGLFLB2019-09-20T01:00:00Z45.635.8714.06.0360126.2130.206694TRUETRUEVFRMETAR239.02019-09-20 01:08:45 (<(&(Y5   3SKLT 200100Z 00000KT CAVOK 26/26 A2975SKLT2019-09-20T01:00:00Z-4.2-69.9326.026.0006.2129.749016VFRMETAR84.02019-09-20 01:08:45S)%5    3SKRG 200100Z 00000KT 9999 SCT015CB BKN080 16/15 A3026 NOSIG RMK CB LTNG/E/SESKRG2019-09-20T01:00:00Z6.17-75.4216.015.0006.2130.259842TRUEVFRMETAR2137.02019-09-20 01:08:45P)5    3SKCC 200100Z 34011KT 9999 TS FEW017CB SCT018 SCT070 24/23 A2984 RMK CB NWSKCC2019-09-20T01:00:00Z7.92-72.5224.023.0340116.2129.840551TSVFRMETAR317.02019-09-20 01:08:453(s5   3SKCG 200100Z 00000KT 9999 FEW017 BKN200 25/24 A2981SKCG2019-09-20T01:00:00Z10.43-75.5225.024.0006.2129.811024VFRMETAR1.02019-09-20 01:08:45>(5    3SKBO 200100Z VRB02KT 9999 FEW017 BKN090 12/10 A3028 NOSIGSKBO2019-09-20T01:00:00Z4.7-74.1212.010.0026.2130.280512TRUEVFRMETAR2548.02019-09-20 01:08:45 WE&WI)5    3MROC 200100Z 15003KT 130V200 9999 SCT030 OVC110 20/20 A2999 NOSIGMROC2019-09-20T01:00:00Z10.0-84.2220.020.015036.2129.991142TRUEVFRMETAR920.02019-09-20 01:08:451(e5   3SBGR 200100Z 12004KT 8000 OVC009 20/19 Q1014SBGR2019-09-20T01:00:00Z-23.42-46.4720.019.012044.9729.940945IFRMETAR750.02019-09-20 01:08:452(e5   3SBSP 200100Z 10005KT 9999 OVC011 20/17 Q1015SBSP2019-09-20T01:00:00Z-23.62-46.6320.017.010056.2129.970472MVFRMETAR803.02019-09-20 01:08:45*(Y5   3SBMA 200100Z 35001KT CAVOK 29/21 Q1010SBMA2019-09-20T01:00:00Z-5.37-49.1329.021.035016.2129.822834VFRMETAR102.02019-09-20 01:08:455(s5   3SKPE 200100Z VRB02KT 9999 FEW016 SCT090 22/19 A3003SKPE2019-09-20T01:00:00Z4.82-75.7322.019.0026.2130.029528VFRMETAR1346.02019-09-20 01:08:45 29z26(s5   3SKBG 200100Z 32003KT 9999 SCT012 SCT070 20/20 A2998SKBG2019-09-20T01:00:00Z7.13-73.1820.020.032036.2129.97933VFRMETAR1189.02019-09-20 01:08:45@(5    3SBFI 200100Z 20004KT 5000 BR FEW050TCU BKN070 19/19 Q1008SBFI2019-09-20T01:00:00Z-25.6-54.4819.019.020043.1129.763779BRMVFRMETAR243.02019-09-20 01:08:45@) 5   3GBYD 200100Z VRB01KT 9999 BKN010 FEW017CB 25/25 Q1012 CB(N-NE)GBYD2019-09-20T01:00:00Z13.33-16.6525.025.0016.2129.88189MVFRMETAR36.02019-09-20 01:08:459(q5    3MYNN 200100Z 09015KT 9999 -SHRA SCT025 26/21 A2993MYNN2019-09-20T01:00:00Z25.03-77.4726.021.090156.2129.929134-SHRAVFRMETAR3.02019-09-20 01:08:45A({5     3MRLB 200100Z 13007KT 9999 VCTS SCT030 25/21 A2983 NOSIGMRLB2019-09-20T01:00:00Z10.6-85.5525.021.013076.2129.828741TRUEVCTSVFRMETAR82.02019-09-20 01:08:45 iAi/#(_5   3SLTJ 200100Z 13012KT 9999 NSC 19/08 Q1017SLTJ2019-09-20T01:00:00Z-21.55-64.7219.08.0130126.2130.029528VFRMETAR1858.02019-09-20 01:08:450"(a5   3SLAL 200100Z 21005KT 9999 NSC 17/M07 Q1024SLAL2019-09-20T01:00:00Z-19.23-65.1517.0-7.021056.2130.236221VFRMETAR3109.02019-09-20 01:08:45-!(_5   3SLCB 200100Z 14005KT 9999 NSC 21/07 Q1020SLCB2019-09-20T01:00:00Z-17.42-66.1821.07.014056.2130.11811VFRMETAR2548.02019-09-20 01:08:454 (e5    3SLVR 200100Z 33018KT 4000 FU NSC 30/21 Q1005SLVR2019-09-20T01:00:00Z-17.63-63.1230.021.0330182.4929.675198FUIFRMETAR373.02019-09-20 01:08:459(u5   3SLLP 200100Z 13007KT 100V160 9999 FEW015 10/04 Q1036SLLP2019-09-20T01:00:00Z-16.52-68.1710.04.013076.2130.590551VFRMETAR4014.02019-09-20 01:08:45 DF!DW()%5   3SBNF 200100Z 03017G27KT 8000 -TSRA BKN009 FEW030CB OVC050 21/20 Q1007 WS R25SBNF2019-09-20T01:00:00Z-26.88-48.6521.020.03017274.9729.734253-TSRAIFRMETAR5.02019-09-20 01:08:45<'(w5     3WIII 200100Z VRB05KT 5000 HZ FEW020 29/21 Q1013 NOSIGWIII2019-09-20T01:00:00Z-6.13106.6729.021.0053.1129.911417TRUEHZMVFRMETAR8.02019-09-20 01:08:45&&(Y5   3SBCF 200100Z 10005KT CAVOK 25/12 Q1016SBCF2019-09-20T01:00:00Z-19.63-43.9725.012.010056.2130.0VFRMETAR828.02019-09-20 01:08:451%(e5   3SBCT 200100Z 04012KT 9999 OVC005 17/16 Q1011SBCT2019-09-20T01:00:00Z-25.52-49.1717.016.040126.2129.852362IFRMETAR908.02019-09-20 01:08:454$(u5   3NGTA 200100Z 01004KT 320V070 9999 FEW020 32/23 Q1009NGTA2019-09-20T01:00:00Z1.37173.1332.023.01046.2129.793306VFRMETAR2.02019-09-20 01:08:45 ABA9-(o5     3LFBM 200100Z AUTO 06003KT CAVOK 14/13 Q1017 NOSIGLFBM2019-09-20T01:00:00Z43.92-0.514.013.06036.2130.029528TRUETRUEVFRMETAR63.02019-09-20 01:08:450,(u5   3LFBY 200100Z AUTO 00000KT 5000 // ////// 16/16 Q1016LFBY2019-09-20T01:00:00Z43.67-1.0716.016.0003.1130.0TRUEMETAR32.02019-09-20 01:08:45S+))5    3LFKS 200100Z AUTO 34007KT 9999 FEW023/// SCT028/// BKN035/// ///CB 21/19 Q1019LFKS2019-09-20T01:00:00Z41.929.421.019.034076.2130.088583TRUEVFRMETAR22.02019-09-20 01:08:45-*(c5    3LFMC 200100Z AUTO VRB02KT CAVOK 18/17 Q1020LFMC2019-09-20T01:00:00Z43.376.3718.017.0026.2130.11811TRUEVFRMETAR78.02019-09-20 01:08:458)(o5     3LFOK 200100Z AUTO 02008KT CAVOK 06/02 Q1027 NOSIGLFOK2019-09-20T01:00:00Z48.784.186.02.02086.2130.324802TRUETRUEVFRMETAR162.02019-09-20 01:08:45 [K[92(o5     3LFRD 200100Z AUTO 09006KT CAVOK 12/07 Q1024 NOSIGLFRD2019-09-20T01:00:00Z48.58-2.0712.07.09066.2130.236221TRUETRUEVFRMETAR59.02019-09-20 01:08:4591(o5     3LFRN 200100Z AUTO 05008KT CAVOK 13/04 Q1023 NOSIGLFRN2019-09-20T01:00:00Z48.07-1.7213.04.05086.2130.206694TRUETRUEVFRMETAR37.02019-09-20 01:08:4560(o5     3LFSB 200100Z AUTO VRB02KT CAVOK 05/03 Q1026 NOSIGLFSB2019-09-20T01:00:00Z47.67.525.03.0026.2130.295275TRUETRUEVFRMETAR271.02019-09-20 01:08:450/(c5    3LFBC 200100Z AUTO 36004KT CAVOK 14/04 Q1017LFBC2019-09-20T01:00:00Z44.52-1.1214.04.036046.2130.029528TRUEVFRMETAR33.02019-09-20 01:08:45/.(c5    3LFBG 200100Z AUTO 04008KT CAVOK 15/03 Q1019LFBG2019-09-20T01:00:00Z45.67-0.3215.03.04086.2130.088583TRUEVFRMETAR31.02019-09-20 01:08:45 `B~`17(c5    3LFOV 200100Z AUTO 07010KT CAVOK 13/05 Q1024LFOV2019-09-20T01:00:00Z48.03-0.7513.05.070106.2130.236221TRUEVFRMETAR101.02019-09-20 01:08:45.6(c5    3LFRI 200100Z AUTO 06011KT CAVOK 14/03 Q1020LFRI2019-09-20T01:00:00Z46.7-1.3714.03.060116.2130.11811TRUEVFRMETAR91.02019-09-20 01:08:45-5(c5    3LFRM 200100Z AUTO 06009KT CAVOK 13/03 Q1024LFRM2019-09-20T01:00:00Z47.950.213.03.06096.2130.236221TRUEVFRMETAR52.02019-09-20 01:08:45>4({5     3LFMO 200100Z AUTO 35005KT 9999 FEW064 18/05 Q1020 NOSIGLFMO2019-09-20T01:00:00Z44.124.8718.05.035056.2130.11811TRUETRUEVFRMETAR55.02019-09-20 01:08:4583(o5     3LFPB 200100Z AUTO 02006KT CAVOK 11/04 Q1027 NOSIGLFPB2019-09-20T01:00:00Z48.972.4511.04.02066.2130.324802TRUETRUEVFRMETAR65.02019-09-20 01:08:45 O0{O3<(o5   3LRIA 200100Z 27003KT CAVOK 10/06 Q1022 R14/29//95LRIA2019-09-20T01:00:00Z47.1727.6210.06.027036.2130.177166VFRMETAR104.02019-09-20 01:08:45(;(Y5   3LRSV 200100Z 32012KT CAVOK 08/02 Q1022LRSV2019-09-20T01:00:00Z47.6826.358.02.0320126.2130.177166VFRMETAR351.02019-09-20 01:08:45?:(}5     3LRTC 200100Z AUTO 36004KT 9999 -DZ OVC060/// 12/10 Q1020LRTC2019-09-20T01:00:00Z45.0728.7212.010.036046.2130.11811TRUE-DZVFRMETAR6.02019-09-20 01:08:45/9(c5    3LFBA 200100Z AUTO 11004KT CAVOK 14/12 Q1017LFBA2019-09-20T01:00:00Z44.170.614.012.011046.2130.029528TRUEVFRMETAR60.02019-09-20 01:08:45J8)5    3LFMI 200100Z AUTO 02004KT 9999 FEW020 20/10 Q1019 TEMPO SHRA SCT040CBLFMI2019-09-20T01:00:00Z43.524.9220.010.02046.2130.088583TRUEVFRMETAR24.02019-09-20 01:08:45 1Fr17A(o5    3GCRR 200100Z AUTO 04009KT 9999 SCT022 22/19 Q1017GCRR2019-09-20T01:00:00Z28.93-13.5822.019.04096.2130.029528TRUEVFRMETAR40.02019-09-20 01:08:458@(q5    3GCTS 200100Z 04004KT 9999 FEW025 22/17 Q1017 NOSIGGCTS2019-09-20T01:00:00Z28.05-16.5722.017.04046.2130.029528TRUEVFRMETAR72.02019-09-20 01:08:45@?(}5    3GCXO 200100Z AUTO 29015KT 9999 BKN006 BKN011 18/16 Q1020GCXO2019-09-20T01:00:00Z28.48-16.3518.016.0290156.2130.11811TRUEIFRMETAR632.02019-09-20 01:08:45N>)5    3LRBC 200100Z AUTO 35005KT 9999 FEW055/// SCT075/// BKN120/// 09/06 Q1022LRBC2019-09-20T01:00:00Z46.5226.929.06.035056.2130.177166TRUEVFRMETAR185.02019-09-20 01:08:454=(i5    3LRCV 200100Z AUTO 29009KT 9999 NCD 11/02 Q1019LRCV2019-09-20T01:00:00Z44.3223.8811.02.029096.2130.088583TRUEVFRMETAR191.02019-09-20 01:08:45 A@A8F(q5    3TNCA 200100Z 30010KT 9999 SCT018 30/25 Q1009 NOSIGTNCA2019-09-20T01:00:00Z12.5-70.030.025.0300106.2129.793306TRUEVFRMETAR18.02019-09-20 01:08:458E(q5    3TAPA 200100Z 08006KT 9999 FEW018 28/23 Q1011 NOSIGTAPA2019-09-20T01:00:00Z17.12-61.7828.023.08066.2129.852362TRUEVFRMETAR14.02019-09-20 01:08:45?D(}5    3GCFV 200100Z AUTO 01009KT 9999 SCT017 OVC024 22/19 Q1017GCFV2019-09-20T01:00:00Z28.43-13.8722.019.01096.2130.029528TRUEMVFRMETAR23.02019-09-20 01:08:458C(o5    3GCLA 200100Z AUTO 34006KT 9999 FEW028 22/17 Q1018GCLA2019-09-20T01:00:00Z28.62-17.7522.017.034066.2130.059055TRUEVFRMETAR31.02019-09-20 01:08:45:B(q5    3GCLP 200100Z 36017KT 9999 SCT020 22/18 Q1017 NOSIGGCLP2019-09-20T01:00:00Z27.92-15.3722.018.0360176.2130.029528TRUEVFRMETAR25.02019-09-20 01:08:45 5`=K)5    3VEAT 200100Z 00000KT 4000 BR NSC 28/25 Q1010 BECMG 5000 BRVEAT2019-09-20T01:00:00Z23.8791.2528.025.0002.4929.822834BRIFRMETAR16.02019-09-20 01:08:45-J(e5   3FQBR 200100Z 17005KT 9999 FEW020 24/17 Q1020FQBR2019-09-20T01:00:00Z-19.834.8824.017.017056.2130.11811VFRMETAR16.02019-09-20 01:08:45NI)#5    3VOCI 200100Z 15002KT 2500 BR FEW008 SCT012 BKN080 25/24 Q1009 TEMPO 3000 BRVOCI2019-09-20T01:00:00Z10.1576.425.024.015021.5529.793306BRIFRMETAR8.02019-09-20 01:08:45OH)5     3VOMM 200100Z 18004KT 4000 -DZ SCT020 FEW025CB OVC080 26/26 Q1008 NOSIGVOMM2019-09-20T01:00:00Z13.080.1726.026.018042.4929.763779TRUE-DZIFRMETAR16.02019-09-20 01:08:45EG)5     3VOHS 200100Z 27005KT 5000 BR SCT015 BKN100 23/23 Q1011 NOSIGVOHS2019-09-20T01:00:00Z17.2378.4323.023.027053.1129.852362TRUEBRMVFRMETAR1.02019-09-20 01:08:45 !M:P(}5    3LFMY 200100Z AUTO 00000KT 9999 BKN020 BKN190 18/12 Q1020LFMY2019-09-20T01:00:00Z43.65.0818.012.0006.2130.11811TRUEMVFRMETAR60.02019-09-20 01:08:450O(c5    3LFOA 200100Z AUTO 05012KT CAVOK 12/02 Q1023LFOA2019-09-20T01:00:00Z47.032.6312.02.050126.2130.206694TRUEVFRMETAR179.02019-09-20 01:08:459N(o5     3LFPV 200100Z AUTO 07012KT CAVOK 12/03 Q1026 NOSIGLFPV2019-09-20T01:00:00Z48.772.212.03.070126.2130.295275TRUETRUEVFRMETAR179.02019-09-20 01:08:45NM)5     3VOCL 200100Z 15003KT 1000 FG SCT002 SCT012 BKN080 25/24 Q1009 NOSIGVOCL2019-09-20T01:00:00Z11.1375.9525.024.015030.6229.793306TRUEFGLIFRMETAR104.02019-09-20 01:08:45YL)+5     3VIJP 200100Z 08005KT 1500 RMID/2000 R09/2000 BR SCT030 BKN100 25/24 Q1010 NOSIGVIJP2019-09-20T01:00:00Z26.8275.7825.024.08050.9329.822834TRUEBRLIFRMETAR390.02019-09-20 01:08:45 gRg,U(e5   3LEGE 200100Z VRB01KT 9999 FEW080 17/16 Q1019LEGE2019-09-20T01:00:00Z41.882.7717.016.0016.2130.088583VFRMETAR129.02019-09-20 01:08:450T(c5    3LEGR 200100Z AUTO VRB02KT CAVOK 18/14 Q1018LEGR2019-09-20T01:00:00Z37.17-3.7718.014.0026.2130.059055TRUEVFRMETAR559.02019-09-20 01:08:45DS) 5    3LEMH 200100Z AUTO 06004KT 9999 SCT011/// BKN013/// 22/20 Q1018LEMH2019-09-20T01:00:00Z39.874.2222.020.06046.2130.059055TRUEMVFRMETAR82.02019-09-20 01:08:453R(i5    3LERS 200100Z AUTO 36006KT 9999 NCD 19/16 Q1019LERS2019-09-20T01:00:00Z41.131.1719.016.036066.2130.088583TRUEVFRMETAR76.02019-09-20 01:08:45(Q(c5    3LESO 200100Z AUTO VRB01KT CAVOK 17/16 Q1016LESO2019-09-20T01:00:00Z43.35-1.817.016.0016.2130.0TRUEVFRMETAR8.02019-09-20 01:08:45 =)e=&Z(Y5   3LRTR 200100Z 30006KT CAVOK 04/02 Q1024LRTR2019-09-20T01:00:00Z45.8221.334.02.030066.2130.236221VFRMETAR88.02019-09-20 01:08:45;Y(y5    3LEAM 200100Z AUTO 04005KT 010V070 9999 NCD 23/20 Q1017LEAM2019-09-20T01:00:00Z36.85-2.3723.020.04056.2130.029528TRUEVFRMETAR21.02019-09-20 01:08:455X(i5    3LEAS 200100Z AUTO 17002KT 9999 NCD 16/15 Q1015LEAS2019-09-20T01:00:00Z43.53-6.0216.015.017026.2129.970472TRUEVFRMETAR134.02019-09-20 01:08:45>W)5    3LEBB 200100Z AUTO 09003KT 060V120 9999 3300SE NCD 16/15 Q1016LEBB2019-09-20T01:00:00Z43.28-2.9216.015.09036.2130.0TRUEVFRMETAR34.02019-09-20 01:08:45QV)5     3LECO 200100Z AUTO 00000KT 0200 R21/0650U R03/0500N FG BKN002 14/14 Q1015LECO2019-09-20T01:00:00Z43.28-8.3714.014.0000.1229.970472TRUEFGLIFRMETAR103.02019-09-20 01:08:45 LKhL0_(c5    3LFSD 200100Z AUTO 01012KT CAVOK 11/02 Q1024LFSD2019-09-20T01:00:00Z47.275.0711.02.010126.2130.236221TRUEVFRMETAR227.02019-09-20 01:08:45,^(g5   3LDRI 200100Z VRB07KT CAVOK 15/01 Q1024 WS R14LDRI2019-09-20T01:00:00Z45.2214.5715.01.0076.2130.236221VFRMETAR85.02019-09-20 01:08:45.](e5    3LRBS 200100Z 05007KT CAVOK 14/08 Q1020 NOSIGLRBS2019-09-20T01:00:00Z44.526.0814.08.05076.2130.11811TRUEVFRMETAR91.02019-09-20 01:08:45]\)95    3LRCK 200100Z 02012KT 9999 -RA SCT005 BKN024 12/12 Q1020 R36/290095 TEMPO BKN005 BKN020LRCK2019-09-20T01:00:00Z44.3728.4812.012.020126.2130.11811-RAMVFRMETAR108.02019-09-20 01:08:45/[(e5    3LROP 200100Z 05010KT CAVOK 14/07 Q1020 NOSIGLROP2019-09-20T01:00:00Z44.5726.114.07.050106.2130.11811TRUEVFRMETAR95.02019-09-20 01:08:45 _K_6d(s5    3LFOZ 200100Z AUTO 05008KT 020V080 CAVOK 11/01 Q1025LFOZ2019-09-20T01:00:00Z47.92.1711.01.05086.2130.265747TRUEVFRMETAR121.02019-09-20 01:08:456c(s5    3LFPM 200100Z AUTO 05005KT 010V080 CAVOK 10/03 Q1026LFPM2019-09-20T01:00:00Z48.622.6710.03.05056.2130.295275TRUEVFRMETAR92.02019-09-20 01:08:45.b(c5    3LFPT 200100Z AUTO 07010KT CAVOK 10/04 Q1027LFPT2019-09-20T01:00:00Z49.12.0310.04.070106.2130.324802TRUEVFRMETAR99.02019-09-20 01:08:45:a(o5     3LFRH 200100Z AUTO 06011KT CAVOK 13/05 Q1022 NOSIGLFRH2019-09-20T01:00:00Z47.77-3.4513.05.060116.2130.177166TRUETRUEVFRMETAR44.02019-09-20 01:08:45/`(c5    3LFRQ 200100Z AUTO 08008KT CAVOK 12/07 Q1023LFRQ2019-09-20T01:00:00Z47.97-4.1712.07.08086.2130.206694TRUEVFRMETAR94.02019-09-20 01:08:45 eL"e7i(s5    3LFRO 200100Z AUTO 08005KT 050V120 CAVOK 14/09 Q1024LFRO2019-09-20T01:00:00Z48.75-3.4714.09.08056.2130.236221TRUEVFRMETAR89.02019-09-20 01:08:451h(c5    3LFRV 200100Z AUTO 06011KT CAVOK 12/04 Q1022LFRV2019-09-20T01:00:00Z47.72-2.7212.04.060116.2130.177166TRUEVFRMETAR133.02019-09-20 01:08:459g(o5     3LFRZ 200100Z AUTO 07011KT CAVOK 14/03 Q1021 NOSIGLFRZ2019-09-20T01:00:00Z47.32-2.1714.03.070116.2130.147638TRUETRUEVFRMETAR4.02019-09-20 01:08:45.f(c5    3LFSG 200100Z AUTO 02007KT CAVOK 07/01 Q1026LFSG2019-09-20T01:00:00Z48.336.077.01.02076.2130.295275TRUEVFRMETAR330.02019-09-20 01:08:45.e(c5    3LFLN 200100Z AUTO 07004KT CAVOK 07/02 Q1023LFLN2019-09-20T01:00:00Z46.424.027.02.07046.2130.206694TRUEVFRMETAR244.02019-09-20 01:08:45 [C[4n(q5    3LEPA 200100Z 00000KT 9999 FEW018 21/20 Q1017 NOSIGLEPA2019-09-20T01:00:00Z39.532.7221.020.0006.2130.029528TRUEVFRMETAR8.02019-09-20 01:08:45(y5    3KTAZ 200058Z AUTO 00000KT 10SM CLR 23/20 A3005 RMK AO2KTAZ2019-09-20T00:58:00Z39.53-89.3323.020.00010.030.050198TRUETRUEVFRMETAR190.02019-09-20 01:08:45Y=)5    3KGOV 200058Z AUTO 18003KT 10SM CLR 17/15 A3010 RMK AO2 SLPNO T01670149 $KGOV2019-09-20T00:58:00Z44.68-84.7316.714.9180310.030.100393TRUETRUETRUEVFRMETAR353.02019-09-20 01:08:45g<)%5    3PHSF 200058Z AUTO 32010KT 10SM BKN018 22/15 A3024 RMK AO2 SLP122 T02160150 $PHSF2019-09-20T00:58:00Z19.77-155.5521.615.03201010.030.2391741012.2TRUETRUETRUEMVFRMETAR1887.02019-09-20 01:08:45`;)%5    3PWAK 200058Z AUTO 05009KT 9999 FEW290 31/23 A2974 RMK AO2 SLP077 T03100231 $PWAK2019-09-20T00:58:00Z19.28166.6531.023.15096.2129.7401581007.7TRUETRUETRUEVFRMETAR4.02019-09-20 01:08:45 8r B)y5   3KHIF 200058Z 28013G23KT 10SM SCT160 BKN200 18/02 A2983 RMK AO2A PK WND 28027/46 SLP064 MIDFLD WND 27017G24KT T01750023KHIF2019-09-20T00:58:00Z41.12-111.9717.52.3280132310.029.8287411006.4TRUEVFRMETAR1459.02019-09-20 01:08:45[A)5    3KGRF 200058Z 29008KT 10SM FEW150 19/16 A3005 RMK AO2A SLP180 T01890161 $KGRF2019-09-20T00:58:00Z47.07-122.5718.916.1290810.030.0501981018.0TRUETRUEVFRMETAR92.02019-09-20 01:08:45@@(y5    3KELO 200058Z AUTO 00000KT 10SM CLR 16/13 A3007 RMK AO2KELO2019-09-20T00:58:00Z47.82-91.8216.013.00010.030.070866TRUETRUEVFRMETAR443.02019-09-20 01:08:45B?(y5    3KHCO 200058Z AUTO 10005KT 10SM CLR 20/13 A2997 RMK AO2KHCO2019-09-20T00:58:00Z48.75-96.9320.013.0100510.029.970472TRUETRUEVFRMETAR250.02019-09-20 01:08:45 w!8Zw]F)!5    3PAFB 200058Z AUTO 17003KT 10SM OVC019 08/04 A2966 RMK AO2 SLP048 T00830043PAFB2019-09-20T00:58:00Z64.83-147.628.34.3170310.029.6604331004.8TRUETRUEMVFRMETAR137.02019-09-20 01:08:45XE)5    3K0J4 200058Z AUTO 08004KT 10SM CLR 26/16 A3010 RMK AO2 SLP188 T02610161K0J42019-09-20T00:58:00Z31.05-86.3226.116.180410.030.1003931018.8TRUETRUEVFRSPECI96.02019-09-20 01:08:45cD)35    3KGXF 200058Z 26010KT 10SM FEW100 36/06 A2964 RMK AO2A ACSL NE-SE-S SLP024 T03550055KGXF2019-09-20T00:58:00Z32.87-112.7235.55.52601010.029.6397631002.4TRUEVFRMETAR262.02019-09-20 01:08:45YC)5    3KSKA 200058Z 00000KT 10SM FEW070 17/05 A2996 RMK AO2A SLP146 T01710051 $KSKA2019-09-20T00:58:00Z47.62-117.6517.15.10010.029.9586621014.6TRUETRUEVFRMETAR750.02019-09-20 01:08:45Y88@HPX`hpx (08@HPX`hpx (08@HPX`hpx#(-27<AFKPUZ#(-27<AFKPUZ_dinsx} "µ&õ*ĵ.ŵ2Ƶ6ǵ:ȵ>ɵBʵF̵J͵NεRϵVеZѵ^ҵbӵfԵjյnֵr׵vصzٵ~ڵ۵ܵ ݵ޵ߵ൛ᵛⵛ"㵛&䵛+嵛/浛3絛7赛;鵛?굛C뵛G쵛KOSﵛW[_cgkosw{  !%_SJ)5    3KMEI 200058Z 19004KT 10SM SCT055 26/22 A3006 RMK AO2 SLP176 T02610217KMEI2019-09-20T00:58:00Z32.33-88.7526.121.7190410.030.0590551017.6TRUEVFRMETAR89.02019-09-20 01:08:45@I(y5    3KAIT 200058Z AUTO 00000KT 10SM CLR 16/15 A3001 RMK AO2KAIT2019-09-20T00:58:00Z46.53-93.6716.015.00010.030.008858TRUETRUEVFRMETAR367.02019-09-20 01:08:45vH)E5   3KBYS 200058Z AUTO 21016G24KT 7SM CLR 25/M05 A2975 RMK AO2 PK WND 22028/10 SLP052 T02471046 $KBYS2019-09-20T00:58:00Z35.28-116.6224.7-4.621016247.029.7490161005.2TRUETRUETRUEVFRMETAR716.02019-09-20 01:08:45YG)5    3OAIX 200058Z 23005KT 9999 CLR 13/M01 A3006 RMK AO2A SLP103 T01281013 $OAIX2019-09-20T00:58:00Z34.9569.2712.8-1.323056.2130.0590551010.3TRUETRUEVFRMETAR1492.02019-09-20 01:08:45 W?N(y5    3KJMR 200058Z AUTO 00000KT 10SM CLR 18/17 A3002 RMK AO2KJMR2019-09-20T00:58:00Z45.88-93.2718.017.00010.030.02067TRUETRUEVFRMETAR309.02019-09-20 01:08:45IM) 5    3KCDA 200058Z AUTO 00000KT 10SM CLR 09/06 A3028 RMK AO2 T00920063KCDA2019-09-20T00:58:00Z44.57-72.029.26.30010.030.280512TRUETRUEVFRMETAR363.02019-09-20 01:08:45@L(y5    3KAXV 200058Z AUTO 13004KT 10SM CLR 22/17 A3009 RMK AO2KAXV2019-09-20T00:58:00Z40.5-84.322.017.0130410.030.088583TRUETRUEVFRMETAR279.02019-09-20 01:08:45]K)5    3K1J0 200058Z AUTO 05003KT 10SM CLR 26/16 A3010 RMK AO2 SLP150 T02560156 $K1J02019-09-20T00:58:00Z30.85-85.625.615.650310.030.1003931015.0TRUETRUETRUEVFRMETAR26.02019-09-20 01:08:45 -\yJR) 5    3KROS 200058Z AUTO 00000KT 10SM CLR 19/17 A3001 RMK AO2 T01920172KROS2019-09-20T00:58:00Z45.7-92.9519.217.20010.030.008858TRUETRUEVFRMETAR281.02019-09-20 01:08:45]Q)!5    3KROG 200058Z AUTO 12005KT 10SM FEW110 24/19 A3001 RMK AO2 SLP148 T02440194KROG2019-09-20T00:58:00Z36.37-94.0824.419.4120510.030.0088581014.8TRUETRUEVFRSPECI415.02019-09-20 01:08:45KP) 5    3KPMH 200058Z AUTO 00000KT 10SM CLR 19/18 A3014 RMK AO2 T01920181KPMH2019-09-20T00:58:00Z38.83-82.8519.218.10010.030.138779TRUETRUEVFRMETAR202.02019-09-20 01:08:45MO) 5    3KLWA 200058Z AUTO 12004KT 10SM CLR 20/18 A3007 RMK AO2 T01950181KLWA2019-09-20T00:58:00Z42.35-86.2519.518.1120410.030.070866TRUETRUEVFRMETAR203.02019-09-20 01:08:45 ,YAV(y5    3KPQN 200058Z AUTO 22004KT 10SM CLR 22/18 A2998 RMK AO2KPQN2019-09-20T00:58:00Z43.97-96.3222.018.0220410.029.97933TRUETRUEVFRMETAR529.02019-09-20 01:08:45KU) 5    3KONZ 200058Z AUTO 07004KT 10SM CLR 20/16 A3013 RMK AO2 T01960161KONZ2019-09-20T00:58:00Z42.1-83.1519.616.170410.030.129921TRUETRUEVFRMETAR180.02019-09-20 01:08:45MT) 5    3KY70 200058Z AUTO 14004KT 10SM CLR 21/14 A3010 RMK AO2 T02060139KY702019-09-20T00:58:00Z42.93-85.0720.613.9140410.030.100393TRUETRUEVFRMETAR250.02019-09-20 01:08:45NS)5    3PASD 200058Z 01006KT 10SM FEW015 BKN024 BKN036 11/09 A2952 RMK AO2 $PASD2019-09-20T00:58:00Z55.33-160.511.09.010610.029.518702TRUETRUEMVFRSPECI7.02019-09-20 01:08:45 d:dgd}Z)s5    3MMMX 200057Z 31004KT 7SM BKN015CB BKN080 OVC200 18/12 A3026 NOSIG RMK 60095 8/963 HZY OCNL LTGICCG 3TH AND 4TH QUADMMMX2019-09-20T00:57:00Z19.42-99.0818.012.031047.030.259842TRUEMVFRMETAR2238.02019-09-20 01:08:45wY)Q5      3KHZR 200057Z AUTO 00000KT 2SM +VCTSRA SCT010 BKN017 OVC033 22/22 A3005 RMK AO2 LTG DSNT ALQS P0075KHZR2019-09-20T00:57:00Z30.72-91.4822.022.0002.030.050198TRUETRUEVCTS +RAIFR0.75METAR12.02019-09-20 01:08:45PX)5    3KSXS 200057Z AUTO 10005KT 10SM CLR 26/16 A3010 RMK AO2 SLP191KSXS2019-09-20T00:57:00Z31.37-85.8526.016.0100510.030.1003931019.1TRUETRUEVFRMETAR122.02019-09-20 01:08:45@W(y5    3KRZT 200058Z AUTO 00000KT 10SM CLR 18/18 A3012 RMK AO2KRZT2019-09-20T00:58:00Z39.43-83.0218.018.00010.030.121063TRUETRUEVFRMETAR221.02019-09-20 01:08:45 /2`K^) 5    3KIKW 200057Z AUTO 00000KT 10SM CLR 17/14 A3010 RMK AO2 T01720137KIKW2019-09-20T00:57:00Z43.67-84.2717.213.70010.030.100393TRUETRUEVFRSPECI194.02019-09-20 01:08:45L]) 5    3KD95 200057Z AUTO 13003KT 10SM CLR 19/15 A3015 RMK AO2 T01880149KD952019-09-20T00:57:00Z43.07-83.2718.814.9130310.030.15059TRUETRUEVFRSPECI255.02019-09-20 01:08:45w\)S5    3CYIN 200057Z AUTO 00000KT 9SM FEW030 SCT041 BKN050 OVC065 10/08 A2997 RMK SLP172 DENSITY ALT 3900FTCYIN2019-09-20T00:57:00Z51.27-121.6810.08.0009.029.9704721017.2TRUEOVC6500VFRSPECI1128.02019-09-20 01:08:45K[) 5    3KBAX 200057Z AUTO 00000KT 10SM CLR 17/14 A3014 RMK AO2 T01690138KBAX2019-09-20T00:57:00Z43.78-82.9816.913.80010.030.138779TRUETRUEVFRSPECI234.02019-09-20 01:08:45 ={bb)55    3PHNG 200057Z 06011KT 10SM SCT026 BKN032 BKN050 29/23 A2989 RMK AO2 SLP116 T02940233 PHNG2019-09-20T00:57:00Z21.43-157.7729.423.3601110.029.8907471011.6TRUEVFRMETAR3.02019-09-20 01:08:45Ya)5    3KNYL 200057Z AUTO 25004KT 10SM CLR 35/02 A2964 RMK AO2 SLP035 T03500022KNYL2019-09-20T00:57:00Z32.63-114.6235.02.2250410.029.6397631003.5TRUETRUEVFRMETAR65.02019-09-20 01:08:45<`(y5    3KHZL 200057Z AUTO 00000KT 10SM CLR 08/06 A3033 RMK AO2KHZL2019-09-20T00:57:00Z40.98-76.08.06.00010.030.33071TRUETRUEVFRSPECI489.02019-09-20 01:08:45=_(y5    3K22N 200057Z AUTO 00000KT 10SM CLR 07/06 A3030 RMK AO2K22N2019-09-20T00:57:00Z40.8-75.777.06.00010.030.301182TRUETRUEVFRSPECI163.02019-09-20 01:08:45 ,[;f(y5    3KCBG 200057Z AUTO 00000KT 10SM CLR 21/14 A3000 RMK AO2KCBG2019-09-20T00:57:00Z45.57-93.2721.014.00010.030.0TRUETRUEVFRMETAR287.02019-09-20 01:08:45Ke) 5    3KEVM 200057Z AUTO 05004KT 10SM CLR 17/15 A3006 RMK AO2 T01700148KEVM2019-09-20T00:57:00Z47.42-92.517.014.850410.030.059055TRUETRUEVFRMETAR421.02019-09-20 01:08:45fd))5     3KNJM 200057Z AUTO 04004KT 10SM CLR 19/13 A3024 RMK AO2 SLP244 T01940133 TSNO $KNJM2019-09-20T00:57:00Z34.67-77.0219.413.340410.030.2391741024.4TRUETRUETRUETRUEVFRMETAR7.02019-09-20 01:08:45bc)+5    3KNTD 200057Z 25010KT 10SM FEW026 20/15 A2982 RMK AO2 SLP099 T02000150 VISNO N $KNTD2019-09-20T00:57:00Z34.12-119.1220.015.02501010.029.8198811009.9TRUETRUEVFRMETAR4.02019-09-20 01:08:45 <t_j)5    3KHFF 200056Z AUTO 10003KT 10SM CLR 18/11 A3025 RMK AO2 SLP258 T01790109 $KHFF2019-09-20T00:56:00Z35.02-79.517.910.9100310.030.2509841025.8TRUETRUETRUEVFRMETAR115.02019-09-20 01:08:45Bi(y5    3KMOX 200057Z AUTO 12005KT 10SM CLR 21/17 A2992 RMK AO2KMOX2019-09-20T00:57:00Z45.57-95.9721.017.0120510.029.920275TRUETRUEVFRMETAR344.02019-09-20 01:08:45Lh) 5    3KIRS 200057Z AUTO 11004KT 10SM CLR 19/13 A3010 RMK AO2 T01870131KIRS2019-09-20T00:57:00Z41.8-85.4318.713.1110410.030.100393TRUETRUEVFRMETAR282.02019-09-20 01:08:45lg)=5   3KFLG 200057Z 23021G28KT 10SM CLR 19/M02 A3003 RMK AO2 PK WND 21033/0030 SLP092 T01891022KFLG2019-09-20T00:57:00Z35.13-111.6718.9-2.2230212810.030.0295281009.2TRUEVFRMETAR2134.02019-09-20 01:08:45 y'>]y^n)5    3KSSC 200056Z AUTO 07004KT 10SM CLR 19/11 A3022 RMK AO2 SLP234 T01920105 $KSSC2019-09-20T00:56:00Z33.97-80.4719.210.570410.030.2214571023.4TRUETRUETRUEVFRMETAR74.02019-09-20 01:08:45[m)!5    3PFKT 200056Z AUTO 23005KT 10SM BKN028 07/01 A2968 RMK AO2 SLP052 T00670006PFKT2019-09-20T00:56:00Z65.33-166.476.70.6230510.029.6811031005.2TRUETRUEMVFRMETAR9.02019-09-20 01:08:45cl)+5      3PADL 200056Z 36006KT 10SM -RA OVC025 09/08 A2952 RMK AO2 SLP002 P0003 T00890083PADL2019-09-20T00:56:00Z59.05-158.58.98.3360610.029.5187021000.2TRUE-RAMVFR0.03METAR26.02019-09-20 01:08:45Sk)!5    3K2WX 200056Z AUTO 13017KT 26/ A2973 RMK AO1 PK WND 13026/0022 SLP047 T0256K2WX2019-09-20T00:56:00Z45.6-103.5525.61301729.7312981004.7TRUETRUEMETAR915.02019-09-20 01:08:45 t2TtZr)5   3KGTU 200056Z 13011G15KT 10SM OVC090 27/23 A2986 RMK AO2 SLP105 T02720228KGTU2019-09-20T00:56:00Z30.68-97.6827.222.8130111510.029.8612211010.5TRUEVFRMETAR240.02019-09-20 01:08:45Xq)5    3KFLP 200056Z AUTO 00000KT 10SM CLR 27/19 A2999 RMK AO2 SLP149 T02670194KFLP2019-09-20T00:56:00Z36.28-92.5826.719.40010.029.9911421014.9TRUETRUEVFRMETAR219.02019-09-20 01:08:45[p)5    3KFNL 200056Z AUTO 34004KT 10SM CLR 24/05 A2986 RMK AO2 SLP062 T02390050KFNL2019-09-20T00:56:00Z40.45-105.0223.95.0340410.029.8612211006.2TRUETRUEVFRMETAR1529.02019-09-20 01:08:45go)+5    3KDLF 200056Z AUTO 13007KT 10SM CLR 34/17 A2974 RMK AO2 SLP057 T03420170 RVRNO $KDLF2019-09-20T00:56:00Z29.37-100.7734.217.0130710.029.7401581005.7TRUETRUETRUEVFRMETAR330.02019-09-20 01:08:45 }!Cd}av)5    3KGBD 200056Z AUTO 14010KT 10SM CLR 27/19 A2992 RMK AO2 SLP116 T02720194 $KGBD2019-09-20T00:56:00Z38.35-98.8727.219.41401010.029.9202751011.6TRUETRUETRUEVFRMETAR575.02019-09-20 01:08:45Yu)5    3KGDV 200056Z AUTO 09007KT 10SM CLR 23/14 A2971 RMK AO2 SLP052 T02330144KGDV2019-09-20T00:56:00Z47.12-104.7823.314.490710.029.710631005.2TRUETRUEVFRMETAR749.02019-09-20 01:08:45Xt)5    3KGPZ 200056Z AUTO 00000KT 10SM CLR 19/16 A3005 RMK AO2 SLP177 T01940161KGPZ2019-09-20T00:56:00Z47.22-93.5219.416.10010.030.0501981017.7TRUETRUEVFRMETAR413.02019-09-20 01:08:45Ys)5    3KGTR 200056Z AUTO 14005KT 10SM CLR 28/22 A3005 RMK AO2 SLP182 T02780222KGTR2019-09-20T00:56:00Z33.45-88.5727.822.2140510.030.0501981018.2TRUETRUEVFRMETAR80.02019-09-20 01:08:45 $CcYz)5    3KSZL 200056Z 00000KT 10SM SCT200 24/21 A2994 RMK AO2A SLP135 T02430206 $KSZL2019-09-20T00:56:00Z38.72-93.5324.320.60010.029.9409451013.5TRUETRUEVFRMETAR265.02019-09-20 01:08:45Zy)'5    3KMTC 200056Z 00000KT 10SM FEW120 FEW250 18/17 A3013 RMK AO2A SLP207 T01840171KMTC2019-09-20T00:56:00Z42.62-82.8218.417.10010.030.1299211020.7TRUEVFRMETAR177.02019-09-20 01:08:45[x)5    3KNXP 200056Z AUTO 30017KT 10SM CLR 29/02 A2979 RMK AO2 SLP054 T02890022KNXP2019-09-20T00:56:00Z34.28-116.1728.92.23001710.029.7903541005.4TRUETRUEVFRMETAR626.02019-09-20 01:08:45Vw)5    3KGAI 200056Z AUTO VRB03KT 10SM CLR 14/07 A3031 RMK AO2 SLP277 T01390072KGAI2019-09-20T00:56:00Z39.17-77.1713.97.20310.030.310041027.7TRUETRUEVFRMETAR165.02019-09-20 01:08:45 @Y~)5    3KLZU 200056Z AUTO 06006KT 10SM CLR 21/14 A3021 RMK AO2 SLP234 T02060139KLZU2019-09-20T00:56:00Z33.98-83.9720.613.960610.030.2096461023.4TRUETRUEVFRMETAR323.02019-09-20 01:08:45R})5    3KLRD 200056Z 14013KT 10SM CLR 34/21 A2975 RMK AO2 SLP068 T03440211KLRD2019-09-20T00:56:00Z27.55-99.4734.421.11401310.029.7490161006.8TRUEVFRMETAR155.02019-09-20 01:08:459|(q5   3KVWU 200056Z AUTO 00000KT 10SM 16/14 A3003 RMK AO2KVWU2019-09-20T00:56:00Z48.15-94.5216.014.00010.030.029528TRUETRUEMETAR360.02019-09-20 01:08:45:{(y5    3KMZH 200056Z AUTO 00000KT 10SM CLR 17/16 A3000 RMK AO2KMZH2019-09-20T00:56:00Z46.42-92.817.016.00010.030.0TRUETRUEVFRMETAR328.02019-09-20 01:08:45 Jg])5    3ETIH 200056Z AUTO 33003KT 9999 CLR 01/01 A3039 RMK AO2 SLP304 T00140013 $ETIH2019-09-20T00:56:00Z49.2211.821.41.333036.2130.3897631030.4TRUETRUETRUEVFRMETAR442.02019-09-20 01:08:45])!5    3ETIK 200056Z AUTO 00000KT 9999 CLR 01/M03 A3040 RMK AO2 SLP303 T00061026 $ETIK2019-09-20T00:56:00Z49.4710.370.6-2.6006.2130.3986231030.3TRUETRUETRUEVFRMETAR325.02019-09-20 01:08:45L) 5    3KI19 200056Z AUTO 13004KT 10SM CLR 24/18 A3013 RMK AO2 T02370175KI192019-09-20T00:56:00Z39.7-83.9823.717.5130410.030.129921TRUETRUEVFRMETAR289.02019-09-20 01:08:45^)!5    3KNXF 200056Z AUTO 25005KT 10SM OVC021 21/15 A2983 RMK AO2 SLP186 T02110150KNXF2019-09-20T00:56:00Z33.28-117.4521.115.0250510.029.8287411018.6TRUETRUEMVFRMETAR27.02019-09-20 01:08:45 <lZ)5    3KGAD 200056Z AUTO 12005KT 10SM CLR 26/16 A3013 RMK AO2 SLP201 T02610156KGAD2019-09-20T00:56:00Z33.97-86.0726.115.6120510.030.1299211020.1TRUETRUEVFRMETAR173.02019-09-20 01:08:45J)5     3KMJX 200056Z AUTO 00000KT 10SM CLR 09/ A3031 RMK AO2 SLP266 T0089KMJX2019-09-20T00:56:00Z39.93-74.38.90010.030.310041026.6TRUETRUEVFRMETAR25.02019-09-20 01:08:45])!5    3KMKT 200056Z AUTO 12003KT 10SM BKN041 24/22 A2999 RMK AO2 SLP152 T02390217KMKT2019-09-20T00:56:00Z44.22-93.9223.921.7120310.029.9911421015.2TRUETRUEVFRMETAR311.02019-09-20 01:08:45[)5    3ETEB 200056Z AUTO 00000KT 9999 CLR 04/00 A3038 RMK AO2 SLP307 T00410002 $ETEB2019-09-20T00:56:00Z49.3210.624.10.2006.2130.3809051030.7TRUETRUETRUEVFRMETAR467.02019-09-20 01:08:45 |!Fi|g )-5    3KFAM 200056Z AUTO 26005KT 10SM SCT120 27/19 A3005 RMK AO2 SLP177 T02670189 PNO $KFAM2019-09-20T00:56:00Z37.77-90.4226.718.9260510.030.0501981017.7TRUETRUETRUEVFRMETAR288.02019-09-20 01:08:45W )5    3KFCI 200056Z AUTO 12003KT 10SM CLR 15/10 A3031 RMK AO2 SLP274 T01500100KFCI2019-09-20T00:56:00Z37.4-77.5215.010.0120310.030.310041027.4TRUETRUEVFRMETAR72.02019-09-20 01:08:45U)5    3KFOD 200056Z AUTO 12005KT 10SM CLR 23/19 A3000 RMK AO2 SLP179 T02280194KFOD2019-09-20T00:56:00Z42.53-94.1722.819.4120510.030.01017.9TRUETRUEVFRMETAR355.02019-09-20 01:08:45Y)5    3KFRM 200056Z AUTO 09004KT 10SM CLR 22/19 A2999 RMK AO2 SLP155 T02170194KFRM2019-09-20T00:56:00Z43.63-94.4221.719.490410.029.9911421015.5TRUETRUEVFRMETAR354.02019-09-20 01:08:45 e'*EeZ)5    3KEKY 200056Z AUTO 13006KT 10SM CLR 27/18 A3012 RMK AO2 SLP044 T02670178KEKY2019-09-20T00:56:00Z33.32-86.9326.717.8130610.030.1210631004.4TRUETRUEVFRMETAR213.02019-09-20 01:08:45_ )!5    3KENV 200056Z AUTO 29012KT 10SM BKN100 14/03 A2990 RMK AO2 SLP112 T01440028KENV2019-09-20T00:56:00Z40.72-114.0214.42.82901210.029.8996071011.2TRUETRUEVFRMETAR1292.02019-09-20 01:08:45w )U5    3KEUL 200056Z AUTO 31008KT 10SM FEW065 BKN085 18/08 A2990 RMK AO2 LTG DSNT S TSE2358 SLP121 T01830078KEUL2019-09-20T00:56:00Z43.62-116.6218.37.8310810.029.8996071012.1TRUETRUEVFRMETAR740.02019-09-20 01:08:45S )5   3KEWK 200056Z AUTO 15008KT 10SM 26/20 A2994 RMK AO2 SLP123 T02610200KEWK2019-09-20T00:56:00Z38.03-97.2726.120.0150810.029.9409451012.3TRUETRUEMETAR467.02019-09-20 01:08:45 {9]{\)5    3KEEN 200056Z AUTO 00000KT 10SM CLR 08/07 A3028 RMK AO2 SLP261 T00780072 $KEEN2019-09-20T00:56:00Z42.88-72.277.87.20010.030.2805121026.1TRUETRUETRUEVFRMETAR149.02019-09-20 01:08:45V)5    3KEGE 200056Z 23011KT 10SM FEW110 24/01 A2996 RMK AO2 SLP097 T02440006KEGE2019-09-20T00:56:00Z39.63-106.9224.40.62301110.029.9586621009.7TRUEVFRMETAR1993.02019-09-20 01:08:45X)5    3KEHR 200056Z AUTO 00000KT 10SM CLR 22/19 A3003 RMK AO2 SLP168 T02220189KEHR2019-09-20T00:56:00Z37.82-87.6722.218.90010.030.0295281016.8TRUETRUEVFRMETAR117.02019-09-20 01:08:45c)/5    3KEKQ 200056Z AUTO 05007KT 10SM BKN055 BKN070 25/18 A3014 RMK AO2 SLP195 T02500183KEKQ2019-09-20T00:56:00Z36.85-84.8525.018.350710.030.1387791019.5TRUETRUEVFRMETAR294.02019-09-20 01:08:45  BdZ)5    3KDVL 200056Z AUTO 11011KT 10SM CLR 19/16 A2995 RMK AO2 SLP722 T01940156KDVL2019-09-20T00:56:00Z48.12-98.9219.415.61101110.029.949802972.2TRUETRUEVFRMETAR443.02019-09-20 01:08:45X)5    3KDWU 200056Z AUTO 00000KT 10SM CLR 21/19 A3013 RMK AO2 SLP201 T02110189KDWU2019-09-20T00:56:00Z38.55-82.7321.118.90010.030.1299211020.1TRUETRUEVFRMETAR166.02019-09-20 01:08:45X)5    3KDYR 200056Z AUTO 15006KT 10SM CLR 27/22 A3003 RMK AO2 SLP173 T02720222KDYR2019-09-20T00:56:00Z36.0-89.427.222.2150610.030.0295281017.3TRUETRUEVFRMETAR103.02019-09-20 01:08:45Z)5    3KEAR 200056Z AUTO 16012KT 10SM CLR 27/19 A2990 RMK AO2 SLP109 T02720189KEAR2019-09-20T00:56:00Z40.72-99.027.218.91601210.029.8996071010.9TRUETRUEVFRMETAR649.02019-09-20 01:08:45 x3IxK) 5    3KDUH 200056Z AUTO 00000KT 10SM CLR 21/18 A3012 RMK AO2 T02070180KDUH2019-09-20T00:56:00Z41.73-83.6520.718.00010.030.121063TRUETRUEVFRMETAR204.02019-09-20 01:08:45d)75    3KNDZ 200056Z 00000KT 10SM FEW050 SCT080 BKN250 25/22 A3006 RMK AO2 SLP163 T02500217 $KNDZ2019-09-20T00:56:00Z30.7-87.0225.021.70010.030.0590551016.3TRUETRUEVFRMETAR54.02019-09-20 01:08:45W)5    3KCWI 200056Z AUTO 03005KT 8SM CLR 21/20 A3005 RMK AO2 SLP173 T02060200KCWI2019-09-20T00:56:00Z41.82-90.3220.620.03058.030.0501981017.3TRUETRUEVFRMETAR216.02019-09-20 01:08:45j)35    3KDIJ 200056Z AUTO 34009KT 10SM SCT095 BKN110 14/03 A2994 RMK AO2 SLP116 T01390033 $KDIJ2019-09-20T00:56:00Z43.75-111.113.93.3340910.029.9409451011.6TRUETRUETRUEVFRMETAR1899.02019-09-20 01:08:45 -Iy;(y5    3KFSE 200056Z AUTO 00000KT 10SM CLR 18/14 A3000 RMK AO2KFSE2019-09-20T00:56:00Z47.58-95.7718.014.00010.030.0TRUETRUEVFRMETAR389.02019-09-20 01:08:45J) 5    3KFFX 200056Z AUTO 00000KT 10SM CLR 22/14 A3007 RMK AO2 T02150135KFFX2019-09-20T00:56:00Z43.43-86.021.513.50010.030.070866TRUETRUEVFRMETAR236.02019-09-20 01:08:45^)/5    3KFKA 200056Z AUTO 21003KT 10SM SCT026 SCT031 SCT041 21/19 A3005 RMK AO2 T02110190KFKA2019-09-20T00:56:00Z43.68-92.1721.119.0210310.030.050198TRUETRUEVFRMETAR389.02019-09-20 01:08:45M) 5    3KCNB 200056Z AUTO 13005KT 10SM CLR 23/18 A2997 RMK AO2 T02250180KCNB2019-09-20T00:56:00Z44.73-96.2722.518.0130510.029.970472TRUETRUEVFRMETAR364.02019-09-20 01:08:45 6g>"(y5    3KONA 200056Z AUTO 00000KT 10SM CLR 21/20 A3002 RMK AO2KONA2019-09-20T00:56:00Z44.07-91.721.020.00010.030.02067TRUETRUEVFRMETAR200.02019-09-20 01:08:45L!) 5    3KHAI 200056Z AUTO 13004KT 10SM CLR 22/13 A3010 RMK AO2 T02160132KHAI2019-09-20T00:56:00Z41.97-85.621.613.2130410.030.100393TRUETRUEVFRMETAR251.02019-09-20 01:08:45I ) 5    3KFSO 200056Z AUTO 00000KT 10SM CLR 12/11 A3025 RMK AO2 T01180111KFSO2019-09-20T00:56:00Z44.93-73.111.811.10010.030.250984TRUETRUEVFRMETAR70.02019-09-20 01:08:45D) 5   3MMTM 200056Z 12011KT 7SM SCT015 BKN200 29/26 A2981 RMK 8/108 HZYMMTM2019-09-20T00:56:00Z22.27-97.8729.026.0120117.029.811024VFRMETAR24.02019-09-20 01:08:45 @pM&)5    3KLDM 200056Z AUTO 00000KT 10SM OVC110 19/18 A3007 RMK AO2 T01940183KLDM2019-09-20T00:56:00Z43.97-86.419.418.30010.030.070866TRUETRUEVFRMETAR197.02019-09-20 01:08:45M%) 5    3KRMY 200056Z AUTO 12004KT 10SM CLR 19/14 A3011 RMK AO2 T01860135KRMY2019-09-20T00:56:00Z42.23-84.9518.613.5120410.030.109253TRUETRUEVFRMETAR287.02019-09-20 01:08:45J$) 5    3KRQB 200056Z AUTO 00000KT 10SM CLR 20/17 A3009 RMK AO2 T01970172KRQB2019-09-20T00:56:00Z43.72-85.519.717.20010.030.088583TRUETRUEVFRMETAR302.02019-09-20 01:08:45:#(y5    3KPNM 200056Z AUTO 00000KT 10SM CLR 20/18 A3000 RMK AO2KPNM2019-09-20T00:56:00Z45.57-93.620.018.00010.030.0TRUETRUEVFRMETAR298.02019-09-20 01:08:45 9tB+(y5    3KLYV 200056Z AUTO 11003KT 10SM CLR 22/17 A2997 RMK AO2KLYV2019-09-20T00:56:00Z43.62-96.2222.017.0110310.029.970472TRUETRUEVFRMETAR436.02019-09-20 01:08:45N*) 5     3K04V 200056Z AUTO 00000KT 10SM SCT120 20/00 A3010 RMK AO2 PWINOK04V2019-09-20T00:56:00Z38.1-106.1720.00.00010.030.100393TRUETRUETRUEVFRMETAR2385.02019-09-20 01:08:45<)(y5    3K14Y 200056Z AUTO 12004KT 10SM CLR 20/16 A3000 RMK AO2K14Y2019-09-20T00:56:00Z45.9-94.8720.016.0120410.030.0TRUETRUEVFRMETAR406.02019-09-20 01:08:45?((y5    3K21D 200056Z AUTO 00000KT 10SM CLR 21/20 A3001 RMK AO2K21D2019-09-20T00:56:00Z45.0-92.8521.020.00010.030.008858TRUETRUEVFRMETAR285.02019-09-20 01:08:45A'(y5    3KJKJ 200056Z AUTO 09006KT 10SM CLR 22/16 A2994 RMK AO2KJKJ2019-09-20T00:56:00Z46.83-96.6722.016.090610.029.940945TRUETRUEVFRMETAR280.02019-09-20 01:08:45 :vR/)5    3KFFO 200056Z 13006KT 10SM CLR 25/18 A3010 RMK AO2A SLP192 T02470184KFFO2019-09-20T00:56:00Z39.82-84.0324.718.4130610.030.1003931019.2TRUEVFRMETAR251.02019-09-20 01:08:45T.)5    3KOFF 200056Z 11005KT 10SM CLR 28/22 A2996 RMK AO2A SLP131 RVRNO $KOFF2019-09-20T00:56:00Z41.12-95.9228.022.0110510.029.9586621013.1TRUETRUEVFRMETAR319.02019-09-20 01:08:45>-(y5    3KULM 200056Z AUTO 00000KT 10SM CLR 24/17 A2998 RMK AO2KULM2019-09-20T00:56:00Z44.32-94.524.017.00010.029.97933TRUETRUEVFRMETAR308.02019-09-20 01:08:45@,(y5    3KTOB 200056Z AUTO 00000KT 10SM CLR 21/19 A3003 RMK AO2KTOB2019-09-20T00:56:00Z44.02-92.8221.019.00010.030.029528TRUETRUEVFRMETAR398.02019-09-20 01:08:45 h /]ho3)?5   3KNJK 200056Z 25025G30KT 10SM CLR 33/05 A2966 RMK AO2 PK WND 24032/0019 SLP059 T03280050 $KNJK2019-09-20T00:56:00Z32.82-115.6732.85.0250253010.029.6604331005.9TRUETRUEVFRMETAR-13.02019-09-20 01:08:45L2) 5   3CYPX 200056Z AUTO 27024G33KT 7SM OVC014 06/04 A2956 RMK SLP012CYPX2019-09-20T00:56:00Z60.03-77.276.04.027024337.029.560041001.2TRUEMVFRSPECI23.02019-09-20 01:08:45k1)=5    3PHNY 200056Z AUTO VRB03KT 10SM BKN024 BKN028 OVC033 26/23 A2997 RMK AO2 SLP125 T02610228PHNY2019-09-20T00:56:00Z20.77-156.9326.122.80310.029.9704721012.5TRUETRUEMVFRMETAR399.02019-09-20 01:08:45Z0)5    3PMDY 200056Z AUTO 36008KT 7SM FEW095 30/23 A2975 RMK AO2 SLP075 T03000233PMDY2019-09-20T00:56:00Z28.22-177.3730.023.336087.029.7490161007.5TRUETRUEVFRSPECI4.02019-09-20 01:08:45 i<Sid7))5     3KMKY 200056Z AUTO 03006KT 10SM CLR 25/20 A2998 RMK AO2 SLP151 T02500200 TSNO $KMKY2019-09-20T00:56:00Z26.0-81.6725.020.030610.029.979331015.1TRUETRUETRUETRUEVFRMETAR2.02019-09-20 01:08:45c6)%5    3KMNM 200056Z AUTO 18007KT 10SM FEW085 19/18 A3006 RMK AO2 SLP177 T01940183 $KMNM2019-09-20T00:56:00Z45.12-87.6219.418.3180710.030.0590551017.7TRUETRUETRUEVFRMETAR191.02019-09-20 01:08:45Z5)5    3KMML 200056Z AUTO 11007KT 10SM CLR 24/19 A2996 RMK AO2 SLP145 T02390189KMML2019-09-20T00:56:00Z44.45-95.8223.918.9110710.029.9586621014.5TRUETRUEVFRMETAR359.02019-09-20 01:08:45^4)#5    3ETIC 200056Z AUTO 00000KT 9999 CLR M01/M01 A3037 RMK AO2 SLP299 T10061013 $ETIC2019-09-20T00:56:00Z49.711.93-0.6-1.3006.2130.3690951029.9TRUETRUETRUEVFRMETAR415.02019-09-20 01:08:45 )FgO;)5    3KOAJ 200056Z 02003KT 10SM CLR 17/13 A3025 RMK AO2 SLP246 T01670128KOAJ2019-09-20T00:56:00Z34.82-77.6216.712.820310.030.2509841024.6TRUEVFRMETAR29.02019-09-20 01:08:45Y:)5    3KOKK 200056Z AUTO 04003KT 10SM CLR 21/18 A3009 RMK AO2 SLP187 T02060178KOKK2019-09-20T00:56:00Z40.53-86.0720.617.840310.030.0885831018.7TRUETRUEVFRMETAR253.02019-09-20 01:08:45]9)!5    3KMRF 200056Z AUTO 00000KT 10SM FEW070 25/13 A3004 RMK AO2 SLP113 T02500128KMRF2019-09-20T00:56:00Z30.37-104.0225.012.80010.030.0413381011.3TRUETRUEVFRMETAR1481.02019-09-20 01:08:45Q8)5    3KMQY 200056Z 16003KT 10SM CLR 26/18 A3008 RMK AO2 SLP189 T02610183KMQY2019-09-20T00:56:00Z36.02-86.5226.118.3160310.030.0797251018.9TRUEVFRMETAR166.02019-09-20 01:08:45 })K[}X?)5    3KMSV 200056Z AUTO 34003KT 10SM CLR 11/07 A3030 RMK AO2 SLP266 T01060067KMSV2019-09-20T00:56:00Z41.7-74.7810.66.7340310.030.3011821026.6TRUETRUEVFRMETAR428.02019-09-20 01:08:45j>)75     3KMTW 200056Z AUTO 00000KT 8SM CLR 17/16 A3007 RMK AO2 RAB25E37 SLP183 P0000 T01670161KMTW2019-09-20T00:56:00Z44.12-87.6716.716.1008.030.0708661018.3TRUETRUEVFR0.005METAR198.02019-09-20 01:08:45X=)5    3KMVN 200056Z AUTO 00000KT 10SM CLR 21/20 A3003 RMK AO2 SLP169 T02110200KMVN2019-09-20T00:56:00Z38.32-88.8721.120.00010.030.0295281016.9TRUETRUEVFRMETAR146.02019-09-20 01:08:45Q<)5    3KMYR 200056Z 02007KT 10SM BKN055 21/13 A3022 RMK AO2 SLP232 T02110133KMYR2019-09-20T00:56:00Z33.67-78.9221.113.320710.030.2214571023.2TRUEVFRMETAR8.02019-09-20 01:08:45  <bQC)5    3KOWB 200056Z 16005KT 10SM CLR 27/19 A3004 RMK AO2 SLP170 T02670194KOWB2019-09-20T00:56:00Z37.72-87.1726.719.4160510.030.0413381017.0TRUEVFRMETAR124.02019-09-20 01:08:45TB)5    3KOTH 200056Z 35011KT 10SM FEW013 18/15 A3012 RMK AO2 SLP200 T01780150KOTH2019-09-20T00:56:00Z43.42-124.2517.815.03501110.030.1210631020.0TRUEVFRMETAR4.02019-09-20 01:08:45^A)5     3KOTG 200056Z AUTO 12004KT 5SM HZ CLR 22/19 A2999 RMK AO2 SLP153 T02170189KOTG2019-09-20T00:56:00Z43.63-95.5721.718.912045.029.9911421015.3TRUETRUEHZMVFRMETAR480.02019-09-20 01:08:45Z@)5    3KOLU 200056Z AUTO 13008KT 10SM CLR 28/22 A2992 RMK AO2 SLP123 T02780217KOLU2019-09-20T00:56:00Z41.45-97.3227.821.7130810.029.9202751012.3TRUETRUEVFRMETAR440.02019-09-20 01:08:45 Q(L-QVG)!5    3KPTN 200056Z AUTO 34004KT 10SM FEW002 27/24 A3000 RMK AO2 SLP159 T02720244KPTN2019-09-20T00:56:00Z29.72-91.3227.224.4340410.030.01015.9TRUETRUEVFRMETAR3.02019-09-20 01:08:45F)5     3KPRX 200056Z AUTO 11015G20KT 10SM -RA OVC008 22/21 A2991 RMK AO2 PK WND 11027/0002 RAB15 CIG 005V012 SLP137 P0000 T02220211KPRX2019-09-20T00:56:00Z33.62-95.4522.221.1110152010.029.9114171013.7TRUETRUE-RAIFR0.005METAR167.02019-09-20 01:08:45VE)5    3KPQI 200056Z AUTO 00000KT 10SM CLR 09/08 A3018 RMK AO2 SLP248 T00940078KPQI2019-09-20T00:56:00Z46.67-68.039.47.80010.030.1801191024.8TRUETRUEVFRMETAR146.02019-09-20 01:08:45RD)5    3KPIB 200056Z AUTO 10004KT 10SM CLR 23/23 A3006 RMK AO2 SLPNO T02330228KPIB2019-09-20T00:56:00Z31.47-89.3223.322.8100410.030.059055TRUETRUEVFRMETAR91.02019-09-20 01:08:45 VBMVqK)C5    3KPWG 200056Z AUTO 05009KT 10SM CLR 28/22 A2984 RMK AO2 LTG DSNT N AND NW SLP096 T02830217 $KPWG2019-09-20T00:56:00Z31.47-97.3228.321.750910.029.8405511009.6TRUETRUETRUEVFRMETAR180.02019-09-20 01:08:45oJ)I5    3KPVU 200056Z 32019KT 10SM FEW090 SCT140 19/06 A2978 RMK AO2 PK WND 33027/0032 SLP053 T01890056KPVU2019-09-20T00:56:00Z40.22-111.7218.95.63201910.029.7785431005.3TRUEVFRMETAR1369.02019-09-20 01:08:45TI)5    3KPVG 200056Z AUTO 00000KT 10SM CLR 11/09 A3031 RMK AO2 SLP265 T01060094KPVG2019-09-20T00:56:00Z36.78-76.4510.69.40010.030.310041026.5TRUETRUEVFRMETAR7.02019-09-20 01:08:45^H)'5    3KPVC 200056Z AUTO 00000KT 10SM CLR 07/05 A3028 RMK AO2 SLP252 T00670050 PNO $KPVC2019-09-20T00:56:00Z42.07-70.226.75.00010.030.2805121025.2TRUETRUETRUEVFRMETAR2.02019-09-20 01:08:45 }A^}[O)5    3KGXY 200056Z AUTO 02005KT 10SM CLR 22/11 A2983 RMK AO2 SLP079 T02170111KGXY2019-09-20T00:56:00Z40.42-104.6221.711.120510.029.8287411007.9TRUETRUEVFRMETAR1420.02019-09-20 01:08:45]N)!5    3KPWT 200056Z AUTO 20004KT 10SM OVC041 18/13 A3006 RMK AO2 SLP197 T01780133KPWT2019-09-20T00:56:00Z47.5-122.7517.813.3200410.030.0590551019.7TRUETRUEVFRMETAR147.02019-09-20 01:08:45UM)5    3KRKD 200056Z AUTO 00000KT 10SM CLR 08/07 A3025 RMK AO2 SLP244 T00780067KRKD2019-09-20T00:56:00Z44.07-69.087.86.70010.030.2509841024.4TRUETRUEVFRMETAR17.02019-09-20 01:08:45^L)5    3KGUC 200056Z AUTO 19010KT 10SM CLR 21/M01 A3005 RMK AO2 SLP120 T02111006KGUC2019-09-20T00:56:00Z38.52-106.9221.1-0.61901010.030.0501981012.0TRUETRUEVFRMETAR2339.02019-09-20 01:08:45 &Ca[S)5    3KNUC 200056Z 31012KT 10SM FEW011 20/14 A2986 RMK AO2 SLP107 T02000144 $KNUC2019-09-20T00:56:00Z33.02-118.5720.014.43101210.029.8612211010.7TRUETRUEVFRMETAR55.02019-09-20 01:08:45\R)5   3KJAC 200056Z 22007G17KT 10SM BKN110 17/M02 A2986 RMK AO2 SLP091 T01671017KJAC2019-09-20T00:56:00Z43.62-110.7316.7-1.722071710.029.8612211009.1TRUEVFRMETAR1961.02019-09-20 01:08:45]Q)5    3KHDN 200056Z AUTO 24007KT 10SM CLR 23/M01 A2993 RMK AO2 SLP061 T02281006KHDN2019-09-20T00:56:00Z40.47-107.2222.8-0.6240710.029.9291341006.1TRUETRUEVFRMETAR2012.02019-09-20 01:08:45TP)5     3KGVQ 200056Z AUTO 16004KT 10SM CLR 16/11 RMK AO2 SLPNO P0001 T01610106 $KGVQ2019-09-20T00:56:00Z43.03-78.1716.110.6160410.0TRUETRUETRUEVFR0.01METAR278.02019-09-20 01:08:45 p CcpmW)K5    3KHYI 200056Z AUTO 11015KT 10SM SCT013 BKN075 26/23 A2984 RMK AO2 LTG DSNT SE-SW SLPNO T02610228KHYI2019-09-20T00:56:00Z29.88-97.8726.122.81101510.029.840551TRUETRUEVFRMETAR182.02019-09-20 01:08:45ZV)5    3KHYS 200056Z AUTO 13007KT 10SM CLR 27/18 A2991 RMK AO2 SLP113 T02720183KHYS2019-09-20T00:56:00Z38.85-99.2727.218.3130710.029.9114171011.3TRUETRUEVFRMETAR609.02019-09-20 01:08:45WU)5    3KILE 200056Z AUTO 10SM OVC050 29/22 A2984 RMK AO2 SLP089 T02890222 $KILE2019-09-20T00:56:00Z31.07-97.6728.922.210.029.8405511008.9TRUETRUETRUEVFRMETAR258.02019-09-20 01:08:45ZT)5    3KJHW 200056Z AUTO 18004KT 10SM CLR 15/11 A3026 RMK AO2 SLP253 T01500106KJHW2019-09-20T00:56:00Z42.13-79.2715.010.6180410.030.2598421025.3TRUETRUEVFRMETAR525.02019-09-20 01:08:45 [18[W[)5    3KLCI 200056Z AUTO 00000KT 10SM CLR 11/08 A3026 RMK AO2 SLP248 T01060083KLCI2019-09-20T00:56:00Z43.57-71.4210.68.30010.030.2598421024.8TRUETRUEVFRMETAR166.02019-09-20 01:08:45sZ)E5   3KLBL 200056Z AUTO 17018G27KT 10SM CLR 24/17 A2992 RMK AO2 PK WND 17027/0051 SLP105 T02390167KLBL2019-09-20T00:56:00Z37.03-100.9723.916.7170182710.029.9202751010.5TRUETRUEVFRMETAR879.02019-09-20 01:08:45[Y)!5    3KKLS 200056Z AUTO 29007KT 10SM BKN047 19/13 A3007 RMK AO2 SLP188 T01940128KKLS2019-09-20T00:56:00Z46.12-122.919.412.8290710.030.0708661018.8TRUETRUEVFRSPECI5.02019-09-20 01:08:45hX)?5    3KJRB 200056Z AUTO 20005KT 10SM CLR 19/11 A3029 RMK AO2 PK WND 28046/0014 SLP256 T01890106KJRB2019-09-20T00:56:00Z40.7-74.0218.910.6200510.030.289371025.6TRUETRUEVFRMETAR7.02019-09-20 01:08:45 "=hR_)5    3KISM 200056Z 06008KT 10SM BKN080 26/19 A3005 RMK AO2 SLP174 T02610194KISM2019-09-20T00:56:00Z28.28-81.4326.119.460810.030.0501981017.4TRUEVFRMETAR25.02019-09-20 01:08:45O^)5    3KITH 200056Z 07005KT 10SM CLR 11/09 A3028 RMK AO2 SLP255 T01060094KITH2019-09-20T00:56:00Z42.47-76.4510.69.470510.030.2805121025.5TRUEVFRMETAR335.02019-09-20 01:08:45_])/5    3KLGD 200056Z AUTO 30013KT 10SM BKN050 OVC075 17/06 A3000 RMK AO2 SLP293 T01670061KLGD2019-09-20T00:56:00Z45.27-118.016.76.13001310.030.01029.3TRUETRUEVFRMETAR827.02019-09-20 01:08:45X\)5    3KLEW 200056Z AUTO 15005KT 10SM CLR 11/08 A3025 RMK AO2 SLP251 T01110078KLEW2019-09-20T00:56:00Z44.03-70.2711.17.8150510.030.2509841025.1TRUETRUEVFRMETAR88.02019-09-20 01:08:45 P/PYc)5    3KSDY 200056Z AUTO 13008KT 10SM CLR 24/15 A2972 RMK AO2 SLP461 T02390150KSDY2019-09-20T00:56:00Z47.7-104.223.915.0130810.029.7194881046.1TRUETRUEVFRMETAR605.02019-09-20 01:08:45`b)5    3KRUT 200056Z AUTO 13010KT 10SM CLR 11/09 A3028 RMK AO2 SLP251 T01110089 $KRUT2019-09-20T00:56:00Z43.52-72.9511.18.91301010.030.2805121025.1TRUETRUETRUEVFRMETAR240.02019-09-20 01:08:45la);5    3KMBL 200056Z AUTO 00000KT 10SM SCT060 OVC110 21/19 A3007 RMK AO2 SLP180 T02060189 PNO $KMBL2019-09-20T00:56:00Z44.27-86.2520.618.90010.030.0708661018.0TRUETRUETRUEVFRMETAR189.02019-09-20 01:08:45s`)K5   3KM19 200056Z AUTO 12013G18KT 8SM FEW070 BKN095 27/21 A2999 RMK AO2 LTG DSNT SE SLP153 T02720211KM192019-09-20T00:56:00Z35.65-91.1727.221.112013188.029.9911421015.3TRUETRUEVFRMETAR73.02019-09-20 01:08:45 m%JMmZg)5    3KSGH 200056Z AUTO 14006KT 10SM CLR 23/19 A3012 RMK AO2 SLP197 T02280189KSGH2019-09-20T00:56:00Z39.83-83.8322.818.9140610.030.1210631019.7TRUETRUEVFRMETAR321.02019-09-20 01:08:45wf)[5       3KSGJ 200056Z AUTO 06012KT 10SM FEW034 SCT045 OVC055 A3011 RMK AO2 RAB23E43UPB43E48 SLPNO P0000 FZRANO $KSGJ2019-09-20T00:56:00Z29.97-81.32601210.030.109253TRUETRUETRUETRUEVFR0.005METAR3.02019-09-20 01:08:45Ue)5    3KSFZ 200056Z AUTO 00000KT 10SM CLR 08/07 A3027 RMK AO2 SLP199 T00830072KSFZ2019-09-20T00:56:00Z41.92-71.58.37.20010.030.2687021019.9TRUETRUEVFRMETAR134.02019-09-20 01:08:45Ud)5    3KSFM 200056Z AUTO 00000KT 10SM CLR 06/06 A3026 RMK AO2 SLP249 T00610061KSFM2019-09-20T00:56:00Z43.38-70.726.16.10010.030.2598421024.9TRUETRUEVFRMETAR74.02019-09-20 01:08:45 l&Pl^k)5    3KSKX 200056Z AUTO 22013KT 10SM CLR 22/M01 A3009 RMK AO2 SLP139 T02221011KSKX2019-09-20T00:56:00Z36.45-105.6722.2-1.12201310.030.0885831013.9TRUETRUEVFRMETAR2161.02019-09-20 01:08:45Pj)5    3KSLG 200056Z AUTO 00000KT 8SM CLR 23/21 A3000 RMK AO2 SLP149 T02280211KSLG2019-09-20T00:56:00Z36.2-94.4722.821.1008.030.01014.9TRUETRUEVFRMETAR300.02019-09-20 01:08:45si)G5   3KSGU 200056Z AUTO 22022G27KT 10SM CLR 29/M03 A2969 RMK AO2 PK WND 22027/0054 SLP018 T02941028KSGU2019-09-20T00:56:00Z37.07-113.5229.4-2.8220222710.029.689961001.8TRUETRUEVFRMETAR896.02019-09-20 01:08:45[h)!5    3KSGT 200056Z AUTO 13012KT 10SM FEW120 27/22 A2998 RMK AO2 SLP151 T02670217KSGT2019-09-20T00:56:00Z34.6-91.5726.721.71301210.029.979331015.1TRUETRUEVFRMETAR68.02019-09-20 01:08:45 M&OM|o)]5     3KSRC 200056Z AUTO 00000KT 10SM BKN065 OVC090 24/24 A2999 RMK AO2 TSB01E19RAB17E51 SLP154 P0003 T02440239KSRC2019-09-20T00:56:00Z35.22-91.7324.423.90010.029.9911421015.4TRUETRUEVFR0.03METAR80.02019-09-20 01:08:45Qn)5    3KSQI 200056Z 10003KT 10SM CLR 22/21 A3004 RMK AO2 SLP035 T02170211KSQI2019-09-20T00:56:00Z41.75-89.6721.721.1100310.030.0413381003.5TRUEVFRMETAR197.02019-09-20 01:08:45Xm)5    3KSOP 200056Z AUTO 08003KT 10SM CLR 17/11 A3027 RMK AO2 SLP254 T01720106KSOP2019-09-20T00:56:00Z35.22-79.417.210.680310.030.2687021025.4TRUETRUEVFRMETAR141.02019-09-20 01:08:45vl)C5     3KSMN 200056Z AUTO 18003KT 10SM -RA BKN045 OVC050 10/09 A2996 RMK AO2 SLP148 T01000094 PNO $KSMN2019-09-20T00:56:00Z45.12-113.8710.09.4180310.029.9586621014.8TRUETRUETRUE-RAVFRMETAR1233.02019-09-20 01:08:45 v1IvMs)5    3KHEF 200056Z 00000KT 10SM CLR 14/09 A3030 RMK AO2 SLP266 T01390089KHEF2019-09-20T00:56:00Z38.72-77.5213.98.90010.030.3011821026.6TRUEVFRMETAR59.02019-09-20 01:08:45br)35    3KHEZ 200056Z AUTO 00000KT 10SM CLR 25/22 A3001 RMK AO2 LTG DSNT SE SLP161 T02500217KHEZ2019-09-20T00:56:00Z31.62-91.325.021.70010.030.0088581016.1TRUETRUEVFRMETAR83.02019-09-20 01:08:45Xq)5    3KHNB 200056Z AUTO 00000KT 10SM CLR 24/18 A3005 RMK AO2 SLP173 T02390178KHNB2019-09-20T00:56:00Z38.25-86.9523.917.80010.030.0501981017.3TRUETRUEVFRMETAR161.02019-09-20 01:08:45kp)=5   3KHND 200056Z 21017G23KT 10SM CLR 28/M07 A2972 RMK AO2 PK WND 21026/0005 SLP055 T02781067KHND2019-09-20T00:56:00Z35.98-115.1327.8-6.7210172310.029.7194881005.5TRUEVFRMETAR749.02019-09-20 01:08:45 d,BdXw)5    3KUDG 200056Z AUTO 08005KT 10SM CLR 18/13 A3024 RMK AO2 SLP241 T01780128KUDG2019-09-20T00:56:00Z34.45-79.8817.812.880510.030.2391741024.1TRUETRUEVFRMETAR59.02019-09-20 01:08:45dv)'5    3KUCP 200056Z AUTO 12004KT 10SM CLR 19/10 A3021 RMK AO2 SLP244 T01890100 PNO $KUCP2019-09-20T00:56:00Z41.03-80.4218.910.0120410.030.2096461024.4TRUETRUETRUEVFRMETAR327.02019-09-20 01:08:45Uu)5    3KTVF 200056Z AUTO 11008KT 10SM CLR 20/15 A3000 RMK AO2 SLP160 T02000150KTVF2019-09-20T00:56:00Z48.07-96.1720.015.0110810.030.01016.0TRUETRUEVFRMETAR340.02019-09-20 01:08:45st)?5      3KSUE 200056Z AUTO 15007KT 7SM -RA OVC022 18/17 A3009 RMK AO2 RAB49 SLP187 P0006 T01780172KSUE2019-09-20T00:56:00Z44.85-87.4217.817.215077.030.0885831018.7TRUETRUE-RAMVFR0.06METAR221.02019-09-20 01:08:45 Z5ZU{)5    3KWWD 200056Z AUTO 00000KT 10SM CLR 12/11 A3031 RMK AO2 SLP267 T01220106KWWD2019-09-20T00:56:00Z39.02-74.9212.210.60010.030.310041026.7TRUETRUEVFRMETAR7.02019-09-20 01:08:45Yz)5    3KWVL 200056Z AUTO 20004KT 10SM CLR 11/08 A3022 RMK AO2 SLP261 T01110083KWVL2019-09-20T00:56:00Z44.52-69.6711.18.3200410.030.2214571026.1TRUETRUEVFRMETAR101.02019-09-20 01:08:45Wy)5    3KVIS 200056Z AUTO 30009KT 10SM CLR 25/09 A2985 RMK AO2 SLP114 T02500094KVIS2019-09-20T00:56:00Z36.32-119.425.09.4300910.029.849411011.4TRUETRUEVFRMETAR89.02019-09-20 01:08:45 x)q5    3KVBT 200056Z AUTO 15004KT 10SM FEW050 OVC100 23/21 A3001 RMK AO2 PK WND 15026/2357 RAB01E31 SLP155 T02280206 PNO $KVBT2019-09-20T00:56:00Z36.35-94.2222.820.6150410.030.0088581015.5TRUETRUETRUEVFRMETAR395.02019-09-20 01:08:45 g/Hg[)!5    3PACM 200056Z AUTO 33006KT 10SM BKN035 10/04 A2963 RMK AO2 SLP030 T01000039PACM2019-09-20T00:56:00Z61.85-165.5710.03.9330610.029.6309051003.0TRUETRUEVFRMETAR4.02019-09-20 01:08:45a~)/5    3PABV 200056Z AUTO 00000KT 10SM SCT070 OVC090 14/07 A2962 RMK AO2 SLP036 T01440072PABV2019-09-20T00:56:00Z61.42-149.5214.47.20010.029.6190951003.6TRUETRUEVFRMETAR29.02019-09-20 01:08:45]})!5    3KYKN 200056Z AUTO 10005KT 10SM FEW044 24/21 A2992 RMK AO2 SLP137 T02390206KYKN2019-09-20T00:56:00Z42.92-97.3723.920.6100510.029.9202751013.7TRUETRUEVFRMETAR398.02019-09-20 01:08:45h|)35    3KY50 200056Z AUTO 00000KT 10SM BKN020 OVC026 21/19 A3007 RMK AO2 SLP177 T02060194 $KY502019-09-20T00:56:00Z44.03-89.320.619.40010.030.0708661017.7TRUETRUETRUEMVFRMETAR262.02019-09-20 01:08:45 w!Ccwf)+5     3PAHX 200056Z AUTO 03009KT 10SM CLR 09/03 A2960 RMK AO2 SLP023 T00890033 PWINO $PAHX2019-09-20T00:56:00Z62.7-159.578.93.330910.029.6013771002.3TRUETRUETRUETRUEVFRMETAR24.02019-09-20 01:08:45Z)!5    3PAGL 200056Z AUTO 28005KT 10SM FEW041 08/02 A2964 RMK AO2 SLP035 T00830017PAGL2019-09-20T00:56:00Z64.55-163.038.31.7280510.029.6397631003.5TRUETRUEVFRMETAR8.02019-09-20 01:08:45X)5    3PAFM 200056Z AUTO 32006KT 10SM CLR 07/M02 A2969 RMK AO2 SLP069 T00721022PAFM2019-09-20T00:56:00Z67.1-157.857.2-2.2320610.029.689961006.9TRUETRUEVFRMETAR88.02019-09-20 01:08:45Y)5    3PAFE 200056Z AUTO 15005KT 10SM CLR 16/10 A2996 RMK AO2 SLP157 T01560100PAFE2019-09-20T00:56:00Z56.97-133.9215.610.0150510.029.9586621015.7TRUETRUEVFRMETAR9.02019-09-20 01:08:45 #CeS)#5     3PANA 200056Z AUTO 02004KT 10SM FEW023 09/04 RMK AO2 SLPNO T00940044 PWINO $PANA2019-09-20T00:56:00Z60.68-161.989.44.420410.0TRUETRUETRUETRUEVFRMETAR5.02019-09-20 01:08:45X)!5    3PALG 200056Z AUTO 00000KT 10SM FEW065 09/04 A2954 RMK AO2 SLP008 T00890039PALG2019-09-20T00:56:00Z61.53-160.338.93.90010.029.539371000.8TRUETRUEVFRMETAR17.02019-09-20 01:08:45Z)5    3PAKP 200056Z AUTO 18007KT 10SM CLR 04/M04 A2958 RMK AO2 SLP060 T00441039PAKP2019-09-20T00:56:00Z68.13-151.734.4-3.9180710.029.580711006.0TRUETRUEVFRMETAR642.02019-09-20 01:08:45W)5    3PAKK 200056Z AUTO 05005KT 10SM CLR 09/00 A2960 RMK AO2 SLP038 T00890000PAKK2019-09-20T00:56:00Z64.93-161.158.90.050510.029.6013771003.8TRUETRUEVFRMETAR47.02019-09-20 01:08:45 [6S[r )C5      3PASL 200056Z AUTO 00000KT 10SM -RA FEW019 OVC024 05/04 A2961 RMK AO2 SLP025 P0001 T00500039PASL2019-09-20T00:56:00Z61.72-157.155.03.90010.029.6102371002.5TRUETRUE-RAMVFR0.01METAR55.02019-09-20 01:08:45] )5    3PARS 200056Z AUTO 05005KT 10SM CLR 09/02 A2957 RMK AO2 SLP017 T00940017 $PARS2019-09-20T00:56:00Z61.77-161.329.41.750510.029.5688971001.7TRUETRUETRUEVFRMETAR16.02019-09-20 01:08:45\ )!5    3PAQH 200056Z AUTO 19003KT 10SM OVC019 08/04 A2955 RMK AO2 SLP006 T00780044PAQH2019-09-20T00:56:00Z59.75-161.857.84.4190310.029.5511821000.6TRUETRUEMVFRMETAR13.02019-09-20 01:08:45b)/5    3PANI 200056Z AUTO 11008KT 10SM BKN022 OVC075 06/03 A2956 RMK AO2 SLP012 T00610028PANI2019-09-20T00:56:00Z61.58-159.536.12.8110810.029.560041001.2TRUETRUEMVFRMETAR26.02019-09-20 01:08:45 A AY)-5    3PFKW 200056Z AUTO 11005KT 10SM FEW026 BKN047 09/04 A2953 RMK AO2 SLPNO T00890039PFKW2019-09-20T00:56:00Z60.8-161.438.93.9110510.029.530512TRUETRUEVFRMETAR8.02019-09-20 01:08:45W)5    3PFEL 200056Z AUTO 11005KT 10SM CLR 07/02 A2956 RMK AO2 SLP010 T00720017PFEL2019-09-20T00:56:00Z64.62-162.277.21.7110510.029.560041001.0TRUETRUEVFRMETAR49.02019-09-20 01:08:45 )s5       3PFCL 200056Z AUTO 36009KT 10SM -RA FEW003 BKN010 OVC017 10/10 A2951 RMK AO2 CIG 007V012 SLP987 P0010 T01000100 TSNOPFCL2019-09-20T00:56:00Z58.83-158.5310.010.0360910.029.509842998.7TRUETRUETRUE-RAMVFR0.1METAR24.02019-09-20 01:08:45g )-5     3PATQ 200056Z AUTO 19009KT 10SM OVC022 03/M02 A2962 RMK AO2 SLP037 T00331017 TSNOPATQ2019-09-20T00:56:00Z70.47-157.433.3-1.7190910.029.6190951003.7TRUETRUETRUEMVFRMETAR29.02019-09-20 01:08:45 Z ;Z[)!5    3K1M4 200056Z AUTO 14003KT 10SM BKN070 26/19 A3011 RMK AO2 SLP576 T02560194K1M42019-09-20T00:56:00Z34.28-87.625.619.4140310.030.109253957.6TRUETRUEVFRMETAR284.02019-09-20 01:08:45_)%5     3PPIT 200056Z AUTO 05010KT 10SM CLR 08/05 A2955 RMK AO2 SLP005 T00830050 TSNOPPIT2019-09-20T00:56:00Z60.9-162.438.35.0501010.029.5511821000.5TRUETRUETRUEVFRMETAR4.02019-09-20 01:08:45y)Q5      3PFWS 200056Z AUTO 20006KT 10SM -RA SCT011 SCT018 OVC048 12/11 A2954 RMK AO2 SLP009 P0001 T01170111PFWS2019-09-20T00:56:00Z58.7-157.011.711.1200610.029.539371000.9TRUETRUE-RAVFR0.01METAR49.02019-09-20 01:08:45[)!5    3PFNO 200056Z AUTO 24007KT 10SM SCT039 06/02 A2966 RMK AO2 SLP046 T00610022PFNO2019-09-20T00:56:00Z66.82-161.026.12.2240710.029.6604331004.6TRUETRUEVFRMETAR17.02019-09-20 01:08:45 $GhT)5    3KAIZ 200056Z AUTO 12004KT 10SM CLR 27/21 A3000 RMK AO2 SLP147 T02720206KAIZ2019-09-20T00:56:00Z38.1-92.5327.220.6120410.030.01014.7TRUETRUEVFRMETAR265.02019-09-20 01:08:45Y)5    3KAFJ 200056Z AUTO 02003KT 10SM CLR 16/12 A3023 RMK AO2 SLP236 T01610122KAFJ2019-09-20T00:56:00Z40.12-80.2716.112.220310.030.2303141023.6TRUETRUEVFRMETAR361.02019-09-20 01:08:45W)5    3KADF 200056Z AUTO 18003KT 10SM CLR 26/23 A2998 RMK AO2 SLP154 T02560228KADF2019-09-20T00:56:00Z34.1-93.0725.622.8180310.029.979331015.4TRUETRUEVFRMETAR56.02019-09-20 01:08:45V)5    3K7N0 200056Z AUTO VRB05KT 10SM CLR 30/23 A3001 RMK AO2 SLP162 T03000233K7N02019-09-20T00:56:00Z29.95-90.0730.023.30510.030.0088581016.2TRUETRUEVFRMETAR0.02019-09-20 01:08:45 =`J) 5      3KAUO 200056Z AUTO 09007KT 10SM CLR A3015 RMK AO2 SLPNO FZRANO $KAUO2019-09-20T00:56:00Z32.62-85.4290710.030.15059TRUETRUETRUETRUEVFRMETAR236.02019-09-20 01:08:45M)5    3KASH 200056Z 00000KT 10SM CLR 11/08 A3026 RMK AO2 SLP252 T01060083KASH2019-09-20T00:56:00Z42.78-71.5210.68.30010.030.2598421025.2TRUEVFRSPECI61.02019-09-20 01:08:45W)5    3KARG 200056Z AUTO 12009KT 9SM CLR 28/19 A2999 RMK AO2 SLP153 T02780194KARG2019-09-20T00:56:00Z36.12-90.9227.819.412099.029.9911421015.3TRUETRUEVFRMETAR83.02019-09-20 01:08:45=)5    3KAJO 200056Z AUTO 10SM CLR 23/16 RMK AO2 SLPNO T02280161 $KAJO2019-09-20T00:56:00Z33.9-117.622.816.110.0TRUETRUETRUEVFRMETAR163.02019-09-20 01:08:45